SQLite format 3@ /)/)-)v?tablebuoy_nowbuoy_nowCREATE TABLE buoy_now ( STN, LAT, LON, YYYY, MM, DD, hh, minute, WDIR, WSPD, GST, WVHT, DPD, APD, MWD, PRES, PTDY, ATMP, WTMP, DEWP, VIS, TIDE, raw_text DEFAULT '', timestamp TIMESTAMP DEFAULT CURRENT_TIMESTAMP )j7tablebuoybuoyCREATE TABLE buoy ( STN, LAT, LON, YYYY, MM, DD, hh, minute, WDIR, WSPD, GST, WVHT, DPD, APD, MWD, PRES, PTDY, ATMP, WTMP, DEWP, VIS, TIDE, raw_text DEFAULT '', timestamp TIMESTAMP DEFAULT C   `{tmf_XQJC<5.'  xqjc\UNG@92+$|ung`YRKD=6/(! A201++;*s*sC*)\)G/( (y(i''S[&O&?&' %k%_H$6$'$3w#D#k1#"""?X!+!wb!  KylYHSWQ1+$c[37{mo1 |HC M{A3!O =#e[RD~/SCg.z>;gs/#Gph%nSD   'v O _ v e 3E  kn # q ?SwUH=KdmF&WH#+xfc$g7;u)XR,ib,h? j7tablebuoybuoyCREATE TABLE buoy ( STN, LAT, LON, YYYY, MM, DD, hh, minute, WDIR, WSPD, GST, WVHT, DPD, APD, MWD, PRES, PTDY, ATMP, WTMP, DEWP, VIS, TIDE, raw_text DEFAULT '', timestamp TIMESTAMP DEFAULT CURRENT_TIMESTAMP )v?tablebuoy_nowbuoy_nowCREATE TABLE buoy_now ( STN, LAT, LON, YYYY, MM, DD, hh, minute, WDIR, WSPD, GST, WVHT, DPD, APD, MWD, PRES, PTDY, ATMP, WTMP, DEWP, VIS, TIDE, raw_text DEFAULT '', timestamp TIMESTAMP DEFAULT CURRENT_TIMESTAMP ) nnj}tablemetarmetarCREATE TABLE metar ( raw_text DEFAULT '', station_id, observation_time, latitude, longitude, temp_c, dewpoint_c, wind_dir_degrees, wind_speed_kt, wind_gust_kt, visibility_statute_mi, altim_in_hg, sea_level_pressure_mb, corrected, auto, auto_station, maintenance_indicator_on, no_signal, lightning_sensor_off, freezing_rain_sensor_off, present_weather_sensor_off, wx_string, sky_cover, cloud_base_ft_agl, flight_category, three_hr_pressure_tendency_mb, maxT_c, minT_c, maxT24hr_c, minT24hr_c, precip_in, pcp3hr_in, pcp6hr_in, pcp24hr_in, snow_in, vert_vis_ft, metar_type, elevation_m, timestamp TIMESTAMP DEFAULT CURRENT_TIMESTAMP ) A~ytojd^XRLF@:4.(" ztnhb\VPJD>82,& ~xrlf`ZTNHB<60*$APۗۖ ە۔ۓے|ۑxېtۏpێlۍhیdۋ`ۊ\ۉXۈTۇPۆLۅHۄDۃ@ۂ<ہ8ۀ40~,}(|${ zyxwv utsr|qxptopnlmglck_jZiUhQgMfHeDd@c<b8a4`0_,^(]$\ [ZYXW VUTS|RxQtPpOlNhMdL`K\JXITHPGLFHEDD@C<B8A4@0?,>(=$< ;:987 6543|2x1t0p/l.h-d,`+\*W)R(N'J&F%B$>#:"5!0Тa_M} +ܛcuۛۚX )tablemetar_nowmetar_nowCREATE TABLE metar_now ( raw_text DEFAULT '', station_id, observation_time, latitude, longitude, temp_c, dewpoint_c, wind_dir_degrees, wind_speed_kt, wind_gust_kt, visibility_statute_mi, altim_in_hg, sea_level_pressure_mb, corrected, auto, auto_station, maintenance_indicator_on, no_signal, lightning_sensor_off, freezing_rain_sensor_off, present_weather_sensor_off, wx_string, sky_cover, cloud_base_ft_agl, flight_category, three_hr_pressure_tendency_mb, maxT_c, minT_c, maxT24hr_c, minT24hr_c, precip_in, pcp3hr_in, pcp6hr_in, pcp24hr_in, snow_in, vert_vis_ft, metar_type, elevation_m, timestamp TIMESTAMP DEFAULT CURRENT_TIMESTAMP )T tableshipship CREATE TABLE ship (day, dewpoint_c, gust, latitude, longitude, maxgst, sea_level_pressure_mb, station_id, temp_c, wind, raw_text DEFAULT '', timestamp TIMESTAMP DEFAULT CURRENT_TIMESTAMP )S{tmf_XQJC<5.'  xqjc\UNG@92+$|ung`YRKD=6/(! 22.4O~NpMbLTKGJ:I,HGFEtDeCVBGA8@*?> =~/ v i [ M ? 1#xiZK=/ ufYL>1$ {m`RE7팚*쌚댚ꌚ錙s茙f猙X挙J匙<䌙,㌙⌙ጙR9~xrlf`ZTNHB<60*$ 0.6G1728.5-80.21022.34100924.4010142019-12-12 17:05:23H   311/1920.3G1031.9-74.91021.64100221.929062019-12-12 17:05:23F    311/1918.9-31.3154.81010.03EUS22.0140122019-12-12 17:05:23:    311/190.058.71.93ETB97.42202019-12-12 17:05:238     311/19-19.0-161.3329752202019-12-12 17:05:238     311/19-21.0-155.6327163302019-12-12 17:05:238     311/19-29.6-149.6325512202019-12-12 17:05:23<     311/1921.1131.21014.3/////1102019-12-12 17:05:237     311/19-28.2-29.9156102202019-12-12 17:05:236   '  s eWJ=0"xj\NA3% |oaSE8*seWI;-paRC2#߁ށtgYI:- =uWFuindexi3buoyCREATE UNIQUE INDEX i3 ON buoy(STN,YYYY,MM,DD,hh,mm)F kindexi2metar_nowCREATE UNIQUE INDEX i2 ON metar_now(station_id)`tableship_nowship_now CREATE TABLE ship_now (day, dewpoint_c, gust, latitude, longitude, maxgst, sea_level_pressure_mb, station_id, temp_c, wind, raw_text DEFAULT '', timestamp TIMESTAMP DEFAULT CURRENT_TIMESTAMP )t;tablestationss`tableship_nowship_now CREATE TABLE ship_now (day, dewpoint_c, gust, latitude, longitude, maxgst, sea_level_pressure_mb, station_id, temp_c, wind, raw_text DEFAULT '', timestamp TIMESTAMP DEFAULT CURRENT_TIMESTAMP )t;tablestationsstations CREATE TABLE stations ( metar TEXT, wmob INT, wmos INT, city TEXT, state TEXT, country TEXT, latitude DOUBLE, longitude DOUBLE, elevation DOUBLE, x DOUBLE, y DOUBLE, z DOUBLE, humor TEXT, source TEXT )B[indexi_metarstations CREATE INDEX i_metar ON stations(metar) E~xrlf`ZTNHB<60*$ |vpjd^XRLF@:4.(" ztnhb\VPJD>82,& DDᛈuᚈmᙈeᘈ\ᗈSᖈJᕈAᔈ8ᓈ/ᒈ&ᑈᐈᏈ ᎈፇyጇo዇eኇ[ቇRሇIᇇ@ᆇ7ᅇ.ᄇ$Ⴧႇ၇ဆ|r~h}^|T{Iz?y5x+w!vuts~ruqlpcoZnQmHl?k6j-i$hgfedvcmbda[`R_J^B]9\0['ZYX WV{UrTiS`RWQOPGO>N6M.L'KJI HGzFqEiD`CXBOAF@>?6>.=%<;: 98{7r6i5`4Y3Q2I1@07/..%-,+ *)z(r'j#cS}ぬqq⟝Ac័ជyugYK=/!yk]OA3% }oaSE7) { KNBG KMSS KMJX KMAI < KLOT  KLAM KJFX_ KIGC ^ KHRL , KHCD KGPT KFYV KFGN S KESF  KECP KDNV KD19 z KCOS C KCEW KBUR KBIH KAWI c KALY1 K9W7 K87Q K62W K4A6c K36Y K25R K13A HSTR! HFFF7 GUMA GCLA FYWB FQLCV FLMP FCOG FAMM ETUNw ESSK4 EPSK ENHE EHMA EGSY[ EGDY EDSB EBLB DISSf DABC CYYU CYSK CYLK^ CYCQ CXOX CXBK CWVO CWRHZ CWMZ CWIU CWETCWAR4 KMJXp^L:(ucQ?- zhVD2 ~( ţ|DA ' %*%& A V% ЫMP$ J# KWX1" #쇡 !  ٦Z=  pq#a Ț  򆪲- +;>}i  Qz DNv* ̘\} ͽ\? = έщp#  ϔUZ _ "~~ :_A Ҵ2 h)L% > +v !%瀕W V/m# vfr &F:f T l9x# I Fw ؒ'4z QWG PWM> ;h# E Nh5  ڽ =^-0 ܤv# 1}{ \Y%B ]x>0L # ac> ⚏ M rp#  ` ?UWsUy, ?by++ Jp^L:(tbP>,xfTB0 | Wg f> ~ y#8} [J| )YG b{ 笸@z O-y Μ x ufb+w  v Ӱ%lu i$ t /bh s E5xer _L]q xnip z20@o ʢy@n Q@dm  1 l .7 ;k QpG"j }GdK i 雋`qxh ^* g ԭ߷A Tf عTe Id , c KVbb t ͗a ް !1` Ni~ _  [^  -p !] 8HJ \ _wN[ ū\4Z Jir/Y GVX >^#W NOAV %cgU RC( _T 'S T63pR {2tf ?ҿt/( ە|0ie 笸@Dp^L:(tbP>,xfTB0 |! ?1mrOG ?ZZ ?߭PU^ ?=@! ?޷r! ?O=8 ?ᵇj ? LFBG LBGO S KVNC KTRK KSUX> KSHR KRWIr KRBL KPMH KOVSO߿ KO69E߾ KMVL߽ KMKG߼ KM04y߻ KLHQߺKJFX;߹ KIAG߸ KHMN߷ KGTRH߶ KGBDߵ KFFTߴ KELP߳ KDTA߲ KCXYz߱ KCMD߰ KC83=߯ KBKLH߮ KAVKD߭ KAIT߬K6B9K߫ K1OW>ߪ GOSS vߩ FNCAߨ ETHF ߧ ENSL|ߦ EICK ߥ EGOV ߤ EEEIߣ DNAK ߢ CYZT ߡ CYSFߠ CYKGZߟ CYATVߞ CXBOߝ CWPZ KM04y   6n1yAkindexi6shipCREATE UNIQUE INDEX i6 ON ship(station_id, day)Diindexi5ship_nowCREATE UNIQUE INDEX i5 ON ship_now(station_id)6 Kindexi_xstationsCREATE INDEX i_x ON stations(x)6 Kindexi_ystationsCREATE INDEX i_y ON stations(y)6 Kindexi_zstationsCREATE INDEX i_z ON stations(z)Q indexi1metarCREATE UNIQUE INDEX i1 ON metar(station_id, observation_time)F kindexi2metar_nowCREATE UNIQUE INDEX i2 ON metar_now(station_id)Fuindexi3buoyCREATE UNIQUE INDEX i3 ON buoy(STN,YYYY,MM,DD,hh,mm)=[indexi4buoy_nowCREATE UNIQUE INDEX i4 ON buoy_now(STN) ZxiZvlbXND:0&|rh^TJ@6,"xndZPF<2(  44091T 44090S 44089R 44087Q 44086P 44072O 44069N 44066M 44065L 44064K 44063J 44062I 44058H 44056G 44042F 44040E 44022D 44020C 44011B 44008A 42395@ 42099? 42098> 42097= 42095< 42085; 42067: 420599 420588 420577 420566 420405 420394 420363 420352 420201 420190 42012/ 42003. 42002- 42001, 41159+ 41119* 41117) 41115( 41114' 41113& 41112% 41110$ 41108# 41064" 41056! 41053 41052 41049 41048 41047 41046 41044 41043 41040 41038 41037 41033 41029 41025 41024  VCAF1 RPRN6 NWPO3q KYWF1+ EUCDE46 CPXC1 ANTA2a 63112! 62119 46240 44064K|fP:$t^H2{eP:" mMACM411/18LF4B11/19fKPTN611/17IDDEU0311/17 FGDXM611/18FMRF111/18EUCFR0211/18tEUCDE3311/17 EUCDE1511/18jELFA211/18DBLK11/192CNBF111/17ICDRF111/17 BURL111/19BDRN411/19ATGM111/18#AMOUK6611/19AMOUK4011/17>AMOUK0511/18 9V928711/196311511/196305911/196216411/186214911/186213311/186211611/185656511/185200211/185120711/17 5100111/184625811/194622411/194618311/17 4608311/17 4602811/19|4409811/19r4404011/194208511/19A4111511/184103711/199V928711/19 7JJ?R(y5    3KDUA 111701Z AUTO 19007KT 10SM CLR 08/01 A3056 RMK AO2KDUA2019-12-11T17:01:00Z33.95-96.48.01.0190710.030.561024TRUETRUEVFRMETAR213.02019-12-11 17:07:20{Q);5     3KGLR 111701Z AUTO 26014G24KT 1/4SM -SN FZFG VV013 M13/M15 A3014 RMK AO2 P0000 T11331150KGLR2019-12-11T17:01:00Z45.02-84.68-13.3-15.026014240.2530.138779TRUETRUE-SN FZFGLIFR0.0051300SPECI407.02019-12-11 17:07:20hP)-5     3PAFS 111701Z AUTO 07005KT 10SM CLR M09/M10 A2951 RMK AO2 SLP005 T10891100 FZRANOPAFS2019-12-11T17:01:00Z63.02-154.35-8.9-10.070510.029.5098421000.5TRUETRUETRUEVFRMETAR126.02019-12-11 17:07:20DO)5    3YMEN 111701Z AUTO 23008KT 9999 // BKN017 OVC023 13/10 Q1017YMEN2019-12-11T17:01:00Z-37.72144.913.010.023086.2130.029528TRUEMVFRSPECI86.02019-12-11 17:07:20 JAJ4W(s5   3LBIA 111700Z 05010KT 9999 SCT033 OVC060 09/07 Q1013LBIA2019-12-11T17:00:00Z42.4526.359.07.050106.2129.911417VFRMETAR155.02019-12-11 17:07:209V(w5    3LDZD 111700Z 10003KT 050V160 CAVOK 05/M01 Q1010 NOSIGLDZD2019-12-11T17:00:00Z44.115.375.0-1.010036.2129.822834TRUEVFRMETAR84.02019-12-11 17:07:20EU) 5    3SOCA 111700Z AUTO 07017KT 9999 FEW043 SCT050 BKN160 30/23 Q1009SOCA2019-12-11T17:00:00Z4.82-52.3730.023.070176.2129.793306TRUEVFRMETAR9.02019-12-11 17:07:201T(g5    3LDSP 111700Z 35007KT CAVOK 10/M00 Q1009 NOSIGLDSP2019-12-11T17:00:00Z43.5216.310.00.035076.2129.793306TRUEVFRMETAR21.02019-12-11 17:07:20:S(u5    3LDZA 111700Z 22002KT 9999 BKN043 M00/M04 Q1015 NOSIGLDZA2019-12-11T17:00:00Z45.7216.070.0-4.022026.2129.970472TRUEVFRMETAR107.02019-12-11 17:07:20 ]B]8\(q5   3MGGT 111700Z 36014KT 9999 BKN020 22/14 Q1028 A3036MGGT2019-12-11T17:00:00Z14.57-90.5322.014.0360146.2130.35433MVFRMETAR1509.02019-12-11 17:07:205[(s5   3MRLB 111700Z 06013KT 9999 FEW040 BKN220 31/20 A2988MRLB2019-12-11T17:00:00Z10.6-85.5531.020.060136.2129.878937VFRMETAR82.02019-12-11 17:07:20+Z(Y5   3SBPK 111700Z 11012KT CAVOK 35/19 Q1006SBPK2019-12-11T17:00:00Z-31.72-52.3335.019.0110126.2129.704725VFRMETAR13.02019-12-11 17:07:209Y(o5    3MYNN 111700Z 14013KT 9999 VCSH BKN025 28/22 A3019MYNN2019-12-11T17:00:00Z25.03-77.4728.022.0140136.2130.188976VCSHMVFRMETAR3.02019-12-11 17:07:209X(y5    3LBPG 111700Z 23006KT 1000 RA FEW002 OVC019 05/05 Q1013LBPG2019-12-11T17:00:00Z42.2824.725.05.023060.6229.911417RALIFRMETAR58.02019-12-11 17:07:20 <C<.a(e5   3SBSV 111700Z 09011KT 9999 FEW023 29/21 Q1011SBSV2019-12-11T17:00:00Z-12.9-38.3229.021.090116.2129.852362VFRMETAR6.02019-12-11 17:07:20R`)'5     3UBBL 111700Z 00000KT 4000 BR BKN100 04/04 Q1022 R33/CLRD// NOSIG RMK MT OBSC UBBL2019-12-11T17:00:00Z38.7548.824.04.0002.4930.177166TRUEBRIFRMETAR10.02019-12-11 17:07:20>_(u5    3SCEL 111700Z 16012KT 130V190 CAVOK 28/10 Q1015 NOSIGSCEL2019-12-11T17:00:00Z-33.37-70.7728.010.0160126.2129.970472TRUEVFRMETAR476.02019-12-11 17:07:205^(u5   3FASI 111700Z AUTO 26002KT //// // ////// 21/11 Q1021FASI2019-12-11T17:00:00Z-26.2528.421.011.0260230.147638TRUEMETAR1628.02019-12-11 17:07:208](s5   3SBCF 111700Z 02006KT 9999 BKN030 BKN100 26/19 Q1014SBCF2019-12-11T17:00:00Z-19.63-43.9726.019.02066.2129.940945MVFRMETAR828.02019-12-11 17:07:20 CNCMf)5    3BKPR 111700Z 36011KT 9999 SCT014 BKN050 02/M00 Q1012 NOSIG RMK 17010095BKPR2019-12-11T17:00:00Z42.5821.032.00.0360116.2129.88189TRUEVFRMETAR576.02019-12-11 17:07:200e(e5   3SBAR 111700Z 11012KT 9999 FEW023 30/21 Q1010SBAR2019-12-11T17:00:00Z-10.97-37.0730.021.0110126.2129.822834VFRMETAR9.02019-12-11 17:07:20Ed)5   3AGGH 111700Z 18005KT 9999 FEW014 FEW015CB 23/23 Q1006 RMKS CB TO SAGGH2019-12-11T17:00:00Z-9.42160.0523.023.018056.2129.704725VFRMETAR9.02019-12-11 17:07:205c(s5   3PLCH 111700Z 12004KT 9999 SCT020 BKN100 27/23 Q1011PLCH2019-12-11T17:00:00Z1.98-157.3527.023.012046.2129.852362VFRMETAR3.02019-12-11 17:07:20-b(e5   3MBPV 111700Z 05008KT 9999 FEW012 28/27 Q1019MBPV2019-12-11T17:00:00Z21.77-72.2728.027.05086.2130.088583VFRMETAR5.02019-12-11 17:07:20 1Ir19k(s5   3SBLO 111700Z 35009KT 9999 BKN013 SCT020 25/22 Q1010SBLO2019-12-11T17:00:00Z-23.32-51.1225.022.035096.2129.822834MVFRMETAR570.02019-12-11 17:07:20l_y)%5      3PAGM 111700Z AUTO 11017KT 2SM BR OVC003 M01/M01 A2942 RMK AO2 VIS 1V5 FZRANOPAGM2019-12-11T17:00:00Z63.77-171.73-1.0-1.0110172.029.421259TRUETRUETRUEBRLIFRMETAR8.02019-12-11 17:07:20Mx)5     3WSSS 111700Z 02005KT 310V070 9999 -RA FEW016 BKN260 25/24 Q1012 NOSIGWSSS2019-12-11T17:00:00Z1.37103.9725.024.02056.2129.88189TRUE-RAVFRMETAR16.02019-12-11 17:07:20uw)g5    3TFFR 111700Z AUTO 09011KT 040V120 9999 FEW029/// SCT034/// BKN090/// ///CB 29/22 Q1014 TEMPO 3000 SHRA SCT030TFFR2019-12-11T17:00:00Z16.27-61.5329.022.090116.2129.940945TRUEVFRMETAR11.02019-12-11 17:07:20Cv(5     3FMMT 111700Z 32004KT 9999 VCSH SCT017CB 25/22 Q1011 NOSIGFMMT2019-12-11T17:00:00Z-18.1249.3825.022.032046.2129.852362TRUEVCSHVFRMETAR6.02019-12-11 17:07:20 ;;|;R~)#5    3FMMI 111700Z 09008KT 060V120 9999 TS FEW017CB BKN020 20/19 Q1018 TEMPO TSRAFMMI2019-12-11T17:00:00Z-18.847.4720.019.09086.2130.059055TSMVFRMETAR1276.02019-12-11 17:07:20+}(Y5   3SAAR 111700Z 36014KT CAVOK 36/14 Q1002SAAR2019-12-11T17:00:00Z-32.92-60.7736.014.0360146.2129.586615VFRMETAR25.02019-12-11 17:07:205|(e5    3SAEZ 111700Z 33010KT CAVOK 35/13 Q1003 NOSIGSAEZ2019-12-11T17:00:00Z-34.82-58.5235.013.0330106.2129.616142TRUEVFRMETAR20.02019-12-11 17:07:20:{(y5   3SAOC 111700Z 09005KT 9999 FEW020 SCT035TCU 36/11 Q1002SAOC2019-12-11T17:00:00Z-33.12-64.2736.011.09056.2129.586615VFRMETAR421.02019-12-11 17:07:20@z(}5    3KCVH 111700Z AUTO 00000KT 8SM OVC043 11/10 A3026 RMK A01KCVH2019-12-11T17:00:00Z36.9-121.4211.010.0008.030.259842TRUETRUEVFRSPECI70.02019-12-11 17:07:20 RK R4(s5   3FIMP 111700Z VRB01KT 9999 SCT018 SCT250 26/24 Q1014FIMP2019-12-11T17:00:00Z-20.4257.6726.024.0016.2129.940945VFRMETAR57.02019-12-11 17:07:204(k5    3GQPP 111700Z 07006KT 6000 NSC 25/08 Q1015 NOSIGGQPP2019-12-11T17:00:00Z20.92-17.0225.08.07063.7329.970472TRUEMVFRMETAR3.02019-12-11 17:07:20D)5     3VOCB 111700Z 00000KT 4000 HZ FEW012 SCT080 25/19 Q1014 NOSIGVOCB2019-12-11T17:00:00Z11.0277.0325.019.0002.4929.940945TRUEHZIFRMETAR399.02019-12-11 17:07:209(q5    3VOML 111700Z 04003KT 6000 FEW020 27/23 Q1011 NOSIGVOML2019-12-11T17:00:00Z12.9774.8827.023.04033.7329.852362TRUEMVFRMETAR103.02019-12-11 17:07:200(e5   3TRPG 111700Z 12015KT 9999 SCT015 25/22 Q1015TRPG2019-12-11T17:00:00Z16.78-62.225.022.0120156.2129.970472VFRMETAR168.02019-12-11 17:07:20 CLC>(}5    3MNMG 111700Z 08012KT 9999 FEW024 30/26 Q1012 A2990 NOSIGMNMG2019-12-11T17:00:00Z12.15-86.1730.026.080126.2129.88189TRUEVFRMETAR59.02019-12-11 17:07:207(s5   3SADF 111700Z 29013KT 9999 FEW035 BKN200 36/14 Q1003SADF2019-12-11T17:00:00Z-34.45-58.5836.014.0290136.2129.616142VFRMETAR4.02019-12-11 17:07:209(o5    3NFTF 111700Z 00000KT 50KM VCBR FEW016 19/19 Q1010NFTF2019-12-11T17:00:00Z-21.23-175.1519.019.00031.0729.822834VCBRVFRMETAR38.02019-12-11 17:07:20G)5   3NFTL 111700Z 00000KT 9999 SCT017TCU 23/23 Q1009 RMK GRASS DEW METAR NFTL2019-12-11T17:00:00Z-19.78-174.3323.023.0006.2129.793306VFRMETAR3.02019-12-11 17:07:20/(e5   3NFTV 111700Z 00000KT 9999 FEW018 22/21 Q1009NFTV2019-12-11T17:00:00Z-18.58-173.9722.021.0006.2129.793306VFRMETAR71.02019-12-11 17:07:20 *c*9 (q5    3GMME 111700Z 33003KT 8000 SCT020 16/12 Q1027 NOSIGGMME2019-12-11T17:00:00Z34.03-6.7716.012.033034.9730.324802TRUEMVFRMETAR75.02019-12-11 17:07:202 (e5    3GMFO 111700Z 25009KT CAVOK 15/02 Q1024 NOSIGGMFO2019-12-11T17:00:00Z34.77-1.9215.02.025096.2130.236221TRUEVFRMETAR470.02019-12-11 17:07:20? (5    3GMFF 111700Z 28005KT 9999 FEW026 SCT200 14/10 Q1028 NOSIGGMFF2019-12-11T17:00:00Z33.92-4.9714.010.028056.2130.35433TRUEVFRMETAR579.02019-12-11 17:07:202 (e5    3GMAD 111700Z 23009KT CAVOK 18/11 Q1023 NOSIGGMAD2019-12-11T17:00:00Z30.32-9.4218.011.023096.2130.206694TRUEVFRMETAR74.02019-12-11 17:07:20a );5   3KNEL 111700Z 28005KT BKN011 OVC040 02/M01 A3028 RMK AO2 CIG 008V014 SLP254 T00171006 $ KNEL2019-12-11T17:00:00Z40.02-74.331.7-0.6280530.2805121025.4TRUETRUEMETAR31.02019-12-11 17:07:20 &B&V)+5    3YBBN 111700Z 35012KT 9999 FEW010 21/20 Q1010 SMOKE AT SURFACE AND THICKLY ALOFTYBBN2019-12-11T17:00:00Z-27.38153.1321.020.0350126.2129.822834ICVFRSPECI5.02019-12-11 17:07:209(o5    3TKPN 111700Z 10012KT 9999 VCSH SCT018 28/21 Q1015TKPN2019-12-11T17:00:00Z17.18-62.5728.021.0100126.2129.970472VCSHVFRMETAR17.02019-12-11 17:07:20@)5    3GMTT 111700Z 21006KT 180V240 9999 BKN033 16/13 Q1027 NOSIGGMTT2019-12-11T17:00:00Z35.72-5.916.013.021066.2130.324802TRUEVFRMETAR21.02019-12-11 17:07:209(u5    3GMMX 111700Z 02003KT 350V050 CAVOK 21/07 Q1026 NOSIGGMMX2019-12-11T17:00:00Z31.62-8.0221.07.02036.2130.295275TRUEVFRMETAR466.02019-12-11 17:07:209(q5    3GMMN 111700Z 35006KT 9999 FEW016 16/11 Q1027 NOSIGGMMN2019-12-11T17:00:00Z33.37-7.5716.011.035066.2130.324802TRUEVFRMETAR206.02019-12-11 17:07:20 5tJ)5    3UTAK 111700Z 27006KT 9999 BKN027 OVC100 07/05 Q1019 R16R/GLRD70 NOSIGUTAK2019-12-11T17:00:00Z40.0553.07.05.027066.2130.088583TRUEMVFRMETAR85.02019-12-11 17:07:20L)5    3UTAA 111700Z 00000MPS 9999 FEW025CB OVC025 08/05 Q1019 R88/CLRD70 NOSIGUTAA2019-12-11T17:00:00Z37.9858.378.05.0006.2130.088583TRUEMVFRMETAR210.02019-12-11 17:07:20<(5    3LWSK 111700Z 00000KT 9999 SCT026 OVC040 05/04 Q1013 NOSIGLWSK2019-12-11T17:00:00Z41.9721.635.04.0006.2129.911417TRUEVFRMETAR239.02019-12-11 17:07:20F) 5    3NCRG 111700Z AUTO 07010KT 9999 BKN012/// BKN037/// 25/24 Q1012NCRG2019-12-11T17:00:00Z-21.2-159.8225.024.070106.2129.88189TRUEMVFRMETAR7.02019-12-11 17:07:20 A5{A,(e5   3LPAR 111700Z 01011KT 9999 FEW040 13/05 Q1030LPAR2019-12-11T17:00:00Z38.88-9.0313.05.010116.2130.413385VFRMETAR3.02019-12-11 17:07:20.(e5   3LPMR 111700Z 35005KT 9999 BKN025 12/07 Q1030LPMR2019-12-11T17:00:00Z39.82-8.8712.07.035056.2130.413385MVFRMETAR54.02019-12-11 17:07:20Q))5   3UTAT 111700Z 28012KT 8000 OVC010 04/02 Q1017 R26/19//60 TEMPO 0700 DZ FG VV002UTAT2019-12-11T17:00:00Z41.7759.834.02.0280124.9730.029528MVFRMETAR83.02019-12-11 17:07:205(s5   3LPOV 111700Z 33006KT 9999 FEW015 SCT035 12/10 Q1029LPOV2019-12-11T17:00:00Z40.92-8.6512.010.033066.2130.383858VFRMETAR17.02019-12-11 17:07:20F) 5     3UTAM 111700Z 32008KT 4700 BR OVC011 07/06 Q1020 R88/CLRD70 NOSIGUTAM2019-12-11T17:00:00Z37.6261.97.06.032082.9230.11811TRUEBRIFRMETAR222.02019-12-11 17:07:20 M<6 (w5   3EPLB 111700Z 08005KT 6000 BKN030 OVC046 M00/M00 Q1017EPLB2019-12-11T17:00:00Z51.2322.720.00.08053.7330.029528MVFRMETAR206.02019-12-11 17:07:20/(c5   3EPKT 111700Z 12007KT 7000 NSC M03/M05 Q1013EPKT2019-12-11T17:00:00Z50.4719.08-3.0-5.012074.3529.911417MVFRMETAR284.02019-12-11 17:07:20-(e5   3LPMT 111700Z 36011KT 9999 FEW040 13/05 Q1030LPMT2019-12-11T17:00:00Z38.7-9.0513.05.0360116.2130.413385VFRMETAR11.02019-12-11 17:07:20&(]5   3EPBY 111700Z 15009KT CAVOK M00/M05 Q1012EPBY2019-12-11T17:00:00Z53.118.00.0-5.015096.2129.88189VFRMETAR71.02019-12-11 17:07:20.(e5   3LPST 111700Z 35008KT 9999 SCT020 12/06 Q1030LPST2019-12-11T17:00:00Z38.82-9.3212.06.035086.2130.413385VFRMETAR130.02019-12-11 17:07:20 PC,%(c5   3EPZG 111700Z 06001KT 8000 NSC M01/M02 Q1010EPZG2019-12-11T17:00:00Z52.1315.8-1.0-2.06014.9729.822834MVFRMETAR59.02019-12-11 17:07:20+$(]5   3EPSY 111700Z 14008KT CAVOK M03/M05 Q1015EPSY2019-12-11T17:00:00Z53.4720.93-3.0-5.014086.2129.970472VFRMETAR141.02019-12-11 17:07:20+#(]5   3EPWR 111700Z 13011KT CAVOK M02/M05 Q1011EPWR2019-12-11T17:00:00Z51.116.87-2.0-5.0130116.2129.852362VFRMETAR121.02019-12-11 17:07:20("([5   3EPSC 111700Z 15011KT CAVOK 02/M02 Q1008EPSC2019-12-11T17:00:00Z53.5814.92.0-2.0150116.2129.763779VFRMETAR47.02019-12-11 17:07:20+!(]5   3EPMO 111700Z 13007KT CAVOK M01/M04 Q1015EPMO2019-12-11T17:00:00Z52.4520.65-1.0-4.013076.2129.970472VFRMETAR104.02019-12-11 17:07:20 m;m(*([5   3EPPO 111700Z 14008KT CAVOK 00/M06 Q1011EPPO2019-12-11T17:00:00Z52.4216.820.0-6.014086.2129.852362VFRMETAR92.02019-12-11 17:07:202)(m5   3EPLL 111700Z 11005KT 080V140 CAVOK M02/M04 Q1013EPLL2019-12-11T17:00:00Z51.7219.4-2.0-4.011056.2129.911417VFRMETAR184.02019-12-11 17:07:20)((]5   3EPKK 111700Z 03006KT CAVOK M02/M05 Q1013EPKK2019-12-11T17:00:00Z50.0719.8-2.0-5.03066.2129.911417VFRMETAR237.02019-12-11 17:07:207'(s5   3EPGD 111700Z 16011KT CAVOK M01/M05 Q1010 R11/290095EPGD2019-12-11T17:00:00Z54.3718.47-1.0-5.0160116.2129.822834VFRMETAR138.02019-12-11 17:07:20@&(5    3NTAA 111700Z 20004KT 9999 FEW020 BKN100 27/22 Q1012 NOSIGNTAA2019-12-11T17:00:00Z-17.55-149.6227.022.020046.2129.88189TRUEVFRMETAR2.02019-12-11 17:07:20 kH!k1/(e5    3GMMW 111700Z 04003KT CAVOK 16/02 Q1023 NOSIGGMMW2019-12-11T17:00:00Z34.98-3.0216.02.04036.2130.206694TRUEVFRMETAR175.02019-12-11 17:07:204.(e5    3GMAT 111700Z 34006KT CAVOK 17/13 Q1023 NOSIGGMAT2019-12-11T17:00:00Z28.43-11.1517.013.034066.2130.206694TRUEVFRMETAR200.02019-12-11 17:07:204-(k5    3GMMI 111700Z 02010KT 8000 NSC 21/12 Q1024 NOSIGGMMI2019-12-11T17:00:00Z31.4-9.6821.012.020104.9730.236221TRUEMVFRMETAR8.02019-12-11 17:07:200,(i5    3EPWA 111700Z 13009KT CAVOK M01/M03 Q1016 NOSIGEPWA2019-12-11T17:00:00Z52.1720.97-1.0-3.013096.2130.0TRUEVFRMETAR107.02019-12-11 17:07:203+(s5   3EPRZ 111700Z 10008KT 9999 BKN009 BKN030 01/00 Q1015EPRZ2019-12-11T17:00:00Z50.122.051.00.010086.2129.970472IFRMETAR202.02019-12-11 17:07:20 %K%P4)5     3UKBB 111700Z 10002MPS 5000 BR SCT003 OVC004 02/01 Q1022 R88/290050 NOSIGUKBB2019-12-11T17:00:00Z50.3330.92.01.010043.1130.177166TRUEBRLIFRMETAR119.02019-12-11 17:07:2023(e5    3VHHH 111700Z 10010KT CAVOK 19/13 Q1020 NOSIGVHHH2019-12-11T17:00:00Z22.32113.9219.013.0100106.2130.11811TRUEVFRMETAR9.02019-12-11 17:07:20I2)5    3GMTN 111700Z 27012KT 230V300 9999 FEW026 SCT100 18/10 Q1025 NOSIGGMTN2019-12-11T17:00:00Z35.57-5.3218.010.0270126.2130.265747TRUEVFRMETAR10.02019-12-11 17:07:20G1)5    3GMTA 111700Z 28006KT 240V300 9999 FEW033 SCT200 18/03 Q1024 NOSIGGMTA2019-12-11T17:00:00Z35.17-3.8518.03.028066.2130.236221TRUEVFRMETAR14.02019-12-11 17:07:2000(e5    3GMMZ 111700Z VRB02KT CAVOK 21/02 Q1024 NOSIGGMMZ2019-12-11T17:00:00Z30.92-6.921.02.0026.2130.236221TRUEVFRMETAR1140.02019-12-11 17:07:20 XyX8)-5     3UKDD 111700Z 03002MPS 0200 0150S R08/0700U FG VV000 03/03 Q1021 R08/210258 NOSIGUKDD2019-12-11T17:00:00Z48.3735.13.03.03040.1230.147638TRUEFGLIFR0METAR149.02019-12-11 17:07:20Z7)+5     3UKDE 111700Z 07002MPS 020V110 0350 0300N FG VV002 02/02 Q1022 R20L/290560 NOSIGUKDE2019-12-11T17:00:00Z47.8735.322.02.07040.2230.177166TRUEFGLIFR200METAR113.02019-12-11 17:07:20B6) 5    3UKOO 111700Z 06004MPS 9999 OVC006 06/05 Q1019 R34/190058 NOSIGUKOO2019-12-11T17:00:00Z46.4230.686.05.06086.2130.088583TRUEIFRMETAR35.02019-12-11 17:07:20\5)-5     3UKHH 111700Z 11001MPS 0500 0400W R07/0900N FG VV002 02/02 Q1022 R07/290079 NOSIGUKHH2019-12-11T17:00:00Z49.9236.282.02.011020.3130.177166TRUEFGLIFR200METAR155.02019-12-11 17:07:20 &S]<)15    3KDYL 111700Z AUTO 00000KT 10SM FEW009 BKN014 OVC048 02/M01 A3027 RMK AO2 T00171011KDYL2019-12-11T17:00:00Z40.33-75.121.7-1.10010.030.268702TRUETRUEMVFRSPECI117.02019-12-11 17:07:20L;)5    3PHTO 111700Z 19003KT 8SM SCT025 OVC044 22/19 A3008 RMK AO2 T02170189PHTO2019-12-11T17:00:00Z19.72-155.0521.718.919038.030.079725TRUEVFRSPECI12.02019-12-11 17:07:20N:)5     3UKLL 111700Z 13004MPS 2900 -SNRA OVC003 00/M01 Q1016 R13/290055 NOSIGUKLL2019-12-11T17:00:00Z49.8223.930.0-1.013081.830.0TRUE-SN -RALIFRMETAR325.02019-12-11 17:07:20U9)!5     3UKDR 111700Z 08002MPS 0150 R18/0500N FG VV001 04/04 Q1021 R18/19//60 NOSIGUKDR2019-12-11T17:00:00Z48.0533.224.04.08040.0930.147638TRUEFGLIFR100METAR124.02019-12-11 17:07:20 )DdK@)5    3KPAE 111700Z VRB03KT 10SM FEW003 BKN018 07/06 A3002 RMK AO2 T00720056KPAE2019-12-11T17:00:00Z47.92-122.287.25.60310.030.02067TRUEMVFRSPECI180.02019-12-11 17:07:20[?)35     3KPDT 111700Z 31007KT 1SM R26/P6000FT BR SCT001 OVC032 02/01 A3010 RMK AO2 T00170006KPDT2019-12-11T17:00:00Z45.7-118.831.70.631071.030.100393TRUEBRIFRSPECI462.02019-12-11 17:07:20`>)35    3KMYL 111700Z AUTO 03003KT 10SM FEW006 BKN016 OVC021 M02/M04 A3008 RMK AO2 T10171044KMYL2019-12-11T17:00:00Z44.9-116.1-1.7-4.430310.030.079725TRUETRUEMVFRSPECI1533.02019-12-11 17:07:20R=)5    3KIOW 111700Z AUTO 36007KT 10SM SCT017 M06/M09 A3048 RMK AO2 T10611089KIOW2019-12-11T17:00:00Z41.63-91.55-6.1-8.9360710.030.481298TRUETRUEVFRSPECI198.02019-12-11 17:07:20 m3Mm[D)35      3KTIW 111700Z 03003KT 3SM BR BKN030 OVC048 07/06 A3000 RMK AO2 RAE00 P0000 T00670061KTIW2019-12-11T17:00:00Z47.27-122.586.76.13033.030.0TRUEBRMVFR0.005SPECI89.02019-12-11 17:07:20aC)+5      3KTWF 111700Z 21007KT 10SM -RA BKN015 OVC021 01/00 A3017 RMK AO2 P0000 T00110000KTWF2019-12-11T17:00:00Z42.48-114.481.10.0210710.030.171259TRUE-RAMVFR0.005SPECI1266.02019-12-11 17:07:20GB) 5     3KSPG 111700Z 07004KT 2SM BR BKN011 22/21 A3018 RMK AO2 T02220211KSPG2019-12-11T17:00:00Z27.77-82.6322.221.17042.030.180119TRUEBRIFRSPECI2.02019-12-11 17:07:20|A)K5     3KRXE 111700Z AUTO 00000KT 1/2SM FZFG M03/M06 A3014 RMK AO2 SNEMM P0000 T10331056 PWINO FZRANO $KRXE2019-12-11T17:00:00Z43.83-111.8-3.3-5.6000.530.138779TRUETRUETRUETRUETRUEFZFG0.005SPECI1480.02019-12-11 17:07:20 *0o*=I)5     3VEGT 111700Z 00000KT 2500 BR SCT018 BKN100 19/17 Q1016 NOSIGVEGT2019-12-11T17:00:00Z26.191.5819.017.0001.5530.0TRUEBRIFRMETAR54.02019-12-11 17:07:20GH)5     3VOCL 111700Z 23002KT 5000 HZ FEW015 SCT090 27/22 Q1010 NOSIGVOCL2019-12-11T17:00:00Z11.1375.9527.022.023023.1129.822834TRUEHZMVFRMETAR104.02019-12-11 17:07:202G(e5    3HSSS 111700Z 35004KT CAVOK 28/06 Q1011 NOSIGHSSS2019-12-11T17:00:00Z15.5832.5328.06.035046.2129.852362TRUEVFRMETAR380.02019-12-11 17:07:20e(u5    3YMLT 111700Z AUTO 33014KT 9999 // SCT008 11/10 Q1010YMLT2019-12-11T17:00:00Z-41.52147.1811.010.0330146.2129.822834TRUEVFRMETAR178.02019-12-11 17:07:208d(o5    3YPEA 111700Z AUTO 09020KT 9999 // NCD 26/07 Q1015YPEA2019-12-11T17:00:00Z-31.67116.0226.07.090206.2129.970472TRUEVFRMETAR49.02019-12-11 17:07:209c(o5    3YPGV 111700Z AUTO 33005KT 9999 // NCD 27/23 Q1007YPGV2019-12-11T17:00:00Z-12.27136.8227.023.033056.2129.734253TRUEVFRMETAR55.02019-12-11 17:07:20 7<~78l(o5    3YBMA 111700Z AUTO 00000KT 9999 // NCD 22/17 Q1008YBMA2019-12-11T17:00:00Z-20.67139.4722.017.0006.2129.763779TRUEVFRMETAR344.02019-12-11 17:07:20@k(5    3YBRK 111700Z AUTO 09004KT 050V130 9999 // NCD 26/19 Q1011YBRK2019-12-11T17:00:00Z-23.37150.4726.019.09046.2129.852362TRUEVFRMETAR14.02019-12-11 17:07:20@j(5    3YBRM 111700Z AUTO 24007KT 190V270 9999 // NCD 30/26 Q1007YBRM2019-12-11T17:00:00Z-17.93122.2230.026.024076.2129.734253TRUEVFRMETAR9.02019-12-11 17:07:209i(o5    3YCIN 111700Z AUTO 29005KT 9999 // NCD 30/19 Q1005YCIN2019-12-11T17:00:00Z-17.58123.8330.019.029056.2129.675198TRUEVFRMETAR91.02019-12-11 17:07:20?h(u5    3YFRT 111700Z AUTO 13016KT 9999 // OVC017 16/12 Q1021YFRT2019-12-11T17:00:00Z-30.83128.1216.012.0130166.2130.147638TRUEMVFRMETAR156.02019-12-11 17:07:20 ND N:q(o5    3YCBP 111700Z AUTO 15017KT 9999 // NCD 26/02 Q1014YCBP2019-12-11T17:00:00Z-29.03134.7226.02.0150176.2129.940945TRUEVFRMETAR226.02019-12-11 17:07:208p(o5    3YCCY 111700Z AUTO 14002KT 9999 // NCD 29/05 Q1006YCCY2019-12-11T17:00:00Z-20.67140.529.05.014026.2129.704725TRUEVFRMETAR570.02019-12-11 17:07:209o(o5    3YAMB 111700Z AUTO 21002KT 9999 // NCD 21/18 Q1009YAMB2019-12-11T17:00:00Z-27.63152.7221.018.021026.2129.793306TRUEVFRMETAR28.02019-12-11 17:07:207n(o5    3YBCG 111700Z AUTO 33005KT 9999 // NCD 24/19 Q1008YBCG2019-12-11T17:00:00Z-28.17153.524.019.033056.2129.763779TRUEVFRMETAR6.02019-12-11 17:07:207m(o5    3YBHM 111700Z AUTO 09008KT 9999 // NCD 26/23 Q1010YBHM2019-12-11T17:00:00Z-20.35148.9526.023.09086.2129.822834TRUEVFRMETAR5.02019-12-11 17:07:20 RB R4v(u5   3YBWX 111700Z AUTO 28010KT //// // ////// 25/24 Q1008YBWX2019-12-11T17:00:00Z-20.88115.425.024.02801029.763779TRUEMETAR6.02019-12-11 17:07:20:u(u5    3YCAR 111700Z AUTO 06002KT 9000 // SCT009 23/22 Q1010YCAR2019-12-11T17:00:00Z-24.88113.6723.022.06025.5929.822834TRUEVFRMETAR8.02019-12-11 17:07:205t(u5   3YCAS 111700Z AUTO 20003KT //// // ////// 18/15 Q1009YCAS2019-12-11T17:00:00Z-28.88153.0718.015.0200329.793306TRUEMETAR26.02019-12-11 17:07:209s(q5    3YCBA 111700Z AUTO 22004KT 9999 // NCD 18/M03 Q1012YCBA2019-12-11T17:00:00Z-31.53145.818.0-3.022046.2129.88189TRUEVFRMETAR221.02019-12-11 17:07:209r(o5    3YCBB 111700Z AUTO 22005KT 9999 // NCD 18/11 Q1012YCBB2019-12-11T17:00:00Z-31.33149.2718.011.022056.2129.88189TRUEVFRMETAR645.02019-12-11 17:07:20 dId4{(i5    3LZIB 111700Z 08004KT CAVOK M03/M04 Q1014 NOSIGLZIB2019-12-11T17:00:00Z48.1717.22-3.0-4.08046.2129.940945TRUEVFRMETAR134.02019-12-11 17:07:205z(i5    3LZKZ 111700Z 20004KT CAVOK M02/M04 Q1015 NOSIGLZKZ2019-12-11T17:00:00Z48.6721.23-2.0-4.020046.2129.970472TRUEVFRMETAR232.02019-12-11 17:07:200y(e5   3SBPL 111700Z 12004KT 9999 FEW040 33/17 Q1010SBPL2019-12-11T17:00:00Z-9.37-40.5733.017.012046.2129.822834VFRMETAR375.02019-12-11 17:07:208x(s5   3SARI 111700Z 36007KT 9999 FEW030 SCT100 30/20 Q1007SARI2019-12-11T17:00:00Z-25.72-54.4730.020.036076.2129.734253VFRMETAR270.02019-12-11 17:07:202w(e5   3SASA 111700Z 36007KT 9999 FEW020 31/13 Q1010SASA2019-12-11T17:00:00Z-24.85-65.4731.013.036076.2129.822834VFRMETAR1216.02019-12-11 17:07:20 YGY9(o5    3YMAY 111700Z AUTO 15005KT 6000 // NCD 17/07 Q1012YMAY2019-12-11T17:00:00Z-36.07146.9317.07.015053.7329.88189TRUEMVFRSPECI171.02019-12-11 17:07:207(o5    3YGFN 111700Z AUTO 00000KT 4100 // NCD 19/18 Q1009YGFN2019-12-11T17:00:00Z-29.77153.0319.018.0002.5529.793306TRUEIFRSPECI34.02019-12-11 17:07:20<~(u5    3YPMQ 111700Z AUTO 22008KT 9000 // OVC012 21/19 Q1011YPMQ2019-12-11T17:00:00Z-31.43152.8721.019.022085.5929.852362TRUEMVFRSPECI4.02019-12-11 17:07:20.}(e5   3SBTE 111700Z 09004KT 9999 SCT040 36/18 Q1007SBTE2019-12-11T17:00:00Z-5.03-42.8236.018.09046.2129.734253VFRMETAR69.02019-12-11 17:07:204|(s5   3SBCP 111700Z 04008KT 9999 FEW020 BKN090 29/22 Q1009SBCP2019-12-11T17:00:00Z-21.7-41.329.022.04086.2129.793306VFRMETAR11.02019-12-11 17:07:20 @\F)5     3LBWN 111700Z 07015KT 9999 -RA SCT018 OVC042 11/08 Q1014 NOSIGLBWN2019-12-11T17:00:00Z43.2227.8211.08.070156.2129.940945TRUE-RAVFRMETAR43.02019-12-11 17:07:20?(5    3LBBG 111700Z 09011KT 9999 SCT021 BKN030 11/08 Q1014 NOSIGLBBG2019-12-11T17:00:00Z42.5727.5211.08.090116.2129.940945TRUEMVFRMETAR28.02019-12-11 17:07:20_)-5      3LBPD 111700Z AUTO 22003KT 4400 -RA BR FEW013 OVC017 05/05 Q1013 R99/19//95 NOSIGLBPD2019-12-11T17:00:00Z42.1324.85.05.022032.7329.911417TRUETRUE-RA BRIFRMETAR185.02019-12-11 17:07:20;(y5    3SBGL 111700Z 12010KT 4500 HZ BKN020 OVC027 26/22 Q1009SBGL2019-12-11T17:00:00Z-22.82-43.2526.022.0120102.829.793306HZIFRMETAR6.02019-12-11 17:07:20 H=H4 (i5   3SCRM 111700Z 10012KT 9999 BKN020 M02/M06 Q1002SCRM2019-12-11T17:00:00Z-62.18-58.98-2.0-6.0100126.2129.586615MVFRMETAR45.02019-12-11 17:07:20;(w5    3LDDU 111700Z 03012KT 320V100 CAVOK 11/M00 Q1008 NOSIGLDDU2019-12-11T17:00:00Z42.5718.2711.00.030126.2129.763779TRUEVFRMETAR165.02019-12-11 17:07:20>(}5     3LBGO 111700Z AUTO 24002KT 1600 -RA BR OVC002 04/04 Q1016LBGO2019-12-11T17:00:00Z43.1525.724.04.024020.9930.0TRUE-RA BRLIFRMETAR86.02019-12-11 17:07:204(i5    3LZTT 111700Z 25003KT CAVOK M07/M08 Q1012 NOSIGLZTT2019-12-11T17:00:00Z49.0720.25-7.0-8.025036.2129.88189TRUEVFRMETAR707.02019-12-11 17:07:20>(y5     3LBSF 111700Z 10005KT 6000 -RA OVC023 04/02 Q1013 NOSIGLBSF2019-12-11T17:00:00Z42.723.424.02.010053.7329.911417TRUE-RAMVFRMETAR530.02019-12-11 17:07:20 Z3vZ'(e5   3OSDI 111700Z 00000KT 9999 FEW030 11/08 Q1016OSDI2019-12-11T17:00:00Z33.4236.5211.08.0006.2130.0VFRMETAR605.02019-12-11 17:07:205 (s5   3SCGZ 111700Z 30006KT 9999 FEW040 BKN043 09/02 Q0997SCGZ2019-12-11T17:00:00Z-54.93-67.639.02.030066.2129.438976VFRMETAR27.02019-12-11 17:07:201 (e5   3SCHR 111700Z 27014KT 9999 BKN040 13/01 Q1003SCHR2019-12-11T17:00:00Z-47.22-72.5313.01.0270146.2129.616142VFRMETAR167.02019-12-11 17:07:208 (u5   3SCFM 111700Z 21023KT 9999 FEW025 BKN200 13/M00 Q1002SCFM2019-12-11T17:00:00Z-53.25-70.3213.00.0210236.2129.586615VFRMETAR30.02019-12-11 17:07:20H ) 5  3SCCC 111700Z 28023G33KT 9999 BKN046 15/M03 Q1003 RMK 1/8 AC LENTSCCC2019-12-11T17:00:00Z-46.58-71.715.0-3.028023336.2129.616142VFRMETAR325.02019-12-11 17:07:20 dId.(i5   3SCIC 111700Z 20010KT 160V270 CAVOK 25/09 Q1016SCIC2019-12-11T17:00:00Z-34.97-71.2225.09.0200106.2130.0VFRMETAR242.02019-12-11 17:07:20K)5    3LUKK 111700Z 05003KT 2400 BR OVC003 03/03 Q1020 R08/110095 TEMPO 0500 FGLUKK2019-12-11T17:00:00Z46.9328.933.03.05031.4930.11811BRLIFRMETAR122.02019-12-11 17:07:207(k5    3GVAC 111700Z 06017KT 6000 NSC 25/17 Q1013 NOSIGGVAC2019-12-11T17:00:00Z16.72-22.9325.017.060173.7329.911417TRUEMVFRMETAR55.02019-12-11 17:07:20!(Y5   3LDOS 111700Z 13004KT CAVOK 02/01 Q1016LDOS2019-12-11T17:00:00Z45.4718.822.01.013046.2130.0VFRMETAR89.02019-12-11 17:07:202(g5    3LDPL 111700Z 36005KT CAVOK 04/M06 Q1011 NOSIGLDPL2019-12-11T17:00:00Z44.8813.924.0-6.036056.2129.852362TRUEVFRMETAR63.02019-12-11 17:07:20 %3k%2(e5    3OMAA 111700Z 32005KT CAVOK 24/20 Q1013 NOSIGOMAA2019-12-11T17:00:00Z24.4254.6324.020.032056.2129.911417TRUEVFRMETAR27.02019-12-11 17:07:20T)!5    3PKWA 111700Z AUTO 07010KT 10SM SCT060 SCT070 28/25 A2980 RMK AO2 T02760248PKWA2019-12-11T17:00:00Z8.72167.7227.624.8701010.029.799213TRUETRUEVFRMETAR8.02019-12-11 17:07:201(e5   3SERB 111700Z 16008KT 9999 SCT040 20/10 Q1027SERB2019-12-11T17:00:00Z-1.62-78.6720.010.016086.2130.324802VFRMETAR2796.02019-12-11 17:07:20C)5    3UBBB 111700Z 32008KT 9999 BKN018 07/03 Q1021 R88/CLRD// NOSIGUBBB2019-12-11T17:00:00Z40.4550.077.03.032086.2130.147638TRUEMVFRMETAR-6.02019-12-11 17:07:20H)5    3FOOL 111700Z 24007KT 210V280 9999 FEW015 FEW020CB 28/25 Q1009 NOSIGFOOL2019-12-11T17:00:00Z0.459.4228.025.024076.2129.793306TRUEVFRMETAR15.02019-12-11 17:07:20 `J`6(q5    3OMFJ 111700Z 30013KT 5000 HZ NSC 24/19 Q1012 A2989OMFJ2019-12-11T17:00:00Z25.156.3224.019.0300133.1129.88189HZMVFRMETAR28.02019-12-11 17:07:20=({5    3OMDW 111700Z 33004KT 290V010 7000 NSC 22/20 Q1014 NOSIGOMDW2019-12-11T17:00:00Z24.955.1722.020.033044.3529.940945TRUEMVFRMETAR25.02019-12-11 17:07:201(e5    3OMDB 111700Z 32007KT CAVOK 24/20 Q1013 NOSIGOMDB2019-12-11T17:00:00Z25.2555.3724.020.032076.2129.911417TRUEVFRMETAR5.02019-12-11 17:07:202(e5    3OMAL 111700Z 16005KT CAVOK 21/15 Q1014 NOSIGOMAL2019-12-11T17:00:00Z24.2555.621.015.016056.2129.940945TRUEVFRMETAR262.02019-12-11 17:07:201(e5    3OMAD 111700Z 27003KT CAVOK 24/20 Q1013 NOSIGOMAD2019-12-11T17:00:00Z24.4254.4724.020.027036.2129.911417TRUEVFRMETAR3.02019-12-11 17:07:20 LFL/"(a5   3SCGE 111700Z 09005 9999 BKN030 24/10 Q1017SCGE2019-12-11T17:00:00Z-37.38-72.4224.010.09056.2130.029528MVFRMETAR114.02019-12-11 17:07:201!(e5   3SARP 111700Z 32004KT 9999 FEW010 34/21 Q1006SARP2019-12-11T17:00:00Z-27.38-55.9734.021.032046.2129.704725VFRMETAR125.02019-12-11 17:07:20M )5    3KPKV 111700Z AUTO 02009KT 10SM OVC016 10/07 A3052 RMK AO2 T01000066KPKV2019-12-11T17:00:00Z28.65-96.6810.06.620910.030.519686TRUETRUEMVFRMETAR9.02019-12-11 17:07:209(q5    3OMSJ 111700Z 30004KT 7000 FEW012 22/20 Q1013 NOSIGOMSJ2019-12-11T17:00:00Z25.3255.5222.020.030044.3529.911417TRUEMVFRMETAR33.02019-12-11 17:07:205(q5   3OMRK 111700Z 23003KT 8000 SCT040 21/20 Q1013 A2993OMRK2019-12-11T17:00:00Z25.6255.9221.020.023034.9729.911417MVFRMETAR31.02019-12-11 17:07:20 ?tA&(5    3NFFN 111700Z 13005KT 9999 FEW030 SCT050 22/20 Q1008 NOSIGNFFN2019-12-11T17:00:00Z-17.75177.4522.020.013056.2129.763779TRUEVFRMETAR18.02019-12-11 17:07:20F%) 5    3WAMM 111700Z 00000KT 7000 FEW018CB SCT020 24/23 Q1009 RERA NOSIGWAMM2019-12-11T17:00:00Z1.55124.9224.023.0004.3529.793306TRUEMVFRMETAR80.02019-12-11 17:07:20A$(5    3GVSV 111700Z 06021KT 7000 FEW022 BKN100 24/17 Q1014 NOSIGGVSV2019-12-11T17:00:00Z16.83-25.0724.017.060214.3529.940945TRUEMVFRMETAR20.02019-12-11 17:07:20v#)o5    3TFFF 111700Z AUTO 11007KT 070V150 9999 FEW030/// BKN040/// BKN052/// ///CB 27/23 Q1013 TEMPO 08017G28KT 4000 SHRATFFF2019-12-11T17:00:00Z14.6-61.027.023.011076.2129.911417TRUEVFRMETAR5.02019-12-11 17:07:20 bJ#b<+(u5    3YMDG 111700Z AUTO 02003KT 1800 // OVC020 15/12 Q1013YMDG2019-12-11T17:00:00Z-32.57149.6215.012.02031.1229.911417TRUEIFRSPECI471.02019-12-11 17:07:20>*(u5    3YTEF 111700Z AUTO 17020KT 5000 // OVC025 31/08 Q1009YTEF2019-12-11T17:00:00Z-21.72122.2331.08.0170203.1129.793306TRUEMVFRMETAR296.02019-12-11 17:07:20.)(e5   3SBMQ 111700Z 06012KT 9999 SCT025 34/24 Q1008SBMQ2019-12-11T17:00:00Z0.05-51.0734.024.060126.2129.763779VFRMETAR15.02019-12-11 17:07:20,((Y5   3SCVM 111700Z 30011KT CAVOK 18/13 Q1017SCVM2019-12-11T17:00:00Z-32.95-71.4818.013.0300116.2130.029528VFRMETAR141.02019-12-11 17:07:201'(e5   3SBBG 111700Z 18006KT 9999 FEW037 36/10 Q1006SBBG2019-12-11T17:00:00Z-31.38-54.1236.010.018066.2129.704725VFRMETAR180.02019-12-11 17:07:20 E@E70(k5    3GVBA 111700Z 04015KT 7000 NSC 24/18 Q1014 NOSIGGVBA2019-12-11T17:00:00Z16.13-22.8824.018.040154.3529.940945TRUEMVFRMETAR22.02019-12-11 17:07:20./(e5   3SBJE 111700Z 06018KT 9999 FEW020 32/23 Q1008SBJE2019-12-11T17:00:00Z-2.9-40.3532.023.060186.2129.763779VFRMETAR25.02019-12-11 17:07:20K.)5    3OPST 111700Z 00000KT 1500 BR SCT040 SCT100 13/11 Q1014 BECMG 1000 RH88OPST2019-12-11T17:00:00Z32.5374.3713.011.0000.9329.940945BRLIFRMETAR247.02019-12-11 17:07:207-(o5    3YBUD 111700Z AUTO 03009KT 9999 // NCD 24/20 Q1010YBUD2019-12-11T17:00:00Z-24.9152.3224.020.03096.2129.822834TRUEVFRMETAR82.02019-12-11 17:07:20;,(u5    3YBTL 111700Z AUTO 09005KT 9999 // BKN020 26/23 Q1009YBTL2019-12-11T17:00:00Z-19.25146.7526.023.09056.2129.793306TRUEMVFRMETAR6.02019-12-11 17:07:20 %Bv%/5(e5   3NFNA 111700Z 30003KT 9999 FEW020 21/21 Q1009NFNA2019-12-11T17:00:00Z-18.05178.5721.021.030036.2129.793306VFRMETAR5.02019-12-11 17:07:20T4)%5     3UBBQ 111700Z 13003KT 5000 BR SCT025 03/01 Q1020 R34/////// NOSIG RMK MT OBSCUBBQ2019-12-11T17:00:00Z40.8247.723.01.013033.1130.11811TRUEBRMVFRMETAR338.02019-12-11 17:07:20?3(5    3OLBA 111700Z 14007KT 9999 FEW026 BKN180 18/11 Q1015 NOSIGOLBA2019-12-11T17:00:00Z33.8235.4718.011.014076.2129.970472TRUEVFRMETAR19.02019-12-11 17:07:20G2(}5    3KVTP 111700Z AUTO 25017KT 10SM CLR M05/M12 A3022 RMK AO2KVTP2019-12-11T17:00:00Z37.5-105.17-5.0-12.02501710.030.221457TRUETRUEVFRSPECI3114.02019-12-11 17:07:2091(y5   3SBCR 111700Z 02008KT 9999 SCT030 FEW035TCU 33/23 Q1006SBCR2019-12-11T17:00:00Z-19.0-57.6733.023.02086.2129.704725VFRMETAR141.02019-12-11 17:07:20 5Ev51:(e5   3SBNF 111700Z 10010KT 9999 BKN023 27/23 Q1009SBNF2019-12-11T17:00:00Z-26.88-48.6527.023.0100106.2129.793306MVFRMETAR5.02019-12-11 17:07:20B9)5   3SBGO 111700Z 29008KT 9999 SCT040 FEW045TCU SCT100 30/19 Q1012SBGO2019-12-11T17:00:00Z-16.62-49.2230.019.029086.2129.88189VFRMETAR747.02019-12-11 17:07:20?8(5    3HECA 111700Z 17007KT 6000 SCT025 BKN070 18/06 Q1013 NOSIGHECA2019-12-11T17:00:00Z30.1231.3818.06.017073.7329.911417TRUEMVFRMETAR74.02019-12-11 17:07:20J7) 5   3BIIS 111700Z 02017G27KT 1000 SN VV010 M03/M05 Q0992 R88/790391BIIS2019-12-11T17:00:00Z66.05-23.13-3.0-5.02017270.6229.291338SNLIFR1000METAR3.02019-12-11 17:07:2066(s5   3SBBE 111700Z 05009KT 8000 SCT029 BKN030 28/23 Q1009SBBE2019-12-11T17:00:00Z-1.37-48.4728.023.05094.9729.793306MVFRMETAR16.02019-12-11 17:07:20 K"?(75  3NCAI 111700Z AUTO NILNCAI2019-12-11T17:00:00Z-18.82-159.77TRUEMETAR6.02019-12-11 17:07:20+>(o5    3NCAT 111700Z AUTO 10003KT //// ////// ///// Q1006NCAT2019-12-11T17:00:00Z-19.97-158.12100329.704725TRUEMETAR11.02019-12-11 17:07:204=(k5    3ORER 111700Z 32003KT 7000 NSC 09/07 Q1020 NOSIGORER2019-12-11T17:00:00Z36.2343.979.07.032034.3530.11811TRUEMVFRMETAR409.02019-12-11 17:07:20;<(w5     3ORNI 111700Z 01004KT 4000 DU SCT040 16/12 Q1018 NOSIGORNI2019-12-11T17:00:00Z31.9844.416.012.01042.4930.059055TRUEDUIFRMETAR53.02019-12-11 17:07:200;(e5    3ORMM 111700Z 25006KT CAVOK 15/09 Q1018 NOSIGORMM2019-12-11T17:00:00Z30.5747.6715.09.025066.2130.059055TRUEVFRMETAR2.02019-12-11 17:07:20 ~L3~0D(o5   3NCPY 111700Z AUTO 06004KT //// ////// 28/23 Q1011NCPY2019-12-11T17:00:00Z-9.02-158.0728.023.060429.852362TRUEMETAR2.02019-12-11 17:07:201C(o5   3NCMK 111700Z AUTO 08004KT //// ////// 25/25 Q1011NCMK2019-12-11T17:00:00Z-20.15-157.3825.025.080429.852362TRUEMETAR9.02019-12-11 17:07:20(B(o5    3NCMR 111700Z AUTO 07005KT //// ////// ///// Q1011NCMR2019-12-11T17:00:00Z-19.85-157.770529.852362TRUEMETAR8.02019-12-11 17:07:201A(o5   3NCMH 111700Z AUTO 16002KT //// ////// 27/27 Q1010NCMH2019-12-11T17:00:00Z-10.38-161.027.027.0160229.822834TRUEMETAR0.02019-12-11 17:07:20/@(u5    3NCMG 111700Z AUTO 09008G19KT //// ////// ///// Q1008NCMG2019-12-11T17:00:00Z-21.92-157.959081929.763779TRUEMETAR41.02019-12-11 17:07:20 &J&JI)5    3MROC 111700Z 10010KT 070V130 9999 FEW035 BKN200 26/15 A3003 NOSIGMROC2019-12-11T17:00:00Z10.0-84.2226.015.0100106.2130.029528TRUEVFRMETAR920.02019-12-11 17:07:20NH)5    3SPJC 111700Z 17010KT 9999 SCT011 OVC027 22/19 Q1014 NOSIG RMK PP000SPJC2019-12-11T17:00:00Z-12.02-77.1222.019.0170106.2129.940945TRUEMVFRMETAR13.02019-12-11 17:07:20GG)5    3SKBQ 111700Z 31003KT 250V050 9999 FEW015 SCT200 31/23 A2985 NOSIGSKBQ2019-12-11T17:00:00Z10.9-74.7731.023.031036.2129.84941TRUEVFRMETAR10.02019-12-11 17:07:201F(o5   3NCRK 111700Z AUTO 09001KT //// ////// 25/24 Q1010NCRK2019-12-11T17:00:00Z-10.05-161.0825.024.090129.822834TRUEMETAR5.02019-12-11 17:07:201E(o5   3NCPK 111700Z AUTO 05003KT //// ////// 27/24 Q1009NCPK2019-12-11T17:00:00Z-10.88-165.8227.024.050329.793306TRUEMETAR3.02019-12-11 17:07:20 K5M(s5   3SKLT 111700Z 34004KT 9999 SCT015 BKN100 29/24 A2986SKLT2019-12-11T17:00:00Z-4.2-69.9329.024.034046.2129.861221VFRMETAR84.02019-12-11 17:07:20.L(e5   3SKCC 111700Z 02008KT 9999 SCT018 28/22 A2997SKCC2019-12-11T17:00:00Z7.92-72.5228.022.02086.2129.970472VFRMETAR317.02019-12-11 17:07:20NK)%5    3SKCL 111700Z 01004KT 9999 SCT030TCU SCT200 28/19 A3000 NOSIG RMK TCU SW/S/SESKCL2019-12-11T17:00:00Z3.53-76.3728.019.01046.2130.0TRUEVFRMETAR969.02019-12-11 17:07:20]J)?5   3SKBO 111700Z 30005KT 210V020 8000 SCT15TCU FEW023 SCT200 20/07 A3030 TEMPO 1730 TS RMK HZSKBO2019-12-11T17:00:00Z4.7-74.1220.07.030054.9730.301182MVFRMETAR2548.02019-12-11 17:07:20 #,p#JR) 5    3KATP 111700Z AUTO 05025KT 7SM BKN014 BKN019 20/19 A3022 RMK A01KATP2019-12-11T17:00:00Z27.2-90.0320.019.050257.030.221457TRUETRUEMVFRMETAR62.02019-12-11 17:07:206Q(i5    3RKSS 111700Z 31010KT CAVOK M01/M07 Q1025 NOSIGRKSS2019-12-11T17:00:00Z37.53126.78-1.0-7.0310106.2130.265747TRUEVFRMETAR19.02019-12-11 17:07:20>P(y5    3SBSJ 111700Z 32003KT 5000 HZ SCT017 BKN040 26/19 Q1011SBSJ2019-12-11T17:00:00Z-23.22-45.8726.019.032033.1129.852362HZMVFRMETAR646.02019-12-11 17:07:207O(s5   3SKPE 111700Z 33006KT 9999 FEW014 SCT080 24/20 A3007SKPE2019-12-11T17:00:00Z4.82-75.7324.020.033066.2130.070866VFRMETAR1346.02019-12-11 17:07:20ON)5    3SKRG 111700Z VRB02KT 9999 SCT020TCU SCT200 22/12 A3028 NOSIG RMK TCU/W/NSKRG2019-12-11T17:00:00Z6.17-75.4222.012.0026.2130.280512TRUEVFRMETAR2137.02019-12-11 17:07:20 (!N('W([5   3LDRI 111700Z 04008KT CAVOK 06/M05 Q1011LDRI2019-12-11T17:00:00Z45.2214.576.0-5.04086.2129.852362VFRMETAR85.02019-12-11 17:07:20@V(5    3MRPV 111700Z 07011KT 9999 FEW045 BKN180 24/15 A3006 NOSIGMRPV2019-12-11T17:00:00Z9.95-84.1524.015.070116.2130.059055TRUEVFRMETAR994.02019-12-11 17:07:200U(e5   3SBFN 111700Z 13012KT 9999 SCT021 29/21 Q1010SBFN2019-12-11T17:00:00Z-3.85-32.4229.021.0130126.2129.822834VFRMETAR56.02019-12-11 17:07:20NT)5   3KWBF 111700Z AUTO VRB08G23KT 330V040 7SM BKN015 20/19 A3023 RMK A01KWBF2019-12-11T17:00:00Z26.93-90.520.019.008237.030.230314TRUETRUEMVFRMETAR10.02019-12-11 17:07:20ZS))5     3KVOA 111700Z AUTO 03034KT 2SM HZ BKN014 OVC019 13/11 A3031 RMK A01 VIS 1 1/4V5KVOA2019-12-11T17:00:00Z29.23-87.7813.011.030342.030.31004TRUETRUEHZIFRMETAR53.02019-12-11 17:07:20 T4vT5\(k5    3ORBI 111700Z 33005KT 6000 NSC 12/09 Q1019 NOSIGORBI2019-12-11T17:00:00Z33.2744.2312.09.033053.7330.088583TRUEMVFRMETAR35.02019-12-11 17:07:20'[(Y5   3GBYD 111700Z 00000KT CAVOK 29/17 Q1009GBYD2019-12-11T17:00:00Z13.33-16.6529.017.0006.2129.793306VFRMETAR36.02019-12-11 17:07:207Z(s5   3SBCT 111700Z 04005KT 9999 BKN025 BKN040 25/18 Q1012SBCT2019-12-11T17:00:00Z-25.52-49.1725.018.04056.2129.88189MVFRMETAR908.02019-12-11 17:07:209Y(q5    3WIII 111700Z 16003KT 6000 FEW020 26/21 Q1010 NOSIGWIII2019-12-11T17:00:00Z-6.13106.6726.021.016033.7329.822834TRUEMVFRMETAR8.02019-12-11 17:07:20GX)5     3LFVP 111700Z 31012KT 8000 -RA BKN013 OVC020 02/02 Q1014 NOSIGLFVP2019-12-11T17:00:00Z46.77-56.182.02.0310124.9729.940945TRUE-RAMVFRMETAR8.02019-12-11 17:07:20 H@H2a(s5   3SKBG 111700Z 32008KT 9999 SCT010 SCT240 26/21 A3000SKBG2019-12-11T17:00:00Z7.13-73.1826.021.032086.2130.0VFRMETAR1189.02019-12-11 17:07:20D`) 5    3SKSP 111700Z 08011KT 040V140 9999 DZ SCT016 BKN200 31/25 A2993SKSP2019-12-11T17:00:00Z12.57-81.7231.025.080116.2129.929134DZVFRMETAR-2.02019-12-11 17:07:206_(s5   3SBVT 111700Z 05014KT 9999 FEW035 BKN100 30/23 Q1009SBVT2019-12-11T17:00:00Z-20.27-40.2730.023.050146.2129.793306VFRMETAR4.02019-12-11 17:07:208^(s5   3SBMA 111700Z 36003KT 9999 BKN022 SCT100 33/24 Q1009SBMA2019-12-11T17:00:00Z-5.37-49.1333.024.036036.2129.793306MVFRMETAR102.02019-12-11 17:07:20;](u5    3TKPK 111700Z 08014KT 9999 -SHRA SCT014CB 28/25 Q1015TKPK2019-12-11T17:00:00Z17.3-62.7228.025.080146.2129.970472-SHRAVFRMETAR48.02019-12-11 17:07:20 &=&Qf)5    3K5R8 111700Z AUTO 03009KT 340V040 10SM CLR 09/01 A3052 RMK AO2 T00910006K5R82019-12-11T17:00:00Z30.43-93.479.10.630910.030.519686TRUETRUEVFRMETAR24.02019-12-11 17:07:20Ne) 5    3K2G4 111700Z AUTO 22008KT 202V262 10SM CLR M06/M12 A3021 RMK AO1K2G42019-12-11T17:00:00Z39.58-79.33-6.0-12.0220810.030.209646TRUETRUEVFRMETAR894.02019-12-11 17:07:206d(s5   3SBFI 111700Z 02009KT 9999 FEW040 BKN100 28/22 Q1007SBFI2019-12-11T17:00:00Z-25.6-54.4828.022.02096.2129.734253VFRMETAR243.02019-12-11 17:07:20.c(e5   3SBPB 111700Z 04011KT 9999 FEW020 31/24 Q1008SBPB2019-12-11T17:00:00Z-2.92-41.7531.024.040116.2129.763779VFRMETAR5.02019-12-11 17:07:20>b)5   3SBRB 111700Z 31001KT 9999 FEW011 SCT018 BKN100 27/25 Q1012SBRB2019-12-11T17:00:00Z-10.0-67.7827.025.031016.2129.88189VFRMETAR143.02019-12-11 17:07:20 97h99k(q5    3WAJJ 111700Z 20002KT 9999 SCT010 25/23 Q1008 NOSIGWAJJ2019-12-11T17:00:00Z-2.58140.5225.023.020026.2129.763779TRUEVFRMETAR88.02019-12-11 17:07:202j(e5    3OBBI 111700Z 33015KT CAVOK 22/14 Q1015 NOSIGOBBI2019-12-11T17:00:00Z26.2750.6322.014.0330156.2129.970472TRUEVFRMETAR2.02019-12-11 17:07:205i(s5   3FIMR 111700Z 08005KT 9999 FEW018 BKN050 27/25 Q1015FIMR2019-12-11T17:00:00Z-19.7563.3727.025.08056.2129.970472VFRMETAR31.02019-12-11 17:07:20Jh) 5     3KDZB 111700Z AUTO 00000KT 1 1/2SM BR OVC003 02/02 A3056 RMK AO2KDZB2019-12-11T17:00:00Z30.53-98.372.02.0001.530.561024TRUETRUEBRLIFRSPECI334.02019-12-11 17:07:20Dg)5   3MZBZ 111700Z 07011G21KT 9999 BKN024 30/25 A3005 Q1017 NOSIGMZBZ2019-12-11T17:00:00Z17.52-88.330.025.07011216.2130.029528TRUEMVFRMETAR5.02019-12-11 17:07:20 `K2`Mp)5     3SMJP 111700Z 08011KT 9999 -SHRA FEW015CB SCT018 28/25 Q1009 NOSIGSMJP2019-12-11T17:00:00Z5.45-55.1728.025.080116.2129.793306TRUE-SHRAVFRMETAR16.02019-12-11 17:07:20,o(e5   3SBPA 111700Z VRB05KT 9999 FEW030 34/16 Q1005SBPA2019-12-11T17:00:00Z-30.0-51.1734.016.0056.2129.675198VFRMETAR3.02019-12-11 17:07:203n(e5   3SBCG 111700Z 32010KT 9999 BKN027 29/23 Q1009SBCG2019-12-11T17:00:00Z-20.47-54.6729.023.0320106.2129.793306MVFRMETAR567.02019-12-11 17:07:20+m(Y5   3SAME 111700Z 14010KT CAVOK 32/06 Q1005SAME2019-12-11T17:00:00Z-32.82-68.7732.06.0140106.2129.675198VFRMETAR704.02019-12-11 17:07:200l(k5   3MYGF 111700Z 20009KT 9999 SCT018TCU 28/24 A3019MYGF2019-12-11T17:00:00Z26.55-78.728.024.020096.2130.188976VFRMETAR2.02019-12-11 17:07:20 F(hF.u(e5   3MGSJ 111700Z 11006KT CAVOK 31/20 Q1013 A2991MGSJ2019-12-11T17:00:00Z13.92-90.8331.020.011066.2129.911417VFRMETAR9.02019-12-11 17:07:20Ft) 5    3MGPB 111700Z 30006KT 9999 BKN018TCU 29/26 Q1017 A3003 TCU SSE/SMGPB2019-12-11T17:00:00Z15.72-88.5829.026.030066.2130.029528SSMVFRMETAR10.02019-12-11 17:07:20s(Y5   3MGHT 111700Z 00000KT 9999 SCT018 21/13MGHT2019-12-11T17:00:00Z15.32-91.521.013.0006.21VFRMETAR1901.02019-12-11 17:07:20;r(5   3MGMM 111700Z 00000KT 9999 FEW014 BKN018 26/24 Q1020 A3012MGMM2019-12-11T17:00:00Z16.97-89.8726.024.0006.2130.11811MVFRMETAR123.02019-12-11 17:07:20Sq)5     3SMZO 111700Z 03007KT 9999 -SHRA SCT015 FEW018CB SCT025 29/24 Q1009 NOSIGSMZO2019-12-11T17:00:00Z5.82-55.1829.024.03076.2129.793306TRUE-SHRAVFRMETAR10.02019-12-11 17:07:20 A rA1z(y5   3MGES 111700Z 03006KT 9999 BKN015 SCT090 23/18 QFE912.4MGES2019-12-11T17:00:00Z14.57-89.3223.018.03066.21MVFRMETAR965.02019-12-11 17:07:20/y(y5   3MGZA 111700Z 00000KT 9999 FEW028 33/19 QFE991/5 FEW090MGZA2019-12-11T17:00:00Z14.97-89.5233.019.0006.21VFRMETAR490.02019-12-11 17:07:20Bx)5   3MGCB 111700Z 00000KT 9999 FEW014 BKN016 19/17 QFE875.0 MTN N/NE CUB/CLMGCB2019-12-11T17:00:00Z15.48-90.4219.017.0006.21MVFRMETAR1316.02019-12-11 17:07:20)w(k5   3MGQZ 111700Z 05012KT 9999 FEW020 19/07 QFE775/6MGQZ2019-12-11T17:00:00Z14.87-91.519.07.050126.21VFRMETAR2371.02019-12-11 17:07:20[v);5    3MGRT 111700Z 12006KT CAVOK 32/21 Q1016 A3000 VOL,SANTA MARIA Y SANTIAGUITO EN ACTIVIDADMGRT2019-12-11T17:00:00Z14.53-91.732.021.012066.2130.0SA SAVFRMETAR200.02019-12-11 17:07:20 A>A>)5   3SBCB 111700Z 20008KT 9999 FEW010 SCT020 BKN090 26/23 Q1010SBCB2019-12-11T17:00:00Z-22.92-42.0826.023.020086.2129.822834VFRMETAR4.02019-12-11 17:07:207~(q5     3VGEG 111700Z 00000KT 3500 HZ NSC 19/17 Q1015 NOSIGVGEG2019-12-11T17:00:00Z22.2791.8219.017.0002.1729.970472TRUEHZIFRMETAR6.02019-12-11 17:07:20@})5   3LRTZ 111700Z 09016KT 9999 FEW005 BKN015 OVC050 10/06 Q1016 WHT WHTLRTZ2019-12-11T17:00:00Z43.9828.6210.06.090166.2130.0MVFRMETAR49.02019-12-11 17:07:204|({5    3LRCT 111700Z 22003KT 4500 BR OVC002 02/01 Q1016 AMB AMBLRCT2019-12-11T17:00:00Z46.523.882.01.022032.830.0BRLIFRMETAR331.02019-12-11 17:07:20={)5   3LRBO 111700Z 04014KT 6000 BKN009 OVC040 04/02 Q1018 WHT WHTLRBO2019-12-11T17:00:00Z45.2226.974.02.040143.7330.059055IFRMETAR103.02019-12-11 17:07:20 SES9(q5     3VANP 111700Z 00000KT 2500 HZ NSC 20/15 Q1014 NOSIGVANP2019-12-11T17:00:00Z21.0879.0520.015.0001.5529.940945TRUEHZIFRMETAR310.02019-12-11 17:07:208(q5    3WADL 111700Z 00000KT 7000 SCT016 26/23 Q1010 NOSIGWADL2019-12-11T17:00:00Z-8.75116.2826.023.0004.3529.822834TRUEMVFRMETAR97.02019-12-11 17:07:209(y5   3SBPP 111700Z 00000KT 9999 BKN025 FEW030TCU 30/20 Q1010SBPP2019-12-11T17:00:00Z-22.55-55.730.020.0006.2129.822834MVFRMETAR660.02019-12-11 17:07:204(q5     3OJAI 111700Z 04003KT 5000 HZ NSC 12/09 Q1016 NOSIGOJAI2019-12-11T17:00:00Z31.7236.012.09.04033.1130.0TRUEHZMVFRMETAR730.02019-12-11 17:07:206(s5   3SBKP 111700Z 03004KT 9999 FEW011 OVC080 24/20 Q1011SBKP2019-12-11T17:00:00Z-23.0-47.1224.020.03046.2129.852362VFRMETAR661.02019-12-11 17:07:20 mK#m1 (e5    3OEMA 111700Z 34004KT CAVOK 25/05 Q1015 NOSIGOEMA2019-12-11T17:00:00Z24.5539.725.05.034046.2129.970472TRUEVFRMETAR631.02019-12-11 17:07:208(q5    3OEJN 111700Z 33006KT 9999 FEW040 27/20 Q1011 NOSIGOEJN2019-12-11T17:00:00Z21.6839.1527.020.033066.2129.852362TRUEVFRMETAR15.02019-12-11 17:07:20,(e5    3OEDF 111700Z 30008KT CAVOK 18/12 Q1016 NOSIGOEDF2019-12-11T17:00:00Z26.4749.818.012.030086.2130.0TRUEVFRMETAR22.02019-12-11 17:07:205(e5    3FAOR 111700Z 21007KT CAVOK 21/10 Q1018 NOSIGFAOR2019-12-11T17:00:00Z-26.1228.2221.010.021076.2130.059055TRUEVFRMETAR1700.02019-12-11 17:07:200(e5   3SARL 111700Z 07010KT 9999 FEW020 35/14 Q1005SARL2019-12-11T17:00:00Z-29.67-57.1335.014.070106.2129.675198VFRMETAR70.02019-12-11 17:07:20 IB )5   3SPNC 111700Z 06017KT 9999 FEW040 SCT120 28/15 Q1018 RMK PP000SPNC2019-12-11T17:00:00Z-9.9-75.7528.015.060176.2130.059055VFRMETAR1860.02019-12-11 17:07:20Q )%5   3SPHI 111700Z 18012KT 9999 BKN035 26/17 Q1013 RMK BIRD HAZARD RWY 19/01 PP000SPHI2019-12-11T17:00:00Z-6.77-79.8226.017.0180126.2129.911417VFRMETAR34.02019-12-11 17:07:20E ) 5   3SPEO 111700Z 19017KT 9000 SCT012 SCT020 24/19 Q1013 RMK HZ PP000SPEO2019-12-11T17:00:00Z-9.17-78.5224.019.0190175.5929.911417VFRMETAR11.02019-12-11 17:07:202 (e5    3OERK 111700Z 05005KT CAVOK 18/12 Q1019 NOSIGOERK2019-12-11T17:00:00Z24.9546.7218.012.05056.2130.088583TRUEVFRMETAR612.02019-12-11 17:07:20 /?qI)5   3SPRU 111700Z 18011KT 9999 SCT033 BKN040 OVC060 22/18 Q1013 RMK PP000SPRU2019-12-11T17:00:00Z-8.08-79.1222.018.0180116.2129.911417VFRMETAR30.02019-12-11 17:07:20I) 5    3SPQU 111700Z 24010KT 210V300 CAVOK 19/05 Q1025 NOSIG RMK PP000SPQU2019-12-11T17:00:00Z-16.33-71.5719.05.0240106.2130.265747TRUEVFRMETAR2554.02019-12-11 17:07:20k)S5    3SPQT 111700Z VRB07KT 5000 SHRA BKN010 FEW020TCU BKN100 25/23 Q1010 TEMPO 1200 +SHRA RMK TCU S PP208SPQT2019-12-11T17:00:00Z-3.78-73.3225.023.0073.1129.822834SHRAMVFRMETAR126.02019-12-11 17:07:20L)5    3SPPY 111700Z 35008KT 9999 VCSH SCT015 SCT040 18/11 Q1027 RMK PP000SPPY2019-12-11T17:00:00Z-6.22-77.8218.011.035086.2130.324802VCSHVFRMETAR2435.02019-12-11 17:07:20 a~E)5    3SACO 111700Z 33011KT 300V020 9999 SCT045 37/16 Q1003 NOSIGSACO2019-12-11T17:00:00Z-31.32-64.2237.016.0330116.2129.616142TRUEVFRMETAR474.02019-12-11 17:07:20^)95    3SPZO 111700Z VRB06KT 9999 SCT040 BKN100 17/06 Q1030 NOSIG RMK BIRD HAZARD RWY 28 PP000SPZO2019-12-11T17:00:00Z-13.55-71.9717.06.0066.2130.413385TRUEVFRMETAR3249.02019-12-11 17:07:205(m5   3SPTN 111700Z 19005KT CAVOK 23/13 Q1015 RMK PP000SPTN2019-12-11T17:00:00Z-18.07-70.2823.013.019056.2129.970472VFRMETAR458.02019-12-11 17:07:20`)C5   3SPSO 111700Z 29005KT 260V320 9999 FEW020 OVC034 22/17 Q1013 RMK BIRD HAZARD RWY 22/04 PP000SPSO2019-12-11T17:00:00Z-13.73-76.2222.017.029056.2129.911417VFRMETAR10.02019-12-11 17:07:20 ;P ;K) 5    3SCIP 111700Z 32015KT 9999 SCT015 BKN040 BKN080 24/21 Q1017 NOSIGSCIP2019-12-11T17:00:00Z-27.17-109.4324.021.0320156.2130.029528TRUEVFRMETAR69.02019-12-11 17:07:20B)5   3SCAT 111700Z 24007KT 170V280 9999 FEW017 BKN023 18/12 Q1017SCAT2019-12-11T17:00:00Z-27.27-70.7718.012.024076.2130.029528MVFRMETAR204.02019-12-11 17:07:20<(q5    3SCFA 111700Z 20013KT 9999 FEW013 20/13 Q1014 NOSIGSCFA2019-12-11T17:00:00Z-23.42-70.4220.013.0200136.2129.940945TRUEVFRMETAR120.02019-12-11 17:07:208(s5   3SCDA 111700Z 23012KT 9999 FEW025 SCT300 22/12 Q1014SCDA2019-12-11T17:00:00Z-20.52-70.1722.012.0230126.2129.940945VFRMETAR52.02019-12-11 17:07:20+(Y5   3SCAR 111700Z 22011KT CAVOK 23/13 Q1014SCAR2019-12-11T17:00:00Z-18.35-70.3223.013.0220116.2129.940945VFRMETAR59.02019-12-11 17:07:20 {N+{+(Y5   3SCTB 111700Z 21007KT CAVOK 27/10 Q1017SCTB2019-12-11T17:00:00Z-33.45-70.5327.010.021076.2130.029528VFRMETAR649.02019-12-11 17:07:203(i5   3SCSN 111700Z 24012KT 210V270 CAVOK 18/12 Q1018SCSN2019-12-11T17:00:00Z-33.63-71.6218.012.0240126.2130.059055VFRMETAR75.02019-12-11 17:07:20+(Y5   3SCRD 111700Z 30008KT CAVOK 19/11 Q1017SCRD2019-12-11T17:00:00Z-33.07-71.5519.011.030086.2130.029528VFRMETAR336.02019-12-11 17:07:206(k5    3SCIR 111700Z 23009KT 5000 HZ BKN012 18/16 Q1023SCIR2019-12-11T17:00:00Z-33.67-78.9318.016.023093.1130.206694HZMVFRMETAR29.02019-12-11 17:07:20-(e5   3SCSE 111700Z 28012KT 9999 BKN018 18/12 Q1016SCSE2019-12-11T17:00:00Z-29.92-71.218.012.0280126.2130.0MVFRMETAR146.02019-12-11 17:07:20 `N`0$(e5   3SCVD 111700Z 25011KT 9999 BKN040 18/07 Q1018SCVD2019-12-11T17:00:00Z-39.65-73.0718.07.0250116.2130.059055VFRMETAR14.02019-12-11 17:07:209#(u5   3SCQP 111700Z 24014KT 220V280 9999 BKN020 17/08 Q1019SCQP2019-12-11T17:00:00Z-38.92-72.6517.08.0240146.2130.088583MVFRMETAR97.02019-12-11 17:07:20A")5   3SCIE 111700Z 24011KT 210V270 9999 FEW030 BKN050 19/13 Q1019SCIE2019-12-11T17:00:00Z-36.77-73.0719.013.0240116.2130.088583VFRMETAR16.02019-12-11 17:07:200!(e5   3SCCH 111700Z 19007KT 9999 SCT030 25/09 Q1017SCCH2019-12-11T17:00:00Z-36.57-72.0225.09.019076.2130.029528VFRMETAR148.02019-12-11 17:07:20- (e5   3SCRG 111700Z 19010KT 9999 FEW060 26/11 Q1016SCRG2019-12-11T17:00:00Z-34.17-70.7726.011.0190106.2130.0VFRMETAR441.02019-12-11 17:07:20 NMN=)({5  3SCFT 111700Z 27012G22KT 230V300 9999 BKN046 14/03 Q1012SCFT2019-12-11T17:00:00Z-43.17-71.8514.03.027012226.2129.88189VFRMETAR318.02019-12-11 17:07:204((s5   3SCTN 111700Z 18007KT 9999 FEW028 BKN035 12/09 Q1017SCTN2019-12-11T17:00:00Z-42.92-72.712.09.018076.2130.029528VFRMETAR4.02019-12-11 17:07:207'(u5   3SCPQ 111700Z 24013KT 210V270 9999 SCT040 15/04 Q1017SCPQ2019-12-11T17:00:00Z-42.33-73.7215.04.0240136.2130.029528VFRMETAR5.02019-12-11 17:07:20C&)5    3SCTE 111700Z 26012KT 230V310 9999 BKN040 15/06 Q1018 NOSIGSCTE2019-12-11T17:00:00Z-41.42-73.0715.06.0260126.2130.059055TRUEVFRMETAR86.02019-12-11 17:07:20.%(e5   3SCJO 111700Z 29005KT 9999 BKN035 17/07 Q1018SCJO2019-12-11T17:00:00Z-40.6-73.0317.07.029056.2130.059055VFRMETAR65.02019-12-11 17:07:20 /9/0.(k5    3MDSD 111700Z 06011KT 8000 DZ SCT018 28/22 Q1016MDSD2019-12-11T17:00:00Z18.42-69.6728.022.060114.9730.0DZMVFRMETAR18.02019-12-11 17:07:20R-)%5   3SPCL 111700Z 36007KT 9999 BKN025 31/23 Q1011 RMK BIRD HAZARD RWY 02/20 PP000SPCL2019-12-11T17:00:00Z-8.38-74.5831.023.036076.2129.852362MVFRMETAR149.02019-12-11 17:07:20D,)5    3SCCY 111700Z 22005KT 180V300 9999 -SHRA BKN030 10/04 Q1007SCCY2019-12-11T17:00:00Z-45.57-72.110.04.022056.2129.734253-SHRAMVFRMETAR311.02019-12-11 17:07:200+(e5   3SCMK 111700Z 22013KT 9999 BKN030 14/05 Q1015SCMK2019-12-11T17:00:00Z-43.9-73.7314.05.0220136.2129.970472MVFRMETAR11.02019-12-11 17:07:20B*(5    3SCAP 111700Z 25014KT 220V280 9000 VCSH BKN040 11/05 Q1013SCAP2019-12-11T17:00:00Z-43.62-71.7811.05.0250145.5929.911417VCSHVFRMETAR277.02019-12-11 17:07:20 XKX63(k5    3GVNP 111700Z 03010KT 8000 NSC 26/17 Q1012 NOSIGGVNP2019-12-11T17:00:00Z14.95-23.4826.017.030104.9729.88189TRUEMVFRMETAR70.02019-12-11 17:07:2062(u5   3MDST 111700Z 11005KT 060V160 9999 SCT022 29/22 Q1018MDST2019-12-11T17:00:00Z19.4-70.629.022.011056.2130.059055VFRMETAR184.02019-12-11 17:07:2091(q5    3MDPC 111700Z 08012KT 9999 FEW025 30/22 Q1017 NOSIGMDPC2019-12-11T17:00:00Z18.57-68.3730.022.080126.2130.029528TRUEVFRMETAR12.02019-12-11 17:07:20:0)5   3MDBH 111700Z 09008KT 9999 FEW022TCU FEW026 31/20 Q1016 TCU/SEMDBH2019-12-11T17:00:00Z18.25-71.1231.020.09086.2130.0VFRMETAR3.02019-12-11 17:07:200/(e5   3MDJB 111700Z 02010KT 9999 BKN018 29/23 Q1018MDJB2019-12-11T17:00:00Z18.57-69.9829.023.020106.2130.059055MVFRMETAR30.02019-12-11 17:07:20 VNV98(y5   3SPHO 111700Z VRB02KT 9999 FEW015 20/08 Q1025 RMK PP000SPHO2019-12-11T17:00:00Z-13.17-74.2220.08.0026.2130.265747VFRMETAR2749.02019-12-11 17:07:20?7)5   3SPGM 111700Z 01005KT 9999 SCT025 SCT090 29/23 Q1012 RMK PP000SPGM2019-12-11T17:00:00Z-9.28-76.029.023.01056.2129.88189VFRMETAR665.02019-12-11 17:07:20=6(y5    3MDLR 111700Z 09014KT 8000 VCSH BKN018 28/24 Q1015 RESHMDLR2019-12-11T17:00:00Z18.45-68.9228.024.090144.9729.970472VCSHMVFRMETAR8.02019-12-11 17:07:20/5(e5   3MDCY 111700Z 06010KT 9999 SCT020 28/25 Q1017MDCY2019-12-11T17:00:00Z19.27-69.7328.025.060106.2130.029528VFRMETAR10.02019-12-11 17:07:20-4(e5   3MDAB 111700Z 04004KT 9999 SCT020 30/25 Q1017MDAB2019-12-11T17:00:00Z19.2-69.4330.025.04046.2130.029528VFRMETAR35.02019-12-11 17:07:20 !b1=(e5    3OKBK 111700Z 35005KT CAVOK 18/08 Q1017 NOSIGOKBK2019-12-11T17:00:00Z29.2247.9718.08.035056.2130.029528TRUEVFRMETAR55.02019-12-11 17:07:20M<)5    3SPJR 111700Z 16006KT 130V210 9999 VCSH SCT027 20/12 Q1026 RMK PP000SPJR2019-12-11T17:00:00Z-7.12-78.4720.012.016066.2130.295275VCSHVFRMETAR2622.02019-12-11 17:07:20:;(y5   3SPJL 111700Z 02005KT 9999 BKN020 18/03 Q1032 RMK PP000SPJL2019-12-11T17:00:00Z-15.47-70.1518.03.02056.2130.47244MVFRMETAR3827.02019-12-11 17:07:20::(y5   3SPJI 111700Z 24005KT 9999 FEW023 33/25 Q1018 RMK PP000SPJI2019-12-11T17:00:00Z-7.17-76.7233.025.024056.2130.059055VFRMETAR363.02019-12-11 17:07:20Z9)35   3SPHY 111700Z 32010KT 8000 SCT012 BKN050 14/07 Q1037 RMK BIRD HAZARD RWY 03/21 PP000SPHY2019-12-11T17:00:00Z-13.7-73.3514.07.0320104.9730.620079MVFRMETAR3548.02019-12-11 17:07:20 CoRA)%5   3SPST 111700Z 35012KT 9999 SCT020 33/21 Q1009 RMK BIRD HAZARD RWY 17/35 PP000SPST2019-12-11T17:00:00Z-6.52-76.3733.021.0350126.2129.793306VFRMETAR282.02019-12-11 17:07:20W@)-5    3SPMS 111700Z 03005KT 9999 VCSH SCT015 31/26 Q1010 RMK BIRD HAZARD RWY09/27 PP000SPMS2019-12-11T17:00:00Z-5.9-76.1231.026.03056.2129.822834VCSHVFRMETAR179.02019-12-11 17:07:20O?)%5   3SPME 111700Z 03011KT 8000 OVC013 27/21 Q1012 RMK BIRD HAZARD RWY 32/14 PP000SPME2019-12-11T17:00:00Z-3.53-80.427.021.030114.9729.88189MVFRMETAR27.02019-12-11 17:07:208>(y5   3SPLO 111700Z 15009KT 9999 SCT040 23/17 Q1014 RMK PP000SPLO2019-12-11T17:00:00Z-17.7-71.3523.017.015096.2129.940945VFRMETAR9.02019-12-11 17:07:20 K5E(s5   3SKCG 111700Z 30006KT 9999 FEW017 SCT200 31/23 A2986SKCG2019-12-11T17:00:00Z10.43-75.5231.023.030066.2129.861221VFRMETAR1.02019-12-11 17:07:20@D)5   3SBRJ 111700Z 17012KT 6000 FEW005 SCT012 BKN030 25/22 Q1009SBRJ2019-12-11T17:00:00Z-22.88-43.1725.022.0170123.7329.793306MVFRMETAR3.02019-12-11 17:07:20JC)5   3SPYL 111700Z 17015KT CAVOK 26/15 Q1012 RMK BIRD HAZARD RWY 17/35 PP000SPYL2019-12-11T17:00:00Z-4.57-81.2526.015.0170156.2129.88189VFRMETAR90.02019-12-11 17:07:20aB)C5   3SPTU 111700Z 34009KT 300V010 9999 BKN012 BKN120 28/23 Q1009 RMK BIRD HAZARD RWY 01/19 PP000SPTU2019-12-11T17:00:00Z-12.62-69.228.023.034096.2129.793306MVFRMETAR266.02019-12-11 17:07:20 -/q-4J(q5   3SETN 111700Z 20006KT 9999 BKN026 28/23 Q1012 A2989SETN2019-12-11T17:00:00Z0.98-79.6328.023.020066.2129.88189MVFRMETAR10.02019-12-11 17:07:20RI)#5    3SEGU 111700Z 14003KT 080V160 9999 SCT023 OVC040 28/20 Q1011 NOSIG RMK A2988SEGU2019-12-11T17:00:00Z-2.13-79.8728.020.014036.2129.852362TRUEVFRMETAR9.02019-12-11 17:07:20/H(e5   3SELT 111700Z 04003KT 9999 SCT033 17/10 Q1028SELT2019-12-11T17:00:00Z-0.92-78.6217.010.04036.2130.35433VFRMETAR2785.02019-12-11 17:07:209G(y5   3SEMT 111700Z 21005KT 9999 BKN020 27/22 Q1012 RMK A2991SEMT2019-12-11T17:00:00Z-0.95-80.6727.022.021056.2129.88189MVFRMETAR14.02019-12-11 17:07:20LF)5    3SEQM 111700Z 03008KT 9999 FEW030 SCT300 22/10 Q1025 NOSIG RMK A3026SEQM2019-12-11T17:00:00Z-0.12-78.3522.010.03086.2130.265747TRUEVFRMETAR2400.02019-12-11 17:07:20 NF N7O(s5   3SECA 111700Z 21005KT 9999 SCT040 OVC200 30/15 Q1015SECA2019-12-11T17:00:00Z-4.0-79.3730.015.021056.2129.970472VFRMETAR1121.02019-12-11 17:07:206N(s5   3SECU 111700Z 03005KT 4000 FEW030 OVC070 22/09 Q1024SECU2019-12-11T17:00:00Z-2.87-78.9722.09.03052.4930.236221IFRMETAR2531.02019-12-11 17:07:208M(s5   3SEAM 111700Z 15007KT 9999 SCT020 SCT300 22/11 Q1027SEAM2019-12-11T17:00:00Z-1.18-78.5722.011.015076.2130.324802VFRMETAR2520.02019-12-11 17:07:20?L(}5    3SETU 111700Z 09004KT 9999 VCSH BKN020 OVC090 14/11 Q1031SETU2019-12-11T17:00:00Z0.82-77.714.011.09046.2130.442913VCSHMVFRMETAR2940.02019-12-11 17:07:205K(s5   3SERO 111700Z 31009KT 9999 FEW013 OVC070 27/22 Q1012SERO2019-12-11T17:00:00Z-3.43-79.9827.022.031096.2129.88189VFRMETAR51.02019-12-11 17:07:20 SLSBT)5   3SEJD 111700Z 14002KT 9999 SCT020 BKN100 24/23 Q1013 RMK A2992SEJD2019-12-11T17:00:00Z-1.07-77.5824.023.014026.2129.911417VFRMETAR375.02019-12-11 17:07:203S(s5   3OSLK 111700Z 10002KT 9999 FEW030 SCT200 14/06 Q1015OSLK2019-12-11T17:00:00Z35.435.9514.06.010026.2129.970472VFRMETAR48.02019-12-11 17:07:200R(w5   3OSKL 111700Z 35004KT 5000BR FEW026 SCT100 07/05 Q1019OSKL2019-12-11T17:00:00Z37.0341.27.05.0350430.088583BRMETAR455.02019-12-11 17:07:20@Q(5  3BIVM 111700Z 36023G40KT 330V030 9999 SCT030 M01/M05 Q0981BIVM2019-12-11T17:00:00Z63.42-20.27-1.0-5.036023406.2128.966536VFRMETAR124.02019-12-11 17:07:20/P(e5   3SBRF 111700Z 11008KT 9999 FEW025 30/22 Q1010SBRF2019-12-11T17:00:00Z-8.13-34.9230.022.011086.2129.822834VFRMETAR19.02019-12-11 17:07:20 !3n!>U*)5    3RKSO 111658Z 30008KT 7SM CLR 00/M07 A3025 RMK AO2A SLP247 T00011071 $RKSO2019-12-11T16:58:00Z37.07127.020.1-7.130087.030.2509841024.7TRUETRUEVFRMETAR12.02019-12-11 17:07:20a))!5    3K1LW 111658Z AUTO 21009KT 10SM CLR 04/M05 A3011 RMK AO2 SLP220 T00431055 $K1LW2019-12-11T16:58:00Z40.92-103.74.3-5.5210910.030.1092531022.0TRUETRUETRUEVFRMETAR1519.02019-12-11 17:07:20^()5   3K1JM 111658Z AUTO 22012KT 10SM M 02/M04 A2981 RMK AO2 SLP141 T00191036 $K1JM2019-12-11T16:58:00Z47.75-111.551.9-3.62201210.029.8110241014.1TRUETRUETRUEMETAR1152.02019-12-11 17:07:20')5     3KHMN 111658Z 16003KT 1 5/8SM BR OVC001 02/02 A3037 RMK AO2A VIS 1/2V1 5/8 VIS 7/8 RWY04 VIS 7/8 RWY07 VIS 1 RWY34 SLP282 T00240018 $KHMN2019-12-11T16:58:00Z32.85-106.082.41.816031.6330.3690951028.2TRUETRUEBRLIFRMETAR1248.02019-12-11 17:07:20 Q*FQp.)A5     3KHEY 111658Z AUTO 02010KT 10SM BKN130 08/M02 A3041 RMK AO2 RAB26E50 SLP301 P0000 T00791018KHEY2019-12-11T16:58:00Z31.35-85.657.9-1.8201010.030.4104331030.1TRUETRUEVFR0.005METAR97.02019-12-11 17:07:20_-)!5    3CYPO 111658Z AUTO 23010G17KT 5SM HZ SCT034 OVC045 M25/M29 A2973 RMK SLP079CYPO2019-12-11T16:58:00Z54.98-85.43-25.0-29.023010175.029.7312981007.9TRUEHZMVFRSPECI53.02019-12-11 17:07:20f,)-5    3CYZE 111658Z AUTO 29021G31KT 2SM -SN FEW030 M10/M16 A3005 RMK VIS VRB 1-3 SLP191CYZE2019-12-11T16:58:00Z45.87-82.57-10.0-16.029021312.030.0501981019.1TRUE-SNIFRSPECI193.02019-12-11 17:07:20f+)'5    3K1NM 111658Z AUTO 25015KT 10SM OVC048 04/M02 A2981 RMK AO2 SLP139 T00421022 $K1NM2019-12-11T16:58:00Z47.07-109.034.2-2.22501510.029.8110241013.9TRUETRUETRUEVFRMETAR1161.02019-12-11 17:07:20 f#0<fQ2)5    3KROG 111658Z 22007KT 10SM CLR 06/M06 A3051 RMK AO2 SLP341 T00611056KROG2019-12-11T16:58:00Z36.37-94.086.1-5.6220710.030.5108261034.1TRUEVFRMETAR415.02019-12-11 17:07:20o1)?5     3KLOR 111658Z AUTO 36005KT 10SM BKN130 08/00 A3043 RMK AO2 RAB24E40 SLP288 P0000 T00751002KLOR2019-12-11T16:58:00Z31.35-85.757.5-0.2360510.030.4311031028.8TRUETRUEVFR0.005METAR74.02019-12-11 17:07:20n0)?5     3KSXS 111658Z AUTO 04010KT 9SM SCT140 08/M01 A3042 RMK AO2 RAB19E32 SLP304 P0000 T00761008KSXS2019-12-11T16:58:00Z31.37-85.857.6-0.840109.030.419291030.4TRUETRUEVFR0.005METAR122.02019-12-11 17:07:20X/)5    3KPOE 111658Z AUTO 04008KT 10SM CLR 08/M01 A3052 RMK AO2 SLP339 T00751010KPOE2019-12-11T16:58:00Z31.05-93.27.5-1.040810.030.5196861033.9TRUETRUEVFRMETAR101.02019-12-11 17:07:20 =sM6)5    3KEIK 111658Z AUTO 00000KT 10SM CLR 03/M03 A3014 RMK AO2 T00261032KEIK2019-12-11T16:58:00Z40.02-105.052.6-3.20010.030.138779TRUETRUEVFRMETAR1564.02019-12-11 17:07:20V5)5   3KI69 111658Z AUTO 22009G17KT 10SM OVC070 00/M08 A3048 RMK AO2 T10041081KI692019-12-11T16:58:00Z39.08-84.22-0.4-8.122091710.030.481298TRUETRUEVFRSPECI255.02019-12-11 17:07:20E4)5    3KHZL 111658Z AUTO 25006KT 10SM SCT043 00/M09 A3022 RMK AO2KHZL2019-12-11T16:58:00Z40.98-76.00.0-9.0250610.030.221457TRUETRUEVFRSPECI489.02019-12-11 17:07:20>3(y5    3KACP 111658Z AUTO 03006KT 10SM CLR 09/01 A3052 RMK AO2KACP2019-12-11T16:58:00Z30.75-92.689.01.030610.030.519686TRUETRUEVFRMETAR33.02019-12-11 17:07:20 a /Laf:)=5    3KMRH 111658Z AUTO 03012KT 10SM FEW013 SCT049 OVC060 09/06 A3031 RMK AO2 SLP263 T00940061KMRH2019-12-11T16:58:00Z34.73-76.659.46.1301210.030.310041026.3TRUETRUEVFRSPECI3.02019-12-11 17:07:20^9)35     3KMMV 111658Z AUTO 14005KT 4SM BR SCT002 BKN006 OVC043 07/07 A3004 RMK AO2 T00720067KMMV2019-12-11T16:58:00Z45.2-123.137.26.714054.030.041338TRUETRUEBRIFRMETAR48.02019-12-11 17:07:20V8)5    3KMEI 111658Z 04011KT 10SM CLR 08/M02 A3053 RMK AO2 SLP339 I1000 T00781022KMEI2019-12-11T16:58:00Z32.33-88.757.8-2.2401110.030.5285431033.9TRUEVFRSPECI89.02019-12-11 17:07:20q7)I5     3KBTL 111658Z 27014G22KT 2 1/2SM -SN FEW020 BKN028 OVC033 M07/M10 A3033 RMK AO2 P0000 T10671100KBTL2019-12-11T16:58:00Z42.32-85.23-6.7-10.027014222.530.33071TRUE-SNIFR0.005METAR290.02019-12-11 17:07:20 7X{e>)95    3KHLR 111658Z AUTO 00000KT 10SM OVC009 05/04 A3055 RMK AO2 CIG 007V009 SLP351 T00450035KHLR2019-12-11T16:58:00Z31.13-97.724.53.50010.030.5492131035.1TRUETRUEIFRMETAR283.02019-12-11 17:07:20X=)5    3KGRK 111658Z AUTO 08003KT 8SM OVC007 04/03 A3053 RMK AO2 SLP346 T00420033KGRK2019-12-11T16:58:00Z31.07-97.834.23.38038.030.5285431034.6TRUETRUEIFRMETAR309.02019-12-11 17:07:20Z<)5    3KFHU 111658Z AUTO 11006KT 10SM CLR 08/03 A3028 RMK AO2 SLP237 T00800032KFHU2019-12-11T16:58:00Z31.58-110.358.03.2110610.030.2805121023.7TRUETRUEVFRMETAR1438.02019-12-11 17:07:20D;(}5    3KROX 111658Z AUTO 27008KT 10SM CLR M19/M23 A3031 RMK AO2KROX2019-12-11T16:58:00Z48.85-95.7-19.0-23.0270810.030.31004TRUETRUEVFRSPECI323.02019-12-11 17:07:20 m#3Om]B)%5    3K1YT 111658Z AUTO 06005KT 10SM OVC006 00/M01 A3008 RMK AO2 SLPNO T10041013 $K1YT2019-12-11T16:58:00Z46.67-120.45-0.4-1.360510.030.079725TRUETRUETRUEIFRMETAR438.02019-12-11 17:07:20_A)!5    3RKSY 111658Z AUTO 31006KT 9999 CLR 00/M08 A3024 RMK AO2 SLP244 T00041083 $RKSY2019-12-11T16:58:00Z37.52126.970.4-8.331066.2130.2391741024.4TRUETRUETRUEVFRMETAR12.02019-12-11 17:07:20k@)15     3PAFR 111658Z AUTO 00000KT 10SM CLR M07/M08 A2942 RMK AO2 SLP973 T10721081 FZRANO $PAFR2019-12-11T16:58:00Z61.27-149.65-7.2-8.10010.029.421259997.3TRUETRUETRUETRUEVFRMETAR115.02019-12-11 17:07:20X?)5    3KHUA 111658Z AUTO 00000KT 10SM CLR 03/M03 A3055 RMK AO2 SLP352 T00321031KHUA2019-12-11T16:58:00Z34.68-86.683.2-3.10010.030.5492131035.2TRUETRUEVFRMETAR209.02019-12-11 17:07:20 j5PjaF)5    3KDMA 111658Z AUTO 13016KT 10SM CLR 13/03 A3019 RMK AO2 SLP210 T01310032 $KDMA2019-12-11T16:58:00Z32.17-110.8713.13.21301610.030.1889761021.0TRUETRUETRUEVFRMETAR824.02019-12-11 17:07:20`E)5    3KCVS 111658Z AUTO 22010KT 10SM CLR 04/01 A3033 RMK AO2 SLP279 T00420012 $KCVS2019-12-11T16:58:00Z34.37-103.324.21.22201010.030.330711027.9TRUETRUETRUEVFRMETAR1309.02019-12-11 17:07:20aD)%5    3KBAB 111658Z AUTO 00000KT 10SM OVC150 11/10 A3024 RMK AO2 SLP244 T01100101 $KBAB2019-12-11T16:58:00Z39.12-121.4211.010.10010.030.2391741024.4TRUETRUETRUEVFRMETAR34.02019-12-11 17:07:20`C)#5    3KAFF 111658Z AUTO 18004KT 10SM FEW190 02/M10 A3013 RMK AO2 SLP236 T00241105KAFF2019-12-11T16:58:00Z38.97-104.822.4-10.5180410.030.1299211023.6TRUETRUEVFRMETAR2003.02019-12-11 17:07:20 O/O[J)!5    3KGXF 111658Z AUTO 00000KT 10SM FEW240 12/07 A3018 RMK AO2 SLP218 T01240071KGXF2019-12-11T16:58:00Z32.87-112.7212.47.10010.030.1801191021.8TRUETRUEVFRMETAR262.02019-12-11 17:07:20hI)95    3KGXA 111658Z AUTO VRB03KT 10SM CLR 11/00 A3022 RMK AO2 SLP234 WND DATA ESTMD T01061001KGXA2019-12-11T16:58:00Z34.57-117.6710.6-0.10310.030.2214571023.4TRUETRUEVFRMETAR923.02019-12-11 17:07:20zH)M5   3KGFA 111658Z AUTO 22021G27KT 10SM OVC039 04/M04 A2984 RMK AO2 PK WND 23029/32 SLP140 T00361037 $KGFA2019-12-11T16:58:00Z47.5-111.173.6-3.7220212710.029.8405511014.0TRUETRUETRUEVFRMETAR1075.02019-12-11 17:07:20`G)!5    3KFCS 111658Z AUTO 08004KT 10SM CLR 02/M09 A3015 RMK AO2 SLP268 T00241089 $KFCS2019-12-11T16:58:00Z38.67-104.772.4-8.980410.030.150591026.8TRUETRUETRUEVFRMETAR1789.02019-12-11 17:07:20 N *NWN)5    3KRIV 111658Z AUTO 00000KT 10SM CLR 10/10 A3022 RMK AO2 SLP234 T00950095KRIV2019-12-11T16:58:00Z33.87-117.279.59.50010.030.2214571023.4TRUETRUEVFRMETAR469.02019-12-11 17:07:20]M)5    3KINS 111658Z AUTO 00000KT 10SM CLR 05/01 A3024 RMK AO2 SLP237 T00470008 $KINS2019-12-11T16:58:00Z36.58-115.674.70.80010.030.2391741023.7TRUETRUETRUEVFRMETAR955.02019-12-11 17:07:20 L)o5      3KHRT 111658Z 02014KT 10SM -RA OVC046 08/04 A3038 RMK AO2A DZE1556RAB1556E22DZB22E23RAB52 SLP290 P0000 T00750039 $KHRT2019-12-11T16:58:00Z30.42-86.677.53.9201410.030.3809051029.0TRUETRUE-RAVFR0.005METAR12.02019-12-11 17:07:20aK)%5    3KHIF 111658Z AUTO 11009KT 10SM BKN110 M02/M07 A3020 RMK AO2 SLP243 T10191072KHIF2019-12-11T16:58:00Z41.12-111.97-1.9-7.2110910.030.2007871024.3TRUETRUEVFRMETAR1459.02019-12-11 17:07:20 vQ)G5    3K1BM 111658Z AUTO 25012KT 10SM BKN065 05/M06 A2982 RMK AO2 PK WND 25029/18 SLP132 T00471060 $K1BM2019-12-11T16:58:00Z47.28-110.374.7-6.02501210.029.8198811013.2TRUETRUETRUEVFRMETAR1234.02019-12-11 17:07:20jP)95     3K0J4 111658Z AUTO 03010KT 10SM FEW070 08/02 A3044 RMK AO2 RAE05 SLP306 P0000 T00780017K0J42019-12-11T16:58:00Z31.05-86.327.81.7301010.030.439961030.6TRUETRUEVFR0.005METAR96.02019-12-11 17:07:20%O))5     3KSUU 111658Z AUTO 03004KT 2 1/4SM BR OVC008 11/10 A3025 RMK AO2 VIS 5/8 RWY03L CIG 005 RWY03L CIG 007 RWY03R CIG 007 RWY21R SLP251 T01070098 $KSUU2019-12-11T16:58:00Z38.27-121.9210.79.83042.2530.2509841025.1TRUETRUETRUEBRIFRMETAR19.02019-12-11 17:07:20 ?$:?vU)G5    3K1IM 111658Z AUTO 24021KT 10SM OVC070 04/M04 A2986 RMK AO2 PK WND 24027/40 SLP146 T00361040 $K1IM2019-12-11T16:58:00Z47.32-111.473.6-4.02402110.029.8612211014.6TRUETRUETRUEVFRMETAR1108.02019-12-11 17:07:20eT)'5    3K1FM 111658Z AUTO 28017KT 10SM BKN060 03/M04 A2982 RMK AO2 SLP127 T00291041 $K1FM2019-12-11T16:58:00Z47.6-112.322.9-4.12801710.029.8198811012.7TRUETRUETRUEVFRMETAR1116.02019-12-11 17:07:20fS))5    3K1DM 111658Z AUTO 07003KT 10SM BKN070 M08/M09 A2981 RMK AO2 SLP167 T10831093 $K1DM2019-12-11T16:58:00Z47.33-109.95-8.3-9.370310.029.8110241016.7TRUETRUETRUEVFRMETAR1093.02019-12-11 17:07:20lR)55    3K1CM 111658Z AUTO 27011KT 10SM BKN060 BKN150 04/M06 A2982 RMK AO2 SLP133 T00411061 $K1CM2019-12-11T16:58:00Z47.1-110.174.1-6.12701110.029.8198811013.3TRUETRUETRUEVFRMETAR1337.02019-12-11 17:07:20 B*CB|Y)Q5   3K1AM 111658Z AUTO 22019G29KT 10SM OVC065 05/M07 A2983 RMK AO2 PK WND 22029/1558 SLP077 T00521067 $K1AM2019-12-11T16:58:00Z47.28-110.85.2-6.7220192910.029.8287411007.7TRUETRUETRUEVFRMETAR1219.02019-12-11 17:07:20bX)!5    3K1OW 111658Z AUTO 22010KT 10SM CLR 03/M08 A3009 RMK AO2 SLP222 T00291081 $K1OW2019-12-11T16:58:00Z40.88-104.02.9-8.12201010.030.0885831022.2TRUETRUETRUEVFRMETAR1649.02019-12-11 17:07:20hW))5    3K1OM 111658Z AUTO 34004KT 10SM OVC060 M09/M10 A2983 RMK AO2 SLP166 T10911102 $K1OM2019-12-11T16:58:00Z47.33-108.93-9.1-10.2340410.029.8287411016.6TRUETRUETRUEVFRMETAR1086.02019-12-11 17:07:20dV)'5    3K1LM 111658Z AUTO 15005KT 10SM OVC095 01/M06 A2987 RMK AO2 SLP152 T00111063 $K1LM2019-12-11T16:58:00Z46.7-109.731.1-6.3150510.029.8700791015.2TRUETRUETRUEVFRMETAR1414.02019-12-11 17:07:20 >/E>])Q5    3K1KM 111658Z AUTO 28012KT 10SM FEW085 SCT110 BKN140 BKN160 04/M06 A2986 RMK AO2 SLP140 T00371056 $K1KM2019-12-11T16:58:00Z46.45-109.83.7-5.62801210.029.8612211014.0TRUETRUETRUEBKN16000VFRMETAR1330.02019-12-11 17:07:20e\)'5    3K1GM 111658Z AUTO 20020KT 10SM BKN055 01/M03 A2982 RMK AO2 SLP126 T00061034 $K1GM2019-12-11T16:58:00Z47.33-112.10.6-3.42002010.029.8198811012.6TRUETRUETRUEVFRMETAR1311.02019-12-11 17:07:20e[))5    3K1EM 111658Z AUTO 00000KT 10SM BKN070 M07/M08 A2983 RMK AO2 SLP175 T10721076 $K1EM2019-12-11T16:58:00Z47.45-109.42-7.2-7.60010.029.8287411017.5TRUETRUETRUEVFRMETAR1116.02019-12-11 17:07:20bZ)!5    3K1AW 111658Z AUTO 21009KT 10SM CLR 02/M06 A3006 RMK AO2 SLP213 T00171059 $K1AW2019-12-11T16:58:00Z41.33-104.271.7-5.9210910.030.0590551021.3TRUETRUETRUEVFRMETAR1667.02019-12-11 17:07:20 u5duja)35     3KEGI 111657Z AUTO 01012KT 10SM -RA FEW055 FEW200 07/05 A3040 RMK AO2 RAB56 SLP296 $KEGI2019-12-11T16:57:00Z30.63-86.527.05.0101210.030.3986231029.6TRUETRUETRUE-RAVFRSPECI59.02019-12-11 17:07:20L`)5   3KIMS 111657Z AUTO 20012G16KT 10SM OVC075 00/M06 A3049 RMK AO1KIMS2019-12-11T16:57:00Z38.75-85.470.0-6.0200121610.030.490158TRUETRUEVFRMETAR250.02019-12-11 17:07:20`_)5    3KLGF 111658Z AUTO 34006KT 10SM CLR 17/17 A3020 RMK AO2 SLP226 T01710171 $KLGF2019-12-11T16:58:00Z32.87-114.417.117.1340610.030.2007871022.6TRUETRUETRUEVFRMETAR132.02019-12-11 17:07:20a^)!5    3K1MW 111658Z AUTO 21003KT 10SM CLR 00/M03 A3012 RMK AO2 SLP236 T00011034 $K1MW2019-12-11T16:58:00Z40.7-103.480.1-3.4210310.030.1210631023.6TRUETRUETRUEVFRMETAR1336.02019-12-11 17:07:20bRzRY`gnu|$+29@GNU\cjqx  '.5<CJQX_fmt{RW\afkpu y!~"#$ %RW\afkpu y!~"#$ %&'( )%**+/,4-8.</@0D1I2N3S4X5]6b7g8l9q:v;{<=> ?@ABC"D&E+F0G5H:I?JDKILMMRNWO\PaQfRkSpTuUzVWX Y Z[\]^$_)`.a3b8c=dAeEfJgOhTiYj^kclhmmnqovp{qrs tuvwxy"bRRY`gnu|$+29@GNU\cjqx  '.5<CJQX_fmt{{*|.}2~6:>BFJNQUY]{*|.}2~6:>BFJNQUY]aeimquy} !%)-159=AEIMQUY]aeimquy} !%)-159<@DHLPTX\_cgkosw{ #'+ 0,jMe)5    3KDVP 111657Z AUTO 00000KT 7SM CLR M17/M20 A3039 RMK AO2 T11671204KDVP2019-12-11T16:57:00Z43.98-95.78-16.7-20.4007.030.389763TRUETRUEVFRSPECI495.02019-12-11 17:07:20=d(5   3TJIG 111657Z 09008G21KT 7SM -RA SCT030 BKN055 25/23 A3003TJIG2019-12-11T16:57:00Z18.45-66.125.023.0908217.030.029528-RAVFRMETAR3.02019-12-11 17:07:20c)K5     3PAJC 111657Z AUTO 24012G18KT 5SM UP BR OVC015 02/00 A2901 RMK AO2 SLP825 T00220000 FZRANO PNO $PAJC2019-12-11T16:57:00Z56.32-158.372.20.024012185.029.010826982.5TRUETRUETRUETRUEBR UPMVFRMETAR15.02019-12-11 17:07:20Kb)5   3KI23 111657Z AUTO 23015G21KT 10SM CLR M02/M07 A3043 RMK AO1KI232019-12-11T16:57:00Z39.57-83.42-2.0-7.0230152110.030.431103TRUETRUEVFRMETAR299.02019-12-11 17:07:20 =hoi)55    3KNJM 111657Z AUTO 01011G16KT 10SM OVC015 10/07 A3032 RMK AO2 SLP272 T01000072 TSNO $KNJM2019-12-11T16:57:00Z34.67-77.0210.07.210111610.030.3188971027.2TRUETRUETRUETRUEMVFRMETAR7.02019-12-11 17:07:20Xh)5    3PHNG 111657Z 00000KT 10SM FEW025 22/20 A3003 RMK AO2 SLP165 T02220200 $ PHNG2019-12-11T16:57:00Z21.43-157.7722.220.00010.030.0295281016.5TRUETRUEVFRMETAR3.02019-12-11 17:07:20Pg)5    3KNYL 111657Z 02007KT 7SM FEW160 16/05 A3019 RMK AO2 SLP224 T01560050KNYL2019-12-11T16:57:00Z32.63-114.6215.65.02077.030.1889761022.4TRUEVFRMETAR65.02019-12-11 17:07:20>f)5   3MMZC 111657Z RTD 00000KT 10SM BKN015 12/07 A3035 RMK 8/400MMZC2019-12-11T16:57:00Z22.9-102.6812.07.00010.030.351377MVFRMETAR2177.02019-12-11 17:07:20 >Ks_m)+5     3EGUN 111657Z 20007KT 9999 -RA FEW027 BKN060 06/05 A2951 RMK AO2A RAB56 SLP997 $EGUN2019-12-11T16:57:00Z52.370.476.05.020076.2129.509842999.7TRUETRUE-RAVFRSPECI10.02019-12-11 17:07:20Sl)5    3KFLG 111657Z 22007KT 10SM CLR 02/M04 A3027 RMK AO2 SLP247 T00221039KFLG2019-12-11T16:57:00Z35.13-111.672.2-3.9220710.030.2687021024.7TRUEVFRMETAR2134.02019-12-11 17:07:20nk)=5      3KTAN 111657Z AUTO 27006KT 4SM -SN BR SCT008 OVC015 M01/M03 A3023 RMK AO2 P0000 T10061028KTAN2019-12-11T16:57:00Z41.88-71.02-0.6-2.827064.030.230314TRUETRUE-SN BRMVFR0.005METAR7.02019-12-11 17:07:20=j(5   3MMTO 111657Z 15008KT 4SM FEW200 16/05 A3047 RMK 8/001 HZYMMTO2019-12-11T16:57:00Z19.35-99.5716.05.015084.030.469488MVFRMETAR2576.02019-12-11 17:07:20 "Ij_q)!5    3KHFF 111656Z AUTO 03012KT 10SM CLR 07/M02 A3038 RMK AO2 SLP305 T00651025 $KHFF2019-12-11T16:56:00Z35.02-79.56.5-2.5301210.030.3809051030.5TRUETRUETRUEVFRMETAR115.02019-12-11 17:07:20Zp)5    3KTBN 111656Z AUTO 24007KT 10SM CLR 07/M07 A3045 RMK AO2 SLP324 T00701074KTBN2019-12-11T16:56:00Z37.72-92.127.0-7.4240710.030.4488181032.4TRUETRUEVFRMETAR353.02019-12-11 17:07:20To)5    3KNJK 111656Z 29004KT 10SM SCT250 14/06 A3022 RMK AO2 SLP248 T01390056KNJK2019-12-11T16:56:00Z32.82-115.6713.95.6290410.030.2214571024.8TRUEVFRMETAR-13.02019-12-11 17:07:20Yn)5    3CYKL 111656Z AUTO 26019G25KT 5SM HZ FEW013 M22/M26 A2966 RMK SLP105CYKL2019-12-11T16:56:00Z54.78-66.82-22.0-26.026019255.029.6604331010.5TRUEHZMVFRSPECI521.02019-12-11 17:07:20 ]1C]au)!5    3KIAB 111656Z AUTO 20012KT 10SM CLR 06/M07 A3040 RMK AO2 SLP308 T00591067 $KIAB2019-12-11T16:56:00Z37.62-97.275.9-6.72001210.030.3986231030.8TRUETRUETRUEVFRMETAR418.02019-12-11 17:07:20it)35     3KDYS 111656Z 18011KT 10SM OVC007 06/03 A3047 RMK AO2A SLP327 T00620028 PNO FZRANO $KDYS2019-12-11T16:56:00Z32.42-99.836.22.81801110.030.4694881032.7TRUETRUETRUEIFRMETAR545.02019-12-11 17:07:20cs)'5   3KFBG 111656Z AUTO 01008G14KT 10SM CLR 08/M04 A3038 RMK AO2 SLP291 T00791039 $KFBG2019-12-11T16:56:00Z35.12-78.927.9-3.91081410.030.3809051029.1TRUETRUETRUEVFRSPECI74.02019-12-11 17:07:20br)%5    3KGSB 111656Z AUTO 36010KT 10SM BKN020 07/02 A3036 RMK AO2 SLP284 T00740021 $KGSB2019-12-11T16:56:00Z35.32-77.977.42.13601010.030.3602371028.4TRUETRUETRUEMVFRMETAR33.02019-12-11 17:07:20 F 5Fjy)-5     3KHDN 111656Z AUTO 12008KT 10SM CLR M07/M11 A3023 RMK AO2 SLP289 T10671106 FZRANOKHDN2019-12-11T16:56:00Z40.47-107.22-6.7-10.6120810.030.2303141028.9TRUETRUETRUEVFRMETAR2012.02019-12-11 17:07:20Px)5    3KGTU 111656Z VRB04KT 10SM SCT013 07/03 A3057 RMK AO2 SLP359 T00720028KGTU2019-12-11T16:56:00Z30.68-97.687.22.80410.030.5698811035.9TRUEVFRMETAR240.02019-12-11 17:07:20iw)-5     3KGUC 111656Z AUTO 00000KT 10SM CLR M13/M18 A3038 RMK AO2 SLP399 T11331178 FZRANOKGUC2019-12-11T16:56:00Z38.52-106.92-13.3-17.80010.030.3809051039.9TRUETRUETRUEVFRMETAR2339.02019-12-11 17:07:20v)]5    3KGVQ 111656Z AUTO 25014G24KT 10SM FEW035 M03/M10 A3011 RMK AO2 PK WND 25027/1629 SLP208 T10281100 FZRANOKGVQ2019-12-11T16:56:00Z43.03-78.17-2.8-10.0250142410.030.1092531020.8TRUETRUETRUEVFRMETAR278.02019-12-11 17:07:20 =aW})5   3KISQ 111656Z AUTO 27012G19KT 10SM CLR M15/M21 A3021 RMK AO2 T11551215KISQ2019-12-11T16:56:00Z45.97-86.17-15.5-21.5270121910.030.209646TRUETRUEVFRMETAR209.02019-12-11 17:07:20W|)5    3K1M4 111656Z AUTO 05004KT 10SM CLR 04/M01 A3055 RMK AO2 SLP983 T00441006K1M42019-12-11T16:56:00Z34.28-87.64.4-0.650410.030.549213998.3TRUETRUEVFRMETAR284.02019-12-11 17:07:20P{)5    3KHEF 111656Z 32009KT 10SM CLR 03/M06 A3039 RMK AO2 SLP300 T00331056KHEF2019-12-11T16:56:00Z38.72-77.523.3-5.6320910.030.3897631030.0TRUEVFRMETAR59.02019-12-11 17:07:20iz)/5      3KGXY 111656Z AUTO 00000KT 5SM HZ CLR 01/M02 A3013 RMK AO2 SLP248 T00111022 FZRANOKGXY2019-12-11T16:56:00Z40.42-104.621.1-2.2005.030.1299211024.8TRUETRUETRUEHZMVFRMETAR1420.02019-12-11 17:07:20 S=Se)+5     3KHYS 111656Z AUTO 23003KT 10SM CLR 01/M05 A3032 RMK AO2 SLP290 T00111050 FZRANOKHYS2019-12-11T16:56:00Z38.85-99.271.1-5.0230310.030.3188971029.0TRUETRUETRUEVFRMETAR609.02019-12-11 17:07:20Y)5   3KIKW 111656Z AUTO 26017G28KT 10SM SCT041 M08/M17 A3027 RMK AO2 T10841170KIKW2019-12-11T16:56:00Z43.67-84.27-8.4-17.0260172810.030.268702TRUETRUEVFRMETAR194.02019-12-11 17:07:20a)/5    3KILE 111656Z AUTO 00000KT 10SM SCT006 OVC011 06/03 A3057 RMK AO2 SLP350 T00560033KILE2019-12-11T16:56:00Z31.07-97.675.63.30010.030.5698811035.0TRUETRUEMVFRMETAR258.02019-12-11 17:07:20z~)S5      3KISM 111656Z 33004KT 10SM -RA FEW016 BKN021 OVC026 26/23 A3021 RMK AO2 RAB30 SLP229 P0000 T02610228KISM2019-12-11T16:56:00Z28.28-81.4326.122.8330410.030.2096461022.9TRUE-RAMVFR0.005METAR25.02019-12-11 17:07:20 )TgW)5    3KHEZ 111656Z AUTO 08008KT 10SM CLR 08/M01 A3054 RMK AO2 SLP345 T00831006KHEZ2019-12-11T16:56:00Z31.62-91.38.3-0.680810.030.5403541034.5TRUETRUEVFRMETAR83.02019-12-11 17:07:20h)15     3KHNB 111656Z AUTO 19008KT 10SM FEW060 01/M05 A3052 RMK AO2 SLP342 T00111050 FZRANOKHNB2019-12-11T16:56:00Z38.25-86.951.1-5.0190810.030.5196861034.2TRUETRUETRUEVFRMETAR161.02019-12-11 17:07:20P)5    3KHND 111656Z 19003KT 10SM CLR 08/00 A3027 RMK AO2 SLP275 T00830000KHND2019-12-11T16:56:00Z35.98-115.138.30.0190310.030.2687021027.5TRUEVFRMETAR749.02019-12-11 17:07:20R)5    3KHYI 111656Z 03005KT 10SM BKN016 09/04 A3054 RMK AO2 SLP342 T00890044KHYI2019-12-11T16:56:00Z29.88-97.878.94.430510.030.5403541034.2TRUEMVFRMETAR182.02019-12-11 17:07:20 nInn{ )E5    3KAFJ 111656Z AUTO 26011G18KT 10SM BKN034 M03/M10 A3039 RMK AO2 SLP305 T10331100 PWINO FZRANOKAFJ2019-12-11T16:56:00Z40.12-80.27-3.3-10.0260111810.030.3897631030.5TRUETRUETRUETRUEVFRMETAR361.02019-12-11 17:07:20V)5    3KADF 111656Z AUTO 00000KT 10SM CLR 04/M03 A3061 RMK AO2 SLP365 T00441033KADF2019-12-11T16:56:00Z34.1-93.074.4-3.30010.030.6112211036.5TRUETRUEVFRMETAR56.02019-12-11 17:07:20O)5    3K6B0 111656Z AUTO 17008KT 10SM CLR M03/M12 A3019 RMK AO2 T10321118K6B02019-12-11T16:56:00Z43.98-73.1-3.2-11.8170810.030.188976TRUETRUEVFRMETAR149.02019-12-11 17:07:20^)'5   3K7N0 111656Z AUTO 02011G17KT 10SM OVC060 09/01 A3047 RMK AO2 SLP317 T00890011K7N02019-12-11T16:56:00Z29.95-90.078.91.120111710.030.4694881031.7TRUETRUEVFRMETAR0.02019-12-11 17:07:20 w>`wd )-5    3KAWO 111656Z AUTO 02008KT 10SM FEW026 06/06 A3003 RMK AO2 SLP172 T00610056 PNO $KAWO2019-12-11T16:56:00Z48.17-122.176.15.620810.030.0295281017.2TRUETRUETRUEVFRMETAR42.02019-12-11 17:07:20Y )5    3KARG 111656Z AUTO 20007KT 10SM CLR 05/M03 A3058 RMK AO2 SLP360 T00501033KARG2019-12-11T16:56:00Z36.12-90.925.0-3.3200710.030.5787411036.0TRUETRUEVFRMETAR83.02019-12-11 17:07:20Y )5    3KAIZ 111656Z AUTO 24009KT 10SM CLR 07/M07 A3047 RMK AO2 SLP324 T00721072KAIZ2019-12-11T16:56:00Z38.1-92.537.2-7.2240910.030.4694881032.4TRUETRUEVFRMETAR265.02019-12-11 17:07:20_ )'5    3KAJO 111656Z AUTO 00000KT 10SM CLR 09/07 A3024 RMK AO2 SLP240 T00890072 PNO $KAJO2019-12-11T16:56:00Z33.9-117.68.97.20010.030.2391741024.0TRUETRUETRUEVFRMETAR163.02019-12-11 17:07:20 !V~h)35    3KDIJ 111656Z AUTO 21010KT 10SM BKN042 OVC049 M01/M06 A3013 RMK AO2 SLP248 T10111061KDIJ2019-12-11T16:56:00Z43.75-111.1-1.1-6.12101010.030.1299211024.8TRUETRUEVFRMETAR1899.02019-12-11 17:07:20S)5    3KASH 111656Z 32005KT 10SM SCT024 00/M04 A3021 RMK AO2 SLP236 T00001044KASH2019-12-11T16:56:00Z42.78-71.520.0-4.4320510.030.2096461023.6TRUEVFRMETAR61.02019-12-11 17:07:20F(}5    3KAUM 111656Z AUTO 33003KT 10SM CLR M14/M19 A3041 RMK AO2KAUM2019-12-11T16:56:00Z43.67-92.92-14.0-19.0330310.030.410433TRUETRUEVFRMETAR375.02019-12-11 17:07:20Z)5    3KAUO 111656Z AUTO 01010KT 10SM CLR 07/M06 A3047 RMK AO2 SLP345 T00721056KAUO2019-12-11T16:56:00Z32.62-85.427.2-5.6101010.030.4694881034.5TRUETRUEVFRMETAR236.02019-12-11 17:07:20 a@aZ)5    3KCVN 111656Z AUTO 23010KT 10SM CLR 05/01 A3033 RMK AO2 SLP287 T00500011KCVN2019-12-11T16:56:00Z34.42-103.075.01.12301010.030.330711028.7TRUETRUEVFRMETAR1284.02019-12-11 17:07:20Z)!5    3KCVO 111656Z AUTO 16008KT 10SM OVC046 08/07 A3006 RMK AO2 SLP183 T00830067KCVO2019-12-11T16:56:00Z44.5-123.278.36.7160810.030.0590551018.3TRUETRUEVFRMETAR75.02019-12-11 17:07:20j)35     3KCWI 111656Z AUTO 33005KT 10SM SCT016 M07/M11 A3046 RMK AO2 SLP334 T10671106 FZRANOKCWI2019-12-11T16:56:00Z41.82-90.32-6.7-10.6330510.030.460631033.4TRUETRUETRUEVFRMETAR216.02019-12-11 17:07:20m)?5    3KD95 111656Z AUTO 27020G25KT 7SM -SN SCT019 BKN029 OVC041 M05/M13 A3023 RMK AO2 T10551129KD952019-12-11T16:56:00Z43.07-83.27-5.5-12.927020257.030.230314TRUETRUE-SNMVFRMETAR255.02019-12-11 17:07:20 / /X)5    3KDRM 111656Z AUTO 26008G18KT 3SM HZ CLR M08/M14 A3010 RMK AO2 T10851143KDRM2019-12-11T16:56:00Z46.0-83.75-8.5-14.32608183.030.100393TRUETRUEHZMVFRMETAR204.02019-12-11 17:07:20g)+5     3KCOD 111656Z AUTO 27003KT 10SM CLR 02/M09 A2995 RMK AO2 SLP164 T00221089 FZRANOKCOD2019-12-11T16:56:00Z44.52-109.022.2-8.9270310.029.9498021016.4TRUETRUETRUEVFRMETAR1553.02019-12-11 17:07:20)Y5       3KCOE 111656Z AUTO 24004KT 5SM -SN BR FEW003 OVC022 M01/M02 A3009 RMK AO2 SLP233 P0002 T10111017 FZRANOKCOE2019-12-11T16:56:00Z47.77-116.82-1.1-1.724045.030.0885831023.3TRUETRUETRUE-SN BRMVFR0.02METAR707.02019-12-11 17:07:20v)M5   3KCTB 111656Z AUTO 26017G26KT 10SM OVC100 02/M03 A2979 RMK AO2 PK WND 26026/1648 SLP119 T00171033KCTB2019-12-11T16:56:00Z48.6-112.371.7-3.3260172610.029.7903541011.9TRUETRUEVFRMETAR1175.02019-12-11 17:07:20 Zse)+5     3KDWU 111656Z AUTO 20008KT 10SM CLR 01/M08 A3051 RMK AO2 SLP339 T00061083 FZRANOKDWU2019-12-11T16:56:00Z38.55-82.730.6-8.3200810.030.5108261033.9TRUETRUETRUEVFRMETAR166.02019-12-11 17:07:20b))5    3KDYR 111656Z AUTO 23006KT 10SM CLR 06/M03 A3059 RMK AO2 SLP368 T00611028 PNO $KDYR2019-12-11T16:56:00Z36.0-89.46.1-2.8230610.030.5905511036.8TRUETRUETRUEVFRMETAR103.02019-12-11 17:07:207(s5     3KDYT 111656Z AUTO 23009KT 10SM OVC050 A3040 RMK AO2KDYT2019-12-11T16:56:00Z46.72-92.03230910.030.398623TRUETRUEVFRMETAR186.02019-12-11 17:07:20e)-5     3KEAR 111656Z AUTO 09010KT 10SM CLR M03/M06 A3031 RMK AO2 SLP291 T10281061 FZRANOKEAR2019-12-11T16:56:00Z40.72-99.0-2.8-6.1901010.030.310041029.1TRUETRUETRUEVFRMETAR649.02019-12-11 17:07:20 O'2O^!)!5    3KEGE 111656Z 00000KT 10SM CLR M06/M11 A3032 RMK AO2 SLP330 T10611106 PNO $KEGE2019-12-11T16:56:00Z39.63-106.92-6.1-10.60010.030.3188971033.0TRUETRUEVFRMETAR1993.02019-12-11 17:07:20p )75      3KEHR 111656Z AUTO 20010KT 10SM CLR 02/M04 A3053 RMK AO2 SLP344 P0001 T00221044 FZRANOKEHR2019-12-11T16:56:00Z37.82-87.672.2-4.42001010.030.5285431034.4TRUETRUETRUEVFR0.01METAR117.02019-12-11 17:07:20m)15     3KEEN 111656Z AUTO 26006KT 10SM CLR M01/M09 A3019 RMK AO2 SLP233 T10061094 FZRANO $KEEN2019-12-11T16:56:00Z42.88-72.27-0.6-9.4260610.030.1889761023.3TRUETRUETRUETRUEVFRMETAR149.02019-12-11 17:07:20b)+5     3KDVL 111656Z AUTO 25008KT 10SM CLR M22/M26 A3030 RMK AO2 SLPNO T12221261 FZRANOKDVL2019-12-11T16:56:00Z48.12-98.92-22.2-26.1250810.030.301182TRUETRUETRUEVFRMETAR443.02019-12-11 17:07:20 p,=Xpc%)'5     3KVBT 111656Z AUTO 23009KT 10SM CLR 06/M04 A3053 RMK AO2 SLP351 T00561044 TSNOKVBT2019-12-11T16:56:00Z36.35-94.225.6-4.4230910.030.5285431035.1TRUETRUETRUEVFRMETAR395.02019-12-11 17:07:20`$))5     3KVIS 111656Z AUTO 11006KT 1/4SM FG OVC001 09/09 A3029 RMK AO2 SLP265 T00890089KVIS2019-12-11T16:56:00Z36.32-119.48.98.911060.2530.289371026.5TRUETRUEFGLIFRMETAR89.02019-12-11 17:07:20j#)-5     3KEKQ 111656Z AUTO 28005KT 10SM CLR 03/M06 A3056 RMK AO2 SLP355 T00331061 PWINO $KEKQ2019-12-11T16:56:00Z36.85-84.853.3-6.1280510.030.5610241035.5TRUETRUETRUETRUEVFRMETAR294.02019-12-11 17:07:20O")5    3KEFK 111656Z AUTO 19006KT 10SM CLR M05/M14 A3015 RMK AO2 T10551144KEFK2019-12-11T16:56:00Z44.88-72.23-5.5-14.4190610.030.15059TRUETRUEVFRMETAR284.02019-12-11 17:07:20 f6WPfe))15    3KOEB 111656Z AUTO 28017G22KT 5SM -SN BKN019 OVC025 M06/M10 A3034 RMK AO2 T10641097KOEB2019-12-11T16:56:00Z41.92-85.03-6.4-9.728017225.030.339567TRUETRUE-SNMVFRMETAR292.02019-12-11 17:07:20()S5       3KOKK 111656Z AUTO 26009KT 7SM -SN BKN015 OVC038 M05/M08 A3045 RMK AO2 SLP324 P0000 T10501078 FZRANOKOKK2019-12-11T16:56:00Z40.53-86.07-5.0-7.826097.030.4488181032.4TRUETRUETRUE-SNMVFR0.005METAR253.02019-12-11 17:07:20Z')!5    3KUDG 111656Z AUTO 02009KT 10SM BKN022 09/04 A3039 RMK AO2 SLP292 T00890039KUDG2019-12-11T16:56:00Z34.45-79.888.93.920910.030.3897631029.2TRUETRUEMVFRMETAR59.02019-12-11 17:07:20E&(}5    3KULM 111656Z AUTO 26003KT 10SM CLR M19/M23 A3045 RMK AO2KULM2019-12-11T16:56:00Z44.32-94.5-19.0-23.0260310.030.448818TRUETRUEVFRMETAR308.02019-12-11 17:07:20 jFYjj-)-5     3KMTW 111656Z AUTO 28013KT 10SM CLR M13/M19 A3039 RMK AO2 SLP307 T11331194 FZRANOKMTW2019-12-11T16:56:00Z44.12-87.67-13.3-19.42801310.030.3897631030.7TRUETRUETRUEVFRMETAR198.02019-12-11 17:07:20h,)15     3KMVN 111656Z AUTO 21009KT 10SM OVC085 02/M04 A3050 RMK AO2 SLP338 T00221044 FZRANOKMVN2019-12-11T16:56:00Z38.32-88.872.2-4.4210910.030.4990161033.8TRUETRUETRUEVFRMETAR146.02019-12-11 17:07:20O+)5    3KMYR 111656Z 35015KT 10SM CLR 12/04 A3034 RMK AO2 SLP272 T01220044KMYR2019-12-11T16:56:00Z33.67-78.9212.24.43501510.030.3395671027.2TRUEVFRMETAR8.02019-12-11 17:07:20a*)-5    3KOCH 111656Z AUTO 06007KT 010V100 10SM CLR 08/M01 A3057 RMK AO2 SLP357 T00781011KOCH2019-12-11T16:56:00Z31.57-94.727.8-1.160710.030.5698811035.7TRUETRUEVFRMETAR108.02019-12-11 17:07:20 %%Y1)5   3KMOP 111656Z AUTO 28011G21KT 10SM BKN032 M08/M15 A3028 RMK AO2 T10791150KMOP2019-12-11T16:56:00Z43.62-84.73-7.9-15.0280112110.030.280512TRUETRUEVFRMETAR230.02019-12-11 17:07:20O0)5    3KMQY 111656Z VRB04KT 10SM CLR 04/M05 A3059 RMK AO2 SLP370 T00391050KMQY2019-12-11T16:56:00Z36.02-86.523.9-5.00410.030.5905511037.0TRUEVFRMETAR166.02019-12-11 17:07:20/)q5       3KMRF 111656Z AUTO 18003KT 1/4SM UP FG OVC002 02/02 A3043 RMK AO2 RAB10E54UPB54 SLP312 P0000 T00220017 FZRANO RVRNOKMRF2019-12-11T16:56:00Z30.37-104.022.21.718030.2530.4311031031.2TRUETRUETRUEFG UPLIFR0.005METAR1481.02019-12-11 17:07:20 .)m5      3KMSV 111656Z AUTO 26003KT 10SM SCT025 BKN034 BKN048 M01/M06 A3018 RMK AO2 SNB36E49 SLP237 P0000 T10111056 FZRANOKMSV2019-12-11T16:56:00Z41.7-74.78-1.1-5.6260310.030.1801191023.7TRUETRUETRUEVFR0.005METAR428.02019-12-11 17:07:20 11g5)-5     3KMKT 111656Z AUTO 00000KT 10SM CLR M14/M21 A3045 RMK AO2 SLP341 T11441206 FZRANOKMKT2019-12-11T16:56:00Z44.22-93.92-14.4-20.60010.030.4488181034.1TRUETRUETRUEVFRMETAR311.02019-12-11 17:07:20p4)=5     3KMKY 111656Z AUTO 17007KT 10SM SCT020 SCT025 29/23 A3018 RMK AO2 SLP220 T02890233 TSNO $KMKY2019-12-11T16:56:00Z26.0-81.6728.923.3170710.030.1801191022.0TRUETRUETRUETRUEVFRMETAR2.02019-12-11 17:07:20h3)-5     3KMML 111656Z AUTO 28004KT 10SM CLR M15/M21 A3044 RMK AO2 SLP339 T11501211 FZRANOKMML2019-12-11T16:56:00Z44.45-95.82-15.0-21.1280410.030.439961033.9TRUETRUETRUEVFRMETAR359.02019-12-11 17:07:20|2)G5    3KMNM 111656Z AUTO 27009G16KT 240V320 10SM CLR M16/M23 A3035 RMK AO2 SLP294 T11611228 FZRANO $KMNM2019-12-11T16:56:00Z45.12-87.62-16.1-22.827091610.030.3513771029.4TRUETRUETRUETRUEVFRMETAR191.02019-12-11 17:07:20 e.Mec9)15    3KWWD 111656Z AUTO 33007KT 10SM FEW021 OVC028 03/M01 A3032 RMK AO2 SLP269 T00281006KWWD2019-12-11T16:56:00Z39.02-74.922.8-0.6330710.030.3188971026.9TRUETRUEMVFRMETAR7.02019-12-11 17:07:20\8)!5    3KWMC 111656Z AUTO 20010KT 10SM BKN039 05/01 A3020 RMK AO2 SLP235 T00500006KWMC2019-12-11T16:56:00Z40.9-117.85.00.62001010.030.2007871023.5TRUETRUEVFRMETAR1310.02019-12-11 17:07:20_7)#5   3KEKY 111656Z AUTO 01010G15KT 10SM CLR 06/M04 A3051 RMK AO2 SLP179 T00611044KEKY2019-12-11T16:56:00Z33.32-86.936.1-4.410101510.030.5108261017.9TRUETRUEVFRMETAR213.02019-12-11 17:07:20i6)?5      3KMJX 111656Z AUTO 33004KT 10SM SCT008 BKN012 OVC033 02/ A3029 RMK AO2 SLP262 T0017 FZRANOKMJX2019-12-11T16:56:00Z39.93-74.31.7330410.030.289371026.2TRUETRUETRUEMVFRMETAR25.02019-12-11 17:07:20 V/DVi=)35     3PADK 111656Z AUTO 24015KT 10SM FEW022 M01/M03 A2950 RMK AO2 SLP989 T10061033 FZRANOPADK2019-12-11T16:56:00Z51.88-176.65-0.6-3.32401510.029.500984998.9TRUETRUETRUEVFRSPECI4.02019-12-11 17:07:20f<)-5     3PAFM 111656Z AUTO 35003KT 10SM CLR M06/M08 A2976 RMK AO2 SLP083 T10611078 FZRANOPAFM2019-12-11T16:56:00Z67.1-157.85-6.1-7.8350310.029.7608261008.3TRUETRUETRUEVFRMETAR88.02019-12-11 17:07:20`;)/5    3KNBT 111656Z AUTO 02014KT 10SM BKN011 OVC048 08/04 A3031 RMK AO2 SLP269 T00830044KNBT2019-12-11T16:56:00Z35.02-76.478.34.4201410.030.310041026.9TRUETRUEMVFRMETAR5.02019-12-11 17:07:20g:)-5     3KWVL 111656Z AUTO 02006KT 10SM CLR M03/M13 A3016 RMK AO2 SLP244 T10331128 FZRANOKWVL2019-12-11T16:56:00Z44.52-69.67-3.3-12.820610.030.1594491024.4TRUETRUETRUEVFRMETAR101.02019-12-11 17:07:20 J'JXA)#5     3KY50 111656Z AUTO 27009KT 10SM CLR M14/M20 RMK AO2 SLPNO T11441200 FZRANO $KY502019-12-11T16:56:00Z44.03-89.3-14.4-20.0270910.0TRUETRUETRUETRUEVFRMETAR262.02019-12-11 17:07:20g@)-5     3KYKN 111656Z AUTO 08008KT 10SM CLR M09/M13 A3041 RMK AO2 SLP336 T10891133 FZRANOKYKN2019-12-11T16:56:00Z42.92-97.37-8.9-13.380810.030.4104331033.6TRUETRUETRUEVFRMETAR398.02019-12-11 17:07:20}?)U5     3PAAK 111656Z AUTO 23007KT 10SM CLR M02/M06 A2952 RMK AO2 UPB18E21SNE18 SLP997 T10171056 FZRANO PNO $PAAK2019-12-11T16:56:00Z52.22-174.2-1.7-5.6230710.029.518702999.7TRUETRUETRUETRUEVFRMETAR17.02019-12-11 17:07:20f>)-5     3PABV 111656Z AUTO 17004KT 10SM CLR M06/M07 A2947 RMK AO2 SLP986 T10611067 FZRANOPABV2019-12-11T16:56:00Z61.42-149.52-6.1-6.7170410.029.471457998.6TRUETRUETRUEVFRMETAR29.02019-12-11 17:07:20 S 0SXE)%5    3KOXD 111656Z AUTO 25014KT 10SM SCT026 OVC060 M01/M06 A3044 RMK AO2 T10091058KOXD2019-12-11T16:56:00Z39.5-84.78-0.9-5.82501410.030.43996TRUETRUEVFRMETAR317.02019-12-11 17:07:20hD)-5     3PAKP 111656Z AUTO 18007KT 10SM CLR M06/M07 A2970 RMK AO2 SLP103 T10561072 FZRANOPAKP2019-12-11T16:56:00Z68.13-151.73-5.6-7.2180710.029.6988181010.3TRUETRUETRUEVFRMETAR642.02019-12-11 17:07:20gC)-5     3PAKK 111656Z AUTO 36008KT 10SM CLR M03/M06 A2955 RMK AO2 SLP016 T10281061 FZRANOPAKK2019-12-11T16:56:00Z64.93-161.15-2.8-6.1360810.029.5511821001.6TRUETRUETRUEVFRMETAR47.02019-12-11 17:07:20rB)?5     3PAHX 111656Z AUTO 02018KT 10SM SCT120 M06/M07 A2949 RMK AO2 SLP988 T10561072 PWINO FZRANOPAHX2019-12-11T16:56:00Z62.7-159.57-5.6-7.2201810.029.489174998.8TRUETRUETRUETRUEVFRMETAR24.02019-12-11 17:07:20 q*NZqdI)-5     3PASL 111656Z AUTO VRB03KT 10SM CLR M04/M06 A2942 RMK AO2 SLP955 T10391056 FZRANOPASL2019-12-11T16:56:00Z61.72-157.15-3.9-5.60310.029.421259995.5TRUETRUETRUEVFRMETAR55.02019-12-11 17:07:20oH)75     3PATQ 111656Z AUTO 16008KT 10SM CLR M08/M09 A2969 RMK AO2 SLP060 T10781089 FZRANO TSNOPATQ2019-12-11T16:56:00Z70.47-157.43-7.8-8.9160810.029.689961006.0TRUETRUETRUETRUEVFRMETAR29.02019-12-11 17:07:20WG)5    3KNXF 111656Z AUTO 00000KT 10SM CLR 13/08 A3022 RMK AO2 SLP322 T01330078KNXF2019-12-11T16:56:00Z33.28-117.4513.37.80010.030.2214571032.2TRUETRUEVFRMETAR27.02019-12-11 17:07:20QF)5   3KNXP 111656Z AUTO 00000KT CLR 08/02 A3030 RMK AO2 SLP248 T00780022 $KNXP2019-12-11T16:56:00Z34.28-116.177.82.20030.3011821024.8TRUETRUETRUEMETAR626.02019-12-11 17:07:20    iM)15    3PANI 111656Z AUTO 01010G18KT 10SM CLR 02/M05 A2937 RMK AO2 SLP947 T00171050 FZRANOPANI2019-12-11T16:56:00Z61.58-159.531.7-5.010101810.029.371063994.7TRUETRUETRUEVFRMETAR26.02019-12-11 17:07:20xL)C5    3PANV 111656Z AUTO 03014G20KT 10SM BKN120 M05/M07 A2945 RMK AO2 SLP065 T10501067 FZRANO TSNOPANV2019-12-11T16:56:00Z62.65-160.18-5.0-6.730142010.029.4507871006.5TRUETRUETRUETRUEVFRMETAR99.02019-12-11 17:07:20wK)Q5      3PAOH 111656Z AUTO 09006KT 10SM -RA SCT042 BKN060 OVC090 04/04 A2965 RMK AO2 SLP041 P0002 T00440039PAOH2019-12-11T16:56:00Z58.1-135.454.43.990610.029.6486231004.1TRUETRUE-RAVFR0.02METAR9.02019-12-11 17:07:20tJ)=5      3PAPN 111656Z AUTO 01015KT 10SM OVC036 03/02 A2900 RMK AO2 SLP823 P0004 T00280022 PWINO $PAPN2019-12-11T16:56:00Z57.58-157.572.82.2101510.028.999016982.3TRUETRUETRUETRUEVFR0.04METAR18.02019-12-11 17:07:20 '^OQ)5   3K2WX 111656Z AUTO 15011KT M08/M11 A2999 RMK AO1 SLP204 T10831106 K2WX2019-12-11T16:56:00Z45.6-103.55-8.3-10.61501129.9911421020.4TRUETRUEMETAR915.02019-12-11 17:07:20DP(}5    3KRGK 111656Z AUTO 00000KT 10SM CLR M17/M22 A3045 RMK AO2KRGK2019-12-11T16:56:00Z44.58-92.48-17.0-22.00010.030.448818TRUETRUEVFRMETAR239.02019-12-11 17:07:20gO)35     3KRKD 111656Z AUTO VRB03KT 10SM FEW120 M02/M09 A3018 RMK AO2 SLP221 T10221089 FZRANOKRKD2019-12-11T16:56:00Z44.07-69.08-2.2-8.90310.030.1801191022.1TRUETRUETRUEVFRMETAR17.02019-12-11 17:07:20hN)75    3PANA 111656Z AUTO VRB04KT OVC055 00/M01 A2933 RMK AO2 SLP933 T00001011 PWINO FZRANO $PANA2019-12-11T16:56:00Z60.68-161.980.0-1.10429.329725993.3TRUETRUETRUETRUETRUEMETAR5.02019-12-11 17:07:20 m6VemsU)?5     3KSFM 111656Z AUTO 30005KT 10SM FEW050 M01/M06 A3019 RMK AO2 SLP229 T10061056 FZRANO PNO $KSFM2019-12-11T16:56:00Z43.38-70.72-0.6-5.6300510.030.1889761022.9TRUETRUETRUETRUEVFRMETAR74.02019-12-11 17:07:20lT)15     3KRUT 111656Z AUTO VRB04KT 10SM CLR M02/M12 A3017 RMK AO2 SLP222 T10221117 FZRANO $KRUT2019-12-11T16:56:00Z43.52-72.95-2.2-11.70410.030.1712591022.2TRUETRUETRUETRUEVFRMETAR240.02019-12-11 17:07:20[S)%5   3KRZT 111656Z AUTO 24013G18KT 10SM SCT046 BKN075 OVC100 M01/M08 A3046 RMK AO2KRZT2019-12-11T16:56:00Z39.43-83.02-1.0-8.0240131810.030.46063TRUETRUEVFRMETAR221.02019-12-11 17:07:20ER(}5    3KSAZ 111656Z AUTO 29005KT 10SM CLR M22/M24 A3035 RMK AO2KSAZ2019-12-11T16:56:00Z46.37-94.8-22.0-24.0290510.030.351377TRUETRUEVFRMETAR392.02019-12-11 17:07:20 A'0AjY)35     3KENV 111656Z AUTO 00000KT 10SM FEW085 M01/M02 A3022 RMK AO2 SLP266 T10111017 FZRANOKENV2019-12-11T16:56:00Z40.72-114.02-1.1-1.70010.030.2214571026.6TRUETRUETRUEVFRMETAR1292.02019-12-11 17:07:20rX)C5      3KSFZ 111656Z AUTO VRB03KT 10SM CLR 01/M03 A3021 RMK AO2 SNE21 SLP181 P0003 T00061033 FZRANOKSFZ2019-12-11T16:56:00Z41.92-71.50.6-3.30310.030.2096461018.1TRUETRUETRUEVFR0.03METAR134.02019-12-11 17:07:20fW)35    3KSGH 111656Z AUTO 24011KT 10SM FEW029 OVC055 M02/M07 A3042 RMK AO2 SLP317 T10221067KSGH2019-12-11T16:56:00Z39.83-83.83-2.2-6.72401110.030.419291031.7TRUETRUEVFRMETAR321.02019-12-11 17:07:20iV)35     3KSDY 111656Z AUTO 05007KT 10SM SCT012 M14/M16 A3010 RMK AO2 SLP591 T11391161 FZRANOKSDY2019-12-11T16:56:00Z47.7-104.2-13.9-16.150710.030.100393959.1TRUETRUETRUEVFRMETAR605.02019-12-11 17:07:20 Z "ZC](}5    3KFFM 111656Z AUTO 00000KT 10SM CLR M23/M26 A3044 RMK AO2KFFM2019-12-11T16:56:00Z46.28-96.15-23.0-26.00010.030.43996TRUETRUEVFRMETAR361.02019-12-11 17:07:20g\)95   3KFFX 111656Z AUTO 28015G21KT 10SM SCT021 BKN028 OVC034 M08/M14 A3034 RMK AO2 T10851144KFFX2019-12-11T16:56:00Z43.43-86.0-8.5-14.4280152110.030.339567TRUETRUEMVFRMETAR236.02019-12-11 17:07:20z[)I5    3KFKL 111656Z AUTO 25014G20KT 230V290 10SM OVC030 M05/M11 A3025 RMK AO2 SLP268 T10501111 FZRANOKFKL2019-12-11T16:56:00Z41.37-79.87-5.0-11.1250142010.030.2509841026.8TRUETRUETRUEMVFRMETAR469.02019-12-11 17:07:20nZ)35    3KESC 111656Z AUTO 26014G17KT 10SM CLR M17/M22 A3029 RMK AO2 SLP278 T11671222 FZRANOKESC2019-12-11T16:56:00Z45.75-87.08-16.7-22.2260141710.030.289371027.8TRUETRUETRUEVFRMETAR187.02019-12-11 17:07:20 o7Ro^a)#5    3KEUL 111656Z AUTO 11004KT 10SM OVC049 03/M01 A3019 RMK AO2 SLP239 T00331006KEUL2019-12-11T16:56:00Z43.62-116.623.3-0.6110410.030.1889761023.9TRUETRUEVFRMETAR740.02019-12-11 17:07:20``)#5   3KEWK 111656Z AUTO 21013G19KT 10SM CLR 05/M07 A3039 RMK AO2 SLP301 T00501067KEWK2019-12-11T16:56:00Z38.03-97.275.0-6.7210131910.030.3897631030.1TRUETRUEVFRMETAR467.02019-12-11 17:07:20Z_)5    3KFAM 111656Z AUTO 24009KT 10SM CLR 07/M06 A3048 RMK AO2 SLP340 T00671056KFAM2019-12-11T16:56:00Z37.77-90.426.7-5.6240910.030.4812981034.0TRUETRUEVFRMETAR288.02019-12-11 17:07:20e^)/5    3KFCI 111656Z AUTO 33009KT 10SM SCT033 05/M02 A3038 RMK AO2 SLP301 T00501017 PNO $KFCI2019-12-11T16:56:00Z37.4-77.525.0-1.7330910.030.3809051030.1TRUETRUETRUEVFRMETAR72.02019-12-11 17:07:20 ](K]ie)35     3KBHB 111656Z AUTO 34005KT 10SM OVC060 M03/M09 A3017 RMK AO2 SLP220 T10331089 FZRANOKBHB2019-12-11T16:56:00Z44.45-68.37-3.3-8.9340510.030.1712591022.0TRUETRUETRUEVFRMETAR26.02019-12-11 17:07:20Xd)5    3KFLP 111656Z AUTO VRB04KT 10SM CLR 06/M04 A3054 RMK AO2 SLP346 T00611039KFLP2019-12-11T16:56:00Z36.28-92.586.1-3.90410.030.5403541034.6TRUETRUEVFRMETAR219.02019-12-11 17:07:20gc)+5     3KFNL 111656Z AUTO 34003KT 7SM CLR M01/M02 A3011 RMK AO2 SLP223 T10061017 FZRANOKFNL2019-12-11T16:56:00Z40.45-105.02-0.6-1.734037.030.1092531022.3TRUETRUETRUEVFRMETAR1529.02019-12-11 17:07:20gb)-5     3KFOD 111656Z AUTO 06006KT 10SM CLR M11/M17 A3046 RMK AO2 SLP370 T11111172 FZRANOKFOD2019-12-11T16:56:00Z42.53-94.17-11.1-17.260610.030.460631037.0TRUETRUETRUEVFRMETAR355.02019-12-11 17:07:20 6Jnii)15     3KGPZ 111656Z AUTO 30008KT 7SM FEW012 M18/M23 A3033 RMK AO2 SLP319 T11831228 FZRANOKGPZ2019-12-11T16:56:00Z47.22-93.52-18.3-22.830087.030.330711031.9TRUETRUETRUEVFRMETAR413.02019-12-11 17:07:20Wh)5    3KAXV 111656Z AUTO 26015G20KT 5SM HZ BKN023 BKN050 M03/M09 A3040 RMK AO2KAXV2019-12-11T16:56:00Z40.5-84.3-3.0-9.026015205.030.398623TRUETRUEHZMVFRMETAR279.02019-12-11 17:07:20gg)95   3KBAX 111656Z AUTO 27018G28KT 10SM SCT035 BKN042 OVC048 M07/M15 A3020 RMK AO2 T10701149KBAX2019-12-11T16:56:00Z43.78-82.98-7.0-14.9270182810.030.200787TRUETRUEVFRMETAR234.02019-12-11 17:07:20Ef(}5    3KBDH 111656Z AUTO 23004KT 10SM CLR M22/M24 A3046 RMK AO2KBDH2019-12-11T16:56:00Z45.12-95.13-22.0-24.0230410.030.46063TRUETRUEVFRMETAR247.02019-12-11 17:07:20 g4FgZm)5    3KGAD 111656Z AUTO 02012KT 10SM CLR 06/M02 A3052 RMK AO2 SLP343 T00611017KGAD2019-12-11T16:56:00Z33.97-86.076.1-1.7201210.030.5196861034.3TRUETRUEVFRMETAR173.02019-12-11 17:07:20il)15     3KGAI 111656Z AUTO 26011KT 10SM FEW042 02/M07 A3035 RMK AO2 SLP296 T00171067 FZRANOKGAI2019-12-11T16:56:00Z39.17-77.171.7-6.72601110.030.3513771029.6TRUETRUETRUEVFRMETAR165.02019-12-11 17:07:20Zk)5    3KGBD 111656Z AUTO 20007KT 10SM CLR 04/M06 A3032 RMK AO2 SLP287 T00441061KGBD2019-12-11T16:56:00Z38.35-98.874.4-6.1200710.030.3188971028.7TRUETRUEVFRMETAR575.02019-12-11 17:07:20hj)-5     3KGDV 111656Z AUTO 05007KT 10SM CLR M13/M15 A3002 RMK AO2 SLP216 T11331150 FZRANOKGDV2019-12-11T16:56:00Z47.12-104.78-13.3-15.050710.030.020671021.6TRUETRUETRUEVFRMETAR749.02019-12-11 17:07:20 k5Hvkq)a5       3KBID 111656Z AUTO 34007KT 9SM -SN SCT008 SCT013 BKN039 M01/M02 A3025 RMK AO2 SLP244 P0001 T10061017 FZRANOKBID2019-12-11T16:56:00Z41.17-71.58-0.6-1.734079.030.2509841024.4TRUETRUETRUE-SNVFR0.01METAR33.02019-12-11 17:07:20Mp)5    3KBJI 111656Z AUTO 26007KT 7SM CLR M21/M25 A3031 RMK AO2 T12121255KBJI2019-12-11T16:56:00Z47.5-94.92-21.2-25.526077.030.31004TRUETRUEVFRMETAR420.02019-12-11 17:07:20ho)-5     3KFRM 111656Z AUTO 35006KT 10SM CLR M14/M19 A3044 RMK AO2 SLP339 T11391194 FZRANOKFRM2019-12-11T16:56:00Z43.63-94.42-13.9-19.4350610.030.439961033.9TRUETRUETRUEVFRMETAR354.02019-12-11 17:07:20Fn(}5    3KFSE 111656Z AUTO 20007KT 10SM CLR M26/M28 A3034 RMK AO2KFSE2019-12-11T16:56:00Z47.58-95.77-26.0-28.0200710.030.339567TRUETRUEVFRMETAR389.02019-12-11 17:07:20 V#.EVju)95     3KBMI 111656Z 26008KT 10SM OVC040 M03/M08 A3043 RMK AO2 SNB04E49 SLP317 P0000 T10281078KBMI2019-12-11T16:56:00Z40.47-88.92-2.8-7.8260810.030.4311031031.7TRUEVFR0.005METAR267.02019-12-11 17:07:20dt)/5    3KBOK 111656Z AUTO 13004KT 10SM FEW026 OVC100 11/08 A3012 RMK AO2 SLP199 T01060083KBOK2019-12-11T16:56:00Z42.07-124.2810.68.3130410.030.1210631019.9TRUETRUEVFRMETAR140.02019-12-11 17:07:20ps)95    3KBTP 111656Z AUTO 23014G20KT 10SM BKN034 M04/M11 A3031 RMK AO2 SLP288 T10391106 FZRANOKBTP2019-12-11T16:56:00Z40.77-79.95-3.9-10.6230142010.030.310041028.8TRUETRUETRUEVFRMETAR380.02019-12-11 17:07:20Xr)5   3KBVI 111656Z AUTO 23012G20KT 10SM OVC034 M03/M11 A3032 RMK AO2 T10271107KBVI2019-12-11T16:56:00Z40.77-80.4-2.7-10.7230122010.030.318897TRUETRUEVFRMETAR382.02019-12-11 17:07:20 x7x:y(w5    3KCFE 111656Z 10SM CLR M20/M24 A3046 RMK AO2 T11971240KCFE2019-12-11T16:56:00Z45.17-93.85-19.7-24.010.030.46063TRUEVFRMETAR295.02019-12-11 17:07:20Zx)5    3KBVX 111656Z AUTO 19007KT 10SM CLR 07/M06 A3058 RMK AO2 SLP357 T00721061KBVX2019-12-11T16:56:00Z35.73-91.657.2-6.1190710.030.5787411035.7TRUETRUEVFRMETAR141.02019-12-11 17:07:20iw)-5     3KBKX 111656Z AUTO 19006KT 10SM CLR M14/M18 A3038 RMK AO2 SLP339 T11441183 FZRANOKBKX2019-12-11T16:56:00Z44.28-96.82-14.4-18.3190610.030.3809051033.9TRUETRUETRUEVFRMETAR502.02019-12-11 17:07:20wv)U5     3KBLM 111656Z AUTO 31004KT 10SM BKN007 OVC012 01/01 A3029 RMK AO2 CIG 005V011 SLP256 T00110011 FZRANOKBLM2019-12-11T16:56:00Z40.17-74.121.11.1310410.030.289371025.6TRUETRUETRUEIFRMETAR48.02019-12-11 17:07:20 ~#/^~[})!5   3KITH 111656Z 24011G20KT 10SM BKN033 M01/M09 A3015 RMK AO2 SLP225 T10111094KITH2019-12-11T16:56:00Z42.47-76.45-1.1-9.4240112010.030.150591022.5TRUEVFRMETAR335.02019-12-11 17:07:20L|)5   3KCKC 111656Z AUTO 28009G15KT 10SM CLR M22/M28 A3008 RMK AO2KCKC2019-12-11T16:56:00Z47.83-90.37-22.0-28.028091510.030.079725TRUETRUEVFRMETAR548.02019-12-11 17:07:20o{)35    3KCIU 111656Z AUTO 26013G19KT 10SM CLR M12/M17 A3010 RMK AO2 SLP211 T11221172 FZRANOKCIU2019-12-11T16:56:00Z46.25-84.47-12.2-17.2260131910.030.1003931021.1TRUETRUETRUEVFRMETAR244.02019-12-11 17:07:20Xz)5    3KCGZ 111656Z AUTO 00000KT 10SM CLR 11/07 A3022 RMK AO2 SLP235 T01060072KCGZ2019-12-11T16:56:00Z32.95-111.7710.67.20010.030.2214571023.5TRUETRUEVFRMETAR446.02019-12-11 17:07:20 % ' %c)35    3KJRB 111656Z AUTO 25006KT OVC055 02/M02 A3028 RMK AO2 SLP255 T00221017 PWINO FZRANOKJRB2019-12-11T16:56:00Z40.7-74.022.2-1.7250630.2805121025.5TRUETRUETRUETRUEMETAR7.02019-12-11 17:07:20)y5     3KJHW 111656Z AUTO 25024G29KT 8SM SCT034 M06/M12 A3016 RMK AO2 PK WND 26029/1655 SNB32E46 SLP243 P0000 T10561117 FZRANOKJHW2019-12-11T16:56:00Z42.13-79.27-5.6-11.725024298.030.1594491024.3TRUETRUETRUEVFR0.005METAR525.02019-12-11 17:07:20^))5    3KJAC 111656Z 00000KT 10SM BKN055 OVC075 M09/M11 A3012 RMK AO2 SLP275 T10891106KJAC2019-12-11T16:56:00Z43.62-110.73-8.9-10.60010.030.1210631027.5TRUEVFRMETAR1961.02019-12-11 17:07:20q~)75      3KIWD 111656Z AUTO 25017KT 3SM HZ OVC012 M19/M23 A3027 RMK AO2 SLP292 T11941228 FZRANOKIWD2019-12-11T16:56:00Z46.52-90.12-19.4-22.8250173.030.2687021029.2TRUETRUETRUEHZMVFRMETAR375.02019-12-11 17:07:20 _+K_g)-5     3KLEW 111656Z AUTO 33005KT 10SM CLR M02/M12 A3018 RMK AO2 SLP231 T10221117 FZRANOKLEW2019-12-11T16:56:00Z44.03-70.27-2.2-11.7330510.030.1801191023.1TRUETRUETRUEVFRMETAR88.02019-12-11 17:07:20[)5    3KLBL 111656Z AUTO 16006KT 10SM CLR 04/M04 A3030 RMK AO2 SLP279 T00391044KLBL2019-12-11T16:56:00Z37.03-100.973.9-4.4160610.030.3011821027.9TRUETRUEVFRMETAR879.02019-12-11 17:07:20_)#5    3KJYM 111656Z AUTO 28016G22KT 5SM -SN OVC023 M07/M12 A3030 RMK AO2 T10701119KJYM2019-12-11T16:56:00Z41.92-84.58-7.0-11.928016225.030.301182TRUETRUE-SNMVFRMETAR360.02019-12-11 17:07:20l)?5     3KKLS 111656Z AUTO 13005KT 10SM OVC005 06/06 A3002 RMK AO2 RAB44E54 SLP170 P0000 T00610056KKLS2019-12-11T16:56:00Z46.12-122.96.15.6130510.030.020671017.0TRUETRUEIFR0.005METAR5.02019-12-11 17:07:20 c/@cX )5    3KLPC 111656Z AUTO 12003KT 10SM CLR 08/08 A3026 RMK AO2 SLP250 T00830078KLPC2019-12-11T16:56:00Z34.67-120.478.37.8120310.030.2598421025.0TRUETRUEVFRMETAR27.02019-12-11 17:07:20j)75   3KLGD 111656Z AUTO 19014G20KT 10SM SCT042 OVC050 04/M02 A3012 RMK AO2 SLP211 T00391017KLGD2019-12-11T16:56:00Z45.27-118.03.9-1.7190142010.030.1210631021.1TRUETRUEVFRMETAR827.02019-12-11 17:07:20h)-5     3KLCI 111656Z AUTO 24007KT 10SM CLR M02/M14 A3017 RMK AO2 SLP224 T10221139 FZRANOKLCI2019-12-11T16:56:00Z43.57-71.42-2.2-13.9240710.030.1712591022.4TRUETRUETRUEVFRMETAR166.02019-12-11 17:07:20_)#5    3KLDM 111656Z AUTO 30010G17KT 5SM -SN OVC025 M11/M16 A3035 RMK AO2 T11091158KLDM2019-12-11T16:56:00Z43.97-86.4-10.9-15.830010175.030.351377TRUETRUE-SNMVFRMETAR197.02019-12-11 17:07:20 ,bX )5    3KM19 111656Z AUTO 18005KT 10SM CLR 05/M02 A3060 RMK AO2 SLP362 T00501022KM192019-12-11T16:56:00Z35.65-91.175.0-2.2180510.030.599411036.2TRUETRUEVFRMETAR73.02019-12-11 17:07:20O )5    3KLZU 111656Z 00000KT 10SM CLR 06/M06 A3043 RMK AO2 SLP320 T00611056KLZU2019-12-11T16:56:00Z33.98-83.976.1-5.60010.030.4311031032.0TRUEVFRMETAR323.02019-12-11 17:07:20E (}5    3KLYV 111656Z AUTO 09003KT 10SM CLR M16/M21 A3041 RMK AO2KLYV2019-12-11T16:56:00Z43.62-96.22-16.0-21.090310.030.410433TRUETRUEVFRMETAR436.02019-12-11 17:07:20O )5    3KLRD 111656Z 03007KT 10SM CLR 13/03 A3049 RMK AO2 SLP328 T01280033KLRD2019-12-11T16:56:00Z27.55-99.4712.83.330710.030.4901581032.8TRUEVFRMETAR155.02019-12-11 17:07:20 g)-5     3KOTG 111656Z AUTO 00000KT 10SM CLR M11/M17 A3040 RMK AO2 SLP333 T11111167 FZRANOKOTG2019-12-11T16:56:00Z43.63-95.57-11.1-16.70010.030.3986231033.3TRUETRUETRUEVFRMETAR480.02019-12-11 17:07:20g)35    3KONZ 111656Z AUTO 27012G21KT 10SM -SN BKN029 OVC034 M05/M11 A3030 RMK AO2 T10501113KONZ2019-12-11T16:56:00Z42.1-83.15-5.0-11.3270122110.030.301182TRUETRUE-SNMVFRMETAR180.02019-12-11 17:07:20g)-5     3KOLU 111656Z AUTO 08010KT 10SM CLR M05/M09 A3039 RMK AO2 SLP317 T10501094 FZRANOKOLU2019-12-11T16:56:00Z41.45-97.32-5.0-9.4801010.030.3897631031.7TRUETRUETRUEVFRMETAR440.02019-12-11 17:07:20)5       3KMBL 111656Z AUTO 29017KT 2SM -SN BKN021 OVC027 M12/M15 A3033 RMK AO2 PK WND 29026/1619 VIS 1V5 SLP286 P0000 T11171150 FZRANOKMBL2019-12-11T16:56:00Z44.27-86.25-11.7-15.0290172.030.330711028.6TRUETRUETRUE-SNIFR0.005METAR189.02019-12-11 17:07:20 r"2HrQ)5    3KOWB 111656Z 21006KT 10SM CLR 03/M04 A3055 RMK AO2 SLP349 T00281044KOWB2019-12-11T16:56:00Z37.72-87.172.8-4.4210610.030.5492131034.9TRUEVFRSPECI124.02019-12-11 17:07:20e)/5    3KRDR 111656Z 25004KT 10SM FEW110 SCT180 M20/M27 A3036 RMK AO2A SLP316 T12031269 $KRDR2019-12-11T16:56:00Z47.97-97.4-20.3-26.9250410.030.3602371031.6TRUETRUEVFRMETAR278.02019-12-11 17:07:20k)?5   3KFFO 111656Z 23015G21KT 10SM FEW027 SCT043 OVC060 M02/M08 A3043 RMK AO2A SLP320 T10181085KFFO2019-12-11T16:56:00Z39.82-84.03-1.8-8.5230152110.030.4311031032.0TRUEVFRMETAR251.02019-12-11 17:07:20Y)%5    3KOTH 111656Z 15005KT 10SM BKN030 OVC035 09/08 A3008 RMK AO2 SLP185 T00890083KOTH2019-12-11T16:56:00Z43.42-124.258.98.3150510.030.0797251018.5TRUEMVFRMETAR4.02019-12-11 17:07:20 g0Sgg)35     3KPTV 111656Z AUTO 12003KT 4SM BR BKN002 BKN009 08/08 A3028 RMK AO2 SLP255 T00830083KPTV2019-12-11T16:56:00Z36.02-119.078.38.312034.030.2805121025.5TRUETRUEBRLIFRMETAR135.02019-12-11 17:07:20X)5    3KPRX 111656Z AUTO VRB04KT 10SM CLR 06/M01 A3057 RMK AO2 SLP373 T00611011KPRX2019-12-11T16:56:00Z33.62-95.456.1-1.10410.030.5698811037.3TRUETRUEVFRMETAR167.02019-12-11 17:07:20^)%5    3KPQI 111656Z AUTO 00000KT 10SM FEW029 M09/M14 A3017 RMK AO2 SLP251 T10891144KPQI2019-12-11T16:56:00Z46.67-68.03-8.9-14.40010.030.1712591025.1TRUETRUEVFRMETAR146.02019-12-11 17:07:20h)/5   3KPIB 111656Z AUTO 02011G17KT 10SM CLR 08/M01 A3052 RMK AO2 SLP337 T00831006 PNO $KPIB2019-12-11T16:56:00Z31.47-89.328.3-0.620111710.030.5196861033.7TRUETRUETRUEVFRSPECI91.02019-12-11 17:07:20 V)5    3KPVU 111656Z 10004KT 10SM OVC100 01/M03 A3023 RMK AO2 SLP258 T00111028KPVU2019-12-11T16:56:00Z40.22-111.721.1-2.8100410.030.2303141025.8TRUEVFRMETAR1369.02019-12-11 17:07:20j)95    3KPVG 111656Z AUTO 32007KT 290V360 10SM CLR 06/M03 A3038 RMK AO2 SLP289 T00561028 PNO $KPVG2019-12-11T16:56:00Z36.78-76.455.6-2.8320710.030.3809051028.9TRUETRUETRUEVFRSPECI7.02019-12-11 17:07:20)y5      3KPVC 111656Z AUTO 31012KT 1 1/4SM -SN BR BKN008 OVC016 M01/M01 A3022 RMK AO2 CIG 005V010 SLP233 T10061006 FZRANO PNO $KPVC2019-12-11T16:56:00Z42.07-70.22-0.6-0.6310121.2530.2214571023.3TRUETRUETRUETRUE-SN BRIFRMETAR2.02019-12-11 17:07:20w)Q5    3KPTN 111656Z AUTO 06021G29KT 10SM CLR 12/03 A3044 RMK AO2 PK WND 07029/1656 SLP309 P0001 T01170028KPTN2019-12-11T16:56:00Z29.72-91.3211.72.860212910.030.439961030.9TRUETRUEVFR0.01SPECI3.02019-12-11 17:07:20 y0UyW!)5    3KSGJ 111656Z 01018KT 10SM OVC008 16/14 A3029 RMK AO2 SLP255 T01610139 $KSGJ2019-12-11T16:56:00Z29.97-81.3216.113.9101810.030.289371025.5TRUETRUEIFRSPECI3.02019-12-11 17:07:20V )5    3KSGT 111656Z AUTO 00000KT 10SM CLR 06/M02 A3061 RMK AO2 SLP367 T00561022KSGT2019-12-11T16:56:00Z34.6-91.575.6-2.20010.030.6112211036.7TRUETRUEVFRSPECI68.02019-12-11 17:07:20`)'5    3KSGU 111656Z AUTO 00000KT 10SM CLR 03/01 A3029 RMK AO2 SLP264 T00280011 PNO $KSGU2019-12-11T16:56:00Z37.07-113.522.81.10010.030.289371026.4TRUETRUETRUEVFRMETAR896.02019-12-11 17:07:20f)-5     3KSKX 111656Z AUTO 00000KT 10SM CLR M01/M06 A3033 RMK AO2 SLP301 T10061056 FZRANOKSKX2019-12-11T16:56:00Z36.45-105.67-0.6-5.60010.030.330711030.1TRUETRUETRUEVFRMETAR2161.02019-12-11 17:07:20 K!:Kj%)35     3KSMN 111656Z AUTO 00000KT 10SM OVC047 M03/M06 A3013 RMK AO2 SLP254 T10331061 FZRANOKSMN2019-12-11T16:56:00Z45.12-113.87-3.3-6.10010.030.1299211025.4TRUETRUETRUEVFRMETAR1233.02019-12-11 17:07:20b$)'5     3KSLG 111656Z AUTO 22008KT 10SM CLR 06/M04 A3052 RMK AO2 SLP345 T00611039 TSNOKSLG2019-12-11T16:56:00Z36.2-94.476.1-3.9220810.030.5196861034.5TRUETRUETRUEVFRSPECI300.02019-12-11 17:07:20`#)%5    3KPWG 111656Z AUTO VRB03KT 10SM OVC010 05/03 A3057 RMK AO2 SLP356 T00500028 $KPWG2019-12-11T16:56:00Z31.47-97.325.02.80310.030.5698811035.6TRUETRUETRUEMVFRMETAR180.02019-12-11 17:07:20u")E5     3KPWT 111656Z AUTO 00000KT 4SM -RA BR OVC003 06/06 A3001 RMK AO2 RAB50 SLP180 T00610061 PNO $KPWT2019-12-11T16:56:00Z47.5-122.756.16.1004.030.0088581018.0TRUETRUETRUE-RA BRLIFRMETAR147.02019-12-11 17:07:20 h#OPhc))!5     3KSUE 111656Z AUTO 10SM CLR M16/M20 A3034 RMK AO2 SLP291 T11561200 FZRANO $KSUE2019-12-11T16:56:00Z44.85-87.42-15.6-20.010.030.3395671029.1TRUETRUETRUETRUEVFRMETAR221.02019-12-11 17:07:20z()E5       3KSQI 111656Z AUTO 30006KT 9SM -SN BKN016 M04/M09 A3046 RMK AO2 SLP182 P0000 T10441089 FZRANOKSQI2019-12-11T16:56:00Z41.75-89.67-4.4-8.930069.030.460631018.2TRUETRUETRUE-SNMVFR0.005METAR197.02019-12-11 17:07:20O')5    3KSRC 111656Z AUTO VRB04KT 10SM CLR 06/M01 A3060 RMK AO2 SLPNO T00611011KSRC2019-12-11T16:56:00Z35.22-91.736.1-1.10410.030.59941TRUETRUEVFRSPECI80.02019-12-11 17:07:20X&)5    3KSOP 111656Z AUTO 01008KT 10SM CLR 06/M04 A3040 RMK AO2 SLP299 T00611044KSOP2019-12-11T16:56:00Z35.22-79.46.1-4.410810.030.3986231029.9TRUETRUEVFRSPECI141.02019-12-11 17:07:20 v,avf-)+5   3KUCP 111656Z AUTO 25015G19KT 10SM OVC035 M03/M10 A3032 RMK AO2 SLP297 T10281100KUCP2019-12-11T16:56:00Z41.03-80.42-2.8-10.0250151910.030.3188971029.7TRUETRUEVFRMETAR327.02019-12-11 17:07:20F,(}5    3KTWM 111656Z AUTO 27006KT 10SM CLR M21/M28 A3028 RMK AO2KTWM2019-12-11T16:56:00Z47.03-91.75-21.0-28.0270610.030.280512TRUETRUEVFRMETAR328.02019-12-11 17:07:20i+)-5     3KTVF 111656Z AUTO 24006KT 10SM CLR M24/M27 A3035 RMK AO2 SLP322 T12391272 FZRANOKTVF2019-12-11T16:56:00Z48.07-96.17-23.9-27.2240610.030.3513771032.2TRUETRUETRUEVFRMETAR340.02019-12-11 17:07:20a*)+5   3KTEW 111656Z AUTO 28010G22KT 10SM BKN026 OVC033 M07/M12 A3030 RMK AO2 T10691120KTEW2019-12-11T16:56:00Z42.57-84.42-6.9-12.0280102210.030.301182TRUETRUEMVFRMETAR280.02019-12-11 17:07:20 $$f1)-5     3PFNO 111656Z AUTO 06011KT 10SM CLR M03/M07 A2969 RMK AO2 SLP137 T10331067 FZRANOPFNO2019-12-11T16:56:00Z66.82-161.02-3.3-6.7601110.029.689961013.7TRUETRUETRUEVFRSPECI17.02019-12-11 17:07:20n0)K5   3PFWS 111656Z AUTO 05025G31KT 10SM SCT085 05/02 A2910 RMK AO2 PK WND 05031/1647 SLP895 T00500017PFWS2019-12-11T16:56:00Z58.7-157.05.01.750253110.029.09941989.5TRUETRUEVFRSPECI49.02019-12-11 17:07:20g/)-5     3PFEL 111656Z AUTO 34008KT 10SM CLR M01/M04 A2957 RMK AO2 SLP016 T10061044 FZRANOPFEL2019-12-11T16:56:00Z64.62-162.27-0.6-4.4340810.029.5688971001.6TRUETRUETRUEVFRMETAR49.02019-12-11 17:07:20 .)a5       3PAZK 111656Z AUTO 00000KT 3/4SM -SN BR OVC005 M06/M07 A2947 RMK AO2 SNE24B52 SLP036 P0000 T10561067 FZRANOPAZK2019-12-11T16:56:00Z61.93-147.17-5.6-6.7000.7529.4714571003.6TRUETRUETRUE-SN BRLIFR0.005SPECI1003.02019-12-11 17:07:20 P"C4P_5)5    3KXNO 111656Z AUTO 36010KT 10SM CLR 11/02 A3039 RMK AO2 SLP294 T01140016 $KXNO2019-12-11T16:56:00Z33.62-81.0711.41.63601010.030.3897631029.4TRUETRUETRUEVFRMETAR98.02019-12-11 17:07:20 4)i5      3KTDR 111656Z AUTO 04016KT 10SM -SHRA FEW036 OVC055 09/06 A3034 RMK AO2 SHRAE37SHRAB54 SLP278 P0002 T00930063 $KTDR2019-12-11T16:56:00Z30.05-85.529.36.3401610.030.3395671027.8TRUETRUETRUE-SHRAVFR0.02SPECI5.02019-12-11 17:07:20Z3)5    3KFRI 111656Z AUTO 23008KT 10SM CLR 05/M07 A3039 RMK AO2 SLP301 T00481067KFRI2019-12-11T16:56:00Z39.03-96.774.8-6.7230810.030.3897631030.1TRUETRUEVFRMETAR325.02019-12-11 17:07:20Y2)!5    3KBIX 111656Z AUTO 02012KT 10SM OVC060 08/01 A3046 RMK AO2 SLP318 T00780005KBIX2019-12-11T16:56:00Z30.42-88.927.80.5201210.030.460631031.8TRUETRUEVFRMETAR10.02019-12-11 17:07:20 _8@_\9)#5    3KLSF 111656Z AUTO 33012KT 10SM BKN200 10/M06 A3044 RMK AO2 SLP314 T00951056KLSF2019-12-11T16:56:00Z32.32-84.979.5-5.63301210.030.439961031.4TRUETRUEVFRSPECI71.02019-12-11 17:07:20s8)a5      3KLRF 111656Z AUTO 00000KT 10SM CLR M M RMK AO2 SLPNO RVRNO PWINO PNO FZRANO TSNO VISNO RWY25 CHINO RWY25 $KLRF2019-12-11T16:56:00Z34.92-92.150010.0TRUETRUETRUETRUETRUETRUEVFRMETAR95.02019-12-11 17:07:20]7)5    3KCOF 111656Z AUTO 36003KT 10SM CLR 28/25 A3019 RMK AO2 SLP228 T02750245 $KCOF2019-12-11T16:56:00Z28.23-80.627.524.5360310.030.1889761022.8TRUETRUETRUEVFRMETAR3.02019-12-11 17:07:20a6)#5    3CYER 111656Z AUTO 29013G23KT 3SM -SN BKN027 OVC060 M21/M23 A2975 RMK SLP077CYER2019-12-11T16:56:00Z56.02-87.68-21.0-23.029013233.029.7490161007.7TRUE-SNMVFRSPECI16.02019-12-11 17:07:20 Y<)5    3KMXF 111656Z AUTO 03011KT 10SM CLR 08/M02 A3048 RMK AO2 SLP325 T00791019KMXF2019-12-11T16:56:00Z32.37-86.377.9-1.9301110.030.4812981032.5TRUETRUEVFRMETAR51.02019-12-11 17:07:20x;)Q5     3KOZR 111656Z AUTO 36007KT 10SM FEW120 08/M01 A3043 RMK AO2 RAB19E42DZB42E44 SLP308 P0000 T00771008KOZR2019-12-11T16:56:00Z31.28-85.727.7-0.8360710.030.4311031030.8TRUETRUEVFR0.005METAR93.02019-12-11 17:07:20E:)M5    3KPAM 111656Z AUTO 05014G20KT 10SM -RA FEW008 FEW013 BKN026 BKN032 BKN049 OVC060 10/05 A3034 RMK AO2 RAE09RAB49 CIG 024V035 BKN026 V SCT SLP277 P0000 T00970053 $KPAM2019-12-11T16:56:00Z30.07-85.579.75.350142010.030.3395671027.7TRUETRUETRUE-RABKN3200MVFR0.005METAR5.02019-12-11 17:07:20 h$EhX@)5    3KSZL 111656Z 26008KT 10SM CLR 06/M06 A3040 RMK AO2A SLP307 T00601063 $KSZL2019-12-11T16:56:00Z38.72-93.536.0-6.3260810.030.3986231030.7TRUETRUEVFRMETAR265.02019-12-11 17:07:20Z?)!5    3KSKF 111656Z AUTO 06008KT 10SM OVC008 04/02 A3052 RMK AO2 SLP339 T00430020KSKF2019-12-11T16:56:00Z29.37-98.574.32.060810.030.5196861033.9TRUETRUEIFRMETAR210.02019-12-11 17:07:20p>)A5    3KSVN 111656Z AUTO 01011KT 10SM BKN024 16/09 A3030 RMK AO2 CIG 023 RWY10 SLP263 T01630092 $KSVN2019-12-11T16:56:00Z32.02-81.1516.39.2101110.030.3011821026.3TRUETRUETRUEMVFRSPECI13.02019-12-11 17:07:20b=)'5    3KPOB 111656Z AUTO 02011KT 10SM FEW200 08/M03 A3038 RMK AO2 SLP291 T00791033 $KPOB2019-12-11T16:56:00Z35.17-79.027.9-3.3201110.030.3809051029.1TRUETRUETRUEVFRMETAR66.02019-12-11 17:07:20  oD)K5     3KVPS 111656Z 04015KT 10SM OVC047 07/04 A3039 RMK RAE21DZB21E23RAB23E24 SLP298 P0002 T00740038 $KVPS2019-12-11T16:56:00Z30.47-86.527.43.8401510.030.3897631029.8TRUEVFR0.02METAR26.02019-12-11 17:07:20 C)a5       3KTTS 111656Z AUTO 02009KT 10SM -DZ BKN008 OVC014 23/21 A3021 RMK AO2 DZB41 SLP234 P0000 T02270211 FZRANO $KTTS2019-12-11T16:56:00Z28.62-80.7222.721.120910.030.2096461023.4TRUETRUETRUETRUE-DZIFR0.005METAR3.02019-12-11 17:07:20}B)Y5   3KGTB 111656Z AUTO 20018G22KT 10SM BKN028 OVC036 M02/M09 A3010 RMK AO2 PK WND 20027/33 SLP204 T10211090KGTB2019-12-11T16:56:00Z44.07-75.72-2.1-9.0200182210.030.1003931020.4TRUETRUEMVFRMETAR207.02019-12-11 17:07:20[A)5    3KTIK 111656Z AUTO 20013KT 10SM CLR 06/M02 A3047 RMK AO2 SLP336 T00601024KTIK2019-12-11T16:56:00Z35.42-97.376.0-2.42001310.030.4694881033.6TRUETRUEVFRMETAR394.02019-12-11 17:07:20 ^ /^LH)5    3PADU 111656Z 00000KT 10SM CLR 00/M06 A2942 RMK AO2 SLP967 T00001056PADU2019-12-11T16:56:00Z53.9-166.530.0-5.60010.029.421259996.7TRUEVFRMETAR4.02019-12-11 17:07:20WG)5   3PADL 111656Z 01016G22KT 10SM OVC080 04/M01 A2916 RMK AO2 SLP877 T00391011PADL2019-12-11T16:56:00Z59.05-158.53.9-1.110162210.029.161417987.7TRUEVFRMETAR26.02019-12-11 17:07:20gF)-5     3PABL 111656Z AUTO 16006KT 10SM CLR M11/M12 A2967 RMK AO2 SLP048 T11111122 FZRANOPABL2019-12-11T16:56:00Z65.98-161.15-11.1-12.2160610.029.669291004.8TRUETRUETRUEVFRMETAR7.02019-12-11 17:07:20E)e5   3KXMR 111656Z AUTO 01012G18KT 10SM BKN010 OVC019 25/21 A3019 RMK AO2 CIG 010V020 BKN V SCT SLP226 T02460211 $KXMR2019-12-11T16:56:00Z28.47-80.5724.621.110121810.030.1889761022.6TRUETRUETRUEMVFRMETAR3.02019-12-11 17:07:20 F':FoL)95    3PAHC 111656Z AUTO 33017G25KT 10SM OVC110 M03/M07 A2944 RMK AO2 SLP973 T10331067 FZRANOPAHC2019-12-11T16:56:00Z62.18-159.78-3.3-6.7330172510.029.438976997.3TRUETRUETRUEVFRMETAR21.02019-12-11 17:07:20hK)55       3PAGS 111656Z AUTO 34005KT 10SM -RA OVC037 04/ A2967 RMK AO2 RAB31 SLP045 P0000 T0039PAGS2019-12-11T16:56:00Z58.42-135.733.9340510.029.669291004.5TRUETRUE-RAVFR0.005METAR9.02019-12-11 17:07:20gJ)-5     3PAGH 111656Z AUTO 09016KT 10SM CLR M03/M07 A2973 RMK AO2 SLP072 T10281072 FZRANOPAGH2019-12-11T16:56:00Z66.88-157.17-2.8-7.2901610.029.7312981007.2TRUETRUETRUEVFRMETAR60.02019-12-11 17:07:20hI)-5     3PAGA 111656Z AUTO 02003KT 10SM CLR M14/M17 A2965 RMK AO2 SLP046 T11441167 FZRANOPAGA2019-12-11T16:56:00Z64.73-156.93-14.4-16.720310.029.6486231004.6TRUETRUETRUEVFRMETAR46.02019-12-11 17:07:20 F,@FuP)O5     3PAIW 111656Z AUTO 15024KT 10SM CLR 02/M01 A2954 RMK AO2 PK WND 15030/1630 SLP004 T00171011 FZRANOPAIW2019-12-11T16:56:00Z65.62-168.11.7-1.11502410.029.539371000.4TRUETRUETRUEVFRMETAR7.02019-12-11 17:07:20gO)-5     3PAIN 111656Z AUTO 00000KT 10SM CLR M12/M13 A2954 RMK AO2 SLP043 T11171128 FZRANOPAIN2019-12-11T16:56:00Z63.73-148.92-11.7-12.80010.029.539371004.3TRUETRUETRUEVFRMETAR524.02019-12-11 17:07:20fN)-5     3PAIK 111656Z AUTO 08009KT 10SM CLR M03/M07 A2972 RMK AO2 SLP065 T10331067 FZRANOPAIK2019-12-11T16:56:00Z66.98-160.43-3.3-6.780910.029.7194881006.5TRUETRUETRUEVFRMETAR51.02019-12-11 17:07:20dM)-5     3PAHL 111656Z AUTO 07009KT 10SM CLR M06/M08 A2967 RMK AO2 SLP052 T10561083 FZRANOPAHL2019-12-11T16:56:00Z65.7-156.35-5.6-8.370910.029.669291005.2TRUETRUETRUEVFRMETAR65.02019-12-11 17:07:20 gT)-5     3PAMH 111656Z AUTO 00000KT 10SM CLR M18/M20 A2957 RMK AO2 SLP027 T11831200 FZRANOPAMH2019-12-11T16:56:00Z63.9-152.32-18.3-20.00010.029.5688971002.7TRUETRUETRUEVFRMETAR214.02019-12-11 17:07:20S)]5    3PAMB 111656Z AUTO 03020G26KT 10SM OVC080 03/M01 A2915 RMK AO2 PK WND 03026/1656 SLP873 T00331011 PWINO $PAMB2019-12-11T16:56:00Z58.98-159.053.3-1.130202610.029.149607987.3TRUETRUETRUETRUEVFRMETAR16.02019-12-11 17:07:20iR)35     3PAKI 111656Z AUTO 36012KT 10SM OVC075 M02/M03 A2935 RMK AO2 SLP941 T10221028 FZRANOPAKI2019-12-11T16:56:00Z59.93-164.03-2.2-2.83601210.029.350393994.1TRUETRUETRUEVFRMETAR4.02019-12-11 17:07:20Q)k5     3PAKH 111656Z AUTO 07020G25KT BKN024 OVC028 08/05 A2893 RMK AO2 PK WND 08032/1615 SLP797 P0001 T00780050 PWINO $PAKH2019-12-11T16:56:00Z56.93-154.187.85.070202528.931103979.7TRUETRUETRUETRUE0.01METAR14.02019-12-11 17:07:20 t &t-X(m5   3PHNY 111656Z AUTO 10SM 20/ RMK AO2 SLPNO T0200 $PHNY2019-12-11T16:56:00Z20.77-156.9320.010.0TRUETRUETRUEMETAR399.02019-12-11 17:07:20aW))5   3PANW 111656Z AUTO 03010G16KT 10SM OVC060 03/M01 A2921 RMK AO2 SLP898 T00281011PANW2019-12-11T16:56:00Z59.45-157.372.8-1.130101610.029.208662989.8TRUETRUEVFRMETAR92.02019-12-11 17:07:20V)]5       3PAMY 111656Z AUTO 15005KT 1SM BR FEW001 OVC036 M01/M01 A2939 RMK AO2 UPE08 SLP953 P0000 T10061011 FZRANOPAMY2019-12-11T16:56:00Z60.37-166.27-0.6-1.115051.029.388779995.3TRUETRUETRUEBRIFR0.005METAR13.02019-12-11 17:07:20fU)-5     3PAMK 111656Z AUTO 09010KT 10SM CLR M04/M04 A2952 RMK AO2 SLP998 T10391044 FZRANOPAMK2019-12-11T16:56:00Z63.48-162.12-3.9-4.4901010.029.518702999.8TRUETRUETRUEVFRMETAR28.02019-12-11 17:07:20 ) 5)k\)55      3PAPH 111656Z AUTO 02014KT 10SM -RA OVC009 03/02 A2902 RMK AO2 SLP830 P0009 T00280017PAPH2019-12-11T16:56:00Z56.95-158.622.81.7201410.029.019686983.0TRUETRUE-RAIFR0.09METAR29.02019-12-11 17:07:20[) 5    3PAOU 111656Z AUTO 01022G26KT 10SM -RA SCT014 BKN025 OVC050 04/02 A2915 RMK AO2 PK WND 01026/1656 RAB1558 SLP872 T00390022 PNO $PAOU2019-12-11T16:56:00Z56.0-161.173.92.210222610.029.149607987.2TRUETRUETRUE-RAMVFRMETAR4.02019-12-11 17:07:20fZ)15     3PAOO 111656Z AUTO 36004KT 10SM BKN110 01/M02 A2940 RMK AO2 SLP965 T00061017 FZRANOPAOO2019-12-11T16:56:00Z60.53-165.120.6-1.7360410.029.40059996.5TRUETRUETRUEVFRMETAR18.02019-12-11 17:07:20[Y)!5    3PMDY 111656Z AUTO 02009KT 10SM FEW041 18/10 A3035 RMK AO2 SLP277 T01830100PMDY2019-12-11T16:56:00Z28.22-177.3718.310.020910.030.3513771027.7TRUETRUEVFRMETAR4.02019-12-11 17:07:20 m_)75     3PARS 111656Z AUTO VRB05KT 10SM OVC085 M01/M02 A2941 RMK AO2 SLP963 T10111017 FZRANO $PARS2019-12-11T16:56:00Z61.77-161.32-1.1-1.70510.029.409449996.3TRUETRUETRUETRUEVFRMETAR16.02019-12-11 17:07:20^)e5     3PAPO 111656Z AUTO 15022KT 10SM SCT030 BKN042 M01/M03 A2962 RMK AO2 PK WND 15026/1647 SLP029 T10111033 FZRANOPAPO2019-12-11T16:56:00Z68.35-166.8-1.1-3.31502210.029.6190951002.9TRUETRUETRUEVFRMETAR6.02019-12-11 17:07:20])]5       3PAPM 111656Z AUTO 34003KT 6SM UP BR OVC021 00/M01 A2927 RMK AO2 UPB55SNE55 SLP913 P0000 T00001006 FZRANOPAPM2019-12-11T16:56:00Z59.02-161.820.0-0.634036.029.27067991.3TRUETRUETRUEBR UPMVFR0.005METAR5.02019-12-11 17:07:20 C'1Cic)35    3PASK 111656Z AUTO 06012G19KT 10SM CLR M07/M08 A2970 RMK AO2 SLP055 T10671078 FZRANOPASK2019-12-11T16:56:00Z66.6-160.0-6.7-7.860121910.029.6988181005.5TRUETRUETRUEVFRMETAR8.02019-12-11 17:07:20qb)W5    3PASD 111656Z 32022KT 10SM FEW018 BKN025 OVC060 04/01 A2908 RMK AO2 PK WND 32028/1606 SLP850 T00390006PASD2019-12-11T16:56:00Z55.33-160.53.90.63202210.029.078741985.0TRUEMVFRMETAR7.02019-12-11 17:07:20fa)-5     3PASA 111656Z AUTO 12012KT 10SM CLR M01/M02 A2943 RMK AO2 SLP966 T10061022 FZRANOPASA2019-12-11T16:56:00Z63.68-170.5-0.6-2.21201210.029.430119996.6TRUETRUETRUEVFRMETAR16.02019-12-11 17:07:20i`)-5     3PARY 111656Z AUTO 07010KT 10SM CLR M09/M11 A2961 RMK AO2 SLP043 T10941111 FZRANOPARY2019-12-11T16:56:00Z64.73-155.47-9.4-11.1701010.029.6102371004.3TRUETRUETRUEVFRMETAR199.02019-12-11 17:07:20 H-DHwg)I5     3PAVA 111656Z AUTO 07008KT 9SM OVC011 M04/M04 A2944 RMK AO2 SNE54 SLP054 T10391044 FZRANO PNO $PAVA2019-12-11T16:56:00Z61.53-165.6-3.9-4.47089.029.4389761005.4TRUETRUETRUETRUEMVFRMETAR23.02019-12-11 17:07:20df)-5     3PAUN 111656Z AUTO 08014KT 10SM CLR M02/M06 A2954 RMK AO2 SLP008 T10221061 FZRANOPAUN2019-12-11T16:56:00Z63.88-160.8-2.2-6.1801410.029.539371000.8TRUETRUETRUEVFRMETAR6.02019-12-11 17:07:20ge)-5     3PATE 111656Z AUTO 15008KT 10SM CLR M01/M04 A2955 RMK AO2 SLP011 T10111039 FZRANOPATE2019-12-11T16:56:00Z65.23-166.33-1.1-3.9150810.029.5511821001.1TRUETRUETRUEVFRMETAR90.02019-12-11 17:07:20bd)+5     3PASX 111656Z AUTO 06007KT 10SM CLR 01/M02 A2940 RMK AO2 SLP965 T00111017 FZRANOPASX2019-12-11T16:56:00Z60.48-151.031.1-1.760710.029.40059996.5TRUETRUETRUEVFRMETAR32.02019-12-11 17:07:20 C -Cek)-5     3PAWM 111656Z AUTO 01007KT 10SM CLR M01/M04 A2956 RMK AO2 SLP014 T10111039 FZRANOPAWM2019-12-11T16:56:00Z64.68-163.42-1.1-3.910710.029.560041001.4TRUETRUETRUEVFRMETAR82.02019-12-11 17:07:20nj)K5     3PAWG 111656Z 00000KT 10SM FEW002 BKN050 OVC070 05/03 A2970 RMK AO2 RAE50 SLP058 P0001 T00500033PAWG2019-12-11T16:56:00Z56.48-132.375.03.30010.029.6988181005.8TRUEVFR0.01METAR11.02019-12-11 17:07:20bi)75    3PAVD 111656Z 00000KT 10SM FEW001 SCT090 SCT110 M03/M03 A2961 RMK AO2 SLP024 T10281033PAVD2019-12-11T16:56:00Z61.13-146.25-2.8-3.30010.029.6102371002.4TRUEVFRMETAR37.02019-12-11 17:07:20th)M5   3PAVC 111656Z AUTO 28034G45KT 10SM FEW021 03/M02 A2914 RMK AO2 PK WND 30050/1616 SLP868 T00281017PAVC2019-12-11T16:56:00Z55.12-162.272.8-1.7280344510.029.140747986.8TRUETRUEVFRMETAR47.02019-12-11 17:07:20 X/AXdo)-5     3PPIZ 111656Z AUTO 09007KT 10SM CLR M07/M09 A2964 RMK AO2 SLP040 T10721089 FZRANOPPIZ2019-12-11T16:56:00Z69.73-163.0-7.2-8.990710.029.6397631004.0TRUETRUETRUEVFRMETAR8.02019-12-11 17:07:20in)35     3PFKT 111656Z AUTO 10015KT 10SM BKN042 M02/M04 A2958 RMK AO2 SLP016 T10171039 FZRANOPFKT2019-12-11T16:56:00Z65.33-166.47-1.7-3.91001510.029.580711001.6TRUETRUETRUEVFRMETAR9.02019-12-11 17:07:20hm)-5     3PAWN 111656Z AUTO 14010KT 10SM CLR M01/M05 A2968 RMK AO2 SLP062 T10111050 FZRANOPAWN2019-12-11T16:56:00Z67.57-162.98-1.1-5.01401010.029.6811031006.2TRUETRUETRUEVFRMETAR30.02019-12-11 17:07:20_l)#5   3PAWS 111656Z AUTO 07013G21KT 10SM CLR 03/M05 A2947 RMK AO2 SLP984 T00281050PAWS2019-12-11T16:56:00Z61.57-149.532.8-5.070132110.029.471457998.4TRUETRUEVFRMETAR107.02019-12-11 17:07:20 &EhWs)5    3KBAD 111656Z AUTO 05005KT 10SM CLR 08/M01 A3058 RMK AO2 SLP359 T00751010KBAD2019-12-11T16:56:00Z32.5-93.677.5-1.050510.030.5787411035.9TRUETRUEVFRMETAR51.02019-12-11 17:07:20Xr)5    3KALK 111656Z AUTO 09004KT 10SM CLR 07/04 A3028 RMK AO2 SLP215 T00720039KALK2019-12-11T16:56:00Z31.6-110.437.23.990410.030.2805121021.5TRUETRUEVFRMETAR1453.02019-12-11 17:07:20\q)'5    3KNRS 111656Z 05008KT 7SM FEW008 BKN230 15/05 A3021 RMK AO2 SLP230 T01500050 $KNRS2019-12-11T16:56:00Z32.57-117.1215.05.05087.030.2096461023.0TRUETRUEVFRMETAR7.02019-12-11 17:07:20Up)5    3PFYU 111656Z 04004KT 10SM CLR M16/M18 A2983 RMK AO2 SLP128 T11611178PFYU2019-12-11T16:56:00Z66.57-145.27-16.1-17.840410.029.8287411012.8TRUEVFRMETAR131.02019-12-11 17:07:20 O!EjOw)}5      3ETIK 111656Z AUTO 00000KT 6000 -SN BR OVC021 01/01 A2978 RMK AO2 UPE1557UPB1559E08UPB10E33SNB33 SLP102 P0000 T00060006 $ETIK2019-12-11T16:56:00Z49.4710.370.60.6003.7329.7785431010.2TRUETRUETRUE-SN BRMVFR0.005METAR325.02019-12-11 17:07:20Vv)5   3KNCA 111656Z 33014G18KT 10SM OVC015 09/06 A3033 RMK AO2 SLP274 T00940056KNCA2019-12-11T16:56:00Z34.72-77.459.45.6330141810.030.330711027.4TRUEMVFRMETAR8.02019-12-11 17:07:20Wu)5    3KNFE 111656Z AUTO 01012KT 10SM CLR 07/M03 A3036 RMK AO2 SLP282 T00721033KNFE2019-12-11T16:56:00Z36.7-76.137.2-3.3101210.030.3602371028.2TRUETRUEVFRMETAR5.02019-12-11 17:07:20Zt)5    3KEND 111656Z AUTO 19014KT 10SM CLR 06/M02 A3042 RMK AO2 SLP312 T00611023KEND2019-12-11T16:56:00Z36.32-97.926.1-2.31901410.030.419291031.2TRUETRUEVFRMETAR398.02019-12-11 17:07:20 a"@aa{{)O5      3KHST 111656Z AUTO 11010KT 10SM -RA FEW022 FEW034 29/23 A3016 RMK AO2 RAB54 SLP217 P0000 T02900225KHST2019-12-11T16:56:00Z25.47-80.3729.022.51101010.030.1594491021.7TRUETRUE-RAVFR0.005METAR2.02019-12-11 17:07:20Zz)5    3KFTK 111656Z AUTO 23007KT 10SM CLR 02/M06 A3052 RMK AO2 SLP346 T00211065KFTK2019-12-11T16:56:00Z37.88-85.972.1-6.5230710.030.5196861034.6TRUETRUEVFRMETAR230.02019-12-11 17:07:20]y)!5    3KDOV 111656Z AUTO 30009KT 10SM CLR 04/M03 A3031 RMK AO2 SLP267 T00391027 $KDOV2019-12-11T16:56:00Z39.12-75.473.9-2.7300910.030.310041026.7TRUETRUETRUEVFRMETAR9.02019-12-11 17:07:20Yx)5    3KDLF 111656Z 08007KT 10SM OVC008 06/03 A3052 RMK AO2A SLP338 T00640030 $KDLF2019-12-11T16:56:00Z29.37-100.776.43.080710.030.5196861033.8TRUETRUEIFRMETAR330.02019-12-11 17:07:20 o@Uoa))5    3KNUC 111656Z 33008KT 10SM SCT013 BKN250 16/12 A3025 RMK AO2 SLP240 T01560117 $KNUC2019-12-11T16:56:00Z33.02-118.5715.611.7330810.030.2509841024.0TRUETRUEVFRMETAR55.02019-12-11 17:07:20f~)75    3ROTM 111656Z 03004KT 10SM SCT025 BKN033 BKN042 17/14 A3012 RMK AO2 SLP189 T01720144 $ROTM2019-12-11T16:56:00Z26.27127.7517.214.430410.030.1210631018.9TRUETRUEVFRMETAR75.02019-12-11 17:07:20V})5    3KLTS 111656Z 19009KT 9SM CLR 08/M01 A3045 RMK AO2A SLP321 T00781007 $KLTS2019-12-11T16:56:00Z34.67-99.277.8-0.719099.030.4488181032.1TRUETRUEVFRMETAR420.02019-12-11 17:07:20`|)+5    3KLHW 111656Z 02009KT 10SM BKN021 BKN110 15/09 A3032 RMK AO2A SLP270 T01490090 $KLHW2019-12-11T16:56:00Z31.87-81.5714.99.020910.030.3188971027.0TRUETRUEMVFRMETAR14.02019-12-11 17:07:20 :eL) 5   3KSPD 111656Z AUTO 16009KT 07/M06 A3021 RMK AO1 SLP228 T00721056KSPD2019-12-11T16:56:00Z37.28-102.627.2-5.6160930.2096461022.8TRUETRUEMETAR1335.02019-12-11 17:07:20P) 5   3KD07 111656Z AUTO 14014KT M12/M13 A3012 RMK AO1 SLP250 T11171133KD072019-12-11T16:56:00Z45.03-102.02-11.7-13.31401430.1210631025.0TRUETRUEMETAR784.02019-12-11 17:07:20W)5    3KNID 111656Z 00000KT 10SM SCT250 06/02 A3025 RMK AO2 SLP254 T00560022 $KNID2019-12-11T16:56:00Z35.67-117.675.62.20010.030.2509841025.4TRUETRUEVFRMETAR696.02019-12-11 17:07:20e)/5    3KMHS 111656Z AUTO 11004KT 10SM BKN029 OVC036 05/02 A3021 RMK AO2 SLP253 T00500022KMHS2019-12-11T16:56:00Z41.32-122.325.02.2110410.030.2096461025.3TRUETRUEMVFRMETAR1078.02019-12-11 17:07:20 (Wh)75     3KNLC 111656Z 13008KT 1/8SM FG VV002 08/08 A3030 RMK AO2 SLP260 RH/100 T00780078 RVRNOKNLC2019-12-11T16:56:00Z36.32-119.957.87.813080.1330.3011821026.0TRUEFGLIFR200METAR72.02019-12-11 17:07:20I) 5    3KNYG 111656Z 32010G16KT 10SM CLR 04/ A3040 RMK AO2 SLP295 T0044KNYG2019-12-11T16:56:00Z38.5-77.284.4320101610.030.3986231029.5TRUEVFRMETAR4.02019-12-11 17:07:20L) 5   3K8D3 111656Z AUTO 00000KT M20/M23 A3040 RMK AO1 SLP346 T12001233K8D32019-12-11T16:56:00Z45.67-96.98-20.0-23.30030.3986231034.6TRUETRUEMETAR354.02019-12-11 17:07:20S)5   3KGNA 111656Z AUTO 26009G17KT M18/M23 A3026 RMK AO1 SLP275 T11781228KGNA2019-12-11T16:56:00Z47.75-90.35-17.8-22.826091730.2598421027.5TRUETRUEMETAR185.02019-12-11 17:07:20 #GrX )%5    3KNBC 111656Z 36009KT 10SM FEW050 BKN100 16/08 A3033 RMK AO2 SLP270 T01560078KNBC2019-12-11T16:56:00Z32.47-80.7215.67.8360910.030.330711027.0TRUEVFRMETAR12.02019-12-11 17:07:20P )5    3KNQI 111656Z 03008KT 10SM OVC012 09/06 A3052 RMK AO2 SLP331 T00890056KNQI2019-12-11T16:56:00Z27.5-97.828.95.630810.030.5196861033.1TRUEMVFRMETAR15.02019-12-11 17:07:20W )5    3KNGP 111656Z 02012KT 10SM OVC013 09/07 A3051 RMK AO2 SLP329 T00940067 $KNGP2019-12-11T16:56:00Z27.68-97.279.46.7201210.030.5108261032.9TRUETRUEMVFRMETAR6.02019-12-11 17:07:20X)5    3PHBK 111656Z AUTO 06004KT 10SM CLR 22/17 A3003 RMK AO2 SLP172 T02170172PHBK2019-12-11T16:56:00Z22.03-159.7821.717.260410.030.0295281017.2TRUETRUEVFRMETAR8.02019-12-11 17:07:20 T0TW)5    3KFSI 111656Z AUTO 19009KT 10SM CLR 06/01 A3047 RMK AO2 SLP325 T00640013KFSI2019-12-11T16:56:00Z34.65-98.46.41.3190910.030.4694881032.5TRUETRUEVFRMETAR362.02019-12-11 17:07:20i)15      3ETAR 111656Z 24006KT 9000 -RA OVC010 03/03 A2975 RMK AO2A SLP087 P0002 T00280028 $ETAR2019-12-11T16:56:00Z49.427.582.82.824065.5929.7490161008.7TRUETRUE-RAMVFR0.02METAR238.02019-12-11 17:07:20v )W5    3KWRI 111656Z 29005KT 10SM SCT009 BKN041 OVC049 02/M01 A3028 RMK AO2A CIG 008 RWY06 SLP255 T00161007 $KWRI2019-12-11T16:56:00Z40.02-74.581.6-0.7290510.030.2805121025.5TRUETRUEVFRMETAR41.02019-12-11 17:07:20b )/5    3KNTU 111656Z COR 35012KT 10SM FEW015 SCT200 05/M02 A3035 RMK AO2 SLP278 T00501022KNTU2019-12-11T16:56:00Z36.82-76.025.0-2.23501210.030.3513771027.8TRUETRUEVFRMETAR7.02019-12-11 17:07:20 W!2@Wd))5    3ETIH 111656Z AUTO 10003KT 9999 SCT170 M01/M03 A2979 RMK AO2 SLP120 T10131033 $ETIH2019-12-11T16:56:00Z49.2211.82-1.3-3.310036.2129.7903541012.0TRUETRUETRUEVFRMETAR442.02019-12-11 17:07:20m)C5    3ETIC 111656Z AUTO 00000KT 9999 SCT046 BKN055 OVC130 00/M02 A2976 RMK AO2 SLP107 T00021023 $ETIC2019-12-11T16:56:00Z49.711.930.2-2.3006.2129.7608261010.7TRUETRUETRUEVFRMETAR415.02019-12-11 17:07:20j)95     3KNPA 111656Z 02011KT 10SM BKN050 08/04 A3041 RMK AO2 RAB06E41 SLP300 P0000 T00830044 $KNPA2019-12-11T16:56:00Z30.35-87.328.34.4201110.030.4104331030.0TRUETRUEVFR0.005METAR9.02019-12-11 17:07:20Z)'5    3KWRB 111656Z 33007KT 10SM SCT180 BKN250 10/01 A3040 RMK AO2A SLP298 T01030014KWRB2019-12-11T16:56:00Z32.62-83.5810.31.4330710.030.3986231029.8TRUEVFRMETAR90.02019-12-11 17:07:20 R#<Re)+5   3KBJJ 111656Z AUTO 27017G24KT 10SM OVC032 M03/M09 A3034 RMK AO2 SLP291 T10331094KBJJ2019-12-11T16:56:00Z40.87-81.88-3.3-9.4270172410.030.3395671029.1TRUETRUEVFRSPECI343.02019-12-11 17:07:20Z)5    3KBIH 111656Z AUTO 00000KT 10SM CLR 04/M03 A3026 RMK AO2 SLP251 T00391028KBIH2019-12-11T16:56:00Z37.37-118.353.9-2.80010.030.2598421025.1TRUETRUEVFRMETAR1253.02019-12-11 17:07:20)i5   3KART 111656Z AUTO 21015G26KT 8SM FEW034 BKN045 OVC055 M02/M08 A3013 RMK AO2 PK WND 19026/1625 SLP209 T10171078KART2019-12-11T16:56:00Z43.98-76.03-1.7-7.821015268.030.1299211020.9TRUETRUEVFRMETAR100.02019-12-11 17:07:20X)!5    3KAND 111656Z AUTO 00000KT 10SM SCT018 09/02 A3041 RMK AO2 SLP295 T00940017KAND2019-12-11T16:56:00Z34.5-82.729.41.70010.030.4104331029.5TRUETRUEVFRMETAR239.02019-12-11 17:07:20 y%9WyY)5   3KCFS 111656Z AUTO 25016G26KT 10SM BKN036 M05/M14 A3023 RMK AO2 T10491140KCFS2019-12-11T16:56:00Z43.47-83.45-4.9-14.0250162610.030.230314TRUETRUEVFRMETAR214.02019-12-11 17:07:20])!5    3KCEC 111656Z AUTO 16010KT 10SM OVC100 12/07 A3011 RMK AO2 SLP196 T01170072KCEC2019-12-11T16:56:00Z41.77-124.2211.77.21601010.030.1092531019.6TRUETRUEVFRMETAR17.02019-12-11 17:07:20g)C5    3KCAE 111656Z 01007KT 340V040 10SM SCT025 SCT130 BKN180 11/02 A3039 RMK AO2 SLP289 T01060017KCAE2019-12-11T16:56:00Z33.93-81.1210.61.710710.030.3897631028.9TRUEVFRMETAR70.02019-12-11 17:07:20V)5    3KBZN 111656Z 00000KT 10SM OVC090 M03/M07 A2996 RMK AO2 SLP196 T10331067KBZN2019-12-11T16:56:00Z45.78-111.17-3.3-6.70010.029.9586621019.6TRUEVFRMETAR1361.02019-12-11 17:07:20 Y&IYk)?5     3KGON 111656Z 31006KT 7SM SCT010 BKN027 M01/M04 A3025 RMK AO2 SNE05 SLP243 P0000 T10061044KGON2019-12-11T16:56:00Z41.33-72.05-0.6-4.431067.030.2509841024.3TRUEMVFR0.005METAR3.02019-12-11 17:07:20X)5    3KFSD 111656Z 10006KT 10SM SCT250 M13/M18 A3039 RMK AO2 SLP323 T11331178KFSD2019-12-11T16:56:00Z43.58-96.75-13.3-17.8100610.030.3897631032.3TRUEVFRMETAR436.02019-12-11 17:07:20n)A5    3KFPK 111656Z AUTO 27014G18KT 10SM -SN SCT025 BKN031 OVC044 M07/M11 A3030 RMK AO2 T10671115KFPK2019-12-11T16:56:00Z42.57-84.82-6.7-11.5270141810.030.301182TRUETRUE-SNVFRMETAR272.02019-12-11 17:07:20b)95   3KCHS 111656Z 01009G17KT 10SM FEW020 FEW085 BKN250 14/05 A3033 RMK AO2 SLP268 T01440050KCHS2019-12-11T16:56:00Z32.9-80.0314.45.01091710.030.330711026.8TRUEVFRMETAR13.02019-12-11 17:07:20 "s_#))5   3KMCD 111656Z AUTO 27020G27KT 7SM BKN014 BKN024 M10/M14 A3014 RMK AO2 T10991136KMCD2019-12-11T16:56:00Z45.85-84.63-9.9-13.627020277.030.138779TRUETRUEMVFRMETAR226.02019-12-11 17:07:20Z"))5    3KHPN 111656Z 00000KT 10SM FEW012 BKN055 M01/M03 A3023 RMK AO2 SLP245 T10061033KHPN2019-12-11T16:56:00Z41.07-73.7-0.6-3.30010.030.2303141024.5TRUEVFRMETAR121.02019-12-11 17:07:20*!(_5   3KGTR 111656Z 36007KT 10SM CLR 06/01 A3057KGTR2019-12-11T16:56:00Z33.45-88.576.01.0360710.030.569881VFRMETAR80.02019-12-11 17:07:20Y )5    3KGRD 111656Z AUTO 36008KT 10SM CLR 09/M04 A3042 RMK AO2 SLP301 T00941039KGRD2019-12-11T16:56:00Z34.25-82.159.4-3.9360810.030.419291030.1TRUETRUEVFRMETAR185.02019-12-11 17:07:20 y#Ojyl');5     3KHWV 111656Z AUTO 33006KT 10SM FEW009 OVC055 00/M03 A3027 RMK AO2 SLP251 T00001028 TSNOKHWV2019-12-11T16:56:00Z40.82-72.870.0-2.8330610.030.2687021025.1TRUETRUETRUEVFRMETAR21.02019-12-11 17:07:20`&)+5   3KMRT 111656Z AUTO 26013G16KT 10SM BKN028 BKN060 M02/M07 A3040 RMK AO2 T10221070KMRT2019-12-11T16:56:00Z40.22-83.35-2.2-7.0260131610.030.398623TRUETRUEMVFRMETAR312.02019-12-11 17:07:20O%)5    3KMOB 111656Z 02014KT 7SM BKN070 08/00 A3045 RMK AO2 SLP310 T00780000KMOB2019-12-11T16:56:00Z30.68-88.257.80.020147.030.4488181031.0TRUEVFRMETAR63.02019-12-11 17:07:20X$)5   3KMDT 111656Z 28011G18KT 10SM FEW030 03/M08 A3030 RMK AO2 SLP265 T00281078KMDT2019-12-11T16:56:00Z40.2-76.772.8-7.8280111810.030.3011821026.5TRUEVFRMETAR95.02019-12-11 17:07:20 z"jzk+)?5      3KISP 111656Z 02005KT 10SM -SN OVC010 00/M02 A3027 RMK AO2 SNE02B52 SLP249 P0011 T00001017KISP2019-12-11T16:56:00Z40.8-73.10.0-1.720510.030.2687021024.9TRUE-SNMVFR0.11METAR43.02019-12-11 17:07:203*(k5  3KISO 111656Z 35008G14KT 10SM OVC011 06/04 A3037KISO2019-12-11T16:56:00Z35.32-77.626.04.035081410.030.369095MVFRMETAR29.02019-12-11 17:07:20Z))5    3KINW 111656Z AUTO 00000KT 10SM CLR 01/M01 A3028 RMK AO2 SLP267 T00111011KINW2019-12-11T16:56:00Z35.03-110.721.1-1.10010.030.2805121026.7TRUETRUEVFRMETAR1490.02019-12-11 17:07:20z()U5      3KHYA 111656Z 29006KT 1 1/2SM -SN BR SCT006 BKN027 OVC034 00/M02 A3021 RMK AO2 SLP231 P0003 T00001017KHYA2019-12-11T16:56:00Z41.67-70.270.0-1.729061.530.2096461023.1TRUE-SN BRIFR0.03METAR22.02019-12-11 17:07:20 < *<Y/)%5    3KLAS 111656Z 00000KT 10SM SCT150 SCT250 10/01 A3025 RMK AO2 SLP242 T01000006KLAS2019-12-11T16:56:00Z36.07-115.1710.00.60010.030.2509841024.2TRUEVFRMETAR636.02019-12-11 17:07:20 .)g5     3KJXN 111656Z 25015G24KT 4SM HZ BKN023 OVC032 M07/M11 A3030 RMK AO2 PK WND 25029/1619 SLP277 P0000 T10671111 $KJXN2019-12-11T16:56:00Z42.27-84.47-6.7-11.125015244.030.3011821027.7TRUETRUEHZMVFR0.005METAR305.02019-12-11 17:07:20^-)5    3KJMS 111656Z AUTO 22004KT 10SM CLR M21/M24 A3032 RMK AO2 SLP313 T12061244KJMS2019-12-11T16:56:00Z46.93-98.67-20.6-24.4220410.030.3188971031.3TRUETRUEVFRMETAR455.02019-12-11 17:07:20n,);5      3KJAX 111656Z 36009KT 5SM -DZ BR OVC005 13/12 A3030 RMK AO2 DZB52 SLP262 P0000 T01330117KJAX2019-12-11T16:56:00Z30.5-81.6813.311.736095.030.3011821026.2TRUE-DZ BRIFR0.005METAR10.02019-12-11 17:07:20 @]l[3)5    3KTPH 111656Z AUTO 01003KT 10SM CLR 02/M03 A3027 RMK AO2 SLP260 T00221028KTPH2019-12-11T16:56:00Z38.05-117.082.2-2.810310.030.2687021026.0TRUETRUEVFRMETAR1652.02019-12-11 17:07:20l2)C5      3KTPA 111656Z COR 25004KT 2 1/2SM BR BKN007 OVC014 26/22 A3021 RMK AO2 SFC VIS 5 T02560217 $KTPA2019-12-11T16:56:00Z27.97-82.5325.621.725042.530.209646TRUETRUETRUEBRIFRMETAR11.02019-12-11 17:07:20^1)5    3KLNR 111656Z AUTO 30007KT 10SM CLR M10/M18 A3045 RMK AO2 SLP324 T11001183KLNR2019-12-11T16:56:00Z43.22-90.18-10.0-18.3300710.030.4488181032.4TRUETRUEVFRMETAR217.02019-12-11 17:07:20;0(u5   3KLJF 111656Z AUTO 00000KT 10SM M19/M23 A3042 RMK AO2KLJF2019-12-11T16:56:00Z45.1-94.52-19.0-23.00010.030.41929TRUETRUEMETAR348.02019-12-11 17:07:20 t0HRtY7)5    3KWJF 111656Z AUTO 27004KT 10SM CLR 08/03 A3025 RMK AO2 SLP254 T00780033KWJF2019-12-11T16:56:00Z34.72-118.227.83.3270410.030.2509841025.4TRUETRUEVFRMETAR715.02019-12-11 17:07:20q6)75      3KVPZ 111656Z AUTO 27012KT 4SM -SN OVC021 M06/M11 A3043 RMK AO2 SLP317 P0000 T10611106KVPZ2019-12-11T16:56:00Z41.45-87.0-6.1-10.6270124.030.4311031031.7TRUETRUE-SNMVFR0.005METAR231.02019-12-11 17:07:20c5)-5     3KUKI 111656Z AUTO 13003KT 2 1/2SM BR OVC012 10/09 A3021 RMK AO2 SLP227 T01000094KUKI2019-12-11T16:56:00Z39.12-123.210.09.413032.530.2096461022.7TRUETRUEBRIFRMETAR187.02019-12-11 17:07:20K4)5     3KUAO 111656Z 00000KT 2 1/2SM BR OVC001 07/06 A3006 RMK AO2 T00670056KUAO2019-12-11T16:56:00Z45.25-122.776.75.6002.530.059055TRUEBRLIFRMETAR59.02019-12-11 17:07:20 V3VX;)5   3KOSC 111656Z AUTO 29020G28KT 10SM SCT034 M09/M19 A3020 RMK AO2 T10881191KOSC2019-12-11T16:56:00Z44.45-83.4-8.8-19.1290202810.030.200787TRUETRUEVFRMETAR193.02019-12-11 17:07:20E:(}5    3KONA 111656Z AUTO 30004KT 10SM CLR M15/M20 A3049 RMK AO2KONA2019-12-11T16:56:00Z44.07-91.7-15.0-20.0300410.030.490158TRUETRUEVFRMETAR200.02019-12-11 17:07:20]9)5    3KOFK 111656Z AUTO 11006KT 10SM CLR M06/M12 A3037 RMK AO2 SLP307 T10611117KOFK2019-12-11T16:56:00Z41.98-97.43-6.1-11.7110610.030.3690951030.7TRUETRUEVFRMETAR470.02019-12-11 17:07:208)5      3TJSJ 111656Z VRB03KT 10SM -RA FEW028 SCT047 SCT080 26/23 A3004 RMK AO2 PK WND 08030/1634 RAB16 SLP170 VIS LWR SW-NW P0005 T02610233 $TJSJ2019-12-11T16:56:00Z18.43-66.0226.123.30310.030.0413381017.0TRUETRUE-RAVFR0.05METAR21.02019-12-11 17:07:20 Fne?)95   3KRNP 111656Z AUTO 26020G25KT 10SM SCT030 BKN036 BKN045 M05/M12 A3029 RMK AO2 T10461120KRNP2019-12-11T16:56:00Z43.0-84.13-4.6-12.0260202510.030.28937TRUETRUEVFRMETAR224.02019-12-11 17:07:20S>)5    3KRDM 111656Z 11004KT 10SM SCT041 04/01 A3006 RMK AO2 SLP189 T00390006KRDM2019-12-11T16:56:00Z44.25-121.153.90.6110410.030.0590551018.9TRUEVFRMETAR938.02019-12-11 17:07:20P=)5    3KPMH 111656Z AUTO 19007KT 10SM SCT080 01/M08 A3048 RMK AO2 T00051076KPMH2019-12-11T16:56:00Z38.83-82.850.5-7.6190710.030.481298TRUETRUEVFRMETAR202.02019-12-11 17:07:20`<)+5   3KOZW 111656Z AUTO 26014G25KT 10SM BKN032 OVC038 M06/M13 A3028 RMK AO2 T10621126KOZW2019-12-11T16:56:00Z42.62-83.97-6.2-12.6260142510.030.280512TRUETRUEVFRMETAR293.02019-12-11 17:07:20 *SlNC)5    3KSGS 111656Z AUTO 00000KT 10SM CLR M17/M23 A3044 RMK AO2 T11681229KSGS2019-12-11T16:56:00Z44.87-93.03-16.8-22.90010.030.43996TRUETRUEVFRMETAR250.02019-12-11 17:07:20bB)35    3KSFO 111656Z 14003KT 10SM FEW003 FEW017 OVC022 13/10 A3021 RMK AO2 SLP230 T01330100KSFO2019-12-11T16:56:00Z37.62-122.3713.310.0140310.030.2096461023.0TRUEMVFRMETAR3.02019-12-11 17:07:20RA)5    3KSDF 111656Z 25010KT 10SM CLR 02/M07 A3053 RMK AO2 SLP344 T00221072KSDF2019-12-11T16:56:00Z38.18-85.732.2-7.22501010.030.5285431034.4TRUEVFRMETAR146.02019-12-11 17:07:20Q@)5    3KSBP 111656Z 00000KT 10SM OVC055 10/08 A3026 RMK AO2 SLP246 T01000083KSBP2019-12-11T16:56:00Z35.23-120.6310.08.30010.030.2598421024.6TRUEVFRMETAR59.02019-12-11 17:07:20 ,OyGG) 5   3KD39 111656Z AUTO 00000KT 10SM M22/M25 A3039 RMK AO2 T12191246KD392019-12-11T16:56:00Z45.7-94.93-21.9-24.60010.030.389763TRUETRUEMETAR380.02019-12-11 17:07:20QF)5    3KCXY 111656Z 26010KT 10SM CLR 04/M08 A3031 RMK AO2 SLP268 T00391083KCXY2019-12-11T16:56:00Z40.22-76.853.9-8.32601010.030.310041026.8TRUEVFRSPECI106.02019-12-11 17:07:20XE)%5    3KSLE 111656Z 18005KT 10SM SCT006 BKN015 08/06 A3005 RMK AO2 SLP175 T00780061KSLE2019-12-11T16:56:00Z44.9-123.07.86.1180510.030.0501981017.5TRUEMVFRMETAR59.02019-12-11 17:07:20OD)5    3KSHV 111656Z 08007KT 10SM CLR 08/M03 A3058 RMK AO2 SLP354 T00781033KSHV2019-12-11T16:56:00Z32.45-93.837.8-3.380710.030.5787411035.4TRUEVFRMETAR83.02019-12-11 17:07:20 T1TXK)5    3KEAU 111656Z 24008KT 9SM CLR M20/M24 A3044 RMK AO2 SLP337 T12001244 $KEAU2019-12-11T16:56:00Z44.87-91.47-20.0-24.424089.030.439961033.7TRUETRUEVFRMETAR276.02019-12-11 17:07:20`J)5    3KDUG 111656Z AUTO 14003KT 10SM CLR 04/03 A3030 RMK AO2 SLP252 T00390028 $KDUG2019-12-11T16:56:00Z31.47-109.583.92.8140310.030.3011821025.2TRUETRUETRUEVFRMETAR1265.02019-12-11 17:07:20dI))5     3KDIK 111656Z AUTO 15011KT 5SM BR OVC008 M12/M14 A3006 RMK AO2 SLP237 T11171139KDIK2019-12-11T16:56:00Z46.8-102.8-11.7-13.9150115.030.0590551023.7TRUETRUEBRIFRSPECI788.02019-12-11 17:07:20|H)U5      3KDAY 111656Z 23015KT 10SM -SN OVC025 M02/M08 A3043 RMK AO2 SNB52 SLP317 PCPN VRY LGT P0000 T10171078KDAY2019-12-11T16:56:00Z39.9-84.22-1.7-7.82301510.030.4311031031.7TRUE-SNMVFR0.005METAR305.02019-12-11 17:07:20 {!?P{PO)5    3KEVM 111656Z AUTO 28006KT 10SM CLR M22/M25 A3027 RMK AO2 T12201250KEVM2019-12-11T16:56:00Z47.42-92.5-22.0-25.0280610.030.268702TRUETRUEVFRMETAR421.02019-12-11 17:07:20jN)55   3KELZ 111656Z AUTO 24015G20KT 190V260 10SM CLR M05/M13 A3010 RMK AO2 SLP224 T10501128KELZ2019-12-11T16:56:00Z42.1-77.98-5.0-12.8240152010.030.1003931022.4TRUETRUEVFRMETAR646.02019-12-11 17:07:20]M)#5    3KEKO 111656Z AUTO 00000KT 10SM OVC039 00/M03 A3021 RMK AO2 SLP253 T00001033KEKO2019-12-11T16:56:00Z40.82-115.780.0-3.30010.030.2096461025.3TRUETRUEVFRMETAR1547.02019-12-11 17:07:20ZL)5    3KEED 111656Z AUTO 28003KT 10SM CLR 12/03 A3024 RMK AO2 SLP230 T01170028KEED2019-12-11T16:56:00Z34.77-114.6211.72.8280310.030.2391741023.0TRUETRUEVFRSPECI302.02019-12-11 17:07:20 j8fjwS)=5     3KRYM 111656Z AUTO 00000KT 10SM CLR M23/M25 A3040 RMK AO2 SLP341 T12261247 PWINO FZRANO $KRYM2019-12-11T16:56:00Z46.08-94.37-22.6-24.70010.030.3986231034.1TRUETRUETRUETRUETRUEVFRMETAR351.02019-12-11 17:07:20MR) 5   3KGNR 111656Z AUTO 31007KT M08/M14 A3007 RMK AO1 SLP207 T10781144KGNR2019-12-11T16:56:00Z45.47-69.55-7.8-14.4310730.0708661020.7TRUETRUEMETAR427.02019-12-11 17:07:20>Q(u5   3KFGN 111656Z AUTO 28007KT 10SM M21/M25 A3026 RMK AO2KFGN2019-12-11T16:56:00Z49.32-94.9-21.0-25.0280710.030.259842TRUETRUEMETAR328.02019-12-11 17:07:20P)]5      3KEWB 111656Z 28007KT 1/2SM R05/2400V5500FT SN FZFG FEW007 OVC011 M01/M03 A3024 RMK AO2 P0000 T10111028 $KEWB2019-12-11T16:56:00Z41.68-70.95-1.1-2.828070.530.239174TRUETRUESN FZFGLIFR0.005METAR23.02019-12-11 17:07:20 A$2WAW)5      3ETAD 111656Z 23006KT 8000 BR OVC002 03/03 A2970 RMK AO2A RAB1557E16DZB16E18RAB18E28DZB28E30RAB30E51 SLP063 P0001 T00320031 $ETAD2019-12-11T16:56:00Z49.986.73.23.123064.9729.6988181006.3TRUETRUEBRLIFR0.01METAR365.02019-12-11 17:07:20VV)5    3KPSM 111656Z 28005KT 10SM BKN048 M01/M06 A3019 RMK AO2A SLP227 T10111063KPSM2019-12-11T16:56:00Z43.07-70.82-1.1-6.3280510.030.1889761022.7TRUEVFRMETAR31.02019-12-11 17:07:20mU)75    3KMIB 111656Z AUTO 00000KT 10SM SCT095 SCT120 M20/M25 A3024 RMK AO2 SLP301 T11961246 $KMIB2019-12-11T16:56:00Z48.42-101.33-19.6-24.60010.030.2391741030.1TRUETRUETRUEVFRMETAR508.02019-12-11 17:07:20WT)#5    3KNMM 111656Z 02008KT 360V060 10SM CLR 08/M03 A3055 RMK AO2 SLP356 T00781028KNMM2019-12-11T16:56:00Z32.53-88.577.8-2.820810.030.5492131035.6TRUEVFRMETAR97.02019-12-11 17:07:20 k5Pk`[)+5    3KSSC 111656Z 03010KT 10SM SCT022 BKN220 10/04 A3037 RMK AO2A SLP286 T01020039 $KSSC2019-12-11T16:56:00Z33.97-80.4710.23.9301010.030.3690951028.6TRUETRUEVFRMETAR74.02019-12-11 17:07:20`Z)-5     3KRND 111656Z 02007KT 10SM OVC007 05/03 A3053 RMK PRESFR SLP342 T00490029 PWINO $KRND2019-12-11T16:56:00Z29.52-98.274.92.920710.030.5285431034.2TRUETRUEIFRMETAR232.02019-12-11 17:07:20_Y)+5    3KMMT 111656Z 02005KT 10SM FEW025 OVC200 10/04 A3039 RMK AO2A SLP294 T01010038 $KMMT2019-12-11T16:56:00Z33.92-80.7810.13.820510.030.3897631029.4TRUETRUEVFRMETAR77.02019-12-11 17:07:20bX)-5    3KMGE 111656Z 33004KT 10SM SCT150 SCT250 03/M04 A3045 RMK AO2A SLP321 T00291043 $KMGE2019-12-11T16:56:00Z33.92-84.522.9-4.3330410.030.4488181032.1TRUETRUEVFRMETAR326.02019-12-11 17:07:20 u"<Vu\_)+5    3KCEF 111656Z 31006KT 10SM FEW018 FEW120 M01/M09 A3022 RMK AO2A SLP242 T10071089KCEF2019-12-11T16:56:00Z42.2-72.52-0.7-8.9310610.030.2214571024.2TRUEVFRMETAR75.02019-12-11 17:07:20a^)'5    3RKJK 111656Z AUTO 34012KT 10SM BKN055 06/M04 A3022 RMK AO2 SLP238 T00571042 $RKJK2019-12-11T16:56:00Z35.9126.625.7-4.23401210.030.2214571023.8TRUETRUETRUEVFRMETAR9.02019-12-11 17:07:20a])5    3PHHI 111656Z AUTO 35003KT 10SM CLR 18/18 A3006 RMK AO2 SLP172 T01840182 $PHHI2019-12-11T16:56:00Z21.48-158.0518.418.2350310.030.0590551017.2TRUETRUETRUEVFRMETAR255.02019-12-11 17:07:20Y\)!5    3PAED 111656Z 00000KT 10SM FEW070 M04/M06 A2945 RMK AO2A SLP971 T10431057 $PAED2019-12-11T16:56:00Z61.25-149.8-4.3-5.70010.029.450787997.1TRUETRUEVFRMETAR59.02019-12-11 17:07:20 S'8S`c)!5    3KDAA 111656Z AUTO 30012KT 10SM CLR 04/M08 A3038 RMK AO2 SLP291 T00391085 $KDAA2019-12-11T16:56:00Z38.72-77.173.9-8.53001210.030.3809051029.1TRUETRUETRUEVFRMETAR21.02019-12-11 17:07:20jb)35    3RODN 111656Z AUTO 35010KT 10SM SCT026 BKN033 19/15 A3010 RMK AO2 SLP200 T01900153 $RODN2019-12-11T16:56:00Z26.35127.7719.015.33501010.030.1003931020.0TRUETRUETRUEVFRMETAR45.02019-12-11 17:07:20ja)-5     3BGTL 111656Z AUTO 12009KT 9999 CLR M23/M25 A2955 RMK AO2 SLP998 T12261253 TSNO $BGTL2019-12-11T16:56:00Z76.53-68.7-22.6-25.312096.2129.551182999.8TRUETRUETRUETRUEVFRMETAR77.02019-12-11 17:07:20e`)'5   3KADW 111656Z AUTO 28014G20KT 10SM CLR 03/M07 A3035 RMK AO2 SLP287 T00321068 $KADW2019-12-11T16:56:00Z38.82-76.873.2-6.8280142010.030.3513771028.7TRUETRUETRUEVFRMETAR86.02019-12-11 17:07:20 G -Gag)-5    3KLFI 111656Z 33012KT 10SM FEW020 SCT180 05/M02 A3037 RMK AO2A SLP291 T00511020 $KLFI2019-12-11T16:56:00Z37.07-76.375.1-2.03301210.030.3690951029.1TRUETRUEVFRMETAR3.02019-12-11 17:07:20Yf)5    3KHOP 111656Z AUTO 20004KT 10SM CLR 04/M06 A3055 RMK AO2 SLP353 T00441059KHOP2019-12-11T16:56:00Z36.67-87.54.4-5.9200410.030.5492131035.3TRUETRUEVFRMETAR174.02019-12-11 17:07:20 e)_5       3KGUS 111656Z 27010KT 3SM -SN BR BKN016 BKN021 OVC036 M05/M06 A3042 RMK AO2A SLP319 P0000 T10541064 TSNO $KGUS2019-12-11T16:56:00Z40.63-86.15-5.4-6.4270103.030.419291031.9TRUETRUETRUE-SN BRMVFR0.005METAR247.02019-12-11 17:07:20`d)-5    3KFAF 111656Z 33007KT 10SM FEW010 SCT150 06/M04 A3036 RMK AO2A SLP284 T00561037 $KFAF2019-12-11T16:56:00Z37.12-76.625.6-3.7330710.030.3602371028.4TRUETRUEVFRMETAR4.02019-12-11 17:07:20 y&3OyQk)5    3K3N8 111656Z AUTO 19004KT 10SM CLR M23/M26 A3036 RMK AO2 T12351260K3N82019-12-11T16:56:00Z47.25-95.88-23.5-26.0190410.030.360237TRUETRUEVFRSPECI383.02019-12-11 17:07:20_j))5   3KSLH 111656Z AUTO 26012G18KT 7SM SCT013 OVC021 M12/M16 A3015 RMK AO2 T11171165KSLH2019-12-11T16:56:00Z45.65-84.52-11.7-16.526012187.030.15059TRUETRUEMVFRMETAR195.02019-12-11 17:07:20ni)S5    3OAKN 111656Z VRB03KT 9999 SCT060 BKN075 OVC140 13/02 A2996 RMK AO2A SLP123 WND DATA ESTMD T01270022OAKN2019-12-11T16:56:00Z31.565.8312.72.2036.2129.9586621012.3TRUEVFRMETAR1010.02019-12-11 17:07:20Uh)5    3KOFF 111656Z 06006KT 10SM CLR M03/M10 A3042 RMK AO2A SLP328 RVRNO $KOFF2019-12-11T16:56:00Z41.12-95.92-3.0-10.060610.030.419291032.8TRUETRUEVFRMETAR319.02019-12-11 17:07:20 *_=o(u5   3KLVN 111656Z AUTO 00000KT 10SM M17/M21 A3045 RMK AO2KLVN2019-12-11T16:56:00Z44.63-93.23-17.0-21.00010.030.448818TRUETRUEMETAR293.02019-12-11 17:07:20Qn)5   3KCGS 111656Z AUTO 26009G14KT 10SM CLR 03/M10 A3036 RMK AO1 T00261099KCGS2019-12-11T16:56:00Z38.98-76.922.6-9.926091410.030.360237TRUETRUEVFRMETAR15.02019-12-11 17:07:20Fm(}5    3KAEL 111656Z AUTO 36005KT 10SM CLR M17/M20 A3041 RMK AO2KAEL2019-12-11T16:56:00Z43.68-93.37-17.0-20.0360510.030.410433TRUETRUEVFRMETAR383.02019-12-11 17:07:20Ql)5    3K9MN 111656Z AUTO 30004KT 10SM CLR M15/M20 A3043 RMK AO1 T11491203K9MN2019-12-11T16:56:00Z44.02-92.48-14.9-20.3300410.030.431103TRUETRUEVFRMETAR355.02019-12-11 17:07:20 l->lMs)5    3KVOK 111656Z 30010KT 10SM CLR M14/M20 A3043 RMK AO2A SLP332KVOK2019-12-11T16:56:00Z43.92-90.27-14.0-20.03001010.030.4311031033.2TRUEVFRMETAR277.02019-12-11 17:07:20jr)A5    3KRCA 111656Z AUTO 18015KT 10SM OVC005 M05/M07 A3000 RMK AO2 CIG 004 RWY31 SLP204 T10511069KRCA2019-12-11T16:56:00Z44.13-103.08-5.1-6.91801510.030.01020.4TRUETRUEIFRMETAR999.02019-12-11 17:07:20`q)!5    3KBLV 111656Z AUTO 28008KT 10SM CLR 04/M05 A3047 RMK AO2 SLP327 T00371048 $KBLV2019-12-11T16:56:00Z38.53-89.833.7-4.8280810.030.4694881032.7TRUETRUETRUEVFRMETAR138.02019-12-11 17:07:20ip)-5     3RJTY 111656Z AUTO 32005KT 10SM CLR 07/07 A2982 RMK AO2 SLP103 T00730070 FZRANO $RJTY2019-12-11T16:56:00Z35.75139.337.37.0320510.029.8198811010.3TRUETRUETRUETRUEVFRMETAR139.02019-12-11 17:07:20 c!HPchw)I5   3KDPG 111656Z 00000KT 25SM FEW060 SCT070 BKN095 00/M02 A3024 RMK VIRGA VC W-NW SLP252 T10031018KDPG2019-12-11T16:56:00Z40.2-112.92-0.3-1.80025.030.2391741025.2VFRMETAR1326.02019-12-11 17:07:20sv)c5     3EHLW 111656Z AUTO 17006KT 4700 BR SCT024 OVC028 05/05 Q1002 GRN 17005KT 4500 BR SCT025 TEMPO 3000 BR SCT006EHLW2019-12-11T16:56:00Z53.225.755.05.017062.9229.586615TRUEBR BRIFRSPECI2.02019-12-11 17:07:20Tu)5   3KP53 111656Z AUTO 26010G18KT M13/M19 A3019 RMK AO1 SLP239 T11331189KP532019-12-11T16:56:00Z46.42-86.65-13.3-18.9260101830.1889761023.9TRUETRUEMETAR187.02019-12-11 17:07:20Zt)5    3KOAJ 111656Z COR 36009KT 10SM OVC013 08/05 A3035 RMK A02 SLP281 T00780050KOAJ2019-12-11T16:56:00Z34.82-77.627.85.0360910.030.3513771028.1TRUETRUEMVFRSPECI29.02019-12-11 17:07:20  1dM{)5    3KM21 111655Z AUTO 20004KT 10SM CLR 03/M05 A3055 RMK AO2 T00251053KM212019-12-11T16:55:00Z37.22-87.152.5-5.3200410.030.549213TRUETRUEVFRMETAR129.02019-12-11 17:07:20Hz)5   3KLUA 111655Z AUTO 27010G15KT 10SM CLR 02/M08 A3037 RMK AO2KLUA2019-12-11T16:55:00Z38.67-78.52.0-8.0270101510.030.369095TRUETRUEVFRMETAR275.02019-12-11 17:07:20Ty)5     3KLUD 111655Z AUTO 16008KT 1/2SM FG OVC001 02/02 A3053 RMK AO2 T00220017KLUD2019-12-11T16:55:00Z33.25-97.582.21.716080.530.528543TRUETRUEFGLIFRMETAR319.02019-12-11 17:07:20qx)?5     3KVAD 111656Z AUTO 36010KT 10SM FEW019 BKN100 14/08 A3033 RMK AO2 SLP273 T01410078 PWINO $KVAD2019-12-11T16:56:00Z30.97-83.214.17.83601010.030.330711027.3TRUETRUETRUETRUEVFRSPECI71.02019-12-11 17:07:20 /\E) 5    3KM40 111655Z 03006KT 10SM CLR 06/M02 A3059 RMK AO2 TEMP/DP UNRLKM402019-12-11T16:55:00Z33.87-88.486.0-2.030610.030.590551TRUEVFRMETAR69.02019-12-11 17:07:20D~(5    3KMAN 111655Z AUTO 15005KT 10SM OVC049 03/03 A3018 RMK A01KMAN2019-12-11T16:55:00Z43.58-116.523.03.0150510.030.180119TRUETRUEVFRMETAR774.02019-12-11 17:07:20N})5    3KMDZ 111655Z AUTO 27007KT 10SM CLR M22/M25 A3033 RMK AO2 T12201247KMDZ2019-12-11T16:55:00Z45.1-90.3-22.0-24.7270710.030.33071TRUETRUEVFRSPECI448.02019-12-11 17:07:20L|)5    3KLXY 111655Z AUTO 00000KT 10SM SCT012 06/02 A3056 RMK AO2 T00600016KLXY2019-12-11T16:55:00Z31.63-96.526.01.60010.030.561024TRUETRUEVFRMETAR166.02019-12-11 17:07:20 *TV)5     3KMNZ 111655Z AUTO 15005KT M1/4SM FG OVC002 02/02 A3056 RMK AO2 T00160016KMNZ2019-12-11T16:55:00Z31.67-98.151.61.615050.2530.561024TRUETRUEFGLIFRMETAR396.02019-12-11 17:07:20C(}5   3KMKS 111655Z AUTO 03011G16KT 7SM CLR 13/05 A3034 RMK AO2KMKS2019-12-11T16:55:00Z33.18-80.0313.05.03011167.030.339567TRUETRUEVFRMETAR23.02019-12-11 17:07:20Q)5    3KMMH 111655Z AUTO 11004KT 10SM CLR M01/M06 A3026 RMK AO2 T10061064KMMH2019-12-11T16:55:00Z37.62-118.82-0.6-6.4110410.030.259842TRUETRUEVFRMETAR2173.02019-12-11 17:07:20Q)5    3KMKJ 111655Z AUTO 23008KT 10SM BKN025 00/M05 A3042 RMK AO2 T10031046KMKJ2019-12-11T16:55:00Z36.88-81.33-0.3-4.6230810.030.41929TRUETRUEMVFRMETAR780.02019-12-11 17:07:20 2i[)%5   3KMWK 111655Z AUTO 32012G18KT 300V010 10SM CLR 04/M06 A3041 RMK AO2 T00421061KMWK2019-12-11T16:55:00Z36.47-80.554.2-6.1320121810.030.410433TRUETRUEVFRMETAR380.02019-12-11 17:07:20D(}5    3KMXO 111655Z AUTO 35007KT 10SM CLR M08/M14 A3044 RMK AO2KMXO2019-12-11T16:55:00Z42.22-91.17-8.0-14.0350710.030.43996TRUETRUEVFRSPECI259.02019-12-11 17:07:20D(}5    3KMUT 111655Z AUTO 34008KT 10SM CLR M05/M09 A3048 RMK AO2KMUT2019-12-11T16:55:00Z41.37-91.15-5.0-9.0340810.030.481298TRUETRUEVFRSPECI167.02019-12-11 17:07:20I)5    3KMNE 111655Z AUTO 00000KT 10SM CLR 07/M02 A3059 RMK AO2 T00711022KMNE2019-12-11T16:55:00Z32.65-93.37.1-2.20010.030.590551TRUETRUEVFRMETAR85.02019-12-11 17:07:20 +bP )5    3KOKZ 111655Z AUTO 33006KT 10SM BKN017 11/07 A3039 RMK AO2 T01090071KOKZ2019-12-11T16:55:00Z32.97-82.8310.97.1330610.030.389763TRUETRUEMVFRMETAR134.02019-12-11 17:07:20E (}5    3KOLZ 111655Z AUTO 36007KT 10SM CLR M11/M16 A3044 RMK A01KOLZ2019-12-11T16:55:00Z42.67-91.97-11.0-16.0360710.030.43996TRUETRUEVFRMETAR328.02019-12-11 17:07:20D )5     3KORS 111655Z AUTO 00000KT 4SM BR OVC014 08/08 A3001 RMK AO2KORS2019-12-11T16:55:00Z48.7-122.928.08.0004.030.008858TRUETRUEBRMVFRMETAR9.02019-12-11 17:07:20P)5    3KOXI 111655Z AUTO 26010KT 4SM BKN019 OVC023 M06/M10 A3043 RMK AO1KOXI2019-12-11T16:55:00Z41.33-86.67-6.0-10.0260104.030.431103TRUETRUEMVFRSPECI209.02019-12-11 17:07:20 2\G)5    3KOXV 111655Z AUTO 01009KT 10SM SCT016 M06/M09 A3045 RMK AO2KOXV2019-12-11T16:55:00Z41.28-93.12-6.0-9.010910.030.448818TRUETRUEVFRSPECI283.02019-12-11 17:07:20@(y5    3KPAN 111655Z AUTO VRB04KT 10SM CLR 07/01 A3030 RMK AO2KPAN2019-12-11T16:55:00Z34.25-111.337.01.00410.030.301182TRUETRUEVFRMETAR1572.02019-12-11 17:07:20Q )5    3KOBE 111655Z AUTO 22005KT SCT015 BKN022 BKN037 25/22 A3019 RMK AO2 PWINOKOBE2019-12-11T16:55:00Z27.27-80.8525.022.0220530.188976TRUETRUETRUEMETAR11.02019-12-11 17:07:20I )5   3KOKV 111655Z AUTO 29010G16KT 10SM CLR 01/M08 A3034 RMK AO2KOKV2019-12-11T16:55:00Z39.13-78.151.0-8.0290101610.030.339567TRUETRUEVFRMETAR222.02019-12-11 17:07:20 .fM)5    3KPIM 111655Z AUTO 36005KT 10SM CLR 06/M06 A3045 RMK AO2 T00571063KPIM2019-12-11T16:55:00Z32.83-84.885.7-6.3360510.030.448818TRUETRUEVFRMETAR275.02019-12-11 17:07:20<(s5   3KPLR 111655Z AUTO 36013KT 10SM 07/M01 A3052 RMK A01KPLR2019-12-11T16:55:00Z33.57-86.257.0-1.03601310.030.519686TRUETRUEMETAR148.02019-12-11 17:07:20C({5    3KPUJ 111655Z AUTO 35012KT 10SM CLR 04/M07 A3045 RMK AO2KPUJ2019-12-11T16:55:00Z33.92-84.934.0-7.03501210.030.448818TRUETRUEVFRMETAR393.02019-12-11 17:07:20M)5    3KPEZ 111655Z AUTO 02004KT 10SM OVC009 04/02 A3056 RMK AO2 T00420019KPEZ2019-12-11T16:55:00Z28.95-98.524.21.920410.030.561024TRUETRUEIFRMETAR132.02019-12-11 17:07:20 *SR)5    3KRSV 111655Z AUTO 22007KT 10SM OVC070 M01/M07 A3050 RMK AO2 T10061070KRSV2019-12-11T16:55:00Z39.02-87.65-0.6-7.0220710.030.499016TRUETRUEVFRSPECI141.02019-12-11 17:07:20G(}5    3KRUG 111655Z AUTO 24005KT 10SM CLR M24/M26 A3028 RMK AO2KRUG2019-12-11T16:55:00Z48.38-100.02-24.0-26.0240510.030.280512TRUETRUEVFRSPECI472.02019-12-11 17:07:20R)5   3KRVL 111655Z AUTO 24008G15KT 220V280 10SM CLR M00/M11 A3027 RMK AO2KRVL2019-12-11T16:55:00Z40.68-77.630.0-11.024081510.030.268702TRUETRUEVFRSPECI250.02019-12-11 17:07:20Q)5    3KRYV 111655Z AUTO 31009KT 10SM CLR M10/M19 A3040 RMK AO2 T11001192KRYV2019-12-11T16:55:00Z43.17-88.72-10.0-19.2310910.030.398623TRUETRUEVFRSPECI254.02019-12-11 17:07:20 /bO)5    3KPVB 111655Z AUTO 29006KT 10SM CLR M09/M15 A3042 RMK AO1 T10901146KPVB2019-12-11T16:55:00Z42.68-90.43-9.0-14.6290610.030.41929TRUETRUEVFRSPECI313.02019-12-11 17:07:20C(}5    3KRDK 111655Z AUTO 05011KT 10SM CLR M03/M08 A3042 RMK AO2KRDK2019-12-11T16:55:00Z41.02-95.27-3.0-8.0501110.030.41929TRUETRUEVFRSPECI318.02019-12-11 17:07:20H)5   3KRGA 111655Z AUTO 22008G14KT 10SM CLR 01/M06 A3051 RMK AO2KRGA2019-12-11T16:55:00Z37.63-84.331.0-6.022081410.030.510826TRUETRUEVFRMETAR305.02019-12-11 17:07:20L)5    3KRMN 111655Z AUTO 33010KT 10SM CLR 04/M04 A3043 RMK AO2 T00411038KRMN2019-12-11T16:55:00Z38.4-77.454.1-3.83301010.030.431103TRUETRUEVFRMETAR65.02019-12-11 17:07:20 &M|O)5    3KFKR 111655Z AUTO 27009KT 7SM OVC035 M03/M08 A3046 RMK AO2 T10281076KFKR2019-12-11T16:55:00Z40.27-86.57-2.8-7.627097.030.46063TRUETRUEVFRSPECI262.02019-12-11 17:07:20L)5    3KEXX 111655Z AUTO 32006KT 10SM CLR 06/M07 A3041 RMK AO2 T00571069KEXX2019-12-11T16:55:00Z35.78-80.35.7-6.9320610.030.410433TRUETRUEVFRMETAR223.02019-12-11 17:07:20T)5   3KSCD 111655Z AUTO 06010G15KT 10SM OVC110 06/M03 A3050 RMK AO2 T00601035KSCD2019-12-11T16:55:00Z33.17-86.36.0-3.560101510.030.499016TRUETRUEVFRMETAR173.02019-12-11 17:07:20U)'5    3KETC 111655Z AUTO 02007KT 2 1/2SM BKN007 OVC013 04/03 A3039 RMK AO2 T00380029KETC2019-12-11T16:55:00Z35.93-77.553.82.92072.530.389763TRUETRUEIFRMETAR17.02019-12-11 17:07:20 4cR#)5     3KGDJ 111655Z AUTO 12005KT 5SM BR OVC002 03/02 A3057 RMK AO2 T00300024KGDJ2019-12-11T16:55:00Z32.45-97.823.02.412055.030.569881TRUETRUEBRLIFRMETAR237.02019-12-11 17:07:20K")5    3KF17 111655Z AUTO 02008KT 10SM CLR 07/M01 A3058 RMK AO2 T00661015KF172019-12-11T16:55:00Z31.83-94.156.6-1.520810.030.578741TRUETRUEVFRMETAR97.02019-12-11 17:07:20L!) 5    3KF46 111655Z AUTO 12004KT 10SM CLR 07/00 A3057 RMK AO2 T00661001KF462019-12-11T16:55:00Z32.93-96.436.6-0.1120410.030.569881TRUETRUEVFRMETAR176.02019-12-11 17:07:20G )5    3KFFL 111655Z AUTO 01009KT 10SM SCT017 M04/M08 A3045 RMK A01KFFL2019-12-11T16:55:00Z41.03-91.97-4.0-8.010910.030.448818TRUETRUEVFRSPECI244.02019-12-11 17:07:20bRCRY`gnu|$+29@GNU\cjqx  '.5<CJQX_fmt{37;?CGKOSW[_cg37;?CGKOSW[_cgkosw{ #'+/37<@EIMQ U Y ^ b fjnrvz~ #'+/ 3!7";#?$C%G&K'O(S)W*[+_,c-g.k/o0s1w2|3456 789:;!<%=)>-?1@5A:B> +`F') 5  3KJVW 111655Z AUTO 07007G13KT 030V140 10SM 08/M02 A3055 RMK AO2KJVW2019-12-11T16:55:00Z32.3-90.428.0-2.07071310.030.549213TRUETRUEMETAR76.02019-12-11 17:07:20M&)5    3KGLW 111655Z AUTO 20007KT 10SM CLR 03/M07 A3056 RMK AO2 T00301067KGLW2019-12-11T16:55:00Z37.03-85.953.0-6.7200710.030.561024TRUETRUEVFRMETAR218.02019-12-11 17:07:20F%(}5    3KGWR 111655Z AUTO 25007KT 10SM CLR M21/M23 A3038 RMK A01KGWR2019-12-11T16:55:00Z46.22-97.65-21.0-23.0250710.030.380905TRUETRUEVFRMETAR386.02019-12-11 17:07:20P$)5   3KGAO 111655Z AUTO 02014G23KT 10SM OVC040 10/03 A3042 RMK AO2 T00950026KGAO2019-12-11T16:55:00Z29.45-90.279.52.620142310.030.41929TRUETRUEVFRMETAR1.02019-12-11 17:07:20 -sO+)5    3KIIB 111655Z AUTO 35007KT 10SM CLR M09/M14 A3044 RMK AO2 T10921145KIIB2019-12-11T16:55:00Z42.45-91.95-9.2-14.5350710.030.43996TRUETRUEVFRSPECI298.02019-12-11 17:07:20D*(}5    3KIKV 111655Z AUTO 04007KT 10SM CLR M07/M12 A3048 RMK AO2KIKV2019-12-11T16:55:00Z41.68-93.57-7.0-12.040710.030.481298TRUETRUEVFRSPECI275.02019-12-11 17:07:205)(k5    3KJFX 111655Z AUTO 10SM CLR 06/M02 A3054 RMK AO2KJFX2019-12-11T16:55:00Z33.9-87.326.0-2.010.030.540354TRUETRUEVFRMETAR148.02019-12-11 17:07:20N()5    3KJFZ 111655Z AUTO 24004KT 10SM CLR M03/M09 A3040 RMK AO2 T10341087KJFZ2019-12-11T16:55:00Z37.07-81.8-3.4-8.7240410.030.398623TRUETRUEVFRMETAR809.02019-12-11 17:07:20 #[M/)5    3KI35 111655Z AUTO 00000KT 10SM CLR M01/M07 A3050 RMK AO2 T10081066KI352019-12-11T16:55:00Z36.87-83.37-0.8-6.60010.030.499016TRUETRUEVFRMETAR473.02019-12-11 17:07:20N.)5    3KI75 111655Z AUTO 01009KT 10SM CLR M03/M08 A3043 RMK AO2 T10321083KI752019-12-11T16:55:00Z41.05-93.68-3.2-8.310910.030.431103TRUETRUEVFRSPECI339.02019-12-11 17:07:20C-(}5    3KICL 111655Z AUTO 07008KT 10SM CLR M02/M05 A3043 RMK AO2KICL2019-12-11T16:55:00Z40.72-95.02-2.0-5.070810.030.431103TRUETRUEVFRSPECI303.02019-12-11 17:07:20X,)5     3KIGQ 111655Z AUTO 29008KT 5SM -SN OVC019 M06/M10 A3044 RMK AO2 T10601100KIGQ2019-12-11T16:55:00Z41.53-87.53-6.0-10.029085.030.43996TRUETRUE-SNMVFRSPECI188.02019-12-11 17:07:20 A{U3)5   3KHLX 111655Z AUTO 30016G22KT 10SM CLR M02/M09 A3035 RMK AO2 T10191086KHLX2019-12-11T16:55:00Z36.77-80.82-1.9-8.6300162210.030.351377TRUETRUEVFRMETAR834.02019-12-11 17:07:20C2(}5    3KHVE 111655Z AUTO 00000KT 10SM CLR M01/M03 A3032 RMK AO2KHVE2019-12-11T16:55:00Z38.42-110.7-1.0-3.00010.030.318897TRUETRUEVFRMETAR1350.02019-12-11 17:07:20A1(5    3KHVS 111655Z AUTO 03007KT 10SM FEW023 09/03 A3039 RMK AO2KHVS2019-12-11T16:55:00Z34.4-80.129.03.030710.030.389763TRUETRUEVFRMETAR111.02019-12-11 17:07:20:0(y5   3KI16 111655Z AUTO 10SM M01/M05 A3049 RMK AO2 T10081049KI162019-12-11T16:55:00Z37.6-81.57-0.8-4.910.030.490158TRUETRUEMETAR544.02019-12-11 17:07:20 #]K7) 5    3KJWY 111655Z AUTO 11003KT 10SM CLR 07/00 A3057 RMK AO2 T00670004KJWY2019-12-11T16:55:00Z32.45-96.926.70.4110310.030.569881TRUETRUEVFRMETAR217.02019-12-11 17:07:20I6) 5    3KGYB 111655Z AUTO 00000KT 10SM CLR 09/04 A3054 RMK AO2 T00940039KGYB2019-12-11T16:55:00Z30.17-96.989.43.90010.030.540354TRUETRUEVFRMETAR148.02019-12-11 17:07:20A5(}5    3KHEG 111655Z AUTO 34008KT 9SM OVC007 13/12 A3032 RMK AO2KHEG2019-12-11T16:55:00Z30.28-81.813.012.034089.030.318897TRUETRUEIFRMETAR27.02019-12-11 17:07:20X4)%5    3KHFY 111655Z AUTO 28006KT 10SM BKN047 OVC050 M04/M07 A3046 RMK AO2 T10361074KHFY2019-12-11T16:55:00Z39.63-86.08-3.6-7.4280610.030.46063TRUETRUEVFRSPECI251.02019-12-11 17:07:20 9t:<(y5    3KJZI 111655Z AUTO 00000KT 10SM CLR 15/07 A3033 RMK AO2KJZI2019-12-11T16:55:00Z32.7-80.015.07.00010.030.33071TRUETRUEVFRMETAR6.02019-12-11 17:07:20N;)5    3KK88 111655Z AUTO 19011KT 10SM CLR 06/M05 A3045 RMK AO1 T00561052KK882019-12-11T16:55:00Z37.87-95.385.6-5.21901110.030.448818TRUETRUEVFRMETAR309.02019-12-11 17:07:20H:)5   3KKY8 111655Z AUTO 22005G12KT 10SM CLR 03/M04 A3055 RMK A01KKY82019-12-11T16:55:00Z37.95-86.873.0-4.022051210.030.549213TRUETRUEVFRMETAR126.02019-12-11 17:07:20@9(y5    3KL08 111655Z AUTO 00000KT 10SM CLR 12/05 A3021 RMK AO2KL082019-12-11T16:55:00Z33.27-116.3212.05.00010.030.209646TRUETRUEVFRMETAR159.02019-12-11 17:07:20B8(y5    3KL18 111655Z AUTO 36003KT 10SM CLR 13/04 A3021 RMK AO2KL182019-12-11T16:55:00Z33.35-117.2513.04.0360310.030.209646TRUETRUEVFRMETAR216.02019-12-11 17:07:20 0C{?@(y5    3KL52 111655Z AUTO 10004KT 10SM CLR 11/09 A3026 RMK A01KL522019-12-11T16:55:00Z35.1-120.6211.09.0100410.030.259842TRUETRUEVFRMETAR4.02019-12-11 17:07:20C?(5    3KLKR 111655Z AUTO 36006KT 10SM SCT027 09/02 A3040 RMK AO2KLKR2019-12-11T16:55:00Z34.72-80.859.02.0360610.030.398623TRUETRUEVFRMETAR149.02019-12-11 17:07:20h>)C5     3KLNA 111655Z AUTO 16007KT 1 1/4SM RA BKN008 BKN014 OVC023 23/21 A3020 RMK AO2 T02330214 PNOKLNA2019-12-11T16:55:00Z26.6-80.0223.321.416071.2530.200787TRUETRUERAIFRMETAR11.02019-12-11 17:07:20K=) 5    3KJYL 111655Z AUTO 36012KT 10SM CLR 15/07 A3036 RMK AO2 T01530068KJYL2019-12-11T16:55:00Z32.65-81.615.36.83601210.030.360237TRUETRUEVFRMETAR57.02019-12-11 17:07:20 #2a#CE(5    3K0S9 111655Z AUTO 13005KT 10SM OVC008 07/07 A2999 RMK AO2K0S92019-12-11T16:55:00Z48.05-122.827.07.0130510.029.991142TRUETRUEIFRSPECI33.02019-12-11 17:07:20'D(_5    3K0VG 111655Z AUTO 10SM CLR 00/M05 RMK AO2K0VG2019-12-11T16:55:00Z36.65-83.220.0-5.010.0TRUETRUEVFRMETAR430.02019-12-11 17:07:20EC(}5    3KLRJ 111655Z AUTO 10005KT 10SM CLR M12/M17 A3043 RMK AO2KLRJ2019-12-11T16:55:00Z42.77-96.2-12.0-17.0100510.030.431103TRUETRUEVFRSPECI365.02019-12-11 17:07:20LB)5   3KLRO 111655Z AUTO 36007G13KT 340V040 10SM CLR 15/08 A3032 RMK AO2KLRO2019-12-11T16:55:00Z32.9-79.7815.08.036071310.030.318897TRUETRUEVFRMETAR4.02019-12-11 17:07:20IA)5    3K08D 111655Z AUTO 11006KT 10SM SCT080 M18/M20 A3016 RMK AO2K08D2019-12-11T16:55:00Z48.3-102.4-18.0-20.0110610.030.159449TRUETRUEVFRMETAR684.02019-12-11 17:07:20 1RDI(5    3K24J 111655Z AUTO 01011KT 10SM BKN016 13/10 A3032 RMK A01K24J2019-12-11T16:55:00Z30.3-83.0313.010.0101110.030.318897TRUETRUEMVFRMETAR32.02019-12-11 17:07:20DH({5    3K2D5 111655Z AUTO 21004KT 9SM CLR M21/M24 A3037 RMK AO2K2D52019-12-11T16:55:00Z46.17-98.08-21.0-24.021049.030.369095TRUETRUEVFRMETAR407.02019-12-11 17:07:20ZG)5   3K2P2 111655Z AUTO 28011G16KT 10SM OVC012 M15/M18 A3029 RMK AO2 T11511184K2P22019-12-11T16:55:00Z45.38-86.92-15.1-18.4280111610.030.28937TRUETRUEMVFRSPECI199.02019-12-11 17:07:20JF) 5    3K0F2 111655Z AUTO 17008KT 10SM CLR 06/03 A3052 RMK AO2 T00640032K0F22019-12-11T16:55:00Z33.6-97.786.43.2170810.030.519686TRUETRUEVFRSPECI336.02019-12-11 17:07:20 0Y>M(y5    3K3J7 111655Z AUTO 00000KT 10SM CLR 10/04 A3041 RMK AO2K3J72019-12-11T16:55:00Z33.6-83.1310.04.00010.030.410433TRUETRUEVFRMETAR206.02019-12-11 17:07:20ML)5    3K3LF 111655Z AUTO 23009KT 10SM CLR 01/M05 A3047 RMK AO2 T00091046K3LF2019-12-11T16:55:00Z39.17-89.670.9-4.6230910.030.469488TRUETRUEVFRSPECI210.02019-12-11 17:07:20RK)5   3K1A9 111655Z AUTO 36013G17KT 10SM CLR 08/M03 A3049 RMK AO2 T00751034K1A92019-12-11T16:55:00Z32.43-86.527.5-3.4360131710.030.490158TRUETRUEVFRMETAR69.02019-12-11 17:07:20KJ)5    3K20U 111655Z AUTO 14010KT 10SM OVC006 M10/M11 A3002 RMK AO2K20U2019-12-11T16:55:00Z46.93-103.98-10.0-11.01401010.030.02067TRUETRUEIFRSPECI840.02019-12-11 17:07:20 !\TQ)5    3K42J 111655Z AUTO 36009G15KT 10SM OVC012 16/14 A3028 RMK A01 TSNOK42J2019-12-11T16:55:00Z29.85-82.0516.014.036091510.030.280512TRUETRUETRUEMVFRMETAR60.02019-12-11 17:07:20EP(}5    3K46D 111655Z AUTO 26004KT 10SM CLR M21/M24 A3031 RMK AO2K46D2019-12-11T16:55:00Z47.45-99.15-21.0-24.0260410.030.31004TRUETRUEVFRMETAR490.02019-12-11 17:07:20@O({5    3K4A6 111655Z AUTO 02007KT 10SM CLR 04/M02 A3056 RMK AO2K4A62019-12-11T16:55:00Z34.68-86.04.0-2.020710.030.561024TRUETRUEVFRMETAR198.02019-12-11 17:07:20ZN)5   3K3D2 111655Z AUTO 29010G15KT 10SM SCT011 M15/M19 A3030 RMK AO2 T11551190K3D22019-12-11T16:55:00Z45.13-87.18-15.5-19.0290101510.030.301182TRUETRUEVFRSPECI234.02019-12-11 17:07:20 0bJU) 5    3K6A2 111655Z AUTO 35008KT 320V030 10SM CLR 05/M04 A3044 RMK AO2K6A22019-12-11T16:55:00Z33.23-84.275.0-4.0350810.030.43996TRUETRUEVFRMETAR292.02019-12-11 17:07:20NT) 5   3K6B9 111655Z AUTO 22011G22KT 10SM BKN040 M01/M08 A3014 RMK AO2K6B92019-12-11T16:55:00Z42.92-76.43-1.0-8.0220112210.030.138779TRUETRUEVFRMETAR316.02019-12-11 17:07:20IS)5    3K6L4 111655Z AUTO 26004KT 10SM BKN024 M02/M07 A3045 RMK AO2K6L42019-12-11T16:55:00Z37.85-81.92-2.0-7.0260410.030.448818TRUETRUEMVFRMETAR508.02019-12-11 17:07:20KR)5    3K3T5 111655Z AUTO 04006KT 10SM SCT020 10/04 A3052 RMK AO2 T00950037K3T52019-12-11T16:55:00Z29.9-96.959.53.740610.030.519686TRUETRUEVFRMETAR99.02019-12-11 17:07:20 6FsSY)5    3K4S1 111655Z AUTO 19007G15KT 2SM HZ SCT025 SCT041 12/09 A3008 RMK AO2K4S12019-12-11T16:55:00Z42.42-124.4212.09.01907152.030.079725TRUETRUEHZIFRMETAR5.02019-12-11 17:07:20NX)5    3K4V0 111655Z AUTO 00000KT 10SM CLR M04/M06 A3026 RMK AO2 T10451056K4V02019-12-11T16:55:00Z40.1-108.77-4.5-5.60010.030.259842TRUETRUEVFRMETAR1608.02019-12-11 17:07:20kW)C5      3K54J 111655Z AUTO 01009KT 10SM -RA SCT048 BKN055 OVC070 06/03 A3041 RMK AO2 P0001 T00610031K54J2019-12-11T16:55:00Z30.73-86.156.13.110910.030.410433TRUETRUE-RAVFR0.01METAR88.02019-12-11 17:07:20EV(}5    3K5H4 111655Z AUTO 24006KT 10SM CLR M21/M25 A3031 RMK AO2K5H42019-12-11T16:55:00Z47.78-99.93-21.0-25.0240610.030.31004TRUETRUEVFRMETAR490.02019-12-11 17:07:20 0l=^(y5    3KTME 111655Z AUTO 04009KT 10SM CLR 10/04 A3054 RMK AO2KTME2019-12-11T16:55:00Z29.8-95.910.04.040910.030.540354TRUETRUEVFRSPECI51.02019-12-11 17:07:20C](}5    3KTNU 111655Z AUTO 04007KT 10SM CLR M08/M12 A3046 RMK A01KTNU2019-12-11T16:55:00Z41.67-93.02-8.0-12.040710.030.46063TRUETRUEVFRSPECI290.02019-12-11 17:07:20A\(y5    3KTSP 111655Z AUTO 30003KT 9SM CLR 08/M01 A3029 RMK AO2KTSP2019-12-11T16:55:00Z35.13-118.438.0-1.030039.030.28937TRUETRUEVFRMETAR1220.02019-12-11 17:07:20?[({5    3KUOX 111655Z AUTO 00000KT 10SM CLR 05/M03 A3060 RMK AO2KUOX2019-12-11T16:55:00Z34.38-89.535.0-3.00010.030.59941TRUETRUEVFRMETAR137.02019-12-11 17:07:20KZ)5     3K4M9 111655Z AUTO 20007KT 10SM CLR 06/M02 A3057 RMK AO2 PWINOK4M92019-12-11T16:55:00Z36.4-90.656.0-2.0200710.030.569881TRUETRUETRUEVFRMETAR90.02019-12-11 17:07:20 X:b(m5    3KTBX 111655Z AUTO 10SM CLR M05/M11 A3002 RMK AO2KTBX2019-12-11T16:55:00Z43.47-108.23-5.0-11.010.030.02067TRUETRUEVFRMETAR2225.02019-12-11 17:07:20Ga)5   3KTDF 111655Z AUTO 32006G15KT 10SM CLR 04/M06 A3042 RMK AO2KTDF2019-12-11T16:55:00Z36.28-78.984.0-6.032061510.030.41929TRUETRUEVFRMETAR186.02019-12-11 17:07:20:`(s5   3KTKX 111655Z AUTO 22009KT 10SM 06/M02 A3057 RMK AO2KTKX2019-12-11T16:55:00Z36.22-90.026.0-2.0220910.030.569881TRUETRUEMETAR80.02019-12-11 17:07:20d_)?5    3KTMA 111655Z AUTO 01007KT 320V030 10SM SCT032 SCT050 BKN110 11/07 A3036 RMK AO2 T01060068KTMA2019-12-11T16:55:00Z31.43-83.4810.66.810710.030.360237TRUETRUEVFRSPECI109.02019-12-11 17:07:20 "WAf({5    3KSOW 111655Z AUTO 00000KT 10SM CLR 03/M02 A3032 RMK AO2KSOW2019-12-11T16:55:00Z34.27-110.03.0-2.00010.030.318897TRUETRUEVFRSPECI1954.02019-12-11 17:07:20@e({5    3KSUZ 111655Z AUTO 00000KT 10SM CLR 07/M03 A3058 RMK A01KSUZ2019-12-11T16:55:00Z34.58-92.487.0-3.00010.030.578741TRUETRUEVFRMETAR119.02019-12-11 17:07:20Fd(}5    3KSXK 111655Z AUTO 11008KT 10SM CLR M15/M17 A3041 RMK AO2KSXK2019-12-11T16:55:00Z42.98-96.17-15.0-17.0110810.030.410433TRUETRUEVFRSPECI430.02019-12-11 17:07:20Yc)5     3KSYF 111655Z AUTO 16011KT 10SM CLR 08/M05 A3019 RMK AO2 T00821048 PWINOKSYF2019-12-11T16:55:00Z39.77-101.88.2-4.81601110.030.188976TRUETRUETRUEVFRMETAR1025.02019-12-11 17:07:20 .`Fj(}5    3KSHL 111655Z AUTO 11005KT 10SM CLR M16/M18 A3039 RMK AO2KSHL2019-12-11T16:55:00Z43.22-95.82-16.0-18.0110510.030.389763TRUETRUEVFRSPECI432.02019-12-11 17:07:20Di(}5    3KSLB 111655Z AUTO 08008KT 10SM CLR M15/M17 A3038 RMK AO2KSLB2019-12-11T16:55:00Z42.6-95.22-15.0-17.080810.030.380905TRUETRUEVFRSPECI454.02019-12-11 17:07:20Ih)5     3KSMS 111655Z AUTO 01008KT 10SM -DZ FEW022 10/05 A3039 RMK AO2KSMS2019-12-11T16:55:00Z34.0-80.3710.05.010810.030.389763TRUETRUE-DZVFRMETAR56.02019-12-11 17:07:20Mg) 5     3KSNC 111655Z AUTO 33007KT 10SM -DZ OVC060 M00/M07 A3024 RMK AO2KSNC2019-12-11T16:55:00Z41.38-72.50.0-7.0330710.030.239174TRUETRUE-DZVFRSPECI127.02019-12-11 17:07:20 8oMn)5     3KATS 111655Z AUTO 12003KT 1/4SM FG OVC001 03/03 A3038 RMK AO2KATS2019-12-11T16:55:00Z32.85-104.473.03.012030.2530.380905TRUETRUEFGLIFRSPECI1081.02019-12-11 17:07:20Om)5    3KAVC 111655Z AUTO 33003KT 10SM SCT036 06/M03 A3044 RMK AO2 T00561035KAVC2019-12-11T16:55:00Z36.68-78.035.6-3.5330310.030.43996TRUETRUEVFRMETAR135.02019-12-11 17:07:20Dl(}5    3KSDA 111655Z AUTO 05011KT 10SM CLR M01/M05 A3041 RMK AO2KSDA2019-12-11T16:55:00Z40.75-95.42-1.0-5.0501110.030.410433TRUETRUEVFRSPECI296.02019-12-11 17:07:20Ck({5    3KSEZ 111655Z AUTO 08005KT 10SM CLR 06/M01 A3027 RMK AO2KSEZ2019-12-11T16:55:00Z34.85-111.786.0-1.080510.030.268702TRUETRUEVFRMETAR1473.02019-12-11 17:07:20 &OKr) 5    3KAPY 111655Z AUTO 08005KT 10SM CLR 12/05 A3051 RMK AO2 T01200052KAPY2019-12-11T16:55:00Z26.97-99.2512.05.280510.030.510826TRUETRUEVFRSPECI129.02019-12-11 17:07:20Bq(5    3KAQX 111655Z AUTO 01005KT 10SM FEW028 14/07 A3036 RMK AO2KAQX2019-12-11T16:55:00Z32.98-81.2714.07.010510.030.360237TRUETRUEVFRMETAR49.02019-12-11 17:07:20Rp)5   3KARM 111655Z AUTO 03008G16KT 10SM SCT020 10/03 A3052 RMK AO2 T01000030KARM2019-12-11T16:55:00Z29.25-96.1510.03.03081610.030.519686TRUETRUEVFRSPECI31.02019-12-11 17:07:20Uo)5    3KASN 111655Z AUTO 03011KT 360V060 10SM CLR 06/M04 A3052 RMK AO2 T00581040KASN2019-12-11T16:55:00Z33.57-86.055.8-4.0301110.030.519686TRUETRUEVFRMETAR162.02019-12-11 17:07:20 /hDv({5    3K9D7 111655Z AUTO 26006KT 9SM CLR M22/M26 A3030 RMK AO2K9D72019-12-11T16:55:00Z48.48-99.23-22.0-26.026069.030.301182TRUETRUEVFRMETAR452.02019-12-11 17:07:20Bu({5    3KAAS 111655Z AUTO 19009KT 10SM CLR 02/M05 A3057 RMK AO1KAAS2019-12-11T16:55:00Z37.35-85.322.0-5.0190910.030.569881TRUETRUEVFRMETAR281.02019-12-11 17:07:20Bt(}5    3KADU 111655Z AUTO 06008KT 10SM CLR M08/M12 A3042 RMK AO2KADU2019-12-11T16:55:00Z41.7-94.92-8.0-12.060810.030.41929TRUETRUEVFRMETAR392.02019-12-11 17:07:20Ls)5    3KALX 111655Z AUTO 02007KT 10SM CLR 07/M04 A3047 RMK AO2 T00661041KALX2019-12-11T16:55:00Z32.92-85.976.6-4.120710.030.469488TRUETRUEVFRMETAR209.02019-12-11 17:07:20 7aDz(5   3KCDN 111655Z AUTO 34007G12KT 10SM CLR 09/02 A3040 RMK AO2KCDN2019-12-11T16:55:00Z34.28-80.579.02.034071210.030.398623TRUETRUEVFRMETAR92.02019-12-11 17:07:20Ey(}5    3KCIN 111655Z AUTO 05009KT 10SM CLR M11/M15 A3043 RMK AO2KCIN2019-12-11T16:55:00Z42.03-94.77-11.0-15.050910.030.431103TRUETRUEVFRMETAR375.02019-12-11 17:07:20Qx)5    3K7L2 111655Z AUTO 16009KT 10SM BKN075 OVC100 M17/M21 A3029 RMK AO2K7L22019-12-11T16:55:00Z46.22-100.25-17.0-21.0160910.030.28937TRUETRUEVFRMETAR543.02019-12-11 17:07:20Dw({5    3K82V 111655Z AUTO 21007KT 10SM CLR 00/M01 A3010 RMK AO2K82V2019-12-11T16:55:00Z41.15-104.130.0-1.0210710.030.100393TRUETRUEVFRSPECI1570.02019-12-11 17:07:20 ?tD~(}5    3KCAV 111655Z AUTO 00000KT 10SM CLR M16/M20 A3045 RMK A01KCAV2019-12-11T16:55:00Z42.75-93.77-16.0-20.00010.030.448818TRUETRUEVFRMETAR354.02019-12-11 17:07:20C}(}5    3KCBF 111655Z AUTO 09008KT 10SM CLR M05/M09 A3040 RMK AO2KCBF2019-12-11T16:55:00Z41.27-95.77-5.0-9.090810.030.398623TRUETRUEVFRMETAR382.02019-12-11 17:07:20F|(}5    3KCCY 111655Z AUTO 36007KT 10SM CLR M13/M19 A3043 RMK AO2KCCY2019-12-11T16:55:00Z43.07-92.62-13.0-19.0360710.030.431103TRUETRUEVFRMETAR343.02019-12-11 17:07:20<{(y5    3KCDH 111655Z AUTO 00000KT 9SM CLR 08/M01 A3060 RMK AO2KCDH2019-12-11T16:55:00Z33.62-92.778.0-1.0009.030.59941TRUETRUEVFRMETAR35.02019-12-11 17:07:20 .g?(y5    3KBVU 111655Z AUTO 00000KT 10SM CLR 07/02 A3026 RMK AO2KBVU2019-12-11T16:55:00Z35.95-114.877.02.00010.030.259842TRUETRUEVFRMETAR671.02019-12-11 17:07:20M)5    3KBXA 111655Z AUTO 04008KT 10SM OVC090 10/01 A3049 RMK AO2 T01000010KBXA2019-12-11T16:55:00Z30.82-89.8710.01.040810.030.490158TRUETRUEVFRMETAR36.02019-12-11 17:07:20B(y5    3KBXK 111655Z AUTO 13004KT 10SM CLR 11/09 A3019 RMK A01KBXK2019-12-11T16:55:00Z33.42-112.6811.09.0130410.030.188976TRUETRUEVFRSPECI315.02019-12-11 17:07:20M)5    3KBYY 111655Z AUTO 04008KT 10SM SCT022 11/06 A3050 RMK AO2 T01090061KBYY2019-12-11T16:55:00Z28.97-95.8710.96.140810.030.499016TRUETRUEVFRSPECI14.02019-12-11 17:07:20 +T~C({5    3KAXA 111655Z AUTO 01003KT 9SM CLR M17/M19 A3041 RMK A01KAXA2019-12-11T16:55:00Z43.07-94.27-17.0-19.01039.030.410433TRUETRUEVFRMETAR372.02019-12-11 17:07:20Q)5    3KBCK 111655Z AUTO 31006KT 10SM CLR M16/M22 A3045 RMK AO2 T11631218KBCK2019-12-11T16:55:00Z44.25-90.85-16.3-21.8310610.030.448818TRUETRUEVFRMETAR255.02019-12-11 17:07:20R)5   3KBEC 111655Z AUTO 21014G17KT 10SM CLR 05/M06 A3040 RMK AO2 T00521061KBEC2019-12-11T16:55:00Z37.7-97.225.2-6.1210141710.030.398623TRUETRUEVFRMETAR429.02019-12-11 17:07:20P)5    3KBKT 111655Z AUTO 31009KT 10SM BKN033 06/M02 A3038 RMK AO1 T00591019KBKT2019-12-11T16:55:00Z37.07-77.955.9-1.9310910.030.380905TRUETRUEVFRMETAR134.02019-12-11 17:07:20 6`S )5   3KW78 111655Z AUTO 30011G16KT 10SM CLR 05/M08 A3041 RMK AO1 T00511083KW782019-12-11T16:55:00Z36.68-78.855.1-8.3300111610.030.410433TRUETRUEVFRMETAR129.02019-12-11 17:07:20W )!5    3KX60 111655Z AUTO 36008KT 10SM SCT024 OVC029 20/15 A3026 RMK AO2 T02050155KX602019-12-11T16:55:00Z29.35-82.4720.515.5360810.030.259842TRUETRUEMVFRMETAR23.02019-12-11 17:07:20Q)5    3KY19 111655Z AUTO 16007KT 10SM FEW070 FEW080 M19/M21 A3024 RMK AO2KY192019-12-11T16:55:00Z46.77-100.9-19.0-21.0160710.030.239174TRUETRUEVFRSPECI593.02019-12-11 17:07:20E(}5    3KAWG 111655Z AUTO 35010KT 10SM CLR M05/M08 A3045 RMK AO2KAWG2019-12-11T16:55:00Z41.27-91.67-5.0-8.03501010.030.448818TRUETRUEVFRMETAR230.02019-12-11 17:07:20 =kJ) 5    3KCPC 111655Z AUTO 01005KT 10SM CLR 11/00 A3034 RMK AO2 T01100002KCPC2019-12-11T16:55:00Z34.28-78.7211.00.210510.030.339567TRUETRUEVFRMETAR29.02019-12-11 17:07:20N ) 5     3KCPT 111655Z AUTO 15006KT 10SM SCT009 05/04 A3057 RMK AO2 PWINOKCPT2019-12-11T16:55:00Z32.35-97.435.04.0150610.030.569881TRUETRUETRUEVFRSPECI260.02019-12-11 17:07:20M )5    3KCPU 111655Z AUTO 00000KT 10SM OVC070 08/06 A3025 RMK AO2 T00770060KCPU2019-12-11T16:55:00Z38.15-120.657.76.00010.030.250984TRUETRUEVFRMETAR404.02019-12-11 17:07:20> (y5    3KCQW 111655Z AUTO 01009KT 10SM CLR 08/01 A3039 RMK AO2KCQW2019-12-11T16:55:00Z34.72-79.958.01.010910.030.389763TRUETRUEVFRMETAR73.02019-12-11 17:07:20 1_L)5    3KCJR 111655Z AUTO 30007KT 10SM CLR 05/M07 A3039 RMK AO2 T00451074KCJR2019-12-11T16:55:00Z38.53-77.874.5-7.4300710.030.389763TRUETRUEVFRMETAR97.02019-12-11 17:07:20W)5     3KCMD 111655Z AUTO 36006KT 10SM CLR 04/M05 A3055 RMK AO2 P0002 T00351048KCMD2019-12-11T16:55:00Z34.27-86.853.5-4.8360610.030.549213TRUETRUEVFR0.02METAR294.02019-12-11 17:07:20M)5     3KCMR 111655Z AUTO 15007KT 10SM CLR 02/M05 A3027 RMK AO2 PWINOKCMR2019-12-11T16:55:00Z35.3-112.22.0-5.0150710.030.268702TRUETRUETRUEVFRSPECI2036.02019-12-11 17:07:20J)5   3KCNC 111655Z AUTO 03010G15KT 10SM CLR M04/M07 A3043 RMK AO2KCNC2019-12-11T16:55:00Z41.02-93.37-4.0-7.030101510.030.431103TRUETRUEVFRMETAR320.02019-12-11 17:07:20 7kD(}5    3KDNS 111655Z AUTO 07010KT 10SM CLR M09/M12 A3044 RMK AO2KDNS2019-12-11T16:55:00Z41.97-95.37-9.0-12.0701010.030.43996TRUETRUEVFRMETAR388.02019-12-11 17:07:20P)5    3KDNV 111655Z AUTO 23007KT 10SM OVC050 M03/M08 A3045 RMK AO2 T10291078KDNV2019-12-11T16:55:00Z40.2-87.6-2.9-7.8230710.030.448818TRUETRUEVFRMETAR212.02019-12-11 17:07:20G) 5    3KDYB 111655Z AUTO 03008KT 360V060 10SM CLR 14/05 A3033 RMK AO2KDYB2019-12-11T16:55:00Z33.07-80.2814.05.030810.030.33071TRUETRUEVFRMETAR18.02019-12-11 17:07:20D(}5    3KCSQ 111655Z AUTO 05012KT 10SM CLR M04/M04 A3041 RMK AO2KCSQ2019-12-11T16:55:00Z41.02-94.37-4.0-4.0501210.030.410433TRUETRUEVFRMETAR394.02019-12-11 17:07:20 %[K)5    3KD57 111655Z AUTO 15008KT 10SM OVC065 M15/M20 A3018 RMK AO2KD572019-12-11T16:55:00Z46.82-101.87-15.0-20.0150810.030.180119TRUETRUEVFRMETAR637.02019-12-11 17:07:20O)5    3KD60 111655Z AUTO 12008KT 9SM FEW055 OVC065 M18/M19 A3016 RMK AO2KD602019-12-11T16:55:00Z48.38-102.9-18.0-19.012089.030.159449TRUETRUEVFRMETAR693.02019-12-11 17:07:20E(}5    3KDEH 111655Z AUTO 32007KT 10SM CLR M14/M20 A3042 RMK AO2KDEH2019-12-11T16:55:00Z43.27-91.72-14.0-20.0320710.030.41929TRUETRUEVFRMETAR353.02019-12-11 17:07:20V)5     3KDLO 111655Z AUTO 14006KT M1/4SM FG OVC003 06/06 A3028 RMK AO2 T00630059KDLO2019-12-11T16:55:00Z35.75-119.236.35.914060.2530.280512TRUETRUEFGLIFRMETAR96.02019-12-11 17:07:20 ;nY)%5   3KCTZ 111655Z AUTO 35009G15KT 320V020 10SM CLR 08/M03 A3038 RMK AO2 T00811033KCTZ2019-12-11T16:55:00Z34.98-78.378.1-3.335091510.030.380905TRUETRUEVFRMETAR45.02019-12-11 17:07:20S)5    3KCWC 111655Z AUTO 18009KT 140V210 10SM CLR 07/01 A3053 RMK AO2 T00710009KCWC2019-12-11T16:55:00Z33.85-98.487.10.9180910.030.528543TRUETRUEVFRMETAR305.02019-12-11 17:07:20H)5   3KCZL 111655Z AUTO 02013G22KT 10SM CLR 05/M05 A3053 RMK AO2KCZL2019-12-11T16:55:00Z34.47-84.935.0-5.020132210.030.528543TRUETRUEVFRMETAR195.02019-12-11 17:07:20@(y5    3KCZT 111655Z AUTO 04003KT 10SM CLR 10/03 A3052 RMK AO2KCZT2019-12-11T16:55:00Z28.52-99.8210.03.040310.030.519686TRUETRUEVFRMETAR183.02019-12-11 17:07:20 )8f).#(e5    3EHAM 111655Z 20008KT CAVOK 05/04 Q1003 NOSIGEHAM2019-12-11T16:55:00Z52.324.785.04.020086.2129.616142TRUEVFRMETAR9.02019-12-11 17:07:20<"(u5     3EHBK 111655Z AUTO 20008KT 9999 NSC 05/04 Q1005 NOSIGEHBK2019-12-11T16:55:00Z50.925.775.04.020086.2129.675198TRUETRUEVFRMETAR116.02019-12-11 17:07:20D!(5    3KECU 111655Z AUTO 18006KT 10SM BKN007 05/05 A3053 RMK AO2KECU2019-12-11T16:55:00Z29.95-100.175.05.0180610.030.528543TRUETRUEIFRMETAR725.02019-12-11 17:07:20M )5    3KEDN 111655Z AUTO 01004KT 10SM SCT080 07/M01 A3043 RMK AO2 T00701006KEDN2019-12-11T16:55:00Z31.3-85.97.0-0.610410.030.431103TRUETRUEVFRMETAR110.02019-12-11 17:07:20C(}5    3KEOK 111655Z AUTO 34009KT 10SM CLR M01/M07 A3044 RMK AO2KEOK2019-12-11T16:55:00Z40.47-91.42-1.0-7.0340910.030.43996TRUETRUEVFRMETAR205.02019-12-11 17:07:20 !FB') 5    3EHGG 111655Z AUTO 19006KT 7000 FEW026 06/04 Q1003 TEMPO BKN006EHGG2019-12-11T16:55:00Z53.126.576.04.019064.3529.616142TRUEMVFRMETAR4.02019-12-11 17:07:20?&({5     3EHRD 111655Z AUTO 19009KT 8000 FEW015 06/05 Q1003 NOSIGEHRD2019-12-11T16:55:00Z51.954.456.05.019094.9729.616142TRUETRUEMVFRMETAR-5.02019-12-11 17:07:20V%)15    3EHLE 111655Z AUTO 18006KT 4700 // BKN009 OVC010 05/04 Q1003 RE// TEMPO 5000 BKN012EHLE2019-12-11T16:55:00Z52.455.525.04.018062.9229.616142TRUEIFRMETAR-6.02019-12-11 17:07:20Z$)%5   3KGVE 111655Z AUTO 27009G17KT 220V290 10SM CLR 05/M08 A3038 RMK AO1 T00461079KGVE2019-12-11T16:55:00Z38.15-78.174.6-7.927091710.030.380905TRUETRUEVFRMETAR138.02019-12-11 17:07:20 %P_+)+5   3K4R5 111655Z AUTO 25008G15KT 210V270 7SM BKN015 M18/M21 A3033 RMK AO2 T11801212K4R52019-12-11T16:55:00Z46.78-90.77-18.0-21.22508157.030.33071TRUETRUEMVFRMETAR198.02019-12-11 17:07:20A*({5    3KGZL 111655Z AUTO 22003KT 10SM CLR 05/M08 A3056 RMK AO2KGZL2019-12-11T16:55:00Z35.28-95.15.0-8.0220310.030.561024TRUETRUEVFRMETAR183.02019-12-11 17:07:20P))5    3KHCD 111655Z AUTO 25004KT 10SM CLR M20/M23 A3044 RMK AO2 T12021235KHCD2019-12-11T16:55:00Z44.87-94.38-20.2-23.5250410.030.43996TRUETRUEVFRMETAR323.02019-12-11 17:07:20V()5    3KHCR 111655Z AUTO 00000KT 10SM SCT075 SCT085 SCT120 M03/M05 A3020 RMK AO2KHCR2019-12-11T16:55:00Z40.48-111.43-3.0-5.00010.030.200787TRUETRUEVFRMETAR1706.02019-12-11 17:07:20 9fB/(}5    3K21D 111655Z AUTO 00000KT 10SM CLR M18/M23 A3046 RMK AO2K21D2019-12-11T16:55:00Z45.0-92.85-18.0-23.00010.030.46063TRUETRUEVFRMETAR285.02019-12-11 17:07:20L.) 5    3K28J 111655Z AUTO 02008KT 10SM BKN016 OVC021 18/14 A3026 RMK AO2K28J2019-12-11T16:55:00Z29.65-81.5818.014.020810.030.259842TRUETRUEMVFRMETAR15.02019-12-11 17:07:20N-)5   3K3R7 111655Z AUTO 02010G18KT 10SM CLR 09/02 A3050 RMK AO2 T00870019K3R72019-12-11T16:55:00Z30.25-92.678.71.920101810.030.499016TRUETRUEVFRMETAR7.02019-12-11 17:07:20B,({5    3K4O4 111655Z AUTO 14004KT 10SM CLR 05/M05 A3056 RMK AO2K4O42019-12-11T16:55:00Z33.92-94.875.0-5.0140410.030.561024TRUETRUEVFRMETAR144.02019-12-11 17:07:20 +S|L3)5    3K0E0 111655Z AUTO 00000KT 10SM CLR 03/M04 A3034 RMK AO2 T00271036K0E02019-12-11T16:55:00Z34.98-106.02.7-3.60010.030.339567TRUETRUEVFRMETAR1890.02019-12-11 17:07:20R2)5   3K0V4 111655Z AUTO 27009G14KT 10SM CLR 05/M07 A3040 RMK AO1 T00451075K0V42019-12-11T16:55:00Z37.15-79.024.5-7.527091410.030.398623TRUETRUEVFRMETAR182.02019-12-11 17:07:20S1)5   3K1K1 111655Z AUTO 21010G15KT 10SM CLR 05/M06 A3041 RMK AO2 T00511065K1K12019-12-11T16:55:00Z37.77-97.125.1-6.5210101510.030.410433TRUETRUEVFRMETAR416.02019-12-11 17:07:20P0)5    3K1P1 111655Z AUTO 26007KT 10SM CLR M02/M14 A3017 RMK AO2 T10211140K1P12019-12-11T16:55:00Z43.78-71.75-2.1-14.0260710.030.171259TRUETRUEVFRMETAR154.02019-12-11 17:07:20 "LjK7)5    3KINJ 111655Z AUTO 00000KT 10SM BKN007 05/03 A3056 RMK AO2 T00500031KINJ2019-12-11T16:55:00Z32.08-97.15.03.10010.030.561024TRUETRUEIFRMETAR209.02019-12-11 17:07:20]6)5    3KINL 111655Z AUTO 27008KT 10SM CLR M21/M25 A3027 RMK AO2 SLP292 T12111250KINL2019-12-11T16:55:00Z48.57-93.4-21.1-25.0270810.030.2687021029.2TRUETRUEVFRMETAR360.02019-12-11 17:07:20Q5)5   3KIOB 111655Z AUTO 23013G17KT 190V260 10SM CLR 00/M07 A3050 RMK AO2KIOB2019-12-11T16:55:00Z38.05-83.980.0-7.0230131710.030.499016TRUETRUEVFRMETAR311.02019-12-11 17:07:20Y4)5    3KIRK 111655Z AUTO 36007KT 10SM CLR 01/M07 A3043 RMK AO2 SLP320 T00061072KIRK2019-12-11T16:55:00Z40.1-92.550.6-7.2360710.030.4311031032.0TRUETRUEVFRMETAR293.02019-12-11 17:07:20 )^V;)5   3KHYX 111655Z AUTO 28020G26KT 10SM BKN037 BKN047 M07/M16 A3027 RMK AO2KHYX2019-12-11T16:55:00Z43.43-83.87-7.0-16.0280202610.030.268702TRUETRUEVFRMETAR183.02019-12-11 17:07:20W:)5    3KHZE 111655Z AUTO VRB05KT 10SM SCT060 BKN065 OVC075 M18/M19 A3025 RMK AO2KHZE2019-12-11T16:55:00Z47.28-101.58-18.0-19.00510.030.250984TRUETRUEVFRMETAR553.02019-12-11 17:07:20F9)5    3KI67 111655Z AUTO 24008KT 10SM OVC070 00/M07 A3047 RMK AO1KI672019-12-11T16:55:00Z39.25-84.780.0-7.0240810.030.469488TRUETRUEVFRMETAR178.02019-12-11 17:07:20R8)5    3KI68 111655Z AUTO 24015KT 10SM OVC070 M01/M06 A3044 RMK AO1 T10101060KI682019-12-11T16:55:00Z39.47-84.25-1.0-6.02401510.030.43996TRUETRUEVFRMETAR274.02019-12-11 17:07:20 *UE?(}5    3KHPT 111655Z AUTO 34004KT 10SM CLR M12/M15 A3044 RMK AO2KHPT2019-12-11T16:55:00Z42.58-93.23-12.0-15.0340410.030.43996TRUETRUEVFRMETAR358.02019-12-11 17:07:20N>)5    3KHQG 111655Z AUTO 12003KT 10SM CLR 05/M06 A3027 RMK AO2 T00451056KHQG2019-12-11T16:55:00Z37.17-101.374.5-5.6120310.030.268702TRUETRUEVFRMETAR956.02019-12-11 17:07:20P=)5    3KHRX 111655Z AUTO 23012KT 10SM SCT012 05/02 A3033 RMK AO2 T00520017KHRX2019-12-11T16:55:00Z34.87-102.335.21.72301210.030.33071TRUETRUEVFRMETAR1154.02019-12-11 17:07:20Q<)5   3KHWY 111655Z AUTO 28005G08KT 10SM CLR 05/M08 A3038 RMK AO2 T00471082KHWY2019-12-11T16:55:00Z38.58-77.724.7-8.22805810.030.380905TRUETRUEVFRMETAR103.02019-12-11 17:07:20 aKqa C)w5     3KAAT 111655Z AUTO 00000KT 10SM FEW023 BKN034 OVC041 03/02 A3019 RMK AO2 UPB35E38B47E49RAB38E47 SLP232 P0000 T00280017KAAT2019-12-11T16:55:00Z41.48-120.572.81.70010.030.1889761023.2TRUETRUEVFR0.005METAR1331.02019-12-11 17:07:20UB)5   3K57C 111655Z AUTO 30011G16KT 10SM CLR M09/M18 A3040 RMK AO2 T10861177K57C2019-12-11T16:55:00Z42.8-88.37-8.6-17.7300111610.030.398623TRUETRUEVFRMETAR262.02019-12-11 17:07:20OA)5     3K4S2 111655Z AUTO 00000KT 2SM -DZ SCT020 OVC044 03/02 A3012 RMK AO2K4S22019-12-11T16:55:00Z45.68-121.553.02.0002.030.121063TRUETRUE-DZIFRMETAR192.02019-12-11 17:07:20\@)5    3KHON 111655Z AUTO 00000KT 10SM CLR M13/M18 A3040 RMK AO2 SLP322 T11331178KHON2019-12-11T16:55:00Z44.38-98.23-13.3-17.80010.030.3986231032.2TRUETRUEVFRMETAR390.02019-12-11 17:07:20 :}fFG(}5    3KAIT 111655Z AUTO 28005KT 10SM CLR M21/M26 A3035 RMK AO2KAIT2019-12-11T16:55:00Z46.53-93.67-21.0-26.0280510.030.351377TRUETRUEVFRMETAR367.02019-12-11 17:07:20F)q5     3KANJ 111655Z AUTO 27013G25KT 3SM -SN BKN014 M10/M14 A3006 RMK AO2 PK WND 26030/1632 SNB1558 SLP194 P0000 T11001144KANJ2019-12-11T16:55:00Z46.47-84.37-10.0-14.427013253.030.0590551019.4TRUETRUE-SNMVFR0.005METAR218.02019-12-11 17:07:208E(w5   3KAFP 111655Z AUTO 10SM 07/M04 A3041 RMK AO2 T00681039KAFP2019-12-11T16:55:00Z35.02-80.086.8-3.910.030.410433TRUETRUEMETAR92.02019-12-11 17:07:20AD({5    3KAIB 111655Z AUTO 00000KT 10SM CLR 00/M08 A3033 RMK AO2KAIB2019-12-11T16:55:00Z38.23-108.570.0-8.00010.030.33071TRUETRUEVFRMETAR1811.02019-12-11 17:07:20 *LwMK)5    3KCMA 111655Z 00000KT 10SM CLR 12/07 A3022 RMK AO2 SLP243 T01220072KCMA2019-12-11T16:55:00Z34.22-119.112.27.20010.030.2214571024.3TRUEVFRMETAR23.02019-12-11 17:07:20PJ)5    3KCMY 111655Z AUTO 31007KT 10SM CLR M14/M20 A3046 RMK AO2 T11451201KCMY2019-12-11T16:55:00Z43.97-90.73-14.5-20.1310710.030.46063TRUETRUEVFRMETAR256.02019-12-11 17:07:20YI)5    3KCNK 111655Z AUTO 05004KT 10SM CLR 02/M06 A3035 RMK AO2 SLP292 T00221061KCNK2019-12-11T16:55:00Z39.55-97.652.2-6.150410.030.3513771029.2TRUETRUEVFRMETAR447.02019-12-11 17:07:20QH)5    3KAIG 111655Z AUTO 27009KT 10SM CLR M20/M24 A3028 RMK AO2 T12021241KAIG2019-12-11T16:55:00Z45.15-89.12-20.2-24.1270910.030.280512TRUETRUEVFRMETAR464.02019-12-11 17:07:20 7hLO) 5    3KAVQ 111655Z AUTO 30005KT 10SM CLR 11/06 A3022 RMK AO2 T01060055KAVQ2019-12-11T16:55:00Z32.4-111.2210.65.5300510.030.221457TRUETRUEVFRMETAR619.02019-12-11 17:07:20JN) 5    3KAXH 111655Z AUTO 05009KT 10SM CLR 10/03 A3052 RMK AO2 T01030033KAXH2019-12-11T16:55:00Z29.52-95.4810.33.350910.030.519686TRUETRUEVFRMETAR21.02019-12-11 17:07:20JM) 5    3KAXS 111655Z AUTO 19008KT 10SM CLR 08/01 A3047 RMK AO2 T00840012KAXS2019-12-11T16:55:00Z34.7-99.338.41.2190810.030.469488TRUETRUEVFRMETAR437.02019-12-11 17:07:20DL(5    3KCLW 111655Z AUTO 33006KT 10SM OVC008 23/21 A3021 RMK AO2KCLW2019-12-11T16:55:00Z27.98-82.7523.021.0330610.030.209646TRUETRUEIFRMETAR22.02019-12-11 17:07:20  +UFS(}5    3KCQM 111655Z AUTO 27007KT 10SM CLR M22/M26 A3027 RMK AO2KCQM2019-12-11T16:55:00Z47.82-92.68-22.0-26.0270710.030.268702TRUETRUEVFRMETAR404.02019-12-11 17:07:20QR)5   3KCXE 111655Z AUTO 28008G16KT 10SM CLR 05/M05 A3039 RMK AO1 T00491054KCXE2019-12-11T16:55:00Z36.78-78.54.9-5.428081610.030.389763TRUETRUEVFRMETAR153.02019-12-11 17:07:20[Q)5    3KDLH 111655Z 29014KT 10SM CLR M22/M26 A3028 RMK AO2 SLP304 T12171261 $KDLH2019-12-11T16:55:00Z46.85-92.2-21.7-26.12901410.030.2805121030.4TRUETRUEVFRMETAR435.02019-12-11 17:07:20pP)E5     3KAST 111655Z AUTO 09006KT 10SM OVC026 08/07 A2995 RMK AO2 RAE13B33E41 SLP142 P0001 T00780067KAST2019-12-11T16:55:00Z46.15-123.887.86.790610.029.9498021014.2TRUETRUEMVFR0.01METAR3.02019-12-11 17:07:20 1iCW(5    3KEDC 111655Z AUTO 36005KT 10SM BKN016 08/03 A3055 RMK AO2KEDC2019-12-11T16:55:00Z30.4-97.578.03.0360510.030.549213TRUETRUEMVFRMETAR189.02019-12-11 17:07:20cV)15     3KEAT 111655Z AUTO 00000KT 2 1/2SM BR OVC005 M01/M01 A3011 RMK AO2 SLP209 T10061011KEAT2019-12-11T16:55:00Z47.4-120.2-0.6-1.1002.530.1092531020.9TRUETRUEBRIFRMETAR377.02019-12-11 17:07:20CU(}5    3KDXX 111655Z AUTO 00000KT 10SM CLR M18/M21 A3044 RMK AO2KDXX2019-12-11T16:55:00Z44.98-96.18-18.0-21.00010.030.43996TRUETRUEVFRMETAR330.02019-12-11 17:07:20JT) 5    3KDRI 111655Z AUTO 03007KT 10SM CLR 09/00 A3055 RMK AO2 T00901005KDRI2019-12-11T16:55:00Z30.83-93.339.0-0.530710.030.549213TRUETRUEVFRMETAR63.02019-12-11 17:07:20 M\[)!5   3KUGN 111655Z 28007G15KT 10SM FEW050 M07/M16 A3040 RMK AO2 SLP315 T10671156KUGN2019-12-11T16:55:00Z42.42-87.87-6.7-15.628071510.030.3986231031.5TRUEVFRMETAR222.02019-12-11 17:07:20@Z({5    3KUKF 111655Z AUTO 31006KT 10SM CLR 05/M07 A3044 RMK AO2KUKF2019-12-11T16:55:00Z36.22-81.15.0-7.0310610.030.43996TRUETRUEVFRMETAR396.02019-12-11 17:07:20MY)5    3KUNI 111655Z AUTO 24008KT 10SM CLR 00/M08 A3044 RMK AO2 T10051085KUNI2019-12-11T16:55:00Z39.22-82.23-0.5-8.5240810.030.43996TRUETRUEVFRMETAR193.02019-12-11 17:07:20\X)%5   3KUYF 111655Z AUTO 23018G21KT 10SM BKN055 BKN075 OVC080 M02/M06 A3040 RMK AO2KUYF2019-12-11T16:55:00Z39.93-83.47-2.0-6.0230182110.030.398623TRUETRUEVFRMETAR330.02019-12-11 17:07:20 6^R_)5    3KOCQ 111655Z AUTO 25011KT 10SM CLR M17/M23 A3038 RMK AO1 T11711233KOCQ2019-12-11T16:55:00Z44.87-87.92-17.1-23.32501110.030.380905TRUETRUEVFRMETAR183.02019-12-11 17:07:20N^)5    3KOCW 111655Z AUTO 36009KT 10SM OVC013 06/03 A3037 RMK AO2 T00560030KOCW2019-12-11T16:55:00Z35.57-77.055.63.0360910.030.369095TRUETRUEMVFRMETAR12.02019-12-11 17:07:20S])5   3KOLE 111655Z AUTO 23008G17KT 190V270 10SM CLR M06/M13 A3007 RMK AO2KOLE2019-12-11T16:55:00Z42.23-78.37-6.0-13.023081710.030.070866TRUETRUEVFRMETAR651.02019-12-11 17:07:20E\(}5    3KOLG 111655Z AUTO 23005KT 10SM CLR M21/M24 A3036 RMK AO1KOLG2019-12-11T16:55:00Z46.3-91.82-21.0-24.0230510.030.360237TRUETRUEVFRMETAR336.02019-12-11 17:07:20 5nKc)5    3KMRN 111655Z AUTO 00000KT 10SM CLR 05/M08 A3043 RMK AO2 T00511084KMRN2019-12-11T16:55:00Z35.82-81.625.1-8.40010.030.431103TRUETRUEVFRMETAR387.02019-12-11 17:07:20Cb(}5    3KMVE 111655Z AUTO 00000KT 10SM CLR M20/M24 A3044 RMK AO2KMVE2019-12-11T16:55:00Z44.97-95.72-20.0-24.00010.030.43996TRUETRUEVFRMETAR315.02019-12-11 17:07:20Ba(}5    3KMWM 111655Z AUTO 00000KT 10SM CLR M18/M21 A3040 RMK AO2KMWM2019-12-11T16:55:00Z43.9-95.1-18.0-21.00010.030.398623TRUETRUEVFRMETAR430.02019-12-11 17:07:20F`)5    3KO54 111655Z AUTO 00000KT M1/4SM OVC002 05/05 A3023 RMK AO1KO542019-12-11T16:55:00Z40.75-122.925.05.0000.2530.230314TRUETRUELIFRMETAR717.02019-12-11 17:07:20 *WJg) 5    3KMKN 111655Z AUTO 16006KT 10SM CLR 08/03 A3053 RMK AO2 T00790028KMKN2019-12-11T16:55:00Z31.92-98.67.92.8160610.030.528543TRUETRUEVFRMETAR423.02019-12-11 17:07:20Af(y5    3KMLJ 111655Z AUTO 34005KT 10SM CLR 10/02 A3041 RMK AO2KMLJ2019-12-11T16:55:00Z33.15-83.2310.02.0340510.030.410433TRUETRUEVFRMETAR117.02019-12-11 17:07:20Ne)5    3KMQB 111655Z AUTO 36008KT 10SM CLR M01/M08 A3046 RMK AO2 T10131078KMQB2019-12-11T16:55:00Z40.52-90.65-1.3-7.8360810.030.46063TRUETRUEVFRMETAR215.02019-12-11 17:07:20Qd)5   3KMQI 111655Z AUTO 01014G21KT 10SM OVC017 06/02 A3035 RMK AO2 T00550021KMQI2019-12-11T16:55:00Z35.92-75.75.52.110142110.030.351377TRUETRUEMVFRMETAR4.02019-12-11 17:07:20 7jFk(}5    3KMDS 111655Z AUTO 16004KT 10SM CLR M17/M18 A3036 RMK AO2KMDS2019-12-11T16:55:00Z44.02-97.08-17.0-18.0160410.030.360237TRUETRUEVFRMETAR524.02019-12-11 17:07:20Hj)5    3KMGC 111655Z AUTO 27006KT 10SM OVC020 M05/M06 A3043 RMK AO2KMGC2019-12-11T16:55:00Z41.7-86.82-5.0-6.0270610.030.431103TRUETRUEMVFRMETAR200.02019-12-11 17:07:20Hi) 5   3KMGG 111655Z AUTO 00000KT 10SM M19/M22 A3045 RMK AO2 T11951224KMGG2019-12-11T16:55:00Z45.23-93.98-19.5-22.40010.030.448818TRUETRUEMETAR313.02019-12-11 17:07:20wh)S5   3KMKG 111655Z 30014G23KT 10SM BKN029 BKN035 M08/M15 A3037 RMK AO2 PK WND 30026/1610 SLP296 T10781150KMKG2019-12-11T16:55:00Z43.17-86.23-7.8-15.0300142310.030.3690951029.6TRUEMVFRMETAR191.02019-12-11 17:07:20 &QkAo({5    3KXLL 111655Z AUTO 25006KT 10SM CLR 01/M02 A3029 RMK AO2KXLL2019-12-11T16:55:00Z40.57-75.481.0-2.0250610.030.28937TRUETRUEVFRMETAR122.02019-12-11 17:07:20an)-5   3KY31 111655Z AUTO 27016G24KT 230V290 10SM OVC034 M09/M17 A3021 RMK AO2 T10911167KY312019-12-11T16:55:00Z44.25-84.18-9.1-16.7270162410.030.209646TRUETRUEVFRMETAR269.02019-12-11 17:07:20Pm)5   3KW75 111655Z AUTO 33010G14KT 10SM CLR 05/M04 A3036 RMK AO1 T00461039KW752019-12-11T16:55:00Z37.6-76.454.6-3.9330101410.030.360237TRUETRUEVFRMETAR9.02019-12-11 17:07:20Ul)!5    3KEMV 111655Z AUTO 31006KT 10SM BKN020 OVC028 04/00 A3040 RMK AO2 T00380003KEMV2019-12-11T16:55:00Z36.68-77.483.80.3310610.030.398623TRUETRUEMVFRMETAR39.02019-12-11 17:07:20 'P?s(y5    3KACJ 111655Z AUTO 02009KT 10SM CLR 10/00 A3042 RMK AO2KACJ2019-12-11T16:55:00Z32.12-84.1810.00.020910.030.41929TRUETRUEVFRSPECI143.02019-12-11 17:07:20Rr)5    3K41U 111655Z AUTO 00000KT 10SM SCT120 M03/M04 A3025 RMK AO1 T10321043K41U2019-12-11T16:55:00Z39.33-111.72-3.2-4.30010.030.250984TRUETRUEVFRMETAR1676.02019-12-11 17:07:203q(i5    3K1R7 111655Z AUTO 10SM CLR 07/00 A3053 RMK AO2K1R72019-12-11T16:55:00Z31.6-90.427.00.010.030.528543TRUETRUEVFRSPECI149.02019-12-11 17:07:20p)5  3NZFX 111655Z 13018G27KT 9999 DRSN FEW015 SCT030 BKN070 BKN090 BKN120 M03/M05 A2941 RMK SLP954 LSR12 GRID30018G27KT SDP/HDG HDP GRID NNZFX2019-12-11T16:55:00Z-77.95166.77-3.0-5.013018276.2129.409449995.4DRSNBKN9000VFRMETAR8.02019-12-11 17:07:20 +YKw)5    3KBQP 111655Z AUTO 07004KT 10SM CLR 06/M02 A3058 RMK AO2 T00611021KBQP2019-12-11T16:55:00Z32.75-91.886.1-2.170410.030.578741TRUETRUEVFRSPECI51.02019-12-11 17:07:20Nv)5    3KASJ 111655Z AUTO 33008KT 10SM OVC018 03/01 A3039 RMK AO2 T00340010KASJ2019-12-11T16:55:00Z36.28-77.173.41.0330810.030.389763TRUETRUEMVFRSPECI21.02019-12-11 17:07:20Mu)5    3KAJZ 111655Z AUTO 00000KT 10SM CLR 00/M07 A3030 RMK AO2 T00001067KAJZ2019-12-11T16:55:00Z38.78-108.070.0-6.70010.030.301182TRUETRUEVFRSPECI1583.02019-12-11 17:07:20Pt)5    3KAFO 111655Z AUTO 00000KT 10SM BKN070 OVC080 M10/M11 A3015 RMK AO2KAFO2019-12-11T16:55:00Z42.72-110.95-10.0-11.00010.030.15059TRUETRUEVFRSPECI1897.02019-12-11 17:07:20 ;sE|(}5    3KEMM 111655Z AUTO 00000KT 10SM CLR M05/M10 A3014 RMK AO2KEMM2019-12-11T16:55:00Z41.82-110.55-5.0-10.00010.030.138779TRUETRUEVFRMETAR2220.02019-12-11 17:07:20C{({5    3KDVK 111655Z AUTO 21010KT 10SM CLR 00/M07 A3051 RMK AO2KDVK2019-12-11T16:55:00Z37.58-84.770.0-7.02101010.030.510826TRUETRUEVFRMETAR312.02019-12-11 17:07:20Ez)5    3KDTA 111655Z AUTO 00000KT 10SM OVC085 00/M01 A3023 RMK AO1KDTA2019-12-11T16:55:00Z39.38-112.50.0-1.00010.030.230314TRUETRUEVFRSPECI1402.02019-12-11 17:07:20Cy(5    3KBWD 111655Z AUTO 16005KT 10SM BKN004 03/03 A3054 RMK AO1KBWD2019-12-11T16:55:00Z31.8-98.953.03.0160510.030.540354TRUETRUELIFRMETAR423.02019-12-11 17:07:20@x({5    3KBYL 111655Z AUTO 24004KT 10SM CLR 02/M07 A3053 RMK AO1KBYL2019-12-11T16:55:00Z36.8-84.22.0-7.0240410.030.528543TRUETRUEVFRSPECI359.02019-12-11 17:07:20 8e@({5    3KMYZ 111655Z AUTO 00000KT 10SM CLR 01/M05 A3038 RMK AO2KMYZ2019-12-11T16:55:00Z39.85-96.631.0-5.00010.030.380905TRUETRUEVFRMETAR319.02019-12-11 17:07:20N)5    3KIDP 111655Z AUTO 22014KT 10SM CLR 06/M04 A3048 RMK AO2 T00651038KIDP2019-12-11T16:55:00Z37.17-95.786.5-3.82201410.030.481298TRUETRUEVFRMETAR251.02019-12-11 17:07:20N~)5    3KEZM 111655Z AUTO 35006KT 10SM SCT019 11/07 A3040 RMK AO2 T01080066KEZM2019-12-11T16:55:00Z32.22-83.1310.86.6350610.030.398623TRUETRUEVFRMETAR93.02019-12-11 17:07:20C}({5    3KEQA 111655Z AUTO 21013KT 10SM CLR 07/M05 A3040 RMK AO2KEQA2019-12-11T16:55:00Z37.78-96.827.0-5.02101310.030.398623TRUETRUEVFRMETAR420.02019-12-11 17:07:20 ,|_))5   3KPZQ 111655Z AUTO 27014G22KT 7SM BKN029 BKN034 M10/M16 A3016 RMK AO2 T11021161KPZQ2019-12-11T16:55:00Z45.4-83.82-10.2-16.127014227.030.159449TRUETRUEMVFRMETAR204.02019-12-11 17:07:20<(}5    3EBBE 111655Z AUTO 20006KT 9999 BKN170/// 05/04 Q1005 BLUEBBE2019-12-11T16:55:00Z50.754.775.04.020066.2129.675198TRUEVFRSPECI127.02019-12-11 17:07:20+(_5   3KWHP 111655Z 00000KT 10SM SKC 13/00 A3025KWHP2019-12-11T16:55:00Z34.25-118.4213.00.00010.030.250984VFRMETAR306.02019-12-11 17:07:20O)5    3KVES 111655Z AUTO 26013KT 10SM SCT019 BKN050 M03/M08 A3041 RMK AO2KVES2019-12-11T16:55:00Z40.2-84.53-3.0-8.02601310.030.410433TRUETRUEVFRMETAR307.02019-12-11 17:07:20 -]T)5    3KRHP 111655Z AUTO 06009KT 030V090 10SM CLR 07/M08 A3045 RMK AO2 T00661082KRHP2019-12-11T16:55:00Z35.18-83.856.6-8.260910.030.448818TRUETRUEVFRMETAR518.02019-12-11 17:07:20@({5    3KRKR 111655Z AUTO 00000KT 10SM CLR 05/M04 A3057 RMK AO2KRKR2019-12-11T16:55:00Z35.02-94.625.0-4.00010.030.569881TRUETRUEVFRMETAR138.02019-12-11 17:07:20K) 5    3KPXE 111655Z AUTO 35008KT 10SM CLR 10/01 A3041 RMK AO2 T00960008KPXE2019-12-11T16:55:00Z32.52-83.779.60.8350810.030.410433TRUETRUEVFRMETAR127.02019-12-11 17:07:20N)5    3KPYX 111655Z AUTO 18008KT 10SM CLR 06/M01 A3030 RMK AO2 T00581014KPYX2019-12-11T16:55:00Z36.42-100.755.8-1.4180810.030.301182TRUETRUEVFRMETAR889.02019-12-11 17:07:20 /YxJ )5    3KRLD 111655Z AUTO 00000KT 7SM OVC017 02/01 A3018 RMK AO2 T00150014KRLD2019-12-11T16:55:00Z46.3-119.31.51.4007.030.180119TRUETRUEMVFRMETAR120.02019-12-11 17:07:20\ )%5     3KRCR 111655Z AUTO 28009KT 4SM -SN SCT008 BKN013 BKN020 M05/M08 A3043 RMK AO2KRCR2019-12-11T16:55:00Z41.07-86.18-5.0-8.028094.030.431103TRUETRUE-SNMVFRMETAR241.02019-12-11 17:07:20Q )5    3KRCV 111655Z AUTO 25003KT 10SM CLR M05/M14 A3031 RMK AO2 T10491139KRCV2019-12-11T16:55:00Z37.72-106.35-4.9-13.9250310.030.31004TRUETRUEVFRMETAR2424.02019-12-11 17:07:20L )5    3KRFI 111655Z AUTO 09005KT 10SM CLR 07/M02 A3058 RMK AO2 T00731018KRFI2019-12-11T16:55:00Z32.15-94.857.3-1.890510.030.578741TRUETRUEVFRMETAR135.02019-12-11 17:07:20 g >gR)%5    3EBLB 111655Z AUTO 22003KT 9999 BKN002/// BKN026/// BKN030/// 01/01 Q1005 AMBEBLB2019-12-11T16:55:00Z50.476.171.01.022036.2129.675198TRUELIFRSPECI570.02019-12-11 17:07:20J)5     3EBFN 111655Z AUTO 20008KT 6000 RA FEW012/// OVC028/// 05/04 Q1004 WHTEBFN2019-12-11T16:55:00Z51.072.635.04.020083.7329.64567TRUERAMVFRSPECI9.02019-12-11 17:07:20F)5    3EBDT 111655Z AUTO 19006KT 9999 SCT047/// BKN160/// 05/04 Q1005 BLUEBDT2019-12-11T16:55:00Z51.025.075.04.019066.2129.675198TRUEVFRSPECI54.02019-12-11 17:07:20# ))5    3KRNO 111655Z 00000KT 10SM FEW038 BKN055 BKN110 OVC170 04/M01 A3021 RMK AO2 SLP228 ACSL DSNT SE THRU S MTN TOPS OBSCD DSNT SW THRU NW T00391011KRNO2019-12-11T16:55:00Z39.5-119.773.9-1.10010.030.2096461022.8TRUEOVC17000VFRMETAR1342.02019-12-11 17:07:20 /:/K)5    3KSCR 111655Z AUTO 36005KT 10SM CLR 06/M05 A3040 RMK AO2 T00621047KSCR2019-12-11T16:55:00Z35.7-79.56.2-4.7360510.030.398623TRUETRUEVFRMETAR188.02019-12-11 17:07:206(s5   3TNCB 111655Z 07015KT 9999 BKN025 SCT033 30/22 Q1013TNCB2019-12-11T16:55:00Z12.13-68.2830.022.070156.2129.911417MVFRMETAR6.02019-12-11 17:07:20E)5   3TNCE 111655Z AUTO 06011KT 020V090 //// // ///////// 28/22 Q1015 RE//TNCE2019-12-11T16:55:00Z17.47-62.9728.022.0601129.970472TRUEMETAR39.02019-12-11 17:07:201(i5    3EHFS 111655Z AUTO 21014KT 9999 NSC 07/05 Q1003EHFS2019-12-11T16:55:00Z51.453.67.05.0210146.2129.616142TRUEVFRMETAR32.02019-12-11 17:07:20A({5    3KFYG 111655Z AUTO 32007KT 10SM CLR 04/M05 A3047 RMK AO2KFYG2019-12-11T16:55:00Z38.58-91.04.0-5.0320710.030.469488TRUETRUEVFRMETAR149.02019-12-11 17:07:20 %T[)#5     3KS52 111655Z AUTO 04003KT 1 1/4SM BR OVC003 M04/M05 A3013 RMK AO2 T10431049KS522019-12-11T16:55:00Z48.38-120.15-4.3-4.94031.2530.129921TRUETRUEBRLIFRMETAR520.02019-12-11 17:07:20F(}5    3KSAA 111655Z AUTO 14007KT 10SM CLR M04/M11 A3015 RMK AO2KSAA2019-12-11T16:55:00Z41.45-106.83-4.0-11.0140710.030.15059TRUETRUEVFRMETAR2138.02019-12-11 17:07:20L)5    3KSAR 111655Z AUTO 21007KT 10SM CLR 03/M04 A3049 RMK AO2 T00331038KSAR2019-12-11T16:55:00Z38.15-89.73.3-3.8210710.030.490158TRUETRUEVFRMETAR164.02019-12-11 17:07:20V)5     3KSCK 111655Z 15007KT 2SM BR SCT060 11/09 A3024 RMK AO2 SLP238 T01110094KSCK2019-12-11T16:55:00Z37.88-121.2211.19.415072.030.2391741023.8TRUEBRIFRMETAR10.02019-12-11 17:07:20 )SR)!5    3KRYW 111655Z AUTO 00000KT 10SM BKN005 OVC011 04/03 A3054 RMK AO2 T00380030KRYW2019-12-11T16:55:00Z30.5-97.973.83.00010.030.540354TRUETRUEIFRMETAR376.02019-12-11 17:07:20N) 5     3KRZL 111655Z AUTO 26008KT 4SM -SN OVC016 M05/M08 A3045 RMK AO2KRZL2019-12-11T16:55:00Z40.95-87.18-5.0-8.026084.030.448818TRUETRUE-SNMVFRMETAR213.02019-12-11 17:07:20Q)5    3KRZN 111655Z AUTO 31003KT 10SM CLR M21/M25 A3041 RMK AO2 T12061248KRZN2019-12-11T16:55:00Z45.82-92.37-20.6-24.8310310.030.410433TRUETRUEVFRMETAR301.02019-12-11 17:07:20R)5    3KS25 111655Z AUTO 12010KT 10SM BKN060 BKN100 M16/M17 A3013 RMK AO2KS252019-12-11T16:55:00Z47.8-103.25-16.0-17.01201010.030.129921TRUETRUEVFRMETAR644.02019-12-11 17:07:20 0Frf!)95     3KIKK 111655Z AUTO 27010KT 10SM RA BKN014 BKN020 OVC041 M05/M08 A3046 RMK AO2 T10521081KIKK2019-12-11T16:55:00Z41.07-87.85-5.2-8.12701010.030.46063TRUETRUERAMVFRMETAR192.02019-12-11 17:07:20O )5    3KSEP 111655Z AUTO 17006KT 1/2SM OVC002 02/00 A3056 RMK AO2 T00160003KSEP2019-12-11T16:55:00Z32.22-98.171.60.317060.530.561024TRUETRUELIFRMETAR402.02019-12-11 17:07:20e)35    3KRQB 111655Z AUTO 30012G22KT 270V330 4SM -SN OVC024 M10/M16 A3029 RMK AO2 T10981158KRQB2019-12-11T16:55:00Z43.72-85.5-9.8-15.830012224.030.28937TRUETRUE-SNMVFRMETAR302.02019-12-11 17:07:20K)5    3KRSN 111655Z AUTO 08003KT 10SM CLR 06/M02 A3061 RMK AO2 T00611023KRSN2019-12-11T16:55:00Z32.52-92.586.1-2.380310.030.611221TRUETRUEVFRMETAR95.02019-12-11 17:07:20 /_@%)5    3KFFA 111655Z AUTO 10SM OVC014 05/02 A3033 RMK AO2 T00500020KFFA2019-12-11T16:55:00Z36.02-75.675.02.010.030.33071TRUETRUEMVFRMETAR4.02019-12-11 17:07:20U$)%5    3KFKN 111655Z AUTO 34007KT 300V020 10SM SCT033 05/M02 A3039 RMK AO2 T00531017KFKN2019-12-11T16:55:00Z36.7-76.95.3-1.7340710.030.389763TRUETRUEVFRMETAR12.02019-12-11 17:07:20K#)5    3KSFQ 111655Z AUTO 36005KT 10SM CLR 06/M02 A3038 RMK AO2 T00571017KSFQ2019-12-11T16:55:00Z36.68-76.65.7-1.7360510.030.380905TRUETRUEVFRMETAR22.02019-12-11 17:07:20L")5    3KHYW 111655Z AUTO 36009KT 330V030 10SM SCT024 11/03 A3035 RMK AO2KHYW2019-12-11T16:55:00Z33.83-79.1211.03.0360910.030.351377TRUETRUEVFRSPECI11.02019-12-11 17:07:20 7i[))%5   3KBCB 111655Z AUTO 28006G15KT 230V350 10SM CLR 00/M08 A3041 RMK AO2 T10041077KBCB2019-12-11T16:55:00Z37.22-80.42-0.4-7.728061510.030.410433TRUETRUEVFRMETAR650.02019-12-11 17:07:20E((}5    3KBFW 111655Z AUTO 26003KT 10SM CLR M19/M27 A3025 RMK AO2KBFW2019-12-11T16:55:00Z47.25-91.4-19.0-27.0260310.030.250984TRUETRUEVFRMETAR331.02019-12-11 17:07:20I') 5    3KEYF 111655Z AUTO 36009KT 10SM CLR 09/00 A3036 RMK AO2 T00940005KEYF2019-12-11T16:55:00Z34.6-78.589.40.5360910.030.360237TRUETRUEVFRMETAR41.02019-12-11 17:07:20D&(}5    3KFBL 111655Z AUTO 00000KT 10SM CLR M17/M22 A3043 RMK AO2KFBL2019-12-11T16:55:00Z44.33-93.32-17.0-22.00010.030.431103TRUETRUEVFRMETAR322.02019-12-11 17:07:20 5owV-)5     3KGLE 111655Z AUTO 19006KT 1 1/4SM BR OVC003 02/01 A3057 RMK AO2 T00170014KGLE2019-12-11T16:55:00Z33.65-97.21.71.419061.2530.569881TRUETRUEBRLIFRMETAR256.02019-12-11 17:07:20s,)I5      3KGPI 111655Z 00000KT 6SM -SN SCT009 BKN036 OVC090 M02/M04 A2997 RMK AO2 SLP182 P0000 T10221039KGPI2019-12-11T16:55:00Z48.32-114.25-2.2-3.9006.029.9704721018.2TRUE-SNVFR0.005METAR908.02019-12-11 17:07:20A+(y5    3KAZC 111655Z AUTO 14003KT 10SM CLR 01/00 A3029 RMK AO2KAZC2019-12-11T16:55:00Z36.97-113.021.00.0140310.030.28937TRUETRUEVFRMETAR1486.02019-12-11 17:07:20F*(}5    3KBAC 111655Z AUTO 25004KT 10SM CLR M23/M26 A3035 RMK AO2KBAC2019-12-11T16:55:00Z46.93-98.02-23.0-26.0250410.030.351377TRUETRUEVFRMETAR427.02019-12-11 17:07:20 *ZL1)5    3KFRH 111655Z AUTO 20008KT 10SM SCT060 SCT075 00/M06 A3049 RMK AO1KFRH2019-12-11T16:55:00Z38.5-86.630.0-6.0200810.030.490158TRUETRUEVFRMETAR241.02019-12-11 17:07:20M0)5    3KFVX 111655Z AUTO 27004KT 10SM CLR 05/M05 A3038 RMK AO2 T00521055KFVX2019-12-11T16:55:00Z37.35-78.425.2-5.5270410.030.380905TRUETRUEVFRMETAR125.02019-12-11 17:07:20K/)5    3KFYJ 111655Z AUTO 32005KT 10SM CLR 05/M01 A3039 RMK AO1 T00481014KFYJ2019-12-11T16:55:00Z37.52-76.774.8-1.4320510.030.389763TRUETRUEVFRMETAR7.02019-12-11 17:07:20Q.)5    3KGCD 111655Z AUTO 09004KT 10SM OVC060 03/M01 A3012 RMK AO2 T00301006KGCD2019-12-11T16:55:00Z44.38-118.973.0-0.690410.030.121063TRUETRUEVFRMETAR1127.02019-12-11 17:07:20 =dN5)5     3KBWW 111655Z AUTO 16016KT 3SM BR OVC004 M10/M11 A3002 RMK AO2KBWW2019-12-11T16:55:00Z46.17-103.3-10.0-11.0160163.030.02067TRUETRUEBRLIFRMETAR910.02019-12-11 17:07:20@4(y5    3KBPC 111655Z AUTO 23008KT 10SM CLR 06/00 A3033 RMK AO2KBPC2019-12-11T16:55:00Z35.88-101.036.00.0230810.030.33071TRUETRUEVFRMETAR845.02019-12-11 17:07:20T3)5   3KBUU 111655Z AUTO 27008G15KT 10SM CLR M08/M16 A3040 RMK AO2 T10791160KBUU2019-12-11T16:55:00Z42.68-88.3-7.9-16.027081510.030.398623TRUETRUEVFRMETAR237.02019-12-11 17:07:20>2(}5    3KBKD 111655Z AUTO 10SM CLR 07/03 A3052 RMK AO2 T00660030KBKD2019-12-11T16:55:00Z32.72-98.886.63.010.030.519686TRUETRUEVFRMETAR392.02019-12-11 17:07:20 ,=,C:({5    3K3K3 111655Z AUTO 26004KT 10SM CLR 02/M05 A3025 RMK AO2K3K32019-12-11T16:55:00Z38.0-101.752.0-5.0260410.030.250984TRUETRUEVFRSPECI1013.02019-12-11 17:07:20N9)5    3KJAQ 111655Z AUTO 12006KT 10SM BKN060 10/07 A3024 RMK AO1 T00950070KJAQ2019-12-11T16:55:00Z38.37-120.89.57.0120610.030.239174TRUETRUEVFRMETAR512.02019-12-11 17:07:20B8({5    3KMEZ 111655Z AUTO 29004KT 10SM CLR 10/M02 A3054 RMK AO2KMEZ2019-12-11T16:55:00Z34.55-94.210.0-2.0290410.030.540354TRUETRUEVFRSPECI329.02019-12-11 17:07:20*7(c5    3KMFV 111655Z AUTO 10SM SCT029 A3035 RMK AO2KMFV2019-12-11T16:55:00Z37.63-75.7710.030.351377TRUETRUEVFRSPECI15.02019-12-11 17:07:20>6(u5   3KBWP 111655Z AUTO 17003KT 10SM M23/M26 A3044 RMK AO1KBWP2019-12-11T16:55:00Z46.25-96.62-23.0-26.0170310.030.43996TRUETRUEMETAR295.02019-12-11 17:07:20 @g\>)5    3KCAO 111655Z AUTO 19008KT 10SM CLR 08/M05 A3022 RMK AO2 SLP232 T00831050KCAO2019-12-11T16:55:00Z36.45-103.158.3-5.0190810.030.2214571023.2TRUETRUEVFRMETAR1514.02019-12-11 17:07:20B=({5    3KCEY 111655Z AUTO 22004KT 10SM CLR 04/M04 A3056 RMK AO1KCEY2019-12-11T16:55:00Z36.67-88.374.0-4.0220410.030.561024TRUETRUEVFRMETAR176.02019-12-11 17:07:20T<)5    3KVUJ 111655Z AUTO 02009KT 330V030 10SM CLR 07/M05 A3045 RMK AO2 T00721053KVUJ2019-12-11T16:55:00Z35.42-80.157.2-5.320910.030.448818TRUETRUEVFRSPECI186.02019-12-11 17:07:20;;(q5    3KW43 111655Z AUTO 10SM SCT120 01/M05 A2993 RMK AO2KW432019-12-11T16:55:00Z44.67-104.571.0-5.010.029.929134TRUETRUEVFRMETAR1300.02019-12-11 17:07:20 9eNB)5    3KOEL 111655Z AUTO 14007KT 10SM CLR 10/M04 A3024 RMK AO1 T00951039KOEL2019-12-11T16:55:00Z39.12-100.829.5-3.9140710.030.239174TRUETRUEVFRSPECI929.02019-12-11 17:07:20[A)%5   3KN03 111655Z AUTO 22013G18KT 10SM SCT036 BKN046 OVC055 M01/M07 A3014 RMK AO2KN032019-12-11T16:55:00Z42.6-76.22-1.0-7.0220131810.030.138779TRUETRUEVFRSPECI366.02019-12-11 17:07:20O@)5    3KMPZ 111655Z AUTO 03011KT 10SM SCT020 SCT075 M02/M07 A3045 RMK AO2KMPZ2019-12-11T16:55:00Z40.95-91.52-2.0-7.0301110.030.448818TRUETRUEVFRSPECI224.02019-12-11 17:07:20B?(5    3KCGC 111655Z AUTO 05006KT 10SM OVC090 22/18 A3022 RMK AO2KCGC2019-12-11T16:55:00Z28.87-82.5722.018.050610.030.221457TRUETRUEVFRMETAR3.02019-12-11 17:07:20 'Pz>F(y5    3KIZA 111655Z AUTO 00000KT 10SM CLR 08/06 A3025 RMK AO2KIZA2019-12-11T16:55:00Z34.6-120.078.06.00010.030.250984TRUETRUEVFRMETAR205.02019-12-11 17:07:20QE)5    3KCLS 111655Z AUTO 00000KT 10SM FEW007 SCT011 OVC022 08/08 A3001 RMK AO2KCLS2019-12-11T16:55:00Z46.68-122.988.08.00010.030.008858TRUETRUEMVFRMETAR54.02019-12-11 17:07:20RD)5    3KCLI 111655Z AUTO 28011KT 10SM CLR M17/M24 A3039 RMK AO2 T11681240KCLI2019-12-11T16:55:00Z44.62-88.73-16.8-24.02801110.030.389763TRUETRUEVFRMETAR250.02019-12-11 17:07:20TC)5    3KCKZ 111655Z AUTO 28006KT 10SM FEW008 SCT021 OVC047 00/M02 A3028 RMK AO2KCKZ2019-12-11T16:55:00Z40.38-75.280.0-2.0280610.030.280512TRUETRUEVFRMETAR173.02019-12-11 17:07:20 *YHJ)5   3KOZS 111655Z AUTO 23013G21KT 10SM CLR 07/M08 A3046 RMK AO2KOZS2019-12-11T16:55:00Z37.97-92.687.0-8.0230132110.030.46063TRUETRUEVFRSPECI324.02019-12-11 17:07:20NI) 5   3KOYM 111655Z AUTO 26010G18KT 10SM SCT110 M05/M12 A3019 RMK AO2KOYM2019-12-11T16:55:00Z41.42-78.5-5.0-12.0260101810.030.188976TRUETRUEVFRSPECI590.02019-12-11 17:07:20LH)5    3KONX 111655Z AUTO 34010KT 10SM SCT024 05/01 A3036 RMK AO2 T00490006KONX2019-12-11T16:55:00Z36.4-76.024.90.63401010.030.360237TRUETRUEVFRSPECI5.02019-12-11 17:07:20QG)5    3KJAS 111655Z AUTO 07007KT 040V100 10SM CLR 09/02 A3055 RMK AO2 T00930016KJAS2019-12-11T16:55:00Z30.88-94.039.31.670710.030.549213TRUETRUEVFRMETAR65.02019-12-11 17:07:20 4`BN(}5    3KJYR 111655Z AUTO 09009KT 10SM CLR M04/M08 A3036 RMK AO2KJYR2019-12-11T16:55:00Z40.9-97.62-4.0-8.090910.030.360237TRUETRUEVFRMETAR509.02019-12-11 17:07:20QM)5    3K9V9 111655Z AUTO 12010KT 10SM CLR M11/M15 A3033 RMK AO2 T11131153K9V92019-12-11T16:55:00Z43.77-99.32-11.3-15.31201010.030.33071TRUETRUEVFRMETAR519.02019-12-11 17:07:20OL)5    3KJHN 111655Z AUTO 14004KT 10SM CLR 03/M03 A3024 RMK AO2 T00321035KJHN2019-12-11T16:55:00Z37.58-101.733.2-3.5140410.030.239174TRUETRUEVFRMETAR1013.02019-12-11 17:07:20GK)5    3KPNA 111655Z AUTO 00000KT 10SM OVC100 M13/M15 A3015 RMK AO2KPNA2019-12-11T16:55:00Z42.8-109.8-13.0-15.00010.030.15059TRUETRUEVFRMETAR2160.02019-12-11 17:07:20 /ORR)5     3KLHB 111655Z AUTO 00000KT 10SM CLR 09/03 A3058 RMK AO2 P0001 T00860029KLHB2019-12-11T16:55:00Z30.87-96.628.62.90010.030.578741TRUETRUEVFR0.01METAR87.02019-12-11 17:07:20BQ({5    3KLHZ 111655Z AUTO 33006KT 10SM CLR 06/M03 A3040 RMK AO2KLHZ2019-12-11T16:55:00Z36.02-78.336.0-3.0330610.030.398623TRUETRUEVFRMETAR113.02019-12-11 17:07:20[P)5    3KLIC 111655Z AUTO 14008KT 10SM CLR 03/M04 A3015 RMK AO2 SLP234 T00331044KLIC2019-12-11T16:55:00Z39.27-103.673.3-4.4140810.030.150591023.4TRUETRUEVFRMETAR1630.02019-12-11 17:07:20LO)5    3KJXI 111655Z AUTO 10003KT 10SM CLR 06/M01 A3058 RMK AO2 T00561010KJXI2019-12-11T16:55:00Z32.7-94.955.6-1.0100310.030.578741TRUETRUEVFRMETAR127.02019-12-11 17:07:20 .^MV) 5     3KAQO 111655Z AUTO 08004KT 10SM FEW013 07/03 A3058 RMK AO2 PWINOKAQO2019-12-11T16:55:00Z30.78-98.677.03.080410.030.578741TRUETRUETRUEVFRMETAR336.02019-12-11 17:07:20NU)5     3KCBK 111655Z AUTO 12007KT 10SM CLR 07/M03 A3023 RMK AO2 PWINOKCBK2019-12-11T16:55:00Z39.43-101.057.0-3.0120710.030.230314TRUETRUETRUEVFRSPECI971.02019-12-11 17:07:20KT)5     3KCLK 111655Z AUTO 19008KT 10SM CLR 05/M01 A3044 RMK AO2 TSNOKCLK2019-12-11T16:55:00Z35.53-98.935.0-1.0190810.030.43996TRUETRUETRUEVFRSPECI492.02019-12-11 17:07:20MS)5    3KEHA 111655Z AUTO 14006KT 10SM CLR 07/M03 A3025 RMK AO2 T00701027KEHA2019-12-11T16:55:00Z37.0-101.97.0-2.7140610.030.250984TRUETRUEVFRMETAR1099.02019-12-11 17:07:20 .TMZ)5    3KLMO 111655Z AUTO 00000KT 10SM CLR 03/M03 A3011 RMK AO2 T00341035KLMO2019-12-11T16:55:00Z40.17-105.173.4-3.50010.030.109253TRUETRUEVFRMETAR1541.02019-12-11 17:07:20NY)5    3KLKU 111655Z AUTO 28010KT 10SM CLR 05/M07 A3041 RMK AO2 T00461066KLKU2019-12-11T16:55:00Z38.02-77.974.6-6.62801010.030.410433TRUETRUEVFRMETAR150.02019-12-11 17:07:20UX)5   3KGWB 111655Z AUTO 28014G18KT 10SM SCT027 SCT060 M06/M11 A3039 RMK AO2KGWB2019-12-11T16:55:00Z41.3-85.07-6.0-11.0280141810.030.389763TRUETRUEVFRSPECI269.02019-12-11 17:07:20MW)5    3KELK 111655Z AUTO 18012KT 10SM CLR 07/M01 A3039 RMK AO2 T00661006KELK2019-12-11T16:55:00Z35.43-99.46.6-0.61801210.030.389763TRUETRUEVFRSPECI610.02019-12-11 17:07:20 0ON^)5    3KLYO 111655Z AUTO 20011KT 10SM CLR 05/M06 A3034 RMK AO2 T00471060KLYO2019-12-11T16:55:00Z38.35-98.234.7-6.02001110.030.339567TRUETRUEVFRMETAR515.02019-12-11 17:07:20D](}5    3KLXL 111655Z AUTO 00000KT 10SM CLR M21/M23 A3039 RMK AO2KLXL2019-12-11T16:55:00Z45.95-94.33-21.0-23.00010.030.389763TRUETRUEVFRMETAR342.02019-12-11 17:07:20\\)/5    3KLVL 111655Z AUTO 30005KT 10SM SCT016 BKN024 BKN028 05/01 A3038 RMK AO1 T00510012KLVL2019-12-11T16:55:00Z36.78-77.85.11.2300510.030.380905TRUETRUEMVFRMETAR100.02019-12-11 17:07:20K[) 5    3KLNC 111655Z AUTO 13005KT 10SM CLR 06/01 A3058 RMK AO2 T00570009KLNC2019-12-11T16:55:00Z32.58-96.725.70.9130510.030.578741TRUETRUEVFRMETAR153.02019-12-11 17:07:20 :e7b(u5   3MUHA 111655Z 05004KT 350V100 9000 BKN030 29/22 Q1021MUHA2019-12-11T16:55:00Z22.97-82.4229.022.05045.5930.147638MVFRMETAR64.02019-12-11 17:07:20Ka)5    3KOSA 111655Z AUTO 10004KT 10SM CLR 07/M01 A3060 RMK AO1 T00671010KOSA2019-12-11T16:55:00Z33.1-94.976.7-1.0100410.030.59941TRUETRUEVFRMETAR111.02019-12-11 17:07:20P`)5    3KOOA 111655Z AUTO 04007KT 10SM BKN016 M03/M07 A3046 RMK AO2 T10341071KOOA2019-12-11T16:55:00Z41.23-92.5-3.4-7.140710.030.46063TRUETRUEMVFRMETAR256.02019-12-11 17:07:20A_({5    3KOQN 111655Z AUTO 27007KT 10SM CLR 02/M02 A3029 RMK AO2KOQN2019-12-11T16:55:00Z39.98-75.582.0-2.0270710.030.28937TRUETRUEVFRMETAR142.02019-12-11 17:07:20 .foNf)5    3KPEX 111655Z AUTO 00000KT 10SM CLR M21/M22 A3042 RMK AO2 T12061225KPEX2019-12-11T16:55:00Z45.37-94.73-20.6-22.50010.030.41929TRUETRUEVFRMETAR360.02019-12-11 17:07:20re)=5     3KPHP 111655Z AUTO 11013KT 10SM OVC007 M08/M10 A3017 RMK AO2 SNE03 SLP242 P0000 T10831100KPHP2019-12-11T16:55:00Z44.05-101.6-8.3-10.01101310.030.1712591024.2TRUETRUEIFR0.005METAR672.02019-12-11 17:07:20Cd(5    3KOZA 111655Z AUTO 18009KT 10SM OVC008 07/05 A3049 RMK AO2KOZA2019-12-11T16:55:00Z30.73-101.27.05.0180910.030.490158TRUETRUEIFRMETAR726.02019-12-11 17:07:20Mc)5    3KOWP 111655Z AUTO 21007KT 10SM CLR 08/M01 A3050 RMK AO2 T00841015KOWP2019-12-11T16:55:00Z36.18-96.158.4-1.5210710.030.499016TRUETRUEVFRSPECI272.02019-12-11 17:07:20 #QOj)5    3KPRS 111655Z AUTO 05003KT 10SM OVC011 09/06 A3045 RMK AO2 T00850057KPRS2019-12-11T16:55:00Z29.63-104.358.55.750310.030.448818TRUETRUEMVFRMETAR896.02019-12-11 17:07:20:i(m5    3KPQN 111655Z AUTO 10SM CLR M18/M19 A3037 RMK AO2KPQN2019-12-11T16:55:00Z43.97-96.32-18.0-19.010.030.369095TRUETRUEVFRMETAR529.02019-12-11 17:07:20Mh)5    3KPPQ 111655Z AUTO 28007KT 10SM CLR 01/M06 A3045 RMK AO2 T00071062KPPQ2019-12-11T16:55:00Z39.63-90.780.7-6.2280710.030.448818TRUETRUEVFRMETAR216.02019-12-11 17:07:20Xg)5     3KPMV 111655Z AUTO 04008KT 10SM CLR M03/M07 A3040 RMK AO2 P0001 T10271066KPMV2019-12-11T16:55:00Z40.95-95.92-2.7-6.640810.030.398623TRUETRUEVFR0.01METAR367.02019-12-11 17:07:20 -dUn)5     3KSNK 111655Z AUTO 17011KT 1/4SM FG OVC001 03/03 A3044 RMK AO2 T00330033KSNK2019-12-11T16:55:00Z32.7-100.953.33.3170110.2530.43996TRUETRUEFGLIFRMETAR741.02019-12-11 17:07:20Pm)5    3KSLO 111655Z AUTO 20009KT 10SM BKN080 02/M05 A3048 RMK AO2 T00231048KSLO2019-12-11T16:55:00Z38.65-88.972.3-4.8200910.030.481298TRUETRUEVFRMETAR175.02019-12-11 17:07:20Dl(}5    3KPWC 111655Z AUTO 00000KT 10SM CLR M21/M25 A3037 RMK AO2KPWC2019-12-11T16:55:00Z46.72-94.37-21.0-25.00010.030.369095TRUETRUEVFRMETAR395.02019-12-11 17:07:20Nk)5    3KPTB 111655Z AUTO 00000KT 10SM OVC030 05/M01 A3039 RMK AO2 T00541015KPTB2019-12-11T16:55:00Z37.17-77.525.4-1.50010.030.389763TRUETRUEMVFRSPECI59.02019-12-11 17:07:20 9cPr)5    3KSWW 111655Z AUTO 17010KT 10SM OVC005 06/06 A3047 RMK AO2 T00590059KSWW2019-12-11T16:55:00Z32.47-100.475.95.91701010.030.469488TRUETRUEIFRMETAR727.02019-12-11 17:07:20Lq)5    3KSVH 111655Z AUTO 02006KT 10SM CLR 05/M05 A3040 RMK AO2 T00541050KSVH2019-12-11T16:55:00Z35.75-80.955.4-5.020610.030.398623TRUETRUEVFRSPECI294.02019-12-11 17:07:20Qp)5    3KSTE 111655Z AUTO 25009KT 10SM CLR M19/M24 A3039 RMK AO2 T11901241KSTE2019-12-11T16:55:00Z44.55-89.53-19.0-24.1250910.030.389763TRUETRUEVFRMETAR338.02019-12-11 17:07:20Bo({5    3KSRR 111655Z AUTO 00000KT 10SM CLR 05/M09 A3036 RMK AO2KSRR2019-12-11T16:55:00Z33.47-105.525.0-9.00010.030.360237TRUETRUEVFRMETAR2076.02019-12-11 17:07:20 ,aQv)5    3KTKV 111655Z AUTO 28009KT 10SM CLR M20/M24 A3030 RMK AO2 T11961236KTKV2019-12-11T16:55:00Z45.47-89.82-19.6-23.6280910.030.301182TRUETRUEVFRMETAR453.02019-12-11 17:07:20Zu)5     3KTIF 111655Z AUTO 15006KT 3/4SM BR OVC001 M05/M06 A3022 RMK AO2 T10531059KTIF2019-12-11T16:55:00Z41.97-100.57-5.3-5.915060.7530.221457TRUETRUEBRLIFRMETAR892.02019-12-11 17:07:20Ft)5    3KSZT 111655Z AUTO 00000KT 10SM SCT024 M02/M03 A3007 RMK AO2KSZT2019-12-11T16:55:00Z48.3-116.57-2.0-3.00010.030.070866TRUETRUEVFRMETAR648.02019-12-11 17:07:20Os)5    3KSXU 111655Z AUTO 13008KT 10SM CLR 01/M02 A3027 RMK AO2 T00101022KSXU2019-12-11T16:55:00Z34.93-104.651.0-2.2130810.030.268702TRUETRUEVFRMETAR1460.02019-12-11 17:07:20 CqEz(}5    3KUBE 111655Z AUTO 27005KT 10SM CLR M21/M24 A3037 RMK AO2KUBE2019-12-11T16:55:00Z45.5-91.98-21.0-24.0270510.030.369095TRUETRUEVFRMETAR379.02019-12-11 17:07:20Ny)5    3KTQK 111655Z AUTO 17005KT 10SM CLR 03/M03 A3025 RMK AO1 T00271027KTQK2019-12-11T16:55:00Z38.47-100.882.7-2.7170510.030.250984TRUETRUEVFRSPECI904.02019-12-11 17:07:20Mx)5  3KTNB 111655Z AUTO 30019G25KT 10SM M02/M10 A3037 RMK AO2 T10201099KTNB2019-12-11T16:55:00Z36.2-81.65-2.0-9.9300192510.030.369095TRUETRUESPECI911.02019-12-11 17:07:208w(w5      3KTPF 111655Z AUTO 29003KT 4SM HZ OVC006 A3021 RMK AO2KTPF2019-12-11T16:55:00Z27.92-82.4529034.030.209646TRUETRUEHZIFRSPECI3.02019-12-11 17:07:20 <ez.~(u5   3OAHR 111655Z VRB03KT CAVOK 08/04 Q1016 RMK A3001 BLUOAHR2019-12-11T16:55:00Z34.2262.228.04.0036.2130.0VFRMETAR964.02019-12-11 17:07:20f})55    3PAUT 111655Z AUTO 31016G24KT 10SM BKN038 OVC046 02/M03 A2938 RMK AO2 T00231032 PWINOPAUT2019-12-11T16:55:00Z54.15-165.62.3-3.2310162410.029.379921TRUETRUETRUEVFRSPECI25.02019-12-11 17:07:20R|)5    3KU42 111655Z AUTO 13003KT 10SM BKN120 01/M01 A3022 RMK AO1 T00061013KU422019-12-11T16:55:00Z40.62-111.980.6-1.3130310.030.221457TRUETRUEVFRMETAR1402.02019-12-11 17:07:20?{(u5   3KU68 111655Z AUTO 04005KT 10SM M03/M11 A2999 RMK AO2KU682019-12-11T16:55:00Z44.92-108.45-3.0-11.040510.029.991142TRUETRUEMETAR1247.02019-12-11 17:07:20 N8DNq)Q5     3EHGR 111655Z AUTO 19006KT 140V220 8000 BR OVC150 05/04 Q1004 BLU 20007KT 9999 FEW010 SCT015 BKN040EHGR2019-12-11T16:55:00Z51.574.925.04.019066.2129.64567TRUEBRBKN4000VFR0.7METAR13.02019-12-11 17:07:20o)K5     3EHEH 111655Z AUTO 18006KT 150V220 9999 SCT008 OVC010 05/05 Q1005 GRN 20006KT 9999 SCT009 BKN190EHEH2019-12-11T16:55:00Z51.455.385.05.018066.2129.675198TRUEBKN19000MVFR0.6METAR22.02019-12-11 17:07:20S))5     3EHDL 111655Z AUTO 19007KT 160V250 7000 BR FEW006 BKN007 BKN008 06/05 Q1004 GRNEHDL2019-12-11T16:55:00Z52.075.876.05.019074.3529.64567TRUEBRIFRMETAR52.02019-12-11 17:07:20k)=5    3KERY 111655Z AUTO 25016G20KT 5SM HZ SCT014 BKN021 OVC026 M15/M19 A3012 RMK AO2 T11471190KERY2019-12-11T16:55:00Z46.3-85.45-14.7-19.025016205.030.121063TRUETRUEHZMVFRSPECI265.02019-12-11 17:07:20 0eA({5    3KGCM 111655Z AUTO 20007KT 10SM CLR 05/M07 A3054 RMK AO2KGCM2019-12-11T16:55:00Z36.3-95.485.0-7.0200710.030.540354TRUETRUEVFRMETAR221.02019-12-11 17:07:20G)5    3EHWO 111655Z AUTO 20005KT 170V230 9999 BKN043 OVC048 07/05 Q1004 BLUEHWO2019-12-11T16:55:00Z51.454.327.05.020056.2129.64567TRUEVFRMETAR17.02019-12-11 17:07:208(w5    3EHVL 111655Z AUTO 22012KT 9999 OVC210 06/03 Q1002 BLUEHVL2019-12-11T16:55:00Z53.234.926.03.0220126.2129.586615TRUEVFRMETAR5.02019-12-11 17:07:20F)5    3EHVK 111655Z AUTO 20005KT 170V230 9999 BKN009 OVC010 05/05 Q1004 GRNEHVK2019-12-11T16:55:00Z51.635.75.05.020056.2129.64567TRUEIFRMETAR21.02019-12-11 17:07:20K)5     3EHKD 111655Z AUTO 18007KT 9999 OVC210 05/03 Q1002 BLU 21008KT CAVOKEHKD2019-12-11T16:55:00Z52.924.775.03.018076.2129.586615TRUEVFR-0.8METAR14.02019-12-11 17:07:20 :wP )5   3KHHF 111655Z AUTO 21010G15KT 10SM CLR 09/00 A3034 RMK AO2 T00930000KHHF2019-12-11T16:55:00Z35.9-100.49.30.0210101510.030.339567TRUETRUEVFRMETAR712.02019-12-11 17:07:20B ({5    3KHFJ 111655Z AUTO 22011KT 10SM CLR 08/M08 A3048 RMK AO2KHFJ2019-12-11T16:55:00Z36.9-94.028.0-8.02201110.030.481298TRUETRUEVFRMETAR401.02019-12-11 17:07:20@ (5    3KGOP 111655Z AUTO VRB03KT 10SM OVC005 04/04 A3057 RMK AO2KGOP2019-12-11T16:55:00Z31.42-97.84.04.00310.030.569881TRUETRUEIFRMETAR276.02019-12-11 17:07:20> ({5      3KGNC 111655Z AUTO 19004KT 1/2SM FG OVC002 A3044 RMK AO2KGNC2019-12-11T16:55:00Z32.68-102.6519040.530.43996TRUETRUEFGLIFRMETAR1010.02019-12-11 17:07:20A({5    3KGMJ 111655Z AUTO 23006KT 10SM CLR 06/M04 A3052 RMK AO2KGMJ2019-12-11T16:55:00Z36.6-94.736.0-4.0230610.030.519686TRUETRUEVFRMETAR254.02019-12-11 17:07:20 0^uN)5    3KI63 111655Z AUTO 32010KT 10SM CLR 00/M07 A3043 RMK AO2 T10021073KI632019-12-11T16:55:00Z39.98-90.8-0.2-7.33201010.030.431103TRUETRUEVFRMETAR223.02019-12-11 17:07:20d)/5    3KMGN 111655Z AUTO 28008G21KT 4SM HZ BKN028 OVC033 M10/M15 A3018 RMK AO2 T11071154KMGN2019-12-11T16:55:00Z45.43-84.92-10.7-15.42808214.030.180119TRUETRUEHZMVFRSPECI209.02019-12-11 17:07:20M)5    3KHSB 111655Z AUTO 20008KT 10SM CLR 04/M04 A3052 RMK AO2 T00351043KHSB2019-12-11T16:55:00Z37.82-88.553.5-4.3200810.030.519686TRUETRUEVFRMETAR121.02019-12-11 17:07:20K ) 5    3KHQU 111655Z AUTO 04009KT 10SM CLR 11/01 A3039 RMK AO2 T01120007KHQU2019-12-11T16:55:00Z33.53-82.5211.20.740910.030.389763TRUETRUEVFRMETAR152.02019-12-11 17:07:20 Q~?(y5    3KJDD 111655Z AUTO 15004KT 10SM CLR 05/00 A3058 RMK AO2KJDD2019-12-11T16:55:00Z32.75-95.55.00.0150410.030.578741TRUETRUEVFRMETAR132.02019-12-11 17:07:20N)5    3KIKG 111655Z AUTO 35009KT 10SM OVC014 09/05 A3053 RMK AO2 T00850049KIKG2019-12-11T16:55:00Z27.55-98.038.54.9350910.030.528543TRUETRUEMVFRMETAR40.02019-12-11 17:07:20I) 5    3KIER 111655Z AUTO 06006KT 10SM CLR 08/00 A3056 RMK AO2 T00811004KIER2019-12-11T16:55:00Z31.73-93.18.1-0.460610.030.561024TRUETRUEVFRMETAR37.02019-12-11 17:07:20\)%5   3KI74 111655Z AUTO 25004G15KT 10SM BKN023 BKN028 OVC045 M02/M06 A3040 RMK AO2KI742019-12-11T16:55:00Z40.35-83.75-2.0-6.025041510.030.398623TRUETRUEMVFRMETAR325.02019-12-11 17:07:20 -ezD(5    3KLHM 111655Z AUTO 07003KT 10SM BKN065 10/10 A3024 RMK AO1KLHM2019-12-11T16:55:00Z38.92-121.3510.010.070310.030.239174TRUETRUEVFRMETAR37.02019-12-11 17:07:20f)95   3KLCK 111655Z AUTO 24014G20KT 10SM SCT033 SCT041 SCT070 M01/M08 A3043 RMK AO2 T10151082KLCK2019-12-11T16:55:00Z39.82-82.92-1.5-8.2240142010.030.431103TRUETRUEVFRMETAR227.02019-12-11 17:07:20C({5    3KL35 111655Z AUTO 24005KT 10SM CLR 03/M06 A3031 RMK AO2KL352019-12-11T16:55:00Z34.27-116.853.0-6.0240510.030.31004TRUETRUEVFRMETAR2059.02019-12-11 17:07:20N)5    3KJWG 111655Z AUTO 20012KT 10SM CLR 07/M03 A3045 RMK AO2 T00671030KJWG2019-12-11T16:55:00Z35.87-98.426.7-3.02001210.030.448818TRUETRUEVFRMETAR472.02019-12-11 17:07:20 KxR)5    3KLXN 111655Z AUTO 11008KT 10SM SCT008 M02/M05 A3028 RMK AO2 T10241046KLXN2019-12-11T16:55:00Z40.78-99.77-2.4-4.6110810.030.280512TRUETRUEVFRMETAR734.02019-12-11 17:07:20N) 5      3KLUV 111655Z AUTO 20008KT 1/2SM -DZ FG OVC003 03/ A3041 RMK AO2KLUV2019-12-11T16:55:00Z32.75-101.923.020080.530.410433TRUETRUE-DZ FGLIFRMETAR912.02019-12-11 17:07:20L)5    3KLUL 111655Z AUTO 04012KT 10SM CLR 08/M02 A3053 RMK A02 T00791016KLUL2019-12-11T16:55:00Z31.67-89.177.9-1.6401210.030.528543TRUETRUEVFRMETAR73.02019-12-11 17:07:20_)55   3KLNQ 111655Z AUTO 04019G27KT 10SM SCT020 BKN031 OVC046 10/07 A3041 RMK AO2 T00960065KLNQ2019-12-11T16:55:00Z29.35-89.439.66.540192710.030.410433TRUETRUEVFRMETAR1.02019-12-11 17:07:20 &[}X )5    3KORG 111655Z AUTO 04011G16KT 10SM CLR 11/02 A3051 RMK AO2 P0001 T01080016KORG2019-12-11T16:55:00Z30.07-93.810.81.640111610.030.510826TRUETRUEVFR0.01METAR4.02019-12-11 17:07:20Y)5   3KONP 111655Z AUTO 19015G24KT 7SM BKN012 BKN018 BKN120 11/10 A3004 RMK AO2KONP2019-12-11T16:55:00Z44.57-124.0311.010.019015247.030.041338TRUETRUEMVFRMETAR48.02019-12-11 17:07:20F)5     3KMGR 111655Z AUTO 01009KT 10SM -DZ CLR 11/07 A3036 RMK AO2KMGR2019-12-11T16:55:00Z31.08-83.811.07.010910.030.360237TRUETRUE-DZVFRMETAR90.02019-12-11 17:07:20U)5     3KMDD 111655Z AUTO 19011KT 3/4SM BR OVC002 05/05 A3042 RMK AO2 T00500049KMDD2019-12-11T16:55:00Z32.03-102.15.04.9190110.7530.41929TRUETRUEBRLIFRMETAR854.02019-12-11 17:07:20 1bN$)5    3KRAS 111655Z AUTO 36012KT 10SM OVC016 09/06 A3052 RMK AO2 T00940059KRAS2019-12-11T16:55:00Z27.82-97.089.45.93601210.030.519686TRUETRUEMVFRMETAR2.02019-12-11 17:07:20O#)5    3KPVW 111655Z AUTO 22005KT 7SM OVC003 03/02 A3036 RMK AO2 T00250016KPVW2019-12-11T16:55:00Z34.17-101.722.51.622057.030.360237TRUETRUELIFRMETAR1028.02019-12-11 17:07:20J") 5    3KPSN 111655Z AUTO 06003KT 10SM CLR 07/00 A3058 RMK AO2 T00801001KPSN2019-12-11T16:55:00Z31.78-95.78.0-0.160310.030.578741TRUETRUEVFRMETAR129.02019-12-11 17:07:20J!)5    3KPOY 111655Z AUTO 13012KT 10SM SCT110 M02/M09 A2993 RMK AO2KPOY2019-12-11T16:55:00Z44.87-108.8-2.0-9.01301210.029.929134TRUETRUEVFRMETAR1552.02019-12-11 17:07:20 M|Y()%5   3K49A 111655Z AUTO 05008G15KT 040V110 10SM CLR 06/M06 A3049 RMK AO2 T00601063K49A2019-12-11T16:55:00Z34.63-84.536.0-6.35081510.030.490158TRUETRUEVFRMETAR453.02019-12-11 17:07:20@'(y5    3K1F0 111655Z AUTO 15006KT 10SM CLR 06/01 A3053 RMK AO2K1F02019-12-11T16:55:00Z34.15-97.126.01.0150610.030.528543TRUETRUEVFRMETAR257.02019-12-11 17:07:20L&)5    3K13K 111655Z AUTO 22015KT 10SM CLR 09/M07 A3042 RMK AO2 T00861070K13K2019-12-11T16:55:00Z37.85-96.38.6-7.02201510.030.41929TRUETRUEVFRMETAR369.02019-12-11 17:07:20.%(e5   3KTRK 111655Z 00000KT 10SM OVC035 02/01 A3024KTRK2019-12-11T16:55:00Z39.32-120.122.01.00010.030.239174VFRMETAR1798.02019-12-11 17:07:20 2aL,)5    3KAFK 111655Z AUTO 07009KT 10SM CLR 00/M05 A3040 RMK AO2 T10021046KAFK2019-12-11T16:55:00Z40.6-95.85-0.2-4.670910.030.398623TRUETRUEVFRMETAR354.02019-12-11 17:07:20Q+)5    3KAJG 111655Z AUTO 22011KT 10SM SCT060 01/M07 A3050 RMK AO2 T00101068KAJG2019-12-11T16:55:00Z38.62-87.731.0-6.82201110.030.499016TRUETRUEVFRMETAR131.02019-12-11 17:07:20L*)5    3KAJR 111655Z AUTO 36004KT 10SM CLR 07/M07 A3040 RMK AO2 T00681070KAJR2019-12-11T16:55:00Z34.5-83.556.8-7.0360410.030.398623TRUETRUEVFRMETAR441.02019-12-11 17:07:20I)) 5    3K66R 111655Z AUTO 03004KT 10SM CLR 09/01 A3054 RMK AO2 T00930009K66R2019-12-11T16:55:00Z29.65-96.529.30.930410.030.540354TRUETRUEVFRMETAR74.02019-12-11 17:07:20 /X^0)%5   3KASW 111655Z AUTO 28013G16KT 10SM BKN020 BKN032 OVC060 M06/M11 A3041 RMK AO2KASW2019-12-11T16:55:00Z41.27-85.83-6.0-11.0280131610.030.410433TRUETRUEMVFRMETAR259.02019-12-11 17:07:20I/) 5    3KASL 111655Z AUTO 09004KT 10SM CLR 07/00 A3060 RMK AO1 T00721004KASL2019-12-11T16:55:00Z32.52-94.37.2-0.490410.030.59941TRUETRUEVFRMETAR109.02019-12-11 17:07:20R.)5    3KANW 111655Z AUTO 17009KT 10SM OVC007 M06/M07 A3023 RMK AO2 T10601071KANW2019-12-11T16:55:00Z42.57-100.0-6.0-7.1170910.030.230314TRUETRUEIFRMETAR789.02019-12-11 17:07:20L-)5    3K9A5 111655Z AUTO 01009KT 10SM CLR 04/M05 A3054 RMK AO2 T00381055K9A52019-12-11T16:55:00Z34.68-85.283.8-5.510910.030.540354TRUETRUEVFRMETAR237.02019-12-11 17:07:20 .PwN4)5    3KBTA 111655Z AUTO 07008KT 10SM CLR M04/M09 A3040 RMK AO2 T10451087KBTA2019-12-11T16:55:00Z41.42-96.12-4.5-8.770810.030.398623TRUETRUEVFRMETAR396.02019-12-11 17:07:20T3)!5    3KBQK 111655Z AUTO 02008KT 10SM BKN005 OVC012 13/12 A3032 RMK AO2 T01320125KBQK2019-12-11T16:55:00Z31.25-81.4713.212.520810.030.318897TRUETRUEIFRMETAR8.02019-12-11 17:07:20Y2)5    3KBMT 111655Z AUTO 04011G15KT 10SM CLR 11/03 A3051 RMK AO2 T01140033 TSNOKBMT2019-12-11T16:55:00Z30.07-94.2211.43.340111510.030.510826TRUETRUETRUEVFRMETAR10.02019-12-11 17:07:20M1)5    3KBGE 111655Z AUTO 01012KT 10SM BKN110 10/04 A3041 RMK AO2 T00980035KBGE2019-12-11T16:55:00Z30.97-84.639.83.5101210.030.410433TRUETRUEVFRMETAR43.02019-12-11 17:07:20 ,ZJ8)5    3KCWV 111655Z AUTO 05007KT 7SM SCT022 16/09 A3035 RMK AO2 T01550091KCWV2019-12-11T16:55:00Z32.2-81.8715.59.15077.030.351377TRUETRUEVFRMETAR33.02019-12-11 17:07:20B7({5    3KCUL 111655Z AUTO 19009KT 10SM CLR 02/M05 A3052 RMK AO2KCUL2019-12-11T16:55:00Z38.08-88.122.0-5.0190910.030.519686TRUETRUEVFRMETAR118.02019-12-11 17:07:20M6)5    3KCQB 111655Z AUTO 19009KT 10SM CLR 06/M01 A3050 RMK AO2 T00611010KCQB2019-12-11T16:55:00Z35.72-96.826.1-1.0190910.030.499016TRUETRUEVFRMETAR300.02019-12-11 17:07:20O5)5    3KBVN 111655Z AUTO 10006KT 10SM CLR M06/M09 A3035 RMK AO2 T10561093KBVN2019-12-11T16:55:00Z41.73-98.05-5.6-9.3100610.030.351377TRUETRUEVFRMETAR551.02019-12-11 17:07:20 /SR<)5    3KDUX 111655Z AUTO 20011KT 10SM SCT004 02/M01 A3029 RMK AO2 T00171006KDUX2019-12-11T16:55:00Z35.85-102.021.7-0.62001110.030.28937TRUETRUEVFRMETAR1129.02019-12-11 17:07:20K;) 5    3KDUC 111655Z AUTO 17009KT 10SM CLR 06/00 A3052 RMK AO2 T00640005KDUC2019-12-11T16:55:00Z34.47-97.976.40.5170910.030.519686TRUETRUEVFRMETAR339.02019-12-11 17:07:20W:)5     3KDKB 111655Z AUTO 30007KT 7SM -SN BKN016 M07/M11 A3042 RMK AO2 T10691106KDKB2019-12-11T16:55:00Z41.93-88.7-6.9-10.630077.030.41929TRUETRUE-SNMVFRMETAR279.02019-12-11 17:07:20L9)5    3KD73 111655Z AUTO 32007KT 10SM CLR 08/M04 A3043 RMK AO2 T00751043KD732019-12-11T16:55:00Z33.78-83.77.5-4.3320710.030.431103TRUETRUEVFRMETAR267.02019-12-11 17:07:20 0[K@) 5    3KF00 111655Z AUTO 18008KT 10SM CLR 07/00 A3056 RMK AO2 T00670003KF002019-12-11T16:55:00Z33.62-96.186.70.3180810.030.561024TRUETRUEVFRMETAR188.02019-12-11 17:07:20I?) 5    3KERV 111655Z AUTO 00000KT 10SM CLR 08/03 A3051 RMK AO2 T00760029KERV2019-12-11T16:55:00Z29.98-99.087.62.90010.030.510826TRUETRUEVFRMETAR510.02019-12-11 17:07:20P>)5    3KENL 111655Z AUTO 20010KT 10SM OVC085 02/M03 A3047 RMK AO2 T00191035KENL2019-12-11T16:55:00Z38.52-89.11.9-3.52001010.030.469488TRUETRUEVFRMETAR163.02019-12-11 17:07:20K=)5    3KDZJ 111655Z AUTO 30004KT 10SM CLR 03/M05 A3046 RMK AO2 T00281051KDZJ2019-12-11T16:55:00Z34.85-84.02.8-5.1300410.030.46063TRUETRUEVFRMETAR582.02019-12-11 17:07:20 0]OD)5    3KFEP 111655Z AUTO 29004KT 10SM CLR M07/M13 A3044 RMK AO2 T10751132KFEP2019-12-11T16:55:00Z42.25-89.58-7.5-13.2290410.030.43996TRUETRUEVFRMETAR262.02019-12-11 17:07:20DC(}5    3KMOX 111655Z AUTO 00000KT 10SM CLR M21/M24 A3036 RMK AO2KMOX2019-12-11T16:55:00Z45.57-95.97-21.0-24.00010.030.360237TRUETRUEVFRSPECI344.02019-12-11 17:07:20NB)5    3KMQJ 111655Z AUTO 24005KT 10SM SCT048 OVC065 M04/M06 A3045 RMK AO1KMQJ2019-12-11T16:55:00Z39.85-85.9-4.0-6.0240510.030.448818TRUETRUEVFRSPECI263.02019-12-11 17:07:20KA) 5    3KF05 111655Z AUTO 17006KT 10SM CLR 08/01 A3047 RMK AO1 T00770012KF052019-12-11T16:55:00Z34.23-99.287.71.2170610.030.469488TRUETRUEVFRMETAR386.02019-12-11 17:07:20 E{?H({5    3KJGG 111655Z AUTO 00000KT 10SM CLR 07/M01 A3038 RMK AO1KJGG2019-12-11T16:55:00Z37.23-76.727.0-1.00010.030.380905TRUETRUEVFRMETAR15.02019-12-11 17:07:20EG(}5    3KVVV 111655Z AUTO 23003KT 10SM CLR M19/M23 A3043 RMK AO2KVVV2019-12-11T16:55:00Z45.3-96.42-19.0-23.0230310.030.431103TRUETRUEVFRMETAR335.02019-12-11 17:07:20TF)5    3KIRS 111655Z AUTO 27012KT 10SM OVC018 M06/M10 A3035 RMK AO2 T10571100KIRS2019-12-11T16:55:00Z41.8-85.43-5.7-10.02701210.030.351377TRUETRUEMVFRMETAR282.02019-12-11 17:07:20]E))5     3KFHB 111655Z AUTO 36010G15KT 1 3/4SM -RA BR OVC005 13/ A3031 RMK AO2 T0132////KFHB2019-12-11T16:55:00Z30.62-81.4713.236010151.7530.31004TRUETRUE-RA BRIFRMETAR5.02019-12-11 17:07:20 =udL)/5    3PAIM 111655Z AUTO 14010KT 110V180 10SM CLR M04/M10 A2966 RMK AO2 SLP069 T10441097PAIM2019-12-11T16:55:00Z66.0-153.7-4.4-9.71401010.029.6604331006.9TRUETRUEVFRMETAR389.02019-12-11 17:07:20_K)%5    3KLLJ 111655Z AUTO 00000KT 10SM OVC050 M06/M09 A3011 RMK AO2 SLP250 T10561094KLLJ2019-12-11T16:55:00Z44.52-114.22-5.6-9.40010.030.1092531025.0TRUETRUEVFRMETAR1536.02019-12-11 17:07:20CJ(}5    3KJMR 111655Z AUTO 00000KT 10SM CLR M19/M24 A3042 RMK AO2KJMR2019-12-11T16:55:00Z45.88-93.27-19.0-24.00010.030.41929TRUETRUEVFRMETAR309.02019-12-11 17:07:20>I)5   3TXKF 111655Z 16009KT 9999 SCT011 BKN033 BKN300 23/21 Q1026 TXKF2019-12-11T16:55:00Z32.37-64.6823.021.016096.2130.295275VFRMETAR6.02019-12-11 17:07:20 !HcRP)5   3KAPS 111655Z AUTO 09013G16KT 10SM OVC075 11/02 A3047 RMK AO2 T01050016KAPS2019-12-11T16:55:00Z30.08-90.5810.51.690131610.030.469488TRUETRUEVFRMETAR2.02019-12-11 17:07:20`O)+5   3KAMN 111655Z AUTO 29018G27KT 10SM BKN034 BKN039 M08/M16 A3030 RMK AO2 T10771160KAMN2019-12-11T16:55:00Z43.32-84.68-7.7-16.0290182710.030.301182TRUETRUEVFRSPECI230.02019-12-11 17:07:20TN)5    3PATL 111655Z VRB06KT 10SM CLR M07/M08 A2950 RMK AO2A SLP010 PSR11 P DRYPATL2019-12-11T16:55:00Z62.9-155.97-7.0-8.00610.029.5009841001.0TRUEVFRMETAR294.02019-12-11 17:07:20ZM))5    3PASV 111655Z 08005KT 10SM BKN240 02/M08 A2926 RMK AO2A SLP924 IR18UP15DN P DRYPASV2019-12-11T16:55:00Z61.1-155.572.0-8.080510.029.258858992.4TRUEVFRMETAR484.02019-12-11 17:07:20 :gCT({5    3KAVK 111655Z AUTO 22013KT 10SM CLR 08/M05 A3039 RMK AO2KAVK2019-12-11T16:55:00Z36.77-98.678.0-5.02201310.030.389763TRUETRUEVFRMETAR449.02019-12-11 17:07:20DS(5    3KAUN 111655Z AUTO 08004KT 10SM SCT060 10/08 A3025 RMK A01KAUN2019-12-11T16:55:00Z38.95-121.0810.08.080410.030.250984TRUETRUEVFRMETAR467.02019-12-11 17:07:20NR)5    3KAUH 111655Z AUTO 08011KT 10SM CLR M03/M07 A3034 RMK AO2 T10311069KAUH2019-12-11T16:55:00Z40.88-98.0-3.1-6.9801110.030.339567TRUETRUEVFRMETAR550.02019-12-11 17:07:20AQ({5    3KAQR 111655Z AUTO 19006KT 10SM CLR 04/M02 A3058 RMK AO2KAQR2019-12-11T16:55:00Z34.4-96.154.0-2.0190610.030.578741TRUETRUEVFRMETAR189.02019-12-11 17:07:20 8p@X({5    3KBGF 111655Z AUTO 00000KT 10SM CLR 02/M05 A3054 RMK A01KBGF2019-12-11T16:55:00Z35.18-86.072.0-5.00010.030.540354TRUETRUEVFRMETAR299.02019-12-11 17:07:20HW)5   3KBBF 111655Z AUTO 05019G29KT 10SM OVC016 60/58 A3044 RMK A01KBBF2019-12-11T16:55:00Z27.83-96.020.00.050192910.030.43996TRUETRUEMVFRMETAR36.02019-12-11 17:07:20CV(5    3KBBD 111655Z AUTO 20005KT 10SM OVC005 04/03 A3051 RMK AO2KBBD2019-12-11T16:55:00Z31.18-99.324.03.0200510.030.510826TRUETRUEIFRMETAR557.02019-12-11 17:07:20CU)5   3KAXX 111655Z AUTO 00000KT CLR M07/M09 A3032 RMK AO2 T10691094KAXX2019-12-11T16:55:00Z36.42-105.28-6.9-9.40030.318897TRUETRUEMETAR2548.02019-12-11 17:07:20 /a`\)-5     3KC09 111655Z AUTO 30007KT 10SM -SN BKN015 BKN046 M06/M09 A3044 RMK AO2 T10611092KC092019-12-11T16:55:00Z41.43-88.42-6.1-9.2300710.030.43996TRUETRUE-SNMVFRSPECI178.02019-12-11 17:07:20I[) 5    3KBVS 111655Z AUTO 00000KT 10SM BKN021 BKN055 07/06 A3002 RMK A01KBVS2019-12-11T16:55:00Z48.47-122.427.06.00010.030.02067TRUETRUEMVFRMETAR43.02019-12-11 17:07:20IZ)5   3KBQX 111655Z AUTO 04017G25KT 10SM OVC014 11/08 A3047 RMK A01KBQX2019-12-11T16:55:00Z28.5-95.7211.08.040172510.030.469488TRUETRUEMVFRSPECI34.02019-12-11 17:07:20LY)5    3KBIE 111655Z AUTO 07008KT 10SM CLR 00/M04 A3038 RMK AO2 T00021040KBIE2019-12-11T16:55:00Z40.28-96.750.2-4.070810.030.380905TRUETRUEVFRMETAR403.02019-12-11 17:07:20 LP`)5   3KCCO 111655Z AUTO 01008G14KT 10SM CLR 06/M05 A3046 RMK AO2 T00621047KCCO2019-12-11T16:55:00Z33.32-84.776.2-4.71081410.030.46063TRUETRUEVFRMETAR296.02019-12-11 17:07:20@_(y5    3KCCB 111655Z AUTO 00000KT 10SM CLR 13/01 A3022 RMK AO2KCCB2019-12-11T16:55:00Z34.12-117.6813.01.00010.030.221457TRUETRUEVFRMETAR440.02019-12-11 17:07:20H^)5     3KC83 111655Z AUTO 00000KT 1SM BR OVC004 11/11 A3025 RMK AO2KC832019-12-11T16:55:00Z37.83-121.6211.011.0001.030.250984TRUETRUEBRLIFRMETAR24.02019-12-11 17:07:20b])35   3KC65 111655Z AUTO 26009G14KT 240V300 8SM BKN019 BKN025 OVC042 M07/M10 A3041 RMK A01KC652019-12-11T16:55:00Z41.37-86.3-7.0-10.02609148.030.410433TRUETRUEMVFRMETAR244.02019-12-11 17:07:20 1eLd)5    3KCTJ 111655Z AUTO 02007KT 10SM CLR 04/M08 A3049 RMK AO2 T00431081KCTJ2019-12-11T16:55:00Z33.63-85.154.3-8.120710.030.490158TRUETRUEVFRMETAR354.02019-12-11 17:07:20?c({5    3KCRX 111655Z AUTO 00000KT 10SM CLR 05/M05 A3058 RMK AO2KCRX2019-12-11T16:55:00Z34.92-88.65.0-5.00010.030.578741TRUETRUEVFRMETAR130.02019-12-11 17:07:20Gb)5   3KCQF 111655Z AUTO 02014G17KT 10SM OVC075 07/01 A3042 RMK AO2KCQF2019-12-11T16:55:00Z30.47-87.887.01.020141710.030.41929TRUETRUEVFRMETAR28.02019-12-11 17:07:20Ja) 5    3KCFD 111655Z AUTO 03004KT 10SM CLR 09/03 A3057 RMK AO2 T00870033KCFD2019-12-11T16:55:00Z30.72-96.338.73.330410.030.569881TRUETRUEVFRMETAR112.02019-12-11 17:07:20 .YLh)5   3KFOT 111655Z AUTO 12014G18KT 10SM BKN100 13/08 A3012 RMK AO1KFOT2019-12-11T16:55:00Z40.55-124.1313.08.0120141810.030.121063TRUETRUEVFRMETAR120.02019-12-11 17:07:20Mg)5     3KFOA 111655Z AUTO 20012KT 10SM CLR 02/M05 A3048 RMK AO2 TSNOKFOA2019-12-11T16:55:00Z38.67-88.452.0-5.02001210.030.481298TRUETRUETRUEVFRMETAR144.02019-12-11 17:07:20Pf)5    3KFLY 111655Z AUTO 16005KT 10SM CLR 04/M12 A3016 RMK AO2 T00371123KFLY2019-12-11T16:55:00Z38.95-104.573.7-12.3160510.030.159449TRUETRUEVFRMETAR2096.02019-12-11 17:07:20Me)5    3KCTY 111655Z AUTO 03012KT 10SM OVC009 13/11 A3029 RMK AO2 T01350110KCTY2019-12-11T16:55:00Z29.63-83.113.511.0301210.030.28937TRUETRUEIFRMETAR13.02019-12-11 17:07:20 F~@l({5    3KFYM 111655Z AUTO VRB05KT 10SM CLR 03/M04 A3054 RMK A01KFYM2019-12-11T16:55:00Z35.07-86.573.0-4.00510.030.540354TRUETRUEVFRMETAR300.02019-12-11 17:07:20Ck(}5    3KFXY 111655Z AUTO 00000KT 10SM CLR M13/M19 A3042 RMK AO2KFXY2019-12-11T16:55:00Z43.23-93.62-13.0-19.00010.030.41929TRUETRUEVFRMETAR375.02019-12-11 17:07:20Pj)5    3KFWC 111655Z AUTO 20005KT 10SM SCT080 02/M04 A3050 RMK AO1 T00171045KFWC2019-12-11T16:55:00Z38.38-88.421.7-4.5200510.030.499016TRUETRUEVFRMETAR133.02019-12-11 17:07:20`i)+5   3KLWA 111655Z AUTO 29014G20KT 10SM BKN033 OVC041 M05/M12 A3039 RMK AO2 T10491120KLWA2019-12-11T16:55:00Z42.35-86.25-4.9-12.0290142010.030.389763TRUETRUEVFRMETAR203.02019-12-11 17:07:20 ;vPp)5     3KGHB 111655Z AUTO 06031KT 3SM HZ BKN012 OVC016 15/12 A3035 RMK A01KGHB2019-12-11T16:55:00Z27.83-91.9815.012.060313.030.351377TRUETRUEHZMVFRMETAR30.02019-12-11 17:07:20@o(}5    3KGCY 111655Z AUTO VRB03KT 10SM CLR M00/M04 A3049 RMK A01KGCY2019-12-11T16:55:00Z36.2-82.820.0-4.00310.030.490158TRUETRUEVFRMETAR490.02019-12-11 17:07:20Un)!5   3KGBK 111655Z AUTO 03007G31KT 350V090 9SM BKN015 BKN022 17/15 A3028 RMK A01KGBK2019-12-11T16:55:00Z27.2-92.217.015.0307319.030.280512TRUETRUEMVFRMETAR59.02019-12-11 17:07:20fm);5     3KFZG 111655Z AUTO 01007KT 10SM SCT050 SCT070 BKN095 11/08 A3038 RMK AO2 T01130076 PWINOKFZG2019-12-11T16:55:00Z31.68-83.2711.37.610710.030.380905TRUETRUETRUEVFRMETAR111.02019-12-11 17:07:20bRRY`gnu|$+29@GNU\cjqx  '.5<CJQX_fmt{DFEJFNGRHVIZJ^KbLfMjNnOrPvQzDFEJFNGRHVIZJ^KbLfMjNnOrPvQzR~STU VWXYZ [$\(],^0_4`8a<b@cDdHeLfPgThXi\j`kdlhmlnpptqxr|stu v wxyz{!|%})~-159=AFJNRVZ^bfkosw{  %)-159=AEIMR 1iQt)5    3KGPC 111655Z AUTO 00000KT 7SM SCT041 BKN055 OVC070 M03/M08 A3046 RMK AO2KGPC2019-12-11T16:55:00Z39.63-86.82-3.0-8.0007.030.46063TRUETRUEVFRMETAR257.02019-12-11 17:07:20Ks)5     3KGKT 111655Z AUTO 00000KT 10SM CLR 02/M01 A3053 RMK A01 P0003KGKT2019-12-11T16:55:00Z35.85-83.532.0-1.00010.030.528543TRUETRUEVFR0.03METAR309.02019-12-11 17:07:20Cr(5    3KGIC 111655Z AUTO 00000KT 10SM OVC041 00/00 A3006 RMK AO1KGIC2019-12-11T16:55:00Z45.95-116.120.00.00010.030.059055TRUETRUEVFRMETAR1009.02019-12-11 17:07:20Jq) 5     3KGHG 111655Z AUTO VRB04KT 1/2SM -SN OVC002 M00/M01 A3022 RMK AO2KGHG2019-12-11T16:55:00Z42.1-70.670.0-1.0040.530.221457TRUETRUE-SNLIFRMETAR4.02019-12-11 17:07:20 +fNx)5    3KHDE 111655Z AUTO 09011KT 10SM CLR M01/M03 A3029 RMK AO2 T10091031KHDE2019-12-11T16:55:00Z40.45-99.32-0.9-3.1901110.030.28937TRUETRUEVFRMETAR705.02019-12-11 17:07:20Iw)5   3KHDC 111655Z AUTO 02013G18KT 10SM BKN085 10/01 A3049 RMK AO2KHDC2019-12-11T16:55:00Z30.52-90.4210.01.020131810.030.490158TRUETRUEVFRMETAR13.02019-12-11 17:07:20@v({5    3KGZS 111655Z AUTO 00000KT 10SM CLR 03/M02 A3056 RMK A01KGZS2019-12-11T16:55:00Z35.15-87.053.0-2.00010.030.561024TRUETRUEVFRMETAR209.02019-12-11 17:07:20Pu)5    3KGRN 111655Z AUTO 14004KT 10SM CLR M04/M05 A3007 RMK AO2 T10391049KGRN2019-12-11T16:55:00Z42.8-102.17-3.9-4.9140410.030.070866TRUETRUEVFRMETAR1086.02019-12-11 17:07:20 @oM|)5    3KHMP 111655Z AUTO 34006KT 10SM CLR 05/M05 A3048 RMK AO2 T00501046KHMP2019-12-11T16:55:00Z33.38-84.335.0-4.6340610.030.481298TRUETRUEVFRMETAR269.02019-12-11 17:07:20L{)5    3KHJH 111655Z AUTO 09008KT 10SM CLR 00/M04 A3036 RMK AO2 T00001043KHJH2019-12-11T16:55:00Z40.15-97.580.0-4.390810.030.360237TRUETRUEVFRMETAR447.02019-12-11 17:07:20Wz)5   3KHHV 111655Z AUTO 04023G29KT 8SM SCT017 SCT023 BKN027 18/14 A3036 RMK A01KHHV2019-12-11T16:55:00Z26.93-94.6818.014.04023298.030.360237TRUETRUEMVFRMETAR25.02019-12-11 17:07:20_y)+5     3KHHG 111655Z AUTO 26007KT 4SM -SN BKN018 OVC027 M06/M09 A3041 RMK AO2 T10571093KHHG2019-12-11T16:55:00Z40.85-85.45-5.7-9.326074.030.410433TRUETRUE-SNMVFRMETAR246.02019-12-11 17:07:20 +g@({5    3KM08 111655Z AUTO 00000KT 10SM CLR 05/M04 A3057 RMK A01KM082019-12-11T16:55:00Z35.22-89.055.0-4.00010.030.569881TRUETRUEVFRMETAR152.02019-12-11 17:07:20A({5    3KM04 111655Z AUTO 19006KT 10SM CLR 05/M04 A3059 RMK A01KM042019-12-11T16:55:00Z35.58-89.585.0-4.0190610.030.590551TRUETRUEVFRMETAR85.02019-12-11 17:07:20@({5    3KM02 111655Z AUTO 00000KT 10SM CLR 03/M05 A3054 RMK A01KM022019-12-11T16:55:00Z36.13-87.433.0-5.00010.030.540354TRUETRUEVFRMETAR272.02019-12-11 17:07:20?~({5    3KLUG 111655Z AUTO VRB03KT 10SM CLR 03/M04 A3057 RMK A01KLUG2019-12-11T16:55:00Z35.52-86.83.0-4.00310.030.569881TRUETRUEVFRMETAR219.02019-12-11 17:07:20P})5     3KHQI 111655Z AUTO 05026KT 3SM HZ BKN015 OVC020 14/12 A3038 RMK A01KHQI2019-12-11T16:55:00Z27.93-93.6714.012.050263.030.380905TRUETRUEHZMVFRMETAR26.02019-12-11 17:07:20 .g@({5    3KM91 111655Z AUTO VRB05KT 10SM CLR 04/M04 A3054 RMK A01KM912019-12-11T16:55:00Z36.53-86.924.0-4.00510.030.540354TRUETRUEVFRMETAR215.02019-12-11 17:07:20J)5    3KM75 111655Z AUTO 07008KT 10SM OVC007 M12/M14 A2995 RMK A01KM752019-12-11T16:55:00Z48.37-107.92-12.0-14.070810.029.949802TRUETRUEIFRSPECI687.02019-12-11 17:07:20B({5    3KM54 111655Z AUTO 23005KT 10SM CLR 04/M06 A3056 RMK A01KM542019-12-11T16:55:00Z36.18-86.324.0-6.0230510.030.561024TRUETRUEVFRMETAR180.02019-12-11 17:07:20M)5    3KM30 111655Z AUTO 20005KT 10SM CLR 04/M04 A3056 RMK AO2 T00391038KM302019-12-11T16:55:00Z37.18-88.753.9-3.8200510.030.561024TRUETRUEVFRMETAR117.02019-12-11 17:07:20 ;fA ({5    3KMDQ 111655Z AUTO 03005KT 10SM CLR 03/M04 A3055 RMK A02KMDQ2019-12-11T16:55:00Z34.87-86.553.0-4.030510.030.549213TRUETRUEVFRMETAR230.02019-12-11 17:07:20B(}5    3KMDJ 111655Z AUTO 03032KT 9SM OVC014 12/12 A3038 RMK A01KMDJ2019-12-11T16:55:00Z28.65-89.812.012.030329.030.380905TRUETRUEMVFRMETAR31.02019-12-11 17:07:20P)5     3KMCC 111655Z AUTO 13003KT 5SM BR BKN070 BKN080 12/12 A3027 RMK AO2KMCC2019-12-11T16:55:00Z38.67-121.412.012.013035.030.268702TRUETRUEBRMVFRMETAR23.02019-12-11 17:07:20@({5    3KMBT 111655Z AUTO 00000KT 10SM CLR 04/M06 A3055 RMK A01KMBT2019-12-11T16:55:00Z35.88-86.384.0-6.00010.030.549213TRUETRUEVFRMETAR188.02019-12-11 17:07:20 %TA ({5    3KMNV 111655Z AUTO 02004KT 10SM CLR 03/M02 A3054 RMK A01KMNV2019-12-11T16:55:00Z35.55-84.383.0-2.020410.030.540354TRUETRUEVFRMETAR314.02019-12-11 17:07:20I ) 5    3KMMI 111655Z AUTO 05009KT 040V100 10SM CLR 04/M04 A3056 RMK A01KMMI2019-12-11T16:55:00Z35.4-84.574.0-4.050910.030.561024TRUETRUEVFRMETAR266.02019-12-11 17:07:20L )5    3KMLE 111655Z AUTO 07007KT 10SM CLR M03/M09 A3042 RMK AO2 T10301092KMLE2019-12-11T16:55:00Z41.2-96.12-3.0-9.270710.030.41929TRUETRUEVFRMETAR320.02019-12-11 17:07:20V )5    3KMIS 111655Z AUTO 06037G43KT 2 1/2SM BR BKN016 BKN021 11/09 A3036 RMK A01KMIS2019-12-11T16:55:00Z29.3-88.8511.09.06037432.530.360237TRUETRUEBRIFRMETAR32.02019-12-11 17:07:20 5O}E(}5    3KRRT 111655Z AUTO 25009KT 10SM CLR M21/M24 A3029 RMK AO2KRRT2019-12-11T16:55:00Z48.93-95.33-21.0-24.0250910.030.28937TRUETRUEVFRMETAR327.02019-12-11 17:07:20M)5   3KSDC 111655Z AUTO 23010G14KT 10SM SCT044 00/M10 A3017 RMK AO2KSDC2019-12-11T16:55:00Z43.23-77.120.0-10.0230101410.030.171259TRUETRUEVFRMETAR129.02019-12-11 17:07:20a)+5   3KSJX 111655Z AUTO 28013G21KT 10SM BKN016 OVC022 M12/M15 A3020 RMK AO2 T11161149KSJX2019-12-11T16:55:00Z45.7-85.57-11.6-14.9280132110.030.200787TRUETRUEMVFRSPECI204.02019-12-11 17:07:20F)5    3KMOR 111655Z AUTO 21006KT 10SM FEW019 01/M03 A3050 RMK A01KMOR2019-12-11T16:55:00Z36.18-83.371.0-3.0210610.030.499016TRUETRUEVFRMETAR400.02019-12-11 17:07:20 E~Q)5    3KSYN 111655Z AUTO 21003KT 10SM CLR M17/M22 A3045 RMK AO2 T11751219KSYN2019-12-11T16:55:00Z44.47-93.02-17.5-21.9210310.030.448818TRUETRUEVFRSPECI280.02019-12-11 17:07:20B({5    3KSYM 111655Z AUTO 20009KT 10SM CLR 01/M09 A3049 RMK AO2KSYM2019-12-11T16:55:00Z38.22-83.581.0-9.0200910.030.490158TRUETRUEVFRMETAR313.02019-12-11 17:07:20P)5    3KSUW 111655Z AUTO 23007KT 10SM CLR M21/M26 A3040 RMK AO2 T12111260KSUW2019-12-11T16:55:00Z46.68-92.1-21.1-26.0230710.030.398623TRUETRUEVFRSPECI206.02019-12-11 17:07:20a)+5   3KDUH 111655Z AUTO 25013G20KT 10SM BKN029 OVC037 M04/M11 A3035 RMK AO2 T10431107KDUH2019-12-11T16:55:00Z41.73-83.65-4.3-10.7250132010.030.351377TRUETRUEMVFRSPECI204.02019-12-11 17:07:20 .O@({5    3KMRC 111655Z AUTO 00000KT 10SM CLR 04/M08 A3055 RMK A01KMRC2019-12-11T16:55:00Z35.55-87.184.0-8.00010.030.549213TRUETRUEVFRMETAR208.02019-12-11 17:07:20F(}5    3KTOB 111655Z AUTO 34005KT 10SM CLR M17/M23 A3040 RMK AO2KTOB2019-12-11T16:55:00Z44.02-92.82-17.0-23.0340510.030.398623TRUETRUEVFRMETAR398.02019-12-11 17:07:20Z)5   3KTTF 111655Z AUTO 26018G23KT 10SM OVC029 M05/M12 A3032 RMK AO2 T10501123KTTF2019-12-11T16:55:00Z41.93-83.42-5.0-12.3260182310.030.318897TRUETRUEMVFRMETAR188.02019-12-11 17:07:20M)5     3KMQS 111655Z AUTO 28009KT 10SM CLR 01/M04 A3030 RMK AO2 P0002KMQS2019-12-11T16:55:00Z39.98-75.871.0-4.0280910.030.301182TRUETRUEVFR0.02METAR201.02019-12-11 17:07:20 6^J)5     3KMZG 111655Z AUTO 11020G26KT 2SM BR OVC017 A3045 RMK A01 VIS 1/4V5KMZG2019-12-11T16:55:00Z27.73-96.1811020262.030.448818TRUETRUEBRIFRMETAR29.02019-12-11 17:07:20R)5    3KMWO 111655Z AUTO 23012KT 10SM OVC070 M01/M07 A3047 RMK AO2 T10141074KMWO2019-12-11T16:55:00Z39.53-84.4-1.4-7.42301210.030.469488TRUETRUEVFRMETAR198.02019-12-11 17:07:20S)5   3KMTV 111655Z AUTO 33011G16KT 10SM CLR 03/M08 A3043 RMK AO2 T00311080KMTV2019-12-11T16:55:00Z36.63-80.023.1-8.0330111610.030.431103TRUETRUEVFRMETAR287.02019-12-11 17:07:20E(}5    3KMRJ 111655Z AUTO 33006KT 10SM CLR M08/M17 A3040 RMK AO2KMRJ2019-12-11T16:55:00Z42.88-90.23-8.0-17.0330610.030.398623TRUETRUEVFRMETAR359.02019-12-11 17:07:20 1VyF!(}5    3KHZX 111655Z AUTO 22005KT 10SM CLR M20/M24 A3036 RMK AO2KHZX2019-12-11T16:55:00Z46.62-93.32-20.0-24.0220510.030.360237TRUETRUEVFRMETAR374.02019-12-11 17:07:20X )%5    3KHTO 111655Z AUTO 34006KT 10SM SCT006 OVC050 M01/M04 A3026 RMK AO2 T10121039KHTO2019-12-11T16:55:00Z40.95-72.25-1.2-3.9340610.030.259842TRUETRUEVFRMETAR17.02019-12-11 17:07:20V)5   3KHSP 111655Z AUTO 28014G18KT 10SM CLR M06/M09 A3023 RMK AO2 T10601088KHSP2019-12-11T16:55:00Z37.95-79.82-6.0-8.8280141810.030.230314TRUETRUEVFRMETAR1156.02019-12-11 17:07:20J)5   3KN38 111655Z AUTO 21017G22KT 10SM CLR M03/M13 A3015 RMK AO2KN382019-12-11T16:55:00Z41.73-77.4-3.0-13.0210172210.030.15059TRUETRUEVFRMETAR577.02019-12-11 17:07:20 ,[~K%) 5    3KIMM 111655Z AUTO 24005KT 10SM FEW025 SCT032 30/23 A3017 RMK AO2KIMM2019-12-11T16:55:00Z26.43-81.430.023.0240510.030.171259TRUETRUEVFRMETAR12.02019-12-11 17:07:20X$)!5    3KIKT 111655Z AUTO 04022G32KT 2 1/2SM BR BKN017 16/14 A3031 RMK A01 VIS 2V4KIKT2019-12-11T16:55:00Z28.52-88.2816.014.04022322.530.31004TRUETRUEBRIFRMETAR25.02019-12-11 17:07:20L#)5    3KIJX 111655Z AUTO 27008KT 10SM CLR 00/M07 A3044 RMK AO2 T00001071KIJX2019-12-11T16:55:00Z39.77-90.250.0-7.1270810.030.43996TRUETRUEVFRMETAR190.02019-12-11 17:07:20O")5    3KIBM 111655Z AUTO 20007KT 10SM CLR 04/M03 A3008 RMK AO2 T00411035KIBM2019-12-11T16:55:00Z41.18-103.684.1-3.5200710.030.079725TRUETRUEVFRMETAR1501.02019-12-11 17:07:20 ,g?)({5    3KJSV 111655Z AUTO 00000KT 10SM CLR 05/M02 A3056 RMK AO2KJSV2019-12-11T16:55:00Z35.43-94.85.0-2.00010.030.561024TRUETRUEVFRMETAR161.02019-12-11 17:07:20W()'5   3KJKA 111655Z AUTO 03004G15KT 10SM BKN044 OVC050 07/03 A3043 RMK AO2 T00710026KJKA2019-12-11T16:55:00Z30.28-87.677.12.63041510.030.431103TRUETRUEVFRMETAR5.02019-12-11 17:07:20@'({5    3KJAU 111655Z AUTO 00000KT 10SM CLR 01/M06 A3055 RMK A01KJAU2019-12-11T16:55:00Z36.33-84.171.0-6.00010.030.549213TRUETRUEVFRMETAR360.02019-12-11 17:07:20O&)5   3KIYA 111655Z AUTO 02012G17KT 10SM CLR 10/00 A3047 RMK AO2 T01020004KIYA2019-12-11T16:55:00Z29.98-92.0810.20.420121710.030.469488TRUETRUEVFRMETAR5.02019-12-11 17:07:20 .h_-)+5   3KVLL 111655Z AUTO 27016G22KT 10SM SCT030 OVC036 M05/M12 A3029 RMK AO2 T10501116KVLL2019-12-11T16:55:00Z42.55-83.18-5.0-11.6270162210.030.28937TRUETRUEVFRSPECI222.02019-12-11 17:07:20B,({5    3KJWN 111655Z AUTO 25003KT 10SM CLR 04/M07 A3056 RMK A01KJWN2019-12-11T16:55:00Z36.18-86.884.0-7.0250310.030.561024TRUETRUEVFRMETAR151.02019-12-11 17:07:20A+({5    3KJTC 111655Z AUTO VRB03KT 10SM CLR 02/M07 A3031 RMK AO2KJTC2019-12-11T16:55:00Z34.13-109.322.0-7.00310.030.31004TRUETRUEVFRMETAR2150.02019-12-11 17:07:20M*)5    3KJVY 111655Z AUTO 21009KT 10SM CLR 02/M06 A3052 RMK AO2 T00221058KJVY2019-12-11T16:55:00Z38.37-85.732.2-5.8210910.030.519686TRUETRUEVFRMETAR145.02019-12-11 17:07:20 5gM1)5    3KLAM 111655Z AUTO 00000KT 10SM CLR 01/M06 A3032 RMK AO2 T00061057KLAM2019-12-11T16:55:00Z35.87-106.270.6-5.70010.030.318897TRUETRUEVFRMETAR2179.02019-12-11 17:07:20B0({5    3KKNB 111655Z AUTO 04005KT 10SM CLR 03/M03 A3031 RMK A01KKNB2019-12-11T16:55:00Z37.02-112.533.0-3.040510.030.31004TRUETRUEVFRMETAR1484.02019-12-11 17:07:20I/)5   3KJYO 111655Z AUTO 33012G20KT 10SM CLR 01/M06 A3038 RMK AO2KJYO2019-12-11T16:55:00Z39.07-77.571.0-6.0330122010.030.380905TRUETRUEVFRMETAR119.02019-12-11 17:07:20F.)5    3KUKT 111655Z AUTO 25005KT 10SM BKN048 01/M03 A3027 RMK A01KUKT2019-12-11T16:55:00Z40.43-75.381.0-3.0250510.030.268702TRUETRUEVFRMETAR160.02019-12-11 17:07:20 +UsQ5)5    3KTFP 111655Z AUTO 03012KT 10SM OVC012 10/07 A3051 RMK AO2 T00950071 PNOKTFP2019-12-11T16:55:00Z27.92-97.229.57.1301210.030.510826TRUETRUEMVFRMETAR6.02019-12-11 17:07:20]4)35    3KLOM 111655Z AUTO 30007KT 280V010 10SM SCT021 BKN048 02/M02 A3029 RMK AO2 T00181020KLOM2019-12-11T16:55:00Z40.13-75.271.8-2.0300710.030.28937TRUETRUEVFRMETAR92.02019-12-11 17:07:20Q3)5   3KLGC 111655Z AUTO 03011G17KT 10SM CLR 06/M08 A3047 RMK AO2 T00601082KLGC2019-12-11T16:55:00Z33.0-85.076.0-8.230111710.030.469488TRUETRUEVFRMETAR211.02019-12-11 17:07:20P2)5    3KLCG 111655Z AUTO 10005KT 10SM CLR M08/M13 A3039 RMK AO2 T10761128KLCG2019-12-11T16:55:00Z42.25-96.98-7.6-12.8100510.030.389763TRUETRUEVFRMETAR436.02019-12-11 17:07:20 .gJ9) 5    3KSRE 111655Z AUTO 29008KT 260V320 10SM CLR 07/M00 A3051 RMK AO2KSRE2019-12-11T16:55:00Z35.27-96.687.00.0290810.030.510826TRUETRUEVFRMETAR312.02019-12-11 17:07:20F8(5    3KSVE 111655Z AUTO 12004KT 10SM OVC025 03/02 A3021 RMK AO2KSVE2019-12-11T16:55:00Z40.37-120.573.02.0120410.030.209646TRUETRUEMVFRMETAR1263.02019-12-11 17:07:20B7({5    3KSYI 111655Z AUTO 20004KT 10SM CLR 03/M03 A3057 RMK A01KSYI2019-12-11T16:55:00Z35.57-86.453.0-3.0200410.030.569881TRUETRUEVFRMETAR245.02019-12-11 17:07:20M6)5     3KTCY 111655Z AUTO 12005KT 1/4SM FG OVC003 10/10 A3024 RMK A01KTCY2019-12-11T16:55:00Z37.68-121.4310.010.012050.2530.239174TRUETRUEFGLIFRMETAR59.02019-12-11 17:07:20 ;}B=({5    3KUCY 111655Z AUTO 19007KT 10SM CLR 05/M03 A3057 RMK A01KUCY2019-12-11T16:55:00Z36.38-88.985.0-3.0190710.030.569881TRUETRUEVFRMETAR104.02019-12-11 17:07:20A<({5    3KTHA 111655Z AUTO 02004KT 10SM CLR 03/M05 A3054 RMK A01KTHA2019-12-11T16:55:00Z35.38-86.253.0-5.020410.030.540354TRUETRUEVFRMETAR331.02019-12-11 17:07:209;(s5     3KSPR 111655Z AUTO 6SM HZ BKN013 11/09 A3036 RMK A01KSPR2019-12-11T16:55:00Z28.6-91.211.09.06.030.360237TRUETRUEHZMVFRMETAR31.02019-12-11 17:07:20@:({5    3KSRB 111655Z AUTO VRB04KT 10SM CLR 02/M05 A3054 RMK A01KSRB2019-12-11T16:55:00Z36.05-85.532.0-5.00410.030.540354TRUETRUEVFRMETAR313.02019-12-11 17:07:20 8TIA)5   3KVQT 111655Z AUTO 05024G31KT 7SM OVC013 13/11 A3037 RMK A01KVQT2019-12-11T16:55:00Z28.27-92.2713.011.05024317.030.369095TRUETRUEMVFRMETAR25.02019-12-11 17:07:20_@)-5    3KVKY 111655Z AUTO 05032G40KT 2 1/2SM BR SCT015 SCT020 BKN025 12/10 A3039 RMK A01KVKY2019-12-11T16:55:00Z29.25-88.4312.010.05032402.530.389763TRUETRUEBRIFRMETAR32.02019-12-11 17:07:20`?)/5    3KVAF 111655Z AUTO 04014G28KT 2 1/2SM HZ FEW017 SCT023 16/12 A3037 RMK A01 VIS 1V5KVAF2019-12-11T16:55:00Z27.35-94.6316.012.04014282.530.369095TRUETRUEHZIFRMETAR46.02019-12-11 17:07:20^>)%5   3KUSE 111655Z AUTO 26014G22KT 10SM FEW020 BKN027 OVC032 M05/M10 A3035 RMK AO2KUSE2019-12-11T16:55:00Z41.62-84.13-5.0-10.0260142210.030.351377TRUETRUEMVFRMETAR238.02019-12-11 17:07:20 5c6({5    3KPMU 111655Z AUTO 00000KT 10SM CLR 06/M02 A3059 RMK AO2KPMU2019-12-11T16:55:00Z34.37-89.96.0-2.00010.030.590551TRUETRUEVFRMETAR67.02019-12-11 17:07:20 .[T=)!5    3KSEF 111655Z AUTO 00000KT 10SM SCT009 SCT013 26/23 A3019 RMK AO2 T02550231KSEF2019-12-11T16:55:00Z27.45-81.3525.523.10010.030.188976TRUETRUEVFRMETAR19.02019-12-11 17:07:204<(m5     3KSBS 111655Z AUTO 00000KT 10SM CLR A3021 RMK AO1KSBS2019-12-11T16:55:00Z40.52-106.870010.030.209646TRUETRUEVFRMETAR2096.02019-12-11 17:07:20N;)5   3KREG 111655Z AUTO 05008G16KT 10SM CLR 12/02 A3047 RMK AO2 T01200020KREG2019-12-11T16:55:00Z30.17-90.9312.02.05081610.030.469488TRUETRUEVFRMETAR4.02019-12-11 17:07:20M:)5    3KRBO 111655Z AUTO 03007KT 10SM OVC014 08/05 A3053 RMK AO2 T00830051KRBO2019-12-11T16:55:00Z27.78-97.688.35.130710.030.528543TRUETRUEMVFRMETAR24.02019-12-11 17:07:20 8fBA({5    3KSME 111655Z AUTO 22004KT 10SM CLR 01/M09 A3055 RMK AO2KSME2019-12-11T16:55:00Z37.05-84.621.0-9.0220410.030.549213TRUETRUEVFRMETAR283.02019-12-11 17:07:20J@) 5    3KSLR 111655Z AUTO 12006KT 10SM CLR 08/00 A3060 RMK AO2 T00840003KSLR2019-12-11T16:55:00Z33.17-95.628.40.3120610.030.59941TRUETRUEVFRMETAR149.02019-12-11 17:07:20M?)5    3KSJS 111655Z AUTO 26006KT 10SM CLR 00/M06 A3050 RMK AO2 T00011061KSJS2019-12-11T16:55:00Z37.75-82.630.1-6.1260610.030.499016TRUETRUEVFRMETAR372.02019-12-11 17:07:20C>(}5    3KSFY 111655Z AUTO 00000KT 10SM CLR M06/M11 A3045 RMK AO2KSFY2019-12-11T16:55:00Z42.05-90.12-6.0-11.00010.030.448818TRUETRUEVFRMETAR188.02019-12-11 17:07:20 -cNE)5    3KT35 111655Z AUTO 35004KT 10SM SCT017 08/03 A3057 RMK AO2 T00780030KT352019-12-11T16:55:00Z30.88-96.977.83.0350410.030.569881TRUETRUEVFRMETAR123.02019-12-11 17:07:20ND)5    3KT20 111655Z AUTO 03006KT 10SM BKN019 10/04 A3053 RMK AO2 T00980041KT202019-12-11T16:55:00Z29.52-97.479.84.130610.030.528543TRUETRUEMVFRSPECI108.02019-12-11 17:07:20EC(5    3KSOA 111655Z AUTO 17007KT 10SM OVC011 07/05 A3052 RMK AO2KSOA2019-12-11T16:55:00Z30.58-100.657.05.0170710.030.519686TRUETRUEMVFRMETAR652.02019-12-11 17:07:20NB)5    3KSNL 111655Z AUTO 20010KT 10SM CLR 06/M01 A3049 RMK AO2 T00611006KSNL2019-12-11T16:55:00Z35.35-96.956.1-0.62001010.030.490158TRUETRUEVFRMETAR327.02019-12-11 17:07:20 .eRI)5    3KTMK 111655Z AUTO 16005KT 10SM SCT028 SCT032 SCT050 09/07 A3001 RMK AO2KTMK2019-12-11T16:55:00Z45.42-123.829.07.0160510.030.008858TRUETRUEVFRMETAR11.02019-12-11 17:07:20PH)5    3KTIP 111655Z AUTO 00000KT 10SM OVC044 M03/M08 A3045 RMK AO2 T10271081KTIP2019-12-11T16:55:00Z40.28-88.15-2.7-8.10010.030.448818TRUETRUEVFRSPECI225.02019-12-11 17:07:20DG({5    3KTEX 111655Z AUTO 17005KT 10SM CLR 00/M13 A3027 RMK AO2KTEX2019-12-11T16:55:00Z37.95-107.90.0-13.0170510.030.268702TRUETRUEVFRSPECI2769.02019-12-11 17:07:20MF)5    3KTAZ 111655Z AUTO 23005KT 10SM CLR 00/M05 A3045 RMK AO2 T00001048KTAZ2019-12-11T16:55:00Z39.53-89.330.0-4.8230510.030.448818TRUETRUEVFRMETAR190.02019-12-11 17:07:20 /^HM) 5    3K0R4 111655Z AUTO 01007KT 10SM CLR 08/00 A3054 RMK AO2 T00770000K0R42019-12-11T16:55:00Z31.57-91.57.70.010710.030.540354TRUETRUEVFRMETAR17.02019-12-11 17:07:20ZL)%5    3K06C 111655Z AUTO 28005KT 10SM BKN019 BKN026 M07/M12 A3041 RMK AO2 T10661116K06C2019-12-11T16:55:00Z41.98-88.1-6.6-11.6280510.030.410433TRUETRUEMVFRSPECI244.02019-12-11 17:07:20LK)5    3KTOC 111655Z AUTO 33004KT 10SM CLR 10/M07 A3040 RMK AO2 T01021072KTOC2019-12-11T16:55:00Z34.6-83.310.2-7.2330410.030.398623TRUETRUEVFRMETAR304.02019-12-11 17:07:20LJ)5    3KTMT 111655Z AUTO 00000KT 10SM CLR 02/M03 A3026 RMK AO2 T00221034KTMT2019-12-11T16:55:00Z39.47-117.22.2-3.40010.030.259842TRUETRUEVFRMETAR1748.02019-12-11 17:07:20 2_=R(y5    3K5C1 111655Z AUTO 00000KT 10SM CLR 06/02 A3052 RMK AO1K5C12019-12-11T16:55:00Z29.72-98.76.02.00010.030.519686TRUETRUEVFRSPECI423.02019-12-11 17:07:20IQ)5   3K3AU 111655Z AUTO 20010G15KT 10SM CLR 05/M05 A3041 RMK AO2K3AU2019-12-11T16:55:00Z37.67-97.085.0-5.0200101510.030.410433TRUETRUEVFRMETAR405.02019-12-11 17:07:205P(q5   3K2W6 111655Z AUTO 29008KT CLR 03/M07 A3038 RMK AO1K2W62019-12-11T16:55:00Z38.32-76.553.0-7.0290830.380905TRUETRUEMETAR44.02019-12-11 17:07:20NO)5    3K1H2 111655Z AUTO 19007KT 10SM CLR 01/M11 A3048 RMK AO2 T00121114K1H22019-12-11T16:55:00Z39.07-88.531.2-11.4190710.030.481298TRUETRUEVFRMETAR179.02019-12-11 17:07:20IN) 5    3K11R 111655Z AUTO 03005KT 10SM CLR 09/04 A3055 RMK AO2 T00920040K11R2019-12-11T16:55:00Z30.22-96.379.24.030510.030.549213TRUETRUEVFRMETAR94.02019-12-11 17:07:20 4eLV)5    3KA08 111655Z AUTO 35006KT 10SM CLR 07/M02 A3052 RMK AO2 T00651018KA082019-12-11T16:55:00Z32.52-87.386.5-1.8350610.030.519686TRUETRUEVFRMETAR69.02019-12-11 17:07:20FU) 5    3K6R3 111655Z AUTO 02006KT 7SM CLR 09/02 A3054 RMK AO2 T00940018K6R32019-12-11T16:55:00Z30.35-95.09.41.82067.030.540354TRUETRUEVFRMETAR46.02019-12-11 17:07:20JT) 5    3K6P9 111655Z AUTO 19008KT 10SM CLR 06/01 A3052 RMK AO2 T00610012K6P92019-12-11T16:55:00Z32.43-98.66.11.2190810.030.519686TRUETRUEVFRMETAR449.02019-12-11 17:07:20GS)5   3K6A1 111655Z AUTO 35012KT 10SM 08/M02 A3043 RMK AO2 T00821018K6A12019-12-11T16:55:00Z32.57-84.258.2-1.83501210.030.431103TRUETRUEMETAR203.02019-12-11 17:07:20 ,PvFZ)5   3KBDG 111655Z AUTO 00000KT 10SM 02/M03 A3037 RMK AO1 T00151031KBDG2019-12-11T16:55:00Z37.58-109.471.5-3.10010.030.369095TRUETRUEMETAR1788.02019-12-11 17:07:20UY)!5    3KAZE 111655Z AUTO 01007KT 10SM BKN016 BKN022 14/08 A3034 RMK AO2 T01350078KAZE2019-12-11T16:55:00Z31.88-82.6513.57.810710.030.339567TRUETRUEMVFRMETAR78.02019-12-11 17:07:20WX)5     3KAYS 111655Z AUTO 02010KT 10SM OVC014 13/09 A3034 RMK AO2 T01320092 TSNOKAYS2019-12-11T16:55:00Z31.25-82.413.29.2201010.030.339567TRUETRUETRUEMVFRMETAR46.02019-12-11 17:07:20OW)5    3KAAA 111655Z AUTO 29006KT 10SM SCT085 01/M07 A3044 RMK AO2 T00061070KAAA2019-12-11T16:55:00Z40.17-89.330.6-7.0290610.030.43996TRUETRUEVFRMETAR182.02019-12-11 17:07:20 8mA^({5    3KCGE 111655Z AUTO 31012KT 10SM CLR 04/M05 A3035 RMK A01KCGE2019-12-11T16:55:00Z38.53-76.034.0-5.03101210.030.351377TRUETRUEVFRSPECI6.02019-12-11 17:07:20_])+5     3KC75 111655Z AUTO 28003KT 7SM -SN BKN024 OVC031 M05/M08 A3045 RMK AO2 T10481085KC752019-12-11T16:55:00Z41.02-89.38-4.8-8.528037.030.448818TRUETRUE-SNMVFRSPECI173.02019-12-11 17:07:20F\) 5    3KBIJ 111655Z AUTO 02006KT 10SM SCT060 SCT085 08/00 A3042 RMK AO2KBIJ2019-12-11T16:55:00Z31.4-84.98.00.020610.030.41929TRUETRUEVFRMETAR65.02019-12-11 17:07:20C[(5    3KBHC 111655Z AUTO 01006KT 10SM OVC014 12/10 A3034 RMK AO2KBHC2019-12-11T16:55:00Z31.72-82.412.010.010610.030.339567TRUETRUEMVFRMETAR61.02019-12-11 17:07:20 1bMb)5    3KCVB 111655Z AUTO 07005KT 10SM SCT017 09/02 A3055 RMK AO2 T00900016KCVB2019-12-11T16:55:00Z29.35-98.859.01.670510.030.549213TRUETRUEVFRSPECI235.02019-12-11 17:07:20Qa)5     3KCOM 111655Z AUTO 21009KT 1SM BR OVC003 04/04 A3052 RMK AO2 T00410038KCOM2019-12-11T16:55:00Z31.83-99.44.13.821091.030.519686TRUETRUEBRLIFRMETAR517.02019-12-11 17:07:20J`) 5    3KCKF 111655Z AUTO 36009KT 10SM CLR 10/02 A3041 RMK AO2 T00950024KCKF2019-12-11T16:55:00Z31.98-83.779.52.4360910.030.410433TRUETRUEVFRMETAR91.02019-12-11 17:07:20J_) 5    3KCIR 111655Z AUTO 21006KT 7SM CLR 03/M03 A3056 RMK AO2 T00341027KCIR2019-12-11T16:55:00Z37.07-89.223.4-2.721067.030.561024TRUETRUEVFRMETAR98.02019-12-11 17:07:20 5cVf)#5    3KDCY 111655Z AUTO 23007KT 10SM SCT060 OVC075 01/M06 A3051 RMK AO2 T00051065KDCY2019-12-11T16:55:00Z38.7-87.130.5-6.5230710.030.510826TRUETRUEVFRMETAR144.02019-12-11 17:07:20Je) 5    3KDBN 111655Z AUTO 03008KT 10SM SCT022 SCT027 10/05 A3038 RMK AO2KDBN2019-12-11T16:55:00Z32.57-82.9810.05.030810.030.380905TRUETRUEVFRMETAR94.02019-12-11 17:07:20Md)5    3KCXU 111655Z AUTO 04004KT 10SM OVC110 11/06 A3040 RMK AO1 T01050060KCXU2019-12-11T16:55:00Z31.22-84.2310.56.040410.030.398623TRUETRUEVFRMETAR53.02019-12-11 17:07:20Fc)5    3KCVC 111655Z AUTO 31009KT 10SM CLR 07/M03 A3042 RMK AO2 PNOKCVC2019-12-11T16:55:00Z33.63-83.857.0-3.0310910.030.41929TRUETRUEVFRMETAR247.02019-12-11 17:07:20 5gWj)5     3KE11 111655Z AUTO 19010KT 1/4SM FG OVC003 05/05 A3040 RMK AO2 T00460046KE112019-12-11T16:55:00Z32.33-102.534.64.6190100.2530.398623TRUETRUEFGLIFRSPECI967.02019-12-11 17:07:20Ki)5   3KDUB 111655Z AUTO 31012G24KT 10SM CLR 01/M12 A2998 RMK AO2KDUB2019-12-11T16:55:00Z43.55-109.681.0-12.0310122410.029.97933TRUETRUEVFRMETAR2224.02019-12-11 17:07:20Ih)5   3KDNN 111655Z AUTO 35013G19KT 10SM CLR 06/M05 A3053 RMK AO2KDNN2019-12-11T16:55:00Z34.72-84.876.0-5.0350131910.030.528543TRUETRUEVFRMETAR216.02019-12-11 17:07:20Fg)5   3KDMW 111655Z AUTO 29012G16KT 10SM CLR 01/M06 A3031 RMK AO2KDMW2019-12-11T16:55:00Z39.6-77.01.0-6.0290121610.030.31004TRUETRUEVFRSPECI241.02019-12-11 17:07:20 .oNn)5    3KETN 111655Z AUTO 17008KT 10SM OVC005 03/02 A3052 RMK AO2 T00350021KETN2019-12-11T16:55:00Z32.42-98.823.52.1170810.030.519686TRUETRUEIFRSPECI446.02019-12-11 17:07:20Nm)5   3KELA 111655Z AUTO 04009G14KT 10SM CLR 11/04 A3053 RMK AO2 T01070039KELA2019-12-11T16:55:00Z29.6-96.3210.73.94091410.030.528543TRUETRUEVFRSPECI56.02019-12-11 17:07:20:l(m5    3KECS 111655Z AUTO 10SM CLR M04/M07 A2999 RMK AO2KECS2019-12-11T16:55:00Z43.88-104.32-4.0-7.010.029.991142TRUETRUEVFRMETAR1273.02019-12-11 17:07:20Mk)5    3KEBG 111655Z AUTO 03007KT 10SM OVC013 09/05 A3052 RMK AO2 T00910052KEBG2019-12-11T16:55:00Z26.45-98.139.15.230710.030.519686TRUETRUEMVFRMETAR24.02019-12-11 17:07:20 <wMr) 5     3KGGP 111655Z AUTO 27009KT 2SM -SN OVC014 M05/M07 A3045 RMK AO2KGGP2019-12-11T16:55:00Z40.72-86.37-5.0-7.027092.030.448818TRUETRUE-SNIFRMETAR225.02019-12-11 17:07:20Zq)%5    3KGBG 111655Z AUTO 29008KT 10SM BKN019 BKN025 M04/M07 A3045 RMK AO2 T10381074KGBG2019-12-11T16:55:00Z40.93-90.43-3.8-7.4290810.030.448818TRUETRUEMVFRMETAR233.02019-12-11 17:07:20@p(y5    3KF70 111655Z AUTO 00000KT 10SM CLR 10/05 A3023 RMK AO1KF702019-12-11T16:55:00Z33.57-117.1310.05.00010.030.230314TRUETRUEVFRMETAR412.02019-12-11 17:07:20?o(y5    3KF44 111655Z AUTO 07004KT 10SM CLR 07/00 A3056 RMK AO2KF442019-12-11T16:55:00Z32.17-95.837.00.070410.030.561024TRUETRUEVFRMETAR135.02019-12-11 17:07:20 9[w)%5   3KJZP 111655Z AUTO 03014G19KT 010V070 10SM CLR 06/M10 A3045 RMK AO2 T00591100KJZP2019-12-11T16:55:00Z34.45-84.475.9-10.030141910.030.448818TRUETRUEVFRMETAR468.02019-12-11 17:07:20Lv)5    3KJCA 111655Z AUTO 33006KT 10SM CLR 09/M04 A3042 RMK AO2 T00921040KJCA2019-12-11T16:55:00Z34.18-83.579.2-4.0330610.030.41929TRUETRUEVFRMETAR290.02019-12-11 17:07:20?u(y5    3KHZR 111655Z AUTO 06007KT 10SM CLR 10/02 A3051 RMK AO2KHZR2019-12-11T16:55:00Z30.72-91.4810.02.060710.030.510826TRUETRUEVFRMETAR12.02019-12-11 17:07:20-t(k5   3KHOE 111655Z 04006KT OVC016 13/08 A3034 RMK AO2KHOE2019-12-11T16:55:00Z31.05-82.7813.08.040630.339567TRUEMETAR57.02019-12-11 17:07:20Bs(y5    3KHII 111655Z AUTO 14004KT 10SM CLR 10/05 A3024 RMK AO2KHII2019-12-11T16:55:00Z34.57-114.3710.05.0140410.030.239174TRUETRUEVFRSPECI238.02019-12-11 17:07:20 2NlK{) 5    3KLRU 111655Z AUTO 00000KT 10SM CLR 07/07 A3037 RMK AO2 T00700070KLRU2019-12-11T16:55:00Z32.27-106.927.07.00010.030.369095TRUETRUEVFRMETAR1358.02019-12-11 17:07:20]z)-5     3KLOT 111655Z AUTO 31008KT 270V340 5SM -SN OVC016 M06/M09 A3044 RMK AO2 T10641088KLOT2019-12-11T16:55:00Z41.6-88.1-6.4-8.831085.030.43996TRUETRUE-SNMVFRSPECI205.02019-12-11 17:07:20_y))5   3KLNN 111655Z AUTO 25019G30KT 7SM BKN029 OVC038 M04/M11 A3030 RMK AO1 T10371111KLNN2019-12-11T16:55:00Z41.67-81.37-3.7-11.125019307.030.301182TRUETRUEMVFRMETAR191.02019-12-11 17:07:20Ix)5   3KLCQ 111655Z AUTO 01010G15KT 10SM OVC005 11/09 A3032 RMK AO2KLCQ2019-12-11T16:55:00Z30.18-82.5811.09.010101510.030.318897TRUETRUEIFRMETAR61.02019-12-11 17:07:20 O{I)5     3KOGS 111655Z AUTO 21008KT 1SM -SN CLR M03/M06 A3010 RMK AO2KOGS2019-12-11T16:55:00Z44.67-75.47-3.0-6.021081.030.100393TRUETRUE-SNIFRMETAR91.02019-12-11 17:07:20O~)5    3KOGA 111655Z AUTO 14003KT 10SM CLR 00/M03 A3018 RMK AO2 T10011028KOGA2019-12-11T16:55:00Z41.12-101.77-0.1-2.8140310.030.180119TRUETRUEVFRSPECI999.02019-12-11 17:07:20I})5    3KNY0 111655Z AUTO 29006KT 10SM OVC048 M04/M11 A3019 RMK AO2KNY02019-12-11T16:55:00Z42.98-74.33-4.0-11.0290610.030.188976TRUETRUEVFRMETAR271.02019-12-11 17:07:20^|)15    3KMZZ 111655Z AUTO 26008KT 7SM SCT017 SCT023 OVC042 M05/M07 A3043 RMK AO2 T10551073KMZZ2019-12-11T16:55:00Z40.48-85.68-5.5-7.326087.030.431103TRUETRUEVFRSPECI262.02019-12-11 17:07:20 2XO)5    3KONL 111655Z AUTO 14007KT 10SM CLR M07/M11 A3031 RMK AO2 T10681111KONL2019-12-11T16:55:00Z42.47-98.67-6.8-11.1140710.030.31004TRUETRUEVFRMETAR619.02019-12-11 17:07:20M)5    3KOLY 111655Z AUTO 18009KT 10SM CLR 01/M05 A3049 RMK AO2 T00081050KOLY2019-12-11T16:55:00Z38.72-88.180.8-5.0180910.030.490158TRUETRUEVFRMETAR147.02019-12-11 17:07:20U)5    3KOKM 111655Z AUTO 21007KT 170V230 10SM CLR 07/M01 A3052 RMK AO2 T00651010KOKM2019-12-11T16:55:00Z35.67-95.956.5-1.0210710.030.519686TRUETRUEVFRMETAR220.02019-12-11 17:07:20I)5   3KOJA 111655Z AUTO 20010G15KT 10SM CLR 07/M01 A3043 RMK AO2KOJA2019-12-11T16:55:00Z35.55-98.677.0-1.0200101510.030.431103TRUETRUEVFRMETAR490.02019-12-11 17:07:20 ,f\)'5   3KTXW 111655Z AUTO 36011G16KT 10SM BKN018 OVC023 10/06 A3049 RMK AO2 T01020056KTXW2019-12-11T16:55:00Z26.18-97.9710.25.6360111610.030.490158TRUETRUEMVFRMETAR21.02019-12-11 17:07:20H)5   3KTVI 111655Z AUTO 03012G15KT 10SM OVC110 11/07 A3036 RMK AO2KTVI2019-12-11T16:55:00Z30.9-83.8811.07.030121510.030.360237TRUETRUEVFRMETAR80.02019-12-11 17:07:20A({5    3KTQH 111655Z AUTO 18003KT 10SM CLR 06/M02 A3054 RMK AO2KTQH2019-12-11T16:55:00Z35.93-95.06.0-2.0180310.030.540354TRUETRUEVFRMETAR266.02019-12-11 17:07:20O)5    3KONM 111655Z AUTO 00000KT 10SM SCT015 03/M02 A3036 RMK AO2 T00261022KONM2019-12-11T16:55:00Z34.02-106.92.6-2.20010.030.360237TRUETRUEVFRSPECI1410.02019-12-11 17:07:20 #OY )%5    3KVYS 111655Z AUTO 29006KT 10SM SCT012 OVC040 M06/M09 A3045 RMK AO2 T10641094KVYS2019-12-11T16:55:00Z41.35-89.15-6.4-9.4290610.030.448818TRUETRUEVFRMETAR199.02019-12-11 17:07:20B (5    3KVDI 111655Z AUTO 01008KT 10SM BKN017 14/08 A3035 RMK AO2KVDI2019-12-11T16:55:00Z32.2-82.3714.08.010810.030.351377TRUETRUEMVFRMETAR84.02019-12-11 17:07:20O )5   3KUXL 111655Z AUTO 01010G16KT 10SM CLR 11/02 A3050 RMK AO2 T01080024KUXL2019-12-11T16:55:00Z30.13-93.3810.82.410101610.030.499016TRUETRUEVFRMETAR4.02019-12-11 17:07:20X)%5    3KTYQ 111655Z AUTO 25007KT 10SM BKN039 OVC046 M05/M09 A3044 RMK AO2 T10461090KTYQ2019-12-11T16:55:00Z40.03-86.25-4.6-9.0250710.030.43996TRUETRUEVFRSPECI281.02019-12-11 17:07:20 .gB({5    3KWDR 111655Z AUTO 33008KT 10SM CLR 07/M05 A3045 RMK AO2KWDR2019-12-11T16:55:00Z33.98-83.677.0-5.0330810.030.448818TRUETRUEVFRMETAR287.02019-12-11 17:07:20M)5    3KW99 111655Z AUTO 26006KT 10SM CLR 00/M11 A3036 RMK AO2 T00041108KW992019-12-11T16:55:00Z39.0-79.150.4-10.8260610.030.360237TRUETRUEVFRMETAR293.02019-12-11 17:07:20B ({5    3KW29 111655Z AUTO 30011KT 10SM CLR 04/M06 A3036 RMK AO2KW292019-12-11T16:55:00Z38.98-76.334.0-6.03001110.030.360237TRUETRUEVFRSPECI15.02019-12-11 17:07:20M ) 5   3KW22 111655Z AUTO 22008G14KT 10SM BKN029 M01/M07 A3037 RMK AO2KW222019-12-11T16:55:00Z39.0-80.27-1.0-7.022081410.030.369095TRUETRUEMVFRSPECI499.02019-12-11 17:07:20 -Q|\)'5   3PALU 111655Z 21019G27KT 10SM FEW060 BKN110 01/M04 A2963 RMK AO2A SLP032 RCRNRPALU2019-12-11T16:55:00Z68.88-166.11.0-4.0210192710.029.6309051003.2TRUEVFRMETAR3.02019-12-11 17:07:20P)5    3PAAD 111655Z AUTO 12008KT 10SM CLR M16/M18 A2976 RMK AO2 T11571176PAAD2019-12-11T16:55:00Z70.13-146.28-15.7-17.6120810.029.760826TRUETRUEVFRMETAR8.02019-12-11 17:07:20W)!5    3KZPH 111655Z AUTO 32005KT 10SM BKN011 BKN019 25/22 A3022 RMK A02 T02480218KZPH2019-12-11T16:55:00Z28.23-82.1524.821.8320510.030.221457TRUETRUEMVFRMETAR26.02019-12-11 17:07:20N)5    3KXBP 111655Z AUTO 13007KT 10SM SCT003 03/02 A3056 RMK AO2 T00310017KXBP2019-12-11T16:55:00Z33.18-97.833.11.7130710.030.561024TRUETRUEVFRMETAR260.02019-12-11 17:07:20 I_G(}5    3KELO 111655Z AUTO 26011KT 10SM CLR M24/M28 A3023 RMK AO2KELO2019-12-11T16:55:00Z47.82-91.82-24.0-28.02601110.030.230314TRUETRUEVFRMETAR443.02019-12-11 17:07:20e)C5   3NZWD 111655Z 09015KT 9999 FEW015 SCT030 BKN060 M04/M07 A2941 RMK SLP958 GRID26015KT SDP/HDGNZWD2019-12-11T16:55:00Z-77.87167.07-4.0-7.090156.2129.409449995.8VFRMETAR22.02019-12-11 17:07:20N)5   3RJOI 111655Z 36003KT 9999 FEW030 FEW050 09/07 A3002 RMK SLP164 T00940072RJOI2019-12-11T16:55:00Z34.13132.229.47.236036.2130.020671016.4VFRMETAR2.02019-12-11 17:07:20_)#5    3PATC 111655Z AUTO 16016KT 10SM BKN034 00/M01 A2953 RMK AO2 SLP005 T10041015PATC2019-12-11T16:55:00Z65.57-167.92-0.4-1.51601610.029.5305121000.5TRUETRUEVFRMETAR83.02019-12-11 17:07:20 +cm)?5    3KFKS 111655Z AUTO 29012G20KT 3SM -SN SCT012 BKN020 OVC029 M12/M16 A3032 RMK AO2 T11191161KFKS2019-12-11T16:55:00Z44.63-86.2-11.9-16.129012203.030.318897TRUETRUE-SNMVFRMETAR193.02019-12-11 17:07:20N)5    3KFSO 111655Z AUTO 17007KT 10SM CLR M02/M12 A3019 RMK AO2 T10251120KFSO2019-12-11T16:55:00Z44.93-73.1-2.5-12.0170710.030.188976TRUETRUEVFRMETAR70.02019-12-11 17:07:20C(}5    3KFSW 111655Z AUTO 01010KT 10SM CLR M02/M08 A3044 RMK AO2KFSW2019-12-11T16:55:00Z40.67-91.32-2.0-8.0101010.030.43996TRUETRUEVFRSPECI221.02019-12-11 17:07:20P)5    3KROS 111655Z AUTO 26004KT 10SM CLR M20/M25 A3043 RMK AO2 T12041247KROS2019-12-11T16:55:00Z45.7-92.95-20.4-24.7260410.030.431103TRUETRUEVFRSPECI281.02019-12-11 17:07:20 +VM)5    3KGDB 111655Z AUTO 00000KT 7SM CLR M18/M22 A3047 RMK AO2 T11831220KGDB2019-12-11T16:55:00Z44.75-95.55-18.3-22.0007.030.469488TRUETRUEVFRSPECI319.02019-12-11 17:07:20D(}5    3KGHW 111655Z AUTO 00000KT 10SM CLR M21/M22 A3038 RMK AO2KGHW2019-12-11T16:55:00Z45.63-95.32-21.0-22.00010.030.380905TRUETRUEVFRSPECI425.02019-12-11 17:07:20P)5    3KGNT 111655Z AUTO 31006KT 10SM CLR M02/M05 A3034 RMK AO2 T10201047KGNT2019-12-11T16:55:00Z35.17-107.9-2.0-4.7310610.030.339567TRUETRUEVFRSPECI1987.02019-12-11 17:07:20P)5    3KFKA 111655Z AUTO 31004KT 10SM CLR M16/M22 A3042 RMK AO2 T11631216KFKA2019-12-11T16:55:00Z43.68-92.17-16.3-21.6310410.030.41929TRUETRUEVFRSPECI389.02019-12-11 17:07:20 +Id#)95     3KHAI 111655Z AUTO 28007KT 2SM -SN BKN015 BKN021 OVC027 M05/M09 A3037 RMK AO2 T10531091KHAI2019-12-11T16:55:00Z41.97-85.6-5.3-9.128072.030.369095TRUETRUE-SNIFRMETAR251.02019-12-11 17:07:20C"(}5    3KHAF 111655Z AUTO 16004KT 8SM OVC014 14/13 A3022 RMK AO2KHAF2019-12-11T16:55:00Z37.52-122.514.013.016048.030.221457TRUETRUEMVFRMETAR21.02019-12-11 17:07:20]!)15    3OKAS 111655Z 00000KT 9999 CLR 16/06 A3008 RMK AO2A SLP185 WND DATA ESTMD T01600056OKAS2019-12-11T16:55:00Z29.3547.3516.05.6006.2130.0797251018.5TRUEVFRMETAR144.02019-12-11 17:07:20P )5    3KY49 111655Z AUTO 26004KT 10SM CLR M20/M25 A3031 RMK AO2 T11981254KY492019-12-11T16:55:00Z47.13-94.65-19.8-25.4260410.030.31004TRUETRUEVFRSPECI416.02019-12-11 17:07:20 7m\')#5   3KOWX 111655Z AUTO 27015G22KT 7SM SCT019 BKN026 OVC032 M07/M12 A3040 RMK AO1KOWX2019-12-11T16:55:00Z41.03-83.98-7.0-12.027015227.030.398623TRUETRUEMVFRMETAR233.02019-12-11 17:07:20M&)5    3KPCD 111655Z AUTO 19007KT 10SM CLR 05/M05 A3050 RMK AO2 T00451049KPCD2019-12-11T16:55:00Z37.87-89.874.5-4.9190710.030.499016TRUETRUEVFRMETAR113.02019-12-11 17:07:20E%(}5    3KMZH 111655Z AUTO 25004KT 10SM CLR M20/M24 A3036 RMK AO2KMZH2019-12-11T16:55:00Z46.42-92.8-20.0-24.0250410.030.360237TRUETRUEVFRMETAR328.02019-12-11 17:07:20D$(}5    3KHCO 111655Z AUTO 00000KT 10SM CLR M22/M26 A3034 RMK AO2KHCO2019-12-11T16:55:00Z48.75-96.93-22.0-26.00010.030.339567TRUETRUEVFRMETAR250.02019-12-11 17:07:20 7UE+)5    3K22N 111655Z AUTO 29004KT 10SM SCT041 02/M03 A3026 RMK AO2K22N2019-12-11T16:55:00Z40.8-75.772.0-3.0290410.030.259842TRUETRUEVFRMETAR163.02019-12-11 17:07:20N*)5    3KY63 111655Z AUTO 00000KT 10SM CLR M23/M26 A3041 RMK AO2 T12331256KY632019-12-11T16:55:00Z45.98-96.0-23.3-25.60010.030.410433TRUETRUEVFRSPECI367.02019-12-11 17:07:20])))5   3KY70 111655Z AUTO 29017G25KT 7SM SCT034 BKN040 M08/M15 A3031 RMK AO2 T10761151KY702019-12-11T16:55:00Z42.93-85.07-7.6-15.129017257.030.31004TRUETRUEVFRMETAR250.02019-12-11 17:07:20D((}5    3K06D 111655Z AUTO 00000KT 10SM CLR M18/M24 A3022 RMK AO2K06D2019-12-11T16:55:00Z48.88-99.62-18.0-24.00010.030.221457TRUETRUEVFRSPECI556.02019-12-11 17:07:20 HR/)5    3KAEJ 111655Z AUTO 34003KT 10SM CLR M07/M13 A3024 RMK AO2 T10661132KAEJ2019-12-11T16:55:00Z38.82-106.12-6.6-13.2340310.030.239174TRUETRUEVFRSPECI2422.02019-12-11 17:07:20+.(_5   3KADM 111655Z 17008KT 10SM CLR 07/02 A3054KADM2019-12-11T16:55:00Z34.28-97.027.02.0170810.030.540354VFRMETAR232.02019-12-11 17:07:20F-(}5    3KADC 111655Z AUTO 25003KT 10SM CLR M22/M24 A3036 RMK AO2KADC2019-12-11T16:55:00Z46.45-95.22-22.0-24.0250310.030.360237TRUETRUEVFRMETAR418.02019-12-11 17:07:20h,)95     3KACB 111655Z AUTO 23010KT 4SM -SN SCT011 BKN033 OVC047 M10/M14 A3025 RMK AO2 T11051142KACB2019-12-11T16:55:00Z44.98-85.2-10.5-14.2230104.030.250984TRUETRUE-SNMVFRSPECI190.02019-12-11 17:07:20 2aM3)5    3KBKS 111655Z AUTO 02009KT 10SM OVC016 10/05 A3051 RMK AO1 T01010049KBKS2019-12-11T16:55:00Z27.2-98.1210.14.920910.030.510826TRUETRUEMVFRMETAR34.02019-12-11 17:07:20C2(}5    3KBBB 111655Z AUTO 00000KT 10SM CLR M21/M24 A3044 RMK AO2KBBB2019-12-11T16:55:00Z45.32-95.65-21.0-24.00010.030.43996TRUETRUEVFRSPECI317.02019-12-11 17:07:20L1)5    3KW81 111655Z AUTO 31007KT 10SM CLR 05/M07 A3038 RMK AO1 T00511070KW812019-12-11T16:55:00Z37.18-78.15.1-7.0310710.030.380905TRUETRUEVFRMETAR129.02019-12-11 17:07:20I0)5   3KAIO 111655Z AUTO 06008G13KT 10SM CLR M06/M10 A3042 RMK AO2KAIO2019-12-11T16:55:00Z41.38-95.03-6.0-10.06081310.030.41929TRUETRUEVFRSPECI360.02019-12-11 17:07:20 $SL7)5   3K0R0 111655Z AUTO 03007G13KT 360V080 10SM CLR 09/M00 A3055 RMK AO2K0R02019-12-11T16:55:00Z31.3-89.829.00.03071310.030.549213TRUETRUEVFRMETAR81.02019-12-11 17:07:20K6)5    3KCHK 111655Z AUTO 19008KT 10SM CLR 07/M01 A3046 RMK AO2 T00691007KCHK2019-12-11T16:55:00Z35.1-97.976.9-0.7190810.030.46063TRUETRUEVFRMETAR351.02019-12-11 17:07:20L5)5    3KUVA 111655Z AUTO 00000KT 10SM SCT011 08/04 A3055 RMK AO2 T00760039KUVA2019-12-11T16:55:00Z29.22-99.757.63.90010.030.549213TRUETRUEVFRMETAR287.02019-12-11 17:07:20W4)5     3KPNT 111655Z AUTO 28003KT 4SM -SN OVC030 M05/M08 A3046 RMK AO2 T10511076KPNT2019-12-11T16:55:00Z40.92-88.62-5.1-7.628034.030.46063TRUETRUE-SNMVFRMETAR201.02019-12-11 17:07:20 .ZM;)5    3KRQO 111655Z AUTO 19014KT 10SM CLR 06/M02 A3047 RMK AO2 T00601016KRQO2019-12-11T16:55:00Z35.47-98.06.0-1.61901410.030.469488TRUETRUEVFRSPECI432.02019-12-11 17:07:20K:)5    3KRNV 111655Z AUTO 08005KT 10SM CLR 05/M02 A3059 RMK AO2 T00511025KRNV2019-12-11T16:55:00Z33.77-90.755.1-2.580510.030.590551TRUETRUEVFRSPECI41.02019-12-11 17:07:20O9)5    3KRNH 111655Z AUTO 00000KT 10SM CLR M19/M22 A3043 RMK AO2 T11901217KRNH2019-12-11T16:55:00Z45.15-92.53-19.0-21.70010.030.431103TRUETRUEVFRMETAR304.02019-12-11 17:07:20M8)5    3KPTT 111655Z AUTO 21013KT 10SM CLR 06/M08 A3034 RMK AO2 T00611077KPTT2019-12-11T16:55:00Z37.7-98.756.1-7.72101310.030.339567TRUETRUEVFRMETAR595.02019-12-11 17:07:20 2aq?)Q5    3CYND 111654Z 10006KT 4SM -SHSN BKN025 BKN080 M07/M09 A3010 RMK SC6AC1 CVCTV CLD EMBD PRESFR SLP200CYND2019-12-11T16:54:00Z45.52-75.57-7.0-9.010064.030.1003931020.0-SHSNMVFRSPECI64.02019-12-11 17:07:20J>) 5    3KT82 111655Z AUTO 03003KT 10SM CLR 07/02 A3051 RMK AO2 T00740021KT822019-12-11T16:55:00Z30.25-98.927.42.130310.030.510826TRUETRUEVFRMETAR517.02019-12-11 17:07:20L=) 5    3KTBR 111655Z AUTO 35010KT 10SM CLR 15/05 A3034 RMK AO2 T01480049KTBR2019-12-11T16:55:00Z32.48-81.7314.84.93501010.030.339567TRUETRUEVFRSPECI57.02019-12-11 17:07:20I<) 5    3KRWV 111655Z AUTO 01004KT 10SM CLR 08/03 A3055 RMK AO2 T00820029KRWV2019-12-11T16:55:00Z30.52-96.78.22.910410.030.549213TRUETRUEVFRMETAR119.02019-12-11 17:07:20 +Vm]C)#5    3KMGJ 111654Z AUTO 25004KT 10SM OVC060 00/M05 A3023 RMK AO2 SLP240 T00001050KMGJ2019-12-11T16:54:00Z41.52-74.270.0-5.0250410.030.2303141024.0TRUETRUEVFRMETAR108.02019-12-11 17:07:20dB)15    3KMIV 111654Z AUTO 34006KT 10SM FEW018 OVC027 03/M01 A3030 RMK AO2 SLP262 T00331011KMIV2019-12-11T16:54:00Z39.37-75.083.3-1.1340610.030.3011821026.2TRUETRUEMVFRSPECI23.02019-12-11 17:07:20PA)5    3PHOG 111654Z 15003KT 10SM CLR 18/16 A3006 RMK AO2 SLP185 T01780156PHOG2019-12-11T16:54:00Z20.9-156.4317.815.6150310.030.0590551018.5TRUEVFRMETAR12.02019-12-11 17:07:20P@)5    3PHMK 111654Z 04007KT 10SM CLR 21/17 A3007 RMK AO2 SLP185 T02110167PHMK2019-12-11T16:54:00Z21.15-157.121.116.740710.030.0708661018.5TRUEVFRMETAR141.02019-12-11 17:07:20 e-<eRG)5    3KMRY 111654Z 00000KT 10SM OVC031 15/11 A3025 RMK AO2 SLP254 T01500106KMRY2019-12-11T16:54:00Z36.58-121.8515.010.60010.030.2509841025.4TRUEVFRMETAR66.02019-12-11 17:07:20lF)E5     3PGSN 111654Z 08012KT 10SM SCT014 SCT025 23/23 A2989 RMK AO2 RAB03E17 SLPNO P0001 T02330228 $PGSN2019-12-11T16:54:00Z15.12145.7223.322.8801210.029.890747TRUETRUEVFR0.01METAR65.02019-12-11 17:07:20kE)95     3PAHN 111654Z AUTO 30010KT 10SM FEW001 OVC060 01/00 A2970 RMK AO2 SLP061 T00110000 TSNOPAHN2019-12-11T16:54:00Z59.25-135.521.10.03001010.029.6988181006.1TRUETRUETRUEVFRMETAR5.02019-12-11 17:07:20^D)5    3KMFI 111654Z AUTO 28009KT 10SM CLR M20/M24 A3035 RMK AO2 SLP318 T12001239KMFI2019-12-11T16:54:00Z44.63-90.18-20.0-23.9280910.030.3513771031.8TRUETRUEVFRMETAR389.02019-12-11 17:07:20 'Ty^K)5    3KISW 111654Z AUTO 28009KT 10SM CLR M17/M23 A3041 RMK AO2 SLP328 T11721228KISW2019-12-11T16:54:00Z44.37-89.83-17.2-22.8280910.030.4104331032.8TRUETRUEVFRMETAR307.02019-12-11 17:07:20VJ)+5   3PKMR 111654Z 09008KT 15SM FEW015 SCT050 BKN300 28/24 A2977 RMK SLP081 T02830239PKMR2019-12-11T16:54:00Z7.08171.3828.323.990815.029.7696861008.1VFRMETAR4.02019-12-11 17:07:20NI)5    3KMKC 111654Z VRB05KT 10SM CLR 04/M07 A3043 RMK AO2 SLP312 T00391072KMKC2019-12-11T16:54:00Z39.12-94.63.9-7.20510.030.4311031031.2TRUEVFRMETAR227.02019-12-11 17:07:20TH)5    3KMOT 111654Z 00000KT 10SM CLR M19/M24 A3024 RMK AO2 SLP296 T11941239KMOT2019-12-11T16:54:00Z48.25-101.27-19.4-23.90010.030.2391741029.6TRUEVFRSPECI519.02019-12-11 17:07:20 t#MVt]O)5    3KIZG 111654Z AUTO 25004KT 10SM CLR M01/M13 A3017 RMK AO2 SLP222 T10111128KIZG2019-12-11T16:54:00Z43.98-70.95-1.1-12.8250410.030.1712591022.2TRUETRUEVFRMETAR135.02019-12-11 17:07:20rN)G5      3KIND 111654Z 22006KT 9SM -SN SCT048 OVC065 M04/M08 A3045 RMK AO2 SNB31 SLP324 P0000 T10391078KIND2019-12-11T16:54:00Z39.72-86.3-3.9-7.822069.030.4488181032.4TRUE-SNVFR0.005METAR241.02019-12-11 17:07:20QM)5    3KINT 111654Z 36011KT 10SM CLR 03/M08 A3042 RMK AO2 SLP304 T00331078KINT2019-12-11T16:54:00Z36.13-80.223.3-7.83601110.030.419291030.4TRUEVFRMETAR291.02019-12-11 17:07:20XL)5   3KIPT 111654Z 26011G20KT 10SM CLR 00/M12 A3026 RMK AO2 SLP253 T00001117KIPT2019-12-11T16:54:00Z41.25-76.920.0-11.7260112010.030.2598421025.3TRUEVFRMETAR164.02019-12-11 17:07:20 n+AOn\S)5   3KLEX 111654Z 23010G21KT 10SM CLR 02/M07 A3050 RMK AO2 SLP336 T00221072 $KLEX2019-12-11T16:54:00Z38.03-84.62.2-7.2230102110.030.4990161033.6TRUETRUEVFRMETAR300.02019-12-11 17:07:20mR);5      3KLAF 111654Z 25005KT 5SM -SN BKN020 OVC055 M04/M08 A3046 RMK AO2 SLP325 P0000 T10441078KLAF2019-12-11T16:54:00Z40.42-86.93-4.4-7.825055.030.460631032.5TRUE-SNMVFR0.005METAR182.02019-12-11 17:07:20eQ)-5    3KJST 111654Z AUTO 24011KT 10SM CLR M05/M13 A3018 RMK AO2 PRESFR SLP254 T10501128KJST2019-12-11T16:54:00Z40.32-78.83-5.0-12.82401110.030.1801191025.4TRUETRUEVFRMETAR694.02019-12-11 17:07:20PP)5    3KJAN 111654Z 36009KT 10SM CLR 07/M02 A3055 RMK AO2 SLP345 T00721017KJAN2019-12-11T16:54:00Z32.32-90.087.2-1.7360910.030.5492131034.5TRUEVFRMETAR91.02019-12-11 17:07:20 (SgSW)5    3KLWM 111654Z 00000KT 10SM FEW031 M01/M06 A3022 RMK AO2 SLP235 T10061056KLWM2019-12-11T16:54:00Z42.72-71.13-0.6-5.60010.030.2214571023.5TRUEVFRMETAR54.02019-12-11 17:07:20gV)15    3KLWT 111654Z AUTO 23016KT 10SM BKN037 OVC047 03/M05 A2984 RMK AO2 SLP135 T00331050KLWT2019-12-11T16:54:00Z47.03-109.473.3-5.02301610.029.8405511013.5TRUETRUEVFRMETAR1270.02019-12-11 17:07:20PU)5    3KLYH 111654Z 27007KT 10SM CLR 05/M08 A3039 RMK AO2 SLP293 T00501078KLYH2019-12-11T16:54:00Z37.32-79.25.0-7.8270710.030.3897631029.3TRUEVFRMETAR295.02019-12-11 17:07:20ST)5    3KLNK 111654Z 05010KT 10SM CLR M03/M08 A3041 RMK AO2 SLP314 T10281083KLNK2019-12-11T16:54:00Z40.85-96.77-2.8-8.3501010.030.4104331031.4TRUEVFRSPECI364.02019-12-11 17:07:20 -ZZ[)'5    3KSBY 111654Z 33010KT 10SM BKN022 BKN027 04/M01 A3033 RMK AO2 SLP274 T00441011KSBY2019-12-11T16:54:00Z38.33-75.54.4-1.13301010.030.330711027.4TRUEMVFRSPECI19.02019-12-11 17:07:208Z(u5    3KSET 111654Z AUTO A3046 RMK AO2 SLPNO PWINO FZRANO $KSET2019-12-11T16:54:00Z38.93-90.4330.46063TRUETRUETRUETRUETRUEMETAR134.02019-12-11 17:07:20NY) 5   3KSJN 111654Z AUTO 10SM 00/M03 A3029 RMK AO2 SLP261 T00001033 $KSJN2019-12-11T16:54:00Z34.52-109.380.0-3.310.030.289371026.1TRUETRUETRUEMETAR1745.02019-12-11 17:07:20NX)5    3KMEM 111654Z VRB03KT 10SM CLR 06/M04 A3059 RMK AO2 SLP359 T00611044KMEM2019-12-11T16:54:00Z35.07-89.986.1-4.40310.030.5905511035.9TRUEVFRMETAR86.02019-12-11 17:07:20 `$5`P_)5    3KSUS 111654Z 24008KT 10SM CLR 04/M06 A3046 RMK AO2 SLP325 T00441056KSUS2019-12-11T16:54:00Z38.65-90.654.4-5.6240810.030.460631032.5TRUEVFRMETAR141.02019-12-11 17:07:20j^)A5    3KSLC 111654Z 25003KT 10SM FEW110 BKN150 BKN200 01/M02 A3022 RMK AO2 SLP243 VIRGA T00061017KSLC2019-12-11T16:54:00Z40.77-111.970.6-1.7250310.030.2214571024.3TRUEVFRMETAR1286.02019-12-11 17:07:20S])5    3KRST 111654Z 31005KT 10SM CLR M17/M22 A3041 RMK AO2 SLP336 T11721222KRST2019-12-11T16:54:00Z43.9-92.5-17.2-22.2310510.030.4104331033.6TRUEVFRMETAR403.02019-12-11 17:07:20\)_5      3KSBN 111654Z 25011KT 1SM R27L/6000VP6000FT -SN FEW014 OVC021 M06/M09 A3040 RMK AO2 SLP310 P0000 T10611089KSBN2019-12-11T16:54:00Z41.7-86.32-6.1-8.9250111.030.3986231031.0TRUE-SNIFR0.005SPECI237.02019-12-11 17:07:20  Bb\c)5    3KTAD 111654Z AUTO 35004KT 10SM CLR 04/M06 A3017 RMK AO2 SLP223 T00441061KTAD2019-12-11T16:54:00Z37.27-104.334.4-6.1350410.030.1712591022.3TRUETRUEVFRSPECI1756.02019-12-11 17:07:20[b)5    3KTQE 111654Z AUTO 07005KT 10SM CLR M05/M11 A3044 RMK AO2 SLP321 T10501106KTQE2019-12-11T16:54:00Z41.77-96.18-5.0-10.670510.030.439961032.1TRUETRUEVFRMETAR312.02019-12-11 17:07:20Ya)5    3KUIN 111654Z AUTO 31009KT 10SM CLR 00/M08 A3043 RMK AO2 SLP315 T00001078KUIN2019-12-11T16:54:00Z39.95-91.20.0-7.8310910.030.4311031031.5TRUETRUEVFRMETAR234.02019-12-11 17:07:20[`)'5    3KSYR 111654Z 23013KT 10SM BKN040 BKN250 00/M07 A3018 RMK AO2 SLP220 T00001072KSYR2019-12-11T16:54:00Z43.12-76.10.0-7.22301310.030.1801191022.0TRUEVFRMETAR127.02019-12-11 17:07:20 f0Rfgg)35    3KVTA 111654Z AUTO 24016KT 10SM BKN036 OVC095 M01/M08 A3040 RMK AO2 SLP305 T10111083KVTA2019-12-11T16:54:00Z40.02-82.47-1.1-8.32401610.030.3986231030.5TRUETRUEVFRMETAR268.02019-12-11 17:07:20Yf)5    3KUZA 111654Z AUTO 02009KT 10SM CLR 07/M02 A3041 RMK AO2 SLP298 T00721017KUZA2019-12-11T16:54:00Z34.98-81.057.2-1.720910.030.4104331029.8TRUETRUEVFRMETAR202.02019-12-11 17:07:20ie)?5    3KVAY 111654Z AUTO 00000KT 10SM BKN016 BKN031 OVC050 03/M01 A3030 RMK AO2 SLP262 T00281006KVAY2019-12-11T16:54:00Z39.93-74.832.8-0.60010.030.3011821026.2TRUETRUEMVFRMETAR15.02019-12-11 17:07:20]d)5    3KVSF 111654Z AUTO 27007KT 10SM CLR M01/M13 A3018 RMK AO2 SLP226 T10111128KVSF2019-12-11T16:54:00Z43.35-72.52-1.1-12.8270710.030.1801191022.6TRUETRUEVFRSPECI175.02019-12-11 17:07:20 @`Dk(5    3KC07 111654Z AUTO 24005KT CLR M06/M10 A3018 RMK AO2 PWINOKC072019-12-11T16:54:00Z40.35-106.7-6.0-10.0240530.180119TRUETRUETRUESPECI3224.02019-12-11 17:07:20[j)5    3KCAR 111654Z AUTO 00000KT 10SM CLR M08/M15 A3014 RMK AO2 SLP219 T10831150KCAR2019-12-11T16:54:00Z46.87-68.02-8.3-15.00010.030.1387791021.9TRUETRUEVFRSPECI191.02019-12-11 17:07:20Vi)5    3KCEU 111654Z AUTO VRB04KT 10SM CLR 08/04 A3041 RMK AO2 SLP296 T00830039KCEU2019-12-11T16:54:00Z34.67-82.888.33.90410.030.4104331029.6TRUETRUEVFRMETAR268.02019-12-11 17:07:20`h)#5   3KBUY 111654Z AUTO 31012G19KT 10SM CLR 07/M07 A3041 RMK AO2 SLP298 T00671067KBUY2019-12-11T16:54:00Z36.05-79.476.7-6.7310121910.030.4104331029.8TRUETRUEVFRMETAR180.02019-12-11 17:07:20 u 6Wu]o)5    3KPSF 111654Z AUTO 27004KT 10SM CLR M03/M11 A3017 RMK AO2 SLP228 T10281106KPSF2019-12-11T16:54:00Z42.43-73.28-2.8-10.6270410.030.1712591022.8TRUETRUEVFRSPECI355.02019-12-11 17:07:20Zn)!5    3KPTW 111654Z AUTO 31007KT 8SM FEW029 01/M04 A3030 RMK AO2 SLP259 T00061039KPTW2019-12-11T16:54:00Z40.23-75.550.6-3.931078.030.3011821025.9TRUETRUEVFRMETAR92.02019-12-11 17:07:20em)75    3KCOS 111654Z 13008KT 10SM FEW150 BKN230 04/M09 A3016 RMK AO2 SLP245 ACSL NW T00391094KCOS2019-12-11T16:54:00Z38.82-104.683.9-9.4130810.030.1594491024.5TRUEVFRSPECI1856.02019-12-11 17:07:20[l)'5    3KBWI 111654Z 30014KT 10SM FEW050 FEW250 04/M08 A3034 RMK AO2 SLP274 T00391078KBWI2019-12-11T16:54:00Z39.17-76.683.9-7.83001410.030.3395671027.4TRUEVFRSPECI59.02019-12-11 17:07:20 @%@`s)55    3KPHL 111654Z 29009KT 10SM FEW022 BKN038 BKN050 03/M03 A3031 RMK AO2 SLP264 T00281033KPHL2019-12-11T16:54:00Z39.87-75.232.8-3.3290910.030.310041026.4TRUEVFRMETAR18.02019-12-11 17:07:20^r))5    3KPIA 111654Z 33008KT 10SM BKN025 OVC080 M03/M09 A3045 RMK AO2 SLP321 T10281089KPIA2019-12-11T16:54:00Z40.67-89.68-2.8-8.9330810.030.4488181032.1TRUEMVFRSPECI205.02019-12-11 17:07:20 q)k5     3KPLN 111654Z AUTO 28012G26KT 3SM HZ BKN035 M12/M17 A3018 RMK AO2 PK WND 28028/1609 SNE22 SLP235 P0000 T11171172KPLN2019-12-11T16:54:00Z45.57-84.8-11.7-17.228012263.030.1801191023.5TRUETRUEHZMVFR0.005SPECI217.02019-12-11 17:07:20ap)55    3KPNE 111654Z 31006KT 10SM SCT017 BKN021 OVC050 04/M02 A3031 RMK AO2 SLP265 T00391017KPNE2019-12-11T16:54:00Z40.08-75.023.9-1.7310610.030.310041026.5TRUEMVFRMETAR28.02019-12-11 17:07:20 ,Hs\w)5    3KDDH 111654Z AUTO 29007KT 10SM CLR M02/M12 A3019 RMK AO2 SLP232 T10171117KDDH2019-12-11T16:54:00Z42.9-73.25-1.7-11.7290710.030.1889761023.2TRUETRUEVFRMETAR244.02019-12-11 17:07:20Pv)5    3KCOU 111654Z 29008KT 10SM CLR 06/M06 A3046 RMK AO2 SLP322 T00561056KCOU2019-12-11T16:54:00Z38.82-92.225.6-5.6290810.030.460631032.2TRUEVFRMETAR271.02019-12-11 17:07:20_u)%5   3KCRW 111654Z VRB05G16KT 10SM SCT035 M01/M09 A3048 RMK AO2 SLP331 T10111094 $KCRW2019-12-11T16:54:00Z38.38-81.58-1.1-9.4051610.030.4812981033.1TRUETRUEVFRSPECI309.02019-12-11 17:07:20Ot)5    3KPHF 111654Z 36008KT 10SM CLR 06/M04 A3037 RMK AO2 SLP283 T00561039KPHF2019-12-11T16:54:00Z37.13-76.55.6-3.9360810.030.3690951028.3TRUEVFRMETAR12.02019-12-11 17:07:20 n*9Qn^{)5    3KRKS 111654Z AUTO 20003KT 10SM CLR M09/M10 A3014 RMK AO2 SLP262 T10891100KRKS2019-12-11T16:54:00Z41.6-109.07-8.9-10.0200310.030.1387791026.2TRUETRUEVFRMETAR2060.02019-12-11 17:07:20cz)-5    3KDSM 111654Z 03010KT 10SM FEW016 FEW065 M07/M13 A3046 RMK AO2 SLP331 T10671128 $KDSM2019-12-11T16:54:00Z41.53-93.67-6.7-12.8301010.030.460631033.1TRUETRUEVFRSPECI295.02019-12-11 17:07:20ly)=5    3KDSV 111654Z AUTO 20008KT 170V260 10SM CLR M01/M13 A3017 RMK AO2 PRESFR SLP233 T10111128KDSV2019-12-11T16:54:00Z42.57-77.72-1.1-12.8200810.030.1712591023.3TRUETRUEVFRSPECI198.02019-12-11 17:07:20Qx)5    3KDEC 111654Z 23011KT 10SM CLR 00/M06 A3044 RMK AO2 SLP318 T00001061KDEC2019-12-11T16:54:00Z39.83-88.850.0-6.12301110.030.439961031.8TRUEVFRMETAR207.02019-12-11 17:07:20  DxJ) 5    3KFME 111654Z AUTO 29009KT 250V320 10SM CLR 02/M06 A3038 RMK AO1KFME2019-12-11T16:54:00Z39.08-76.772.0-6.0290910.030.380905TRUETRUEVFRSPECI46.02019-12-11 17:07:20G~)5    3EBFS 111654Z AUTO 18009KT 9999 SCT006/// BKN150/// 04/04 Q1006 YLOEBFS2019-12-11T16:54:00Z50.224.654.04.018096.2129.704725TRUEVFRSPECI299.02019-12-11 17:07:20W})5   3KROA 111654Z 28015G21KT 10SM CLR 03/M10 A3042 RMK AO2 SLP308 T00281100KROA2019-12-11T16:54:00Z37.32-79.972.8-10.0280152110.030.419291030.8TRUEVFRMETAR362.02019-12-11 17:07:20[|)'5    3KRIC 111654Z 31010KT 10SM SCT031 BKN300 05/M02 A3037 RMK AO2 SLP291 T00501017KRIC2019-12-11T16:54:00Z37.52-77.325.0-1.73101010.030.3690951029.1TRUEVFRMETAR50.02019-12-11 17:07:20 K2Kb)%5   3KROC 111654Z 23014G23KT 10SM SCT042 M02/M11 A3015 RMK AO2 SLP221 T10221106 $KROC2019-12-11T16:54:00Z43.12-77.68-2.2-10.6230142310.030.150591022.1TRUETRUEVFRSPECI178.02019-12-11 17:07:20Z)5   3KRDG 111654Z 28011G19KT 10SM SCT036 03/M03 A3028 RMK AO2 SLP260 T00281033KRDG2019-12-11T16:54:00Z40.37-75.972.8-3.3280111910.030.2805121026.0TRUEVFRMETAR109.02019-12-11 17:07:20j);5     3KRBL 111654Z AUTO 00000KT 1 1/4SM BR FEW005 OVC013 10/09 A3027 RMK AO2 SLP248 T01000094KRBL2019-12-11T16:54:00Z40.15-122.2510.09.4001.2530.2687021024.8TRUETRUEBRIFRMETAR104.02019-12-11 17:07:20bR RY`gnu|$+29@GNU\cjqx  '.5<CJQX_fmt{Z^bfjnrw{ Z^bfjnrw{ #'+/37;?CGKOSW[_cgkosw{  !%)-159=AFJNRVZ^chmquy}  #(-27<@DHMRW\af k p R)5    3KGCK 111654Z 21005KT 10SM CLR 03/M05 A3026 RMK AO2 SLP271 T00281050KGCK2019-12-11T16:54:00Z37.92-100.722.8-5.0210510.030.2598421027.1TRUEVFRMETAR877.02019-12-11 17:07:20e)35     3KRFD 111654Z 28008KT 10SM FEW019 M06/M13 A3044 RMK AO2 SNE04 SLP322 P0000 T10611128KRFD2019-12-11T16:54:00Z42.2-89.1-6.1-12.8280810.030.439961032.2TRUEVFR0.005SPECI221.02019-12-11 17:07:20:)U5    3KBUF 111654Z 22021G32KT 8SM R23/2000V5500FT BKN031 M03/M09 A3014 RMK AO2 PK WND 22032/1649 SNE21 SLP218 VIS IN BLSN W-N-NE 2 SHSN DSNT SW-NW-NE DRSN P0000 T10331094KBUF2019-12-11T16:54:00Z42.93-78.73-3.3-9.422021328.030.1387791021.8TRUEVFR0.005SPECI211.02019-12-11 17:07:20 6 6P )5    3KFFZ 111654Z 02007KT 10SM CLR 15/05 A3019 RMK AO2 SLP214 T01500050KFFZ2019-12-11T16:54:00Z33.47-111.7215.05.020710.030.1889761021.4TRUEVFRSPECI424.02019-12-11 17:07:20u)I5   3KFIG 111654Z AUTO 23011G19KT 190V260 10SM FEW036 M03/M12 A3021 RMK AO2 PRESFR SLP250 T10331122KFIG2019-12-11T16:54:00Z41.05-78.42-3.3-12.2230111910.030.2096461025.0TRUETRUEVFRMETAR462.02019-12-11 17:07:20)c5      3KFWA 111654Z 28014KT 5SM -SN SCT022 BKN037 BKN046 M06/M10 A3040 RMK AO2 SLP309 BKN046 V OVC P0000 T10561100KFWA2019-12-11T16:54:00Z40.98-85.18-5.6-10.0280145.030.3986231030.9TRUE-SNMVFR0.005SPECI248.02019-12-11 17:07:20m)A5    3KFZY 111654Z AUTO 22009KT 10SM FEW029 BKN044 OVC055 M01/M08 A3016 RMK AO2 SLP220 T10111083KFZY2019-12-11T16:54:00Z43.35-76.38-1.1-8.3220910.030.1594491022.0TRUETRUEVFRSPECI138.02019-12-11 17:07:20 )5^Z )%5    3KEUG 111654Z 17004KT 10SM BKN041 OVC120 08/06 A3006 RMK AO2 SLP182 T00780061KEUG2019-12-11T16:54:00Z44.13-123.227.86.1170410.030.0590551018.2TRUEVFRSPECI114.02019-12-11 17:07:20R )5    3KEVV 111654Z 22010KT 10SM CLR 02/M06 A3053 RMK AO2 SLP344 T00221056KEVV2019-12-11T16:54:00Z38.05-87.522.2-5.62201010.030.5285431034.4TRUEVFRSPECI117.02019-12-11 17:07:20o )E5      3KEWN 111654Z 03012KT 8SM -RA OVC011 08/05 A3035 RMK AO2 RAB1558E07B54 SLP277 P0000 T00780050KEWN2019-12-11T16:54:00Z35.07-77.057.85.030128.030.3513771027.7TRUE-RAMVFR0.005METAR3.02019-12-11 17:07:20R )'5    3KEWR 111654Z VRB03KT 10SM FEW009 BKN018 OVC060 02/M02 A3028 RMK AO2 T00221017KEWR2019-12-11T16:54:00Z40.68-74.172.2-1.70310.030.280512TRUEMVFRMETAR7.02019-12-11 17:07:20 *7aX)5    3KNAK 111654Z AUTO 29008KT 10SM CLR 04/M07 A3035 RMK AO2 SLP280 T00391067KNAK2019-12-11T16:54:00Z38.98-76.483.9-6.7290810.030.3513771028.0TRUETRUEVFRMETAR2.02019-12-11 17:07:20Q)5    3KGSO 111654Z VRB05KT 10SM BKN250 06/M05 A3039 RMK AO2 SLP293 T00561050KGSO2019-12-11T16:54:00Z36.1-79.955.6-5.00510.030.3897631029.3TRUEVFRMETAR275.02019-12-11 17:07:20n)G5     3KBFL 111654Z 14004KT 1 1/4SM R30R/2600VP6000FT BR OVC002 07/07 A3027 RMK AO2 SLP249 T00720067KBFL2019-12-11T16:54:00Z35.43-119.057.26.714041.2530.2687021024.9TRUEBRLIFRMETAR151.02019-12-11 17:07:20Q)5    3KGCN 111654Z 00000KT 10SM CLR 00/M03 A3028 RMK AO2 SLP262 T00001028KGCN2019-12-11T16:54:00Z35.95-112.150.0-2.80010.030.2805121026.2TRUEVFRMETAR2016.02019-12-11 17:07:20 p'CPp[)#5    3KOFP 111654Z AUTO 32006KT 10SM FEW036 05/M03 A3039 RMK AO2 SLP292 T00501033KOFP2019-12-11T16:54:00Z37.7-77.435.0-3.3320610.030.3897631029.2TRUETRUEVFRMETAR62.02019-12-11 17:07:20n)I5      3KOLM 111654Z 00000KT 6SM -RA BR SCT002 OVC021 07/06 A3000 RMK AO2 RAB44 SLP161 P0000 T00670061KOLM2019-12-11T16:54:00Z46.97-122.96.76.1006.030.01016.1TRUE-RA BRMVFR0.005METAR58.02019-12-11 17:07:20_)%5    3KILN 111654Z AUTO 22016KT 10SM OVC065 M02/M08 A3043 RMK AO2 SLP337 T10171083KILN2019-12-11T16:54:00Z39.43-83.8-1.7-8.32201610.030.4311031033.7TRUETRUEVFRSPECI322.02019-12-11 17:07:20T)5    3KHWD 111654Z 12004KT 10SM OVC031 13/11 A3022 RMK AO2 SLP242 T01330106KHWD2019-12-11T16:54:00Z37.67-122.1213.310.6120410.030.2214571024.2TRUEVFRSPECI21.02019-12-11 17:07:20  lY)5   3KORH 111654Z 26011G17KT 10SM CLR M03/M09 A3017 RMK AO2 SLP231 T10281089KORH2019-12-11T16:54:00Z42.27-71.87-2.8-8.9260111710.030.1712591023.1TRUEVFRSPECI304.02019-12-11 17:07:20c)%5   3KIMT 111654Z AUTO 26009G15KT 10SM CLR M17/M23 A3022 RMK AO2 SLP268 T11721228KIMT2019-12-11T16:54:00Z45.82-88.12-17.2-22.826091510.030.2214571026.8TRUETRUEVFRSPECI349.02019-12-11 17:07:20/(g5   3KMTN 111654Z 28014KT 10SM FEW050 04/M04 A3036KMTN2019-12-11T16:54:00Z39.32-76.424.0-4.02801410.030.360237VFRMETAR7.02019-12-11 17:07:20[)5    3KMVL 111654Z AUTO VRB03KT 10SM CLR M04/M13 A3016 RMK AO2 SLP226 T10391128KMVL2019-12-11T16:54:00Z44.53-72.62-3.9-12.80310.030.1594491022.6TRUETRUEVFRSPECI234.02019-12-11 17:07:20 f"5Xfm)E5     3KBOS 111654Z 26007KT 10SM FEW030 SCT055 02/M04 A3022 RMK AO2 SNB06E22 SLP233 P0000 T00171039KBOS2019-12-11T16:54:00Z42.37-71.021.7-3.9260710.030.2214571023.3TRUEVFR0.005METAR6.02019-12-11 17:07:20X)5    3KBTV 111654Z 22010KT 10SM FEW045 M03/M12 A3018 RMK AO2 SLP225 T10281122KBTV2019-12-11T16:54:00Z44.47-73.15-2.8-12.22201010.030.1801191022.5TRUEVFRSPECI105.02019-12-11 17:07:20h)15    3PAKN 111654Z AUTO 01013G22KT 10SM OVC050 06/00 A2908 RMK AO2 SLP848 T00610000 TSNOPAKN2019-12-11T16:54:00Z58.68-156.656.10.010132210.029.078741984.8TRUETRUETRUEVFRMETAR17.02019-12-11 17:07:20Y)5    3KOLS 111654Z AUTO 00000KT 10SM CLR 11/01 A3022 RMK AO2 SLP211 T01110011KOLS2019-12-11T16:54:00Z31.42-110.8511.11.10010.030.2214571021.1TRUETRUEVFRMETAR1184.02019-12-11 17:07:20 )InY!)!5    3KAKQ 111654Z AUTO 32005KT 9SM FEW027 05/M02 A3038 RMK AO2 SLP288 T00501017KAKQ2019-12-11T16:54:00Z36.98-77.05.0-1.732059.030.3809051028.8TRUETRUEVFRMETAR34.02019-12-11 17:07:20V )5    3KAKH 111654Z AUTO 03006KT 10SM CLR 09/00 A3040 RMK AO2 SLP296 T00890000KAKH2019-12-11T16:54:00Z35.2-81.158.90.030610.030.3986231029.6TRUETRUEVFRMETAR243.02019-12-11 17:07:20[)5    3KAAO 111654Z AUTO 20013KT 10SM CLR 06/M06 A3040 RMK AO2 SLP306 T00611061KAAO2019-12-11T16:54:00Z37.75-97.226.1-6.12001310.030.3986231030.6TRUETRUEVFRMETAR434.02019-12-11 17:07:20R)5    3KECG 111654Z 34012KT 10SM SCT032 07/00 A3036 RMK AO2 SLP279 T00720000KECG2019-12-11T16:54:00Z36.27-76.187.20.03401210.030.3602371027.9TRUEVFRMETAR11.02019-12-11 17:07:20 R;NRw%)S5   3KAPN 111654Z 26015G30KT 10SM BKN041 BKN050 M10/M18 A3016 RMK AO2 PK WND 26036/1641 SLP227 T11001178KAPN2019-12-11T16:54:00Z45.07-83.57-10.0-17.8260153010.030.1594491022.7TRUEVFRSPECI210.02019-12-11 17:07:20h$)95      3KAPC 111654Z 08009KT 2SM BR OVC013 11/10 A3024 RMK AO2 RAB05E26 SLP229 P0001 T01060100KAPC2019-12-11T16:54:00Z38.2-122.2810.610.08092.030.2391741022.9TRUEBRIFR0.01SPECI13.02019-12-11 17:07:20S#)5    3KALO 111654Z 01008KT 10SM CLR M10/M17 A3045 RMK AO2 SLP332 T11001172KALO2019-12-11T16:54:00Z42.55-92.4-10.0-17.210810.030.4488181033.2TRUEVFRMETAR264.02019-12-11 17:07:20h")35    3KAKR 111654Z AUTO 25015KT 10SM BKN031 OVC080 M02/M10 A3032 RMK AO2 SLP279 T10171100KAKR2019-12-11T16:54:00Z41.03-81.47-1.7-10.02501510.030.3188971027.9TRUETRUEVFRSPECI363.02019-12-11 17:07:20 r/Vr_))-5   3KWAL 111654Z 32009G15KT 10SM BKN025 BKN250 04/M01 A3033 RMK AO2 SLP268 T00441006KWAL2019-12-11T16:54:00Z37.93-75.474.4-0.632091510.030.330711026.8TRUEMVFRMETAR14.02019-12-11 17:07:20T()5    3KAVP 111654Z 26009KT 10SM FEW030 01/M07 A3020 RMK AO2 SLP233 T00061072KAVP2019-12-11T16:54:00Z41.33-75.720.6-7.2260910.030.2007871023.3TRUEVFRSPECI291.02019-12-11 17:07:20i')=5   3KAVL 111654Z 35013G22KT 10SM CLR 01/M09 A3041 RMK AO2 PK WND 33027/1559 SLP307 T00061089KAVL2019-12-11T16:54:00Z35.43-82.530.6-8.9350132210.030.4104331030.7TRUEVFRMETAR670.02019-12-11 17:07:20^&)5    3KAUW 111654Z AUTO 28008KT 10SM CLR M21/M24 A3034 RMK AO2 SLP315 T12061244KAUW2019-12-11T16:54:00Z44.93-89.62-20.6-24.4280810.030.3395671031.5TRUETRUEVFRMETAR362.02019-12-11 17:07:20 U$9U_-)M5   3KMWN 111653Z 32011KT 110SM FEW/// FEW/// FEW003 FEW080 M16/M24 RMK TPS LWR FEW046 TPS LWR FEW060KMWN2019-12-11T16:53:00Z44.27-71.3-16.0-24.03201110.0VFRMETAR1910.02019-12-11 17:07:20f,)75    3KNQX 111653Z 22006KT 10SM FEW030 SCT070 BKN150 26/21 A3017 RMK AO2 SLP214 T02610211 $KNQX2019-12-11T16:53:00Z24.57-81.6726.121.1220610.030.1712591021.4TRUETRUEVFRSPECI2.02019-12-11 17:07:20o+)35     3PAMC 111653Z AUTO 00000KT 10SM FEW001 M18/M19 A2952 RMK AO2 SLP006 T11781194 TSNO $PAMC2019-12-11T16:53:00Z62.97-155.62-17.8-19.40010.029.5187021000.6TRUETRUETRUETRUEVFRMETAR103.02019-12-11 17:07:20c*))5    3KNSI 111653Z 29012KT 10SM FEW020 FEW250 15/12 A3023 RMK AO2 SLP233 T01500122 $KNSI2019-12-11T16:53:00Z33.22-119.4515.012.22901210.030.2303141023.3TRUETRUEVFRMETAR154.02019-12-11 17:07:20 6[{[1)5    3KCQC 111653Z AUTO 30012KT 10SM CLR 04/M07 A3031 RMK AO2 SLP266 T00391072KCQC2019-12-11T16:53:00Z35.0-105.673.9-7.23001210.030.310041026.6TRUETRUEVFRMETAR2160.02019-12-11 17:07:20[0)5    3KVIH 111653Z AUTO 23010KT 10SM CLR 06/M07 A3045 RMK AO2 SLP323 T00611067KVIH2019-12-11T16:53:00Z38.13-91.776.1-6.72301010.030.4488181032.3TRUETRUEVFRMETAR333.02019-12-11 17:07:20V/)5   3KJLN 111653Z 22016G22KT 10SM CLR 06/M05 A3049 RMK AO2 SLP329 T00611050KJLN2019-12-11T16:53:00Z37.15-94.56.1-5.0220162210.030.4901581032.9TRUEVFRMETAR299.02019-12-11 17:07:20E.({5    3KMNH 111653Z AUTO 17008KT 10SM CLR 05/M10 A3014 RMK AO2KMNH2019-12-11T16:53:00Z39.22-104.655.0-10.0170810.030.138779TRUETRUEVFRSPECI2152.02019-12-11 17:07:20 R[5)5    3KBRL 111653Z AUTO 01012KT 10SM CLR M02/M09 A3044 RMK AO2 SLP319 T10171089KBRL2019-12-11T16:53:00Z40.77-91.13-1.7-8.9101210.030.439961031.9TRUETRUEVFRMETAR211.02019-12-11 17:07:20F4(}5    3KORB 111653Z AUTO 28005KT 10SM CLR M22/M26 A3024 RMK AO2KORB2019-12-11T16:53:00Z48.02-92.87-22.0-26.0280510.030.239174TRUETRUEVFRMETAR397.02019-12-11 17:07:20H3) 5   3KNIP 111653Z 35012KT 7SM OVC005 14/12 A3031 RMK SLP259 T01440117KNIP2019-12-11T16:53:00Z30.22-81.6714.411.7350127.030.310041025.9IFRMETAR7.02019-12-11 17:07:20\2)!5     3KGNB 111653Z AUTO 00000KT 1/2SM -SN OVC002 M13/M15 A3025 RMK AO2 T11311147KGNB2019-12-11T16:53:00Z40.08-105.92-13.1-14.7000.530.250984TRUETRUE-SNLIFRMETAR2500.02019-12-11 17:07:20 *KZ9)'5    3KNHK 111652Z 30013KT 10SM FEW120 FEW260 04/M04 A3036 RMK AO2 SLP280 T00441044KNHK2019-12-11T16:52:00Z38.27-76.44.4-4.43001310.030.3602371028.0TRUEVFRSPECI12.02019-12-11 17:07:20G8) 5   3KCDJ 111652Z AUTO VRB04KT 03/M06 A3044 RMK AO1 SLP325 T00281061KCDJ2019-12-11T16:52:00Z39.82-93.582.8-6.10430.439961032.5TRUETRUEMETAR234.02019-12-11 17:07:20Z7)%5    3KNRB 111652Z 34010KT 10SM BKN008 OVC025 14/12 A3030 RMK AO2 SLP261 T01390122KNRB2019-12-11T16:52:00Z30.38-81.4213.912.23401010.030.3011821026.1TRUEIFRMETAR5.02019-12-11 17:07:20Q6) 5   3K4BM 111653Z AUTO 24016G24KT 10SM SCT120 M05/M20 A3024 RMK AO2K4BM2019-12-11T16:53:00Z39.05-105.52-5.0-20.0240162410.030.239174TRUETRUEVFRSPECI3438.02019-12-11 17:07:20 %6aK=)5    3KMYP 111652Z AUTO 23017KT 10SM SCT120 M07/M09 A3038 RMK AO2KMYP2019-12-11T16:52:00Z38.48-106.32-7.0-9.02301710.030.380905TRUETRUEVFRMETAR3667.02019-12-11 17:07:20P<) 5    3KCCU 111652Z AUTO 16008KT 130V190 10SM CLR M02/M20 A3024 RMK AO2KCCU2019-12-11T16:52:00Z39.48-106.15-2.0-20.0160810.030.239174TRUETRUEVFRSPECI3680.02019-12-11 17:07:20j;)=5     3KNFW 111652Z 14006KT 6SM HZ BKN008 BKN012 05/02 A3057 RMK AO2 SLP330 T00560017 VISNO N $KNFW2019-12-11T16:52:00Z32.78-97.435.61.714066.030.5698811033.0TRUETRUEHZIFRMETAR198.02019-12-11 17:07:20V:)5    3KNZY 111652Z 00000KT 10SM BKN230 15/11 A3021 RMK AO2 SLP228 T01500106 $KNZY2019-12-11T16:52:00Z32.7-117.2215.010.60010.030.2096461022.8TRUETRUEVFRSPECI8.02019-12-11 17:07:20 (v/A(e5   3MUCU 111651Z 18007KT 9000 SCT020 30/19 Q1017MUCU2019-12-11T16:51:00Z19.97-75.8330.019.018075.5930.029528VFRMETAR76.02019-12-11 17:07:20-@(e5   3MUCC 111651Z 09012KT 9000 SCT020 29/24 Q1020MUCC2019-12-11T16:51:00Z22.47-78.3329.024.090125.5930.11811VFRMETAR4.02019-12-11 17:07:20h?))5     3KGDP 111651Z AUTO 24016KT M1/4SM FG VV001 03/03 A3037 RMK AO2 SLP281 T00330033KGDP2019-12-11T16:51:00Z31.83-104.823.33.3240160.2530.3690951028.1TRUETRUEFGLIFR100METAR1692.02019-12-11 17:07:20f>)75   3KP59 111651Z AUTO 34020G38KT M11/M13 A3013 RMK AO1 PK WND 35038/1649 SLP225 T11061133KP592019-12-11T16:51:00Z47.47-87.88-10.6-13.3340203830.1299211022.5TRUETRUEMETAR190.02019-12-11 17:07:20 FGvF;F(y5   3MMLT 111651Z 32013KT 10SM FEW040 21/15 A3006 RMK 8/500MMLT2019-12-11T16:51:00Z26.02-111.3321.015.03201310.030.059055VFRMETAR15.02019-12-11 17:07:207E(y5   3MMPR 111651Z 00000KT 15SM SCT270 25/16 A2999 RMK 8/001MMPR2019-12-11T16:51:00Z20.67-105.2525.016.00015.029.991142VFRMETAR6.02019-12-11 17:07:20/D(e5   3KRHV 111651Z 18005KT 10SM BKN042 14/09 A3022KRHV2019-12-11T16:51:00Z37.32-121.8214.09.0180510.030.221457VFRMETAR41.02019-12-11 17:07:20LC) 5   3KMQE 111651Z AUTO 26005KT M03/M03 A3018 RMK AO1 SLP237 T10281033KMQE2019-12-11T16:51:00Z42.22-71.12-2.8-3.3260530.1801191023.7TRUETRUEMETAR199.02019-12-11 17:07:204B(u5   3MUCF 111651Z 08006KT 030V140 9999 SCT020 32/22 Q1020MUCF2019-12-11T16:51:00Z22.13-80.432.022.08066.2130.11811VFRMETAR39.02019-12-11 17:07:20 MZ?J(5    3LGIR 111650Z 17009KT 9999 FEW025 SCT080 16/10 Q1007 NOSIGLGIR2019-12-11T16:50:00Z35.3225.1716.010.017096.2129.734253TRUEVFRMETAR39.02019-12-11 17:07:206I(u5   3MUCL 111651Z 10009KT 070V130 9000 FEW020 29/26 Q1019MUCL2019-12-11T16:51:00Z21.63-81.5529.026.010095.5930.088583VFRMETAR5.02019-12-11 17:07:20nH)95     3KATT 111651Z AUTO VRB03KT 10SM BKN017 09/02 A3055 RMK AO2 SLP352 T00890022 PWINO PNO $KATT2019-12-11T16:51:00Z30.32-97.778.92.20310.030.5492131035.2TRUETRUETRUETRUEMVFRMETAR201.02019-12-11 17:07:20.G(e5   3KOCF 111651Z 03008KT 10SM FEW030 22/17 A3024KOCF2019-12-11T16:51:00Z29.17-82.2222.017.030810.030.239174VFRMETAR27.02019-12-11 17:07:20 )\CN)5   3PTRO 111650Z 08006KT 15SM SCT016CB BKN290 25/24 A2979 RMK CB S-SWPTRO2019-12-11T16:50:00Z7.37134.5525.024.080615.029.790354VFRMETAR54.02019-12-11 17:07:20)5   3LTAZ 111650Z 14009KT 9999 SCT040 BKN100 07/03 Q1015 RMK RWY29 14007KTLTAZ2019-12-11T16:50:00Z38.7734.557.03.014096.2129.970472VFRMETAR945.02019-12-11 17:07:20O=)#5    3LTCC 111650Z 26004KT 9999 FEW040 BKN100 05/05 Q1020 NOSIG RMK RWY16 25003KTLTCC2019-12-11T16:50:00Z37.8740.25.05.026046.2130.11811TRUEVFRSPECI677.02019-12-11 17:07:20 3>SD)5   3KC99 111648Z AUTO 25008G20KT 220V040 10SM CLR 00/M22 A3020 RMK AO2KC992019-12-11T16:48:00Z29.87-105.550.0-22.025082010.030.200787TRUETRUEVFRMETAR3320.02019-12-11 17:07:20*C(_5   3MMPS 111649Z 00000KT 12SM SKC 29/23 A2997MMPS2019-12-11T16:49:00Z15.87-97.0729.023.00012.029.970472VFRMETAR88.02019-12-11 17:07:20pB)a5    3EGDR 111650Z 29017KT 9999 VCSH FEW001 FEW015CB SCT022 06/02 Q1006 TEMPO SHRA 4000 SCT010 RMK WHT TEMPO GRNEGDR2019-12-11T16:50:00Z50.08-5.256.02.0290176.2129.704725VCSHVFRMETAR82.02019-12-11 17:07:20HA) 5     3LTCI 111650Z 13004KT 9999 -SN SCT030 BKN070 01/M00 Q1019 NOSIGLTCI2019-12-11T16:50:00Z38.4543.321.00.013046.2130.088583TRUE-SNVFRMETAR1661.02019-12-11 17:07:20 .iEH(}5    3K20V 111648Z AUTO 00000KT 10SM CLR M09/M11 A3028 RMK AO2K20V2019-12-11T16:48:00Z40.05-106.37-9.0-11.00010.030.280512TRUETRUEVFRSPECI2259.02019-12-11 17:07:20CG({5    3KBDU 111648Z AUTO 04004KT 10SM CLR 03/M04 A3009 RMK AO2KBDU2019-12-11T16:48:00Z40.03-105.233.0-4.040410.030.088583TRUETRUEVFRSPECI1612.02019-12-11 17:07:20@F)5   3MMLO 111648Z 00000KT 10SM FEW030 SCT220 18/08 A3041 RMK 8/502MMLO2019-12-11T16:48:00Z21.0-101.4718.08.00010.030.410433VFRMETAR1819.02019-12-11 17:07:20ME)5   3KCPW 111648Z AUTO 21016G20KT 10SM CLR M06/M20 A3036 RMK AO2KCPW2019-12-11T16:48:00Z37.45-106.8-6.0-20.0210162010.030.360237TRUETRUEVFRMETAR3584.02019-12-11 17:07:20 ,0f,.M(m5   3MMAA 111646Z 00000KT 8SM SKC 29/21 A2998 RMK HZYMMAA2019-12-11T16:46:00Z16.75-99.7529.021.0008.029.97933VFRMETAR5.02019-12-11 17:07:208L(w5   3MMML 111647Z 31004KT 10SM SKC 14/07 A3021 RMK ISOL CIMMML2019-12-11T16:47:00Z32.62-115.2314.07.0310410.030.209646VFRMETAR22.02019-12-11 17:07:20EK(}5    3K7BM 111648Z AUTO 00000KT 10SM CLR M01/M20 A3022 RMK AO2K7BM2019-12-11T16:48:00Z38.78-106.22-1.0-20.00010.030.221457TRUETRUEVFRSPECI2995.02019-12-11 17:07:20EJ(}5    3K04V 111648Z AUTO 31008KT 10SM CLR M05/M12 A3031 RMK AO2K04V2019-12-11T16:48:00Z38.1-106.17-5.0-12.0310810.030.31004TRUETRUEVFRSPECI2385.02019-12-11 17:07:20KI)5    3K0CO 111648Z AUTO 27018G25KT CLR M06/M15 A3022 RMK AO2 PWINOK0CO2019-12-11T16:48:00Z39.8-105.77-6.0-15.0270182530.221457TRUETRUETRUESPECI3807.02019-12-11 17:07:20 c?{c+R(]5   3LHPR 111645Z 12006KT CAVOK M02/M04 Q1015LHPR2019-12-11T16:45:00Z47.6317.82-2.0-4.012066.2129.970472VFRMETAR129.02019-12-11 17:07:206Q(m5    3LHSM 111645Z AUTO 11003KT 9000 NCD M00/M03 Q1015LHSM2019-12-11T16:45:00Z46.6817.170.0-3.011035.5929.970472TRUEVFRMETAR125.02019-12-11 17:07:20(P([5   3LHPP 111645Z 09001KT CAVOK 01/M02 Q1015LHPP2019-12-11T16:45:00Z45.9818.231.0-2.09016.2129.970472VFRMETAR305.02019-12-11 17:07:20?O({5     3LHDC 111645Z AUTO VRB02KT 7000 OVC036 03/00 Q1017 NOSIGLHDC2019-12-11T16:45:00Z47.4721.623.00.0024.3530.029528TRUETRUEMVFRMETAR112.02019-12-11 17:07:20Y)5   3MMIA 111643Z 00000KT 8SM SCT250 26/17 A3011 RMK 6//// 8/008MMIA2019-12-11T16:43:00Z19.27-103.5726.017.0008.030.109253VFRMETAR723.02019-12-11 17:07:20?X)5   3MMLP 111644Z 33005KT 10SM FEW015 22/14 A3008 RMK 8/800 HZYMMLP2019-12-11T16:44:00Z24.07-110.3722.014.0330510.030.079725VFRMETAR21.02019-12-11 17:07:20 OH O7a(w5   3MMMZ 111642Z 00000KT 14SM SKC 25/19 A3001 RMK ISOL CIMMMZ2019-12-11T16:42:00Z23.17-106.2725.019.00014.030.008858VFRMETAR10.02019-12-11 17:07:206`(w5   3MMZO 111642Z 15006KT 8SM FEW020 28/23 A2998 RMK 8/100MMZO2019-12-11T16:42:00Z19.13-104.5728.023.015068.029.97933VFRSPECI8.02019-12-11 17:07:20F_) 5   3MMQT 111643Z 09016KT 5SM BKN015 OVC100 13/07 A3047 RMK 8/57/ HZYMMQT2019-12-11T16:43:00Z20.62-100.1813.07.090165.030.469488MVFRMETAR1919.02019-12-11 17:07:202^(m5   3MMPB 111643Z 36003KT 7SM SKC 17/06 A3046 RMK HZYMMPB2019-12-11T16:43:00Z19.17-98.3717.06.036037.030.46063VFRMETAR2244.02019-12-11 17:07:203](k5   3MMSL 111643Z 23004KT 9SM SKC 21/15 A3008 RMK ACMMSL2019-12-11T16:43:00Z22.95-109.9321.015.023049.030.079725VFRMETAR140.02019-12-11 17:07:20 9P9m)5   3MMPN 111640Z 00000KT 15SM SCT280 22/09 A3027 RMK 8/001 HZYMMPN2019-12-11T16:40:00Z19.38-102.0222.09.00015.030.268702VFRMETAR1593.02019-12-11 17:07:204l(m5   3MMMM 111640Z 10002KT 6SM SKC 17/08 A3035 RMK HZYMMMM2019-12-11T16:40:00Z19.85-101.0217.08.010026.030.351377VFRMETAR1833.02019-12-11 17:07:20 8=u8=u)5   3MMPG 111640Z 09005KT 10SM SCT030 09/05 A3053 RMK 8/500 HZYMMPG2019-12-11T16:40:00Z28.65-100.529.05.090510.030.528543VFRMETAR250.02019-12-11 17:07:20+t(_5   3MMNL 111640Z 06008KT 10SM SKC 12/05 A3050MMNL2019-12-11T16:40:00Z27.42-99.5712.05.060810.030.499016VFRMETAR148.02019-12-11 17:07:20Fs) 5   3MMMY 111640Z 11010KT 8SM BKN025 BKN070 12/07 A3045 RMK 8/570 HZYMMMY2019-12-11T16:40:00Z25.77-100.0812.07.0110108.030.448818MVFRMETAR387.02019-12-11 17:07:20Cr) 5    3MMMV 111640Z 00000KT 5SM HZ BKN030 OVC040 10/07 A3046 RMK 8/5//MMMV2019-12-11T16:40:00Z26.95-101.4710.07.0005.030.46063HZMVFRMETAR615.02019-12-11 17:07:20>q)5   3MMMA 111640Z 34018KT 8SM OVC012 11/08 A3046 RMK 8/5// BINOVCMMMA2019-12-11T16:40:00Z25.77-97.5211.08.0340188.030.46063MVFRMETAR8.02019-12-11 17:07:20 C>{ CEz)5   3MMPA 111640Z 31006KT 5SM OVC070 17/16 A3040 RMK 8/07/ HZY ISOL SCMMPA2019-12-11T16:40:00Z20.5-97.4717.016.031065.030.398623MVFRMETAR142.02019-12-11 17:07:202y(m5   3MMBT 111640Z 27008KT 7SM SKC 30/22 A2998 RMK HZYMMBT2019-12-11T16:40:00Z15.77-96.2730.022.027087.029.97933VFRMETAR143.02019-12-11 17:07:202x(o5   3MMLM 111640Z 00000KT 10SM SKC 21/11 A3005 RMK HZYMMLM2019-12-11T16:40:00Z25.67-109.0721.011.00010.030.050198VFRMETAR4.02019-12-11 17:07:20>w)5   3MMHO 111640Z 00000KT 10SM BKN200 19/11 A3013 RMK 8/008 HZYMMHO2019-12-11T16:40:00Z29.08-111.0519.011.00010.030.129921VFRMETAR184.02019-12-11 17:07:20=v)5   3MMGM 111640Z 00000KT 10SM SCT180 20/13 A3004 RMK 8/006 HZYMMGM2019-12-11T16:40:00Z27.95-110.9220.013.00010.030.041338VFRMETAR20.02019-12-11 17:07:20 *-q*4(s5   3DABT 111600Z 25004KT 9999 FEW020 SCT200 11/02 Q1018DABT2019-12-11T16:00:00Z35.756.3211.02.025046.2130.059055VFRMETAR823.02019-12-11 17:07:20<~(}5    3CWEE 111600Z AUTO M19/M22 RMK AO1 SLP193 T11921215 58019CWEE2019-12-11T16:00:00Z49.27-73.33-19.2-21.51019.3TRUETRUE-1.9METAR305.02019-12-11 17:07:20H})5   3CWKD 111600Z AUTO 25010KT M21/M25 RMK AO1 18 8002 SLP195 T12071249CWKD2019-12-11T16:00:00Z50.73-71.02-20.7-24.9250101019.5TRUETRUEMETAR497.02019-12-11 17:07:207|(q5    3HKMO 111600Z 06008KT 9999 FEW026 27/25 Q1009 NOSIGHKMO2019-12-11T16:00:00Z-4.0239.6227.025.06086.2129.793306TRUEVFRMETAR55.02019-12-11 17:07:20N{)5   3K33V 111635Z AUTO 20012G17KT 10SM CLR M05/M13 A3018 RMK AO1K33V2019-12-11T16:35:00Z40.75-106.28-5.0-13.0200121710.030.180119TRUETRUEVFRMETAR2484.02019-12-11 17:07:20 "E_+(e5   3EKSP 111706Z 19006KT 5000 BKN007 05/05 Q1003EKSP2019-12-11T17:06:00Z55.229.275.05.019063.1129.616142IFRSPECI40.02019-12-11 17:10:44a)%5    3CYZP 111707Z AUTO 13031G41KT 5SM -RA BR BKN013 OVC019 09/07 A2953 RMK SLP000CYZP2019-12-11T17:07:00Z53.25-131.829.07.013031415.029.5305121000.0TRUE-RA BRMVFRSPECI6.02019-12-11 17:10:44X)5     3CYIN 111707Z AUTO 00000KT 5/8SM BR VV003 M12/M14 A2989 RMK SLP189CYIN2019-12-11T17:07:00Z51.27-121.68-12.0-14.0000.6329.8907471018.9TRUEBRLIFR300SPECI1128.02019-12-11 17:10:44Y)5    3CYZE 111707Z AUTO 29019G30KT 3SM HZ FEW034 M10/M16 A3006 RMK SLP194CYZE2019-12-11T17:07:00Z45.87-82.57-10.0-16.029019303.030.0590551019.4TRUEHZMVFRSPECI193.02019-12-11 17:10:44 >n`);5   3CYWH 111705Z 09008KT 10SM SCT004 BKN010 OVC015 08/06 A2997 RMK SF3SC3SC2 VIS W 4 SLP152CYWH2019-12-11T17:05:00Z48.42-123.388.06.090810.029.9704721015.2MVFRSPECI10.02019-12-11 17:10:44e)55   3CYFT 111705Z 26040G54KT 7SM DRSN FEW030 FEW120 M13/M17 A2930 RMK SC1AC1 SC TR SLP930CYFT2019-12-11T17:05:00Z55.07-59.17-13.0-17.026040547.029.300198993.0DRSNVFRSPECI71.02019-12-11 17:10:44K)5   3YPEA 111706Z AUTO 09019G29KT 9999 // NCD 26/07 Q1015 RF00.0/000.0YPEA2019-12-11T17:06:00Z-31.67116.0226.07.09019296.2129.970472TRUEVFRMETAR49.02019-12-11 17:10:44=(u5    3YCFS 111706Z AUTO 22011KT 7000 // BKN014 22/20 Q1010YCFS2019-12-11T17:06:00Z-30.32153.1222.020.0220114.3529.822834TRUEMVFRSPECI5.02019-12-11 17:10:44 $m] )15     3KDEW 111705Z AUTO 4SM BR BKN006 OVC009 M02/M03 A3010 RMK AO2 CIG 004V007 T10171028KDEW2019-12-11T17:05:00Z47.97-117.43-1.7-2.84.030.100393TRUETRUEBRIFRMETAR674.02019-12-11 17:10:44E ) 5    3KAUS 111705Z 35004KT 10SM SCT018 09/03 A3054 RMK AO2 T00890033KAUS2019-12-11T17:05:00Z30.18-97.688.93.3350410.030.540354TRUEVFRMETAR166.02019-12-11 17:10:442 (i5   3PADG 111705Z 13009KT 15SM BKN100 M01/M06 A2963PADG2019-12-11T17:05:00Z68.03-162.9-1.0-6.0130915.029.630905VFRSPECI297.02019-12-11 17:10:44W)5    3KVPS 111705Z 02013G19KT 10SM -RA OVC047 08/04 A3039 RMK RAB04 SLP298 $KVPS2019-12-11T17:05:00Z30.47-86.528.04.020131910.030.3897631029.8TRUE-RAVFRSPECI26.02019-12-11 17:10:44 3_F)5    3CYHE 111704Z AUTO 11006KT 9SM OVC038 02/01 A3007 RMK SLP186CYHE2019-12-11T17:04:00Z49.37-121.52.01.011069.030.0708661018.6TRUEVFRSPECI39.02019-12-11 17:10:44O)5    3CBBC 111704Z AUTO 13006KT 080V180 9SM OVC070 05/03 A2976 RMK SLP080CBBC2019-12-11T17:04:00Z52.18-128.155.03.013069.029.7608261008.0TRUEVFRSPECI43.02019-12-11 17:10:44X )5    3KMVH 111705Z AUTO 27010KT 10SM SCT024 BKN030 BKN037 04/M02 A2986 RMK AO2KMVH2019-12-11T17:05:00Z46.83-108.934.0-2.02701010.029.861221TRUETRUEMVFRMETAR1355.02019-12-11 17:10:44k )95      3KSPB 111705Z AUTO 20003KT 3SM -RA BR SCT004 OVC008 06/05 A3004 RMK AO2 P0000 T00560050KSPB2019-12-11T17:05:00Z45.77-122.875.65.020033.030.041338TRUETRUE-RA BRIFR0.005METAR14.02019-12-11 17:10:44 #ORL)5    3CYCP 111704Z 00000KT 6SM -SHSN OVC030 M06/M07 A3000 RMK SC8 SLP203CYCP2019-12-11T17:04:00Z52.13-119.28-6.0-7.0006.030.01020.3-SHSNMVFRSPECI683.02019-12-11 17:10:44x)O5     3PAMD 111704Z AUTO 08033G43KT 5SM -RA BR SCT007 OVC013 07/06 A2933 RMK AO2 PK WND 08043/1655 P0000PAMD2019-12-11T17:04:00Z59.43-146.37.06.08033435.029.329725TRUETRUE-RA BRMVFR0.005METAR14.02019-12-11 17:10:44O) 5   3K4I3 111704Z AUTO 24010G20KT 10SM OVC028 M03/M09 A3037 RMK AO2K4I32019-12-11T17:04:00Z40.33-82.53-3.0-9.0240102010.030.369095TRUETRUEMVFRMETAR363.02019-12-11 17:10:44X)5    3CYKL 111704Z AUTO 27016G24KT 6SM HZ FEW013 M22/M26 A2966 RMK SLP104CYKL2019-12-11T17:04:00Z54.78-66.82-22.0-26.027016246.029.6604331010.4TRUEHZVFRSPECI521.02019-12-11 17:10:44 {,Z{Z)/5      3KMJX 111703Z AUTO 32006KT 10SM BKN008 OVC033 02/ A3029 RMK AO2 CIG 007V012 FZRANOKMJX2019-12-11T17:03:00Z39.93-74.32.0320610.030.28937TRUETRUETRUEIFRMETAR25.02019-12-11 17:10:44M)5     3KPTV 111703Z AUTO 00000KT 5SM BR SCT002 SCT009 08/08 A3029 RMK AO2KPTV2019-12-11T17:03:00Z36.02-119.078.08.0005.030.28937TRUETRUEBRMVFRMETAR135.02019-12-11 17:10:44N)5     3KSPG 111704Z 08005KT 3SM BR BKN008 BKN011 22/21 A3018 RMK AO2 T02220211KSPG2019-12-11T17:04:00Z27.77-82.6322.221.18053.030.180119TRUEBRIFRMETAR2.02019-12-11 17:10:44|)a5    3KFNT 111704Z 28017G28KT 10SM SCT027 OVC038 M05/M12 A3027 RMK AO2 PK WND 28028/1658 SNE1656 P0000 T10501122KFNT2019-12-11T17:04:00Z42.97-83.75-5.0-12.2280172810.030.268702TRUEVFR0.005METAR233.02019-12-11 17:10:44 u4euk)=5     3CYNM 111703Z AUTO 14004KT 2SM -SN BKN030 OVC038 M21/M23 A2988 RMK VIS VRB 1 1/4-3 SLP154CYNM2019-12-11T17:03:00Z49.77-77.82-21.0-23.014042.029.8789371015.4TRUE-SNIFRSPECI281.02019-12-11 17:10:44J)5    3CYAH 111703Z AUTO 24008KT 9SM CLR M26/M30 A2991 RMK SLP169CYAH2019-12-11T17:03:00Z53.75-73.67-26.0-30.024089.029.9114171016.9TRUEVFRSPECI306.02019-12-11 17:10:44a)%5    3CYQA 111703Z AUTO 21012G21KT 3/8SM SN BKN008 OVC021 M06/M08 A2999 RMK SLP178CYQA2019-12-11T17:03:00Z44.97-79.28-6.0-8.021012210.3829.9911421017.8TRUESNLIFRSPECI282.02019-12-11 17:10:44a)'5      3PAMY 111703Z AUTO 16005KT 3/4SM BR FEW001 OVC036 M01/M01 A2939 RMK AO2 FZRANOPAMY2019-12-11T17:03:00Z60.37-166.27-1.0-1.016050.7529.388779TRUETRUETRUEBRLIFRMETAR13.02019-12-11 17:10:44 GcZ)#5    3KGRK 111703Z AUTO 08004KT 9SM OVC009 04/03 A3053 RMK AO2 CIG 007V009 SLP346KGRK2019-12-11T17:03:00Z31.07-97.834.03.08049.030.5285431034.6TRUETRUEIFRMETAR309.02019-12-11 17:10:44_)!5    3KEGI 111703Z AUTO 36010KT 10SM CLR 07/05 A3041 RMK AO2 RAB1656E03 SLP299 $KEGI2019-12-11T17:03:00Z30.63-86.527.05.03601010.030.4104331029.9TRUETRUETRUEVFRSPECI59.02019-12-11 17:10:44S)/5    3EYSA 111703Z 16012KT 9999 BKN005 M03/M04 Q1016 R14L/29//95 R14R/29//95 YLO1 NOSIGEYSA2019-12-11T17:03:00Z55.923.4-3.0-4.0160126.2130.0TRUEIFRMETAR135.02019-12-11 17:10:44\)75   3YMML 111703Z 23008KT 9999 FEW018 BKN021 13/10 Q1017 TEMPO 1703/2003 5000 -SHRA BKN012YMML2019-12-11T17:03:00Z-37.67144.8213.010.023086.2130.029528MVFRMETAR141.02019-12-11 17:10:44 ;XG#) 5    3KGON 111703Z 30008KT 10SM OVC060 M01/M05 A3025 RMK AO2 T10061050KGON2019-12-11T17:03:00Z41.33-72.05-0.6-5.0300810.030.250984TRUEVFRMETAR3.02019-12-11 17:10:44^"))5      3KDPA 111703Z 29009KT 6SM HZ OVC018 M07/M11 A3042 RMK AO2 SNE03 P0000 T10671111KDPA2019-12-11T17:03:00Z41.92-88.25-6.7-11.129096.030.41929TRUEHZMVFR0.005METAR231.02019-12-11 17:10:44E!) 5    3KFTW 111703Z 15006KT 10SM FEW007 05/02 A3055 RMK AO2 T00500022KFTW2019-12-11T17:03:00Z32.83-97.375.02.2150610.030.549213TRUEVFRMETAR214.02019-12-11 17:10:44v )E5    3KTTS 111703Z AUTO 01008G15KT 10SM OVC008 22/21 A3021 RMK AO2 DZE03 OVC V BKN SLP234 FZRANO $KTTS2019-12-11T17:03:00Z28.62-80.7222.021.01081510.030.2096461023.4TRUETRUETRUETRUEIFRMETAR3.02019-12-11 17:10:44 | 1i|h')55     3KUUU 111703Z AUTO 32006KT 9SM SCT012 M01/M03 A3023 RMK AO2 SNE1658 P0000 T10061033 $KUUU2019-12-11T17:03:00Z41.53-71.28-0.6-3.332069.030.230314TRUETRUETRUEVFR0.005METAR51.02019-12-11 17:10:44C&) 5    3KSLE 111703Z 16004KT 10SM BKN045 08/07 A3005 RMK AO2 T00780067KSLE2019-12-11T17:03:00Z44.9-123.07.86.7160410.030.050198TRUEVFRMETAR59.02019-12-11 17:10:44j%)A5      3KMTH 111703Z AUTO 05006KT 5SM -RA FEW018 BKN032 OVC070 28/25 A3015 RMK AO2 P0002 T02830250KMTH2019-12-11T17:03:00Z24.73-81.0528.325.05065.030.15059TRUETRUE-RAMVFR0.02METAR2.02019-12-11 17:10:44[$)%5    3KMLF 111703Z AUTO 19012KT 10SM CLR 03/M03 A3021 RMK AO2 WSHFT 1649 T00281033KMLF2019-12-11T17:03:00Z38.42-113.022.8-3.31901210.030.209646TRUETRUEVFRMETAR1534.02019-12-11 17:10:44 o+)G5      3KBNO 111702Z AUTO 00000KT 10SM -RA SCT027 OVC039 01/M02 A3015 RMK AO2 RAB1655 P0000 T00111017KBNO2019-12-11T17:02:00Z43.6-118.951.1-1.70010.030.15059TRUETRUE-RAVFR0.005METAR1264.02019-12-11 17:10:44@*(u5   3YPBO 111703Z AUTO 16015G27KT 9999 // NCD 31/11 Q1014YPBO2019-12-11T17:03:00Z-23.2117.7531.011.016015276.2129.940945TRUEVFRSPECI1292.02019-12-11 17:10:44))5     3KSUU 111703Z AUTO 03003KT 2 1/4SM BR OVC007 11/10 A3026 RMK AO2 VIS 3/4 RWY03L CIG 005 RWY03L CIG 006 RWY03R CIG 006 RWY21R SLP254 $KSUU2019-12-11T17:03:00Z38.27-121.9211.010.03032.2530.2598421025.4TRUETRUETRUEBRIFRSPECI19.02019-12-11 17:10:44()a5   3KGOV 111703Z AUTO 26015G23KT 9SM FEW023 BKN029 BKN035 M13/M19 A3019 RMK AO2 LTG DSNT NE CIG 029V034 SLP255KGOV2019-12-11T17:03:00Z44.68-84.73-13.0-19.026015239.030.1889761025.5TRUETRUEMVFRMETAR353.02019-12-11 17:10:44 &QnW/)!5   3KLAN 111702Z 27013G24KT 10SM BKN029 BKN037 M07/M13 A3031 RMK AO2 T10671133KLAN2019-12-11T17:02:00Z42.78-84.58-6.7-13.3270132410.030.31004TRUEMVFRMETAR264.02019-12-11 17:10:44^.)+5      3KPUW 111702Z AUTO 00000KT 2 1/2SM BR OVC005 01/01 A3009 RMK AO2 P0001 T00110006KPUW2019-12-11T17:02:00Z46.75-117.121.10.6002.530.088583TRUETRUEBRIFR0.01METAR773.02019-12-11 17:10:44P-)5     3KSCK 111702Z 15005KT 2SM BR FEW004 BKN060 11/09 A3024 RMK AO2 T01110094KSCK2019-12-11T17:02:00Z37.88-121.2211.19.415052.030.239174TRUEBRIFRMETAR10.02019-12-11 17:10:44U,)5     3KCNM 111702Z AUTO 17003KT 1/2SM FG OVC002 03/03 A3036 RMK AO2 T00280028KCNM2019-12-11T17:02:00Z32.33-104.252.82.817030.530.360237TRUETRUEFGLIFRMETAR985.02019-12-11 17:10:44 |C_|^3)'5    3KHST 111702Z AUTO 10009KT 10SM FEW022 FEW034 29/23 A3016 RMK AO2 RAE02 SLP217KHST2019-12-11T17:02:00Z25.47-80.3729.023.0100910.030.1594491021.7TRUETRUEVFRMETAR2.02019-12-11 17:10:44_2)5    3CZUM 111702Z AUTO 27015G27KT 220V300 9SM -SN CLR M19/M25 A2973 RMK SLP116CZUM2019-12-11T17:02:00Z53.53-64.08-19.0-25.027015279.029.7312981011.6TRUE-SNVFRSPECI440.02019-12-11 17:10:44U1)5     3CYQZ 111702Z AUTO 20003KT 2 1/2SM BR OVC008 M06/M07 A2994 RMK SLP174CYQZ2019-12-11T17:02:00Z53.02-122.52-6.0-7.020032.529.9409451017.4TRUEBRIFRSPECI545.02019-12-11 17:10:44^0)5     3CYZH 111702Z AUTO 11014KT 4SM -SN SCT017 OVC025 M16/M18 A2999 RMK SLP209CYZH2019-12-11T17:02:00Z55.28-114.77-16.0-18.0110144.029.9911421020.9TRUE-SNMVFRSPECI581.02019-12-11 17:10:44 (|f7)-5     3PAMO 111702Z AUTO 05012KT 10SM CLR M03/M04 A2945 RMK AO2 SLP978 T10331039 FZRANOPAMO2019-12-11T17:02:00Z62.1-163.68-3.3-3.9501210.029.450787997.8TRUETRUETRUEVFRMETAR103.02019-12-11 17:10:44d6)-5     3PASM 111702Z AUTO 05007KT 10SM CLR M04/M04 A2945 RMK AO2 SLP981 T10391044 FZRANOPASM2019-12-11T17:02:00Z62.07-163.3-3.9-4.450710.029.450787998.1TRUETRUETRUEVFRMETAR92.02019-12-11 17:10:44'5(_5   3SVMI 111702Z AUTO 06007KT NCD 29/24 Q1014SVMI2019-12-11T17:02:00Z10.58-67.029.024.060729.940945TRUEMETAR48.02019-12-11 17:10:44S4)!5     3EGYM 111702Z 21007KT 5000 SHRA SCT022 OVC050 06/04 Q0999 NOSIG RMK WHT WHTEGYM2019-12-11T17:02:00Z52.630.576.04.021073.1129.498032TRUESHRAMVFRSPECI23.02019-12-11 17:10:44 ] ])<(_5   3SVVA 111702Z AUTO 04003KT NCD 30/18 Q1014SVVA2019-12-11T17:02:00Z10.15-67.9230.018.040329.940945TRUEMETAR431.02019-12-11 17:10:44;(75  3SVMC 111702Z AUTO NILSVMC2019-12-11T17:02:00Z10.57-71.72TRUEMETAR65.02019-12-11 17:10:44:(75  3SVBC 111702Z AUTO NILSVBC2019-12-11T17:02:00Z10.12-64.67TRUEMETAR7.02019-12-11 17:10:44f9)=5     3KTAN 111702Z AUTO 28005KT 8SM BKN008 OVC013 00/M03 A3023 RMK AO2 SNE1659 P0000 T00001028KTAN2019-12-11T17:02:00Z41.88-71.020.0-2.828058.030.230314TRUETRUEIFR0.005METAR7.02019-12-11 17:10:44}8)S5      3KPVC 111702Z AUTO 30009KT 3/4SM -SN BR BKN006 OVC014 M01/M01 A3023 RMK AO2 CIG 003V009 FZRANO PNO $KPVC2019-12-11T17:02:00Z42.07-70.22-1.0-1.030090.7530.230314TRUETRUETRUETRUE-SN BRLIFRMETAR2.02019-12-11 17:10:44 z$B(75  3SVBM 111702Z AUTO NILSVBM2019-12-11T17:02:00Z10.05-69.37TRUEMETAR614.02019-12-11 17:10:44A(75  3SVCS 111702Z AUTO NILSVCS2019-12-11T17:02:00Z10.3-66.82TRUEMETAR654.02019-12-11 17:10:44@(75  3SVFM 111702Z AUTO NILSVFM2019-12-11T17:02:00Z10.48-66.83TRUEMETAR835.02019-12-11 17:10:44&?(_5   3SVPA 111702Z AUTO 06006KT NCD 33/21 Q1011SVPA2019-12-11T17:02:00Z5.62-67.633.021.060629.852362TRUEMETAR74.02019-12-11 17:10:44&>(_5   3SVSR 111702Z AUTO 06006KT NCD 32/23 Q1013SVSR2019-12-11T17:02:00Z7.9-67.4232.023.060629.911417TRUEMETAR48.02019-12-11 17:10:44=(75  3SVBS 111702Z AUTO NILSVBS2019-12-11T17:02:00Z10.25-67.65TRUEMETAR437.02019-12-11 17:10:44 IR IRG)5    3CYZY 111701Z AUTO 00000KT 9SM BKN012 OVC031 M06/M07 A2989 RMK SLP167CYZY2019-12-11T17:01:00Z55.28-123.12-6.0-7.0009.029.8907471016.7TRUEMVFRSPECI690.02019-12-11 17:10:44RF)5   3KTZR 111701Z 24013G19KT 10SM -SN SCT031 OVC065 M02/M08 A3043 RMK SNB1700KTZR2019-12-11T17:01:00Z39.9-83.13-2.0-8.0240131910.030.431103-SNVFRMETAR276.02019-12-11 17:10:44)E(_5   3SVJM 111702Z AUTO 22004KT NCD 30/18 Q1013SVJM2019-12-11T17:02:00Z9.92-67.3830.018.0220429.911417TRUEMETAR429.02019-12-11 17:10:44(D(_5   3SVGU 111702Z AUTO 09006KT NCD 31/20 Q1013SVGU2019-12-11T17:02:00Z9.03-69.7531.020.090629.911417TRUEMETAR163.02019-12-11 17:10:44)C(_5   3SVMG 111702Z AUTO 10009KT NCD 26/25 Q1013SVMG2019-12-11T17:02:00Z10.92-63.9726.025.0100929.911417TRUEMETAR23.02019-12-11 17:10:44 Z=Z^K)'5      3KARR 111701Z 29009KT 2 1/2SM -SN OVC019 M07/M10 A3043 RMK AO2 P0000 T10671100KARR2019-12-11T17:01:00Z41.77-88.48-6.7-10.029092.530.431103TRUE-SNIFR0.005METAR215.02019-12-11 17:10:44LJ)5    3KBKV 111701Z 03008KT 10SM BKN007 OVC017 23/21 A3022 RMK AO2 T02280206KBKV2019-12-11T17:01:00Z28.47-82.4522.820.630810.030.221457TRUEIFRMETAR20.02019-12-11 17:10:44 I)o5     3KANJ 111701Z AUTO 26014G32KT 1 3/4SM -SN BKN014 M10/M14 A3006 RMK AO2 PK WND 27032/1659 VIS 3/4V5 P0000 T11001144KANJ2019-12-11T17:01:00Z46.47-84.37-10.0-14.426014321.7530.059055TRUETRUE-SNIFR0.005METAR218.02019-12-11 17:10:44]H)75     3UKLL 111701Z 13004MPS 1600 1200NW R13/1000D SNRA OVC003 00/M01 Q1016 R13/290055 NOSIGUKLL2019-12-11T17:01:00Z49.8223.930.0-1.013080.9930.0TRUESN RALIFRMETAR325.02019-12-11 17:10:44 }/0t}rO)c5    3LFMK 111700Z AUTO 27014KT 9999 BKN028/// BKN034/// OVC042/// ///TCU 08/06 Q1018 TEMPO 28020G35KT BECMG SHRALFMK2019-12-11T17:00:00Z43.222.328.06.0270146.2130.059055TRUEMVFRSPECI130.02019-12-11 17:10:447N(u5    3LFMT 111700Z AUTO 31010KT CAVOK 09/05 Q1015 TEMPO RALFMT2019-12-11T17:00:00Z43.573.979.05.0310106.2129.970472TRUEVFRMETAR6.02019-12-11 17:10:44zM)Y5      3KEWB 111701Z VRB04KT 2SM R05/3500VP6000FT -SN BR FEW007 OVC011 M01/M03 A3023 RMK AO2 P0000 T10111033 $KEWB2019-12-11T17:01:00Z41.68-70.95-1.1-3.3042.030.230314TRUETRUE-SN BRIFR0.005METAR23.02019-12-11 17:10:44LL)5     3KAPC 111701Z 09009KT 2 1/2SM BR OVC016 11/10 A3023 RMK AO2 T01060100KAPC2019-12-11T17:01:00Z38.2-122.2810.610.09092.530.230314TRUEBRIFRMETAR13.02019-12-11 17:10:44 QiJS)5    3LFPB 111700Z AUTO 18008KT 9999 SCT021 BKN054 07/04 Q1007 BECMG 25010KTLFPB2019-12-11T17:00:00Z48.972.457.04.018086.2129.734253TRUEVFRMETAR65.02019-12-11 17:10:44cR)G5    3LFRD 111700Z AUTO 24010KT 9999 FEW026 SCT056 04/03 Q1007 TEMPO 24015G25KT 4000 SHRA BKN020TCULFRD2019-12-11T17:00:00Z48.58-2.074.03.0240106.2129.734253TRUEVFRMETAR59.02019-12-11 17:10:44GQ)5    3LFMU 111700Z AUTO 31005KT 9999 FEW049 SCT110 OVC140 07/05 Q1016 TEMPO RALFMU2019-12-11T17:00:00Z43.323.357.05.031056.2130.0TRUEVFRSPECI17.02019-12-11 17:10:44^P)=5    3LFOB 111700Z AUTO 19010KT 9999 FEW039 OVC049 07/04 Q1005 TEMPO 3000 SHRA BKN015 BKN025CBLFOB2019-12-11T17:00:00Z49.472.127.04.0190106.2129.675198TRUEVFRMETAR111.02019-12-11 17:10:44 %lYW)-5     3LFRN 111700Z AUTO 25008KT CAVOK 05/03 Q1008 TEMPO 21020G35KT 4000 SHRA BKN020TCULFRN2019-12-11T17:00:00Z48.07-1.725.03.025086.2129.763779TRUEVFR-2.0METAR37.02019-12-11 17:10:44=V(y5     3LFSB 111700Z 17005KT 6000 -RA BKN020 03/02 Q1011 NOSIGLFSB2019-12-11T17:00:00Z47.67.523.02.017053.7329.852362TRUE-RAMVFRMETAR271.02019-12-11 17:10:444U(m5    3LJCE 111700Z AUTO VRB02KT 9999 NCD M01/M04 Q1015LJCE2019-12-11T17:00:00Z45.915.52-1.0-4.0026.2129.970472TRUEVFRMETAR155.02019-12-11 17:10:44VT)+5    3LFOK 111700Z AUTO 22010KT 9999 FEW008 BKN012 OVC190 05/05 Q1008 BECMG RA BKN016LFOK2019-12-11T17:00:00Z48.784.185.05.0220106.2129.763779TRUEMVFRSPECI162.02019-12-11 17:10:44 j UZjk[)U5    3LFRJ 111700Z AUTO 29013KT 9999 FEW015 BKN040 BKN056 06/02 Q1008 TEMPO 27015G25KT 4000 SHRA BKN015TCULFRJ2019-12-11T17:00:00Z48.52-4.156.02.0290136.2129.763779TRUEVFRMETAR115.02019-12-11 17:10:44vZ)m5    3LFRL 111700Z AUTO 29017KT 9999 FEW041/// BKN054/// BKN068/// ///TCU 07/02 Q1009 TEMPO 3000 SHRA BECMG 27015G25KTLFRL2019-12-11T17:00:00Z48.27-4.427.02.0290176.2129.793306TRUEVFRMETAR82.02019-12-11 17:10:443Y(o5   3LFOC 111700Z AUTO 21011KT 9999 ////// 06/04 Q1007LFOC2019-12-11T17:00:00Z48.031.376.04.0210116.2129.734253TRUEMETAR127.02019-12-11 17:10:44nX)_5    3LFOE 111700Z AUTO 22009KT 9999 FEW022/// SCT030/// BKN035/// ///TCU 06/04 Q1006 TEMPO 2000 -TSRA BKN030CBLFOE2019-12-11T17:00:00Z49.021.226.04.022096.2129.704725TRUEVFRMETAR146.02019-12-11 17:10:44 X 4XW_)!5   !  3LFLP 111700Z AUTO 00000KT 5000 -SNRA BR OVC008 03/02 Q1015 TEMPO RA BKN014LFLP2019-12-11T17:00:00Z45.926.083.02.0003.1129.970472TRUE-SN -RA BRIFRMETAR463.02019-12-11 17:10:44R^)5     3LFLU 111700Z AUTO 26005KT 7000 -SNRA BKN028 BKN033 OVC040 05/04 Q1015LFLU2019-12-11T17:00:00Z44.924.985.04.026054.3529.970472TRUE-SN -RAMVFRMETAR160.02019-12-11 17:10:44])5    3LFLX 111700Z AUTO 21012KT 9999 FEW035/// SCT046/// BKN054/// ///TCU 06/04 Q1010 TEMPO 24015G25KT 4000 -SHRA SCT020CB BKN025LFLX2019-12-11T17:00:00Z46.851.726.04.0210126.2129.822834TRUEVFRMETAR157.02019-12-11 17:10:44j\)U5    3LFOJ 111700Z AUTO 20014KT 9999 FEW017 SCT049 BKN070 06/05 Q1007 TEMPO 26017G27KT 4000 -SHRA BKN020CBLFOJ2019-12-11T17:00:00Z47.971.756.05.0200146.2129.734253TRUEVFRSPECI125.02019-12-11 17:10:44 DELDc)5    3LFOH 111700Z AUTO 25013KT 9999 BKN015/// BKN021/// BKN041/// ///TCU 06/04 Q1005 TEMPO 25020G35KT 2000 TSRAGS BKN015 BKN020CBLFOH2019-12-11T17:00:00Z49.520.076.04.0250136.2129.675198TRUEMVFRMETAR103.02019-12-11 17:10:44tb)k5    3LFOP 111700Z AUTO 21005KT 9999 FEW024/// SCT045/// BKN072/// ///TCU 05/04 Q1005 TEMPO 2000 TSRA SCT013 BKN020CBLFOP2019-12-11T17:00:00Z49.371.175.04.021056.2129.675198TRUEVFRMETAR157.02019-12-11 17:10:44-a(c5    3LFQA 111700Z AUTO 21005KT CAVOK 06/04 Q1007LFQA2019-12-11T17:00:00Z49.24.156.04.021056.2129.734253TRUEVFRMETAR95.02019-12-11 17:10:44`)5     3LFCK 111700Z AUTO 31007KT 4800 BR BKN006/// BKN013/// OVC068/// ///TCU 06/06 Q1018 TEMPO 30018G30KT 2000 SHRA BKN008 SCT020CBLFCK2019-12-11T17:00:00Z43.552.286.06.031072.9830.059055TRUEBRIFRMETAR240.02019-12-11 17:10:44 w+w/g(c5    3LFQB 111700Z AUTO 18007KT CAVOK 05/04 Q1009LFQB2019-12-11T17:00:00Z48.324.025.04.018076.2129.793306TRUEVFRMETAR118.02019-12-11 17:10:44Ff) 5    3LFSN 111700Z AUTO 20005KT 170V230 9999 BKN010 OVC015 04/03 Q1009LFSN2019-12-11T17:00:00Z48.676.224.03.020056.2129.793306TRUEMVFRMETAR217.02019-12-11 17:10:44qe)i5     3LFBD 111700Z AUTO 26013KT 9999 -RA FEW026/// BKN040/// OVC050/// ///CB 09/07 Q1016 TEMPO 29015G25KT 4000 -SHRALFBD2019-12-11T17:00:00Z44.82-0.79.07.0260136.2130.0TRUE-RAVFRMETAR61.02019-12-11 17:10:44d) 5    3LFBH 111700Z AUTO 30032G44KT 5000 -TSRA BR SCT033/// BKN041/// BKN060/// ///CB 07/04 Q1012 TEMPO 30020G40KT 1500 TSRAGS BKN012CBLFBH2019-12-11T17:00:00Z46.18-1.27.04.030032443.1129.88189TRUE-TSRA BRMVFRMETAR10.02019-12-11 17:10:44 3%93k)5    3LFRB 111700Z AUTO 29011KT 9999 FEW019/// SCT032/// BKN038/// ///TCU 06/03 Q1009 TEMPO 29015G25KT 4000 SHRA SCT015CB BKN025LFRB2019-12-11T17:00:00Z48.45-4.426.03.0290116.2129.793306TRUEVFRMETAR103.02019-12-11 17:10:44gj)S5    3LFRS 111700Z AUTO 28008KT 9999 FEW030 SCT036 BKN140 06/04 Q1010 TEMPO 30015G35KT 4000 SHRA SCT020CBLFRS2019-12-11T17:00:00Z47.17-1.66.04.028086.2129.822834TRUEVFRMETAR27.02019-12-11 17:10:44mi)_5   3LFBC 111700Z AUTO 25018G30KT 220V280 9999 FEW028/// SCT038/// BKN047/// ///CB 11/07 Q1016 TEMPO 4000 SHRALFBC2019-12-11T17:00:00Z44.52-1.1211.07.025018306.2130.0TRUEVFRMETAR33.02019-12-11 17:10:44dh)A5     3LFBG 111700Z AUTO 28016KT 250V310 9000 -RA FEW010/// SCT017/// BKN022/// ///CB 08/07 Q1013LFBG2019-12-11T17:00:00Z45.67-0.328.07.0280165.5929.911417TRUE-RAMVFRSPECI31.02019-12-11 17:10:44 !E!Sp)#5     3LFLL 111700Z 11006KT 080V140 5000 RA FEW020 BKN028 OVC036 05/05 Q1015 NOSIGLFLL2019-12-11T17:00:00Z45.725.075.05.011063.1129.970472TRUERAMVFRMETAR240.02019-12-11 17:10:44Co)5     3LFMN 111700Z 35008KT 9999 -RA SCT051 OVC100 09/03 Q1010 NOSIGLFMN2019-12-11T17:00:00Z43.637.29.03.035086.2129.822834TRUE-RAVFRMETAR10.02019-12-11 17:10:44>n(5    3LFPG 111700Z 19010KT 9999 SCT018 SCT036 07/04 Q1007 NOSIGLFPG2019-12-11T17:00:00Z49.022.527.04.0190106.2129.734253TRUEVFRMETAR109.02019-12-11 17:10:44Q=(5    3LEMG 111700Z 31010KT 9999 FEW040 BKN060 17/08 Q1024 NOSIGLEMG2019-12-11T17:00:00Z36.67-4.517.08.0310106.2130.236221TRUEVFRMETAR7.02019-12-11 17:10:44=)5   3TGPY 111700Z 08012KT 9999 SCT017 BKN040 29/25 Q1011 JP S-SWTGPY2019-12-11T17:00:00Z12.0-61.7829.025.080126.2129.852362VFRMETAR7.02019-12-11 17:10:44h)C5     3LFLS 111700Z AUTO 19003KT 160V230 7000 -SNRA BKN018 BKN023 OVC028 03/03 Q1015 TEMPO 4000 RALFLS2019-12-11T17:00:00Z45.375.323.03.019034.3529.970472TRUE-SN -RAMVFRMETAR386.02019-12-11 17:10:44=)5    3LFMP 111700Z AUTO 31012KT CAVOK 10/03 Q1016 BECMG 32020G30KTLFMP2019-12-11T17:00:00Z42.722.8710.03.0310126.2130.0TRUEVFRMETAR48.02019-12-11 17:10:44 7B 7O )5    3LEVX 111700Z 31005KT 250V350 9999 FEW009 SCT014 BKN027 10/09 Q1028 NOSIGLEVX2019-12-11T17:00:00Z42.22-8.6210.09.031056.2130.35433TRUEMVFRMETAR256.02019-12-11 17:10:44=(w5   3LEAL 111700Z 30021G32KT 9999 FEW040 16/05 Q1018 NOSIGLEAL2019-12-11T17:00:00Z38.27-0.5516.05.030021326.2130.059055TRUEVFRMETAR31.02019-12-11 17:10:449)5    3LEBL 111700Z 36006KT 290V060 9999 BKN035 12/07 Q1016 NOSIGLEBL2019-12-11T17:00:00Z41.272.0712.07.036066.2130.0TRUEVFRMETAR6.02019-12-11 17:10:442(q5    3LEIB 111700Z 31012KT 9999 FEW020 16/08 Q1016 NOSIGLEIB2019-12-11T17:00:00Z38.871.3716.08.0310126.2130.0TRUEVFRMETAR12.02019-12-11 17:10:449(u5    3LEMD 111700Z 20007KT 150V230 CAVOK 09/05 Q1023 NOSIGLEMD2019-12-11T17:00:00Z40.48-3.579.05.020076.2130.206694TRUEVFRMETAR582.02019-12-11 17:10:44 8D 8N)5    3LRSB 111700Z VRB01KT 0800 R27/0900D FZFG FEW066 M02/M02 Q1015 R27/19//95LRSB2019-12-11T17:00:00Z45.7824.08-2.0-2.0010.529.970472FZFGLIFRMETAR444.02019-12-11 17:10:446 )5   3LRTR 111700Z 18002KT 9999 FEW006 SCT021 BKN049 04/04 Q1016LRTR2019-12-11T17:00:00Z45.8221.334.04.018026.2130.0VFRMETAR88.02019-12-11 17:10:445 (q5    3LEZL 111700Z 05008KT 9999 FEW035 15/08 Q1026 NOSIGLEZL2019-12-11T17:00:00Z37.42-5.915.08.05086.2130.295275TRUEVFRMETAR31.02019-12-11 17:10:44? )5    3LEPA 111700Z 33011KT 300V010 9999 FEW018 15/09 Q1015 NOSIGLEPA2019-12-11T17:00:00Z39.532.7215.09.0330116.2129.970472TRUEVFRMETAR8.02019-12-11 17:10:447 (q5    3LEVC 111700Z 35012KT 9999 FEW040 16/04 Q1018 NOSIGLEVC2019-12-11T17:00:00Z39.5-0.4716.04.0350126.2130.059055TRUEVFRMETAR62.02019-12-11 17:10:44 53i5/(e5   3GCHI 111700Z 05019KT 9999 FEW022 20/16 Q1025GCHI2019-12-11T17:00:00Z27.82-17.8720.016.050196.2130.265747VFRMETAR30.02019-12-11 17:10:445(u5   3LPPD 111700Z 06009KT 360V090 9999 FEW027 15/06 Q1039LPPD2019-12-11T17:00:00Z37.72-25.6815.06.06096.2130.679134VFRMETAR72.02019-12-11 17:10:44A)5    3LRBS 111700Z 04011KT 7000 OVC006 04/03 Q1018 R07/29//95 NOSIGLRBS2019-12-11T17:00:00Z44.526.084.03.040114.3530.059055TRUEIFRMETAR91.02019-12-11 17:10:44E)5     3LRCK 111700Z 02012KT 5000 BR FEW017 BKN031 06/06 Q1017 NOSIGLRCK2019-12-11T17:00:00Z44.3728.486.06.020123.1130.029528TRUEBRMVFRMETAR108.02019-12-11 17:10:44H)5     3LROP 111700Z 06012KT 6000 -RA OVC007 05/04 Q1018 R88/19//95 NOSIGLROP2019-12-11T17:00:00Z44.5726.15.04.060123.7330.059055TRUE-RAIFRMETAR95.02019-12-11 17:10:44 ,+c,@(5    3GCLP 111700Z 02020KT 9999 FEW020 BKN032 20/14 Q1025 NOSIGGCLP2019-12-11T17:00:00Z27.92-15.3720.014.020206.2130.265747TRUEVFRMETAR25.02019-12-11 17:10:44/(e5   3GCRR 111700Z 03016KT 9999 SCT030 20/13 Q1025GCRR2019-12-11T17:00:00Z28.93-13.5820.013.030166.2130.265747VFRMETAR40.02019-12-11 17:10:449(q5    3GCTS 111700Z 07024KT 9999 FEW025 21/14 Q1025 NOSIGGCTS2019-12-11T17:00:00Z28.05-16.5721.014.070246.2130.265747TRUEVFRMETAR72.02019-12-11 17:10:44C)5    3GCXO 111700Z 34005KT 300V030 9999 SCT015 15/12 Q1027 NOSIGGCXO2019-12-11T17:00:00Z28.48-16.3515.012.034056.2130.324802TRUEVFRMETAR632.02019-12-11 17:10:44P)#5  3GCGM 111700Z VRB08G18KT 9999 FEW021 20/14 Q1025 RMK R09/VRB03KT ARP/VRB05KTGCGM2019-12-11T17:00:00Z28.03-17.2220.014.008186.2130.265747VFRMETAR219.02019-12-11 17:10:44 HDH;(y5    3LECH 111700Z AUTO 32012KT 240V350 9999 NCD 12/02 Q1018LECH2019-12-11T17:00:00Z40.20.0712.02.0320126.2130.059055TRUEVFRMETAR337.02019-12-11 17:10:44I) 5    3LEAG 111700Z AUTO 31011KT 220V360 9999 BKN022 BKN036 16/12 Q1026LEAG2019-12-11T17:00:00Z36.12-5.4516.012.0310116.2130.295275TRUEMVFRMETAR32.02019-12-11 17:10:44.(e5   3LEBG 111700Z 22012KT 9999 FEW030 04/01 Q1022LEBG2019-12-11T17:00:00Z42.37-3.624.01.0220126.2130.177166VFRMETAR891.02019-12-11 17:10:446(s5   3GCFV 111700Z 04017KT 9999 FEW020 SCT030 20/13 Q1025GCFV2019-12-11T17:00:00Z28.43-13.8720.013.040176.2130.265747VFRMETAR23.02019-12-11 17:10:447(u5   3GCLA 111700Z 03015KT 340V070 9999 BKN035 20/14 Q1027GCLA2019-12-11T17:00:00Z28.62-17.7520.014.030156.2130.324802VFRMETAR31.02019-12-11 17:10:44 >C>N")5    3LEST 111700Z 27006KT 240V320 9999 FEW015 SCT036 BKN045 08/08 Q1027 NOSIGLEST2019-12-11T17:00:00Z42.88-8.428.08.027066.2130.324802TRUEVFRMETAR367.02019-12-11 17:10:44=!)5   3LEVT 111700Z 22006KT 200V260 9999 FEW030 SCT050 06/03 Q1021LEVT2019-12-11T17:00:00Z42.87-2.726.03.022066.2130.147638VFRMETAR509.02019-12-11 17:10:44- (e5   3LEZG 111700Z 30009KT 9999 FEW050 08/05 Q1021LEZG2019-12-11T17:00:00Z41.67-1.028.05.030096.2130.147638VFRMETAR258.02019-12-11 17:10:449(o5     3LFLN 111700Z AUTO 19004KT CAVOK 06/03 Q1013 NOSIGLFLN2019-12-11T17:00:00Z46.424.026.03.019046.2129.911417TRUETRUEVFRMETAR244.02019-12-11 17:10:448(o5    3LETL 111700Z AUTO 32012KT 9999 SCT032 05/01 Q1021LETL2019-12-11T17:00:00Z40.42-1.225.01.0320126.2130.147638TRUEVFRMETAR1013.02019-12-11 17:10:44 !T&!')5    3LFRQ 111700Z AUTO 28010KT 9999 FEW036/// SCT042/// BKN050/// ///TCU 06/03 Q1010 TEMPO 29015G25KT 4000 SHRA SCT015CB BKN025LFRQ2019-12-11T17:00:00Z47.97-4.176.03.0280106.2129.822834TRUEVFRMETAR94.02019-12-11 17:10:44D&) 5    3LFOZ 111700Z AUTO 18009KT 9999 SCT022 BKN027 BKN033 06/05 Q1009LFOZ2019-12-11T17:00:00Z47.92.176.05.018096.2129.793306TRUEMVFRMETAR121.02019-12-11 17:10:444%(u5   3LESA 111700Z 26007KT 220V290 9999 FEW032 05/00 Q1027LESA2019-12-11T17:00:00Z40.95-5.55.00.026076.2130.324802VFRMETAR795.02019-12-11 17:10:44'$(Y5   3LEVD 111700Z 27007KT CAVOK 06/00 Q1024LEVD2019-12-11T17:00:00Z41.72-4.836.00.027076.2130.236221VFRMETAR854.02019-12-11 17:10:44'#(Y5   3LEDA 111700Z 26019KT CAVOK 09/04 Q1017LEDA2019-12-11T17:00:00Z41.730.539.04.0260196.2130.029528VFRMETAR350.02019-12-11 17:10:44  Cd+)C5     3LFRT 111700Z AUTO 31008KT 270V330 9999 -RA SCT019/// SCT026/// BKN033/// ///TCU 04/04 Q1008LFRT2019-12-11T17:00:00Z48.52-2.854.04.031086.2129.763779TRUE-RAVFRMETAR136.02019-12-11 17:10:44;*(}5    3LFPM 111700Z AUTO 17007KT 9999 SCT018 SCT033 06/04 Q1008LFPM2019-12-11T17:00:00Z48.622.676.04.017076.2129.763779TRUEVFRMETAR92.02019-12-11 17:10:44B)) 5    3LFPT 111700Z AUTO 20010KT 9999 FEW048/// BKN062/// 07/03 Q1006LFPT2019-12-11T17:00:00Z49.12.037.03.0200106.2129.704725TRUEVFRMETAR99.02019-12-11 17:10:44q()c5    3LFRH 111700Z AUTO 28011KT 9999 FEW026 SCT120 05/03 Q1010 TEMPO VRB20G38KT 2500 +SHRA BKN008 BKN012CB BKN020LFRH2019-12-11T17:00:00Z47.77-3.455.03.0280116.2129.822834TRUEVFRMETAR44.02019-12-11 17:10:44 R:-0(e5   3LPHR 111700Z 18005KT 9999 SCT040 16/06 Q1041LPHR2019-12-11T17:00:00Z38.52-28.7216.06.018056.2130.73819VFRMETAR41.02019-12-11 17:10:44+/(e5   3LPFL 111700Z VRB01KT 9999 BKN042 15/06 Q1041LPFL2019-12-11T17:00:00Z39.45-31.1215.06.0016.2130.73819VFRMETAR29.02019-12-11 17:10:440.(s5   3LRAR 111700Z 21003KT 6000 SCT008 OVC010 05/05 Q1016LRAR2019-12-11T17:00:00Z46.1821.275.05.021033.7330.0MVFRMETAR118.02019-12-11 17:10:44.-(c5    3LFSD 111700Z AUTO 18009KT CAVOK 04/04 Q1012LFSD2019-12-11T17:00:00Z47.275.074.04.018096.2129.88189TRUEVFRMETAR227.02019-12-11 17:10:44),(e5   3LPLA 111700Z /////KT 9999 FEW035 16/08 Q1040LPLA2019-12-11T17:00:00Z38.77-27.116.08.06.2130.708662VFRMETAR55.02019-12-11 17:10:44bRoRY`gnu|$+29@GNU\cjqx  '.5<CJQX_fmt{ z  #'+/ z  #'+/37<BGK O!S"W#[$_%c&g'k(p)t*x+|,-. /0123"4'5+60859::?;CP?U@YA]BbCgDlEqFvG{HIJ KLMNO#P(Q-R2S7T;U?VCWGXLYQZU[Z\_]c^g_l`qavb{cde fghij"k'l,m1n6 ZB#ZD5)5    3LRTM 111700Z 00000KT 0450 R07/0650N FG VV001 01/00 Q1016 R07/29//95LRTM2019-12-11T17:00:00Z46.4724.421.00.0000.2830.0FGLIFR100METAR309.02019-12-11 17:10:44@4)5    3LRSM 111700Z 00000KT 9999 -RA SCT005 OVC029 03/03 Q1016 R01/29//95LRSM2019-12-11T17:00:00Z47.722.883.03.0006.2130.0-RAMVFRMETAR124.02019-12-11 17:10:44'3(e5   3LRCL 111700Z VRB02KT 6000 FEW064 02/01 Q1016LRCL2019-12-11T17:00:00Z46.7823.682.01.0023.7330.0MVFRMETAR413.02019-12-11 17:10:44)2(e5   3LROD 111700Z 12002KT 9999 OVC017 04/02 Q1016LROD2019-12-11T17:00:00Z47.0321.924.02.012026.2130.0MVFRMETAR140.02019-12-11 17:10:4491) 5   3LRBM 111700Z VRB02KT 9000 FEW020 SCT055 03/03 Q1016 R09/19//95LRBM2019-12-11T17:00:00Z47.6723.473.03.0025.5930.0VFRMETAR185.02019-12-11 17:10:44 lNl.:(e5   3LPCS 111700Z 35012KT 9999 FEW022 12/06 Q1030LPCS2019-12-11T17:00:00Z38.73-9.3512.06.0350126.2130.413385VFRMETAR99.02019-12-11 17:10:4469(u5   3LELN 111700Z 25013KT 220V280 9999 BKN055 04/02 Q1023LELN2019-12-11T17:00:00Z42.57-5.654.02.0250136.2130.206694VFRMETAR914.02019-12-11 17:10:4428(k5  3LEXJ 111700Z 29026G39KT 9999 BKN075 13/05 Q1021LEXJ2019-12-11T17:00:00Z43.42-3.8213.05.029026396.2130.147638VFRMETAR6.02019-12-11 17:10:4487(u5    3LELC 111700Z 30011KT 280V340 CAVOK 18/06 Q1019 NOSIGLELC2019-12-11T17:00:00Z37.77-0.818.06.0300116.2130.088583TRUEVFRMETAR3.02019-12-11 17:10:44-6(e5   3LEPP 111700Z 30003KT 9999 FEW042 07/02 Q1021LEPP2019-12-11T17:00:00Z42.77-1.657.02.030036.2130.147638VFRMETAR459.02019-12-11 17:10:44 }S2}0?(e5   3LPPS 111700Z 06016KT 9999 BKN014 18/15 Q1030LPPS2019-12-11T17:00:00Z33.07-16.3518.015.060166.2130.413385MVFRMETAR82.02019-12-11 17:10:44,>(e5   3LPFR 111700Z 35016KT 9999 FEW020 15/06 Q1028LPFR2019-12-11T17:00:00Z37.02-7.9715.06.0350166.2130.35433VFRMETAR4.02019-12-11 17:10:447=(u5   3GEML 111700Z 27012KT 200V310 9999 FEW025 17/10 Q1023GEML2019-12-11T17:00:00Z35.27-2.9517.010.0270126.2130.206694VFRMETAR55.02019-12-11 17:10:44/<(i5   3LEMI 111700Z 31012KT 270V330 CAVOK 16/06 Q1020LEMI2019-12-11T17:00:00Z37.8-1.1216.06.0310126.2130.11811VFRMETAR193.02019-12-11 17:10:44(;(Y5   3LPBJ 111700Z 34014KT CAVOK 12/04 Q1028LPBJ2019-12-11T17:00:00Z38.08-7.9312.04.0340146.2130.35433VFRMETAR194.02019-12-11 17:10:44 >}@C)5    3LFAQ 111700Z AUTO 19010KT CAVOK 06/04 Q1005 TEMPO BKN030TCULFAQ2019-12-11T17:00:00Z49.972.76.04.0190106.2129.675198TRUEVFRMETAR111.02019-12-11 17:10:447B(u5   3LPPT 111700Z 35010KT 330V030 9999 FEW035 12/06 Q1030LPPT2019-12-11T17:00:00Z38.77-9.1212.06.0350106.2130.413385VFRMETAR123.02019-12-11 17:10:44 CD )5     3VECC 111700Z 11004KT 3200 HZ SCT020 BKN100 20/19 Q1013 NOSIGVECC2019-12-11T17:00:00Z22.6588.4320.019.011041.9929.911417TRUEHZIFRMETAR6.02019-12-11 17:10:44> (w5    3FAPP 111700Z 18001KT 9999 FEW035TCU 24/13 Q1014 NOSIGFAPP2019-12-11T17:00:00Z-23.8329.4524.013.018016.2129.940945TRUEVFRMETAR1242.02019-12-11 17:10:441(e5   3FAUT 111700Z 12009KT 8000 BKN015 16/15 Q1018FAUT2019-12-11T17:00:00Z-31.5228.6716.015.012094.9730.059055MVFRMETAR732.02019-12-11 17:10:444(g5    3GMFK 111700Z 22005KT CAVOK 19/M03 Q1025 NOSIGGMFK2019-12-11T17:00:00Z31.95-4.419.0-3.022056.2130.265747TRUEVFRMETAR1045.02019-12-11 17:10:44=(u5    3FALA 111700Z 27003KT 230V300 CAVOK 19/13 Q1017 NOSIGFALA2019-12-11T17:00:00Z-25.9227.9219.013.027036.2130.029528TRUEVFRMETAR1377.02019-12-11 17:10:44 2d2-(e5   3LELO 111700Z 27007KT 9999 SCT045 07/04 Q1021LELO2019-12-11T17:00:00Z42.45-2.327.04.027076.2130.147638VFRMETAR363.02019-12-11 17:10:44@(5   3LEBT 111700Z AUTO 34009G19KT 280V030 9999 NCD 14/03 Q1018LEBT2019-12-11T17:00:00Z39.58-0.4514.03.03409196.2130.059055TRUEVFRMETAR50.02019-12-11 17:10:446 (o5    3LEBA 111700Z AUTO 32009KT 9999 FEW033 13/07 Q1026LEBA2019-12-11T17:00:00Z37.85-4.8213.07.032096.2130.295275TRUEVFRMETAR92.02019-12-11 17:10:446 (i5   3LEHC 111700Z AUTO 29022G34KT CAVOK 07/01 Q1017LEHC2019-12-11T17:00:00Z42.08-0.327.01.029022346.2130.029528TRUEVFRMETAR539.02019-12-11 17:10:44\ )55    3NLWW 111700Z AUTO VRB02KT 9999 FEW023/// 26/24 Q1007 TEMPO 4000 SHRA BKN014 SCT025CBNLWW2019-12-11T17:00:00Z-13.23-176.1726.024.0026.2129.734253TRUEVFRMETAR23.02019-12-11 17:10:44 cFc5(s5   3LEGA 111700Z 33009KT 9999 SCT034 BKN041 12/05 Q1025LEGA2019-12-11T17:00:00Z37.12-3.6212.05.033096.2130.265747VFRMETAR686.02019-12-11 17:10:446(y5   3LESB 111700Z AUTO 33015G25KT 290V360 CAVOK 14/08 Q1016LESB2019-12-11T17:00:00Z39.62.714.08.033015256.2130.0TRUEVFRMETAR48.02019-12-11 17:10:44.(o5    3LELL 111700Z AUTO VRB02KT 9999 BKN035 10/07 Q1016LELL2019-12-11T17:00:00Z41.522.110.07.0026.2130.0TRUEVFRMETAR250.02019-12-11 17:10:446(u5   3LEVS 111700Z 29013KT 260V330 9999 FEW045 09/01 Q1024LEVS2019-12-11T17:00:00Z40.37-3.779.01.0290136.2130.236221VFRMETAR687.02019-12-11 17:10:445(o5    3LEBR 111700Z AUTO 28004KT 9999 FEW042 07/03 Q1021LEBR2019-12-11T17:00:00Z42.2-1.437.03.028046.2130.147638TRUEVFRMETAR295.02019-12-11 17:10:44 @=v@@)5    3LETO 111700Z 32006KT 280V360 9999 FEW060 08/00 Q1023 NOSIGLETO2019-12-11T17:00:00Z40.47-3.478.00.032066.2130.206694TRUEVFRMETAR608.02019-12-11 17:10:44.(_5  3LEGT 111700Z 31014G24KT CAVOK 10/01 Q1024LEGT2019-12-11T17:00:00Z40.28-3.7210.01.031014246.2130.236221VFRMETAR612.02019-12-11 17:10:449(u5    3LERI 111700Z 32012KT 290V350 CAVOK 17/06 Q1020 NOSIGLERI2019-12-11T17:00:00Z37.95-1.2217.06.0320126.2130.11811TRUEVFRMETAR75.02019-12-11 17:10:44B)5    3FVRG 111700Z 00000KT 9999 FEW020CB BKN090 19/18 Q1017 NOSIGFVRG2019-12-11T17:00:00Z-17.9331.119.018.0006.2130.029528TRUEVFRMETAR1490.02019-12-11 17:10:44>)5   3LEAO 111700Z 28005KT 260V320 9999 FEW020 BKN030 08/07 Q1025LEAO2019-12-11T17:00:00Z38.95-3.738.07.028056.2130.265747MVFRMETAR629.02019-12-11 17:10:44 K:K8(q5    3LEAB 111700Z 29015KT 9999 SCT019 07/04 Q1023 NOSIGLEAB2019-12-11T17:00:00Z38.95-1.857.04.0290156.2130.206694TRUEVFRMETAR704.02019-12-11 17:10:448(q5    3FAUP 111700Z 22007KT 9999 FEW050 32/00 Q1012 NOSIGFAUP2019-12-11T17:00:00Z-28.3821.2732.00.022076.2129.88189TRUEVFRMETAR836.02019-12-11 17:10:44=(w5   3FAPE 111700Z 08018G28KT 9999 FEW008 18/16 Q1015 NOSIGFAPE2019-12-11T17:00:00Z-33.9725.618.016.08018286.2129.970472TRUEVFRMETAR60.02019-12-11 17:10:44.(g5   3LECV 111700Z 01007KT 9999 FEW040 06/M03 Q1023LECV2019-12-11T17:00:00Z40.63-3.726.0-3.01076.2130.206694VFRMETAR710.02019-12-11 17:10:44A)5    3LERT 111700Z 28008KT 250V310 9999 FEW018 14/11 Q1027 NOSIGLERT2019-12-11T17:00:00Z36.63-6.3314.011.028086.2130.324802TRUEVFRMETAR26.02019-12-11 17:10:44 bSb4#(k5    3ZBTJ 111700Z VRB01MPS CAVOK M03/M16 Q1030 NOSIGZBTJ2019-12-11T17:00:00Z39.12117.35-3.0-16.0026.2130.413385TRUEVFRMETAR3.02019-12-11 17:10:44?"({5    3ZBAA 111700Z 36002MPS 330V050 CAVOK M05/M18 Q1030 NOSIGZBAA2019-12-11T17:00:00Z40.07116.58-5.0-18.036046.2130.413385TRUEVFRMETAR30.02019-12-11 17:10:444!(k5    3ZBSJ 111700Z VRB01MPS CAVOK M05/M12 Q1031 NOSIGZBSJ2019-12-11T17:00:00Z38.28114.7-5.0-12.0026.2130.442913TRUEVFRMETAR71.02019-12-11 17:10:446 (g5    3FYWH 111700Z 10007KT CAVOK 28/M03 Q1019 NOSIGFYWH2019-12-11T17:00:00Z-22.4717.4728.0-3.010076.2130.088583TRUEVFRMETAR1700.02019-12-11 17:10:44((Y5   3LEBZ 111700Z 31006KT CAVOK 12/05 Q1027LEBZ2019-12-11T17:00:00Z38.87-6.8212.05.031066.2130.324802VFRMETAR192.02019-12-11 17:10:44 a<~a0((g5    3ZSSS 111700Z 36002MPS CAVOK 07/04 Q1027 NOSIGZSSS2019-12-11T17:00:00Z31.2121.337.04.036046.2130.324802TRUEVFRMETAR7.02019-12-11 17:10:44/'(g5    3ZSPD 111700Z 33003MPS CAVOK 06/03 Q1028 NOSIGZSPD2019-12-11T17:00:00Z31.15121.86.03.033066.2130.35433TRUEVFRMETAR4.02019-12-11 17:10:44/&(g5    3ZGGG 111700Z 08003MPS CAVOK 15/06 Q1020 NOSIGZGGG2019-12-11T17:00:00Z23.4113.315.06.08066.2130.11811TRUEVFRMETAR15.02019-12-11 17:10:449%(s5     3ZSHC 111700Z 06002MPS 4000 BR NSC 06/04 Q1027 NOSIGZSHC2019-12-11T17:00:00Z30.22120.436.04.06042.4930.324802TRUEBRIFRMETAR43.02019-12-11 17:10:44?$({5    3ZBYN 111700Z 04002MPS 340V070 CAVOK M04/M12 Q1025 NOSIGZBYN2019-12-11T17:00:00Z37.77112.63-4.0-12.04046.2130.265747TRUEVFRMETAR779.02019-12-11 17:10:44 49_4*-(Y5   3FNGI 111700Z 13006KT CAVOK 31/07 Q1014FNGI2019-12-11T17:00:00Z-17.0515.6831.07.013066.2129.940945VFRMETAR1087.02019-12-11 17:10:446,(k5    3ZYTL 111700Z 29002MPS CAVOK M03/M07 Q1029 NOSIGZYTL2019-12-11T17:00:00Z38.97121.53-3.0-7.029046.2130.383858TRUEVFRMETAR97.02019-12-11 17:10:44<+(q5    3ZYTX 111700Z 20002MPS 6000 NSC M11/M13 Q1027 NOSIGZYTX2019-12-11T17:00:00Z41.63123.48-11.0-13.020043.7330.324802TRUEMVFRMETAR35.02019-12-11 17:10:44U*)5     3ZWWW 111700Z 35002MPS 0100 R25/0225N FZFG VV001 M10/M12 Q1023 NOSIGZWWW2019-12-11T17:00:00Z43.8887.47-10.0-12.035040.0630.206694TRUEFZFGLIFR100METAR654.02019-12-11 17:10:44B)(}5     3ZWSH 111700Z 32004MPS 4800 FU FEW040 M02/M08 Q1019 NOSIGZWSH2019-12-11T17:00:00Z39.5576.02-2.0-8.032082.9830.088583TRUEFUIFRMETAR1380.02019-12-11 17:10:44 mX6mD2)5    3KUKT 111700Z AUTO VRB04KT 10SM BKN049 01/M03 A3027 RMK A01KUKT2019-12-11T17:00:00Z40.43-75.381.0-3.00410.030.268702TRUETRUEVFRSPECI160.02019-12-11 17:10:44C1(}5    3KHAF 111700Z AUTO 18004KT 9SM OVC014 14/13 A3022 RMK AO2KHAF2019-12-11T17:00:00Z37.52-122.514.013.018049.030.221457TRUETRUEMVFRMETAR21.02019-12-11 17:10:44(0(Y5   3OEDR 111700Z 31007KT CAVOK 19/13 Q1014OEDR2019-12-11T17:00:00Z26.2750.1719.013.031076.2129.940945VFRMETAR17.02019-12-11 17:10:44(/(Y5   3OERY 111700Z 05006KT CAVOK 19/10 Q1019OERY2019-12-11T17:00:00Z24.7246.7219.010.05066.2130.088583VFRMETAR612.02019-12-11 17:10:44#.(Y5    3FNUB 111700Z 28006KT CAVOK 25/// Q1021FNUB2019-12-11T17:00:00Z-14.9313.5728066.2130.147638VFRMETAR1761.02019-12-11 17:10:44 "I)"7)q5     3UAAA 111700Z 17002MPS 0050 R23R/0150N R23L/0200N FZFG VV001 M04/M04 Q1017 R23R/3///50 R23L/3///45 NOSIG RMK QBB040UAAA2019-12-11T17:00:00Z43.3577.03-4.0-4.017040.0330.029528TRUEFZFGLIFR100METAR681.02019-12-11 17:10:44+6(e5   3DTTL 111700Z VRB03KT 9999 FEW020 12/06 Q1014DTTL2019-12-11T17:00:00Z36.8511.0712.06.0036.2129.940945VFRMETAR30.02019-12-11 17:10:4415(k5   3DTTD 111700Z 29008KT 270V330 CAVOK 13/M03 Q1018DTTD2019-12-11T17:00:00Z32.3210.413.0-3.029086.2130.059055VFRMETAR301.02019-12-11 17:10:4454(u5   3DTTK 111700Z 31005KT 240V020 9999 SCT023 13/07 Q1015DTTK2019-12-11T17:00:00Z35.6710.0813.07.031056.2129.970472VFRMETAR68.02019-12-11 17:10:4423(s5   3DTTB 111700Z 28012KT 9999 SCT016 SCT030 13/04 Q1015DTTB2019-12-11T17:00:00Z37.259.813.04.0280126.2129.970472VFRMETAR3.02019-12-11 17:10:44 SnT;)!5    3UAKK 111700Z 14002MPS CAVOK M11/M12 Q1019 R05/821055 NOSIG RMK QFE717/0956UAKK2019-12-11T17:00:00Z49.6773.33-11.0-12.014046.2130.088583TRUEVFRMETAR538.02019-12-11 17:10:44X:)-5    3UACC 111700Z VRB01MPS 9999 SCT007 M14/M15 Q1019 R22/92//55 NOSIG RMK QFE733/0978UACC2019-12-11T17:00:00Z51.0271.47-14.0-15.0026.2130.088583TRUEVFRMETAR355.02019-12-11 17:10:44`9)M5     3UADD 111700Z 00000MPS 2300 BR OVC005 05/05 Q1016 R13/290056 NOSIG RMK QBB150 MT OBSC QFE705/0941UADD2019-12-11T17:00:00Z42.8571.35.05.0001.4330.0TRUEBRIFRMETAR665.02019-12-11 17:10:44(8(e5   3DTTN 111700Z 29004KT 8000 SCT020 13/07 Q1016DTTN2019-12-11T17:00:00Z36.478.813.07.029044.9730.0MVFRMETAR144.02019-12-11 17:10:44 r 8Zrc?)=5     3UATG 111700Z 35003MPS 330V030 5000 BR NSC M01/M02 Q1019 R32/CLRD70 NOSIG RMK QFE766/1022UATG2019-12-11T17:00:00Z47.1251.83-1.0-2.035063.1130.088583TRUEBRMVFRMETAR-22.02019-12-11 17:10:44Y>)-5    3UASP 111700Z 15001MPS 9999 BKN009 M13/M14 Q1022 R21/0///60 NOSIG RMK QFE755/1007UASP2019-12-11T17:00:00Z52.277.07-13.0-14.015026.2130.177166TRUEIFRMETAR125.02019-12-11 17:10:44N=)!5    3UAOO 111700Z 12001MPS 9999 SCT010 BKN033 02/02 Q1019 NOSIG RMK QFE752/1003UAOO2019-12-11T17:00:00Z44.765.62.02.012026.2130.088583TRUEVFRMETAR129.02019-12-11 17:10:44p<)Y5     3UAII 111700Z 00000MPS 1800 R10/P2000 -DZ BR OVC005 07/07 Q1017 R10/1///60 NOSIG RMK QBB170 QFE728/0970UAII2019-12-11T17:00:00Z42.3769.487.07.0001.1230.029528TRUE-DZ BRIFRMETAR422.02019-12-11 17:10:44 -S{aC);5    3UAUU 111700Z 19003MPS 9999 BKN002 M12/M13 Q1015 R33/CLRD60 NOSIG RMK QBB080 QFE745/0994UAUU2019-12-11T17:00:00Z53.263.55-12.0-13.019066.2129.970472TRUELIFRMETAR182.02019-12-11 17:10:44SB)!5    3UATT 111700Z 16004MPS CAVOK M10/M12 Q1017 R13/0///60 NOSIG RMK QFE743/0991UATT2019-12-11T17:00:00Z50.2557.2-10.0-12.016086.2130.029528TRUEVFRMETAR227.02019-12-11 17:10:44UA)'5    3UARR 111700Z 31004MPS 8000 NSC M03/M04 Q1019 R22/CLRD70 NOSIG RMK QFE761/1015UARR2019-12-11T17:00:00Z51.1551.53-3.0-4.031084.9730.088583TRUEMVFRMETAR38.02019-12-11 17:10:44N@)!5    3UATE 111700Z 02002MPS CAVOK M01/M02 Q1020 R30/0///70 NOSIG RMK QFE763/1018UATE2019-12-11T17:00:00Z43.8751.1-1.0-2.02046.2130.11811TRUEVFRMETAR22.02019-12-11 17:10:44 /zDG)5    3UDSG 111700Z 00000KT 8000 NSC M05/M07 Q1019 R02/CLRD70 NOSIGUDSG2019-12-11T17:00:00Z40.7543.87-5.0-7.0004.9730.088583TRUEMVFRMETAR1524.02019-12-11 17:10:44vF)W5     3UASK 111700Z 34001MPS 0050 R30/M0300 FZFG VV001 M17/M19 Q1024 R30/810155 NOSIG RMK QBB040 QFE743/0990UASK2019-12-11T17:00:00Z50.0382.5-17.0-19.034020.0330.236221TRUEFZFGLIFR100METAR286.02019-12-11 17:10:440E(e5   3SARF 111700Z 11006KT 9999 SCT030 37/19 Q1003SARF2019-12-11T17:00:00Z-26.22-58.2237.019.011066.2129.616142VFRMETAR60.02019-12-11 17:10:44LD)5     3UDYZ 111700Z 00000KT 2000 R09/P2000N BR NSC 02/00 Q1020 R09/010070 NOSIGUDYZ2019-12-11T17:00:00Z40.1544.42.00.0001.2430.11811TRUEBRIFRSPECI865.02019-12-11 17:10:44 `G`/L(g5    3ZGNN 111700Z 00000MPS CAVOK 09/05 Q1020 NOSIGZGNN2019-12-11T17:00:00Z22.62108.179.05.0006.2130.11811TRUEVFRMETAR73.02019-12-11 17:10:443K(m5    3ZGOW 111700Z VRB01MPS 8000 NSC 13/08 Q1021 NOSIGZGOW2019-12-11T17:00:00Z23.55116.513.08.0024.9730.147638TRUEMVFRMETAR3.02019-12-11 17:10:44:J(w5    3ZGSZ 111700Z 11003MPS 080V150 CAVOK 18/12 Q1020 NOSIGZGSZ2019-12-11T17:00:00Z22.63113.818.012.011066.2130.11811TRUEVFRMETAR18.02019-12-11 17:10:447I(k5    3ZLXY 111700Z 28001MPS CAVOK M02/M05 Q1024 NOSIGZLXY2019-12-11T17:00:00Z34.43108.75-2.0-5.028026.2130.236221TRUEVFRMETAR479.02019-12-11 17:10:444H(g5    3ZPPP 111700Z 21005MPS CAVOK 04/02 Q1022 NOSIGZPPP2019-12-11T17:00:00Z25.0102.754.02.0210106.2130.177166TRUEVFRMETAR1892.02019-12-11 17:10:44 _F_1Q(g5    3ZUGY 111700Z VRB01MPS CAVOK 07/03 Q1021 NOSIGZUGY2019-12-11T17:00:00Z26.53106.87.03.0026.2130.147638TRUEVFRMETAR1074.02019-12-11 17:10:449P(s5     3ZSNB 111700Z 30002MPS 4000 BR NSC 06/04 Q1027 NOSIGZSNB2019-12-11T17:00:00Z29.83121.476.04.030042.4930.324802TRUEBRIFRMETAR4.02019-12-11 17:10:447O(m5    3ZSFZ 111700Z 02006MPS 7000 NSC 15/09 Q1023 NOSIGZSFZ2019-12-11T17:00:00Z25.93119.6715.09.020124.3530.206694TRUEMVFRMETAR85.02019-12-11 17:10:442N(g5    3ZSAM 111700Z 03003MPS CAVOK 13/05 Q1022 NOSIGZSAM2019-12-11T17:00:00Z24.53118.1313.05.03066.2130.177166TRUEVFRMETAR18.02019-12-11 17:10:445M(m5    3ZGKL 111700Z 00000MPS 6000 NSC 06/05 Q1021 NOSIGZGKL2019-12-11T17:00:00Z25.22110.036.05.0003.7330.147638TRUEMVFRMETAR166.02019-12-11 17:10:44 Eza8U(o5    3YBAS 111700Z AUTO 12013KT 9999 // NCD 32/02 Q1011YBAS2019-12-11T17:00:00Z-23.8133.932.02.0120136.2129.852362TRUEVFRMETAR541.02019-12-11 17:10:44T)#5    3YBCS 111700Z AUTO 16007KT 9999 // BKN022 BKN029 OVC034 25/23 Q1007 FM1700 16008KT 9999 -SHRA BKN020 BKN030 INTER 1700/2000 3000 SHRA BKN015YBCS2019-12-11T17:00:00Z-16.87145.7525.023.016076.2129.734253TRUEMVFRMETAR7.02019-12-11 17:10:44FS)5     3ZUUU 111700Z VRB01MPS 4000 -RA BR SCT050 11/09 Q1021 NOSIGZUUU2019-12-11T17:00:00Z30.58103.9511.09.0022.4930.147638TRUE-RA BRIFRMETAR508.02019-12-11 17:10:446R(k5    3ZSQD 111700Z 35002MPS CAVOK M03/M08 Q1029 NOSIGZSQD2019-12-11T17:00:00Z36.27120.38-3.0-8.035046.2130.383858TRUEVFRMETAR77.02019-12-11 17:10:44 SAS*Z(Y5   3YPPH 111700Z 10024KT CAVOK 25/09 Q1015YPPH2019-12-11T17:00:00Z-31.93115.9825.09.0100246.2129.970472VFRMETAR13.02019-12-11 17:10:44;Y(o5    3YPTN 111700Z AUTO 36011KT 9999 // NCD 31/20 Q1006YPTN2019-12-11T17:00:00Z-14.52132.3831.020.0360116.2129.704725TRUEVFRMETAR109.02019-12-11 17:10:44;X(u5    3YPDN 111700Z AUTO 32005KT 9999 // SCT018 30/26 Q1007YPDN2019-12-11T17:00:00Z-12.42130.930.026.032056.2129.734253TRUEVFRMETAR30.02019-12-11 17:10:44:W(u5    3YPCC 111700Z AUTO 11008KT 9999 // BKN027 26/21 Q1012YPCC2019-12-11T17:00:00Z-12.1796.8226.021.011086.2129.88189TRUEMVFRMETAR3.02019-12-11 17:10:44:V(q5    3YPAD 111700Z 17012KT 9999 BKN023 16/10 Q1020 NOSIGYPAD2019-12-11T17:00:00Z-34.95138.5216.010.0170126.2130.11811TRUEMVFRMETAR4.02019-12-11 17:10:44 2B2B_)5   3UCFL 111700Z 35005MPS 9999 SCT030CB SCT100 M00/M05 Q1016 R07/CLRD95UCFL2019-12-11T17:00:00Z42.5876.70.0-5.0350106.2130.0VFRMETAR1648.02019-12-11 17:10:447^(s5   3YSSY 111700Z 19013KT 9999 FEW022 BKN037 19/14 Q1013YSSY2019-12-11T17:00:00Z-33.95151.1719.014.0190136.2129.911417VFRMETAR3.02019-12-11 17:10:44K])5    3YPXM 111700Z AUTO 13009KT 9999 // SCT017 SCT021 SCT027 25/21 Q1012YPXM2019-12-11T17:00:00Z-10.45105.6725.021.013096.2129.88189TRUEVFRMETAR259.02019-12-11 17:10:448\(o5    3YPKU 111700Z AUTO 03006KT 9999 // NCD 28/25 Q1005YPKU2019-12-11T17:00:00Z-15.77128.6828.025.03066.2129.675198TRUEVFRSPECI45.02019-12-11 17:10:449[(o5    3YPLM 111700Z AUTO 25011KT 9999 // NCD 24/19 Q1008YPLM2019-12-11T17:00:00Z-22.22114.0724.019.0250116.2129.763779TRUEVFRMETAR6.02019-12-11 17:10:44 B[@c)5   3UTDK 111700Z 01004MPS 9999 NSC 08/01 Q1016 R01/09//70 RMK QFE704/0939UTDK2019-12-11T17:00:00Z37.9869.88.01.01086.2130.0VFRMETAR699.02019-12-11 17:10:44bb)A5    3UTDT 111700Z 20002MPS 0400 R35/0900 FG VV002 07/07 Q1015 R35/////// RMK QBB060 QFE722/0963UTDT2019-12-11T17:00:00Z37.8768.877.07.020040.2529.970472FGLIFR200METAR449.02019-12-11 17:10:44Ra)5     3UCFM 111700Z 13002MPS 4400 BR FU SCT020CB 02/M00 Q1017 R08/0///95 NOSIGUCFM2019-12-11T17:00:00Z43.0774.482.00.013042.7330.029528TRUEBR FUIFRMETAR633.02019-12-11 17:10:44b`)O5    3UCFO 111700Z 00000MPS 1000 R12/P1500 BR SCT011 BKN100 04/03 Q1017 R12/0///95 TEMPO 0800 FG SCT005UCFO2019-12-11T17:00:00Z40.672.84.03.0000.6230.029528BRLIFRMETAR884.02019-12-11 17:10:44 %L9g(q5    3TLPL 111700Z 10021KT 9999 FEW024 29/23 Q1013 NOSIGTLPL2019-12-11T17:00:00Z13.75-60.9529.023.0100216.2129.911417TRUEVFRMETAR3.02019-12-11 17:10:44Tf)#5     3UTAV 111700Z 22002KT 1400 R13/P2000N BR OVC017 06/05 Q1017 R13/CLRD70 NOSIGUTAV2019-12-11T17:00:00Z39.0863.626.05.022020.8730.029528TRUEBRLIFRMETAR192.02019-12-11 17:10:44qe)[5     3UTDL 111700Z 06004MPS 0300 0200E R08/0900D FG VV001 06/06 Q1017 R08/CLRD70 NOSIG RMK QBB030 QFE724/0965UTDL2019-12-11T17:00:00Z40.2269.76.06.06080.1930.029528TRUEFGLIFR100METAR442.02019-12-11 17:10:44`d)C5     3UTDD 111700Z 00000MPS 5000 BR FU FEW066 OVC100 07/04 Q1016 R09/CLRD// NOSIG RMK QFE694/0925UTDD2019-12-11T17:00:00Z38.5368.827.04.0003.1130.0TRUEBR FUMVFRMETAR803.02019-12-11 17:10:44 S?'l(Y5   3DAUB 111700Z 31011KT CAVOK 15/01 Q1018DAUB2019-12-11T17:00:00Z34.785.7215.01.0310116.2130.059055VFRMETAR87.02019-12-11 17:10:44)k([5   3DAUG 111700Z 26006KT CAVOK 18/M06 Q1021DAUG2019-12-11T17:00:00Z32.373.8218.0-6.026066.2130.147638VFRMETAR450.02019-12-11 17:10:44)j([5   3DAAS 111700Z 26004KT CAVOK 08/M01 Q1018DAAS2019-12-11T17:00:00Z36.185.338.0-1.026046.2130.059055VFRMETAR1038.02019-12-11 17:10:443i(s5   3DABS 111700Z 29007KT 9999 FEW030 SCT200 07/01 Q1017DABS2019-12-11T17:00:00Z35.438.127.01.029076.2130.029528VFRMETAR813.02019-12-11 17:10:44(h(Y5   3DAOB 111700Z 27014KT CAVOK 10/01 Q1021DAOB2019-12-11T17:00:00Z35.331.4710.01.0270146.2130.147638VFRMETAR989.02019-12-11 17:10:44 Q,#q(Y5     3DAAT 111700Z 09006KT CAVOK 21/// Q1021DAAT2019-12-11T17:00:00Z22.825.479066.2130.147638VFR0.0METAR1377.02019-12-11 17:10:44-p(s5   3DABB 111700Z 28009KT 9999 SCT020 SCT200 14/09 Q1016DABB2019-12-11T17:00:00Z36.827.8214.09.028096.2130.0VFRMETAR4.02019-12-11 17:10:446o(u5   3DAAG 111700Z 29007KT 250V310 8000 FEW023 14/12 Q1019DAAG2019-12-11T17:00:00Z36.723.2214.012.029074.9730.088583MVFRMETAR25.02019-12-11 17:10:443n(s5   3DAOI 111700Z 25007KT 9999 SCT030 SCT100 16/06 Q1020DAOI2019-12-11T17:00:00Z36.221.3216.06.025076.2130.11811VFRMETAR143.02019-12-11 17:10:44*m([5   3DAUA 111700Z 34004KT CAVOK 21/M04 Q1022DAUA2019-12-11T17:00:00Z27.83-0.1821.0-4.034046.2130.177166VFRMETAR263.02019-12-11 17:10:44 tH't.v(e5   3SARC 111700Z 05008KT 9999 SCT025 34/19 Q1004SARC2019-12-11T17:00:00Z-27.43-58.7734.019.05086.2129.64567VFRMETAR62.02019-12-11 17:10:44(u([5   3DAUH 111700Z 25006KT CAVOK 15/M04 Q1020DAUH2019-12-11T17:00:00Z31.676.1515.0-4.025066.2130.11811VFRMETAR142.02019-12-11 17:10:445t(s5   3DAOO 111700Z 22010KT 9999 FEW026 SCT100 16/11 Q1022DAOO2019-12-11T17:00:00Z35.62-0.616.011.0220106.2130.177166VFRMETAR90.02019-12-11 17:10:445s(s5   3DAON 111700Z 22008KT 9999 FEW026 SCT100 16/01 Q1023DAON2019-12-11T17:00:00Z35.02-1.4716.01.022086.2130.206694VFRMETAR247.02019-12-11 17:10:443r(s5   3DABC 111700Z 23007KT 9999 FEW030 BKN200 09/03 Q1018DABC2019-12-11T17:00:00Z36.276.629.03.023076.2130.059055VFRMETAR694.02019-12-11 17:10:44 OG O5{(s5   3NGFU 111700Z 33007KT 9999 FEW020 BKN110 29/26 Q1006NGFU2019-12-11T17:00:00Z-8.52179.2229.026.033076.2129.704725VFRMETAR1.02019-12-11 17:10:44@z(5    3TBPB 111700Z 10020KT 9999 SCT022 BKN040 29/22 Q1012 NOSIGTBPB2019-12-11T17:00:00Z13.07-59.4829.022.0100206.2129.88189TRUEVFRMETAR52.02019-12-11 17:10:44;y(w5     3VEPT 111700Z 00000KT 1600 BR FEW100 16/15 Q1014 NOSIGVEPT2019-12-11T17:00:00Z25.685.0816.015.0000.9929.940945TRUEBRLIFRMETAR60.02019-12-11 17:10:444x(k5    3VEGY 111700Z 08004KT 1300 BR SCT100 15/13 Q1015VEGY2019-12-11T17:00:00Z24.7584.9515.013.08040.8129.970472BRLIFRMETAR116.02019-12-11 17:10:444w(k5   3SASJ 111700Z 07010KT 9999 FEW035TCU 33/15 Q1008SASJ2019-12-11T17:00:00Z-24.37-65.133.015.070106.2129.763779VFRMETAR1167.02019-12-11 17:10:44 J= J=)5   3SKMR 111700Z 14003KT 070V200 9999 FEW017 BKN200 32/23 A2985SKMR2019-12-11T17:00:00Z8.82-75.8332.023.014036.2129.84941VFRMETAR26.02019-12-11 17:10:447(s5   3SKVP 111700Z 06013KT 9999 FEW020 BKN200 33/19 A2991SKVP2019-12-11T17:00:00Z10.42-73.2533.019.060136.2129.911417VFRMETAR138.02019-12-11 17:10:446~(s5   3SKRH 111700Z 12014KT 9999 FEW020 BKN200 33/20 A2988SKRH2019-12-11T17:00:00Z11.52-72.9233.020.0120146.2129.878937VFRMETAR4.02019-12-11 17:10:445}(s5   3SKSM 111700Z 26006KT 9999 FEW020 BKN200 30/25 A2988SKSM2019-12-11T17:00:00Z11.12-74.2230.025.026066.2129.878937VFRMETAR4.02019-12-11 17:10:44>|)5   3SKPV 111700Z 09010KT 030V140 9999 SCT017 BKN200 29/25 A2996SKPV2019-12-11T17:00:00Z13.37-81.3329.025.090106.2129.958662VFRMETAR6.02019-12-11 17:10:44 GMGL)5    3SKMZ 111700Z 30005KT 7000 VCFG SCT005 BKN012 19/16 A3031 RMK VCFG/WSKMZ2019-12-11T17:00:00Z5.03-75.4719.016.030054.3530.31004VCFGMVFRMETAR2080.02019-12-11 17:10:44F)5   3SKMD 111700Z VRB02KT 9999 SCT033TCU BKN200 27/15 A3011 RMK TCUNE/NWSKMD2019-12-11T17:00:00Z6.22-75.5827.015.0026.2130.109253VFRMETAR1499.02019-12-11 17:10:44,(e5   3SKLC 111700Z 00000KT 9999 BKN018 31/24 A2989SKLC2019-12-11T17:00:00Z7.82-76.731.024.0006.2129.890747MVFRMETAR30.02019-12-11 17:10:444(s5   3SKEJ 111700Z VRB02KT 9999 FEW015 SCT200 31/22 A2983SKEJ2019-12-11T17:00:00Z7.02-73.7831.022.0026.2129.828741VFRMETAR134.02019-12-11 17:10:44.(e5   3SKUC 111700Z 08004KT 9999 SCT015 30/22 A2988SKUC2019-12-11T17:00:00Z7.07-70.7230.022.08046.2129.878937VFRMETAR128.02019-12-11 17:10:44 $F$U ))5    3SKNV 111700Z 01007KT 340V060 9999 VCSH SCT023 SCT200 29/22 A2990 RMK VCSH S/SWSKNV2019-12-11T17:00:00Z2.97-75.2829.022.01076.2129.899607VCSHVFRMETAR443.02019-12-11 17:10:44N )5    3SKIB 111700Z 33003KT 300V010 8000 VCSH SCT015 BKN100 24/24 A2999 REDZSKIB2019-12-11T17:00:00Z4.42-75.1524.024.033034.9729.991142VCSHMVFRMETAR928.02019-12-11 17:10:447(s5   3SKAR 111700Z 26003KT 9999 SCT018 SCT100 26/19 A3007SKAR2019-12-11T17:00:00Z4.45-75.7726.019.026036.2130.070866VFRMETAR1219.02019-12-11 17:10:444(s5   3SKPC 111700Z 02010KT 9999 FEW020 SCT200 32/22 A2981SKPC2019-12-11T17:00:00Z6.17-67.532.022.020106.2129.811024VFRMETAR55.02019-12-11 17:10:445(s5   3SKUI 111700Z 14007KT 9999 SCT018 BKN200 28/23 A2987SKUI2019-12-11T17:00:00Z5.72-76.6228.023.014076.2129.870079VFRMETAR33.02019-12-11 17:10:44 ~E"~(Y5    3DAAJ 111700Z 35007KT CAVOK 17/// Q1020DAAJ2019-12-11T17:00:00Z24.289.4735076.2130.11811VFRMETAR968.02019-12-11 17:10:442(s5   3DAAV 111700Z 18004KT 9999 FEW020 BKN200 12/09 Q1017DAAV2019-12-11T17:00:00Z36.85.8812.09.018046.2130.029528VFRMETAR11.02019-12-11 17:10:445 (s5   3SKIP 111700Z 00000KT 9999 FEW012 BKN070 14/10 A3040SKIP2019-12-11T17:00:00Z0.88-77.6714.010.0006.2130.398623VFRMETAR2961.02019-12-11 17:10:44- (e5   3SKPS 111700Z 03005KT 9999 SCT020 21/17 A3015SKPS2019-12-11T17:00:00Z1.4-77.2821.017.03056.2130.15059VFRMETAR1826.02019-12-11 17:10:446 (s5   3SKVV 111700Z 11004KT 9999 FEW023 SCT200 30/20 A2990SKVV2019-12-11T17:00:00Z4.17-73.6230.020.011046.2129.899607VFRMETAR431.02019-12-11 17:10:44 VR&(Y5   3DAAD 111700Z 30006KT CAVOK 15/03 Q1018DAAD2019-12-11T17:00:00Z35.324.215.03.030066.2130.059055VFRMETAR461.02019-12-11 17:10:44(([5   3DAUZ 111700Z 29009KT CAVOK 13/M07 Q1020DAUZ2019-12-11T17:00:00Z28.059.6213.0-7.029096.2130.11811VFRMETAR562.02019-12-11 17:10:44)(Y5   3SAZM 111700Z 07009KT CAVOK 20/17 Q1003SAZM2019-12-11T17:00:00Z-37.92-57.5720.017.07096.2129.616142VFRMETAR21.02019-12-11 17:10:44$(Y5   3DABT 111700Z 00000KT CAVOK 09/03 Q1018DABT2019-12-11T17:00:00Z35.756.329.03.0006.2130.059055VFRMETAR823.02019-12-11 17:10:44%(Y5   3DAAE 111700Z 21004KT CAVOK 11/07 Q1017DAAE2019-12-11T17:00:00Z36.725.0711.07.021046.2130.029528VFRMETAR2.02019-12-11 17:10:44 NG*([5   3DAOR 111700Z 02007KT CAVOK 19/M11 Q1024DAOR2019-12-11T17:00:00Z31.65-2.2719.0-11.02076.2130.236221VFRMETAR773.02019-12-11 17:10:44*(Y5   3DAAY 111700Z 30018KT CAVOK 14/04 Q1026DAAY2019-12-11T17:00:00Z33.53-0.2514.04.0300186.2130.295275VFRMETAR1149.02019-12-11 17:10:44'(Y5   3DAOV 111700Z 26010KT CAVOK 14/01 Q1022DAOV2019-12-11T17:00:00Z35.20.1514.01.0260106.2130.177166VFRMETAR514.02019-12-11 17:10:44'([5   3DAOF 111700Z 00000KT CAVOK 21/M07 Q1023DAOF2019-12-11T17:00:00Z27.7-8.1721.0-7.0006.2130.206694VFRMETAR431.02019-12-11 17:10:44-(a5   3DAAP 111700Z 31009KT 8000 NSC 14/M07 Q1022DAAP2019-12-11T17:00:00Z26.728.6214.0-7.031094.9730.177166MVFRMETAR558.02019-12-11 17:10:44 R`rJ)5    3RJBB 111700Z AUTO 14006KT 090V170 9999 NCD 12/09 Q1015 BECMG 22008KTRJBB2019-12-11T17:00:00Z34.42135.2512.09.014066.2129.970472TRUEVFRMETAR8.02019-12-11 17:10:44i)K5    3RJCC 111700Z 16014KT 9999 -SHRA FEW006 BKN020 BKN040 10/09 Q1001 RMK 1ST006 6CU020 7CU040 A2957RJCC2019-12-11T17:00:00Z42.77141.6710.09.0160146.2129.557087-SHRAMVFRMETAR30.02019-12-11 17:10:44m)U5    3RJAA 111700Z 20004KT 3500 R34L/0800VP2000D R34R/P2000N MIFG BR FEW020 08/08 Q1008 TEMPO 1500 BR BCFGRJAA2019-12-11T17:00:00Z35.77140.378.08.020042.1729.763779MIFG BRIFRMETAR44.02019-12-11 17:10:44)([5   3DAFH 111700Z 24008KT CAVOK 13/M04 Q1021DAFH2019-12-11T17:00:00Z32.933.3213.0-4.024086.2130.147638VFRMETAR774.02019-12-11 17:10:44 9B98"(o5    3RJKI 111700Z AUTO 34014KT 9999 FEW033 20/14 Q1019RJKI2019-12-11T17:00:00Z28.32129.9220.014.0340146.2130.088583TRUEVFRMETAR6.02019-12-11 17:10:44R!)5     3RJFF 111700Z AUTO 29011KT 250V320 9999 NCD 11/02 Q1019 NOSIG RMK A3011RJFF2019-12-11T17:00:00Z33.57130.4311.02.0290116.2130.088583TRUETRUEVFRMETAR12.02019-12-11 17:10:44. (e5   3RJFR 111700Z 27013KT 9999 FEW040 13/04 Q1018RJFR2019-12-11T17:00:00Z33.82131.0313.04.0270136.2130.059055VFRMETAR6.02019-12-11 17:10:44=(u5   3RJDK 111700Z AUTO 31021G33KT 9999 BKN031 10/05 Q1021RJDK2019-12-11T17:00:00Z33.02129.1710.05.031021336.2130.147638TRUEVFRMETAR20.02019-12-11 17:10:449(y5    3RJAH 111700Z VRB01KT 5000 BR FEW010 BKN015 10/09 Q1007RJAH2019-12-11T17:00:00Z36.17140.4210.09.0013.1129.734253BRMVFRMETAR35.02019-12-11 17:10:44 +D{+N')5    3RJSD 111700Z AUTO 26005KT 160V340 9999 FEW019 SCT070 BKN080 11/08 Q1007RJSD2019-12-11T17:00:00Z38.03138.4211.08.026056.2129.734253TRUEVFRMETAR26.02019-12-11 17:10:445&(u5   3RJOS 111700Z 26003KT 190V290 9999 FEW025 07/06 Q1015RJOS2019-12-11T17:00:00Z34.12134.627.06.026036.2129.970472VFRMETAR11.02019-12-11 17:10:44>%)5   3RJOH 111700Z 28014KT 9999 FEW020 BKN030 BKN050 13/06 Q1015RJOH2019-12-11T17:00:00Z35.47133.2513.06.0280146.2129.970472MVFRMETAR9.02019-12-11 17:10:44D$) 5    3RJNK 111700Z 19011KT 9999 TS FEW030CB SCT060 BKN080 13/04 Q1011RJNK2019-12-11T17:00:00Z36.37136.4213.04.0190116.2129.852362TSVFRMETAR9.02019-12-11 17:10:447#(q5    3RJGG 111700Z 26023KT 9999 FEW030 14/08 Q1013 NOSIGRJGG2019-12-11T17:00:00Z34.87136.814.08.0260236.2129.911417TRUEVFRMETAR5.02019-12-11 17:10:44 5h?,(}5    3RORK 111700Z AUTO 01014KT 9999 FEW023 OVC060 21/17 Q1017RORK2019-12-11T17:00:00Z25.92131.3221.017.010146.2130.029528TRUEVFRMETAR22.02019-12-11 17:10:44?+(}5    3ROMD 111700Z AUTO 02010KT 9999 FEW023 OVC060 21/17 Q1017ROMD2019-12-11T17:00:00Z25.82131.2221.017.020106.2130.029528TRUEVFRMETAR15.02019-12-11 17:10:44I*)5    3RJTT 111700Z 02001KT 9999 FEW015 12/10 Q1008 NOSIG RMK 1CU015 A2977RJTT2019-12-11T17:00:00Z35.53139.7712.010.02016.2129.763779TRUEVFRMETAR8.02019-12-11 17:10:44H))5   3ROAH 111700Z 04005KT 350V080 9999 BKN025 20/16 Q1019 RMK 5CU025 A3010ROAH2019-12-11T17:00:00Z26.17127.6520.016.04056.2130.088583MVFRMETAR8.02019-12-11 17:10:44F() 5    3RJSM 111700Z 21006KT 9999 -SHRA FEW030 SCT050 BKN070 10/05 Q1004RJSM2019-12-11T17:00:00Z40.7141.3710.05.021066.2129.64567-SHRAVFRMETAR36.02019-12-11 17:10:44 NCwN51(k5    3VTBU 111700Z 35004KT 6000 NSC 21/16 Q1014 NOSIGVTBU2019-12-11T17:00:00Z12.68101.021.016.035043.7329.940945TRUEMVFRMETAR5.02019-12-11 17:10:4440(k5    3VTBS 111700Z 05008KT 9000 NSC 25/16 Q1014 NOSIGVTBS2019-12-11T17:00:00Z13.68100.7525.016.05085.5929.940945TRUEVFRMETAR2.02019-12-11 17:10:441/(e5    3VTBD 111700Z 12006KT CAVOK 23/17 Q1014 NOSIGVTBD2019-12-11T17:00:00Z13.92100.623.017.012066.2129.940945TRUEVFRMETAR3.02019-12-11 17:10:44G.) 5    3ROYN 111700Z AUTO 02023KT 9999 BKN033 BKN035 OVC042 21/15 Q1021ROYN2019-12-11T17:00:00Z24.47122.9721.015.020236.2130.147638TRUEVFRMETAR17.02019-12-11 17:10:448-(o5    3RORY 111700Z AUTO 35017KT 9999 BKN031 20/16 Q1019RORY2019-12-11T17:00:00Z27.05128.420.016.0350176.2130.088583TRUEVFRMETAR16.02019-12-11 17:10:44 UJU86(q5    3VTSS 111700Z 29002KT 9000 FEW020 24/23 Q1013 NOSIGVTSS2019-12-11T17:00:00Z6.92100.3824.023.029025.5929.911417TRUEVFRMETAR35.02019-12-11 17:10:4445(q5    3VTSP 111700Z VRB03KT 9000 FEW020 25/20 Q1012 NOSIGVTSP2019-12-11T17:00:00Z8.1298.3225.020.0035.5929.88189TRUEVFRMETAR10.02019-12-11 17:10:44>4)5    3VTSG 111700Z 04004KT 010V070 9999 FEW020 23/22 Q1013 NOSIGVTSG2019-12-11T17:00:00Z8.198.9823.022.04046.2129.911417TRUEVFRMETAR25.02019-12-11 17:10:4473(k5    3VTCT 111700Z 26002KT 8000 NSC 12/11 Q1017 NOSIGVTCT2019-12-11T17:00:00Z19.9599.8812.011.026024.9730.029528TRUEMVFRMETAR390.02019-12-11 17:10:4412(e5    3VTCC 111700Z VRB02KT CAVOK 16/13 Q1017 NOSIGVTCC2019-12-11T17:00:00Z18.7798.9716.013.0026.2130.029528TRUEVFRMETAR314.02019-12-11 17:10:44 VBV8;(m5    3ZJHK 111700Z 27001MPS 8000 NSC 18/14 Q1018 NOSIGZJHK2019-12-11T17:00:00Z19.93110.4718.014.027024.9730.059055TRUEMVFRMETAR23.02019-12-11 17:10:445:(i5    3ZHHH 111700Z 08005MPS CAVOK 10/M04 Q1024 NOSIGZHHH2019-12-11T17:00:00Z30.78114.2210.0-4.080106.2130.236221TRUEVFRMETAR33.02019-12-11 17:10:4479(o5    3ZHCC 111700Z 03004MPS 7000 NSC 05/M07 Q1028 NOSIGZHCC2019-12-11T17:00:00Z34.52113.835.0-7.03084.3530.35433TRUEMVFRMETAR151.02019-12-11 17:10:4448(m5    3ZGHA 111700Z VRB01MPS 6000 NSC 07/07 Q1022 NOSIGZGHA2019-12-11T17:00:00Z28.18113.227.07.0023.7330.177166TRUEMVFRMETAR66.02019-12-11 17:10:4497(k5    3ZBHH 111700Z 08002MPS CAVOK M17/M20 Q1024 NOSIGZBHH2019-12-11T17:00:00Z40.85111.82-17.0-20.08046.2130.236221TRUEVFRMETAR1065.02019-12-11 17:10:44 CCC=@(y5     3ZUCK 111700Z 00000MPS 3500 BR FEW026 10/07 Q1021 NOSIGZUCK2019-12-11T17:00:00Z29.72106.6310.07.0002.1730.147638TRUEBRIFRMETAR416.02019-12-11 17:10:44(u5    3ZSNJ 111700Z 06002MPS 7000 SCT046 04/M01 Q1027 NOSIGZSNJ2019-12-11T17:00:00Z31.75118.874.0-1.06044.3530.324802TRUEMVFRMETAR33.02019-12-11 17:10:449=(k5    3ZLLL 111700Z 33003MPS CAVOK M09/M15 Q1019 NOSIGZLLL2019-12-11T17:00:00Z36.52103.62-9.0-15.033066.2130.088583TRUEVFRMETAR1947.02019-12-11 17:10:448<(s5    3ZJSY 111700Z 04004MPS 9999 BKN066 22/16 Q1017 NOSIGZJSY2019-12-11T17:00:00Z18.3109.4222.016.04086.2130.029528TRUEVFRMETAR27.02019-12-11 17:10:44 'aDE)5   3VOMD 111700Z 06004KT 6000 FEW018 SCT100 26/22 Q1013 TEMPO 5000 BRVOMD2019-12-11T17:00:00Z9.8278.0726.022.06043.7329.911417MVFRMETAR131.02019-12-11 17:10:444D(q5     3VERC 111700Z 00000KT 2000 BR NSC 16/14 Q1016 NOSIGVERC2019-12-11T17:00:00Z23.3285.3216.014.0001.2430.0TRUEBRIFRMETAR652.02019-12-11 17:10:44=C)5    3VOCI 111700Z 13002KT 3500 BR NSC 26/24 Q1010 BECMG 3000 BRVOCI2019-12-11T17:00:00Z10.1576.426.024.013022.1729.822834BRIFRMETAR8.02019-12-11 17:10:44AB(w5     3ZYHB 111700Z 26003MPS 3000 BR NSC M15/M16 Q1021 NOSIGZYHB2019-12-11T17:00:00Z45.62126.25-15.0-16.026061.8630.147638TRUEBRIFRMETAR140.02019-12-11 17:10:44TA)5     3ZYCC 111700Z 26004MPS 4000 -SN BR FEW007 OVC020 M10/M13 Q1022 NOSIGZYCC2019-12-11T17:00:00Z43.98125.68-10.0-13.026082.4930.177166TRUE-SN BRIFRMETAR238.02019-12-11 17:10:44 VCV*J([5   3DAOY 111700Z 30007KT CAVOK 10/M03 Q1022DAOY2019-12-11T17:00:00Z33.721.0810.0-3.030076.2130.177166VFRMETAR1347.02019-12-11 17:10:44?I(}5    3FMSD 111700Z 08012KT 8000 VCSH SCT016 BKN033 25/24 Q1010FMSD2019-12-11T17:00:00Z-25.0246.9525.024.080124.9729.822834VCSHMVFRMETAR9.02019-12-11 17:10:44NH)5    3FMNM 111700Z 34005KT 9999 VCTS FEW010 SCT020CB 28/26 Q1010 TEMPO NOSIGFMNM2019-12-11T17:00:00Z-15.6746.3528.026.034056.2129.822834VCTSVFRMETAR18.02019-12-11 17:10:44"G(Y5    3FNSU 111700Z 23010KT CAVOK 29/// Q1011FNSU2019-12-11T17:00:00Z-11.1713.85230106.2129.852362VFRMETAR11.02019-12-11 17:10:448F(q5     3VEBS 111700Z 00000KT 4000 BR NSC 20/19 Q1013 NOSIGVEBS2019-12-11T17:00:00Z20.2585.8220.019.0002.4929.911417TRUEBRIFRMETAR46.02019-12-11 17:10:44 NH%O(Y5   3DAUO 111700Z 22003KT CAVOK 14/02 Q1019DAUO2019-12-11T17:00:00Z33.56.7814.02.022036.2130.088583VFRMETAR63.02019-12-11 17:10:44'N([5   3DAUT 111700Z VRB01KT CAVOK 20/M06 Q1023DAUT2019-12-11T17:00:00Z29.250.2720.0-6.0016.2130.206694VFRMETAR312.02019-12-11 17:10:44&M([5   3DAUK 111700Z 00000KT CAVOK 14/M02 Q1019DAUK2019-12-11T17:00:00Z33.086.1214.0-2.0006.2130.088583VFRMETAR85.02019-12-11 17:10:44*L([5   3DAUE 111700Z 25002KT CAVOK 15/M11 Q1022DAUE2019-12-11T17:00:00Z30.572.8715.0-11.025026.2130.177166VFRMETAR397.02019-12-11 17:10:44-K(i5     3DATM 111700Z 06017KT 6000 DRSA NSC 27/// Q1015DATM2019-12-11T17:00:00Z21.380.9260173.7329.970472DRSAMVFRMETAR396.02019-12-11 17:10:44 RC3T(u5   3FALW 111700Z AUTO 22010KT //// // ////// 22/15 Q1012FALW2019-12-11T17:00:00Z-32.9718.1722.015.02201029.88189TRUEMETAR0.02019-12-11 17:10:443S(q5    3FABL 111700Z 20008KT 9999 FEW040 22/06 Q1016 NOSIGFABL2019-12-11T17:00:00Z-29.126.322.06.020086.2130.0TRUEVFRMETAR1348.02019-12-11 17:10:44(R([5   3DAUI 111700Z 05004KT CAVOK 19/M05 Q1021DAUI2019-12-11T17:00:00Z27.252.5219.0-5.05046.2130.147638VFRMETAR269.02019-12-11 17:10:44%Q([5   3DAUU 111700Z 00000KT CAVOK 16/M05 Q1020DAUU2019-12-11T17:00:00Z31.925.416.0-5.0006.2130.11811VFRMETAR141.02019-12-11 17:10:44)P([5   3DAUL 111700Z 29010KT CAVOK 16/M07 Q1020DAUL2019-12-11T17:00:00Z33.772.9216.0-7.0290106.2130.11811VFRMETAR765.02019-12-11 17:10:44 G}aX)=5     3VILK 111700Z VRB02KT 1500 R27/2000 RMID/2000 R09/2000 BR FEW100 SCT200 14/12 Q1014 NOSIGVILK2019-12-11T17:00:00Z26.7580.8714.012.0020.9329.940945TRUEBRLIFRMETAR128.02019-12-11 17:10:44YW)-5     3VIDP 111700Z 00000KT 1500 R28/P2000 R29/P2000 FU SCT040 BKN100 17/11 Q1013 NOSIGVIDP2019-12-11T17:00:00Z28.5777.1217.011.0000.9329.911417TRUEFULIFRMETAR233.02019-12-11 17:10:44EV)5     3VIJP 111700Z 06003KT 2000 FU SCT030 SCT100 17/12 Q1013 NOSIGVIJP2019-12-11T17:00:00Z26.8275.7817.012.06031.2429.911417TRUEFUIFRMETAR390.02019-12-11 17:10:444U(u5   3FAOB 111700Z AUTO 16012KT //// // ////// 21/17 Q1015FAOB2019-12-11T17:00:00Z-34.620.2721.017.01601229.970472TRUEMETAR75.02019-12-11 17:10:44 q<+q5](u5   3EIWF 111700Z 29012KT 260V320 9999 FEW030 04/01 Q1003EIWF2019-12-11T17:00:00Z52.18-7.084.01.0290126.2129.616142VFRMETAR36.02019-12-11 17:10:44+\(e5   3EIME 111700Z 24013KT 9999 FEW018 03/01 Q1000EIME2019-12-11T17:00:00Z53.3-6.453.01.0240136.2129.52756VFRMETAR93.02019-12-11 17:10:44+[(e5   3EIKY 111700Z 27005KT 9999 FEW025 03/01 Q1004EIKY2019-12-11T17:00:00Z52.18-9.523.01.027056.2129.64567VFRMETAR34.02019-12-11 17:10:44,Z(e5   3EIDL 111700Z 26019KT 9000 FEW033 07/02 Q0995EIDL2019-12-11T17:00:00Z55.05-8.337.02.0260195.5929.379921VFRMETAR9.02019-12-11 17:10:44?Y)5   3NSFA 111700Z 13003KT 9999 FEW022 BKN290 25/24 Q1009 RMK NILNSFA2019-12-11T17:00:00Z-13.83-172.025.024.013036.2129.793306VFRMETAR5.02019-12-11 17:10:44 2bHb) 5     3UKOH 111700Z 06003MPS 0150 FG VV001 02/02 Q1020 R03/190060 NOSIGUKOH2019-12-11T17:00:00Z46.6732.52.02.06060.0930.11811TRUEFGLIFR100METAR45.02019-12-11 17:10:44Ca) 5   3UKLN 111700Z 11004MPS 8000 SCT///CB 01/01 Q1017 R15/19//65 NOSIGUKLN2019-12-11T17:00:00Z48.2725.981.01.011084.9730.029528TRUEMETAR252.02019-12-11 17:10:445`(q5    3UKKM 111700Z AUTO 07002MPS 5000 // NCD 00/00 Q1021UKKM2019-12-11T17:00:00Z50.630.20.00.07043.1130.147638TRUEMVFRMETAR157.02019-12-11 17:10:44K_)5    3UKKK 111700Z 11003MPS 5000 BR OVC007 02/01 Q1022 R08/190060 TEMPO OVC006UKKK2019-12-11T17:00:00Z50.430.452.01.011063.1130.177166BRIFRMETAR179.02019-12-11 17:10:44I^)5    3UKLI 111700Z 10002MPS 9999 FEW020CB BKN030 01/00 Q1016 R28/510140 NOSIGUKLI2019-12-11T17:00:00Z48.8824.681.00.010046.2130.0TRUEMVFRMETAR280.02019-12-11 17:10:44 >Wp,f(k5   3MPSM 111700Z 17006KT(E) 9999 FEW020 29/24 Q1011MPSM2019-12-11T17:00:00Z8.35-80.1329.024.06.2129.852362VFRMETAR0.02019-12-11 17:10:44be)35     3TTCP 111700Z 12014KT 9999 -RA VCSH FEW016 SCT038 25/22 Q1012 NOSIG RMK VCSH NE/S/SWTTCP2019-12-11T17:00:00Z11.15-60.8525.022.0120146.2129.88189TRUE-RA VCSHVFRMETAR8.02019-12-11 17:10:44bd)/5     3TTPP 111700Z 11014KT 5000 -RA VCSH FEW008 SCT038 23/22 Q1012 NOSIG RMK VCSH ALQDSTTPP2019-12-11T17:00:00Z10.58-61.3523.022.0110143.1129.88189TRUE-RA VCSHMVFRMETAR15.02019-12-11 17:10:44=c(y5     3UKWW 111700Z 12005MPS 1000 BR OVC003 02/01 Q1020 NOSIGUKWW2019-12-11T17:00:00Z49.2528.62.01.0120100.6230.11811TRUEBRLIFRMETAR293.02019-12-11 17:10:44 V/wV;k(w5    3MPMG 111700Z 16006KT 9999 SCT018TCU 30/24 Q1011 NOSIGMPMG2019-12-11T17:00:00Z8.98-79.5730.024.016066.2129.852362TRUEVFRMETAR13.02019-12-11 17:10:44-j(e5   3MPPA 111700Z 21005KT 9999 FEW018 30/25 Q1010MPPA2019-12-11T17:00:00Z8.92-79.630.025.021056.2129.822834VFRMETAR13.02019-12-11 17:10:44*i(s5    3MPBO 111700Z 00000KT 9999 SCT016 SCT090 ///// Q1014MPBO2019-12-11T17:00:00Z9.35-82.25006.2129.940945VFRMETAR3.02019-12-11 17:10:443h(s5   3MPDA 111700Z 21004KT 9999 FEW018 SCT100 29/23 Q1012MPDA2019-12-11T17:00:00Z8.4-82.4329.023.021046.2129.88189VFRMETAR27.02019-12-11 17:10:44Lg)5     3MPTO 111700Z 17008KT 8000 VCSH SCT016TCU SCT090 29/25 Q1012 NOSIGMPTO2019-12-11T17:00:00Z9.05-79.3729.025.017084.9729.88189TRUEVCSHMVFRMETAR45.02019-12-11 17:10:44 1>1Np)5    3LFHP 111700Z AUTO 27007KT 210V320 9999 FEW024 BKN032 OVC140 02/M01 Q1013LFHP2019-12-11T17:00:00Z45.073.772.0-1.027076.2129.911417TRUEVFRMETAR833.02019-12-11 17:10:444o(i5    3FMEP 111700Z AUTO 12003KT 9999 NCD 27/25 Q1012FMEP2019-12-11T17:00:00Z-21.3255.4227.025.012036.2129.88189TRUEVFRMETAR18.02019-12-11 17:10:44Gn) 5    3FMEE 111700Z AUTO 13006KT CAVOK 27/24 Q1013 TEMPO TSRA SCT020CBFMEE2019-12-11T17:00:00Z-20.8755.5227.024.013066.2129.911417TRUEVFRMETAR25.02019-12-11 17:10:440m(e5    3OJAQ 111700Z 00000KT CAVOK 20/13 Q1011 NOSIGOJAQ2019-12-11T17:00:00Z29.6235.0220.013.0006.2129.852362TRUEVFRMETAR51.02019-12-11 17:10:44=l(w5     3VOKN 111700Z VRB03KT 5000 HZ FEW020 25/24 Q1011 NOSIGVOKN2019-12-11T17:00:00Z11.9275.5525.024.0033.1129.852362TRUEHZMVFRMETAR105.02019-12-11 17:10:44 3Ar3@u({5    3SLSA 111700Z 32007KT 6000 -RA BKN015 BKN070 27/24 Q1009SLSA2019-12-11T17:00:00Z-13.77-65.4327.024.032073.7329.793306-RAMVFRMETAR144.02019-12-11 17:10:448t(s5   3SLMG 111700Z 32004KT 9999 SCT015 BKN080 27/24 Q1009SLMG2019-12-11T17:00:00Z-13.27-64.0727.024.032046.2129.793306VFRMETAR141.02019-12-11 17:10:448s(s5   3SLJO 111700Z 34004KT 9999 FEW015 BKN080 28/24 Q1010SLJO2019-12-11T17:00:00Z-13.07-64.6728.024.034046.2129.822834VFRMETAR140.02019-12-11 17:10:44Jr)5    3SLRI 111700Z 00000KT 7000 VCSH BKN015 FEW020CB BKN080 29/24 Q1011SLRI2019-12-11T17:00:00Z-11.02-66.0829.024.0004.3529.852362VCSHMVFRMETAR135.02019-12-11 17:10:44:q(}5    3LFQG 111700Z AUTO 19005KT 9999 FEW025 OVC210 06/04 Q1011LFQG2019-12-11T17:00:00Z47.03.16.04.019056.2129.852362TRUEVFRMETAR181.02019-12-11 17:10:44 M5wM2z(e5   3SLRB 111700Z 36005KT 9999 BKN020 33/24 Q1010SLRB2019-12-11T17:00:00Z-18.32-59.7533.024.036056.2129.822834MVFRMETAR284.02019-12-11 17:10:442y(e5   3SLSI 111700Z 36006KT 9999 BKN017 30/23 Q1009SLSI2019-12-11T17:00:00Z-16.37-60.9530.023.036066.2129.793306MVFRMETAR413.02019-12-11 17:10:447x(s5   3SLCP 111700Z 30006KT 9999 SCT012 BKN070 27/23 Q1012SLCP2019-12-11T17:00:00Z-16.15-62.0227.023.030066.2129.88189VFRMETAR497.02019-12-11 17:10:449w(w5   3SLOR 111700Z 03005KT 9999 SCT020 FEW023CB 21/03 Q1031SLOR2019-12-11T17:00:00Z-17.97-67.0821.03.03056.2130.442913VFRMETAR3702.02019-12-11 17:10:44Fv) 5    3SLRQ 111700Z 36006KT 8000 -RA BKN007 BKN010 OVC070 26/25 Q1009SLRQ2019-12-11T17:00:00Z-14.42-67.526.025.036064.9729.793306-RAIFRMETAR203.02019-12-11 17:10:44 XMX1(k5    3VTUK 111700Z 02003KT 7000 NSC 18/09 Q1016 NOSIGVTUK2019-12-11T17:00:00Z16.47102.7818.09.02034.3530.0TRUEMVFRMETAR204.02019-12-11 17:10:44S~)5   3CYBG 111700Z 01003KT 25SM FEW050 SCT080 M12/M18 A3013 RMK SC1AC2 SLP218CYBG2019-12-11T17:00:00Z48.33-70.98-12.0-18.010325.030.1299211021.8VFRMETAR159.02019-12-11 17:10:44-}(_5   3SLYA 111700Z 05005KT 9999 NSC 35/24 Q1007SLYA2019-12-11T17:00:00Z-21.97-63.6535.024.05056.2129.734253VFRMETAR645.02019-12-11 17:10:440|(e5   3SLVM 111700Z 36005KT 9999 FEW070 36/20 Q1006SLVM2019-12-11T17:00:00Z-21.25-63.436.020.036056.2129.704725VFRMETAR400.02019-12-11 17:10:44.{(e5   3SLCA 111700Z 00000KT 9999 SCT033 32/20 Q1011SLCA2019-12-11T17:00:00Z-20.0-63.5332.020.0006.2129.852362VFRMETAR798.02019-12-11 17:10:44 sE%s-(e5   3VDSV 111700Z VRB02KT 9000 FEW015 22/18 Q1013VDSV2019-12-11T17:00:00Z10.58103.6322.018.0025.5929.911417VFRMETAR10.02019-12-11 17:10:44.(e5   3VDSR 111700Z 04001KT 9000 FEW017 21/20 Q1013VDSR2019-12-11T17:00:00Z13.42103.8321.020.04015.5929.911417VFRMETAR15.02019-12-11 17:10:44)(_5   3VDPP 111700Z VRB02KT 9000 NSC 23/18 Q1012VDPP2019-12-11T17:00:00Z11.55104.8323.018.0025.5929.88189VFRMETAR10.02019-12-11 17:10:44:(o5     3OTHH 111700Z AUTO 34015KT CAVOK 22/16 Q1014 NOSIGOTHH2019-12-11T17:00:00Z25.2551.622.016.0340156.2129.940945TRUETRUEVFRMETAR0.02019-12-11 17:10:446(k5    3VTUU 111700Z 01003KT 9000 NSC 18/14 Q1015 NOSIGVTUU2019-12-11T17:00:00Z15.25104.8718.014.01035.5929.970472TRUEVFRMETAR127.02019-12-11 17:10:44 oP'o3 (k5    3VVNB 111700Z VRB02KT 6000 NSC 13/09 Q1019 NOSIGVVNB2019-12-11T17:00:00Z21.22105.813.09.0023.7330.088583TRUEMVFRMETAR12.02019-12-11 17:10:446(k5    3VVCT 111700Z 29002KT 8000 NSC 22/22 Q1013 NOSIGVVCT2019-12-11T17:00:00Z10.08105.7222.022.029024.9729.911417TRUEMVFRMETAR3.02019-12-11 17:10:443(q5    3VVCR 111700Z 36003KT 9999 FEW015 23/21 Q1016 NOSIGVVCR2019-12-11T17:00:00Z12.0109.2223.021.036036.2130.0TRUEVFRMETAR12.02019-12-11 17:10:441(e5    3VVCI 111700Z 03004KT CAVOK 16/12 Q1019 NOSIGVVCI2019-12-11T17:00:00Z20.82106.7316.012.03046.2130.088583TRUEVFRMETAR3.02019-12-11 17:10:44+(_5   3VYYY 111700Z 24005KT 7000 NSC 22/18 Q1013VYYY2019-12-11T17:00:00Z16.996.1322.018.024054.3529.911417MVFRMETAR33.02019-12-11 17:10:44 )6z)>(u5     3NZWN 111700Z AUTO 18008KT 9999 NCD 15/12 Q1014 NOSIGNZWN2019-12-11T17:00:00Z-41.32174.815.012.018086.2129.940945TRUETRUEVFRMETAR7.02019-12-11 17:10:44E )5     3NZAA 111700Z AUTO 17004KT 9999 SCT012/// 15/14 Q1010 NOSIGNZAA2019-12-11T17:00:00Z-37.02174.815.014.017046.2129.822834TRUETRUEVFRMETAR6.02019-12-11 17:10:44? (5    3VVDN 111700Z 33002KT 6000 FEW015 BKN050 21/18 Q1018 NOSIGVVDN2019-12-11T17:00:00Z16.02108.221.018.033023.7330.059055TRUEMVFRMETAR7.02019-12-11 17:10:447 (q5    3VVTS 111700Z VRB03KT 8000 FEW017 24/22 Q1012 NOSIGVVTS2019-12-11T17:00:00Z10.82106.6724.022.0034.9729.88189TRUEMVFRMETAR19.02019-12-11 17:10:44E )5     3VVPB 111700Z 19002KT 4000 BR FEW026 BKN060 19/18 Q1018 NOSIGVVPB2019-12-11T17:00:00Z16.38107.719.018.019022.4930.059055TRUEBRIFRMETAR17.02019-12-11 17:10:44 3Q\K)5    3CYFC 111700Z AUTO 32006KT 9SM OVC120 M05/M13 A3018 RMK SLP222CYFC2019-12-11T17:00:00Z45.87-66.52-5.0-13.032069.030.1801191022.2TRUEVFRMETAR20.02019-12-11 17:10:44p)E5    3CYFB 111700Z 33014KT 5SM -SN DRSN SCT020 BKN034 OVC055 M15/M19 A2934 RMK SN1SC2SC2SC3 SLP941CYFB2019-12-11T17:00:00Z63.75-68.55-15.0-19.0330145.029.338583994.1-SN DRSNMVFRMETAR34.02019-12-11 17:10:44])#5    3CYEG 111700Z 13013KT 15SM -SN BKN035 OVC055 M14/M17 A2994 RMK SC7SC1 SLP198CYEG2019-12-11T17:00:00Z53.28-113.57-14.0-17.01301315.029.9409451019.8-SNVFRMETAR723.02019-12-11 17:10:44H)5     3NZCH 111700Z AUTO 33003KT 9999 BKN011/// 12/12 Q1015 NOSIGNZCH2019-12-11T17:00:00Z-43.47172.5512.012.033036.2129.970472TRUETRUEMVFRMETAR34.02019-12-11 17:10:44 S(SP)5   3CYMX 111700Z 14006KT 120V180 45SM BKN066 M07/M12 A3014 RMK AC6 SLP214CYMX2019-12-11T17:00:00Z45.67-74.02-7.0-12.0140645.030.1387791021.4VFRMETAR82.02019-12-11 17:10:44h)A5  3CYJT 111700Z 30013G22KT 15SM FEW021 BKN029 BKN130 M03/M09 A2997 RMK SC1SC5AS2 SC TR SLP152CYJT2019-12-11T17:00:00Z48.55-58.57-3.0-9.0300132215.029.9704721015.2MVFRMETAR26.02019-12-11 17:10:44~)o5    3CYHZ 111700Z 34008KT 1SM R23/P6000FT/D R14/P6000FT/D -SN OVC003 M01/M01 A3006 RMK ST8 /S02/ CIG RAG PRESFR SLP184CYHZ2019-12-11T17:00:00Z44.87-63.5-1.0-1.034081.030.0590551018.4-SNLIFRMETAR145.02019-12-11 17:10:44c)+5    3CYGL 111700Z 17011KT 6SM -SN DRSN SCT028 BKN220 M24/M27 A2987 RMK SC3CI3 SLP144CYGL2019-12-11T17:00:00Z53.62-77.7-24.0-27.0170116.029.8700791014.4-SN DRSNVFRMETAR195.02019-12-11 17:10:44 #6YI)5   3CYQM 111700Z 30010KT 15SM OVC086 M04/M11 A3012 RMK AC8 SLP204CYQM2019-12-11T17:00:00Z46.12-64.67-4.0-11.03001015.030.1210631020.4VFRMETAR71.02019-12-11 17:10:44X)5    3CYQG 111700Z AUTO 27018G28KT 9SM -SN OVC035 M05/M12 A3029 RMK SLP269CYQG2019-12-11T17:00:00Z42.27-82.97-5.0-12.027018289.030.289371026.9TRUE-SNVFRMETAR190.02019-12-11 17:10:44h)G5   3CYQB 111700Z 25007KT 30SM FEW030 FEW120 FEW220 M09/M15 A3020 RMK SC1AC2CI1 SC TR CI TR SLP233CYQB2019-12-11T17:00:00Z46.78-71.37-9.0-15.0250730.030.2007871023.3VFRMETAR73.02019-12-11 17:10:44X)5    3CYOW 111700Z 23009KT 140V250 10SM -SN BKN029 M04/M09 A3009 RMK SC7 SLP198CYOW2019-12-11T17:00:00Z45.32-75.67-4.0-9.0230910.030.0885831019.8-SNMVFRMETAR114.02019-12-11 17:10:44 L0<Lk)E5    3CYTR 111700Z 25007KT 3/8SM SHSN OVC015 M04/M07 A3012 RMK SN4SC4 VIS VRB 1/4-1/2 /S02/ SLP204CYTR2019-12-11T17:00:00Z44.12-77.52-4.0-7.025070.3830.1210631020.4SHSNLIFRMETAR86.02019-12-11 17:10:44o)O5    3CYQY 111700Z 30008KT 3/4SM R06/P6000FT/N -SN BKN006 OVC012 M01/M02 A3001 RMK ST5ST3 PRESFR SLP167CYQY2019-12-11T17:00:00Z46.17-60.03-1.0-2.030080.7530.0088581016.7-SNLIFRMETAR62.02019-12-11 17:10:44g)A5  3CYQX 111700Z 28020G25KT 20SM FEW028 SCT075 OVC110 01/M05 A2980 RMK CF1AS2AC5 PRESRR SLP099CYQX2019-12-11T17:00:00Z48.95-54.581.0-5.0280202520.029.7992131009.9VFRMETAR151.02019-12-11 17:10:44_)55  3CYQQ 111700Z 14013G18KT 20SM BKN006 OVC010 07/06 A2996 RMK SF5SC3 CIG VRB 4-8 SLP146CYQQ2019-12-11T17:00:00Z49.72-124.97.06.0140131820.029.9586621014.6IFRMETAR24.02019-12-11 17:10:44 V#,]V")i5   3CYXX 111700Z 01003KT 15SM VCFG FEW003 FEW026 BKN050 BKN220 04/04 A3004 RMK SF1SC1SC5CI1 SF TR VIS N-E 2 SLP175CYXX2019-12-11T17:00:00Z49.03-122.384.04.010315.030.0413381017.5VCFGBKN22000VFRMETAR58.02019-12-11 17:10:44J!)5   3CYWG 111700Z 24005KT 15SM FEW220 M21/M27 A3032 RMK CI2 SLP300CYWG2019-12-11T17:00:00Z49.88-97.22-21.0-27.0240515.030.3188971030.0VFRMETAR239.02019-12-11 17:10:44r )K5   3CYVR 111700Z 09007KT 3SM -RA BR FEW002 BKN008 BKN013 OVC023 07/06 A3003 RMK SF1SF4SC1SC1 SLP170CYVR2019-12-11T17:00:00Z49.17-123.177.06.09073.030.0295281017.0-RA BROVC2300IFRMETAR2.02019-12-11 17:10:44X)'5   3CYUL 111700Z 15009KT 30SM FEW030 SCT070 M05/M13 A3016 RMK CF1AC3 CF TR SLP217CYUL2019-12-11T17:00:00Z45.47-73.73-5.0-13.0150930.030.1594491021.7VFRMETAR36.02019-12-11 17:10:44 5)'(]5   3LZZI 111700Z VRB01KT CAVOK M04/M06 Q1014LZZI2019-12-11T17:00:00Z49.2318.62-4.0-6.0016.2129.940945VFRMETAR311.02019-12-11 17:10:44:&(w5     3VGHS 111700Z 00000KT 3500 HZ FEW100 20/15 Q1015 NOSIGVGHS2019-12-11T17:00:00Z23.8590.420.015.0002.1729.970472TRUEHZIFRMETAR10.02019-12-11 17:10:44)%(]5   3LZSL 111700Z VRB01KT CAVOK M04/M06 Q1015LZSL2019-12-11T17:00:00Z48.6319.13-4.0-6.0016.2129.970472VFRMETAR313.02019-12-11 17:10:44*$(]5   3LZPP 111700Z 13006KT CAVOK M00/M04 Q1015LZPP2019-12-11T17:00:00Z48.6217.830.0-4.013066.2129.970472VFRMETAR161.02019-12-11 17:10:44#)5    3CYYC 111700Z 18003KT 130V190 1/2SM R35L/6000FT/D R29/5000VP6000FT/D R35R/5000VP6000FT/D SN VV006 M11/M13 A2982 RMK SN8 /S01/ SLP173CYYC2019-12-11T17:00:00Z51.12-114.02-11.0-13.018030.529.8198811017.3SNLIFR600METAR1084.02019-12-11 17:10:44 uQ,u2,(i5    3LKPR 111700Z VRB01KT CAVOK M02/M03 Q1010 NOSIGLKPR2019-12-11T17:00:00Z50.114.27-2.0-3.0016.2129.822834TRUEVFRMETAR365.02019-12-11 17:10:444+(i5    3LKTB 111700Z 09008KT CAVOK M02/M05 Q1013 NOSIGLKTB2019-12-11T17:00:00Z49.1316.68-2.0-5.09086.2129.911417TRUEVFRMETAR246.02019-12-11 17:10:44-*(e5   3LWOH 111700Z 35006KT 9999 BKN040 04/00 Q1010LWOH2019-12-11T17:00:00Z41.1820.754.00.035066.2129.822834VFRMETAR761.02019-12-11 17:10:445)(i5    3LKMT 111700Z 21004KT CAVOK M03/M05 Q1013 NOSIGLKMT2019-12-11T17:00:00Z49.6718.12-3.0-5.021046.2129.911417TRUEVFRMETAR256.02019-12-11 17:10:44*((]5   3LKKV 111700Z 12006KT CAVOK M01/M04 Q1008LKKV2019-12-11T17:00:00Z50.212.92-1.0-4.012066.2129.763779VFRMETAR604.02019-12-11 17:10:44 D?jB0)5    3LYBE 111700Z 18003KT 160V220 9999 BKN017 BKN040 03/00 Q1016 NOSIGLYBE2019-12-11T17:00:00Z44.8220.283.00.018036.2130.0TRUEMVFRMETAR99.02019-12-11 17:10:44P/)5    3CYYJ 111700Z 06007KT 5SM BR SCT004 OVC011 07/07 A2998 RMK SF4SC4 SLP155CYYJ2019-12-11T17:00:00Z48.63-123.427.07.06075.029.979331015.5BRMVFRMETAR19.02019-12-11 17:10:44.)_5   3CYYQ 111700Z 31018G25KT 1/2SM -SN BLSN BKN013 BKN030 M27/M30 A2996 RMK BLSN3SF2SC2 VIS VRB 1/4-3/4 SLP150CYYQ2019-12-11T17:00:00Z58.75-94.07-27.0-30.031018250.529.9586621015.0-SN BLSNLIFRMETAR29.02019-12-11 17:10:447-(q5     3VASU 111700Z 00000KT 4000 HZ NSC 22/16 Q1011 NOSIGVASU2019-12-11T17:00:00Z21.1272.7322.016.0002.4929.852362TRUEHZIFRMETAR5.02019-12-11 17:10:44 GIG-5(e5    3LYTV 111700Z VRB01KT CAVOK 09/02 Q1008 NOSIGLYTV2019-12-11T17:00:00Z42.3818.729.02.0016.2129.763779TRUEVFRMETAR5.02019-12-11 17:10:44A4)5    3LYPG 111700Z 02011KT 320V040 9999 FEW100 10/M00 Q1009 NOSIGLYPG2019-12-11T17:00:00Z42.3719.2510.00.020116.2129.793306TRUEVFRMETAR43.02019-12-11 17:10:44P3)5    3LYNI 111700Z 33012KT 310V100 9999 SCT008 BKN013 OVC030 03/01 Q1015 NOSIGLYNI2019-12-11T17:00:00Z43.3221.883.01.0330126.2129.970472TRUEMVFRMETAR202.02019-12-11 17:10:4402(q5    3LYBT 111700Z VRB02KT 9999 BKN023 03/02 Q1016 NOSIGLYBT2019-12-11T17:00:00Z44.9320.253.02.0026.2130.0TRUEMVFRMETAR80.02019-12-11 17:10:4421(q5    3LYKV 111700Z 20002KT 6000 BKN007 02/02 Q1016 NOSIGLYKV2019-12-11T17:00:00Z43.8220.582.02.020023.7330.0TRUEIFRMETAR209.02019-12-11 17:10:44 6C6H:)5   3RPMD 111700Z 33003KT 300V360 9999 FEW016 SCT290 24/20 Q1010 RMK A2983RPMD2019-12-11T17:00:00Z7.12125.6524.020.033036.2129.822834VFRMETAR18.02019-12-11 17:10:4499(y5   3RPVM 111700Z 36007KT 9999 SCT020 26/23 Q1011 RMK A2985RPVM2019-12-11T17:00:00Z10.32123.9826.023.036076.2129.852362VFRMETAR10.02019-12-11 17:10:44G8)5    3RPLL 111700Z VRB01KT 9999 FEW025 BKN100 26/23 Q1012 NOSIG RMK A2988RPLL2019-12-11T17:00:00Z14.52121.026.023.0016.2129.88189TRUEVFRMETAR21.02019-12-11 17:10:4417(q5    3LYVR 111700Z 30001KT 9999 BKN040 04/02 Q1016 NOSIGLYVR2019-12-11T17:00:00Z45.1321.324.02.030016.2130.0TRUEVFRMETAR85.02019-12-11 17:10:4486(q5    3LYUZ 111700Z VRB01KT 0500 FZFG VV002 M02/M03 Q1012LYUZ2019-12-11T17:00:00Z43.919.7-2.0-3.0010.3129.88189FZFGLIFR200METAR904.02019-12-11 17:10:44 3F/>(i5   3BIKF 111700Z 01023KT 9999 SCT025 M02/M06 Q0988BIKF2019-12-11T17:00:00Z63.98-22.6-2.0-6.010236.2129.17323VFRMETAR54.02019-12-11 17:10:44<=(y5    3BIAR 111700Z 34016KT 2000 SN OVC008 M01/M02 Q0984 RESNBIAR2019-12-11T17:00:00Z65.67-18.07-1.0-2.0340161.2429.055119SNIFRMETAR27.02019-12-11 17:10:44h<)O5   3BIEG 111700Z 36029G46KT 2000 -SN BKN010 OVC022 00/M00 Q0973 R04/790392 RMK WIND GAGNHEIDI 01063KTBIEG2019-12-11T17:00:00Z65.27-14.40.00.036029461.2428.730314-SNIFRMETAR38.02019-12-11 17:10:44H;)5    3RPLB 111700Z 08005KT 9999 FEW020 SCT300 24/21 Q1012 NOSIG RMK A2988RPLB2019-12-11T17:00:00Z14.8120.2724.021.08056.2129.88189TRUEVFRMETAR17.02019-12-11 17:10:44 --r-LC)5    3RPLC 111700Z 32002KT 9999 FEW020 BKN300 25/22 Q1013 NOSIG RMK A2991RPLC2019-12-11T17:00:00Z15.17120.5825.022.032026.2129.911417TRUEVFRMETAR196.02019-12-11 17:10:44>B)5    3LQSA 111700Z 00000KT 7000 SCT017 BKN025 01/M00 Q1012 NOSIGLQSA2019-12-11T17:00:00Z43.8218.321.00.0004.3529.88189TRUEMVFRMETAR511.02019-12-11 17:10:44,A(g5   3LQMO 111700Z VRB02KT 9999 FEW050 09/M01 Q1009LQMO2019-12-11T17:00:00Z43.2817.839.0-1.0026.2129.793306VFRMETAR48.02019-12-11 17:10:446@(q5    3LQBK 111700Z 31002KT 9999 SCT040 02/01 Q1015 NOSIGLQBK2019-12-11T17:00:00Z44.9317.32.01.031026.2129.970472TRUEVFRMETAR122.02019-12-11 17:10:44N?)5   3BIRK 111700Z 36023KT 9999 R19///// FEW031 BKN045 M01/M06 Q0987 R01/790144BIRK2019-12-11T17:00:00Z64.13-21.93-1.0-6.0360236.2129.143702VFRMETAR61.02019-12-11 17:10:44 Ha8G(o5     3FMCZ 111700Z AUTO VRB03KT CAVOK 28/25 Q1011 NOSIGFMCZ2019-12-11T17:00:00Z-12.845.2728.025.0036.2129.852362TRUETRUEVFRMETAR7.02019-12-11 17:10:44[F)%5   3CYYT 111700Z 26016G24KT 15SM -RA SCT007 OVC032 07/06 A2980 RMK ST3SC5 SLP097CYYT2019-12-11T17:00:00Z47.62-52.727.06.0260162415.029.7992131009.7-RAVFRMETAR140.02019-12-11 17:10:44bE)+5   3CYYR 111700Z 27020G29KT 15SM DRSN FEW025 FEW210 M12/M20 A2973 RMK CF1CI1 SLP071CYYR2019-12-11T17:00:00Z53.32-60.42-12.0-20.0270202915.029.7312981007.1DRSNVFRMETAR49.02019-12-11 17:10:443D(u5   3LQTZ 111700Z VRB02KT 9999 FEW040 SCT060 01/M00 Q1014LQTZ2019-12-11T17:00:00Z44.4718.731.00.0026.2129.940945VFRMETAR306.02019-12-11 17:10:44 )U@K)5    3EIDW 111700Z 25013KT 220V280 9999 FEW022 03/01 Q0999 NOSIGEIDW2019-12-11T17:00:00Z53.42-6.253.01.0250136.2129.498032TRUEVFRMETAR85.02019-12-11 17:10:44KJ)5   3CYBR 111700Z 30010KT 15SM BKN250 M24/M29 A3027 RMK CI6 SLP304CYBR2019-12-11T17:00:00Z49.92-99.95-24.0-29.03001015.030.2687021030.4VFRMETAR409.02019-12-11 17:10:44OI)5    3CWAE 111700Z 00000KT 6SM BR OVC001 00/00 A2998 RMK SC8 WND ESTD SLP173CWAE2019-12-11T17:00:00Z50.13-122.950.00.0006.029.979331017.3BRLIFRMETAR658.02019-12-11 17:10:44RH)+5    3FQCH 111700Z /////KT 6000 DZ BKN007 BKN012 FEW020CB 22/22 Q1013 RMK CB TO NW/SWFQCH2019-12-11T17:00:00Z-19.1533.4322.022.03.7329.911417DZIFRSPECI732.02019-12-11 17:10:44 DCDCGKPTX\`dhmrw| $(,059=AEIMQUY]aehkosw{ #'+/37;?CGKOSW[_c nM n-(g5   3OISY 111700Z 00000KT 9999 FEW040 05/M02 Q1019OISY2019-12-11T17:00:00Z30.751.555.0-2.0006.2130.088583VFRMETAR1811.02019-12-11 17:10:44((Y5   3OIAW 111700Z 29002KT CAVOK 14/10 Q1015OIAW2019-12-11T17:00:00Z31.3248.7714.010.029026.2129.970472VFRMETAR22.02019-12-11 17:10:446(s5   3OIFM 111700Z 30006KT 9999 SCT040 04/M03 Q1018 A3006OIFM2019-12-11T17:00:00Z32.7551.874.0-3.030066.2130.059055VFRMETAR1542.02019-12-11 17:10:44@(5    3OIII 111700Z 27014KT 9999 FEW100 06/M02 Q1015 A3000 NOSIGOIII2019-12-11T17:00:00Z35.6851.36.0-2.0270146.2129.970472TRUEVFRMETAR1191.02019-12-11 17:10:44.(e5   3OIKB 111700Z 24004KT CAVOK 20/15 Q1011 A2987OIKB2019-12-11T17:00:00Z27.2256.3720.015.024046.2129.852362VFRMETAR10.02019-12-11 17:10:44 ?3* (_5   3OIZJ 111700Z 31004KT 7000 NSC 23/19 Q1011OIZJ2019-12-11T17:00:00Z25.6557.823.019.031044.3529.852362MVFRMETAR4.02019-12-11 17:10:44' (Y5   3OIBL 111700Z 34004KT CAVOK 21/18 Q1012OIBL2019-12-11T17:00:00Z26.5354.8221.018.034046.2129.88189VFRMETAR14.02019-12-11 17:10:44) ([5   3OIIK 111700Z 34002KT CAVOK 02/M00 Q1017OIIK2019-12-11T17:00:00Z36.2550.052.00.034026.2130.029528VFRMETAR1278.02019-12-11 17:10:44-(e5   3OIMC 111700Z 33006KT 8000 OVC025 07/06 Q1019OIMC2019-12-11T17:00:00Z36.561.077.06.033064.9730.088583MVFRMETAR288.02019-12-11 17:10:44<(5   3OISS 111700Z 31008KT 9999 FEW040 SCT200 10/03 Q1017 A3005OISS2019-12-11T17:00:00Z29.5252.5710.03.031086.2130.029528VFRMETAR1491.02019-12-11 17:10:44 IIIH)5    3OITT 111700Z VRB02KT 8000 FEW030 FEW035CB 01/M01 Q1020 A3015 NOSIGOITT2019-12-11T17:00:00Z38.1346.231.0-1.0024.9730.11811TRUEMVFRMETAR1361.02019-12-11 17:10:44?) 5   3OIZH 111700Z 00000KT 9999 FEW035CB FEW040TCU 07/06 Q1015 A2999OIZH2019-12-11T17:00:00Z29.4760.927.06.0006.2129.970472VFRMETAR1370.02019-12-11 17:10:440(g5   3OIFS 111700Z 19002KT 9999 FEW040 00/M04 Q1019OIFS2019-12-11T17:00:00Z32.3250.850.0-4.019026.2130.088583VFRMETAR2078.02019-12-11 17:10:445 (u5   3OIMB 111700Z 08004KT 9999 FEW040 BKN100 09/M08 Q1015OIMB2019-12-11T17:00:00Z32.959.289.0-8.08046.2129.970472VFRMETAR1491.02019-12-11 17:10:442 (s5   3OIMN 111700Z VRB02KT 9000 FEW015 BKN070 04/02 Q1017OIMN2019-12-11T17:00:00Z37.4857.34.02.0025.5930.029528VFRMETAR1074.02019-12-11 17:10:44 [(s['(Y5   3OIMD 111700Z 25004KT CAVOK 07/01 Q1012OIMD2019-12-11T17:00:00Z34.3858.637.01.025046.2129.88189VFRMETAR1100.02019-12-11 17:10:44/(u5   3OIMQ 111700Z 00000KT 9999 FEW040 BKN090 07/M00 Q1016OIMQ2019-12-11T17:00:00Z35.2358.477.00.0006.2130.0VFRMETAR1140.02019-12-11 17:10:443(s5   3OINE 111700Z 00000KT 9999 FEW035 BKN100 10/09 Q1018OINE2019-12-11T17:00:00Z37.3855.4510.09.0006.2130.059055VFRMETAR130.02019-12-11 17:10:440(g5   3OITM 111700Z 08002KT 7000 FEW023 01/M01 Q1018OITM2019-12-11T17:00:00Z37.3546.151.0-1.08024.3530.059055MVFRMETAR1340.02019-12-11 17:10:44S)5   3TNCM 111700Z 04018G31KT 010V080 9999 -SHRA BKN016 25/21 Q1017 TEMPO SHRATNCM2019-12-11T17:00:00Z18.05-63.1225.021.04018316.2130.029528-SHRAMVFRMETAR4.02019-12-11 17:10:44 GCG9(o5    3YMOR 111700Z AUTO 03011KT 9999 // NCD 25/12 Q1010YMOR2019-12-11T17:00:00Z-29.5149.8525.012.030116.2129.822834TRUEVFRMETAR214.02019-12-11 17:10:44F)5     3YMEK 111700Z AUTO 03002KT 9999 -RA OVC120 21/18 Q1017 RERAYMEK2019-12-11T17:00:00Z-26.62118.5521.018.03026.2130.029528TRUE-RAVFRMETAR522.02019-12-11 17:10:446(o5    3YMER 111700Z AUTO 22001KT 9999 // NCD 11/08 Q1014YMER2019-12-11T17:00:00Z-36.92149.911.08.022016.2129.940945TRUEVFRMETAR2.02019-12-11 17:10:443(o5    3YMIA 111700Z AUTO 18007KT 9999 // NCD 18/06 Q1016YMIA2019-12-11T17:00:00Z-34.23142.0818.06.018076.2130.0TRUEVFRMETAR51.02019-12-11 17:10:448(o5    3YLRE 111700Z AUTO 06002KT 9999 // NCD 26/07 Q1007YLRE2019-12-11T17:00:00Z-23.43144.2826.07.06026.2129.734253TRUEVFRMETAR193.02019-12-11 17:10:44 NDN.(e5   3OIIP 111700Z 27004KT CAVOK 03/00 Q1015 A2999OIIP2019-12-11T17:00:00Z35.7850.833.00.027046.2129.970472VFRSPECI1271.02019-12-11 17:10:443(i5    3LJLJ 111700Z VRB01KT CAVOK M04/M05 Q1013 NOSIGLJLJ2019-12-11T17:00:00Z46.2214.47-4.0-5.0016.2129.911417TRUEVFRMETAR385.02019-12-11 17:10:44Q)5     3UBBY 111700Z 10008KT 4000 BR NSC 02/00 Q1023 R33/////// NOSIG RMK MT OBSCUBBY2019-12-11T17:00:00Z41.5746.672.00.010082.4930.206694TRUEBRIFRMETAR390.02019-12-11 17:10:440(e5   3SBGR 111700Z 03004KT 8000 BKN020 25/20 Q1012SBGR2019-12-11T17:00:00Z-23.42-46.4725.020.03044.9729.88189MVFRMETAR750.02019-12-11 17:10:447(q5    3TNCC 111700Z 08010KT 9999 SCT020 30/23 Q1013 NOSIGTNCC2019-12-11T17:00:00Z12.2-68.9730.023.080106.2129.911417TRUEVFRMETAR9.02019-12-11 17:10:44 ATA:$(s5   3SLVR 111700Z 34012KT 9999 BKN017 BKN200 31/23 Q1009SLVR2019-12-11T17:00:00Z-17.63-63.1231.023.0340126.2129.793306MVFRMETAR373.02019-12-11 17:10:44K#)5    3SLCB 111700Z 14005KT 8000 VCSH SCT033 FEW036CB SCT200 27/09 Q1020SLCB2019-12-11T17:00:00Z-17.42-66.1827.09.014054.9730.11811VCSHMVFRMETAR2548.02019-12-11 17:10:44O")5    3SAWE 111700Z 36013KT 290V010 9000 VCSH FEW004 SCT007 BKN100 12/03 Q1000SAWE2019-12-11T17:00:00Z-53.78-67.7512.03.0360135.5929.52756VCSHVFRMETAR22.02019-12-11 17:10:44+!(]5   3LJMB 111700Z 21003KT CAVOK M01/M06 Q1014LJMB2019-12-11T17:00:00Z46.4715.67-1.0-6.021036.2129.940945VFRMETAR265.02019-12-11 17:10:44' ([5   3LJPZ 111700Z 12005KT CAVOK 02/M04 Q1011LJPZ2019-12-11T17:00:00Z45.4713.622.0-4.012056.2129.852362VFRMETAR2.02019-12-11 17:10:44 2Q()5    3LFBA 111700Z AUTO 22006KT 190V250 9999 FEW010 SCT062 BKN240 08/06 Q1017 TEMPO 25015G30KT 4000 SHRA BKN012 FEW025CB BKN030TCULFBA2019-12-11T17:00:00Z44.170.68.06.022066.2130.029528TRUEVFRMETAR60.02019-12-11 17:10:44F')5   3CYAB 111700Z VRB02KT 15SM FEW050 M23/M27 A2975 RMK SC2 SLP080CYAB2019-12-11T17:00:00Z73.0-85.05-23.0-27.00215.029.7490161008.0VFRMETAR22.02019-12-11 17:10:44\&)%5    3CWHN 111700Z AUTO 09003KT 050V110 9SM SCT059 SCT076 M23/M28 A3013 RMK SLP278CWHN2019-12-11T17:00:00Z54.88-109.97-23.0-28.09039.030.1299211027.8TRUEVFRMETAR636.02019-12-11 17:10:44I%)5   3SLLP 111700Z 09009KT 060V130 9999 SCT017 FEW020CB BKN200 17/06 Q1035SLLP2019-12-11T17:00:00Z-16.52-68.1717.06.09096.2130.561024VFRMETAR4014.02019-12-11 17:10:44 !5,)!5     3LFRM 111700Z AUTO 25011KT 190V310 4000 -RA BR FEW015/// BKN023/// BKN031/// ///CB 05/02 Q1008 TEMPO VRB20G35KT 2500 TSRAGS BKN008 BKN018CBLFRM2019-12-11T17:00:00Z47.950.25.02.0250112.4929.763779TRUE-RA BRIFRMETAR52.02019-12-11 17:10:44g+)S5    3LFRI 111700Z AUTO 26008KT 9999 FEW031 SCT130 OVC160 06/04 Q1011 TEMPO 30015G35KT 4000 SHRA SCT020CBLFRI2019-12-11T17:00:00Z46.7-1.376.04.026086.2129.852362TRUEVFRMETAR91.02019-12-11 17:10:44[*)15     3LFOV 111700Z AUTO 24010KT 9999 RA FEW019/// BKN034/// OVC044/// ///TCU 05/04 Q1008LFOV2019-12-11T17:00:00Z48.03-0.755.04.0240106.2129.763779TRUERAVFRMETAR101.02019-12-11 17:10:44z))q5     3LFMI 111700Z AUTO 28005KT 7000 -RA FEW047/// BKN056/// OVC070/// ///TCU 06/05 Q1014 TEMPO 4000 -RA BR BECMG SCT010LFMI2019-12-11T17:00:00Z43.524.926.05.028054.3529.940945TRUE-RAMVFRMETAR24.02019-12-11 17:10:44 bo=0(w5     3LFSG 111700Z AUTO 20008KT 9999 -DZ OVC012 03/03 Q1009LFSG2019-12-11T17:00:00Z48.336.073.03.020086.2129.793306TRUE-DZMVFRMETAR330.02019-12-11 17:10:44n/)_5    3LFRZ 111700Z AUTO 28017KT 9999 FEW034/// BKN068/// BKN086/// ///CB 07/04 Q1010 TEMPO 30015G35KT 4000 SHRALFRZ2019-12-11T17:00:00Z47.32-2.177.04.0280176.2129.822834TRUEVFRMETAR4.02019-12-11 17:10:448.(s5    3LFRV 111700Z AUTO 27006KT 240V300 CAVOK 04/02 Q1009LFRV2019-12-11T17:00:00Z47.72-2.724.02.027066.2129.793306TRUEVFRMETAR133.02019-12-11 17:10:44\-)35     3LFRO 111700Z AUTO 28015KT 9999 -DZ FEW027/// BKN048/// BKN058/// ///TCU 06/03 Q1007LFRO2019-12-11T17:00:00Z48.75-3.476.03.0280156.2129.734253TRUE-DZVFRMETAR89.02019-12-11 17:10:44 7f?5)5   3SULS 111700Z 04005KT 9999 FEW033 FEW040TCU SCT200 34/17 Q1004SULS2019-12-11T17:00:00Z-34.87-55.134.017.04056.2129.64567VFRMETAR30.02019-12-11 17:10:44I4)5    3LFYR 111700Z AUTO 20012KT 9999 FEW015/// SCT072/// ///CB 07/05 Q1009LFYR2019-12-11T17:00:00Z47.321.677.05.0200126.2129.793306TRUEVFRMETAR86.02019-12-11 17:10:4493(w5    3LFSX 111700Z AUTO 24009KT 9999 -RA ////// 04/03 Q1011LFSX2019-12-11T17:00:00Z47.776.334.03.024096.2129.852362TRUE-RAMETAR273.02019-12-11 17:10:44L2)5    3LFSO 111700Z AUTO 24009KT 9999 OVC010 04/03 Q1009 TEMPO 1000 DZ BKN002LFSO2019-12-11T17:00:00Z48.575.974.03.024096.2129.793306TRUEMVFRMETAR350.02019-12-11 17:10:44D1) 5    3LFSI 111700Z AUTO 21008KT 9999 SCT009 BKN013 BKN019 06/05 Q1009LFSI2019-12-11T17:00:00Z48.624.96.05.021086.2129.793306TRUEMVFRMETAR140.02019-12-11 17:10:44 NuJ9)5    3CYBU 111700Z AUTO 24004KT 9SM CLR M29/M32 A3028 RMK SLP307CYBU2019-12-11T17:00:00Z53.32-104.0-29.0-32.024049.030.2805121030.7TRUEVFRMETAR374.02019-12-11 17:10:44N8)5   3CYBQ 111700Z AUTO 31010G18KT 9SM CLR M31/M35 A3001 RMK SLP208CYBQ2019-12-11T17:00:00Z58.7-98.5-31.0-35.031010189.030.0088581020.8TRUEVFRMETAR262.02019-12-11 17:10:44T7)5    3CYBK 111700Z 29006KT 240V310 6SM IC SCT067 M26/M30 A2989 RMK AC4 SLP128CYBK2019-12-11T17:00:00Z64.28-96.07-26.0-30.029066.029.8907471012.8ICVFRMETAR18.02019-12-11 17:10:44-6(e5   3SUDU 111700Z VRB03KT 9999 SCT030 35/15 Q1005SUDU2019-12-11T17:00:00Z-33.35-56.535.015.0036.2129.675198VFRMETAR93.02019-12-11 17:10:44 0WuI=)5   3CYGX 111700Z 29009KT 15SM BKN210 M27/M30 A3001 RMK CI5 SLP184CYGX2019-12-11T17:00:00Z56.35-94.7-27.0-30.0290915.030.0088581018.4VFRMETAR145.02019-12-11 17:10:44]<)5     3CYET 111700Z AUTO 12002KT 3SM -SN BKN029 OVC055 M12/M13 A2984 RMK SLP171CYET2019-12-11T17:00:00Z53.57-116.47-12.0-13.012023.029.8405511017.1TRUE-SNMVFRMETAR925.02019-12-11 17:10:44T;)5    3CYEN 111700Z AUTO 07005KT 9SM BKN085 BKN180 M21/M25 A3018 RMK SLP289CYEN2019-12-11T17:00:00Z49.22-102.97-21.0-25.07059.030.1801191028.9TRUEVFRMETAR581.02019-12-11 17:10:44K:)5    3CYDN 111700Z AUTO 26012KT 9SM CLR M21/M28 A3028 RMK SLP293CYDN2019-12-11T17:00:00Z51.1-100.03-21.0-28.0260129.030.2805121029.3TRUEVFRMETAR305.02019-12-11 17:10:44 0`RA)5    3CYNE 111700Z AUTO 30008KT 260V320 9SM CLR M26/M30 A3017 RMK SLP252CYNE2019-12-11T17:00:00Z53.97-97.82-26.0-30.030089.030.1712591025.2TRUEVFRMETAR223.02019-12-11 17:10:44M@)5    3CYMM 111700Z AUTO 09008KT 9SM OVC130 M29/M32 A3023 RMK SLP292CYMM2019-12-11T17:00:00Z56.65-111.22-29.0-32.09089.030.2303141029.2TRUEVFRMETAR369.02019-12-11 17:10:44K?)5   3CYLL 111700Z 11009KT 15SM OVC050 M21/M24 A3007 RMK SC8 SLP255CYLL2019-12-11T17:00:00Z53.32-110.07-21.0-24.0110915.030.0708661025.5VFRMETAR669.02019-12-11 17:10:44K>)5    3CYKJ 111700Z AUTO 27005KT 9SM CLR M31/M34 A3017 RMK SLP296CYKJ2019-12-11T17:00:00Z57.25-105.62-31.0-34.027059.030.1712591029.6TRUEVFRMETAR509.02019-12-11 17:10:44 GyJE)5    3CYPY 111700Z AUTO 11004KT 9SM CLR M33/M37 A3033 RMK SLP315CYPY2019-12-11T17:00:00Z58.77-111.12-33.0-37.011049.030.330711031.5TRUEVFRMETAR232.02019-12-11 17:10:44ID)5   3CYPG 111700Z 24009KT 12SM BKN240 M21/M27 A3031 RMK CI6 SLP298CYPG2019-12-11T17:00:00Z49.88-98.27-21.0-27.0240912.030.310041029.8VFRMETAR269.02019-12-11 17:10:44SC)5   3CYPA 111700Z 00000KT 15SM FEW120 BKN200 M28/M31 A3028 RMK AC1CS6 SLP314CYPA2019-12-11T17:00:00Z53.22-105.67-28.0-31.00015.030.2805121031.4VFRMETAR428.02019-12-11 17:10:44\B)#5    3CYOJ 111700Z 14009KT 15SM -SN SCT050 BKN095 M20/M26 A3016 RMK SC4AC1 SLP256CYOJ2019-12-11T17:00:00Z58.62-117.17-20.0-26.0140915.030.1594491025.6-SNVFRMETAR338.02019-12-11 17:10:44 '?dVI)5    3CYQW 111700Z AUTO 11010KT 9SM FEW070 OVC098 M23/M27 A3017 RMK SLP282CYQW2019-12-11T17:00:00Z52.77-108.25-23.0-27.0110109.030.1712591028.2TRUEVFRMETAR548.02019-12-11 17:10:44VH)5   3CYQR 111700Z 11011KT 15SM BKN090 OVC240 M20/M26 A3016 RMK AC7CI1 SLP279CYQR2019-12-11T17:00:00Z50.43-104.67-20.0-26.01101115.030.1594491027.9VFRMETAR577.02019-12-11 17:10:44cG)55    3CYQF 111700Z 12004KT 8SM -SN SCT035 BKN170 OVC250 M12/M14 A2988 RMK SC4AC2CI2 SLP182CYQF2019-12-11T17:00:00Z52.17-113.9-12.0-14.012048.029.8789371018.2-SNVFRMETAR905.02019-12-11 17:10:44TF)5   3CYQL 111700Z 36004KT 10SM FEW007 OVC065 M10/M11 A2984 RMK SF1SC8 SLP164CYQL2019-12-11T17:00:00Z49.63-112.8-10.0-11.0360410.029.8405511016.4VFRMETAR929.02019-12-11 17:10:44 9iUM)5    3CZVL 111700Z AUTO 15008KT 9SM SCT029 OVC040 M13/M15 A2995 RMK SLP197CZVL2019-12-11T17:00:00Z53.67-113.85-13.0-15.015089.029.9498021019.7TRUEVFRMETAR686.02019-12-11 17:10:44_L)5     3CYYN 111700Z AUTO 11014KT 1 1/4SM -SN OVC018 M16/M18 A2992 RMK ICG SLP204CYYN2019-12-11T17:00:00Z50.27-107.67-16.0-18.0110141.2529.9202751020.4TRUE-SNIFRMETAR818.02019-12-11 17:10:44KK)5    3CYYL 111700Z AUTO 29006KT 9SM CLR M29/M32 A3011 RMK SLP252CYYL2019-12-11T17:00:00Z56.87-101.07-29.0-32.029069.030.1092531025.2TRUEVFRMETAR357.02019-12-11 17:10:44BJ(y5   3CYVC 111700Z 27005KT 15SM SKC M31/M34 A3029 RMK SLP313CYVC2019-12-11T17:00:00Z55.15-105.27-31.0-34.0270515.030.289371031.3VFRMETAR379.02019-12-11 17:10:44 qE_qiQ)15   3CYBV 111700Z 30010G17KT 15SM IC DRSN FEW007 FEW220 M23/M26 A3023 RMK ST1CS1 SLP269CYBV2019-12-11T17:00:00Z52.35-97.03-23.0-26.0300101715.030.2303141026.9IC DRSNVFRMETAR222.02019-12-11 17:10:44aP)/5    3CYBL 111700Z 14006KT 1 1/2SM -DZ BR OVC004 05/05 A2994 RMK ST8 CIG VRB 3-6 SLP145CYBL2019-12-11T17:00:00Z49.95-125.275.05.014061.529.9409451014.5-DZ BRLIFRMETAR106.02019-12-11 17:10:44OO)5   3CYAZ 111700Z 10007KT 15SM BKN023 OVC037 08/07 A2989 RMK SC6SC2 SLP125CYAZ2019-12-11T17:00:00Z49.08-125.778.07.0100715.029.8907471012.5MVFRMETAR24.02019-12-11 17:10:44bN)15    3CYYB 111700Z 25015KT 220V290 3SM -SN FEW008 BKN013 M09/M12 A2991 RMK SF2SC4 SLP159CYYB2019-12-11T17:00:00Z46.35-79.42-9.0-12.0250153.029.9114171015.9-SNMVFRMETAR371.02019-12-11 17:10:44 NYU)5     3CYDQ 111700Z AUTO 03005KT 1SM -SN OVC004 M11/M12 A2992 RMK ICG SLP181CYDQ2019-12-11T17:00:00Z55.75-120.17-11.0-12.03051.029.9202751018.1TRUE-SNLIFRMETAR655.02019-12-11 17:10:44ET)5   3CYDC 111700Z 00000KT 9SM OVC008 M04/M05 A3005 RMK ST8 SLP209CYDC2019-12-11T17:00:00Z49.47-120.52-4.0-5.0009.030.0501981020.9IFRMETAR700.02019-12-11 17:10:44IS)5   3CYDB 111700Z 00000KT 25SM FEW140 M21/M24 A2959 RMK AC1 SLP100CYDB2019-12-11T17:00:00Z61.37-139.05-21.0-24.00025.029.5895671010.0VFRMETAR801.02019-12-11 17:10:44_R)35   3CYCQ 111700Z 07005KT 10SM FEW016 OVC020 M08/M10 A2991 RMK SC1SC7 DIST PCPN W SLP172CYCQ2019-12-11T17:00:00Z55.7-121.62-8.0-10.070510.029.9114171017.2MVFRMETAR609.02019-12-11 17:10:44 ;guY)O5    3CYKY 111700Z 07019KT 2 1/2SM -SN BLSN SCT040 OVC090 M19/M22 A2998 RMK SC4AS4 SUN DIMLY VIS SLP222CYKY2019-12-11T17:00:00Z51.52-109.17-19.0-22.070192.529.979331022.2-SN BLSNIFRMETAR694.02019-12-11 17:10:44cX)/5    3CYIV 111700Z 27015KT 15SM DRSN FEW020 M26/M32 A3008 RMK SC1 SC TR WND ESTD SLP222CYIV2019-12-11T17:00:00Z53.85-94.65-26.0-32.02701515.030.0797251022.2DRSNVFRMETAR237.02019-12-11 17:10:44OW)5   3CYFO 111700Z VRB02KT 15SM FEW250 M27/M31 A3024 RMK CI1 CI TR SLP285CYFO2019-12-11T17:00:00Z54.67-101.67-27.0-31.00215.030.2391741028.5VFRMETAR304.02019-12-11 17:10:44@V(y5   3CYEV 111700Z 08006KT 15SM SKC M24/M28 A3024 RMK SLP252CYEV2019-12-11T17:00:00Z68.32-133.5-24.0-28.080615.030.2391741025.2VFRMETAR68.02019-12-11 17:10:44 Hy=](}5   3CYUA 111700Z AUTO 10026G34KT ////SM BKN003 M21/M25 A3002CYUA2019-12-11T17:00:00Z68.95-137.28-21.0-25.0100263430.02067TRUEMETAR38.02019-12-11 17:10:44J\)5    3CYRV 111700Z AUTO 00000KT 9SM OVC048 M04/M05 A3009 RMK SLP215CYRV2019-12-11T17:00:00Z50.97-118.17-4.0-5.0009.030.0885831021.5TRUEVFRMETAR443.02019-12-11 17:10:44K[)5    3CYQD 111700Z AUTO 27009KT 9SM CLR M26/M30 A3026 RMK SLP287CYQD2019-12-11T17:00:00Z53.97-101.08-26.0-30.027099.030.2598421028.7TRUEVFRMETAR271.02019-12-11 17:10:44cZ)-5    3CYPR 111700Z AUTO 12008KT 9SM FEW046 SCT065 BKN080 OVC092 07/03 A2968 RMK SLP054CYPR2019-12-11T17:00:00Z54.28-130.427.03.012089.029.6811031005.4TRUEOVC9200VFRMETAR34.02019-12-11 17:10:44 1\Pa)5   3CYXQ 111700Z 00000KT 30SM BKN140 M17/M19 A2963 RMK AC7 47020/ SLP100CYXQ2019-12-11T17:00:00Z62.42-140.87-17.0-19.00030.029.6309051010.0VFRMETAR649.02019-12-11 17:10:44S`)5   3CYXE 111700Z 05007KT 15SM BKN110 BKN210 M22/M25 A3018 RMK AC6CI1 SLP284CYXE2019-12-11T17:00:00Z52.17-106.7-22.0-25.050715.030.1801191028.4VFRMETAR504.02019-12-11 17:10:44P_)5   3CYXC 111700Z 01005KT 290V020 20SM OVC012 M04/M06 A2997 RMK SC8 SLP193CYXC2019-12-11T17:00:00Z49.6-115.77-4.0-6.010520.029.9704721019.3MVFRMETAR939.02019-12-11 17:10:44J^)5    3CYVL 111700Z AUTO 07006KT 9SM CLR M30/M33 A3022 RMK SLP281CYVL2019-12-11T17:00:00Z67.02-126.13-30.0-33.07069.030.2214571028.1TRUEVFRMETAR259.02019-12-11 17:10:44 z1{ze)5    3LFBL 111700Z AUTO 21010KT 9999 FEW015/// BKN030/// BKN036/// ///TCU 05/04 Q1012 TEMPO 27018G30KT 2000 -TSRA BKN006 SCT030CBLFBL2019-12-11T17:00:00Z45.871.175.04.0210106.2129.88189TRUEMVFRMETAR402.02019-12-11 17:10:44vd)g5     3LFBI 111700Z AUTO 21016KT 9999 -RA FEW013/// BKN035/// OVC044/// ///CB 07/06 Q1010 TEMPO 27015G25KT 4000 SHRALFBI2019-12-11T17:00:00Z46.570.327.06.0210166.2129.822834TRUE-RAVFRMETAR120.02019-12-11 17:10:441c(q5   3SUCA 111700Z 28005K 9999 FEW026 BKN200 33/19 Q1004SUCA2019-12-11T17:00:00Z-34.45-57.7733.019.06.2129.64567VFRMETAR23.02019-12-11 17:10:44Jb)5    3CYXS 111700Z AUTO 01004KT 9SM OVC007 M06/M06 A2988 RMK SLP164CYXS2019-12-11T17:00:00Z53.9-122.68-6.0-6.01049.029.8789371016.4TRUEIFRMETAR691.02019-12-11 17:10:44  h)5    3LFBT 111700Z AUTO 24013KT 220V280 9999 SCT030 BKN036 BKN042 07/04 Q1020 TEMPO 25020G35KT 3000 SHRA BKN014 FEW018CB BKN020TCULFBT2019-12-11T17:00:00Z43.170.07.04.0240136.2130.11811TRUEVFRMETAR363.02019-12-11 17:10:44 g)5    3LFBP 111700Z AUTO 22006KT 9999 SCT028/// BKN038/// BKN100/// ///TCU 07/06 Q1020 TEMPO 27020G35KT 3000 SHRA BKN014 FEW018CB BKN020TCULFBP2019-12-11T17:00:00Z43.37-0.427.06.022066.2130.11811TRUEVFRMETAR185.02019-12-11 17:10:44af)E5    3LFBO 111700Z AUTO 23007KT 9999 FEW035 07/05 Q1018 TEMPO 27018G30KT 3000 SHRA BKN012 SCT018CBLFBO2019-12-11T17:00:00Z43.621.377.05.023076.2130.059055TRUEVFRMETAR153.02019-12-11 17:10:44  k)5   3CYBD 111700Z VRB03KT 15SM BCFG FEW003 FEW025 BKN100 OVC230 M01/M01 A2988 RMK SF1SC1AC5CC3 SF TR SC TR MIFG ON RWY FG OVR RIVER SLP121CYBD2019-12-11T17:00:00Z52.37-126.57-1.0-1.00315.029.8789371012.1BCFGOVC23000VFRMETAR35.02019-12-11 17:10:44^j)15  3CYZT 111700Z 11026G32KT 20SM FEW010 BKN050 OVC140 07/05 A2979 RMK SF1SC4AC3 SLP091CYZT2019-12-11T17:00:00Z50.67-127.377.05.0110263220.029.7903541009.1VFRMETAR22.02019-12-11 17:10:44i)5     3LFBZ 111700Z AUTO 23007KT 180V270 9999 -RA SCT034/// BKN040/// BKN054/// ///TCU 10/07 Q1020 TEMPO 27025G45KT 3000 TSRA BKN014 BKN020CBLFBZ2019-12-11T17:00:00Z43.47-1.5210.07.023076.2130.11811TRUE-RAVFRMETAR71.02019-12-11 17:10:44 /aUo)5    3CYDL 111700Z AUTO 06003KT 010V080 9SM BKN130 M10/M11 A2974 RMK SLP114CYDL2019-12-11T17:00:00Z58.42-130.02-10.0-11.06039.029.7401581011.4TRUEVFRMETAR816.02019-12-11 17:10:44In)5   3CYDA 111700Z 00000KT 15SM OVC036 M13/M15 A2975 RMK SC8 SLP111CYDA2019-12-11T17:00:00Z64.03-139.12-13.0-15.00015.029.7490161011.1VFRMETAR369.02019-12-11 17:10:44`m)35    3CYCG 111700Z 17006KT 6SM BR FEW008 SCT011 OVC025 M00/M01 A3008 RMK SF1SC2SC5 SLP208CYCG2019-12-11T17:00:00Z49.28-117.620.0-1.017066.030.0797251020.8BRMVFRMETAR495.02019-12-11 17:10:44gl)G5    3CYCD 111700Z 12007KT 2 1/2SM BR SCT003 BKN006 OVC022 07/06 A2999 RMK SF3SF2SC3 CIG RAG SLP157CYCD2019-12-11T17:00:00Z49.05-123.877.06.012072.529.9911421015.7BRIFRMETAR30.02019-12-11 17:10:44 "UVs)!5    3CYMA 111700Z 00000KT 3SM -SN SCT020 OVC030 M07/M09 A2971 RMK SC3SC5 SLP102CYMA2019-12-11T17:00:00Z63.62-135.87-7.0-9.0003.029.710631010.2-SNMVFRMETAR504.02019-12-11 17:10:44Kr)5    3CYLW 111700Z AUTO 17004KT 9SM OVC018 01/M01 A3007 RMK SLP202CYLW2019-12-11T17:00:00Z49.95-119.371.0-1.017049.030.0708661020.2TRUEMVFRMETAR430.02019-12-11 17:10:44Hq)5   3CYKA 111700Z 09002KT 10SM OVC016 M02/M04 A3007 RMK SC8 SLP206CYKA2019-12-11T17:00:00Z50.7-120.45-2.0-4.090210.030.0708661020.6MVFRMETAR346.02019-12-11 17:10:44Yp)/5   3CYGE 111700Z 00000KT 20SM FEW070 SCT100 SCT140 M07/M08 A3002 RMK AC2AC1AC1 SLP214CYGE2019-12-11T17:00:00Z51.3-116.98-7.0-8.00020.030.020671021.4VFRMETAR785.02019-12-11 17:10:44 w5-QwUw)5    3CYQU 111700Z 08005KT 5SM -SN BR OVC009 M11/M12 A2991 RMK SC8 SLP178CYQU2019-12-11T17:00:00Z55.18-118.88-11.0-12.08055.029.9114171017.8-SN BRIFRMETAR669.02019-12-11 17:10:44Wv)5    3CYQH 111700Z 14006KT 1 3/4SM -SN OVC028 M11/M13 A2985 RMK SN2SC6 SLP165CYQH2019-12-11T17:00:00Z60.12-128.82-11.0-13.014061.7529.849411016.5-SNIFRMETAR690.02019-12-11 17:10:44u)k5  3CYPW 111700Z 10009G16KT 15SM BKN010 BKN025 BKN052 BKN110 06/05 A2996 RMK SF5SC2SC1AC1 SC TR AC TR PRESFR SLP149CYPW2019-12-11T17:00:00Z49.82-124.56.05.010091615.029.9586621014.9BKN11000MVFRMETAR130.02019-12-11 17:10:44Ft) 5   3CYOC 111700Z 09004KT 050V120 35SM SKC M28/M31 A3000 RMK SLP197CYOC2019-12-11T17:00:00Z67.57-139.82-28.0-31.090435.030.01019.7VFRMETAR251.02019-12-11 17:10:44 v#5UvZ{)+5   3CYXY 111700Z 05003KT 010V180 15SM BKN006 BKN020 M05/M06 A2964 RMK ST6SC1 SLP082CYXY2019-12-11T17:00:00Z60.72-135.07-5.0-6.050315.029.6397631008.2IFRMETAR703.02019-12-11 17:10:44[z)/5   3CYXT 111700Z VRB02KT 20SM FEW010 BKN052 OVC063 M03/M05 A2983 RMK SF2SC5SC1 SLP115CYXT2019-12-11T17:00:00Z54.47-128.57-3.0-5.00220.029.8287411011.5VFRMETAR217.02019-12-11 17:10:44iy)15    3CYXJ 111700Z 07002KT 3/4SM R30/P6000FT/U -SN BR VV002 M11/M12 A2991 RMK FG8 SLP182CYXJ2019-12-11T17:00:00Z56.25-120.73-11.0-12.07020.7529.9114171018.2-SN BRLIFR200METAR695.02019-12-11 17:10:44Xx)5    3CYWL 111700Z 14003KT 1/4SM FZFG BKN002 M08/M10 A2990 RMK FG6ST1 SLP177CYWL2019-12-11T17:00:00Z52.18-122.07-8.0-10.014030.2529.8996071017.7FZFGLIFRMETAR940.02019-12-11 17:10:44 1QoK)5   3CYZW 111700Z 04005KT 20SM BKN015 M10/M11 A2972 RMK SC7 SLP115CYZW2019-12-11T17:00:00Z60.17-132.75-10.0-11.040520.029.7194881011.5MVFRMETAR705.02019-12-11 17:10:44]~)-5   3CYYF 111700Z 17011KT 12SM FEW015 BKN025 OVC055 01/M01 A3010 RMK SC2SC4SC2 SLP209CYYF2019-12-11T17:00:00Z49.47-119.581.0-1.01701112.030.1003931020.9MVFRMETAR344.02019-12-11 17:10:44[})!5    3CYYE 111700Z 36003KT 4SM -SN BKN018 OVC036 M18/M20 A3010 RMK SC6SC2 SLP233CYYE2019-12-11T17:00:00Z58.82-122.57-18.0-20.036034.030.1003931023.3-SNMVFRMETAR382.02019-12-11 17:10:44J|)5   3CYYD 111700Z 14003KT 25SM BKN065 M09/M11 A2987 RMK SC7 SLP146CYYD2019-12-11T17:00:00Z54.82-127.18-9.0-11.0140325.029.8700791014.6VFRMETAR523.02019-12-11 17:10:44 v!6^vc))5    3CYCB 111700Z 32012KT 8SM IC DRSN BKN015 BKN050 M25/M29 A3010 RMK SC5SC2 SLP198CYCB2019-12-11T17:00:00Z69.08-105.12-25.0-29.0320128.030.1003931019.8IC DRSNMVFRMETAR27.02019-12-11 17:10:44S)5    3CYBB 111700Z 23017KT 10SM DRSN FEW060 M30/M33 A2975 RMK SC2 SLP079CYBB2019-12-11T17:00:00Z68.52-89.82-30.0-33.02301710.029.7490161007.9DRSNVFRMETAR15.02019-12-11 17:10:44f);5   3CZMT 111700Z 14020G33KT 12SM -DZ FEW008 OVC012 08/07 A2955 RMK SF1ST7 VIS S 2 BR SLP009CZMT2019-12-11T17:00:00Z54.03-132.138.07.0140203312.029.5511821000.9-DZMVFRMETAR8.02019-12-11 17:10:44Z)#5    3CZFA 111700Z 10007KT 20SM -SN BKN065 BKN088 M09/M10 A2970 RMK SC6AC1 SLP119CZFA2019-12-11T17:00:00Z62.2-133.37-9.0-10.0100720.029.6988181011.9-SNVFRMETAR717.02019-12-11 17:10:44 )[A(y5   3CYGH 111700Z 06006KT 25SM SKC M25/M29 A3021 RMK SLP245CYGH2019-12-11T17:00:00Z66.27-128.62-25.0-29.060625.030.2096461024.5VFRMETAR66.02019-12-11 17:10:44I)5   3CYFS 111700Z 00000KT 15SM FEW100 M32/M35 A3032 RMK AC1 SLP296CYFS2019-12-11T17:00:00Z61.75-121.22-32.0-35.00015.030.3188971029.6VFRMETAR169.02019-12-11 17:10:44c)+5    3CYCS 111700Z 30017KT 9SM -SN DRSN SCT020 BKN037 M27/M31 A2976 RMK SC3SC4 SLP081CYCS2019-12-11T17:00:00Z63.35-90.72-27.0-31.0300179.029.7608261008.1-SN DRSNVFRMETAR11.02019-12-11 17:10:44j)A5    3CYCO 111700Z 24015KT 15SM IC FEW030 FEW080 SCT180 M28/M32 A3036 RMK SC1AC1AC3 SC TR SLP287CYCO2019-12-11T17:00:00Z67.82-115.15-28.0-32.02401515.030.3602371028.7ICVFRMETAR22.02019-12-11 17:10:44 ,XlY )+5   3CYLC 111700Z 05003KT 350V090 15SM SCT054 BKN065 M13/M16 A2934 RMK SC4SC3 SLP944CYLC2019-12-11T17:00:00Z62.85-69.87-13.0-16.050315.029.338583994.4VFRMETAR53.02019-12-11 17:10:44g ))5    3CYJF 111700Z 06008KT 2SM -SN DRSN BKN033 VV043 M22/M26 A3023 RMK SC6SN8 SLP264CYJF2019-12-11T17:00:00Z60.22-123.47-22.0-26.06082.030.2303141026.4-SN DRSNLIFR4300METAR215.02019-12-11 17:10:44O )5   3CYHY 111700Z 08004KT 15SM FEW050 M31/M34 A3031 RMK SC1 SC TR SLP293CYHY2019-12-11T17:00:00Z60.82-115.77-31.0-34.080415.030.310041029.3VFRMETAR166.02019-12-11 17:10:44O)5   3CYGT 111700Z 33008KT 15SM FEW092 M28/M30 A2960 RMK AC1 AC TR SLP034CYGT2019-12-11T17:00:00Z69.37-81.82-28.0-30.0330815.029.6013771003.4VFRMETAR51.02019-12-11 17:10:44 (ZtI)5   3CYSY 111700Z 09014KT 15SM FEW120 M20/M24 A3043 RMK AC1 SLP319CYSY2019-12-11T17:00:00Z72.0-125.27-20.0-24.0901415.030.4311031031.9VFRMETAR86.02019-12-11 17:10:44a))5    3CYRT 111700Z 35017KT 2SM IC BLSN SCT110 BKN250 M30/M33 A2977 RMK AC3CI2 SLP088CYRT2019-12-11T17:00:00Z62.82-92.12-30.0-33.0350172.029.7696861008.8IC BLSNIFRMETAR32.02019-12-11 17:10:44I )5   3CYRA 111700Z VRB02KT 15SM FEW160 M42/M46 A3037 RMK AC1 SLP335CYRA2019-12-11T17:00:00Z64.12-117.32-42.0-46.00215.030.3690951033.5VFRMETAR213.02019-12-11 17:10:44S )5   3CYLK 111700Z 00000KT 25SM FEW180 SCT220 M31/M35 A3032 RMK AC1CI2 SLP303CYLK2019-12-11T17:00:00Z62.42-110.67-31.0-35.00025.030.3188971030.3VFRMETAR179.02019-12-11 17:10:44 -UoU)5    3CYWE 111700Z AUTO 27003KT 9SM CLR M40/M44 A3026 RMK ICG INTMT SLP325CYWE2019-12-11T17:00:00Z64.18-114.08-40.0-44.027039.030.2598421032.5TRUEVFRMETAR371.02019-12-11 17:10:44a)55    3CYVM 111700Z 33012KT 15SM IC FEW024 SCT028 OVC035 M15/M19 A2952 RMK SC1SC3SC4 SLP998CYVM2019-12-11T17:00:00Z67.53-64.02-15.0-19.03301215.029.518702999.8ICVFRMETAR6.02019-12-11 17:10:44S)5    3CYUT 111700Z 35018KT 10SM DRSN SCT080 M27/M31 A2968 RMK AC4 SLP057CYUT2019-12-11T17:00:00Z66.52-86.25-27.0-31.03501810.029.6811031005.7DRSNVFRMETAR24.02019-12-11 17:10:44N) 5    3CYTE 111700Z 27003KT 6SM -SN OVC028 M14/M16 A2947 RMK SC8 SLP987CYTE2019-12-11T17:00:00Z64.22-76.52-14.0-16.027036.029.471457998.7-SNMVFRMETAR47.02019-12-11 17:10:44 p0Repp)Q5    3CYND 111700Z 08007KT 5SM -SHSN BKN025 BKN080 M07/M09 A3009 RMK SC5AC1 CVCTV CLD EMBD PRESFR SLP196CYND2019-12-11T17:00:00Z45.52-75.57-7.0-9.08075.030.0885831019.6-SHSNMVFRMETAR64.02019-12-11 17:10:44h)A5    3CYZS 111700Z 34011KT 15SM IC SCT040 SCT090 BKN210 M22/M24 A2961 RMK SC4AC1CI2 AC TR SLP037CYZS2019-12-11T17:00:00Z64.2-83.37-22.0-24.03401115.029.6102371003.7ICVFRMETAR64.02019-12-11 17:10:44Y)+5   3CYXP 111700Z 08007KT 040V120 15SM SCT087 BKN250 M12/M19 A2937 RMK AC4CI1 SLP949CYXP2019-12-11T17:00:00Z66.15-65.72-12.0-19.080715.029.371063994.9VFRMETAR23.02019-12-11 17:10:44K)5   3CYWJ 111700Z 11007KT 15SM FEW070 M28/M31 A3026 RMK AC1 SLP283CYWJ2019-12-11T17:00:00Z65.22-123.43-28.0-31.0110715.030.2598421028.3VFRMETAR176.02019-12-11 17:10:44 u-Qhun)?5    3CYIK 111700Z 29015KT 5SM -SN DRSN FEW013 BKN026 OVC033 M13/M16 A2957 RMK ST2SC4SC2 SLP019CYIK2019-12-11T17:00:00Z62.42-77.93-13.0-16.0290155.029.5688971001.9-SN DRSNMVFRMETAR42.02019-12-11 17:10:44d)'5   3CYHA 111700Z 29017G26KT 15SM -SN DRSN BKN013TCU M10/M12 A2935 RMK TCU5 SLP944CYHA2019-12-11T17:00:00Z61.03-69.62-10.0-12.0290172615.029.350393994.4-SN DRSNMVFRMETAR30.02019-12-11 17:10:44W)5   3CYGV 111700Z AUTO 26011G17KT 9SM FEW220 BKN240 M09/M17 A3002 RMK SLP170CYGV2019-12-11T17:00:00Z50.27-63.62-9.0-17.026011179.030.020671017.0TRUEVFRMETAR33.02019-12-11 17:10:44N) 5  3CYBX 111700Z 27018G27KT 15SM SCT210 M09/M18 A2981 RMK CI4 SLP098CYBX2019-12-11T17:00:00Z51.45-57.17-9.0-18.0270182715.029.8110241009.8VFRMETAR35.02019-12-11 17:10:44 u<OuU)5   3CYMH 111700Z AUTO 25023G34KT 9SM CLR M09/M19 A2962 RMK PRESRR SLP033CYMH2019-12-11T17:00:00Z52.28-55.85-9.0-19.025023349.029.6190951003.3TRUEVFRMETAR11.02019-12-11 17:10:44h)75   3CYLA 111700Z 27022G32KT 15SM DRSN FEW120 BKN250 M17/M22 A2953 RMK AS1CI6 AS TR SLP007CYLA2019-12-11T17:00:00Z59.28-69.58-17.0-22.0270223215.029.5305121000.7DRSNVFRMETAR35.02019-12-11 17:10:44[)+5   3CYKQ 111700Z 21003KT 150V280 15SM SCT037 BKN200 M23/M26 A3001 RMK NS3CI3 SLP166CYKQ2019-12-11T17:00:00Z51.47-78.75-23.0-26.0210315.030.0088581016.6VFRMETAR23.02019-12-11 17:10:44_)5   3CYKG 111700Z 28019G29KT 5SM -SN DRSN OVC033 M13/M16 A2934 RMK SC8 SLP953CYKG2019-12-11T17:00:00Z61.57-71.92-13.0-16.028019295.029.338583995.3-SN DRSNMVFRMETAR151.02019-12-11 17:10:44 I 6Ih#)Q5   3CYPH 111700Z AUTO 01009KT FEW030 BKN036 OVC044 M16/M19 A2967 RMK WX MISG VIS MISG PCPN MISG SLP051CYPH2019-12-11T17:00:00Z58.45-78.08-16.0-19.010929.669291005.1TRUEMETAR3.02019-12-11 17:10:44S")5   3CYOY 111700Z 19003KT 15SM SCT055 M10/M16 A3016 RMK SC4 DA-2722FT SLP229CYOY2019-12-11T17:00:00Z46.88-71.5-10.0-16.0190315.030.1594491022.9VFRMETAR168.02019-12-11 17:10:44 !)k5  ! 3CYMU 111700Z 26019KT 8SM -SHSN DRSN FEW013 SCT021 BKN030 BKN045 OVC080 M12/M17 A2972 RMK ST1SC2SC4SC1AS1 SLP074CYMU2019-12-11T17:00:00Z56.52-76.52-12.0-17.0260198.029.7194881007.4-SHSN DRSNBKN4500MVFRMETAR71.02019-12-11 17:10:44[ )#5    3CYMT 111700Z AUTO 16007KT 9SM FEW070 BKN110 BKN130 M17/M20 A2991 RMK SLP173CYMT2019-12-11T17:00:00Z49.77-74.52-17.0-20.016079.029.9114171017.3TRUEVFRMETAR387.02019-12-11 17:10:44 c(E^cv')K5   3CYUY 111700Z 23010KT 12SM -SN FEW045 BKN070 BKN110 OVC210 M12/M15 A2985 RMK SC2AC3AC2CI1 SLP142CYUY2019-12-11T17:00:00Z48.2-78.82-12.0-15.02301012.029.849411014.2-SNOVC21000VFRMETAR301.02019-12-11 17:10:44b&)!5   3CYSK 111700Z 23021G27KT 3/8SM -SN BLSN BKN008 M15/M18 A2972 RMK SF5 SLP071CYSK2019-12-11T17:00:00Z56.53-79.25-15.0-18.023021270.3829.7194881007.1-SN BLSNLIFRMETAR26.02019-12-11 17:10:44^%)/5    3CYQI 111700Z 35007KT 1 1/4SM -SN BKN009 OVC037 M01/M02 A3014 RMK SN2SF4SC2 SLP208CYQI2019-12-11T17:00:00Z43.83-66.08-1.0-2.035071.2530.1387791020.8-SNIFRMETAR43.02019-12-11 17:10:44S$)5    3CYPX 111700Z AUTO 11005KT 9SM BKN038 OVC046 M24/M26 A2965 RMK SLP047CYPX2019-12-11T17:00:00Z60.03-77.27-24.0-26.011059.029.6486231004.7TRUEVFRMETAR23.02019-12-11 17:10:44 #,!#`+)75   3CYGP 111700Z 26009KT 250V360 15SM BKN043 BKN300 M07/M17 A3008 RMK SC7CI1 CI TR SLP189CYGP2019-12-11T17:00:00Z48.77-64.47-7.0-17.0260915.030.0797251018.9VFRMETAR33.02019-12-11 17:10:44*)q5 ! 3CYAM 111700Z 27017G26KT 6SM -SHSN BLSN FEW007 SCT016TCU BKN028 BKN280 M11/M15 A3008 RMK SF1TCU4SC1CI1 SF TR SLP203CYAM2019-12-11T17:00:00Z46.47-84.52-11.0-15.027017266.030.0797251020.3-SHSN BLSNBKN28000MVFRMETAR192.02019-12-11 17:10:44))i5   3CYZG 111700Z 24010KT 3SM -SN FEW013 SCT032 BKN043 BKN070 BKN140 M18/M22 A2947 RMK ST1SC3SC1AS2AS1 AS TR SLP012CYZG2019-12-11T17:00:00Z62.17-75.67-18.0-22.0240103.029.4714571001.2-SNBKN7000MVFRMETAR226.02019-12-11 17:10:44O() 5  3CYWK 111700Z 26009G17KT 12SM SCT027 M22/M28 A2981 RMK CF4 SLP157CYWK2019-12-11T17:00:00Z52.92-66.87-22.0-28.026091712.029.8110241015.7VFRMETAR551.02019-12-11 17:10:44 $Uyf/)95    3CYKO 111700Z 15007KT 4SM -SHSN SCT048 BKN240 M23/M26 A2964 WS RWY240 RMK SC4CI2 SLP043CYKO2019-12-11T17:00:00Z60.82-78.15-23.0-26.015074.029.6397631004.3-SHSNMVFRMETAR9.02019-12-11 17:10:44W.)5    3CYHU 111700Z AUTO 16009KT 130V200 9SM CLR M05/M13 A3017 RMK PRESFR SLP220CYHU2019-12-11T17:00:00Z45.52-73.42-5.0-13.016099.030.1712591022.0TRUEVFRMETAR27.02019-12-11 17:10:44J-)5    3CYHD 111700Z AUTO 26014KT 9SM CLR M24/M28 A3015 RMK SLP266CYHD2019-12-11T17:00:00Z49.82-92.75-24.0-28.0260149.030.150591026.6TRUEVFRMETAR413.02019-12-11 17:10:44W,)!5  3CYGR 111700Z 33016G22KT 15SM BKN031 OVC090 M04/M09 A3007 RMK SC6AC2 SLP186CYGR2019-12-11T17:00:00Z47.42-61.77-4.0-9.0330162215.030.0708661018.6VFRMETAR10.02019-12-11 17:10:44 3b<3(5    3LFKB 111700Z AUTO 19005KT CAVOK 06/03 Q1011 BECMG 32010KTLFKB2019-12-11T17:00:00Z42.539.476.03.019056.2129.852362TRUEVFRMETAR12.02019-12-11 17:10:44R2) 5   3CYPQ 111700Z AUTO 25015G24KT 9SM BKN049 M03/M11 A3008 RMK SLP199CYPQ2019-12-11T17:00:00Z44.22-78.37-3.0-11.025015249.030.0797251019.9TRUEVFRMETAR191.02019-12-11 17:10:44L1) 5   3CYNA 111700Z AUTO 29011G18KT 9SM BKN230 M09/M19 A3000 RMK SLP162CYNA2019-12-11T17:00:00Z50.17-61.82-9.0-19.029011189.030.01016.2TRUEVFRMETAR11.02019-12-11 17:10:44H0)5    3CYMO 111700Z AUTO 21008KT 9SM CLR M25/M28 A3002 RMK SLP168CYMO2019-12-11T17:00:00Z51.28-80.62-25.0-28.021089.030.020671016.8TRUEVFRMETAR10.02019-12-11 17:10:44 _(8_T7)5    3CYQT 111700Z 27014KT 20SM DRSN FEW020 M21/M27 A3020 RMK SC1 SLP250CYQT2019-12-11T17:00:00Z48.37-89.32-21.0-27.02701420.030.2007871025.0DRSNVFRMETAR199.02019-12-11 17:10:44k6)W5    3LFOA 111700Z AUTO 18007KT 9999 BKN022 BKN031 BKN044 06/04 Q1011 TEMPO 18020G30KT 2000 TSRAGR OVC015CBLFOA2019-12-11T17:00:00Z47.032.636.04.018076.2129.852362TRUEMVFRSPECI179.02019-12-11 17:10:44h5)M5     3LFML 111700Z AUTO 29012KT 9999 -RA SCT046/// BKN062/// OVC080/// ///TCU 08/06 Q1015 BECMG SCT010LFML2019-12-11T17:00:00Z43.455.228.06.0290126.2129.970472TRUE-RAVFRMETAR36.02019-12-11 17:10:44f4)=5   !  3LFLB 111700Z AUTO 00000KT 5000 -SNRA BR FEW009 BKN013 OVC024 04/03 Q1015 TEMPO RA BKN020LFLB2019-12-11T17:00:00Z45.635.874.03.0003.1129.970472TRUE-SN -RA BRMVFRMETAR239.02019-12-11 17:10:44 x!6WxZ;)5    3CYTL 111700Z AUTO 29011G16KT 9SM -SN BKN050 M26/M29 A2991 RMK SLP164CYTL2019-12-11T17:00:00Z53.82-89.88-26.0-29.029011169.029.9114171016.4TRUE-SNVFRMETAR224.02019-12-11 17:10:44Z:)'5   3CYRL 111700Z 28007KT 15SM FEW012 FEW240 M24/M28 A3012 RMK SF1CI1 SF TR SLP253CYRL2019-12-11T17:00:00Z51.07-93.78-24.0-28.0280715.030.1210631025.3VFRMETAR383.02019-12-11 17:10:44f9)Q5    3LFPV 111700Z AUTO 20007KT 170V230 9999 FEW016 SCT041 BKN110 06/04 Q1007 TEMPO 22015G25KT BKN020TCULFPV2019-12-11T17:00:00Z48.772.26.04.020076.2129.734253TRUEVFRMETAR179.02019-12-11 17:10:44Z8)'5   3CYRJ 111700Z 10006KT 25SM FEW030 BKN068 M14/M19 A3010 RMK SC1AC7 SC TR SLP212CYRJ2019-12-11T17:00:00Z48.52-72.27-14.0-19.0100625.030.1003931021.2VFRMETAR179.02019-12-11 17:10:44 O <Oh?)A5  3CYVP 111700Z 26008G15KT 15SM FEW019 BKN130 BKN200 M17/M22 A2964 RMK SC1AS5CI2 SC TR SLP042CYVP2019-12-11T17:00:00Z58.12-68.42-17.0-22.026081515.029.6397631004.2VFRMETAR60.02019-12-11 17:10:44L>)5   3CYTZ 111700Z AUTO 25023G33KT 9SM CLR M02/M10 A3015 RMK SLP216CYTZ2019-12-11T17:00:00Z43.63-79.4-2.0-10.025023339.030.150591021.6TRUEVFRMETAR77.02019-12-11 17:10:44r=)I5   3CYTS 111700Z VRB02KT 9SM -SN FEW007 SCT020 SCT035 BKN078 M18/M21 A2991 RMK SC1SC2SC1AC1 SLP166CYTS2019-12-11T17:00:00Z48.57-81.37-18.0-21.0029.029.9114171016.6-SNBKN7800VFRMETAR295.02019-12-11 17:10:44w<)s5    3LFBE 111700Z AUTO 20008KT 9999 BKN042/// BKN062/// OVC130/// ///TCU 09/05 Q1015 TEMPO 28015G30KT 2000 TSRA BKN012CBLFBE2019-12-11T17:00:00Z44.820.529.05.020086.2129.970472TRUEVFRSPECI52.02019-12-11 17:10:44 ^ 2^OC) 5  3CYYY 111700Z 27011G17KT 30SM BKN024 M10/M15 A3016 RMK SC4 SLP217CYYY2019-12-11T17:00:00Z48.6-68.22-10.0-15.0270111730.030.1594491021.7MVFRMETAR52.02019-12-11 17:10:44UB)5   3CYXR 111700Z AUTO 23008G15KT 9SM SCT100 M11/M18 A2990 RMK ICG SLP150CYXR2019-12-11T17:00:00Z47.7-79.83-11.0-18.02308159.029.8996071015.0TRUEVFRMETAR243.02019-12-11 17:10:44qA)A5    3CYWA 111700Z AUTO 21007KT 170V250 9SM BKN030 BKN062 BKN072 OVC080 M03/M10 A2999 RMK SLP164CYWA2019-12-11T17:00:00Z45.95-77.32-3.0-10.021079.029.9911421016.4TRUEOVC8000MVFRMETAR130.02019-12-11 17:10:44y@)M5 !  3CYVV 111700Z 27020G35KT 1/2SM -SHSN BLSN BKN020 M06/M11 A3006 RMK BLSN1SC6 CVCTV CLD EMBD SLP194CYVV2019-12-11T17:00:00Z44.75-81.08-6.0-11.027020350.530.0590551019.4-SHSN BLSNLIFRMETAR222.02019-12-11 17:10:44 cGG)5   3CWPX 111700Z AUTO 32022KT ////SM //// SCT003 SCT013 M27/M31 A3009CWPX2019-12-11T17:00:00Z69.02-107.82-27.0-31.03202230.088583TRUEMETAR165.02019-12-11 17:10:44KF)5    3CWLY 111700Z AUTO 00000KT 9SM OVC020 M01/M05 A3007 RMK SLP194CWLY2019-12-11T17:00:00Z50.22-121.58-1.0-5.0009.030.0708661019.4TRUEMVFRMETAR229.02019-12-11 17:10:44,E)5   3CWIL 111700Z AUTO 31022KT ////SM BKN017 OVC021 ///// A////CWIL2019-12-11T17:00:00Z68.32-100.0731022TRUEMETAR36.02019-12-11 17:10:44gD)55    3CYZR 111700Z AUTO 27016G24KT 8SM -SN BKN035 OVC042 M05/M11 A3022 RMK RVR MISG SLP247CYZR2019-12-11T17:00:00Z43.0-82.3-5.0-11.027016248.030.2214571024.7TRUE-SNVFRMETAR181.02019-12-11 17:10:44 )kbK)55    3CWSW 111700Z VRB02KT 5SM -SN FEW011 BKN030 BKN085 M01/M03 A2996 RMK SC1SC5AC1 SLP197CWSW2019-12-11T17:00:00Z49.75-114.87-1.0-3.0025.029.9586621019.7-SNMVFRMETAR1138.02019-12-11 17:10:444J)5  3CWRX 111700Z AUTO 30007KT ////SM //// OVC005 M20/M22 A////CWRX2019-12-11T17:00:00Z69.07-79.02-20.0-22.03007TRUEMETAR41.02019-12-11 17:10:449I(5   3LFMD 111700Z AUTO 20006KT 9999 ///CB 10/04 Q1010 TEMPO RALFMD2019-12-11T17:00:00Z43.536.9510.04.020066.2129.822834TRUEMETAR9.02019-12-11 17:10:44RH)%5    3LFGJ 111700Z AUTO 19011KT 9999 FEW008 BKN032 BKN039 05/04 Q1013 TEMPO BKN014LFGJ2019-12-11T17:00:00Z47.055.435.04.0190116.2129.911417TRUEVFRMETAR196.02019-12-11 17:10:44 Fn;O({5   3CZCP 111700Z AUTO 10011KT ////SM //// NCD M24/M27 A3040CZCP2019-12-11T17:00:00Z70.17-124.72-24.0-27.01001130.398623TRUEMETAR93.02019-12-11 17:10:44HN)5    3CZBF 111700Z AUTO 28006KT 9SM CLR M08/M16 A3016 RMK SLP217CZBF2019-12-11T17:00:00Z47.62-65.75-8.0-16.028069.030.1594491021.7TRUEVFRMETAR59.02019-12-11 17:10:44SM))5   3CWZZ 111700Z AUTO 03040G62KT 360V110 ////SM BKN005 BKN009 BKN013 M09/M10 A2891CWZZ2019-12-11T17:00:00Z58.32-62.57-9.0-10.030406228.910433TRUEMETAR483.02019-12-11 17:10:445L(q5   3CWUW 111700Z AUTO 07017KT ////SM NCD M22/M24 A2930CWUW2019-12-11T17:00:00Z68.65-71.17-22.0-24.0701729.300198TRUEMETAR527.02019-12-11 17:10:44 t-HptwS)Y5   3CWGZ 111700Z 17003G17KT 090V260 15SM DRSN SKC M19/M28 A2989 RMK S0 AFT 21UTC/5/SNW CVR/MED PACK SLP130CWGZ2019-12-11T17:00:00Z76.42-82.9-19.0-28.017031715.029.8907471013.0DRSNVFRMETAR45.02019-12-11 17:10:44SR)%5   3CWFD 111700Z AUTO 35027G39KT 320V020 ////SM //// BKN003 OVC007 M16/M17 A2909CWFD2019-12-11T17:00:00Z66.57-61.58-16.0-17.0350273929.090551TRUEMETAR393.02019-12-11 17:10:44`Q)55    3CWEU 111700Z 08003KT 15SM IC FEW150 SCT160 BKN200 M28/M31 A3016 RMK AC2AC2CI2 SLP216CWEU2019-12-11T17:00:00Z80.0-85.92-28.0-31.080315.030.1594491021.6ICVFRMETAR10.02019-12-11 17:10:44NP)5   3CZST 111700Z 00000KT 10SM SCT050 OVC070 M01/M02 A2985 RMK SC4AS4 SLP108CZST2019-12-11T17:00:00Z55.93-129.98-1.0-2.00010.029.849411010.8VFRMETAR7.02019-12-11 17:10:44 ~D~AW(y5   3CZFM 111700Z 14005KT 15SM SKC M27/M29 A3023 RMK SLP245CZFM2019-12-11T17:00:00Z67.4-134.87-27.0-29.0140515.030.2303141024.5VFRMETAR43.02019-12-11 17:10:44MV)5   3CZEM 111700Z 17007KT 15SM FEW070 SCT200 M23/M28 A3000 RMK AC2CI1 SLP162CZEM2019-12-11T17:00:00Z52.22-78.52-23.0-28.0170715.030.01016.2VFRMETAR7.02019-12-11 17:10:44hU);5     3CYPD 111700Z AUTO 32008KT 290V360 2SM -SN SCT013 BKN019 OVC025 M02/M04 A3004 RMK SLP179CYPD2019-12-11T17:00:00Z45.67-61.37-2.0-4.032082.030.0413381017.9TRUE-SNIFRMETAR114.02019-12-11 17:10:44xT)i5    3CWSA 111700Z AUTO 36013KT FEW009 SCT014 BKN021 OVC033 04/03 A2998 RMK PRESFR WX MISG VIS MISG PCPN MISG SLP154CWSA2019-12-11T17:00:00Z43.93-60.04.03.03601329.979331015.4TRUEOVC3300METAR4.02019-12-11 17:10:44 2O|R[)5   3CYCX 111700Z 33007KT 15SM OVC085 M05/M12 A3018 RMK AC8 DA-2514FT SLP222CYCX2019-12-11T17:00:00Z45.82-66.42-5.0-12.0330715.030.1801191022.2VFRMETAR51.02019-12-11 17:10:44NZ)5   3CYAY 111700Z AUTO 26019G34KT 9SM CLR M08/M16 A2974 RMK SLP076CYAY2019-12-11T17:00:00Z51.38-56.07-8.0-16.026019349.029.7401581007.6TRUEVFRMETAR28.02019-12-11 17:10:44^Y)'5   3CZPC 111700Z AUTO 25020G25KT 9SM SCT070 BKN088 OVC110 01/M04 A2980 RMK SLP126CZPC2019-12-11T17:00:00Z49.52-114.01.0-4.025020259.029.7992131012.6TRUEVFRMETAR1190.02019-12-11 17:10:44IX)5   3CZFN 111700Z 02011KT 15SM SKC M30/M33 A3027 RMK FROIN SLP270CZFN2019-12-11T17:00:00Z64.92-125.57-30.0-33.0201115.030.2687021027.0VFRMETAR98.02019-12-11 17:10:44 h'Whj_)E5    3CYNC 111700Z 16008KT 110V190 2SM -SN FEW018 BKN030 BKN044 M22/M25 A2994 RMK SF2SC3SC2 SLP141CYNC2019-12-11T17:00:00Z53.02-78.82-22.0-25.016082.029.9409451014.1-SNIFRMETAR14.02019-12-11 17:10:45K^)5    3CYGW 111700Z AUTO 18009KT 9SM SCT027 M17/M21 A2985 RMK SLP110CYGW2019-12-11T17:00:00Z55.27-77.77-17.0-21.018099.029.849411011.0TRUEVFRMETAR12.02019-12-11 17:10:45p]);5   3CYDP 111700Z CCA 28034G53KT 1/4SM -SN +BLSN VV005 M12/M15 A2928 RMK BLSN8 PRESRR SLP917CYDP2019-12-11T17:00:00Z56.53-61.67-12.0-15.028034530.2529.279528991.7BLSN -SNLIFR500METAR7.02019-12-11 17:10:45_\)35    3CYDF 111700Z 30006KT 220V360 15SM -SN SCT025 OVC040 M03/M08 A2991 RMK SC4SC4 SLP131CYDF2019-12-11T17:00:00Z49.22-57.4-3.0-8.0300615.029.9114171013.1-SNVFRMETAR22.02019-12-11 17:10:44 )QjPc)5    3CYAT 111700Z AUTO 25007KT 220V280 9SM CLR M26/M30 A2994 RMK SLP140CYAT2019-12-11T17:00:00Z52.93-82.43-26.0-30.025079.029.9409451014.0TRUEVFRMETAR9.02019-12-11 17:10:45bb)-5   3CYYG 111700Z 32013G20KT 15SM -SHSN SCT032 OVC100 M04/M09 A3010 RMK CU4AC4 SLP197CYYG2019-12-11T17:00:00Z46.27-63.12-4.0-9.0320132015.030.1003931019.7-SHSNVFRMETAR54.02019-12-11 17:10:45Sa)5   3CYTQ 111700Z 20005KT 15SM FEW009 SCT044 M20/M24 A2963 RMK ST1SC4 SLP039CYTQ2019-12-11T17:00:00Z58.67-69.95-20.0-24.0200515.029.6309051003.9VFRMETAR31.02019-12-11 17:10:45R`)5   3CYSJ 111700Z 35008KT 10SM FEW015 OVC033 M05/M08 A3014 RMK SC1SC7 SLP212CYSJ2019-12-11T17:00:00Z45.32-65.87-5.0-8.0350810.030.1387791021.2VFRMETAR109.02019-12-11 17:10:45 -Zf`g))5   3CYCK 111700Z AUTO 28015G25KT 9SM BKN030 BKN080 BKN110 M05/M10 A3026 RMK SLP258CYCK2019-12-11T17:00:00Z42.3-82.08-5.0-10.028015259.030.2598421025.8TRUEMVFRMETAR198.02019-12-11 17:10:45of)75   3CYBN 111700Z AUTO 22017G22KT 9SM OVC021 OVC036 OVC058 OVC066 M05/M10 A3007 RMK SLP198CYBN2019-12-11T17:00:00Z44.27-79.92-5.0-10.022017229.030.0708661019.8TRUEOVC6600MVFRMETAR223.02019-12-11 17:10:45Ne)5   3CYBC 111700Z AUTO 27011G18KT 9SM CLR M10/M20 A3014 RMK SLP210CYBC2019-12-11T17:00:00Z49.12-68.2-10.0-20.027011189.030.1387791021.0TRUEVFRMETAR22.02019-12-11 17:10:45Nd)5     3LFMH 111700Z AUTO 16006KT 9999 BKN040 BKN047 BKN054 04/02 Q1014 NOSIGLFMH2019-12-11T17:00:00Z45.524.284.02.016066.2129.940945TRUETRUEVFRMETAR402.02019-12-11 17:10:45 UFKUqk)G5   3CYGQ 111700Z 29010G17KT 260V320 15SM DRSN FEW026 FEW095 M24/M29 A2999 RMK SC1AC1 SC TR SLP206CYGQ2019-12-11T17:00:00Z49.77-86.92-24.0-29.0290101715.029.9911421020.6DRSNVFRMETAR351.02019-12-11 17:10:45vj)I5  !  3CYGK 111700Z 28007KT 230V290 3/4SM -SHSN DRSN VV008 M04/M06 A3012 RMK SN8 VIS VRB 1/2-1 SLP207CYGK2019-12-11T17:00:00Z44.22-76.58-4.0-6.028070.7530.1210631020.7DRSN -SHSNLIFR800METAR93.02019-12-11 17:10:45Oi)5   3CYFR 111700Z 00000KT 15SM FEW160 M37/M40 A3038 RMK AC1 AC TR SLP318CYFR2019-12-11T17:00:00Z61.17-113.67-37.0-40.00015.030.3809051031.8VFRMETAR164.02019-12-11 17:10:45ah)#5    3CYER 111700Z AUTO 29013G23KT 3SM -SN BKN027 OVC060 M21/M23 A2975 RMK SLP078CYER2019-12-11T17:00:00Z56.02-87.68-21.0-23.029013233.029.7490161007.8TRUE-SNMVFRMETAR16.02019-12-11 17:10:45 ;lRo)5   3CYLD 111700Z 28008KT 220V360 15SM FEW018 M17/M22 A2992 RMK SC2 SLP190CYLD2019-12-11T17:00:00Z47.82-83.33-17.0-22.0280815.029.9202751019.0VFRMETAR447.02019-12-11 17:10:45Jn)5    3CYKP 111700Z AUTO 26014KT 9SM CLR M26/M30 A2995 RMK SLP180CYKP2019-12-11T17:00:00Z51.67-85.9-26.0-30.0260149.029.9498021018.0TRUEVFRMETAR179.02019-12-11 17:10:45Ym)5   3CYKF 111700Z AUTO 24021G30KT 9SM BKN100 BKN120 M06/M12 A3011 RMK SLP216CYKF2019-12-11T17:00:00Z43.47-80.38-6.0-12.024021309.030.1092531021.6TRUEVFRMETAR317.02019-12-11 17:10:45bl)55  3CYHM 111700Z 25023G31KT 15SM FEW025 BKN035 BKN090 M05/M12 A3015 RMK CU2SC3AC2 SLP226CYHM2019-12-11T17:00:00Z43.17-79.93-5.0-12.0250233115.030.150591022.6VFRMETAR238.02019-12-11 17:10:45 ,Ox_s)!5    3CYPO 111700Z AUTO 23010G16KT 5SM HZ SCT034 OVC045 M25/M29 A2973 RMK SLP080CYPO2019-12-11T17:00:00Z54.98-85.43-25.0-29.023010165.029.7312981008.0TRUEHZMVFRMETAR53.02019-12-11 17:10:45Rr) 5   3CYPL 111700Z AUTO 27010G16KT 8SM SCT110 M27/M31 A2999 RMK SLP210CYPL2019-12-11T17:00:00Z51.47-90.2-27.0-31.027010168.029.9911421021.0TRUEVFRMETAR373.02019-12-11 17:10:45Xq)5   3CYOO 111700Z AUTO 24015G25KT 9SM SCT044 SCT095 M03/M11 A3012 RMK SLP209CYOO2019-12-11T17:00:00Z43.92-78.9-3.0-11.024015259.030.1210631020.9TRUEVFRMETAR139.02019-12-11 17:10:45Op)5   3CYLH 111700Z AUTO 27010G16KT 9SM CLR M26/M30 A2994 RMK SLP177CYLH2019-12-11T17:00:00Z52.2-87.93-26.0-30.027010169.029.9409451017.7TRUEVFRMETAR254.02019-12-11 17:10:45 Slw)?5   3CYSB 111700Z 25012G19KT 20SM DRSN FEW020 BKN050 BKN100 M12/M16 A2992 RMK SC2SC3AC2 SLP166CYSB2019-12-11T17:00:00Z46.63-80.8-12.0-16.0250121920.029.9202751016.6DRSNVFRMETAR348.02019-12-11 17:10:45Hv)5    3CYRQ 111700Z AUTO 21007KT 9SM CLR M09/M15 A3019 RMK SLP230CYRQ2019-12-11T17:00:00Z46.35-72.68-9.0-15.021079.030.1889761023.0TRUEVFRMETAR61.02019-12-11 17:10:45?u(w5   3CYRB 111700Z 01011KT 8SM SKC M24/M27 A2995 RMK SLP156CYRB2019-12-11T17:00:00Z74.72-94.97-24.0-27.010118.029.9498021015.6VFRMETAR67.02019-12-11 17:10:45dt))5   3CYQK 111700Z 27008G15KT 20SM IC DRSN FEW240 M23/M26 A3020 RMK CI1 CI TR SLP280CYQK2019-12-11T17:00:00Z49.77-94.37-23.0-26.027081520.030.2007871028.0IC DRSNVFRMETAR411.02019-12-11 17:10:45 j')IjZ{)!5    3CYVO 111700Z 20007KT 4SM -SN SCT023 OVC030 M12/M14 A2987 RMK SF3SC5 SLP152CYVO2019-12-11T17:00:00Z48.07-77.77-12.0-14.020074.029.8700791015.2-SNMVFRMETAR337.02019-12-11 17:10:45[z)+5   3CYSP 111700Z 33009KT 270V360 15SM FEW018 SCT230 M20/M27 A3002 RMK CF1CI3 SLP204CYSP2019-12-11T17:00:00Z48.75-86.35-20.0-27.0330915.030.020671020.4VFRMETAR315.02019-12-11 17:10:45yy)S5 !  3CYSN 111700Z 26013G23KT 3SM -SHSN DRSN SCT010 OVC022 M03/M06 A3017 RMK SC3SC5 CVCTV CLD EMBD SLP224CYSN2019-12-11T17:00:00Z43.2-79.17-3.0-6.026013233.030.1712591022.4-SHSN DRSNMVFRMETAR98.02019-12-11 17:10:45Tx)5    3CYSC 111700Z AUTO 19005KT 160V240 9SM FEW250 M06/M14 A3014 RMK SLP223CYSC2019-12-11T17:00:00Z45.43-71.68-6.0-14.019059.030.1387791022.3TRUEVFRMETAR241.02019-12-11 17:10:45 6+?/6t)K5   3CYXU 111700Z 25014G23KT 15SM -SHSN BKN029 OVC040 M06/M12 A3017 RMK SC7SC1 CVCTV CLD EMBD SLP234CYXU2019-12-11T17:00:00Z43.02-81.15-6.0-12.0250142315.030.1712591023.4-SHSNMVFRMETAR278.02019-12-11 17:10:45 ~)5     3LFOT 111700Z AUTO 21011KT 9999 -RA SCT027/// BKN038/// BKN047/// ///CB 07/05 Q1008 TEMPO 22015G25KT 4000 -SHRA BECMG SCT020 BKN060LFOT2019-12-11T17:00:00Z47.430.727.05.0210116.2129.763779TRUE-RAVFRMETAR108.02019-12-11 17:10:45g})35    3CYXL 111700Z 28010KT 240V310 15SM IC DRSN FEW015 M24/M28 A3013 RMK SF1 SF TR SLP255CYXL2019-12-11T17:00:00Z50.12-91.9-24.0-28.02801015.030.1299211025.5IC DRSNVFRMETAR390.02019-12-11 17:10:45P|)5   3CYVQ 111700Z 10005KT 30SM FEW050 M25/M29 A3022 RMK SC1 SC TR SLP247CYVQ2019-12-11T17:00:00Z65.27-126.78-25.0-29.0100530.030.2214571024.7VFRMETAR74.02019-12-11 17:10:45 *+UL)5    3CYYW 111700Z AUTO 30017KT 9SM FEW019 M24/M29 A3004 RMK SLP232CYYW2019-12-11T17:00:00Z50.3-88.9-24.0-29.0300179.030.0413381023.2TRUEVFRMETAR351.02019-12-11 17:10:45Q)5   3CYYU 111700Z 29011KT 15SM FEW035 M21/M25 A2997 RMK SC1 SC TR SLP181CYYU2019-12-11T17:00:00Z49.42-82.47-21.0-25.02901115.029.9704721018.1VFRMETAR227.02019-12-11 17:10:45z)U5   3CYYH 111700Z 16007KT 15SM IC SCT020 SCT070 BKN100 BKN210 M33/M37 A2978 RMK SC3AC1AC2CI1 CI TR SLP091CYYH2019-12-11T17:00:00Z69.53-93.57-33.0-37.0160715.029.7785431009.1ICBKN21000VFRMETAR28.02019-12-11 17:10:45Q)5   3CYXZ 111700Z 30005KT 180V350 15SM FEW045 M18/M23 A3002 RMK SC1 SLP200CYXZ2019-12-11T17:00:00Z47.97-84.77-18.0-23.0300515.030.020671020.0VFRMETAR287.02019-12-11 17:10:45 !D!4(u5   3FYKM 111700Z AUTO 20004KT //// // ////// 29/17 Q1012FYKM2019-12-11T17:00:00Z-17.6324.1829.017.0200429.88189TRUEMETAR958.02019-12-11 17:10:45,(w5  3FYGB 111700Z AUTO 22004KT //// // ////// 31/M00 Q////FYGB2019-12-11T17:00:00Z-22.518.9731.00.02204TRUEMETAR1442.02019-12-11 17:10:454(u5   3FDOT 111700Z AUTO 22004KT //// // ////// 20/19 Q1011FDOT2019-12-11T17:00:00Z-26.731.4320.019.0220429.852362TRUEMETAR341.02019-12-11 17:10:45P)5   3CZSJ 111700Z AUTO 29011G17KT 9SM CLR M27/M30 A3005 RMK SLP219CZSJ2019-12-11T17:00:00Z53.07-93.35-27.0-30.029011179.030.0501981021.9TRUEVFRMETAR290.02019-12-11 17:10:45b)#5    3CZMD 111700Z AUTO 26011G16KT 4SM -SN BKN015 OVC090 M26/M30 A2997 RMK SLP192CZMD2019-12-11T17:00:00Z53.43-91.77-26.0-30.026011164.029.9704721019.2TRUE-SNMVFRMETAR278.02019-12-11 17:10:45 uD/u5 (u5   3FYWB 111700Z AUTO 36013KT //// // ////// 21/14 Q1014FYWB2019-12-11T17:00:00Z-22.9814.6521.014.03601329.940945TRUEMETAR46.02019-12-11 17:10:45& (Y5   3FYRN 111700Z 00000KT CAVOK 33/08 Q1012FYRN2019-12-11T17:00:00Z-20.0213.8533.08.0006.2129.88189VFRMETAR756.02019-12-11 17:10:45* (Y5   3FYOA 111700Z 28003KT CAVOK 31/06 Q1014FYOA2019-12-11T17:00:00Z-17.8815.9731.06.028036.2129.940945VFRMETAR1095.02019-12-11 17:10:456 (u5   3FYLZ 111700Z AUTO 20017KT //// // ////// 21/16 Q1013FYLZ2019-12-11T17:00:00Z-26.6715.2521.016.02001729.911417TRUEMETAR130.02019-12-11 17:10:457 (w5   3FYKT 111700Z AUTO 20006KT //// // ////// 33/M03 Q0997FYKT2019-12-11T17:00:00Z-26.5218.1233.0-3.0200629.438976TRUEMETAR1061.02019-12-11 17:10:45 @R(@c)I5    3LFRG 111700Z AUTO 24008KT 9999 FEW029 SCT130 04/03 Q1005 TEMPO 23020G35KT 2500 TSRAGS BKN012CBLFRG2019-12-11T17:00:00Z49.370.154.03.024086.2129.675198TRUEVFRMETAR146.02019-12-11 17:10:45/(e5   3FBSP 111700Z 08004KT 9999 FEW020 25/20 Q1013FBSP2019-12-11T17:00:00Z-22.0527.8225.020.08046.2129.911417VFRMETAR892.02019-12-11 17:10:458(s5   3FBFT 111700Z 13007KT 9999 FEW025 SCT070 25/16 Q1014FBFT2019-12-11T17:00:00Z-21.1727.4825.016.013076.2129.940945VFRMETAR1000.02019-12-11 17:10:454(u5   3FYWW 111700Z AUTO 24002KT //// // ////// 29/01 Q1019FYWW2019-12-11T17:00:00Z-22.5717.129.01.0240230.088583TRUEMETAR1725.02019-12-11 17:10:45)([5   3FYWE 111700Z 00000KT CAVOK 29/M02 Q1020FYWE2019-12-11T17:00:00Z-22.6217.0829.0-2.0006.2130.11811VFRMETAR1700.02019-12-11 17:10:45 9,p95(u5    3LFTW 111700Z AUTO VRB02KT CAVOK 05/04 Q1015 TEMPO RALFTW2019-12-11T17:00:00Z43.754.425.04.0026.2129.970472TRUEVFRMETAR96.02019-12-11 17:10:45>(5     3LFTH 111700Z AUTO 31006KT 280V340 CAVOK 11/05 Q1012 NOSIGLFTH2019-12-11T17:00:00Z43.16.1511.05.031066.2129.88189TRUETRUEVFRMETAR4.02019-12-11 17:10:455(q5     3VOHS 111700Z 12003KT 5000 BR NSC 18/17 Q1016 NOSIGVOHS2019-12-11T17:00:00Z17.2378.4318.017.012033.1130.0TRUEBRMVFRMETAR1.02019-12-11 17:10:457(q5    3TLPC 111700Z 12009KT 9999 SCT024 28/24 Q1013 NOSIGTLPC2019-12-11T17:00:00Z14.02-61.028.024.012096.2129.911417TRUEVFRMETAR2.02019-12-11 17:10:45O)5      3LFST 111700Z AUTO 19005KT 6000 -RA BKN028 OVC034 03/02 Q1009 NOSIGLFST2019-12-11T17:00:00Z48.537.623.02.019053.7329.793306TRUETRUE-RAMVFRMETAR154.02019-12-11 17:10:45 VY)/5    3FALE 111700Z 10006KT 070V150 8000 -RA FEW006 BKN008 OVC014 21/19 Q1013 TEMPO 4000FALE2019-12-11T17:00:00Z-29.6231.1221.019.010064.9729.911417-RAIFRMETAR109.02019-12-11 17:10:45<(o5     3OTBD 111700Z AUTO 33010KT CAVOK 22/16 Q1014 NOSIGOTBD2019-12-11T17:00:00Z25.2551.5722.016.0330106.2129.940945TRUETRUEVFRMETAR10.02019-12-11 17:10:45>)5   3LPAZ 111700Z 05009KT 010V070 9999 FEW030 BKN040 15/06 Q1039LPAZ2019-12-11T17:00:00Z36.97-25.1715.06.05096.2130.679134VFRMETAR100.02019-12-11 17:10:45b)?5      3LFLY 111700Z AUTO VRB03KT 9999 -RA SCT037 BKN045 BKN054 05/04 Q1015 TEMPO 20015KT 3000 RALFLY2019-12-11T17:00:00Z45.724.955.04.0036.2129.970472TRUE-RAVFR1.5METAR201.02019-12-11 17:10:45 :zN)5     3KTKC 111659Z AUTO 00000KT 10SM CLR M17/M20 A3041 RMK AO2 TSNOKTKC2019-12-11T16:59:00Z44.25-95.62-17.0-20.00010.030.410433TRUETRUETRUEVFRSPECI408.02019-12-11 17:10:45C(}5    3KACQ 111659Z AUTO 00000KT 10SM CLR M17/M21 A3044 RMK AO2KACQ2019-12-11T16:59:00Z44.07-93.55-17.0-21.00010.030.43996TRUETRUEVFRSPECI343.02019-12-11 17:10:45;(q5    3FBSK 111700Z 35002KT 9999 FEW030 27/15 Q1013 NOSIGFBSK2019-12-11T17:00:00Z-24.5525.9227.015.035026.2129.911417TRUEVFRMETAR1005.02019-12-11 17:10:45A(}5    3SLRY 111700Z 34012KT 8000 VCSH BKN008 OVC070 26/24 Q1011SLRY2019-12-11T17:00:00Z-14.3-67.3726.024.0340124.9729.852362VCSHIFRMETAR280.02019-12-11 17:10:45 x%/QxT#) 5     3KMUO 111658Z AUTO 10011KT 10SM OVC050 01/ A3017 RMK AO2 SLP237 $KMUO2019-12-11T16:58:00Z43.03-115.871.01001110.030.1712591023.7TRUETRUETRUEVFRMETAR913.02019-12-11 17:10:45Y")5    3KLUF 111658Z AUTO 08004KT 10SM CLR 13/07 A3018 RMK AO2 SLP219 T01300074KLUF2019-12-11T16:58:00Z33.52-112.3713.07.480410.030.1801191021.9TRUETRUEVFRMETAR332.02019-12-11 17:10:45q!)Q5     3EHGR 111658Z AUTO 19006KT 140V230 7000 BR OVC150 05/04 Q1004 WHT 20007KT 9999 FEW010 SCT015 BKN040EHGR2019-12-11T16:58:00Z51.574.925.04.019066.2129.64567TRUEBRBKN4000VFR0.7METAR13.02019-12-11 17:10:45V )5    3KMUI 111659Z 30012KT 10SM FEW050 02/M11 A3029 RMK AO2A SLP265 T00201108KMUI2019-12-11T16:59:00Z40.42-76.572.0-10.83001210.030.289371026.5TRUEVFRMETAR149.02019-12-11 17:10:45 K&KV')#5  3MUGM 111656Z 12020G24KT 9999 SCT035 SCT120 31/23 A3006 RMK SLP178 T03110233MUGM2019-12-11T16:56:00Z19.9-75.231.123.312020246.2130.0590551017.8VFRMETAR17.02019-12-11 17:10:45n&)=5      3MHSC 111658Z 34010KT 9999 BKN060 29/17 A3008 RMK AO2A SLPNO PWINO PNO TSNO VISNO RWY17 $MHSC2019-12-11T16:58:00Z14.37-87.6229.017.0340106.2130.079725TRUETRUETRUETRUEVFRMETAR626.02019-12-11 17:10:45Z%)5     3RKSG 111658Z 32006KT 6SM HZ CLR 00/M06 A3025 RMK AO2A SLP248 T00011065 $RKSG2019-12-11T16:58:00Z36.97127.020.1-6.532066.030.2509841024.8TRUETRUEHZVFRMETAR16.02019-12-11 17:10:45$)_5      3K1J0 111658Z AUTO 35008KT 6SM -RA SCT060 BKN080 OVC110 09/02 A3043 RMK AO2 RAB50 SLP287 P0000 T00890017 $K1J02019-12-11T16:58:00Z30.85-85.68.91.735086.030.4311031028.7TRUETRUETRUE-RAVFR0.005SPECI26.02019-12-11 17:10:45 |=]|\+)+5    3EGUL 111656Z 19006KT 9999 BKN032 BKN060 06/03 A2951 RMK AO2A SLP997 T00640030 $EGUL2019-12-11T16:56:00Z52.420.576.43.019066.2129.509842999.7TRUETRUEVFRSPECI10.02019-12-11 17:10:45[*)5    3EGVA 111656Z AUTO 23006KT 9999 CLR 03/02 A2956 RMK AO2 SLP017 T00290020 $EGVA2019-12-11T16:56:00Z51.67-1.772.92.023066.2129.560041001.7TRUETRUETRUEVFRSPECI87.02019-12-11 17:10:45U))5    3K79J 111656Z AUTO 01008KT 10SM CLR 09/00 A3043 RMK AO2 SLP303 T00890000K79J2019-12-11T16:56:00Z31.32-86.48.90.010810.030.4311031030.3TRUETRUEVFRMETAR94.02019-12-11 17:10:45d()95   3KI19 111656Z AUTO 23012G17KT 10SM SCT030 SCT049 OVC065 M01/M08 A3044 RMK AO2 T10141079KI192019-12-11T16:56:00Z39.7-83.98-1.4-7.9230121710.030.43996TRUETRUEVFRSPECI289.02019-12-11 17:10:45  -^/)#5   3KPRN 111656Z AUTO 03010G20KT 10SM CLR 08/M04 A3046 RMK AO2 SLP314 T00831039KPRN2019-12-11T16:56:00Z31.85-86.628.3-3.930102010.030.460631031.4TRUETRUEVFRMETAR138.02019-12-11 17:10:45+.)-5      3ETEB 111656Z 19004KT 4400 -SN BR BKN009 BKN021 00/00 A2976 RMK AO2A VIS 4400V9999 RAB1556E29FZRAB29E46SNB46 CIG 009V021 SLP118 P0000 T00010001 $ETEB2019-12-11T16:56:00Z49.3210.620.10.119042.7329.7608261011.8TRUETRUE-SN BRIFR0.005METAR467.02019-12-11 17:10:45n-)75      3ETOU 111656Z 00000KT 3200 -SN BR OVC004 00/00 A2976 RMK AO2A SLP088 P0004 T00031003 $ETOU2019-12-11T16:56:00Z50.038.320.3-0.3001.9929.7608261008.8TRUETRUE-SN BRLIFR0.04METAR141.02019-12-11 17:10:45[,)!5    3KMEH 111656Z AUTO 00000KT 8SM OVC041 01/M01 A3007 RMK AO2 SLP203 T00111006KMEH2019-12-11T16:56:00Z45.52-118.421.1-0.6008.030.0708661020.3TRUETRUEVFRSPECI1136.02019-12-11 17:10:45 /ILC3(}5    3KTVK 111655Z AUTO 34010KT 10SM CLR M03/M07 A3044 RMK AO2KTVK2019-12-11T16:55:00Z40.68-92.9-3.0-7.03401010.030.43996TRUETRUEVFRSPECI314.02019-12-11 17:10:45x2)G5     3PAEI 111656Z AUTO 00000KT 10SM OVC019 M06/M08 A2961 RMK AO2 SNB48E51 SLP038 P0000 T10631080 $PAEI2019-12-11T16:56:00Z64.67-147.1-6.3-8.00010.029.6102371003.8TRUETRUETRUEMVFR0.005METAR167.02019-12-11 17:10:45a1))5     3KSMP 111656Z AUTO 00000KT 1/4SM FG OVC022 01/00 A2998 RMK AO2 SLP174 T00060000KSMP2019-12-11T16:56:00Z47.28-121.330.60.0000.2529.979331017.4TRUETRUEFGLIFRMETAR1208.02019-12-11 17:10:45L0) 5   3KP60 111656Z AUTO 00000KT M07/M08 A3006 RMK AO1 SLP222 T10671083KP602019-12-11T16:56:00Z44.55-110.42-6.7-8.30030.0590551022.2TRUETRUEMETAR2388.02019-12-11 17:10:45 'PpL7)#5   3LIVO 111655Z 00000KT CAVOK M04/M07 Q1011 RMK BKN SCT090 SCT160 VIS MIN 9999LIVO2019-12-11T16:55:00Z46.513.57-4.0-7.0006.2129.852362VFRMETAR778.02019-12-11 17:10:45[6)55   3LIVP 111655Z 19010KT CAVOK M02/M27 Q1008 RMK BKN BKN200 MON LIB VAL NIL VIS MIN 9999LIVP2019-12-11T16:55:00Z46.1511.03-2.0-27.0190106.2129.763779VFRMETAR2129.02019-12-11 17:10:45R5)%5   3LIVR 111655Z 11003KT CAVOK M03/M21 Q1006 RMK FEW FEW170 MON LIB VIS MIN 9999LIVR2019-12-11T16:55:00Z46.2811.77-3.0-21.011036.2129.704725VFRMETAR2006.02019-12-11 17:10:45T4)95   3LIVT 111655Z /////KT CAVOK 06/M09 Q1011 RMK SKC QUK / QUL / VIS MAR 20 KM VIS MIN 9999LIVT2019-12-11T16:55:00Z45.6813.756.0-9.06.2129.852362VFRMETAR20.02019-12-11 17:10:45 4,4#<(Y5   3LIRL 111655Z 00000KT CAVOK 08/05 Q1009LIRL2019-12-11T16:55:00Z41.5312.98.05.0006.2129.793306VFRMETAR26.02019-12-11 17:10:45%;(Y5   3LIRM 111655Z 08003KT CAVOK 08/03 Q1010LIRM2019-12-11T16:55:00Z41.0314.078.03.08036.2129.822834VFRMETAR10.02019-12-11 17:10:45!:(Y5   3LIQW 111655Z /////KT CAVOK 07/05 Q1011LIQW2019-12-11T16:55:00Z44.079.977.05.06.2129.852362VFRMETAR10.02019-12-11 17:10:45e9)S5   3LIMS 111655Z 23001KT 7000 NSC 04/04 Q1011 RMK BKN FEW100 SCT180 VIS MIN 7000 WIND THR30 23002KT WHTLIMS2019-12-11T16:55:00Z44.929.724.04.023014.3529.852362MVFRMETAR138.02019-12-11 17:10:45e8)W5   3LIVM 111655Z 30003KT 240V340 CAVOK 07/M03 Q1013 RMK SCT SCT180 QUK / QUL / VIS MAR 18 KM VIS MIN 9999LIVM2019-12-11T16:55:00Z44.4512.37.0-3.030036.2129.911417VFRMETAR6.02019-12-11 17:10:45 ER$@([5   3LIPF 111655Z /////KT CAVOK 02/M04 Q1013LIPF2019-12-11T16:55:00Z44.8211.622.0-4.06.2129.911417VFRMETAR10.02019-12-11 17:10:45n?)g5   3LIRS 111655Z 34004KT CAVOK 06/M01 Q1011 RMK SCT SCT200 VIS MIN 9999 WIND THR03 35004KT WIND THR21 36005KT BLULIRS2019-12-11T16:55:00Z42.7511.076.0-1.034046.2129.852362VFRMETAR7.02019-12-11 17:10:45K>)'5   3LIRG 111655Z VRB02KT CAVOK 07/01 Q1010 RMK SKC MON NE LIB NC VIS MIN 9999 BLULIRG2019-12-11T16:55:00Z42.012.727.01.0026.2129.822834VFRMETAR89.02019-12-11 17:10:45f=)Y5   3LIRH 111655Z 02002KT CAVOK 07/03 Q1009 RMK SKC MON INVIS VAR RAPID VIS MIN 9999 WIND THR16 /////KT BLULIRH2019-12-11T16:55:00Z41.6513.37.03.02026.2129.793306VFRMETAR181.02019-12-11 17:10:45 2^ZD)5    3KNKX 111655Z 34004KT 10SM FEW200 16/09 A3021 RMK AO2 SLP227 T01560089 $KNKX2019-12-11T16:55:00Z32.87-117.1315.68.9340410.030.2096461022.7TRUETRUEVFRSPECI146.02019-12-11 17:10:45OC)5     3KFWB 111655Z AUTO 25007KT 10SM CLR 07/M06 A3050 RMK AO2 PWINO PNOKFWB2019-12-11T16:55:00Z36.7-93.47.0-6.0250710.030.499016TRUETRUETRUEVFRMETAR406.02019-12-11 17:10:45`B)K5   3LICT 111655Z 33015KT 9999 SCT027 SCT040 14/06 Q1011 RMK BKN VIS MIN 9999 WIND THR13 32014KT BLULICT2019-12-11T16:55:00Z37.9212.514.06.0330156.2129.852362VFRMETAR7.02019-12-11 17:10:45dA)Q5   3LIRV 111655Z 04007KT CAVOK 04/M02 Q1010 RMK SKC MON E SE LIB NC VIS MIN 9999 WIND THR04/////KT BLULIRV2019-12-11T16:55:00Z42.4212.074.0-2.04076.2129.822834VFRMETAR300.02019-12-11 17:10:45 ,WGH)5    3EBFS 111655Z AUTO 18009KT 9999 SCT006/// BKN150/// 04/04 Q1006 YLOEBFS2019-12-11T16:55:00Z50.224.654.04.018096.2129.704725TRUEVFRMETAR299.02019-12-11 17:10:45;G(}5    3EBBL 111655Z AUTO 20004KT 9999 OVC170/// 05/04 Q1005 BLUEBBL2019-12-11T16:55:00Z51.175.475.04.020046.2129.675198TRUEVFRMETAR64.02019-12-11 17:10:45PF)5    3KNFG 111655Z 00000KT 10SM SCT250 09/06 A3022 RMK AO2 SLP233 T00940061KNFG2019-12-11T16:55:00Z33.28-117.339.46.10010.030.2214571023.3TRUEVFRMETAR24.02019-12-11 17:10:45OE) 5   3KEDJ 111655Z AUTO 25014G19KT 10SM OVC019 M04/M04 A3039 RMK AO1KEDJ2019-12-11T16:55:00Z40.37-83.82-4.0-4.0250141910.030.389763TRUETRUEMVFRSPECI342.02019-12-11 17:10:45 e?FEe[L)75    3LIBQ 111655Z 03018KT 0000 FZFG VV/// 00/00 Q1004 RMK MON INVIS VAL INVIS VIS MIN 0000LIBQ2019-12-11T16:55:00Z39.3216.380.00.030180.029.64567FZFGLIFRMETAR1720.02019-12-11 17:10:45|K)5   3LIBN 111655Z 33007KT 9999 SCT020 SCT035 13/11 Q1006 RMK BKN BKN070 VIS MIN 9999 WIND THR14 33006KT WIND THR32 33006KT BLULIBN2019-12-11T16:55:00Z40.2218.1313.011.033076.2129.704725VFRMETAR61.02019-12-11 17:10:45tJ)q5   3LIBA 111655Z 29012KT 9999 FEW040 08/05 Q1009 RMK SCT SCT070 VIS MIN 9999 WIND THR11 28012KT WIND THR29 /////KT BLULIBA2019-12-11T16:55:00Z41.5215.728.05.0290126.2129.793306VFRMETAR60.02019-12-11 17:10:45};}(5   3CXSP 111600Z AUTO 11007KT M20/M23 RMK AO1 T11981227 50006CXSP2019-12-11T16:00:00Z54.02-111.27-19.8-22.71107TRUETRUE0.6METAR649.02019-12-11 17:10:45<|(w5    3FTTJ 111600Z 30007KT 300V360 CAVOK 33/M01 Q1009 NOSIGFTTJ2019-12-11T16:00:00Z12.1215.0233.0-1.030076.2129.793306TRUEVFRMETAR295.02019-12-11 17:10:45R{)5    3FZWA 111600Z 27006KT 8000 SCT010 FEW020CB BKN120 22/20 Q1003 RETSRA NOSIGFZWA2019-12-11T16:00:00Z-6.1223.5722.020.027064.9729.616142TRUEMVFRMETAR677.02019-12-11 17:10:45fz)Q5    3EGXW 111650Z 23008KT 9999 -RA FEW013 SCT023 BKN050 05/03 Q0999 RERA BECMG FEW023 RMK WHT BECMG BLUEGXW2019-12-11T16:50:00Z53.18-0.525.03.023086.2129.498032-RAVFRSPECI70.02019-12-11 17:10:45 3f)-5    3CYZE 111704Z AUTO 28018G30KT 1 3/4SM HZ CLR M10/M16 A3006 RMK VIS VRB 1-3 SLP194CYZE2019-12-11T17:04:00Z45.87-82.57-10.0-16.028018301.7530.0590551019.4TRUEHZIFRSPECI193.02019-12-11 17:14:089(y5   3SUAA 111600Z 30008KT 9999 FEW020TCU SCT200 36/16 Q1004SUAA2019-12-11T16:00:00Z-34.77-56.2536.016.030086.2129.64567VFRMETAR54.02019-12-11 17:10:45G) 5    3CWJT 111600Z AUTO 00018KT M09/M13 RMK AO1 SLP221 T10871133 58023CWJT2019-12-11T16:00:00Z46.07-74.57-8.7-13.30181022.1TRUETRUE-2.3METAR239.02019-12-11 17:10:45([5    3CWDT 111600Z AUTO 19004KT RMK AO1 58006CWDT2019-12-11T16:00:00Z49.88-71.251904TRUETRUE-0.6METAR399.02019-12-11 17:10:45H~) 5    3CWIX 111600Z AUTO 23006KT M14/M19 RMK AO1 SLP219 T11431191 56012CWIX2019-12-11T16:00:00Z48.6-71.72-14.3-19.123061021.9TRUETRUE-1.2METAR113.02019-12-11 17:10:45 r 7DrM)5    3KEIK 111717Z AUTO 00000KT 10SM CLR 03/M03 A3013 RMK AO2 T00281028KEIK2019-12-11T17:17:00Z40.02-105.052.8-2.80010.030.129921TRUETRUEVFRMETAR1564.02019-12-11 17:20:59n)_5    3EGYM 111650Z 19008KT 9999 -SHRA FEW024 BKN032 OVC050 06/04 Q0999 TEMPO 6000 SHRA SCT022 RMK BLU TEMPO WHTEGYM2019-12-11T16:50:00Z52.630.576.04.019086.2129.498032-SHRAVFRMETAR23.02019-12-11 17:14:09d)95   3KI19 111655Z AUTO 23010G17KT 10SM SCT030 SCT049 OVC065 M01/M08 A3044 RMK AO2 T10141079KI192019-12-11T16:55:00Z39.7-83.98-1.4-7.9230101710.030.43996TRUETRUEVFRMETAR289.02019-12-11 17:14:09[)%5    3KMLF 111701Z AUTO 20011KT 10SM CLR 03/M03 A3021 RMK AO2 WSHFT 1647 T00281033KMLF2019-12-11T17:01:00Z38.42-113.022.8-3.32001110.030.209646TRUETRUEVFRMETAR1534.02019-12-11 17:14:08 .=H> (u5    3YTEF 111716Z AUTO 16017KT 6000 // OVC027 30/08 Q1010YTEF2019-12-11T17:16:00Z-21.72122.2330.08.0160173.7329.822834TRUEMVFRSPECI296.02019-12-11 17:20:59p )G5     3CYBW 111716Z AUTO 18005KT 1SM R35/P6000FT/D -SN BKN024 BKN032 OVC045 M08/M10 A2980 RMK SLP163CYBW2019-12-11T17:16:00Z51.1-114.37-8.0-10.018051.029.7992131016.3TRUE-SNIFRSPECI1200.02019-12-11 17:20:59l)75    3CZPC 111716Z AUTO 26015G23KT 9SM -RA -UP BKN055 BKN073 OVC090 01/M04 A2980 RMK SLP128CZPC2019-12-11T17:16:00Z49.52-114.01.0-4.026015239.029.7992131012.8TRUE-RA UPVFRSPECI1190.02019-12-11 17:20:59M)5    3CYYW 111716Z AUTO 29015KT 5SM BKN019 M24/M29 A3004 RMK SLP232CYYW2019-12-11T17:16:00Z50.3-88.9-24.0-29.0290155.030.0413381023.2TRUEMVFRSPECI351.02019-12-11 17:20:59 Cyd)75   3KVLL 111715Z AUTO 26016G24KT 7SM SCT019 BKN034 OVC042 M05/M11 A3029 RMK AO2 T10521111KVLL2019-12-11T17:15:00Z42.55-83.18-5.2-11.126016247.030.28937TRUETRUEVFRMETAR222.02019-12-11 17:20:59E (}5    3KVVV 111715Z AUTO 18003KT 10SM CLR M19/M23 A3043 RMK AO2KVVV2019-12-11T17:15:00Z45.3-96.42-19.0-23.0180310.030.431103TRUETRUEVFRMETAR335.02019-12-11 17:20:59V )5    3K40B 111716Z AUTO VRB06KT M08/M16 A3009 RMK AO1 SLP226 T10831163 58016 K40B2019-12-11T17:16:00Z46.62-69.52-8.3-16.30630.0885831022.6TRUETRUE-1.6METAR314.02019-12-11 17:20:59] )!5     3KGNB 111716Z AUTO 00000KT 1/4SM +SN BKN002 M13/M14 A3024 RMK AO2 T11291144KGNB2019-12-11T17:16:00Z40.08-105.92-12.9-14.4000.2530.239174TRUETRUE+SNLIFRMETAR2500.02019-12-11 17:20:59 ;tW)5   3KANK 111715Z AUTO 34014G17KT 10SM CLR M01/M12 A3029 RMK AO1 T10111120KANK2019-12-11T17:15:00Z38.53-106.05-1.1-12.0340141710.030.28937TRUETRUEVFRMETAR2293.02019-12-11 17:20:59T)5    3KUKT 111715Z AUTO 26005KT 10SM SCT028 SCT037 BKN048 02/M03 A3026 RMK A01KUKT2019-12-11T17:15:00Z40.43-75.382.0-3.0260510.030.259842TRUETRUEVFRMETAR160.02019-12-11 17:20:59B(}5    3KULM 111715Z AUTO 00000KT 10SM CLR M19/M23 A3044 RMK AO2KULM2019-12-11T17:15:00Z44.32-94.5-19.0-23.00010.030.43996TRUETRUEVFRMETAR308.02019-12-11 17:20:59@({5    3KUOX 111715Z AUTO 00000KT 10SM CLR 05/M03 A3059 RMK AO2KUOX2019-12-11T17:15:00Z34.38-89.535.0-3.00010.030.590551TRUETRUEVFRMETAR137.02019-12-11 17:20:59 .SA(y5    3KBDN 111715Z AUTO 21013KT 10SM CLR 05/01 A3005 RMK AO2KBDN2019-12-11T17:15:00Z44.1-121.25.01.02101310.030.050198TRUETRUEVFRMETAR1055.02019-12-11 17:20:59D(5   3KGGE 111715Z AUTO 01009G14KT 10SM CLR 13/04 A3034 RMK AO2KGGE2019-12-11T17:15:00Z33.32-79.3213.04.01091410.030.339567TRUETRUEVFRMETAR12.02019-12-11 17:20:59V)5     3K1S5 111715Z AUTO 00000KT 1 3/4SM BR OVC004 02/02 A3013 RMK AO2 T00150015K1S52019-12-11T17:15:00Z46.33-119.971.51.5001.7530.129921TRUETRUEBRLIFRMETAR234.02019-12-11 17:20:59M)5    3K8W2 111715Z AUTO 23006KT 10SM CLR 02/M10 A3036 RMK AO1 T00211105K8W22019-12-11T17:15:00Z38.65-78.72.1-10.5230610.030.360237TRUETRUEVFRMETAR297.02019-12-11 17:20:59 ,[P)5    3KX07 111715Z AUTO 00000KT 10SM SCT023 SCT037 BKN085 28/22 A3020 RMK A01KX072019-12-11T17:15:00Z27.9-81.6228.022.00010.030.200787TRUETRUEVFRMETAR39.02019-12-11 17:20:59:(s5   3KSEM 111715Z AUTO 03011KT 10SM 09/M03 A3050 RMK AO2KSEM2019-12-11T17:15:00Z32.35-86.989.0-3.0301110.030.499016TRUETRUEMETAR51.02019-12-11 17:20:59L)5    3KOIN 111715Z AUTO 08009KT 10SM CLR 00/M03 A3029 RMK AO1 T00011028KOIN2019-12-11T17:15:00Z39.83-100.530.1-2.880910.030.28937TRUETRUEVFRMETAR824.02019-12-11 17:20:59O)5    3KPBH 111715Z AUTO 24006KT 10SM CLR M20/M24 A3030 RMK AO2 T12011239KPBH2019-12-11T17:15:00Z45.7-90.4-20.1-23.9240610.030.301182TRUETRUEVFRMETAR449.02019-12-11 17:20:59 :EM)5   3KDYB 111715Z AUTO 35008G14KT 330V030 10SM CLR 14/05 A3033 RMK AO2KDYB2019-12-11T17:15:00Z33.07-80.2814.05.035081410.030.33071TRUETRUEVFRMETAR18.02019-12-11 17:20:597(s5     3KDYT 111715Z AUTO 23007KT 10SM OVC050 A3040 RMK AO2KDYT2019-12-11T17:15:00Z46.72-92.03230710.030.398623TRUETRUEVFRMETAR186.02019-12-11 17:20:59p)U5    3CYHZ 111715Z 34008KT 1/2SM R23/6000FT/D R14/4500VP6000FT/D SN OVC003 M01/M01 A3005 RMK SN7ST1 SLP182CYHZ2019-12-11T17:15:00Z44.87-63.5-1.0-1.034080.530.0501981018.2SNLIFRSPECI145.02019-12-11 17:20:59A(}5    3KVNC 111715Z AUTO 25003KT 8SM SCT003 26/24 A3019 RMK AO2KVNC2019-12-11T17:15:00Z27.07-82.4326.024.025038.030.188976TRUETRUEVFRMETAR6.02019-12-11 17:20:59bR7RY`gnu|$+29@GNU\cjqx  '.5<CJQX_fmt{kosw{ #kosw{ #'+/37<@DHLPTX\aejoty} "&*.26:>B F J N R VZ^bfkosw{   $!(",#0$4%8&='A(E)I*M+Q,U-Y.]/a0e1i2m3q4u5y6} 6bL")5    3KEHO 111715Z AUTO 34003KT 10SM CLR 08/M07 A3041 RMK AO2 T00801072KEHO2019-12-11T17:15:00Z35.25-81.68.0-7.2340310.030.410433TRUETRUEVFRMETAR258.02019-12-11 17:20:59O!)5    3KDNV 111715Z AUTO 26007KT 10SM OVC050 M02/M08 A3044 RMK AO2 T10241082KDNV2019-12-11T17:15:00Z40.2-87.6-2.4-8.2260710.030.43996TRUETRUEVFRMETAR212.02019-12-11 17:20:59` )+5    3KDRM 111715Z AUTO 26007G18KT 210V330 5SM HZ CLR M08/M15 A3010 RMK AO2 T10831147KDRM2019-12-11T17:15:00Z46.0-83.75-8.3-14.72607185.030.100393TRUETRUEHZMVFRMETAR204.02019-12-11 17:20:59`)+5   3KDUH 111715Z AUTO 27010G19KT 10SM BKN031 OVC039 M04/M11 A3035 RMK AO2 T10441109KDUH2019-12-11T17:15:00Z41.73-83.65-4.4-10.9270101910.030.351377TRUETRUEVFRMETAR204.02019-12-11 17:20:59 9_g&)95   3KHAI 111715Z AUTO 30012G19KT 10SM SCT018 BKN028 OVC036 M05/M10 A3037 RMK AO2 T10521100KHAI2019-12-11T17:15:00Z41.97-85.6-5.2-10.0300121910.030.369095TRUETRUEMVFRMETAR251.02019-12-11 17:20:59C%(}5    3KHCO 111715Z AUTO 00000KT 10SM CLR M21/M26 A3033 RMK AO2KHCO2019-12-11T17:15:00Z48.75-96.93-21.0-26.00010.030.33071TRUETRUEVFRMETAR250.02019-12-11 17:20:59U$)!5    3KASJ 111715Z AUTO 34005KT 10SM BKN020 OVC027 04/01 A3039 RMK AO2 T00370009KASJ2019-12-11T17:15:00Z36.28-77.173.70.9340510.030.389763TRUETRUEMVFRMETAR21.02019-12-11 17:20:59B#({5    3KBRY 111715Z AUTO 26010KT 10SM CLR 02/M06 A3053 RMK AO1KBRY2019-12-11T17:15:00Z37.82-85.52.0-6.02601010.030.528543TRUETRUEVFRMETAR204.02019-12-11 17:20:59 3RiJ*)5    3KY19 111715Z AUTO 14007KT 10SM FEW075 M18/M20 A3024 RMK AO2KY192019-12-11T17:15:00Z46.77-100.9-18.0-20.0140710.030.239174TRUETRUEVFRMETAR593.02019-12-11 17:20:59d))/5    3KY70 111715Z AUTO 28019G29KT 5SM HZ BKN032 BKN038 M07/M15 A3032 RMK AO2 T10711152KY702019-12-11T17:15:00Z42.93-85.07-7.1-15.228019295.030.318897TRUETRUEHZMVFRMETAR250.02019-12-11 17:20:59\()'5   3K6B9 111715Z AUTO 24008G16KT 210V270 10SM BKN038 OVC044 M01/M08 A3012 RMK AO2K6B92019-12-11T17:15:00Z42.92-76.43-1.0-8.024081610.030.121063TRUETRUEVFRMETAR316.02019-12-11 17:20:59H')5    3K6L4 111715Z AUTO 24007KT 10SM SCT023 M02/M07 A3045 RMK AO2K6L42019-12-11T17:15:00Z37.85-81.92-2.0-7.0240710.030.448818TRUETRUEVFRMETAR508.02019-12-11 17:20:59 %Nz?.({5    3KCDH 111715Z AUTO 00000KT 10SM CLR 09/M02 A3059 RMK AO2KCDH2019-12-11T17:15:00Z33.62-92.779.0-2.00010.030.590551TRUETRUEVFRMETAR35.02019-12-11 17:20:59O-)5    3KCDA 111715Z AUTO 09004KT 10SM CLR M05/M14 A3014 RMK AO2 T10511138KCDA2019-12-11T17:15:00Z44.57-72.02-5.1-13.890410.030.138779TRUETRUEVFRMETAR363.02019-12-11 17:20:59R,)5   3KW78 111715Z AUTO 33009G15KT 10SM CLR 06/M08 A3041 RMK AO1 T00561080KW782019-12-11T17:15:00Z36.68-78.855.6-8.033091510.030.410433TRUETRUEVFRMETAR129.02019-12-11 17:20:59V+)!5    3KX60 111715Z AUTO 02010KT 10SM SCT024 BKN031 21/15 A3024 RMK AO2 T02080151KX602019-12-11T17:15:00Z29.35-82.4720.815.1201010.030.239174TRUETRUEVFRMETAR23.02019-12-11 17:20:59 $eE2(}5    3KCIN 111715Z AUTO 07007KT 10SM CLR M10/M15 A3043 RMK AO2KCIN2019-12-11T17:15:00Z42.03-94.77-10.0-15.070710.030.431103TRUETRUEVFRMETAR375.02019-12-11 17:20:59?1(y5    3KCDN 111715Z AUTO 33007KT 10SM CLR 09/02 A3040 RMK AO2KCDN2019-12-11T17:15:00Z34.28-80.579.02.0330710.030.398623TRUETRUEVFRMETAR92.02019-12-11 17:20:59:0(w5    3KCFE 111715Z 10SM CLR M19/M24 A3046 RMK AO2 T11901236KCFE2019-12-11T17:15:00Z45.17-93.85-19.0-23.610.030.46063TRUEVFRMETAR295.02019-12-11 17:20:59W/)5   3KCDI 111715Z AUTO 24005G16KT 10SM OVC036 M02/M08 A3041 RMK AO2 T10161085KCDI2019-12-11T17:15:00Z39.97-81.58-1.6-8.524051610.030.410433TRUETRUEVFRMETAR244.02019-12-11 17:20:59 /fL6)5    3KCJR 111715Z AUTO 28006KT 10SM CLR 05/M07 A3038 RMK AO2 T00471074KCJR2019-12-11T17:15:00Z38.53-77.874.7-7.4280610.030.380905TRUETRUEVFRMETAR97.02019-12-11 17:20:59F5(}5    3KCKC 111715Z AUTO 28006KT 10SM CLR M21/M27 A3008 RMK AO2KCKC2019-12-11T17:15:00Z47.83-90.37-21.0-27.0280610.030.079725TRUETRUEVFRMETAR548.02019-12-11 17:20:59D4(}5    3KCKN 111715Z AUTO 00000KT 10SM CLR M23/M27 A3039 RMK AO2KCKN2019-12-11T17:15:00Z47.85-96.62-23.0-27.00010.030.389763TRUETRUEVFRMETAR273.02019-12-11 17:20:59L3)5    3KCMD 111715Z AUTO 02005KT 10SM CLR 04/M04 A3054 RMK AO2 T00401045KCMD2019-12-11T17:15:00Z34.27-86.854.0-4.520510.030.540354TRUETRUEVFRMETAR294.02019-12-11 17:20:59 $TC:(}5    3KCNC 111715Z AUTO 01009KT 10SM CLR M04/M07 A3043 RMK AO2KCNC2019-12-11T17:15:00Z41.02-93.37-4.0-7.010910.030.431103TRUETRUEVFRMETAR320.02019-12-11 17:20:59C9(}5    3KCOQ 111715Z AUTO 28009KT 10SM CLR M21/M26 A3031 RMK AO2KCOQ2019-12-11T17:15:00Z46.7-92.5-21.0-26.0280910.030.31004TRUETRUEVFRMETAR390.02019-12-11 17:20:59K8) 5    3KCPC 111715Z AUTO 35006KT 10SM CLR 11/00 A3035 RMK AO2 T01070002KCPC2019-12-11T17:15:00Z34.28-78.7210.70.2350610.030.351377TRUETRUEVFRMETAR29.02019-12-11 17:20:59W7)5   3KISQ 111715Z AUTO 26010G18KT 10SM CLR M15/M21 A3021 RMK AO2 T11491213KISQ2019-12-11T17:15:00Z45.97-86.17-14.9-21.3260101810.030.209646TRUETRUEVFRMETAR209.02019-12-11 17:20:59 8hN>) 5     3KCPT 111715Z AUTO 16007KT 10SM SCT012 06/03 A3056 RMK AO2 PWINOKCPT2019-12-11T17:15:00Z32.35-97.436.03.0160710.030.561024TRUETRUETRUEVFRMETAR260.02019-12-11 17:20:59M=)5    3KCPU 111715Z AUTO 00000KT 10SM OVC070 09/07 A3026 RMK AO2 T00880068KCPU2019-12-11T17:15:00Z38.15-120.658.86.80010.030.259842TRUETRUEVFRMETAR404.02019-12-11 17:20:59K<)5     3KCMR 111715Z AUTO 00000KT 10SM CLR 04/M05 A3027 RMK AO2 PWINOKCMR2019-12-11T17:15:00Z35.3-112.24.0-5.00010.030.268702TRUETRUETRUEVFRMETAR2036.02019-12-11 17:20:59C;(}5    3KCNB 111715Z AUTO 00000KT 10SM CLR M11/M18 A3044 RMK AO2KCNB2019-12-11T17:15:00Z44.73-96.27-11.0-18.00010.030.43996TRUETRUEVFRMETAR364.02019-12-11 17:20:59 1nAB(}5    3KHEG 111715Z AUTO 36009KT 7SM OVC006 13/12 A3032 RMK AO2KHEG2019-12-11T17:15:00Z30.28-81.813.012.036097.030.318897TRUETRUEIFRMETAR27.02019-12-11 17:20:59MA)5    3K1A5 111715Z AUTO 35005KT 10SM CLR 06/M08 A3045 RMK AO2 T00551085K1A52019-12-11T17:15:00Z35.22-83.425.5-8.5350510.030.448818TRUETRUEVFRMETAR616.02019-12-11 17:20:59>@(y5    3KCQW 111715Z AUTO 02009KT 10SM CLR 08/00 A3040 RMK AO2KCQW2019-12-11T17:15:00Z34.72-79.958.00.020910.030.398623TRUETRUEVFRMETAR73.02019-12-11 17:20:59J?)5   3KCSQ 111715Z AUTO 06010G15KT 10SM CLR M04/M04 A3040 RMK AO2KCSQ2019-12-11T17:15:00Z41.02-94.37-4.0-4.060101510.030.398623TRUETRUEVFRMETAR394.02019-12-11 17:20:59 /lNF)5    3KOXI 111715Z AUTO 27009KT 4SM BKN017 OVC023 M06/M09 A3043 RMK AO1KOXI2019-12-11T17:15:00Z41.33-86.67-6.0-9.027094.030.431103TRUETRUEMVFRMETAR209.02019-12-11 17:20:59ME)5    3KOWP 111715Z AUTO 21008KT 10SM CLR 09/M01 A3049 RMK AO2 T00891014KOWP2019-12-11T17:15:00Z36.18-96.158.9-1.4210810.030.490158TRUETRUEVFRMETAR272.02019-12-11 17:20:59>D(}5    3KORS 111715Z AUTO VRB04KT 9SM OVC014 08/08 A2999 RMK AO2KORS2019-12-11T17:15:00Z48.7-122.928.08.0049.029.991142TRUETRUEMVFRMETAR9.02019-12-11 17:20:59LC)5    3KDYA 111715Z AUTO 33007KT 10SM CLR 07/M01 A3054 RMK AO2 T00731015KDYA2019-12-11T17:15:00Z32.47-87.957.3-1.5330710.030.540354TRUETRUEVFRMETAR34.02019-12-11 17:20:59 9mTJ)5     3KCVH 111715Z AUTO 00000KT 6SM BR SCT043 SCT050 BKN060 11/10 A3027 RMK A01KCVH2019-12-11T17:15:00Z36.9-121.4211.010.0006.030.268702TRUETRUEBRVFRMETAR70.02019-12-11 17:20:59aI))5    3KCVX 111715Z AUTO 27016G28KT 1 1/4SM HZ OVC028 M11/M16 A3022 RMK AO2 T11061157KCVX2019-12-11T17:15:00Z45.3-85.27-10.6-15.727016281.2530.221457TRUETRUEHZIFRMETAR204.02019-12-11 17:20:59GH)5    3KOXV 111715Z AUTO 04007KT 10SM FEW016 M06/M09 A3045 RMK AO2KOXV2019-12-11T17:15:00Z41.28-93.12-6.0-9.040710.030.448818TRUETRUEVFRMETAR283.02019-12-11 17:20:59BG(y5    3KPAN 111715Z AUTO 10005KT 10SM CLR 07/01 A3030 RMK AO2KPAN2019-12-11T17:15:00Z34.25-111.337.01.0100510.030.301182TRUETRUEVFRMETAR1572.02019-12-11 17:20:59 'JmN)?5    3KD95 111715Z AUTO 28015G24KT 5SM -SN SCT021 SCT027 BKN035 M06/M12 A3025 RMK AO2 T10621124KD952019-12-11T17:15:00Z43.07-83.27-6.2-12.428015245.030.250984TRUETRUE-SNMVFRMETAR255.02019-12-11 17:20:59FM(}5    3KDEH 111715Z AUTO 35007KT 10SM CLR M13/M20 A3040 RMK AO2KDEH2019-12-11T17:15:00Z43.27-91.72-13.0-20.0350710.030.398623TRUETRUEVFRMETAR353.02019-12-11 17:20:59XL)#5   3KCWC 111715Z AUTO 17007G14KT 140V200 10SM CLR 08/01 A3052 RMK AO2 T00820014KCWC2019-12-11T17:15:00Z33.85-98.488.21.417071410.030.519686TRUETRUEVFRMETAR305.02019-12-11 17:20:59TK)5    3KCTZ 111715Z AUTO 33009KT 310V010 10SM CLR 09/M03 A3037 RMK AO2 T00851035KCTZ2019-12-11T17:15:00Z34.98-78.378.5-3.5330910.030.369095TRUETRUEVFRMETAR45.02019-12-11 17:20:59 +ZGR)5   3KCZL 111715Z AUTO 02009G15KT 10SM CLR 06/M03 A3052 RMK AO2KCZL2019-12-11T17:15:00Z34.47-84.936.0-3.02091510.030.519686TRUETRUEVFRMETAR195.02019-12-11 17:20:59@Q(y5    3KCZT 111715Z AUTO 05006KT 10SM CLR 11/03 A3051 RMK AO2KCZT2019-12-11T17:15:00Z28.52-99.8211.03.050610.030.510826TRUETRUEVFRMETAR183.02019-12-11 17:20:59LP)5    3KD57 111715Z AUTO 14010KT 10SM OVC060 M15/M19 A3017 RMK AO2KD572019-12-11T17:15:00Z46.82-101.87-15.0-19.01401010.030.171259TRUETRUEVFRMETAR637.02019-12-11 17:20:59PO)5    3KD60 111715Z AUTO 13009KT 10SM BKN055 OVC065 M17/M19 A3015 RMK AO2KD602019-12-11T17:15:00Z48.38-102.9-17.0-19.0130910.030.15059TRUETRUEVFRMETAR693.02019-12-11 17:20:59 %Q@V({5    3KSIK 111715Z AUTO 20008KT 10SM CLR 05/M02 A3056 RMK AO2KSIK2019-12-11T17:15:00Z36.9-89.575.0-2.0200810.030.561024TRUETRUEVFRMETAR96.02019-12-11 17:20:59EU(}5    3KDNS 111715Z AUTO 11010KT 10SM CLR M09/M12 A3044 RMK AO2KDNS2019-12-11T17:15:00Z41.97-95.37-9.0-12.01101010.030.43996TRUETRUEVFRMETAR388.02019-12-11 17:20:59OT)5     3KDLO 111715Z AUTO 00000KT 2SM BR OVC003 06/05 A3029 RMK AO2 T00580054KDLO2019-12-11T17:15:00Z35.75-119.235.85.4002.030.28937TRUETRUEBRLIFRMETAR96.02019-12-11 17:20:59VS)5   3KDLZ 111715Z AUTO 24010G15KT 10SM BKN029 OVC060 M02/M07 A3040 RMK AO2KDLZ2019-12-11T17:15:00Z40.28-83.12-2.0-7.0240101510.030.398623TRUETRUEMVFRMETAR289.02019-12-11 17:20:59 9f:Z(y5   3KI16 111715Z AUTO 10SM M01/M05 A3048 RMK AO2 T10061048KI162019-12-11T17:15:00Z37.6-81.57-0.6-4.810.030.481298TRUETRUEMETAR544.02019-12-11 17:20:59DY(}5    3KI23 111715Z AUTO 24016KT 10SM CLR M02/M08 A3042 RMK AO1KI232019-12-11T17:15:00Z39.57-83.42-2.0-8.02401610.030.41929TRUETRUEVFRMETAR299.02019-12-11 17:20:59NX)5    3KI35 111715Z AUTO 26003KT 10SM CLR 00/M05 A3050 RMK AO2 T10041054KI352019-12-11T17:15:00Z36.87-83.37-0.4-5.4260310.030.499016TRUETRUEVFRMETAR473.02019-12-11 17:20:59BW({5    3KM25 111715Z AUTO 16004KT 10SM CLR 04/M02 A3057 RMK AO2KM252019-12-11T17:15:00Z36.77-88.584.0-2.0160410.030.569881TRUETRUEVFRMETAR160.02019-12-11 17:20:59 )`U^)5   3KHLX 111715Z AUTO 29011G19KT 10SM CLR M01/M09 A3034 RMK AO2 T10151090KHLX2019-12-11T17:15:00Z36.77-80.82-1.5-9.0290111910.030.339567TRUETRUEVFRMETAR834.02019-12-11 17:20:59A]({5    3KHVE 111715Z AUTO 00000KT 10SM CLR 00/M02 A3032 RMK AO2KHVE2019-12-11T17:15:00Z38.42-110.70.0-2.00010.030.318897TRUETRUEVFRMETAR1350.02019-12-11 17:20:59D\(5   3KHVS 111715Z AUTO 35005G11KT 10SM CLR 08/02 A3039 RMK AO2KHVS2019-12-11T17:15:00Z34.4-80.128.02.035051110.030.389763TRUETRUEVFRMETAR111.02019-12-11 17:20:59R[)5    3KHZE 111715Z AUTO 13005KT 10SM FEW060 SCT070 M16/M19 A3024 RMK AO2KHZE2019-12-11T17:15:00Z47.28-101.58-16.0-19.0130510.030.239174TRUETRUEVFRMETAR553.02019-12-11 17:20:59 .GuUb)5    3KPCD 111715Z AUTO 24007KT 170V260 10SM CLR 05/M05 A3049 RMK AO2 T00531048KPCD2019-12-11T17:15:00Z37.87-89.875.3-4.8240710.030.490158TRUETRUEVFRMETAR113.02019-12-11 17:20:59Ma)5    3KPEZ 111715Z AUTO 04004KT 10SM OVC009 05/02 A3056 RMK AO2 T00450019KPEZ2019-12-11T17:15:00Z28.95-98.524.51.940410.030.561024TRUETRUEIFRMETAR132.02019-12-11 17:20:59b`)+5    3KPHN 111715Z AUTO 25012G16KT 7SM -SN SCT019 BKN035 OVC045 M05/M10 A3024 RMK AO2KPHN2019-12-11T17:15:00Z42.92-82.52-5.0-10.025012167.030.239174TRUETRUE-SNVFRMETAR198.02019-12-11 17:20:59M_)5    3KPKV 111715Z AUTO 02009KT 10SM OVC016 10/07 A3052 RMK AO2 T01000067KPKV2019-12-11T17:15:00Z28.65-96.6810.06.720910.030.519686TRUETRUEMVFRMETAR9.02019-12-11 17:20:59 7[qif)75    3KPOV 111715Z AUTO 25015G22KT 10SM SCT033 BKN090 M04/M11 A3029 RMK AO2 T10361109 PWINOKPOV2019-12-11T17:15:00Z41.22-81.25-3.6-10.9250152210.030.28937TRUETRUETRUEVFRMETAR365.02019-12-11 17:20:59ee)/5    3KMGN 111715Z AUTO 28015G21KT 3SM HZ BKN028 OVC033 M10/M15 A3019 RMK AO2 T11071153KMGN2019-12-11T17:15:00Z45.43-84.92-10.7-15.328015213.030.188976TRUETRUEHZMVFRMETAR209.02019-12-11 17:20:59Wd)5   3KMKJ 111715Z AUTO 24011G16KT 10SM SCT023 00/M05 A3040 RMK AO2 T10011046KMKJ2019-12-11T17:15:00Z36.88-81.33-0.1-4.6240111610.030.398623TRUETRUEVFRMETAR780.02019-12-11 17:20:59Dc(5   3KMKS 111715Z AUTO 02009G14KT 10SM CLR 12/05 A3034 RMK AO2KMKS2019-12-11T17:15:00Z33.18-80.0312.05.02091410.030.339567TRUETRUEVFRMETAR23.02019-12-11 17:20:59 &8x&Fk(}5    3KTOB 111715Z AUTO 33003KT 10SM CLR M17/M23 A3040 RMK AO2KTOB2019-12-11T17:15:00Z44.02-92.82-17.0-23.0330310.030.398623TRUETRUEVFRMETAR398.02019-12-11 17:20:59Cj({5    3KTSP 111715Z AUTO 32006KT 10SM CLR 09/M02 A3029 RMK AO2KTSP2019-12-11T17:15:00Z35.13-118.439.0-2.0320610.030.28937TRUETRUEVFRMETAR1220.02019-12-11 17:20:59:i(s5   3KTKX 111715Z AUTO 21009KT 10SM 06/M02 A3057 RMK AO2KTKX2019-12-11T17:15:00Z36.22-90.026.0-2.0210910.030.569881TRUETRUEMETAR80.02019-12-11 17:20:59;h(s5   3KPLR 111715Z AUTO 02013KT 10SM 07/M01 A3051 RMK A01KPLR2019-12-11T17:15:00Z33.57-86.257.0-1.0201310.030.510826TRUETRUEMETAR148.02019-12-11 17:20:59Cg(}5    3KPNM 111715Z AUTO 00000KT 10SM CLR M19/M22 A3041 RMK AO2KPNM2019-12-11T17:15:00Z45.57-93.6-19.0-22.00010.030.410433TRUETRUEVFRMETAR298.02019-12-11 17:20:59 7uYo)5   3KMOP 111715Z AUTO 27014G25KT 10SM BKN032 M08/M16 A3028 RMK AO2 T10811156KMOP2019-12-11T17:15:00Z43.62-84.73-8.1-15.6270142510.030.280512TRUETRUEVFRMETAR230.02019-12-11 17:20:59dn)75     3KTMA 111715Z AUTO 36006KT 10SM -RA SCT032 SCT045 BKN100 11/07 A3036 RMK AO2 T01050072KTMA2019-12-11T17:15:00Z31.43-83.4810.57.2360610.030.360237TRUETRUE-RAVFRMETAR109.02019-12-11 17:20:59=m(y5    3KTME 111715Z AUTO 04008KT 10SM CLR 11/04 A3053 RMK AO2KTME2019-12-11T17:15:00Z29.8-95.911.04.040810.030.528543TRUETRUEVFRMETAR51.02019-12-11 17:20:59Dl(}5    3KTNU 111715Z AUTO 05008KT 10SM CLR M08/M12 A3045 RMK A01KTNU2019-12-11T17:15:00Z41.67-93.02-8.0-12.050810.030.448818TRUETRUEVFRMETAR290.02019-12-11 17:20:59 'XFs(}5    3KTWM 111715Z AUTO 26005KT 10SM CLR M20/M28 A3028 RMK AO2KTWM2019-12-11T17:15:00Z47.03-91.75-20.0-28.0260510.030.280512TRUETRUEVFRMETAR328.02019-12-11 17:20:59Or)5    3KMMH 111715Z AUTO 15004KT 10SM CLR 00/M06 A3026 RMK AO2 T00031065KMMH2019-12-11T17:15:00Z37.62-118.820.3-6.5150410.030.259842TRUETRUEVFRMETAR2173.02019-12-11 17:20:59Jq)5    3KMNE 111715Z AUTO 07004KT 10SM CLR 08/M03 A3059 RMK AO2 T00821029KMNE2019-12-11T17:15:00Z32.65-93.38.2-2.970410.030.590551TRUETRUEVFRMETAR85.02019-12-11 17:20:59Tp)5     3KMNZ 111715Z AUTO 12005KT 1/2SM FG OVC002 02/02 A3055 RMK AO2 T00220022KMNZ2019-12-11T17:15:00Z31.67-98.152.22.212050.530.549213TRUETRUEFGLIFRMETAR396.02019-12-11 17:20:59 "ZDw(}5    3KMUT 111715Z AUTO 35009KT 10SM CLR M05/M09 A3048 RMK AO2KMUT2019-12-11T17:15:00Z41.37-91.15-5.0-9.0350910.030.481298TRUETRUEVFRMETAR167.02019-12-11 17:20:59Sv)5   3KMWK 111715Z AUTO 31013G16KT 10SM CLR 04/M06 A3041 RMK AO2 T00441063KMWK2019-12-11T17:15:00Z36.47-80.554.4-6.3310131610.030.410433TRUETRUEVFRMETAR380.02019-12-11 17:20:59Cu(}5    3KMXO 111715Z AUTO 02008KT 10SM CLR M08/M14 A3044 RMK AO2KMXO2019-12-11T17:15:00Z42.22-91.17-8.0-14.020810.030.43996TRUETRUEVFRMETAR259.02019-12-11 17:20:59Yt)5   3KTTF 111715Z AUTO 26016G20KT 10SM OVC029 M05/M12 A3033 RMK AO2 T10471120KTTF2019-12-11T17:15:00Z41.93-83.42-4.7-12.0260162010.030.33071TRUETRUEMVFRMETAR188.02019-12-11 17:20:59 7ntA{(5    3KLKR 111715Z AUTO VRB05KT 10SM FEW027 09/00 A3040 RMK AO2KLKR2019-12-11T17:15:00Z34.72-80.859.00.00510.030.398623TRUETRUEVFRMETAR149.02019-12-11 17:20:59uz)]5     3KLNA 111715Z AUTO 17007KT 2 1/2SM +RA SCT008 BKN015 OVC021 24/22 A3018 RMK AO2 VIS 1 1/2V5 T02360217 PNOKLNA2019-12-11T17:15:00Z26.6-80.0223.621.717072.530.180119TRUETRUE+RAIFRMETAR11.02019-12-11 17:20:59Dy(}5    3KLRJ 111715Z AUTO 09006KT 10SM CLR M12/M17 A3043 RMK AO2KLRJ2019-12-11T17:15:00Z42.77-96.2-12.0-17.090610.030.431103TRUETRUEVFRMETAR365.02019-12-11 17:20:59Dx(}5    3KMOX 111715Z AUTO 00000KT 10SM CLR M19/M23 A3036 RMK AO2KMOX2019-12-11T17:15:00Z45.57-95.97-19.0-23.00010.030.360237TRUETRUEVFRMETAR344.02019-12-11 17:20:59 #`@(y5    3KL08 111715Z AUTO 00000KT 10SM CLR 13/05 A3021 RMK AO2KL082019-12-11T17:15:00Z33.27-116.3213.05.00010.030.209646TRUETRUEVFRMETAR159.02019-12-11 17:20:59@~(y5    3KL18 111715Z AUTO 00000KT 10SM CLR 13/05 A3023 RMK AO2KL182019-12-11T17:15:00Z33.35-117.2513.05.00010.030.230314TRUETRUEVFRMETAR216.02019-12-11 17:20:59>}(y5    3KL52 111715Z AUTO 07003KT 10SM CLR 13/09 A3026 RMK A01KL522019-12-11T17:15:00Z35.1-120.6213.09.070310.030.259842TRUETRUEVFRMETAR4.02019-12-11 17:20:59X|)5   3KLDM 111715Z AUTO 28011G19KT 7SM OVC025 M11/M16 A3036 RMK AO2 T11101165KLDM2019-12-11T17:15:00Z43.97-86.4-11.0-16.528011197.030.360237TRUETRUEMVFRMETAR197.02019-12-11 17:20:59 9g`)%5    3KJYM 111715Z AUTO 28016G19KT 10SM -SN OVC023 M07/M12 A3031 RMK AO2 T10701117KJYM2019-12-11T17:15:00Z41.92-84.58-7.0-11.7280161910.030.31004TRUETRUE-SNMVFRMETAR360.02019-12-11 17:20:59;(y5    3KJZI 111715Z AUTO 00000KT 10SM CLR 15/06 A3032 RMK AO2KJZI2019-12-11T17:15:00Z32.7-80.015.06.00010.030.318897TRUETRUEVFRMETAR6.02019-12-11 17:20:59M)5    3KK88 111715Z AUTO 19009KT 10SM CLR 06/M05 A3045 RMK AO1 T00631051KK882019-12-11T17:15:00Z37.87-95.386.3-5.1190910.030.448818TRUETRUEVFRMETAR309.02019-12-11 17:20:59B({5    3KKY8 111715Z AUTO 19008KT 10SM CLR 03/M05 A3054 RMK A01KKY82019-12-11T17:15:00Z37.95-86.873.0-5.0190810.030.540354TRUETRUEVFRMETAR126.02019-12-11 17:20:59 2b:(s5   3KJGG 111715Z AUTO 36003KT 10SM 08/M01 A3037 RMK AO1KJGG2019-12-11T17:15:00Z37.23-76.728.0-1.0360310.030.369095TRUETRUEMETAR15.02019-12-11 17:20:59E(}5    3KJMR 111715Z AUTO 26003KT 10SM CLR M19/M24 A3042 RMK AO2KJMR2019-12-11T17:15:00Z45.88-93.27-19.0-24.0260310.030.41929TRUETRUEVFRMETAR309.02019-12-11 17:20:59<(y5  3KJVW 111715Z AUTO VRB06G14KT 10SM 08/M03 A3054 RMK AO2KJVW2019-12-11T17:15:00Z32.3-90.428.0-3.0061410.030.540354TRUETRUEMETAR76.02019-12-11 17:20:59K) 5    3KJWY 111715Z AUTO 14004KT 10SM CLR 08/02 A3057 RMK AO2 T00750016KJWY2019-12-11T17:15:00Z32.45-96.927.51.6140410.030.569881TRUETRUEVFRMETAR217.02019-12-11 17:20:59I) 5    3KJYL 111715Z AUTO 03006KT 10SM CLR 16/07 A3035 RMK AO2 T01550072KJYL2019-12-11T17:15:00Z32.65-81.615.57.230610.030.351377TRUETRUEVFRMETAR57.02019-12-11 17:20:59 -sC (}5    3KICL 111715Z AUTO 08009KT 10SM CLR M01/M06 A3043 RMK AO2KICL2019-12-11T17:15:00Z40.72-95.02-1.0-6.080910.030.431103TRUETRUEVFRMETAR303.02019-12-11 17:20:59A (5   3KLRO 111715Z AUTO VRB05G17KT 10SM CLR 15/07 A3032 RMK AO2KLRO2019-12-11T17:15:00Z32.9-79.7815.07.0051710.030.318897TRUETRUEVFRMETAR4.02019-12-11 17:20:595 (k5    3KJFX 111715Z AUTO 10SM CLR 07/M02 A3054 RMK AO2KJFX2019-12-11T17:15:00Z33.9-87.327.0-2.010.030.540354TRUETRUEVFRMETAR148.02019-12-11 17:20:59N )5    3KJFZ 111715Z AUTO 26005KT 10SM CLR M03/M09 A3040 RMK AO2 T10331086KJFZ2019-12-11T17:15:00Z37.07-81.8-3.3-8.6260510.030.398623TRUETRUEVFRMETAR809.02019-12-11 17:20:59 (`D({5    3K82V 111715Z AUTO 19009KT 10SM CLR 00/M01 A3008 RMK AO2K82V2019-12-11T17:15:00Z41.15-104.130.0-1.0190910.030.079725TRUETRUEVFRMETAR1570.02019-12-11 17:20:59E(}5    3K9D7 111715Z AUTO 26005KT 10SM CLR M22/M25 A3029 RMK AO2K9D72019-12-11T17:15:00Z48.48-99.23-22.0-25.0260510.030.28937TRUETRUEVFRMETAR452.02019-12-11 17:20:59C({5    3KAAS 111715Z AUTO 22012KT 10SM CLR 03/M06 A3056 RMK AO1KAAS2019-12-11T17:15:00Z37.35-85.323.0-6.02201210.030.561024TRUETRUEVFRMETAR281.02019-12-11 17:20:59S )5   3KI75 111715Z AUTO 02008G15KT 10SM CLR M03/M09 A3043 RMK AO2 T10311087KI752019-12-11T17:15:00Z41.05-93.68-3.1-8.72081510.030.431103TRUETRUEVFRMETAR339.02019-12-11 17:20:59 1kM)5    3KM21 111715Z AUTO 20007KT 10SM CLR 03/M04 A3054 RMK AO2 T00341042KM212019-12-11T17:15:00Z37.22-87.153.4-4.2200710.030.540354TRUETRUEVFRMETAR129.02019-12-11 17:20:59E) 5    3KM40 111715Z 02009KT 10SM CLR 07/M01 A3058 RMK AO2 TEMP/DP UNRLKM402019-12-11T17:15:00Z33.87-88.487.0-1.020910.030.578741TRUEVFRMETAR69.02019-12-11 17:20:59A({5    3KLUA 111715Z AUTO 22003KT 10SM CLR 02/M07 A3036 RMK AO2KLUA2019-12-11T17:15:00Z38.67-78.52.0-7.0220310.030.360237TRUETRUEVFRMETAR275.02019-12-11 17:20:59J)5    3K7L2 111715Z AUTO 15008KT 10SM OVC070 M17/M21 A3029 RMK AO2K7L22019-12-11T17:15:00Z46.22-100.25-17.0-21.0150810.030.28937TRUETRUEVFRMETAR543.02019-12-11 17:20:59 5fT)5     3KLUD 111715Z AUTO 16007KT 1/2SM FG OVC001 03/02 A3053 RMK AO2 T00250020KLUD2019-12-11T17:15:00Z33.25-97.582.52.016070.530.528543TRUETRUEFGLIFRMETAR319.02019-12-11 17:20:59`)+5   3KLWA 111715Z AUTO 28009G16KT 10SM BKN030 OVC037 M05/M12 A3039 RMK AO2 T10481117KLWA2019-12-11T17:15:00Z42.35-86.25-4.8-11.728091610.030.389763TRUETRUEMVFRMETAR203.02019-12-11 17:20:59J) 5    3KLXY 111715Z AUTO 08003KT 10SM CLR 07/02 A3055 RMK AO2 T00680017KLXY2019-12-11T17:15:00Z31.63-96.526.81.780310.030.549213TRUETRUEVFRMETAR166.02019-12-11 17:20:59F(}5    3KLYV 111715Z AUTO 10004KT 10SM CLR M16/M20 A3041 RMK AO2KLYV2019-12-11T17:15:00Z43.62-96.22-16.0-20.0100410.030.410433TRUETRUEVFRMETAR436.02019-12-11 17:20:59 ,cK)5   3KELO 111715Z AUTO 28006G09KT 10SM CLR M23/M27 A3023 RMK AO2KELO2019-12-11T17:15:00Z47.82-91.82-23.0-27.02806910.030.230314TRUETRUEVFRMETAR443.02019-12-11 17:20:59J)5   3KEOK 111715Z AUTO 35007G12KT 10SM CLR M01/M07 A3045 RMK AO2KEOK2019-12-11T17:15:00Z40.47-91.42-1.0-7.035071210.030.448818TRUETRUEVFRMETAR205.02019-12-11 17:20:59D(5    3KMAN 111715Z AUTO 16005KT 10SM OVC048 03/03 A3019 RMK A01KMAN2019-12-11T17:15:00Z43.58-116.523.03.0160510.030.188976TRUETRUEVFRMETAR774.02019-12-11 17:20:59O)5    3KMDZ 111715Z AUTO 26008KT 10SM CLR M21/M24 A3032 RMK AO2 T12151245KMDZ2019-12-11T17:15:00Z45.1-90.3-21.5-24.5260810.030.318897TRUETRUEVFRMETAR448.02019-12-11 17:20:59 -\|^ )#5    3KOEB 111715Z AUTO 26015G20KT 5SM -SN OVC021 M06/M10 A3035 RMK AO2 T10651097KOEB2019-12-11T17:15:00Z41.92-85.03-6.5-9.726015205.030.351377TRUETRUE-SNMVFRMETAR292.02019-12-11 17:20:59[)+5     3KETC 111715Z AUTO 02005KT 3SM SCT006 OVC009 04/03 A3039 RMK AO2 PWINO T00370028KETC2019-12-11T17:15:00Z35.93-77.553.72.82053.030.389763TRUETRUETRUEIFRMETAR17.02019-12-11 17:20:59L) 5    3KECU 111715Z AUTO 18006KT 10SM BKN007 BKN010 06/04 A3053 RMK AO2KECU2019-12-11T17:15:00Z29.95-100.176.04.0180610.030.528543TRUETRUEIFRMETAR725.02019-12-11 17:20:59N)5    3KEDN 111715Z AUTO 36006KT 10SM SCT080 07/M01 A3043 RMK AO2 T00721010KEDN2019-12-11T17:15:00Z31.3-85.97.2-1.0360610.030.431103TRUETRUEVFRMETAR110.02019-12-11 17:20:59 *`A$({5    3KOKV 111715Z AUTO 30008KT 10SM CLR 01/M07 A3033 RMK AO2KOKV2019-12-11T17:15:00Z39.13-78.151.0-7.0300810.030.33071TRUETRUEVFRMETAR222.02019-12-11 17:20:59O#)5    3KOKZ 111715Z AUTO 31005KT 10SM SCT019 11/07 A3039 RMK AO2 T01120070KOKZ2019-12-11T17:15:00Z32.97-82.8311.27.0310510.030.389763TRUETRUEVFRMETAR134.02019-12-11 17:20:59E"(}5    3KMZH 111715Z AUTO 31004KT 10SM CLR M18/M24 A3036 RMK AO2KMZH2019-12-11T17:15:00Z46.42-92.8-18.0-24.0310410.030.360237TRUETRUEVFRMETAR328.02019-12-11 17:20:59Q!)5    3KOBE 111715Z AUTO 19004KT SCT017 SCT022 SCT037 27/22 A3017 RMK AO2 PWINOKOBE2019-12-11T17:15:00Z27.27-80.8527.022.0190430.171259TRUETRUETRUEMETAR11.02019-12-11 17:20:59 KL() 5    3KF46 111715Z AUTO 12005KT 10SM CLR 08/00 A3056 RMK AO2 T00751001KF462019-12-11T17:15:00Z32.93-96.437.5-0.1120510.030.561024TRUETRUEVFRMETAR176.02019-12-11 17:20:59F')5    3KFFL 111715Z AUTO 01009KT 10SM FEW019 M04/M08 A3046 RMK A01KFFL2019-12-11T17:15:00Z41.03-91.97-4.0-8.010910.030.46063TRUETRUEVFRMETAR244.02019-12-11 17:20:59D&({5    3KFFM 111715Z AUTO 18003KT 7SM CLR M23/M26 A3043 RMK AO2KFFM2019-12-11T17:15:00Z46.28-96.15-23.0-26.018037.030.431103TRUETRUEVFRMETAR361.02019-12-11 17:20:59g%)95   3KFFX 111715Z AUTO 29013G16KT 10SM SCT021 BKN028 OVC034 M09/M14 A3035 RMK AO2 T10891145KFFX2019-12-11T17:15:00Z43.43-86.0-8.9-14.5290131610.030.351377TRUETRUEMVFRMETAR236.02019-12-11 17:20:59 /ed,)95     3KFKR 111715Z AUTO 28009KT 7SM -SN SCT020 BKN035 OVC044 M02/M07 A3046 RMK AO2 T10251074KFKR2019-12-11T17:15:00Z40.27-86.57-2.5-7.428097.030.46063TRUETRUE-SNVFRMETAR262.02019-12-11 17:20:59^+)+5   3KONZ 111715Z AUTO 28014G19KT 10SM BKN031 OVC036 M05/M11 A3031 RMK AO2 T10461113KONZ2019-12-11T17:15:00Z42.1-83.15-4.6-11.3280141910.030.31004TRUETRUEVFRMETAR180.02019-12-11 17:20:59E*(}5    3KOLZ 111715Z AUTO 01007KT 10SM CLR M11/M17 A3043 RMK A01KOLZ2019-12-11T17:15:00Z42.67-91.97-11.0-17.010710.030.431103TRUETRUEVFRMETAR328.02019-12-11 17:20:59L))5    3KEXX 111715Z AUTO 35006KT 10SM CLR 06/M07 A3041 RMK AO2 T00561068KEXX2019-12-11T17:15:00Z35.78-80.35.6-6.8350610.030.410433TRUETRUEVFRMETAR223.02019-12-11 17:20:59 *OhW0)'5   3KGAO 111715Z AUTO 03014G22KT 10SM SCT044 OVC055 09/02 A3042 RMK AO2 T00940019KGAO2019-12-11T17:15:00Z29.45-90.279.41.930142210.030.41929TRUETRUEVFRMETAR1.02019-12-11 17:20:59b/)35    3KFKS 111715Z AUTO 29008KT 10SM SCT013 BKN029 OVC033 M12/M17 A3032 RMK AO2 T11201167KFKS2019-12-11T17:15:00Z44.63-86.2-12.0-16.7290810.030.318897TRUETRUEMVFRMETAR193.02019-12-11 17:20:59V.)!5    3KFSO 111715Z AUTO 20008KT 150V210 10SM CLR M02/M12 A3017 RMK AO2 T10211122KFSO2019-12-11T17:15:00Z44.93-73.1-2.1-12.2200810.030.171259TRUETRUEVFRMETAR70.02019-12-11 17:20:59Q-)5    3KFKA 111715Z AUTO 31003KT 10SM CLR M16/M21 A3041 RMK AO2 T11611215KFKA2019-12-11T17:15:00Z43.68-92.17-16.1-21.5310310.030.410433TRUETRUEVFRMETAR389.02019-12-11 17:20:59 )`M4)5    3KALX 111715Z AUTO 35007KT 10SM CLR 07/M04 A3047 RMK AO2 T00731042KALX2019-12-11T17:15:00Z32.92-85.977.3-4.2350710.030.469488TRUETRUEVFRMETAR209.02019-12-11 17:20:59M3)5    3KGLW 111715Z AUTO 20006KT 10SM CLR 04/M07 A3054 RMK AO2 T00351066KGLW2019-12-11T17:15:00Z37.03-85.953.5-6.6200610.030.540354TRUETRUEVFRMETAR218.02019-12-11 17:20:59D2(}5    3KGHW 111715Z AUTO 00000KT 10SM CLR M20/M22 A3039 RMK AO2KGHW2019-12-11T17:15:00Z45.63-95.32-20.0-22.00010.030.389763TRUETRUEVFRMETAR425.02019-12-11 17:20:59R1)5     3KGDJ 111715Z AUTO 12004KT 4SM BR OVC002 03/03 A3058 RMK AO2 T00330025KGDJ2019-12-11T17:15:00Z32.45-97.823.32.512044.030.578741TRUETRUEBRLIFRMETAR237.02019-12-11 17:20:59 9nI8) 5    3KGYB 111715Z AUTO 00000KT 10SM CLR 10/04 A3054 RMK AO2 T00990042KGYB2019-12-11T17:15:00Z30.17-96.989.94.20010.030.540354TRUETRUEVFRMETAR148.02019-12-11 17:20:59L7)5    3KGNT 111715Z AUTO 00000KT 10SM CLR 00/M04 A3033 RMK AO2 T10031042KGNT2019-12-11T17:15:00Z35.17-107.9-0.3-4.20010.030.33071TRUETRUEVFRMETAR1987.02019-12-11 17:20:59F6(}5    3KADC 111715Z AUTO 26005KT 10SM CLR M21/M23 A3036 RMK AO2KADC2019-12-11T17:15:00Z46.45-95.22-21.0-23.0260510.030.360237TRUETRUEVFRMETAR418.02019-12-11 17:20:59B5(}5    3KADU 111715Z AUTO 07007KT 10SM CLR M07/M11 A3042 RMK AO2KADU2019-12-11T17:15:00Z41.7-94.92-7.0-11.070710.030.41929TRUETRUEVFRMETAR392.02019-12-11 17:20:59 65k6'=(_5    3K0VG 111715Z AUTO 10SM CLR 00/M06 RMK AO2K0VG2019-12-11T17:15:00Z36.65-83.220.0-6.010.0TRUETRUEVFRMETAR430.02019-12-11 17:20:59L<)5    3K1A9 111715Z AUTO 01011KT 10SM CLR 09/M04 A3049 RMK AO2 T00851042K1A92019-12-11T17:15:00Z32.43-86.528.5-4.2101110.030.490158TRUETRUEVFRMETAR69.02019-12-11 17:20:593;(i5    3K1R7 111715Z AUTO 10SM CLR 07/00 A3053 RMK AO2K1R72019-12-11T17:15:00Z31.6-90.427.00.010.030.528543TRUETRUEVFRMETAR149.02019-12-11 17:20:59E:)5    3K20U 111715Z AUTO 14012KT 9SM OVC006 M10/M11 A3000 RMK AO2K20U2019-12-11T17:15:00Z46.93-103.98-10.0-11.0140129.030.0TRUETRUEIFRMETAR840.02019-12-11 17:20:59F9(}5    3KGWR 111715Z AUTO 24005KT 10SM CLR M21/M23 A3037 RMK A01KGWR2019-12-11T17:15:00Z46.22-97.65-21.0-23.0240510.030.369095TRUETRUEVFRMETAR386.02019-12-11 17:20:59 9jFA(}5    3K06D 111715Z AUTO 17005KT 10SM CLR M18/M25 A3022 RMK AO2K06D2019-12-11T17:15:00Z48.88-99.62-18.0-25.0170510.030.221457TRUETRUEVFRMETAR556.02019-12-11 17:20:59I@)5    3K08D 111715Z AUTO 15007KT 10SM SCT075 M17/M20 A3016 RMK AO2K08D2019-12-11T17:15:00Z48.3-102.4-17.0-20.0150710.030.159449TRUETRUEVFRMETAR684.02019-12-11 17:20:59J?) 5    3K0F2 111715Z AUTO 17008KT 10SM CLR 07/03 A3052 RMK AO2 T00710034K0F22019-12-11T17:15:00Z33.6-97.787.13.4170810.030.519686TRUETRUEVFRMETAR336.02019-12-11 17:20:59B>(5    3K0S9 111715Z AUTO 11007KT 10SM OVC008 08/07 A2998 RMK AO2K0S92019-12-11T17:15:00Z48.05-122.828.07.0110710.029.97933TRUETRUEIFRMETAR33.02019-12-11 17:20:59 6maE)+5   3K2P2 111715Z AUTO 27009G14KT 10SM BKN012 BKN018 M15/M18 A3030 RMK AO2 T11501185K2P22019-12-11T17:15:00Z45.38-86.92-15.0-18.527091410.030.301182TRUETRUEMVFRMETAR199.02019-12-11 17:20:59DD({5    3K2D5 111715Z AUTO 21006KT 9SM CLR M21/M24 A3037 RMK AO2K2D52019-12-11T17:15:00Z46.17-98.08-21.0-24.021069.030.369095TRUETRUEVFRMETAR407.02019-12-11 17:20:59DC(5    3K24J 111715Z AUTO 36011KT 10SM OVC016 13/10 A3031 RMK A01K24J2019-12-11T17:15:00Z30.3-83.0313.010.03601110.030.31004TRUETRUEMVFRMETAR32.02019-12-11 17:20:59EB(}5    3KCCY 111715Z AUTO 01007KT 10SM CLR M13/M19 A3043 RMK AO2KCCY2019-12-11T17:15:00Z43.07-92.62-13.0-19.010710.030.431103TRUETRUEVFRMETAR343.02019-12-11 17:20:59 'bPI) 5     3K42J 111715Z AUTO 36010KT 10SM OVC010 16/13 A3027 RMK A01 TSNOK42J2019-12-11T17:15:00Z29.85-82.0516.013.03601010.030.268702TRUETRUETRUEMVFRMETAR60.02019-12-11 17:20:59EH(}5    3K46D 111715Z AUTO 26006KT 10SM CLR M20/M24 A3031 RMK AO2K46D2019-12-11T17:15:00Z47.45-99.15-20.0-24.0260610.030.31004TRUETRUEVFRMETAR490.02019-12-11 17:20:59@G(y5    3K3J7 111715Z AUTO 31005KT 10SM CLR 11/03 A3040 RMK AO2K3J72019-12-11T17:15:00Z33.6-83.1311.03.0310510.030.398623TRUETRUEVFRMETAR206.02019-12-11 17:20:59TF)5    3K3D2 111715Z AUTO 28008KT 10SM SCT011 M15/M19 A3030 RMK AO2 T11531191K3D22019-12-11T17:15:00Z45.13-87.18-15.3-19.1280810.030.301182TRUETRUEVFRMETAR234.02019-12-11 17:20:59 3bOM)5    3KIIB 111715Z AUTO 35005KT 10SM CLR M09/M15 A3044 RMK AO2 T10891146KIIB2019-12-11T17:15:00Z42.45-91.95-8.9-14.6350510.030.43996TRUETRUEVFRMETAR298.02019-12-11 17:20:59ZL)%5    3KIGQ 111715Z AUTO 28007KT 10SM SCT014 BKN021 M05/M10 A3044 RMK AO2 T10551105KIGQ2019-12-11T17:15:00Z41.53-87.53-5.5-10.5280710.030.43996TRUETRUEMVFRMETAR188.02019-12-11 17:20:59LK)5    3K3LF 111715Z AUTO 24009KT 10SM CLR 02/M04 A3046 RMK AO2 T00151043K3LF2019-12-11T17:15:00Z39.17-89.671.5-4.3240910.030.46063TRUETRUEVFRMETAR210.02019-12-11 17:20:59HJ) 5    3K3T5 111715Z AUTO 03005KT 10SM CLR 10/04 A3052 RMK AO2 T00970036K3T52019-12-11T17:15:00Z29.9-96.959.73.630510.030.519686TRUETRUEVFRMETAR99.02019-12-11 17:20:59 RmFQ(}5    3KBAC 111715Z AUTO 25004KT 10SM CLR M22/M26 A3035 RMK AO2KBAC2019-12-11T17:15:00Z46.93-98.02-22.0-26.0250410.030.351377TRUETRUEVFRMETAR427.02019-12-11 17:20:59`P)+5   3KBAX 111715Z AUTO 26023G32KT 10SM BKN038 OVC044 M07/M14 A3020 RMK AO2 T10681141KBAX2019-12-11T17:15:00Z43.78-82.98-6.8-14.1260233210.030.200787TRUETRUEVFRMETAR234.02019-12-11 17:20:59DO(}5    3KIKV 111715Z AUTO 07007KT 10SM CLR M07/M12 A3047 RMK AO2KIKV2019-12-11T17:15:00Z41.68-93.57-7.0-12.070710.030.469488TRUETRUEVFRMETAR275.02019-12-11 17:20:59`N)+5   3KIKW 111715Z AUTO 26018G27KT 10SM SCT039 SCT045 M08/M17 A3028 RMK AO2 T10851168KIKW2019-12-11T17:15:00Z43.67-84.27-8.5-16.8260182710.030.280512TRUETRUEVFRMETAR194.02019-12-11 17:20:59 8TzTU)5     3KBJI 111715Z AUTO 26006KT 5SM HZ CLR M21/M25 A3030 RMK AO2 T12071252KBJI2019-12-11T17:15:00Z47.5-94.92-20.7-25.226065.030.301182TRUETRUEHZMVFRMETAR420.02019-12-11 17:20:59UT)5   3KBKT 111715Z AUTO 29007G14KT 10SM SCT035 06/M02 A3037 RMK AO1 T00601021KBKT2019-12-11T17:15:00Z37.07-77.956.0-2.129071410.030.369095TRUETRUEVFRMETAR134.02019-12-11 17:20:59_S)+5   3KBVI 111715Z AUTO 24012G21KT 10SM BKN034 BKN040 M03/M11 A3032 RMK AO2 T10291110KBVI2019-12-11T17:15:00Z40.77-80.4-2.9-11.0240122110.030.318897TRUETRUEVFRMETAR382.02019-12-11 17:20:59CR(}5    3KBBB 111715Z AUTO 00000KT 10SM CLR M21/M23 A3044 RMK AO2KBBB2019-12-11T17:15:00Z45.32-95.65-21.0-23.00010.030.43996TRUETRUEVFRMETAR317.02019-12-11 17:20:59 )^=Y(w5    3KBVU 111715Z AUTO 00000KT 9SM CLR 08/01 A3027 RMK AO2KBVU2019-12-11T17:15:00Z35.95-114.878.01.0009.030.268702TRUETRUEVFRMETAR671.02019-12-11 17:20:59QX)5    3KBCK 111715Z AUTO 29004KT 10SM CLR M16/M22 A3045 RMK AO2 T11591219KBCK2019-12-11T17:15:00Z44.25-90.85-15.9-21.9290410.030.448818TRUETRUEVFRMETAR255.02019-12-11 17:20:59FW(}5    3KBDH 111715Z AUTO 21003KT 10SM CLR M21/M24 A3045 RMK AO2KBDH2019-12-11T17:15:00Z45.12-95.13-21.0-24.0210310.030.448818TRUETRUEVFRMETAR247.02019-12-11 17:20:59RV)5   3KBEC 111715Z AUTO 21012G17KT 10SM CLR 06/M06 A3039 RMK AO2 T00611058KBEC2019-12-11T17:15:00Z37.7-97.226.1-5.8210121710.030.389763TRUETRUEVFRMETAR429.02019-12-11 17:20:59 0`T])!5    3K54J 111715Z AUTO 03012KT 10SM BKN055 OVC110 07/03 A3040 RMK AO2 T00660028K54J2019-12-11T17:15:00Z30.73-86.156.62.8301210.030.398623TRUETRUEVFRMETAR88.02019-12-11 17:20:59N\)5    3K4V0 111715Z AUTO 00000KT 10SM CLR M04/M05 A3025 RMK AO2 T10361053K4V02019-12-11T17:15:00Z40.1-108.77-3.6-5.30010.030.250984TRUETRUEVFRMETAR1608.02019-12-11 17:20:59K[) 5     3K4S1 111715Z AUTO 19009KT 1 1/2SM HZ SCT025 12/09 A3009 RMK AO2K4S12019-12-11T17:15:00Z42.42-124.4212.09.019091.530.088583TRUETRUEHZIFRMETAR5.02019-12-11 17:20:59KZ)5     3K4M9 111715Z AUTO 19007KT 10SM CLR 06/M02 A3057 RMK AO2 PWINOK4M92019-12-11T17:15:00Z36.4-90.656.0-2.0190710.030.569881TRUETRUETRUEVFRMETAR90.02019-12-11 17:20:59 9bga)75   3KCAD 111715Z AUTO 27015G23KT 7SM SCT018 BKN025 OVC033 M12/M20 A3022 RMK AO2 T11281197KCAD2019-12-11T17:15:00Z44.27-85.42-12.8-19.727015237.030.221457TRUETRUEMVFRMETAR398.02019-12-11 17:20:59J`) 5    3KBYY 111715Z AUTO 02007KT 10SM CLR 12/06 A3049 RMK AO2 T01220065KBYY2019-12-11T17:15:00Z28.97-95.8712.26.520710.030.490158TRUETRUEVFRMETAR14.02019-12-11 17:20:59R_)5   3KBXA 111715Z AUTO 04009G14KT 10SM BKN090 10/01 A3049 RMK AO2 T01010005KBXA2019-12-11T17:15:00Z30.82-89.8710.10.54091410.030.490158TRUETRUEVFRMETAR36.02019-12-11 17:20:59B^(y5    3KBXK 111715Z AUTO 14004KT 10SM CLR 12/09 A3019 RMK A01KBXK2019-12-11T17:15:00Z33.42-112.6812.09.0140410.030.188976TRUETRUEVFRMETAR315.02019-12-11 17:20:59 9nJe) 5    3KAPY 111715Z AUTO 00000KT 10SM CLR 12/05 A3051 RMK AO2 T01230051KAPY2019-12-11T17:15:00Z26.97-99.2512.35.10010.030.510826TRUETRUEVFRMETAR129.02019-12-11 17:20:59Ad(5    3KAQX 111715Z AUTO VRB06KT 10SM FEW028 14/06 A3035 RMK AO2KAQX2019-12-11T17:15:00Z32.98-81.2714.06.00610.030.351377TRUETRUEVFRMETAR49.02019-12-11 17:20:59Fc(}5    3K5H4 111715Z AUTO 22005KT 10SM CLR M21/M25 A3030 RMK AO2K5H42019-12-11T17:15:00Z47.78-99.93-21.0-25.0220510.030.301182TRUETRUEVFRMETAR490.02019-12-11 17:20:59Bb({5    3K6A2 111715Z AUTO 33006KT 10SM CLR 06/M05 A3043 RMK AO2K6A22019-12-11T17:15:00Z33.23-84.276.0-5.0330610.030.431103TRUETRUEVFRMETAR292.02019-12-11 17:20:59 'SDi(}5    3KAUM 111715Z AUTO 00000KT 10SM CLR M14/M19 A3041 RMK AO2KAUM2019-12-11T17:15:00Z43.67-92.92-14.0-19.00010.030.410433TRUETRUEVFRMETAR375.02019-12-11 17:20:59Jh)5     3KATS 111715Z AUTO 00000KT 1/2SM FG OVC001 03/03 A3038 RMK AO2KATS2019-12-11T17:15:00Z32.85-104.473.03.0000.530.380905TRUETRUEFGLIFRMETAR1081.02019-12-11 17:20:59Og)5   3KARM 111715Z AUTO 01007G16KT 10SM CLR 11/03 A3052 RMK AO2 T01050032KARM2019-12-11T17:15:00Z29.25-96.1510.53.21071610.030.519686TRUETRUEVFRMETAR31.02019-12-11 17:20:59Tf)5    3KASN 111715Z AUTO 01006KT 340V040 10SM CLR 07/M04 A3051 RMK AO2 T00651038KASN2019-12-11T17:15:00Z33.57-86.056.5-3.810610.030.510826TRUETRUEVFRMETAR162.02019-12-11 17:20:59 ,cJm) 5    3KAVQ 111715Z AUTO 00000KT 10SM CLR 11/06 A3021 RMK AO2 T01070056KAVQ2019-12-11T17:15:00Z32.4-111.2210.75.60010.030.209646TRUETRUEVFRMETAR619.02019-12-11 17:20:59Ll) 5     3KSNC 111715Z AUTO 32008KT 10SM -DZ BKN055 00/M07 A3022 RMK AO2KSNC2019-12-11T17:15:00Z41.38-72.50.0-7.0320810.030.221457TRUETRUE-DZVFRMETAR127.02019-12-11 17:20:59Dk(}5    3KSLB 111715Z AUTO 09008KT 10SM CLR M15/M18 A3038 RMK AO2KSLB2019-12-11T17:15:00Z42.6-95.22-15.0-18.090810.030.380905TRUETRUEVFRMETAR454.02019-12-11 17:20:59Oj) 5    3KSMS 111715Z AUTO 36008G15KT 10SM -DZ FEW024 10/05 A3039 RMK AO2KSMS2019-12-11T17:15:00Z34.0-80.3710.05.036081510.030.389763TRUETRUE-DZVFRMETAR56.02019-12-11 17:20:59 ,cDq(}5    3KCBF 111715Z AUTO 07010KT 10SM CLR M04/M09 A3039 RMK AO2KCBF2019-12-11T17:15:00Z41.27-95.77-4.0-9.0701010.030.389763TRUETRUEVFRMETAR382.02019-12-11 17:20:59Dp(}5    3KCAV 111715Z AUTO 00000KT 10SM CLR M16/M19 A3045 RMK A01KCAV2019-12-11T17:15:00Z42.75-93.77-16.0-19.00010.030.448818TRUETRUEVFRMETAR354.02019-12-11 17:20:59Do(}5    3KAWG 111715Z AUTO 36009KT 10SM CLR M05/M08 A3045 RMK AO2KAWG2019-12-11T17:15:00Z41.27-91.67-5.0-8.0360910.030.448818TRUETRUEVFRMETAR230.02019-12-11 17:20:59On)5    3KAVC 111715Z AUTO 32003KT 10SM SCT038 06/M04 A3044 RMK AO2 T00601037KAVC2019-12-11T17:15:00Z36.68-78.036.0-3.7320310.030.43996TRUETRUEVFRMETAR135.02019-12-11 17:20:59 8hQu)5    3KRSV 111715Z AUTO 22010KT 10SM SCT070 00/M06 A3050 RMK AO2 T00001065KRSV2019-12-11T17:15:00Z39.02-87.650.0-6.52201010.030.499016TRUETRUEVFRMETAR141.02019-12-11 17:20:59Gt(}5    3KRUG 111715Z AUTO 24004KT 10SM CLR M23/M25 A3027 RMK AO2KRUG2019-12-11T17:15:00Z48.38-100.02-23.0-25.0240410.030.268702TRUETRUEVFRMETAR472.02019-12-11 17:20:59Ks)5   3KRVL 111715Z AUTO 22015G22KT 10SM CLR M00/M11 A3027 RMK AO2KRVL2019-12-11T17:15:00Z40.68-77.630.0-11.0220152210.030.268702TRUETRUEVFRMETAR250.02019-12-11 17:20:59Cr({5    3KGAF 111715Z AUTO 27004KT 8SM CLR M21/M26 A3036 RMK AO2KGAF2019-12-11T17:15:00Z48.4-97.37-21.0-26.027048.030.360237TRUETRUEVFRMETAR252.02019-12-11 17:20:59 -SVy)5   3KRYV 111715Z AUTO 28010G14KT 10SM CLR M10/M19 A3040 RMK AO2 T10961190KRYV2019-12-11T17:15:00Z43.17-88.72-9.6-19.0280101410.030.398623TRUETRUEVFRMETAR254.02019-12-11 17:20:59Mx)5    3KHNZ 111715Z AUTO 33009KT 10SM CLR 04/M06 A3039 RMK AO2 T00431057KHNZ2019-12-11T17:15:00Z36.37-78.534.3-5.7330910.030.389763TRUETRUEVFRMETAR161.02019-12-11 17:20:59Uw)5   3KGEV 111715Z AUTO 29009G16KT 10SM CLR M01/M10 A3036 RMK AO2 T10091103KGEV2019-12-11T17:15:00Z36.43-81.42-0.9-10.329091610.030.360237TRUETRUEVFRMETAR969.02019-12-11 17:20:59Nv)5    3KGGI 111715Z AUTO 03007KT 10SM CLR M08/M12 A3046 RMK AO2 T10801119KGGI2019-12-11T17:15:00Z41.72-92.73-8.0-11.930710.030.46063TRUETRUEVFRMETAR307.02019-12-11 17:20:59 +RY})5     3KSYF 111715Z AUTO 16013KT 10SM CLR 09/M06 A3018 RMK AO2 T00901062 PWINOKSYF2019-12-11T17:15:00Z39.77-101.89.0-6.21601310.030.180119TRUETRUETRUEVFRMETAR1025.02019-12-11 17:20:59A|({5    3KAXA 111715Z AUTO 00000KT 9SM CLR M16/M19 A3042 RMK A01KAXA2019-12-11T17:15:00Z43.07-94.27-16.0-19.0009.030.41929TRUETRUEVFRMETAR372.02019-12-11 17:20:59T{)5    3KAXV 111715Z AUTO 27011KT 7SM SCT023 SCT039 SCT050 M03/M10 A3040 RMK AO2KAXV2019-12-11T17:15:00Z40.5-84.3-3.0-10.0270117.030.398623TRUETRUEVFRMETAR279.02019-12-11 17:20:59Pz)5    3KRZT 111715Z AUTO 23013KT 10SM SCT044 OVC065 M01/M08 A3045 RMK AO2KRZT2019-12-11T17:15:00Z39.43-83.02-1.0-8.02301310.030.448818TRUETRUEVFRMETAR221.02019-12-11 17:20:59 ,fA({5    3KLUX 111715Z AUTO 01008KT 10SM CLR 10/M05 A3040 RMK AO2KLUX2019-12-11T17:15:00Z34.5-81.9510.0-5.010810.030.398623TRUETRUEVFRMETAR213.02019-12-11 17:20:59C(}5    3KLNP 111715Z AUTO 21006KT 10SM CLR M01/M07 A3042 RMK AO2KLNP2019-12-11T17:15:00Z36.97-82.52-1.0-7.0210610.030.41929TRUETRUEVFRMETAR817.02019-12-11 17:20:59A({5    3KLRY 111715Z AUTO 27007KT 10SM CLR 08/M05 A3046 RMK AO2KLRY2019-12-11T17:15:00Z38.62-94.358.0-5.0270710.030.46063TRUETRUEVFRMETAR279.02019-12-11 17:20:59O~)5    3KSXU 111715Z AUTO 12009KT 10SM CLR 02/M02 A3027 RMK AO2 T00231019KSXU2019-12-11T17:15:00Z34.93-104.652.3-1.9120910.030.268702TRUETRUEVFRMETAR1460.02019-12-11 17:20:59 7aD(5    3KAIK 111715Z AUTO 34007KT 10SM SCT023 11/05 A3041 RMK AO2KAIK2019-12-11T17:15:00Z33.65-81.6811.05.0340710.030.410433TRUETRUEVFRSPECI161.02019-12-11 17:20:59K)5    3KTTA 111715Z AUTO 33008KT 10SM CLR 06/M06 A3039 RMK AO2 T00591058KTTA2019-12-11T17:15:00Z35.58-79.15.9-5.8330810.030.389763TRUETRUEVFRMETAR75.02019-12-11 17:20:59Q)5    3KRPD 111715Z AUTO 25005KT 10SM CLR M20/M29 A3041 RMK AO2 T12051294KRPD2019-12-11T17:15:00Z45.42-91.77-20.5-29.4250510.030.410433TRUETRUEVFRMETAR338.02019-12-11 17:20:59D(5   3KMNI 111715Z AUTO 03009G15KT 10SM CLR 12/04 A3036 RMK AO2KMNI2019-12-11T17:15:00Z33.58-80.2212.04.03091510.030.360237TRUETRUEVFRMETAR32.02019-12-11 17:20:59 .`O )5    3KEFT 111715Z AUTO 32007KT 10SM CLR M08/M16 A3039 RMK AO2 T10811163KEFT2019-12-11T17:15:00Z42.62-89.6-8.1-16.3320710.030.389763TRUETRUEVFRSPECI331.02019-12-11 17:20:59W)5   3KANQ 111715Z AUTO 27011G22KT 10SM BKN023 OVC029 M07/M12 A3036 RMK AO2KANQ2019-12-11T17:15:00Z41.63-85.08-7.0-12.0270112210.030.360237TRUETRUEMVFRSPECI303.02019-12-11 17:20:59I)5   3K27K 111715Z AUTO 23012G16KT 10SM CLR 01/M06 A3050 RMK AO1K27K2019-12-11T17:15:00Z38.23-84.431.0-6.0230121610.030.499016TRUETRUEVFRSPECI289.02019-12-11 17:20:59M)5    3K7W4 111715Z AUTO 30004KT 10SM CLR 05/M08 A3037 RMK AO1 T00511080K7W42019-12-11T17:15:00Z37.97-77.755.1-8.0300410.030.369095TRUETRUEVFRSPECI106.02019-12-11 17:20:59 <fB (5    3KIXA 111715Z AUTO 35003KT 10SM OVC008 03/03 A3039 RMK AO2KIXA2019-12-11T17:15:00Z36.33-77.633.03.0350310.030.389763TRUETRUEIFRMETAR44.02019-12-11 17:20:59J )5    3KHBI 111715Z AUTO 01009KT 10SM CLR 06/M07 A3042 RMK AO2 T00561069KHBI2019-12-11T17:15:00Z35.65-79.95.6-6.910910.030.41929TRUETRUEVFRSPECI205.02019-12-11 17:20:59Q )5    3KEZS 111715Z AUTO 25009KT 10SM CLR M16/M23 A3037 RMK AO2 T11581229KEZS2019-12-11T17:15:00Z44.78-88.57-15.8-22.9250910.030.369095TRUETRUEVFRSPECI248.02019-12-11 17:20:59? (}5    3KINF 111715Z AUTO 00000KT 7SM BKN009 22/22 A3023 RMK AO2KINF2019-12-11T17:15:00Z28.8-82.3222.022.0007.030.230314TRUETRUEIFRMETAR15.02019-12-11 17:20:59 1[D(5   3KMCJ 111715Z AUTO 36007G13KT 10SM CLR 10/01 A3049 RMK A01KMCJ2019-12-11T17:15:00Z29.72-95.410.01.036071310.030.490158TRUETRUEVFRMETAR69.02019-12-11 17:20:59N)5    3KLUM 111715Z AUTO 00000KT 10SM CLR M20/M25 A3045 RMK AO2 T12051246KLUM2019-12-11T17:15:00Z44.9-91.87-20.5-24.60010.030.448818TRUETRUEVFRMETAR273.02019-12-11 17:20:59Q)5    3KLNL 111715Z AUTO 25005KT 10SM CLR M18/M22 A3022 RMK AO2 T11851222KLNL2019-12-11T17:15:00Z46.15-89.22-18.5-22.2250510.030.221457TRUETRUEVFRMETAR520.02019-12-11 17:20:59J) 5    3KJSO 111715Z AUTO 07004KT 10SM CLR 07/00 A3056 RMK AO2 T00720001KJSO2019-12-11T17:15:00Z31.87-95.227.20.170410.030.561024TRUETRUEVFRMETAR206.02019-12-11 17:20:59 /iA(5    3KPGV 111715Z AUTO 02010KT 10SM OVC020 06/03 A3038 RMK AO2KPGV2019-12-11T17:15:00Z35.62-77.46.03.0201010.030.380905TRUETRUEMVFRSPECI8.02019-12-11 17:20:59C(5    3KO22 111715Z AUTO 00000KT 10SM BKN070 10/06 A3025 RMK A01KO222019-12-11T17:15:00Z38.03-120.4210.06.00010.030.250984TRUETRUEVFRMETAR646.02019-12-11 17:20:59<(u5     3KMAW 111715Z AUTO 10SM CLR 07/M03 A3057 RMK AO2 TSNOKMAW2019-12-11T17:15:00Z36.6-90.07.0-3.010.030.569881TRUETRUETRUEVFRSPECI90.02019-12-11 17:20:59A({5    3KJNX 111715Z AUTO 36008KT 10SM CLR 07/M01 A3038 RMK AO2KJNX2019-12-11T17:15:00Z35.53-78.387.0-1.0360810.030.380905TRUETRUEVFRSPECI50.02019-12-11 17:20:59L)5    3KIPJ 111715Z AUTO 01004KT 10SM CLR 07/M08 A3040 RMK AO2 T00711080KIPJ2019-12-11T17:15:00Z35.48-81.177.1-8.010410.030.398623TRUETRUEVFRSPECI267.02019-12-11 17:20:59 GiE(}5    3KSAZ 111715Z AUTO 27008KT 10SM CLR M22/M24 A3037 RMK AO2KSAZ2019-12-11T17:15:00Z46.37-94.8-22.0-24.0270810.030.369095TRUETRUEVFRMETAR392.02019-12-11 17:20:59Y)5    3KS25 111715Z AUTO 12010KT 10SM SCT011 BKN060 BKN100 M15/M17 A3013 RMK AO2KS252019-12-11T17:15:00Z47.8-103.25-15.0-17.01201010.030.129921TRUETRUEVFRMETAR644.02019-12-11 17:20:59S)5   3KSUT 111715Z AUTO 36011G17KT 10SM BKN090 12/05 A3032 RMK AO2 T01220048KSUT2019-12-11T17:15:00Z33.93-78.0812.24.8360111710.030.318897TRUETRUEVFRSPECI8.02019-12-11 17:20:59\)%5   3KRID 111715Z AUTO 24013G17KT 10SM SCT020 BKN043 OVC050 M03/M05 A3043 RMK AO2KRID2019-12-11T17:15:00Z39.75-84.85-3.0-5.0240131710.030.431103TRUETRUEVFRSPECI348.02019-12-11 17:20:59 (aO)5    3KPDC 111715Z AUTO 33006KT 10SM CLR M10/M19 A3046 RMK AO2 T10971189KPDC2019-12-11T17:15:00Z43.02-91.12-9.7-18.9330610.030.46063TRUETRUEVFRMETAR201.02019-12-11 17:20:59Y)!5    3KPCZ 111715Z AUTO 28009KT 250V310 10SM CLR M14/M22 A3041 RMK AO2 T11441219KPCZ2019-12-11T17:15:00Z44.33-89.02-14.4-21.9280910.030.410433TRUETRUEVFRMETAR252.02019-12-11 17:20:59B({5    3KSEZ 111715Z AUTO 00000KT 10SM CLR 07/M02 A3027 RMK AO2KSEZ2019-12-11T17:15:00Z34.85-111.787.0-2.00010.030.268702TRUETRUEVFRMETAR1473.02019-12-11 17:20:59S)5   3KSCD 111715Z AUTO 05006G15KT 10SM BKN110 07/M03 A3049 RMK AO2 T00701032KSCD2019-12-11T17:15:00Z33.17-86.37.0-3.25061510.030.490158TRUETRUEVFRMETAR173.02019-12-11 17:20:59 -ZM")5    3KRCX 111715Z AUTO 27003KT 7SM CLR M20/M22 A3038 RMK AO2 T11971220KRCX2019-12-11T17:15:00Z45.5-91.0-19.7-22.027037.030.380905TRUETRUEVFRMETAR377.02019-12-11 17:20:59M!)5    3KPTS 111715Z AUTO 22011KT 10SM CLR 05/M03 A3046 RMK AO2 T00541032KPTS2019-12-11T17:15:00Z37.45-94.735.4-3.22201110.030.46063TRUETRUEVFRSPECI290.02019-12-11 17:20:59N )5    3KPSO 111715Z AUTO 00000KT 10SM CLR M03/M03 A3033 RMK AO2 T10281028KPSO2019-12-11T17:15:00Z37.28-107.05-2.8-2.80010.030.33071TRUETRUEVFRMETAR2334.02019-12-11 17:20:59N)5    3KPEA 111715Z AUTO 02007KT 10SM CLR M05/M11 A3047 RMK AO2 T10501112KPEA2019-12-11T17:15:00Z41.4-92.95-5.0-11.220710.030.469488TRUETRUEVFRMETAR270.02019-12-11 17:20:59 7eL&)5    3KSIF 111715Z AUTO 34004KT 10SM CLR 04/M08 A3042 RMK AO2 T00351076KSIF2019-12-11T17:15:00Z36.43-79.853.5-7.6340410.030.41929TRUETRUEVFRMETAR211.02019-12-11 17:20:59L%)5   3KSDC 111715Z AUTO 24013G18KT 10SM SCT050 00/M11 A3015 RMK AO2KSDC2019-12-11T17:15:00Z43.23-77.120.0-11.0240131810.030.15059TRUETRUEVFRMETAR129.02019-12-11 17:20:59M$) 5     3KS33 111715Z AUTO 34003KT 1 3/4SM BR SCT047 00/00 A3008 RMK AO2KS332019-12-11T17:15:00Z44.67-121.150.00.034031.7530.079725TRUETRUEBRIFRMETAR743.02019-12-11 17:20:59D#(}5    3KS32 111715Z AUTO 26007KT 10SM CLR M22/M25 A3033 RMK AO2KS322019-12-11T17:15:00Z47.42-98.1-22.0-25.0260710.030.33071TRUETRUEVFRMETAR684.02019-12-11 17:20:59 >iH*)5    3KTVY 111715Z AUTO 00000KT 10SM OVC110 M01/M02 A3024 RMK AO2KTVY2019-12-11T17:15:00Z40.62-112.35-1.0-2.00010.030.239174TRUETRUEVFRMETAR1317.02019-12-11 17:20:59M)) 5    3KSVC 111715Z AUTO 14005KT 10SM CLR 06/02 A3036 RMK AO2 T00610024KSVC2019-12-11T17:15:00Z32.63-108.156.12.4140510.030.360237TRUETRUEVFRMETAR1659.02019-12-11 17:20:59P()5    3KSUW 111715Z AUTO 24006KT 10SM CLR M20/M25 A3041 RMK AO2 T12021254KSUW2019-12-11T17:15:00Z46.68-92.1-20.2-25.4240610.030.410433TRUETRUEVFRMETAR206.02019-12-11 17:20:59='(u5   3KSPF 111715Z AUTO 00000KT 10SM M06/M08 A2995 RMK AO2KSPF2019-12-11T17:15:00Z44.47-103.77-6.0-8.00010.029.949802TRUETRUEMETAR1188.02019-12-11 17:20:59 ;xY.)%5    3KVJI 111715Z AUTO 25008KT 10SM BKN018 BKN023 M01/M06 A3044 RMK AO2 T10101061KVJI2019-12-11T17:15:00Z36.67-82.02-1.0-6.1250810.030.43996TRUETRUEMVFRMETAR631.02019-12-11 17:20:59A-(5    3KVDF 111715Z AUTO 00000KT 10SM SCT011 26/23 A3020 RMK AO2KVDF2019-12-11T17:15:00Z28.02-82.3326.023.00010.030.200787TRUETRUEVFRMETAR7.02019-12-11 17:20:59>,({5    3KUTA 111715Z AUTO 00000KT 7SM 05/M02 A3060 RMK AO2 TSNOKUTA2019-12-11T17:15:00Z34.68-90.355.0-2.0007.030.59941TRUETRUETRUEMETAR59.02019-12-11 17:20:59@+(y5    3KTYL 111715Z AUTO 09006KT 10SM CLR 02/02 A3029 RMK AO2KTYL2019-12-11T17:15:00Z34.45-110.122.02.090610.030.28937TRUETRUEVFRMETAR1745.02019-12-11 17:20:59 .hN2)5    3KW96 111715Z AUTO 29007KT 10SM SCT031 05/M02 A3038 RMK AO1 T00481021KW962019-12-11T17:15:00Z37.5-77.124.8-2.1290710.030.380905TRUETRUEVFRMETAR37.02019-12-11 17:20:59L1)5    3KW81 111715Z AUTO 33009KT 10SM CLR 05/M08 A3037 RMK AO1 T00501084KW812019-12-11T17:15:00Z37.18-78.15.0-8.4330910.030.369095TRUETRUEVFRMETAR129.02019-12-11 17:20:59A0({5    3KW63 111715Z AUTO 33007KT 10SM CLR 06/M03 A3039 RMK AO1KW632019-12-11T17:15:00Z36.6-78.556.0-3.0330710.030.389763TRUETRUEVFRMETAR129.02019-12-11 17:20:59M/)5    3KW31 111715Z AUTO 29006KT 10SM CLR 06/M04 A3037 RMK AO1 T00551043KW312019-12-11T17:15:00Z36.95-78.185.5-4.3290610.030.369095TRUETRUEVFRMETAR162.02019-12-11 17:20:59 '_C6(}5    3K74V 111715Z AUTO 00000KT 10SM CLR M03/M05 A3029 RMK AO2K74V2019-12-11T17:15:00Z40.28-110.05-3.0-5.00010.030.28937TRUETRUEVFRMETAR1576.02019-12-11 17:20:59R5)5    3K2J9 111715Z AUTO 01012G18KT 330V040 9SM -DZ CLR 10/06 A3039 RMK AO2K2J92019-12-11T17:15:00Z30.6-84.5510.06.01012189.030.389763TRUETRUE-DZVFRMETAR69.02019-12-11 17:20:59C4(}5    3K2C8 111715Z AUTO 00000KT 10SM CLR M20/M26 A3033 RMK AO2K2C82019-12-11T17:15:00Z48.78-97.63-20.0-26.00010.030.33071TRUETRUEVFRMETAR272.02019-12-11 17:20:59T3)5    3K24A 111715Z AUTO 31009KT 280V360 10SM CLR 02/M05 A3039 RMK AO2 T00161048K24A2019-12-11T17:15:00Z35.32-83.21.6-4.8310910.030.389763TRUETRUEVFRMETAR871.02019-12-11 17:20:59 )_D:(}5    3KAIO 111715Z AUTO 09009KT 10SM CLR M06/M10 A3041 RMK AO2KAIO2019-12-11T17:15:00Z41.38-95.03-6.0-10.090910.030.410433TRUETRUEVFRMETAR360.02019-12-11 17:20:59P9)5    3KAEJ 111715Z AUTO 00000KT 10SM CLR M05/M13 A3023 RMK AO2 T10551128KAEJ2019-12-11T17:15:00Z38.82-106.12-5.5-12.80010.030.230314TRUETRUEVFRMETAR2422.02019-12-11 17:20:59E8(}5    3K96D 111715Z AUTO 27005KT 10SM CLR M20/M26 A3032 RMK AO2K96D2019-12-11T17:15:00Z48.93-97.9-20.0-26.0270510.030.318897TRUETRUEVFRMETAR290.02019-12-11 17:20:59R7)5   3K7W6 111715Z AUTO 36011G18KT 10SM OVC013 07/04 A3033 RMK AO2 T00650038K7W62019-12-11T17:15:00Z35.55-75.956.53.8360111810.030.33071TRUETRUEMVFRMETAR2.02019-12-11 17:20:59 8fb>)-5     3KC35 111715Z AUTO 31007KT 250V340 10SM CLR M11/M19 A3042 RMK AO2 T11141192 PWINOKC352019-12-11T17:15:00Z43.53-89.98-11.4-19.2310710.030.41929TRUETRUETRUEVFRMETAR276.02019-12-11 17:20:59O=)5    3KC29 111715Z AUTO 28007KT 10SM CLR M08/M18 A3042 RMK AO1 T10831183KC292019-12-11T17:15:00Z43.12-89.53-8.3-18.3280710.030.41929TRUETRUEVFRMETAR283.02019-12-11 17:20:59M<)5    3KBRG 111715Z AUTO 00000KT 10SM CLR 02/M04 A3035 RMK AO2 T00201039KBRG2019-12-11T17:15:00Z34.65-106.832.0-3.90010.030.351377TRUETRUEVFRMETAR1585.02019-12-11 17:20:59C;({5    3KBKN 111715Z AUTO 20013KT 10SM CLR 07/M04 A3047 RMK AO2KBKN2019-12-11T17:15:00Z36.75-97.357.0-4.02001310.030.469488TRUETRUEVFRMETAR314.02019-12-11 17:20:59 WCB(5    3KCKI 111715Z AUTO 33008KT 10SM SCT027 11/03 A3037 RMK AO2KCKI2019-12-11T17:15:00Z33.72-79.8511.03.0330810.030.369095TRUETRUEVFRMETAR21.02019-12-11 17:20:59QA)5    3KCFJ 111715Z AUTO 23005KT 10SM OVC050 M04/M08 A3046 RMK AO2 T10411084KCFJ2019-12-11T17:15:00Z39.98-86.92-4.1-8.4230510.030.46063TRUETRUEVFRMETAR244.02019-12-11 17:20:59?@({5    3KCCA 111715Z AUTO 00000KT 10SM CLR 06/M02 A3057 RMK AO2KCCA2019-12-11T17:15:00Z35.6-92.456.0-2.00010.030.569881TRUETRUEVFRMETAR157.02019-12-11 17:20:59`?)+5   3KC62 111715Z AUTO 28009G21KT 10SM BKN027 OVC080 M06/M12 A3038 RMK AO2 T10581119KC622019-12-11T17:15:00Z41.47-85.25-5.8-11.928092110.030.380905TRUETRUEMVFRMETAR306.02019-12-11 17:20:59 +UEF(}5    3KD55 111715Z AUTO 25006KT 10SM CLR M21/M26 A3024 RMK AO2KD552019-12-11T17:15:00Z48.75-98.4-21.0-26.0250610.030.239174TRUETRUEVFRMETAR491.02019-12-11 17:20:59JE)5    3KD50 111715Z AUTO 11008KT 10SM OVC070 M19/M23 A3019 RMK AO2KD502019-12-11T17:15:00Z48.93-103.3-19.0-23.0110810.030.188976TRUETRUEVFRMETAR595.02019-12-11 17:20:59QD)5    3KD25 111715Z AUTO 26008KT 10SM CLR M21/M24 A3024 RMK AO2 T12121245KD252019-12-11T17:15:00Z46.12-89.88-21.2-24.5260810.030.239174TRUETRUEVFRMETAR491.02019-12-11 17:20:59PC)5    3KCKP 111715Z AUTO 09006KT 10SM CLR M13/M17 A3043 RMK AO2 T11261173KCKP2019-12-11T17:15:00Z42.73-95.55-12.6-17.390610.030.431103TRUETRUEVFRSPECI374.02019-12-11 17:20:59 /TGJ(}5    3KETB 111715Z AUTO 29011KT 10SM CLR M10/M18 A3038 RMK AO2KETB2019-12-11T17:15:00Z43.42-88.13-10.0-18.02901110.030.380905TRUETRUEVFRMETAR270.02019-12-11 17:20:59@I(y5    3KEOE 111715Z AUTO 04005KT 10SM CLR 10/03 A3043 RMK AO2KEOE2019-12-11T17:15:00Z34.32-81.6310.03.040510.030.431103TRUETRUEVFRMETAR174.02019-12-11 17:20:59VH)5   3KEGV 111715Z AUTO 26007G15KT 10SM CLR M20/M24 A3022 RMK AO2 T11971236KEGV2019-12-11T17:15:00Z45.93-89.27-19.7-23.626071510.030.221457TRUETRUEVFRMETAR500.02019-12-11 17:20:59LG)5    3KEDE 111715Z AUTO 36009KT 10SM SCT017 06/02 A3037 RMK AO2 T00610023KEDE2019-12-11T17:15:00Z36.02-76.576.12.3360910.030.369095TRUETRUEVFRMETAR6.02019-12-11 17:20:59 ,e?N({5    3KGPH 111715Z AUTO 00000KT 10SM CLR 03/M06 A3044 RMK AO2KGPH2019-12-11T17:15:00Z39.33-94.323.0-6.00010.030.43996TRUETRUEVFRMETAR235.02019-12-11 17:20:59DM(}5    3KFSW 111715Z AUTO 34009KT 10SM CLR M02/M08 A3045 RMK AO2KFSW2019-12-11T17:15:00Z40.67-91.32-2.0-8.0340910.030.448818TRUETRUEVFRMETAR221.02019-12-11 17:20:59BL({5    3KFQD 111715Z AUTO 35004KT 10SM CLR 06/M07 A3041 RMK AO2KFQD2019-12-11T17:15:00Z35.42-81.936.0-7.0350410.030.410433TRUETRUEVFRMETAR329.02019-12-11 17:20:59OK)5    3KEZF 111715Z AUTO 29008KT 10SM SCT045 04/M04 A3038 RMK AO2 T00431041KEZF2019-12-11T17:15:00Z38.27-77.454.3-4.1290810.030.380905TRUETRUEVFRMETAR26.02019-12-11 17:20:59 -eUR)5   3KIDI 111715Z AUTO 26012G19KT 10SM FEW029 SCT035 M03/M11 A3031 RMK A01KIDI2019-12-11T17:15:00Z40.62-79.08-3.0-11.0260121910.030.31004TRUETRUEVFRMETAR429.02019-12-11 17:20:59LQ)5    3KHRJ 111715Z AUTO 34007KT 10SM CLR 08/M03 A3038 RMK AO2 T00751032KHRJ2019-12-11T17:15:00Z35.38-78.737.5-3.2340710.030.380905TRUETRUEVFRMETAR60.02019-12-11 17:20:59CP(}5    3KHNR 111715Z AUTO 06009KT 10SM CLR M07/M11 A3042 RMK AO2KHNR2019-12-11T17:15:00Z41.58-95.33-7.0-11.060910.030.41929TRUETRUEVFRMETAR375.02019-12-11 17:20:59NO)5    3KGWW 111715Z AUTO 02010KT 10SM OVC018 06/02 A3038 RMK AO2 T00570022KGWW2019-12-11T17:15:00Z35.47-77.975.72.2201010.030.380905TRUETRUEMVFRMETAR41.02019-12-11 17:20:59 6`[V)15    3KLDJ 111715Z AUTO 29003KT 10SM SCT015 SCT019 OVC050 02/M01 A3029 RMK AO2 T00161012KLDJ2019-12-11T17:15:00Z40.62-74.251.6-1.2290310.030.28937TRUETRUEVFRMETAR7.02019-12-11 17:20:59QU)5    3KIFA 111715Z AUTO 35004KT 10SM CLR M11/M18 A3045 RMK AO2 T11111183KIFA2019-12-11T17:15:00Z42.47-93.27-11.1-18.3350410.030.448818TRUETRUEVFRMETAR347.02019-12-11 17:20:59QT)5    3KDLL 111715Z AUTO 30008KT 10SM CLR M13/M20 A3041 RMK AO2 T11261201KDLL2019-12-11T17:15:00Z43.52-89.77-12.6-20.1300810.030.410433TRUETRUEVFRMETAR299.02019-12-11 17:20:59ES)5    3YMEN 111715Z AUTO 24010KT 9999 // BKN019 OVC023 14/10 Q1017YMEN2019-12-11T17:15:00Z-37.72144.914.010.0240106.2130.029528TRUEMVFRSPECI86.02019-12-11 17:20:59 3^?Z(y5    3KBNL 111715Z AUTO 03007KT 10SM CLR 14/06 A3037 RMK AO2KBNL2019-12-11T17:15:00Z33.25-81.3814.06.030710.030.369095TRUETRUEVFRMETAR75.02019-12-11 17:20:59CY({5    3K2V5 111715Z AUTO 14006KT 10SM CLR 09/M06 A3017 RMK AO2K2V52019-12-11T17:15:00Z40.1-102.259.0-6.0140610.030.171259TRUETRUEVFRMETAR1118.02019-12-11 17:20:59PX)5    3KUNU 111715Z AUTO 25009KT 10SM CLR M12/M19 A3041 RMK AO2 T11181194KUNU2019-12-11T17:15:00Z43.42-88.7-11.8-19.4250910.030.410433TRUETRUEVFRMETAR285.02019-12-11 17:20:59HW) 5    3KLQK 111715Z AUTO 00000KT 10SM CLR 09/02 A3039 RMK AO2 T00860020KLQK2019-12-11T17:15:00Z34.82-82.78.62.00010.030.389763TRUETRUEVFRMETAR309.02019-12-11 17:20:59 :sX^)5     3KRRL 111715Z AUTO 26007KT 10SM CLR M18/M23 A3033 RMK AO2 T11851234 TSNOKRRL2019-12-11T17:15:00Z45.2-89.72-18.5-23.4260710.030.33071TRUETRUETRUEVFRMETAR401.02019-12-11 17:20:59B]({5    3KOMH 111715Z AUTO 25008KT 10SM CLR 04/M06 A3036 RMK AO2KOMH2019-12-11T17:15:00Z38.25-78.054.0-6.0250810.030.360237TRUETRUEVFRMETAR142.02019-12-11 17:20:59B\(5    3KDCM 111715Z AUTO 36008KT 10SM SCT025 08/01 A3041 RMK AO2KDCM2019-12-11T17:15:00Z34.78-81.28.01.0360810.030.410433TRUETRUEVFRMETAR200.02019-12-11 17:20:59A[({5    3KHAE 111715Z AUTO 32007KT 10SM CLR 01/M08 A3044 RMK AO2KHAE2019-12-11T17:15:00Z39.73-91.451.0-8.0320710.030.43996TRUETRUEVFRMETAR234.02019-12-11 17:20:59 9uPb)5    3KY51 111715Z AUTO 32005KT 10SM CLR M14/M18 A3039 RMK AO1 T11371180KY512019-12-11T17:15:00Z43.58-90.9-13.7-18.0320510.030.389763TRUETRUEVFRMETAR394.02019-12-11 17:20:59Sa)5   3KVBW 111715Z AUTO 28009G14KT 10SM CLR 02/M11 A3034 RMK AO1 T00231111KVBW2019-12-11T17:15:00Z38.37-78.972.3-11.128091410.030.339567TRUETRUEVFRMETAR355.02019-12-11 17:20:59?`(y5    3KSTF 111715Z AUTO 02007KT 10SM CLR 05/00 A3057 RMK AO2KSTF2019-12-11T17:15:00Z33.43-88.855.00.020710.030.569881TRUETRUEVFRMETAR102.02019-12-11 17:20:59B_({5    3KSPA 111715Z AUTO 30003KT 10SM CLR 08/M08 A3040 RMK AO2KSPA2019-12-11T17:15:00Z34.92-81.938.0-8.0300310.030.398623TRUETRUEVFRMETAR303.02019-12-11 17:20:59 AqCg(5    3KFDW 111715Z AUTO 02005KT 10SM BKN016 08/04 A3039 RMK AO1KFDW2019-12-11T17:15:00Z34.32-81.128.04.020510.030.389763TRUETRUEMVFRMETAR176.02019-12-11 17:20:59If)5   3KLBO 111715Z AUTO 24012G18KT 10SM CLR 07/M09 A3047 RMK AO2KLBO2019-12-11T17:15:00Z37.65-92.657.0-9.0240121810.030.469488TRUETRUEVFRMETAR403.02019-12-11 17:20:59Be(}5    3KSDA 111715Z AUTO 06009KT 10SM CLR M00/M05 A3040 RMK AO2KSDA2019-12-11T17:15:00Z40.75-95.420.0-5.060910.030.398623TRUETRUEVFRMETAR296.02019-12-11 17:20:59Kd)5    3KXSA 111715Z AUTO 29003KT 10SM CLR 04/M04 A3038 RMK AO2 T00411039KXSA2019-12-11T17:15:00Z37.87-76.94.1-3.9290310.030.380905TRUETRUEVFRMETAR42.02019-12-11 17:20:59:c({5     3KMBO 111715Z AUTO 04006KT 10SM CLR 06/M03 RMK AO2 PWINOKMBO2019-12-11T17:15:00Z32.43-90.16.0-3.040610.0TRUETRUETRUEVFRMETAR99.02019-12-11 17:20:59 2GyFk(}5    3KSHL 111715Z AUTO 12004KT 10SM CLR M16/M18 A3040 RMK AO2KSHL2019-12-11T17:15:00Z43.22-95.82-16.0-18.0120410.030.398623TRUETRUEVFRMETAR432.02019-12-11 17:20:59Ij)5     3KHAF 111715Z AUTO 15006KT 3SM BR OVC012 14/13 A3022 RMK AO2KHAF2019-12-11T17:15:00Z37.52-122.514.013.015063.030.221457TRUETRUEBRMVFRMETAR21.02019-12-11 17:20:59fi)95     3KMCX 111715Z AUTO 27006KT 4SM -SN SCT014 BKN019 OVC060 M05/M08 A3045 RMK AO2 T10521085KMCX2019-12-11T17:15:00Z40.72-86.77-5.2-8.527064.030.448818TRUETRUE-SNMVFRMETAR206.02019-12-11 17:20:59Ih)5   3KI43 111715Z AUTO 21010G14KT 10SM CLR 00/M07 A3048 RMK AO2KI432019-12-11T17:15:00Z38.98-82.580.0-7.0210101410.030.481298TRUETRUEVFRMETAR221.02019-12-11 17:20:59 RCo({5    3KSYM 111715Z AUTO 21010KT 10SM CLR 01/M09 A3050 RMK AO2KSYM2019-12-11T17:15:00Z38.22-83.581.0-9.02101010.030.499016TRUETRUEVFRMETAR313.02019-12-11 17:20:59Nn)5    3KSYN 111715Z AUTO 00000KT 10SM CLR M17/M21 A3044 RMK AO2 T11711215KSYN2019-12-11T17:15:00Z44.47-93.02-17.1-21.50010.030.43996TRUETRUEVFRMETAR280.02019-12-11 17:20:59;m(m5    3KTBX 111715Z AUTO 10SM CLR M05/M11 A3003 RMK AO2KTBX2019-12-11T17:15:00Z43.47-108.23-5.0-11.010.030.029528TRUETRUEVFRMETAR2225.02019-12-11 17:20:59il)15      3KSGH 111715Z AUTO 25015KT 10SM -SN BKN029 OVC055 M02/M06 A3041 RMK AO2 SNB15 P0000KSGH2019-12-11T17:15:00Z39.83-83.83-2.0-6.02501510.030.410433TRUETRUE-SNMVFR0.005SPECI321.02019-12-11 17:20:59 #=vOs)5    3K6B0 111715Z AUTO 19006KT 10SM CLR M03/M12 A3018 RMK AO2 T10281124K6B02019-12-11T17:15:00Z43.98-73.1-2.8-12.4190610.030.180119TRUETRUEVFRMETAR149.02019-12-11 17:20:59Br({5    3KTDF 111715Z AUTO 34009KT 10SM CLR 04/M06 A3041 RMK AO2KTDF2019-12-11T17:15:00Z36.28-78.984.0-6.0340910.030.410433TRUETRUEVFRMETAR186.02019-12-11 17:20:59aq)+5   3KTEW 111715Z AUTO 29013G20KT 10SM BKN026 OVC032 M06/M11 A3030 RMK AO2 T10651113KTEW2019-12-11T17:15:00Z42.57-84.42-6.5-11.3290132010.030.301182TRUETRUEMVFRMETAR280.02019-12-11 17:20:59Xp)5   3KIRS 111715Z AUTO 26014G18KT 10SM OVC022 M05/M10 A3036 RMK AO2 T10531097KIRS2019-12-11T17:15:00Z41.8-85.43-5.3-9.7260141810.030.360237TRUETRUEMVFRMETAR282.02019-12-11 17:20:59 N6w(s5   3KCKM 111715Z AUTO 00000KT 10SM 06/M01 A3060 RMK A01KCKM2019-12-11T17:15:00Z34.3-90.526.0-1.00010.030.59941TRUETRUEMETAR53.02019-12-11 17:20:59Bv(}5     3KARW 111715Z AUTO 01011KT 5SM HZ CLR 13/06 A3033 RMK AO2KARW2019-12-11T17:15:00Z32.42-80.6313.06.010115.030.33071TRUETRUEHZMVFRMETAR4.02019-12-11 17:20:59?u(y5    3KBBP 111715Z AUTO 34007KT 10SM CLR 08/02 A3039 RMK AO2KBBP2019-12-11T17:15:00Z34.62-79.738.02.0340710.030.389763TRUETRUEVFRMETAR45.02019-12-11 17:20:59it);5   3KSJX 111715Z AUTO 27010G23KT 250V310 10SM BKN016 OVC021 M11/M15 A3021 RMK AO2 T11141147KSJX2019-12-11T17:15:00Z45.7-85.57-11.4-14.7270102310.030.209646TRUETRUEMVFRMETAR204.02019-12-11 17:20:59 *cF{(}5    3KSXK 111715Z AUTO 11008KT 10SM CLR M14/M17 A3041 RMK AO2KSXK2019-12-11T17:15:00Z42.98-96.17-14.0-17.0110810.030.410433TRUETRUEVFRMETAR430.02019-12-11 17:20:59Az(y5    3KMAO 111715Z AUTO 35011KT 10SM CLR 10/02 A3037 RMK AO2KMAO2019-12-11T17:15:00Z34.18-79.3310.02.03501110.030.369095TRUETRUEVFRMETAR28.02019-12-11 17:20:59By({5    3KFRR 111715Z AUTO 26006KT 10SM CLR 02/M07 A3035 RMK AO1KFRR2019-12-11T17:15:00Z38.92-78.252.0-7.0260610.030.351377TRUETRUEVFRMETAR216.02019-12-11 17:20:59Qx)5   3KCPK 111715Z AUTO 33011G15KT 10SM CLR 06/M04 A3037 RMK AO2 T00581038KCPK2019-12-11T17:15:00Z36.67-76.325.8-3.8330111510.030.369095TRUETRUEVFRMETAR6.02019-12-11 17:20:59 ;vW)!5    3KPRO 111715Z AUTO 04007KT 020V080 10SM CLR M08/M14 A3045 RMK AO2 T10801139KPRO2019-12-11T17:15:00Z41.83-94.17-8.0-13.940710.030.448818TRUETRUEVFRMETAR308.02019-12-11 17:20:59U~)5     3KPLD 111715Z AUTO 26008KT 7SM -SN BKN043 OVC050 M04/M10 A3041 RMK AO2KPLD2019-12-11T17:15:00Z40.45-84.98-4.0-10.026087.030.410433TRUETRUE-SNVFRMETAR282.02019-12-11 17:20:59@}({5    3KSOW 111715Z AUTO 00000KT 10SM CLR 04/M02 A3031 RMK AO2KSOW2019-12-11T17:15:00Z34.27-110.04.0-2.00010.030.31004TRUETRUEVFRMETAR1954.02019-12-11 17:20:59@|({5    3KSUZ 111715Z AUTO 00000KT 10SM CLR 08/M05 A3057 RMK A01KSUZ2019-12-11T17:15:00Z34.58-92.488.0-5.00010.030.569881TRUETRUEVFRMETAR119.02019-12-11 17:20:59 ,W<(s5   3KRCE 111715Z AUTO 20013KT 10SM 06/M02 A3045 RMK AO2KRCE2019-12-11T17:15:00Z35.48-97.826.0-2.02001310.030.448818TRUETRUEMETAR413.02019-12-11 17:20:59P)5    3KPVB 111715Z AUTO 29005KT 10SM CLR M08/M14 A3041 RMK AO1 T10851145KPVB2019-12-11T17:15:00Z42.68-90.43-8.5-14.5290510.030.410433TRUETRUEVFRMETAR313.02019-12-11 17:20:59P)5   3KPUJ 111715Z AUTO 36008G17KT 300V020 10SM CLR 05/M06 A3045 RMK AO2KPUJ2019-12-11T17:15:00Z33.92-84.935.0-6.036081710.030.448818TRUETRUEVFRMETAR393.02019-12-11 17:20:59O)5    3KVTI 111715Z AUTO 34005KT 10SM CLR M08/M14 A3046 RMK AO2 T10771142KVTI2019-12-11T17:15:00Z42.22-92.02-7.7-14.2340510.030.46063TRUETRUEVFRMETAR255.02019-12-11 17:20:59 8quC(}5    3KRGK 111715Z AUTO 00000KT 10SM CLR M17/M22 A3044 RMK AO2KRGK2019-12-11T17:15:00Z44.58-92.48-17.0-22.00010.030.43996TRUETRUEVFRMETAR239.02019-12-11 17:20:59w)W5    3KACB 111715Z AUTO 27007G17KT 240V300 1 1/2SM -SN SCT009 BKN019 OVC029 M11/M14 A3026 RMK AO2 T11061137KACB2019-12-11T17:15:00Z44.98-85.2-10.6-13.72707171.530.259842TRUETRUE-SNIFRMETAR190.02019-12-11 17:20:59B({5    3KRGA 111715Z AUTO 20009KT 10SM CLR 02/M06 A3050 RMK AO2KRGA2019-12-11T17:15:00Z37.63-84.332.0-6.0200910.030.499016TRUETRUEVFRMETAR305.02019-12-11 17:20:59C(}5    3KRDK 111715Z AUTO 08010KT 10SM CLR M02/M08 A3042 RMK AO2KRDK2019-12-11T17:15:00Z41.02-95.27-2.0-8.0801010.030.41929TRUETRUEVFRMETAR318.02019-12-11 17:20:59 1ErE (}5    3KRRT 111715Z AUTO 25008KT 10SM CLR M20/M24 A3029 RMK AO2KRRT2019-12-11T17:15:00Z48.93-95.33-20.0-24.0250810.030.28937TRUETRUEVFRMETAR327.02019-12-11 17:20:59N )5    3KROS 111715Z AUTO 00000KT 10SM CLR M20/M24 A3043 RMK AO2 T11971245KROS2019-12-11T17:15:00Z45.7-92.95-19.7-24.50010.030.431103TRUETRUEVFRMETAR281.02019-12-11 17:20:59g )35    3KRMY 111715Z AUTO 27012G19KT 10SM -SN BKN027 OVC032 M06/M12 A3033 RMK AO2 T10621120KRMY2019-12-11T17:15:00Z42.23-84.95-6.2-12.0270121910.030.33071TRUETRUE-SNMVFRMETAR287.02019-12-11 17:20:59J)5    3KRMN 111715Z AUTO 27007KT 10SM CLR 05/M05 A3042 RMK AO2 T00481047KRMN2019-12-11T17:15:00Z38.4-77.454.8-4.7270710.030.41929TRUETRUEVFRMETAR65.02019-12-11 17:20:59 Bkb)'5    3CYYE 111714Z 36003KT 1 1/2SM -SN VV020 M18/M20 A3010 RMK SN8 VIS N LWR SLP233CYYE2019-12-11T17:14:00Z58.82-122.57-18.0-20.036031.530.1003931023.3-SNLIFR2000SPECI382.02019-12-11 17:20:59R)5   3KPSK 111715Z AUTO 27009G14KT 10SM CLR 00/M07 A3038 RMK AO2 T00021075KPSK2019-12-11T17:15:00Z37.12-80.670.2-7.527091410.030.380905TRUETRUEVFRMETAR642.02019-12-11 17:20:59M )5     3KALM 111715Z AUTO 19007KT 8SM 04/04 A3038 RMK AO2 PWINO TSNOKALM2019-12-11T17:15:00Z32.82-105.974.04.019078.030.380905TRUETRUETRUETRUEMETAR1279.02019-12-11 17:20:59g )75    3KERY 111715Z AUTO 25016G22KT 2 1/2SM HZ BKN019 OVC026 M15/M19 A3014 RMK AO2 T11461192KERY2019-12-11T17:15:00Z46.3-85.45-14.6-19.225016222.530.138779TRUETRUEHZIFRMETAR265.02019-12-11 17:20:59 Iqe)75    3CYQA 111714Z AUTO 24008G20KT 190V260 5/8SM -SN BKN006 OVC013 M06/M08 A3000 RMK SLP179CYQA2019-12-11T17:14:00Z44.97-79.28-6.0-8.02408200.6330.01017.9TRUE-SNLIFRSPECI282.02019-12-11 17:20:59S)!5    3KMRH 111714Z AUTO 01011KT 10SM BKN014 OVC060 09/07 A3031 RMK AO2 T00940067KMRH2019-12-11T17:14:00Z34.73-76.659.46.7101110.030.31004TRUETRUEMVFRSPECI3.02019-12-11 17:20:59I) 5     3KPMP 111714Z 14012KT 6SM HZ SCT016 29/23 A3016 RMK AO2 T02890228KPMP2019-12-11T17:14:00Z26.25-80.1228.922.8140126.030.159449TRUEHZVFRSPECI6.02019-12-11 17:20:59d)55     3KJER 111714Z AUTO 13005KT 6SM BR SCT010 BKN014 OVC028 00/M01 A3018 RMK AO2 T00001011KJER2019-12-11T17:14:00Z42.72-114.450.0-1.113056.030.180119TRUETRUEBRMVFRSPECI1222.02019-12-11 17:20:59 y7WyY)5      3KGPZ 111714Z AUTO VRB05KT 1SM HZ VV012 M18/M23 A3033 RMK AO2 FZRANOKGPZ2019-12-11T17:14:00Z47.22-93.52-18.0-23.0051.030.33071TRUETRUETRUEHZLIFR1200SPECI413.02019-12-11 17:20:59[)%5    3KMLF 111714Z AUTO 20012KT 10SM CLR 03/M03 A3022 RMK AO2 WSHFT 1700 T00331033KMLF2019-12-11T17:14:00Z38.42-113.023.3-3.32001210.030.221457TRUETRUEVFRSPECI1534.02019-12-11 17:20:59_)#5    3CYPO 111714Z AUTO 24009G16KT 7SM -SN BKN045 OVC060 M24/M28 A2973 RMK SLP080CYPO2019-12-11T17:14:00Z54.98-85.43-24.0-28.02409167.029.7312981008.0TRUE-SNVFRSPECI53.02019-12-11 17:20:59`)%5     3CYNM 111714Z AUTO 14003KT 1 1/4SM -SN BKN024 OVC038 M21/M23 A2987 RMK SLP151CYNM2019-12-11T17:14:00Z49.77-77.82-21.0-23.014031.2529.8700791015.1TRUE-SNIFRSPECI281.02019-12-11 17:20:59 OB)5    3KASH 111713Z 00000KT 10SM BKN025 BKN031 00/M04 A3020 RMK AO2KASH2019-12-11T17:13:00Z42.78-71.520.0-4.00010.030.200787TRUEMVFRMETAR61.02019-12-11 17:20:597(s5   3MMMM 111713Z 34003KT 6SM SKC 19/09 A3034 RMK HZY CIMMMM2019-12-11T17:13:00Z19.85-101.0219.09.034036.030.339567VFRMETAR1833.02019-12-11 17:20:59F(}5    3KORB 111713Z AUTO 28004KT 10SM CLR M21/M26 A3023 RMK AO2KORB2019-12-11T17:13:00Z48.02-92.87-21.0-26.0280410.030.230314TRUETRUEVFRMETAR397.02019-12-11 17:20:59a)35     3KRBL 111714Z AUTO 00000KT 1SM BR BKN003 BKN007 OVC012 10/10 A3027 RMK AO2 T01000100KRBL2019-12-11T17:14:00Z40.15-122.2510.010.0001.030.268702TRUETRUEBRLIFRSPECI104.02019-12-11 17:20:59 5mf)-5    3CYXJ 111713Z 07003KT 1SM R30/P6000FT/U -SN BR VV004 M11/M12 A2991 RMK FG8 SLP183CYXJ2019-12-11T17:13:00Z56.25-120.73-11.0-12.07031.029.9114171018.3-SN BRLIFR400SPECI695.02019-12-11 17:20:59B(}5    3KXVG 111713Z AUTO 00000KT 10SM CLR M21/M24 A3033 RMK AO2KXVG2019-12-11T17:13:00Z46.98-94.2-21.0-24.00010.030.33071TRUETRUEVFRMETAR407.02019-12-11 17:20:59C(}5    3KOWA 111713Z AUTO 00000KT 10SM CLR M18/M22 A3042 RMK AO2KOWA2019-12-11T17:13:00Z44.12-93.25-18.0-22.00010.030.41929TRUETRUEVFRMETAR350.02019-12-11 17:20:59F(}5    3KFOZ 111713Z AUTO 23005KT 10SM CLR M20/M24 A3032 RMK AO2KFOZ2019-12-11T17:13:00Z47.77-93.65-20.0-24.0230510.030.318897TRUETRUEVFRMETAR411.02019-12-11 17:20:59 ~0Dq~n#)=5      3KPYM 111713Z AUTO 24003KT 3SM -SN BR SCT005 OVC012 M01/M02 A3022 RMK AO2 P0001 T10111022KPYM2019-12-11T17:13:00Z41.92-70.73-1.1-2.224033.030.221457TRUETRUE-SN BRMVFR0.01METAR43.02019-12-11 17:20:59N")5    3KOPF 111713Z 16008KT 10SM BKN026 BKN038 28/22 A3016 RMK AO2 T02830222KOPF2019-12-11T17:13:00Z25.92-80.2828.322.2160810.030.159449TRUEMVFRMETAR16.02019-12-11 17:20:59g!);5     3PAOR 111713Z 00000KT 2SM -SN BR OVC003 M17/M19 A2968 RMK AO2 PCPN VRY LGT T11721189 PNOPAOR2019-12-11T17:13:00Z62.97-141.93-17.2-18.9002.029.681103TRUE-SN BRLIFRSPECI523.02019-12-11 17:20:59K ) 5    3KNGP 111713Z 04011KT 10SM OVC016 10/07 A3050 RMK AO2 T01000067 $KNGP2019-12-11T17:13:00Z27.68-97.2710.06.7401110.030.499016TRUETRUEMVFRMETAR6.02019-12-11 17:20:59 ->vL')5    3KAMG 111713Z AUTO 02006KT 10SM OVC015 12/09 A3033 RMK AO2 T01220089KAMG2019-12-11T17:13:00Z31.53-82.512.28.920610.030.33071TRUETRUEMVFRMETAR59.02019-12-11 17:20:59C&)5    3KSRQ 111713Z 27006KT 2SM SCT003 26/22 A3017 RMK AO2 T02610222KSRQ2019-12-11T17:13:00Z27.4-82.5726.122.227062.030.171259TRUEIFRMETAR18.02019-12-11 17:20:59j%)K5     3KSHN 111713Z AUTO 05004KT 5SM BR BKN005 BKN009 OVC015 07/06 A2997 RMK AO2 CIG 003V007 T00670061KSHN2019-12-11T17:13:00Z47.23-123.136.76.15045.029.970472TRUETRUEBRIFRMETAR82.02019-12-11 17:20:59N$)5     3KRDD 111713Z 00000KT 2SM BR BKN003 OVC009 09/09 A3026 RMK AO2 T00940089KRDD2019-12-11T17:13:00Z40.52-122.39.48.9002.030.259842TRUEBRLIFRSPECI155.02019-12-11 17:20:59 J-(JY+)5    3CYKL 111712Z AUTO 26017G26KT 5SM HZ FEW013 M22/M26 A2966 RMK SLP104CYKL2019-12-11T17:12:00Z54.78-66.82-22.0-26.026017265.029.6604331010.4TRUEHZMVFRMETAR521.02019-12-11 17:20:59o*)=5   3CYVV 111713Z 26019G27KT 2SM BLSN VCSH BKN020 M06/M10 A3006 RMK BLSN1SC6 OCNL SHSN SLP195CYVV2019-12-11T17:13:00Z44.75-81.08-6.0-10.026019272.030.0590551019.5BLSN VCSHIFRSPECI222.02019-12-11 17:20:59 ))s5      3KIAG 111713Z 26013KT M1/4SM R28R/2000V2600FT +SN FZFG VV007 M05/M06 A3015 RMK AO2 PK WND 23029/1656 P0001 T10501061KIAG2019-12-11T17:13:00Z43.12-78.93-5.0-6.1260130.2530.15059TRUE+SN FZFGLIFR0.01700METAR182.02019-12-11 17:20:59N()5    3KHDO 111713Z AUTO 36006KT 10SM SCT013 09/04 A3052 RMK AO2 T00890044KHDO2019-12-11T17:13:00Z29.37-99.178.94.4360610.030.519686TRUETRUEVFRMETAR282.02019-12-11 17:20:59 CzE0(}5    3K20V 111712Z AUTO 00000KT 10SM CLR M08/M11 A3027 RMK AO2K20V2019-12-11T17:12:00Z40.05-106.37-8.0-11.00010.030.268702TRUETRUEVFRMETAR2259.02019-12-11 17:20:59C/({5    3K7BM 111712Z AUTO 00000KT 10SM CLR 00/M18 A3022 RMK AO2K7BM2019-12-11T17:12:00Z38.78-106.220.0-18.00010.030.221457TRUETRUEVFRMETAR2995.02019-12-11 17:20:59G.(}5    3KMYP 111712Z AUTO 23019KT 10SM CLR M07/M09 A3037 RMK AO2KMYP2019-12-11T17:12:00Z38.48-106.32-7.0-9.02301910.030.369095TRUETRUEVFRMETAR3667.02019-12-11 17:20:59D-({5    3KMNH 111712Z AUTO 16008KT 10SM CLR 06/M09 A3013 RMK AO2KMNH2019-12-11T17:12:00Z39.22-104.656.0-9.0160810.030.129921TRUETRUEVFRMETAR2152.02019-12-11 17:20:598,(o5    3YMAY 111712Z AUTO 16001KT 9999 // NCD 16/07 Q1012YMAY2019-12-11T17:12:00Z-36.07146.9316.07.016016.2129.88189TRUEVFRSPECI171.02019-12-11 17:20:59bRRY`gnu|$+29@GNU\cjqx  '.5<CJQX_fmt{89 : ;<=>?"@&A*B.C2D6E:89 : ;<=>?"@&A*B.C2D6E:F>GBHFIJJNKRLVMZN^ObPgQkRoSsTwU{VWXY Z[\]^_#`'a+b0d4e8f<g@hDiHjLkPlTmXn\o`pdqhrlspttuxv|wxy z{|}~#(,049>CHMQV[`dhlquy}  0fC4({5    3KBDU 111712Z AUTO 06005KT 10SM CLR 04/M04 A3007 RMK AO2KBDU2019-12-11T17:12:00Z40.03-105.234.0-4.060510.030.070866TRUETRUEVFRMETAR1612.02019-12-11 17:20:59N3)5   3K4BM 111712Z AUTO 24015G24KT 10SM CLR M05/M20 A3023 RMK AO2K4BM2019-12-11T17:12:00Z39.05-105.52-5.0-20.0240152410.030.230314TRUETRUEVFRMETAR3438.02019-12-11 17:20:59E2(}5    3K04V 111712Z AUTO 30007KT 10SM CLR M03/M12 A3031 RMK AO2K04V2019-12-11T17:12:00Z38.1-106.17-3.0-12.0300710.030.31004TRUETRUEVFRMETAR2385.02019-12-11 17:20:59K1)5    3K0CO 111712Z AUTO 27027G36KT CLR M06/M15 A3019 RMK AO2 PWINOK0CO2019-12-11T17:12:00Z39.8-105.77-6.0-15.0270273630.188976TRUETRUETRUEMETAR3807.02019-12-11 17:20:59 8hE8(5    3KGSB 111712Z 34008KT 10SM BKN023 07/02 A3035 RMK SLP281 $KGSB2019-12-11T17:12:00Z35.32-77.977.02.0340810.030.3513771028.1TRUEMVFRSPECI33.02019-12-11 17:20:59E7({5    3KCCU 111712Z AUTO 18006KT 10SM CLR 00/M18 A3024 RMK AO2KCCU2019-12-11T17:12:00Z39.48-106.150.0-18.0180610.030.239174TRUETRUEVFRMETAR3680.02019-12-11 17:20:59K6)5   3KC99 111712Z AUTO 21007G14KT 10SM CLR 00/M20 A3018 RMK AO2KC992019-12-11T17:12:00Z29.87-105.550.0-20.021071410.030.180119TRUETRUEVFRMETAR3320.02019-12-11 17:20:59C5(5    3KC07 111712Z AUTO 25004KT CLR M06/M09 A3019 RMK AO2 PWINOKC072019-12-11T17:12:00Z40.35-106.7-6.0-9.0250430.188976TRUETRUETRUEMETAR3224.02019-12-11 17:20:59 t8ht<)i5     3KPTK 111712Z 27018G29KT 8SM -SN BKN023 BKN032 BKN041 M06/M13 A3024 RMK AO2 PK WND 29033/1701 P0000 T10561128 $KPTK2019-12-11T17:12:00Z42.67-83.42-5.6-12.827018298.030.239174TRUETRUE-SNMVFR0.005SPECI299.02019-12-11 17:20:59c;)95     3KMWH 111712Z AUTO 06003KT 2 1/2SM BR OVC003 01/M01 A3013 RMK AO2 CIG 002V006 T00111006KMWH2019-12-11T17:12:00Z47.2-119.321.1-0.66032.530.129921TRUETRUEBRLIFRSPECI362.02019-12-11 17:20:59K:)5    3KCRS 111712Z AUTO VRB04KT 10SM FEW012 06/02 A3058 RMK AO2 T00610022KCRS2019-12-11T17:12:00Z32.03-96.46.12.20410.030.578741TRUETRUEVFRMETAR133.02019-12-11 17:20:59C9)5    3KAFW 111712Z 19006KT 7SM SCT008 06/02 A3055 RMK AO2 T00560022KAFW2019-12-11T17:12:00Z32.97-97.325.62.219067.030.549213TRUEVFRMETAR233.02019-12-11 17:20:59 zRszt@)G5    3KBEH 111711Z AUTO 30010G20KT 10SM BKN029 OVC037 M06/M12 A3040 RMK AO2 SNE1654 P0000 T10561122KBEH2019-12-11T17:11:00Z42.13-86.42-5.6-12.2300102010.030.398623TRUETRUEMVFR0.005METAR191.02019-12-11 17:20:59Z?)+5    3KBMQ 111711Z AUTO 13004KT 10SM OVC005 02/01 A3056 RMK AO2 CIG 003V009 T00220011KBMQ2019-12-11T17:11:00Z30.73-98.232.21.1130410.030.561024TRUETRUEIFRMETAR389.02019-12-11 17:20:59F>(}5    3KCDD 111711Z AUTO 23006KT 10SM CLR M22/M26 A3030 RMK AO2KCDD2019-12-11T17:11:00Z48.27-92.48-22.0-26.0230610.030.301182TRUETRUEVFRMETAR341.02019-12-11 17:20:59^=)#5      3PAMY 111711Z AUTO 17003KT 3SM BR FEW001 BKN036 M01/M01 A2939 RMK AO2 FZRANOPAMY2019-12-11T17:11:00Z60.37-166.27-1.0-1.017033.029.388779TRUETRUETRUEBRMVFRMETAR13.02019-12-11 17:20:59 U =UcD)-5      3PAGK 111711Z AUTO 00000KT 1 1/2SM BR OVC005 M13/M15 A2961 RMK AO2 T11331150 TSNOPAGK2019-12-11T17:11:00Z62.15-145.45-13.3-15.0001.529.610237TRUETRUETRUEBRIFRMETAR481.02019-12-11 17:20:59\C)35     3KPDT 111711Z 32009KT 1SM R26/P6000FT BR BKN001 OVC032 02/00 A3011 RMK AO2 T00170000KPDT2019-12-11T17:11:00Z45.7-118.831.70.032091.030.109253TRUEBRLIFRMETAR462.02019-12-11 17:20:59}B)M5   3KPAM 111711Z AUTO 04013G20KT 10SM FEW015 BKN026 BKN048 OVC060 10/06 A3033 RMK AO2 RAE11 SLP274 $KPAM2019-12-11T17:11:00Z30.07-85.5710.06.040132010.030.330711027.4TRUETRUETRUEOVC6000MVFRMETAR5.02019-12-11 17:20:59[A)%5   3CZMT 111711Z 14021G35KT 15SM -RA FEW008 OVC012 08/07 A2955 RMK CF2SC6 SLP008CZMT2019-12-11T17:11:00Z54.03-132.138.07.0140213515.029.5511821000.8-RAMVFRSPECI8.02019-12-11 17:20:59 *Q}BH(}5    3KAQP 111710Z AUTO 00000KT 10SM CLR M19/M23 A3044 RMK AO2KAQP2019-12-11T17:10:00Z45.22-96.0-19.0-23.00010.030.43996TRUETRUEVFRMETAR311.02019-12-11 17:20:59OG)5  3YPPH 111711Z 10021G31KT CAVOK 25/09 Q1015 FM1711 MOD/SEV TURB BLW 4000FTYPPH2019-12-11T17:11:00Z-31.93115.9825.09.010021316.2129.970472VFRMETAR13.02019-12-11 17:20:59TF)5    3CYWL 111711Z 12005KT 1 1/2SM BR BKN003 M08/M09 A2990 RMK FG4ST3 SLP176CYWL2019-12-11T17:11:00Z52.18-122.07-8.0-9.012051.529.8996071017.6BRLIFRSPECI940.02019-12-11 17:20:59QE) 5     3CYQZ 111711Z AUTO 19002KT 3SM BR OVC008 M06/M07 A2994 RMK SLP174CYQZ2019-12-11T17:11:00Z53.02-122.52-6.0-7.019023.029.9409451017.4TRUEBRIFRSPECI545.02019-12-11 17:20:59 1A\WL)5    3KWYS 111710Z AUTO 21015G21KT 3/4SM BR BKN003 M05/M06 A3004 RMK AO2KWYS2019-12-11T17:10:00Z44.67-111.12-5.0-6.021015210.7530.041338TRUETRUEBRLIFRMETAR2025.02019-12-11 17:20:59`K)G5    3RJAH 111710Z VRB02KT 4000 BR FEW010 BKN015 10/09 Q1008 RMK 1CU010 5CU015 A2977 VIS S-SW 3000MRJAH2019-12-11T17:10:00Z36.17140.4210.09.0022.4929.763779BRIFRSPECI35.02019-12-11 17:20:59kJ)A5     3KTAN 111710Z AUTO 28005KT 10SM SCT008 BKN012 M01/M03 A3023 RMK AO2 SNE1659 P0000 T10061033KTAN2019-12-11T17:10:00Z41.88-71.02-0.6-3.3280510.030.230314TRUETRUEMVFR0.005METAR7.02019-12-11 17:20:59JI) 5    3KORD 111710Z 28010KT 10SM SCT025 M07/M12 A3042 RMK AO2 T10671117KORD2019-12-11T17:10:00Z41.98-87.93-6.7-11.72801010.030.41929TRUEVFRMETAR200.02019-12-11 17:20:59 7h{P)[5    3CYPD 111710Z AUTO 32009G16KT 280V010 2 1/4SM -SN SCT013 OVC025 M03/M04 A3003 RMK VIS VRB 1 1/4-3 SLP175CYPD2019-12-11T17:10:00Z45.67-61.37-3.0-4.03209162.2530.0295281017.5TRUE-SNIFRSPECI114.02019-12-11 17:20:59WO)5     3KGDP 111710Z AUTO 23016KT 1SM BR VV002 04/04 A3036 RMK AO2 T00390039KGDP2019-12-11T17:10:00Z31.83-104.823.93.9230161.030.360237TRUETRUEBRLIFR200SPECI1692.02019-12-11 17:20:59JN)5   3K1V6 111710Z AUTO 26009G15KT 10SM CLR 08/M10 A3014 RMK AO2K1V62019-12-11T17:10:00Z38.43-105.18.0-10.026091510.030.138779TRUETRUEVFRMETAR1658.02019-12-11 17:20:59DM({5    3KHEQ 111710Z AUTO 18015KT 10SM CLR 08/M04 A3015 RMK AO2KHEQ2019-12-11T17:10:00Z40.57-102.288.0-4.01801510.030.15059TRUETRUEVFRMETAR1137.02019-12-11 17:20:59 ODT({5    3KSTK 111710Z AUTO 25004KT 10SM CLR 00/M02 A3012 RMK AO2KSTK2019-12-11T17:10:00Z40.62-103.270.0-2.0250410.030.121063TRUETRUEVFRMETAR1231.02019-12-11 17:20:59FS(}5    3CYHK 111710Z 33016KT 3SM BR SKC M27/M29 A2980 RMK SLP101CYHK2019-12-11T17:10:00Z68.62-95.83-27.0-29.0330163.029.7992131010.1BRMVFRSPECI46.02019-12-11 17:20:59\R)/5      3KMJX 111710Z AUTO 31006KT 10SM BKN010 OVC033 02/ A3030 RMK AO2 CIG 007V014 FZRANOKMJX2019-12-11T17:10:00Z39.93-74.32.0310610.030.301182TRUETRUETRUEMVFRSPECI25.02019-12-11 17:20:59Q)[5       3KCOE 111710Z AUTO 25004KT 2 1/2SM BR BKN003 OVC020 M01/M02 A3009 RMK AO2 UPB1658E00SNE1658 P0000 FZRANOKCOE2019-12-11T17:10:00Z47.77-116.82-1.0-2.025042.530.088583TRUETRUETRUEBRLIFR0.005SPECI707.02019-12-11 17:20:59 :\zLX)5     3KUAO 111709Z 00000KT 1 3/4SM BR OVC002 07/06 A3006 RMK AO2 T00670056KUAO2019-12-11T17:09:00Z45.25-122.776.75.6001.7530.059055TRUEBRLIFRSPECI59.02019-12-11 17:20:59]W))5      3KLVK 111709Z 09003KT 4SM BR OVC038 12/11 A3022 RMK AO2 RAE1659 P0000 T01170106KLVK2019-12-11T17:09:00Z37.7-121.8211.710.69034.030.221457TRUEBRMVFR0.005SPECI117.02019-12-11 17:20:59YV)#5     3KEAT 111709Z AUTO 15003KT 1 1/4SM BR OVC005 M01/M02 A3011 RMK AO2 T10061017KEAT2019-12-11T17:09:00Z47.4-120.2-0.6-1.715031.2530.109253TRUETRUEBRIFRSPECI377.02019-12-11 17:20:59AU)5   3ROAH 111709Z 01018KT 9999 BKN025 20/16 Q1019 RMK 6CU025 A3010ROAH2019-12-11T17:09:00Z26.17127.6520.016.010186.2130.088583MVFRSPECI8.02019-12-11 17:20:59 x"AQxT\)5     3KSDY 111709Z AUTO 04007KT 10SM BKN012 M13/M16 A3010 RMK AO2 FZRANOKSDY2019-12-11T17:09:00Z47.7-104.2-13.0-16.040710.030.100393TRUETRUETRUEMVFRSPECI605.02019-12-11 17:20:59k[)55   3CYSK 111709Z 21018G23KT 1/2SM -SN BLSN FEW008 BKN017 M15/M17 A2973 RMK SF2SC4 SLP072CYSK2019-12-11T17:09:00Z56.53-79.25-15.0-17.021018230.529.7312981007.2-SN BLSNLIFRSPECI26.02019-12-11 17:20:59\Z)5     3PAVA 111709Z AUTO 07010KT 10SM OVC009 M04/M04 A2944 RMK AO2 FZRANO PNO $PAVA2019-12-11T17:09:00Z61.53-165.6-4.0-4.0701010.029.438976TRUETRUETRUETRUEIFRSPECI23.02019-12-11 17:20:59YY)#5    3CYSJ 111709Z 36009KT 10SM -SN FEW015 OVC034 M05/M08 A3014 RMK SC1SC7 SLP212CYSJ2019-12-11T17:09:00Z45.32-65.87-5.0-8.0360910.030.1387791021.2-SNVFRSPECI109.02019-12-11 17:20:59 3 3M`)5     3UKLL 111708Z 13005MPS 1800 SNRA OVC003 00/M01 Q1016 R13/290055 NOSIGUKLL2019-12-11T17:08:00Z49.8223.930.0-1.0130101.1230.0TRUESN RALIFRSPECI325.02019-12-11 17:20:59_)g5    3KHMN 111708Z 18003KT 7SM OVC002 03/02 A3038 RMK AO2A VIS 2 1/4 RWY04 VIS 2 1/4 RWY07 VIS 1 5/8 RWY34 SLP286 $KHMN2019-12-11T17:08:00Z32.85-106.083.02.018037.030.3809051028.6TRUETRUELIFRSPECI1248.02019-12-11 17:20:59^)5    3EHLW 111708Z AUTO 18007KT 140V200 4500 BR FEW021 SCT025 BKN029 05/05 Q1002 GRN 17005KT 4500 BR SCT018 BKN026 TEMPO 3000 BR SCT006EHLW2019-12-11T17:08:00Z53.225.755.05.018072.829.586615TRUEBR BRSCT1800IFRSPECI2.02019-12-11 17:20:59]])#5    3CYMJ 111709Z 12012KT 10SM -SN FEW040 OVC070 M19/M22 A3012 RMK SC2AS6 SLP263CYMJ2019-12-11T17:09:00Z50.32-105.53-19.0-22.01201210.030.1210631026.3-SNVFRSPECI577.02019-12-11 17:20:59 )Wv\d)5     3PAGM 111708Z AUTO 11014G23KT 5SM BR OVC003 M01/M01 A2942 RMK AO2 FZRANOPAGM2019-12-11T17:08:00Z63.77-171.73-1.0-1.011014235.029.421259TRUETRUETRUEBRLIFRMETAR8.02019-12-11 17:20:59\c))5    3KPVG 111708Z AUTO 34008KT 300V010 10SM CLR 06/M04 A3038 RMK AO2 TSB07E08 PNO $KPVG2019-12-11T17:08:00Z36.78-76.456.0-4.0340810.030.380905TRUETRUETRUEVFRMETAR7.02019-12-11 17:20:59Mb)5    3SPQT 111708Z 31007KT 6000 -TSRA SCT010 FEW020CB BKN100 25/23 Q1010SPQT2019-12-11T17:08:00Z-3.78-73.3225.023.031073.7329.822834-TSRAMVFRSPECI126.02019-12-11 17:20:59Ra)!5    3LTAN 111708Z 18005KT 3500 RA BR SCT035 BKN080 06/06 Q1015 BECMG TL1800 NSWLTAN2019-12-11T17:08:00Z37.9732.536.06.018052.1729.970472RA BRIFRSPECI1006.02019-12-11 17:20:59 ')'}h)Y5       3PADQ 111708Z AUTO 05022KT 2SM -RA BR OVC005 07/06 A2903 RMK AO2 PK WND 05027/1707 P0001 T00720056 TSNOPADQ2019-12-11T17:08:00Z57.75-152.57.25.650222.029.028543TRUETRUETRUE-RA BRIFR0.01SPECI34.02019-12-11 17:20:59mg)95     3KEGI 111708Z AUTO 01012KT 10SM -RA FEW110 07/05 A3040 RMK AO2 RAB1656E03RAB08 SLP296 $KEGI2019-12-11T17:08:00Z30.63-86.527.05.0101210.030.3986231029.6TRUETRUETRUE-RAVFRSPECI59.02019-12-11 17:20:59Zf)5     3PAPO 111708Z AUTO 16021KT 10SM BKN028 BKN038 M01/M03 A2962 RMK AO2 FZRANOPAPO2019-12-11T17:08:00Z68.35-166.8-1.0-3.01602110.029.619095TRUETRUETRUEMVFRMETAR6.02019-12-11 17:20:59e)k5     3PAMD 111708Z AUTO 08033G43KT 6SM BR BKN007 OVC015 07/06 A2933 RMK AO2 PK WND 08043/1706 RAE08 CIG 006V011 P0000PAMD2019-12-11T17:08:00Z59.43-146.37.06.08033436.029.329725TRUETRUEBRIFR0.005METAR14.02019-12-11 17:20:59 -,[Ql)5    3KVEL 111708Z AUTO 07003KT 7SM SCT004 M04/M06 A3026 RMK AO2 T10441061KVEL2019-12-11T17:08:00Z40.45-109.52-4.4-6.17037.030.259842TRUETRUEVFRSPECI1604.02019-12-11 17:20:59Lk)5    3KFRG 111708Z 00000KT 10SM BKN015 OVC055 01/M02 A3027 RMK AO2 T00061022KFRG2019-12-11T17:08:00Z40.73-73.420.6-2.20010.030.268702TRUEMVFRSPECI21.02019-12-11 17:20:59|j)Y5      3KIDA 111708Z 22004KT 3/4SM R21/4500VP6000FT -SN BR FEW015 OVC023 M03/M04 A3015 RMK AO2 P0000 T10281044KIDA2019-12-11T17:08:00Z43.52-112.07-2.8-4.422040.7530.15059TRUE-SN BRLIFR0.005SPECI1453.02019-12-11 17:20:59Ni)5    3KBVY 111708Z 28003KT 10SM FEW011 BKN016 00/M02 A3020 RMK AO2 T00001022KBVY2019-12-11T17:08:00Z42.58-70.920.0-2.2280310.030.200787TRUEMVFRSPECI28.02019-12-11 17:20:59 )qZp)#5    3CYXH 111707Z 02010KT 15SM -SN BKN100 OVC130 M08/M10 A2985 RMK AC6AC2 SLP155CYXH2019-12-11T17:07:00Z50.02-110.72-8.0-10.0201015.029.849411015.5-SNVFRSPECI716.02019-12-11 17:20:59mo)A5   3CYHM 111707Z 24022G30KT 15SM -SHSN FEW025 BKN035 BKN090 M05/M12 A3015 RMK CU2SC3AC2 SLP224CYHM2019-12-11T17:07:00Z43.17-79.93-5.0-12.0240223015.030.150591022.4-SHSNVFRSPECI238.02019-12-11 17:20:593n(i5   3PALP 111707Z 10004KT 10SM FEW180 M14/M18 A2974PALP2019-12-11T17:07:00Z70.33-150.93-14.0-18.0100410.029.740158VFRSPECI5.02019-12-11 17:20:59Rm)5    3KPIE 111708Z 04004KT 10SM BKN016 OVC023 24/21 A3020 RMK AO2 T02390211 $KPIE2019-12-11T17:08:00Z27.92-82.6823.921.140410.030.200787TRUETRUEMVFRSPECI4.02019-12-11 17:20:59 I##IUt)5     3KBLM 111707Z AUTO 29003KT 10SM FEW007 OVC012 02/02 A3029 RMK AO2 FZRANOKBLM2019-12-11T17:07:00Z40.17-74.122.02.0290310.030.28937TRUETRUETRUEMVFRMETAR48.02019-12-11 17:20:59{s)a5     3EGUN 111707Z 22009KT 9999 -RA BKN024 BKN060 06/06 A2951 RMK AO2A RAB1656 CIG 024V060 BKN024 V SCT SLP997 $EGUN2019-12-11T17:07:00Z52.370.476.06.022096.2129.509842999.7TRUETRUE-RAMVFRMETAR10.02019-12-11 17:20:59[r)35     3KSPG 111707Z 08005KT 1 3/4SM BR BKN006 BKN011 22/21 A3018 RMK AO2 VIS 1V4 T02220211KSPG2019-12-11T17:07:00Z27.77-82.6322.221.18051.7530.180119TRUEBRIFRMETAR2.02019-12-11 17:20:59xq)Y5      3KMVY 111707Z 31009KT 1/2SM R24/3000V5000FT SN FZFG FEW008 OVC017 M01/M02 A3023 RMK AO2 P0001 T10061022KMVY2019-12-11T17:07:00Z41.4-70.62-0.6-2.231090.530.230314TRUESN FZFGLIFR0.01METAR16.02019-12-11 17:20:59 BBpPx) 5   3K5SM 111706Z AUTO 20007G15KT 10SM SCT120 M06/M10 A3027 RMK AO2K5SM2019-12-11T17:06:00Z39.43-107.38-6.0-10.020071510.030.268702TRUETRUEVFRMETAR3232.02019-12-11 17:20:59Mw)5   3KCPW 111706Z AUTO 21018G27KT 10SM CLR M05/M22 A3036 RMK AO2KCPW2019-12-11T17:06:00Z37.45-106.8-5.0-22.0210182710.030.360237TRUETRUEVFRMETAR3584.02019-12-11 17:20:59{v)U5   !  3ETOU 111706Z 00000KT 3200 -SNRA BR OVC005 00/00 A2976 RMK AO2A VIS 3600V4400 VIS 3600 RWY07 SLP088 $ETOU2019-12-11T17:06:00Z50.038.320.00.0001.9929.7608261008.8TRUETRUE-SN -RA BRIFRSPECI141.02019-12-11 17:20:599u(u5    3KGTU 111707Z VRB05KT 10SM BKN013 08/03 A3057 RMK AO2KGTU2019-12-11T17:07:00Z30.68-97.688.03.00510.030.569881TRUEMVFRMETAR240.02019-12-11 17:20:59 '@bV|)5     3KMCE 111706Z AUTO 14006KT 1 1/4SM BR OVC002 09/09 A3027 RMK AO2 T00940089KMCE2019-12-11T17:06:00Z37.28-120.59.48.914061.2530.268702TRUETRUEBRLIFRMETAR47.02019-12-11 17:20:59Y{)#5    3KBKE 111706Z AUTO 13003KT 10SM SCT024 OVC080 02/M02 A3013 RMK AO2 T00221017KBKE2019-12-11T17:06:00Z44.85-117.822.2-1.7130310.030.129921TRUETRUEVFRMETAR1024.02019-12-11 17:20:59bz)%5   3KGTB 111706Z AUTO 19018G27KT 10SM SCT028 OVC038 M02/M09 A3009 RMK AO2 SLP201KGTB2019-12-11T17:06:00Z44.07-75.72-2.0-9.0190182710.030.0885831020.1TRUETRUEVFRMETAR207.02019-12-11 17:20:59Ty)5     3KSMP 111706Z AUTO 00000KT 1/2SM FG OVC020 01/00 A2997 RMK AO2 T00110000KSMP2019-12-11T17:06:00Z47.28-121.331.10.0000.529.970472TRUETRUEFGLIFRSPECI1208.02019-12-11 17:20:59 l)DWlf)C5     3CWAV 111700Z AUTO 03002KT M08/M10 RMK AO1 5PAST HR SOG 16 1007 SLP149 P0002 T10841098 50008CWAV2019-12-11T17:00:00Z51.77-114.67-8.4-9.83021014.9TRUETRUE0.80.02METAR1114.02019-12-11 17:20:59h)C5     3CWAQ 111700Z AUTO 11008KT M17/M19 RMK AO1 2PAST HR SOG 13 8004 SLP231 P0001 T11701194 50002CWAQ2019-12-11T17:00:00Z49.05-105.48-17.0-19.411081023.1TRUETRUE0.20.01METAR756.02019-12-11 17:20:59`~)+5     3KATT 111704Z AUTO VRB03KT 10SM SCT018 08/02 A3055 RMK AO2 T00830022 PWINO PNO $KATT2019-12-11T17:04:00Z30.32-97.778.32.20310.030.549213TRUETRUETRUETRUEVFRSPECI201.02019-12-11 17:20:59R})5    3KMMV 111706Z AUTO 14006KT 8SM SCT002 OVC043 07/07 A3004 RMK AO2 T00720067KMMV2019-12-11T17:06:00Z45.2-123.137.26.714068.030.041338TRUETRUEVFRMETAR48.02019-12-11 17:20:59 F>nF/(w5   3FYML 111700Z AUTO 00000KT //// // ////// 35/M03 Q1016FYML2019-12-11T17:00:00Z-24.617.9335.0-3.00030.0TRUEMETAR1113.02019-12-11 17:20:595(u5   3FYOO 111700Z AUTO 32003KT //// // ////// 32/00 Q1014FYOO2019-12-11T17:00:00Z-19.1515.9232.00.0320329.940945TRUEMETAR1192.02019-12-11 17:20:595(u5   3FYOW 111700Z AUTO 21003KT //// // ////// 31/02 Q1015FYOW2019-12-11T17:00:00Z-20.4316.6731.02.0210329.970472TRUEMETAR1481.02019-12-11 17:20:59K)5   3CWBO 111700Z AUTO 01008KT M14/M16 RMK AO1 SOG 17 3008 SLP174 T11371155CWBO2019-12-11T17:00:00Z50.53-111.83-13.7-15.51081017.4TRUETRUEMETAR747.02019-12-11 17:20:59=) 5   3CWBA 111700Z AUTO 00000KT M08/M10 RMK AO1 SOG 10 T10821095 50010CWBA2019-12-11T17:00:00Z46.72-79.1-8.2-9.500TRUETRUE1.0METAR181.02019-12-11 17:20:59 09^07 (q5    3HKMO 111700Z 05007KT 9999 FEW025 27/25 Q1010 NOSIGHKMO2019-12-11T17:00:00Z-4.0239.6227.025.05076.2129.822834TRUEVFRMETAR55.02019-12-11 17:20:590 (e5   3HKNW 111700Z 04011KT 9999 SCT021 19/16 Q1019HKNW2019-12-11T17:00:00Z-1.3236.8219.016.040116.2130.088583VFRMETAR1679.02019-12-11 17:20:598(w5   3HUEN 111700Z 18008KT 9999 FEW021 FEW023CB 23/19 Q1015HUEN2019-12-11T17:00:00Z0.0332.4523.019.018086.2129.970472VFRMETAR1155.02019-12-11 17:20:59V)5   3KEDJ 111700Z AUTO 25014G19KT 10SM BKN019 BKN024 M04/M04 A3039 RMK AO1KEDJ2019-12-11T17:00:00Z40.37-83.82-4.0-4.0250141910.030.389763TRUETRUEMVFRMETAR342.02019-12-11 17:20:59B(y5   3CYHI 111700Z 36009KT 15SM SKC M24/M28 A3040 RMK SLP302CYHI2019-12-11T17:00:00Z70.77-117.78-24.0-28.0360915.030.3986231030.2VFRMETAR36.02019-12-11 17:20:59 ^O ^((Y5   3FNCT 111700Z 27008KT CAVOK 28/22 Q1009FNCT2019-12-11T17:00:00Z-12.4813.4828.022.027086.2129.793306VFRMETAR7.02019-12-11 17:20:593(u5   3FDST 111700Z AUTO 00000KT //// // ////// 21/19 Q1010FDST2019-12-11T17:00:00Z-26.4331.9521.019.00029.822834TRUEMETAR667.02019-12-11 17:20:59J )5    3HBBA 111700Z 09002KT 9999 FEW024TCU FEW030CB BKN10021/20 Q1012 NOSIGHBBA2019-12-11T17:00:00Z-3.3229.3221.020.09026.2129.88189TRUEVFRMETAR783.02019-12-11 17:20:598 (q5    3HKJK 111700Z 06006KT 9999 FEW022 18/17 Q1020 NOSIGHKJK2019-12-11T17:00:00Z-1.3236.9218.017.06066.2130.11811TRUEVFRMETAR1624.02019-12-11 17:20:59, (e5   3HKML 111700Z 07006KT 9999 FEW022 28/25 Q1009HKML2019-12-11T17:00:00Z-3.2240.128.025.07066.2129.793306VFRMETAR23.02019-12-11 17:20:59 CMC@)5    3FPST 111700Z 17006KT 9999 FEW020CB SCT040 30/26 Q1009 NOSIGFPST2019-12-11T17:00:00Z0.376.7230.026.017066.2129.793306TRUEVFRMETAR13.02019-12-11 17:20:596(q5    3FGSL 111700Z 24004KT 9999 FEW012 29/25 Q1009 NOSIGFGSL2019-12-11T17:00:00Z3.758.7229.025.024046.2129.793306TRUEVFRMETAR56.02019-12-11 17:20:59F) 5    3CWBT 111700Z AUTO 26006KT M09/M17 RMK AO1 SLP178 T10871172 51001CWBT2019-12-11T17:00:00Z50.27-64.23-8.7-17.226061017.8TRUETRUE0.1METAR11.02019-12-11 17:20:59:(w5     3VAAH 111700Z 00000KT 4000 FU FEW080 18/09 Q1011 NOSIGVAAH2019-12-11T17:00:00Z23.0772.6218.09.0002.4929.852362TRUEFUIFRMETAR55.02019-12-11 17:20:59.(e5   3FNCA 111700Z 25008KT 9999 FEW016 29/23 Q1009FNCA2019-12-11T17:00:00Z-5.5812.1829.023.025086.2129.793306VFRMETAR20.02019-12-11 17:20:59 ,Iz,=)5    3FKKD 111700Z VRB02KT 8000 BKN013 FEW016CB 29/25 Q1008 NOSIGFKKD2019-12-11T17:00:00Z4.09.7229.025.0024.9729.763779TRUEMVFRMETAR9.02019-12-11 17:20:59A) 5   3FEFF 111700Z 16002KT 7000 FEW016 FEW033CB 29/25 Q1009 TEMPO TSFEFF2019-12-11T17:00:00Z4.418.5229.025.016024.3529.793306MVFRMETAR366.02019-12-11 17:20:59A)5    3FCBB 111700Z VRB02KT 9999 FEW022 FEW028CB 28/22 Q1010 NOSIGFCBB2019-12-11T17:00:00Z-4.2515.2528.022.0026.2129.822834TRUEVFRMETAR316.02019-12-11 17:20:59J)5    3FZAA 111700Z 36008KT 9999 FEW020 FEW030CB SCT300 28/22 Q1009 NOSIGFZAA2019-12-11T17:00:00Z-4.3815.4528.022.036086.2129.793306TRUEVFRMETAR312.02019-12-11 17:20:592(u5   3FGBT 111700Z 20009KT 170V230 9999 SCT010 29/25 Q1008FGBT2019-12-11T17:00:00Z1.889.829.025.020096.2129.763779VFRMETAR8.02019-12-11 17:20:59 <:u<2(q5   3OICC 111700Z 00000KT 9999 FEW040 04/01 Q1019 A3009OICC2019-12-11T17:00:00Z34.3547.174.01.0006.2130.088583VFRMETAR1322.02019-12-11 17:20:59A)5    3FMCH 111700Z 04005KT 330V110 9999 FEW024 28/24 Q1011 NOSIGFMCH2019-12-11T17:00:00Z-11.5243.2728.024.04056.2129.852362TRUEVFRMETAR29.02019-12-11 17:20:597(w5   3FBMN 111700Z 06005KT 9999 FEW030 FEW035CB 29/17 Q1012FBMN2019-12-11T17:00:00Z-19.9723.4229.017.06056.2129.88189VFRMETAR900.02019-12-11 17:20:59@)5    3FCPP 111700Z 24006KT 210V280 9999 FEW015 28/23 Q1008 NOSIGFCPP2019-12-11T17:00:00Z-4.8211.928.023.024066.2129.763779TRUEVFRMETAR17.02019-12-11 17:20:59A)5    3FKYS 111700Z 00000KT 6000 SCT016 FEW023CB 26/23 Q1013 NOSIGFKYS2019-12-11T17:00:00Z3.8211.5226.023.0003.7329.911417TRUEMVFRMETAR760.02019-12-11 17:20:59 i8 i2#(o5   3GOSS 111700Z 06008KT 350V090 8000 NSC 32/05 Q1010GOSS2019-12-11T17:00:00Z16.05-16.4332.05.06084.9729.822834MVFRMETAR4.02019-12-11 17:20:592"(e5    3FKKR 111700Z 21003KT CAVOK 26/10 Q1009 NOSIGFKKR2019-12-11T17:00:00Z9.3213.3726.010.021036.2129.793306TRUEVFRMETAR244.02019-12-11 17:20:59'!(Y5   3FKKL 111700Z 05005KT CAVOK 30/05 Q1011FKKL2019-12-11T17:00:00Z10.4514.2530.05.05056.2129.852362VFRMETAR424.02019-12-11 17:20:590 (o5   3LFLW 111700Z AUTO VRB03KT 9999 ////// 03/03 Q1015LFLW2019-12-11T17:00:00Z44.882.423.03.0036.2129.970472TRUEMETAR639.02019-12-11 17:20:59C) 5    3VEBN 111700Z VRB02KT 1000 BR FEW100 16/15 Q1014 BECMG 0800 MIFGVEBN2019-12-11T17:00:00Z25.4582.8516.015.0020.6229.940945BRLIFRMETAR83.02019-12-11 17:20:59 UL U3((k5    3DGLE 111700Z 05003KT 8000 NSC 36/08 Q1007 NOSIGDGLE2019-12-11T17:00:00Z9.5-0.8536.08.05034.9729.734253TRUEMVFRMETAR173.02019-12-11 17:20:59I')5    3DGSI 111700Z 27003KT 9999 FEW011 BKN015 FEW030CB 31/23 Q1009 NOSIGDGSI2019-12-11T17:00:00Z6.72-1.631.023.027036.2129.793306TRUEMVFRMETAR293.02019-12-11 17:20:59@&)5    3DGTK 111700Z 23009KT 9999 FEW013 FEW030CB 30/25 Q1008 NOSIGDGTK2019-12-11T17:00:00Z4.87-1.7730.025.023096.2129.763779TRUEVFRMETAR9.02019-12-11 17:20:59'%(Y5   3GOGS 111700Z 02002KT CAVOK 30/15 Q1009GOGS2019-12-11T17:00:00Z12.4-16.7530.015.02026.2129.793306VFRMETAR13.02019-12-11 17:20:59/$(e5    3GOOY 111700Z 04006KT 3500 DU NSC 25/16 Q1011GOOY2019-12-11T17:00:00Z14.72-17.525.016.04062.1729.852362DUIFRMETAR24.02019-12-11 17:20:59 0_z,)g5     3CZRP 111700Z AUTO 33025KT M22/M24 RMK AO1 2PAST HR SOG 58 6008 PK WND 32029/1605 SLP246 P0001 T12171238 50004CZRP2019-12-11T17:00:00Z75.37-105.72-21.7-23.8330251024.6TRUETRUE0.40.01METAR12.02019-12-11 17:20:59J+)5   3CXSE 111700Z AUTO 00030KT M24/M27 RMK AO1 SOG 10 6003 SLP233 T12421266CXSE2019-12-11T17:00:00Z73.77-105.28-24.2-26.60301023.3TRUETRUEMETAR11.02019-12-11 17:20:59L*)5   3CXDK 111700Z AUTO 10005KT M20/M23 RMK AO1 SOG 12 5002 SLP243 T12001231CXDK2019-12-11T17:00:00Z61.27-124.47-20.0-23.110051024.3TRUETRUEMETAR283.02019-12-11 17:20:59K))5    3CWWS 111700Z AUTO M24/M27 RMK AO1 22 SOG 24 3018 SLP268 T12381273 50002CWWS2019-12-11T17:00:00Z52.82-97.62-23.8-27.31026.8TRUETRUE0.2METAR223.02019-12-11 17:20:59 OP0)'5    3UTSK 111700Z 00000KT 2200 BR BKN008 OVC020 07/07 Q1017 R16/CLRD70 RMK BASE800UTSK2019-12-11T17:00:00Z38.8365.777.07.0001.3730.029528BRIFRSPECI1365.02019-12-11 17:20:59G/) 5     3UTSB 111700Z 22008KT 4500 BR OVC011 06/05 Q1017 R01/CLRD70 NOSIGUTSB2019-12-11T17:00:00Z39.7764.486.05.022082.830.029528TRUEBRIFRSPECI226.02019-12-11 17:20:59G.) 5     3UTSA 111700Z 18006KT 2100 BR BKN007 05/04 Q1017 R07/CLRD70 NOSIGUTSA2019-12-11T17:00:00Z40.1265.175.04.018061.330.029528TRUEBRIFRSPECI346.02019-12-11 17:20:59`-)C5   3CWDO 111700Z AUTO 29019G30KT M01/M05 RMK AO1 SOG 04 3028 PK WND 26031/1620 SLP088 T10061050CWDO2019-12-11T17:00:00Z49.67-54.78-0.6-5.029019301008.8TRUETRUEMETAR92.02019-12-11 17:20:59  XI4)5     3UTTT 111700Z 24002KT 4000 BR OVC035 09/07 Q1017 R08L/CLRD70 NOSIGUTTT2019-12-11T17:00:00Z41.2769.279.07.024022.4930.029528TRUEBRIFRMETAR489.02019-12-11 17:20:59=3)5    3UTFF 111700Z 00000KT 0450 FG OVC007 05/03 Q1018 R18/CLRD70UTFF2019-12-11T17:00:00Z40.3771.775.03.0000.2830.059055FGLIFRMETAR577.02019-12-11 17:20:59C2)5    3UTST 111700Z 05004KT 3300 BR NSC 07/05 Q1016 R88/CLRD70 TEMPO 1000 BRUTST2019-12-11T17:00:00Z37.2867.327.05.05042.0530.0BRIFRSPECI302.02019-12-11 17:20:59[1)A5    3UTSS 111700Z 17004KT 140V200 6000 SCT005 BKN064CB 06/05 Q1016 R09/29//55 NOSIG RMK BASE530UTSS2019-12-11T17:00:00Z39.766.986.05.017043.7330.0TRUEMVFRMETAR724.02019-12-11 17:20:59 v/vv9(Y5   3GOOG 111700Z 10010KT CAVOK 32/07 Q////GOOG2019-12-11T17:00:00Z15.4-15.0832.07.0100106.21VFRMETAR21.02019-12-11 17:20:59+8(_5   3GOSM 111700Z 12006KT 8000 NSC 31/07 Q1011GOSM2019-12-11T17:00:00Z15.6-13.3331.07.012064.9729.852362MVFRMETAR17.02019-12-11 17:20:59'7(a5    3LOWZ 111700Z AUTO 19001KT 9999 NCD M06/M08LOWZ2019-12-11T17:00:00Z47.312.78-6.0-8.019016.21TRUEVFRSPECI754.02019-12-11 17:20:5946(s5   3TDCF 111700Z 10007KT 9999 FEW016 BKN032 28/23 Q1013TDCF2019-12-11T17:00:00Z15.33-61.428.023.010076.2129.911417VFRMETAR5.02019-12-11 17:20:59L5) 5     3TAPA 111700Z 09013KT 9999 VCSH FEW014CB SCT017 24/22 Q1015 NOSIGTAPA2019-12-11T17:00:00Z17.12-61.7824.022.090136.2129.970472TRUEVCSHVFRMETAR14.02019-12-11 17:20:59 ;Cx;9>(o5    3YBCV 111700Z AUTO 13005KT 9999 // NCD 28/05 Q1010YBCV2019-12-11T17:00:00Z-26.38146.2728.05.013056.2129.822834TRUEVFRMETAR304.02019-12-11 17:20:599=(o5    3YAYE 111700Z AUTO 15010KT 9999 // NCD 32/04 Q1012YAYE2019-12-11T17:00:00Z-25.18130.9832.04.0150106.2129.88189TRUEVFRSPECI496.02019-12-11 17:20:59<<(u5    3YABA 111700Z AUTO 08012KT 9999 // OVC020 17/12 Q1023YABA2019-12-11T17:00:00Z-34.93117.817.012.080126.2130.206694TRUEMVFRMETAR69.02019-12-11 17:20:59F;)5    3YSNW 111700Z AUTO 19005KT 9999 // BKN028 OVC045 16/13 Q1014YSNW2019-12-11T17:00:00Z-34.95150.5216.013.019056.2129.940945TRUEMVFRMETAR110.02019-12-11 17:20:598:(o5    3YRMD 111700Z AUTO 03010KT 9999 // NCD 26/06 Q1006YRMD2019-12-11T17:00:00Z-20.7143.1226.06.030106.2129.704725TRUEVFRMETAR207.02019-12-11 17:20:59 UGU9C(o5    3YBOK 111700Z AUTO 35008KT 9999 // NCD 20/16 Q1012YBOK2019-12-11T17:00:00Z-27.42151.7220.016.035086.2129.88189TRUEVFRMETAR407.02019-12-11 17:20:598B(o5    3YBNA 111700Z AUTO 32007KT 9999 // NCD 21/19 Q1008YBNA2019-12-11T17:00:00Z-28.83153.5721.019.032076.2129.763779TRUEVFRMETAR2.02019-12-11 17:20:599A(o5    3YBMK 111700Z AUTO 32006KT 9999 // NCD 21/20 Q1010YBMK2019-12-11T17:00:00Z-21.17149.1721.020.032066.2129.822834TRUEVFRMETAR31.02019-12-11 17:20:594@(o5    3YBHI 111700Z AUTO 19014KT 9999 // NCD 18/06 Q1016YBHI2019-12-11T17:00:00Z-32.0141.4718.06.0190146.2130.0TRUEVFRMETAR292.02019-12-11 17:20:594?(u5   3YBDV 111700Z AUTO 14011KT //// // ////// 32/04 Q1008YBDV2019-12-11T17:00:00Z-25.9139.3532.04.01401129.763779TRUEMETAR47.02019-12-11 17:20:59 KCK8H(o5    3YDBY 111700Z AUTO 27005KT 9999 // NCD 31/21 Q1005YDBY2019-12-11T17:00:00Z-17.37123.6731.021.027056.2129.675198TRUEVFRMETAR7.02019-12-11 17:20:59=G(u5    3YCOM 111700Z AUTO 20010KT 9999 // OVC018 11/06 Q1015YCOM2019-12-11T17:00:00Z-36.3148.9711.06.0200106.2129.970472TRUEMVFRMETAR941.02019-12-11 17:20:597F(w5   3YCNM 111700Z AUTO 19007KT //// // ////// 22/M02 Q1010YCNM2019-12-11T17:00:00Z-30.98148.3822.0-2.0190729.822834TRUEMETAR184.02019-12-11 17:20:598E(o5    3YCDU 111700Z AUTO 14013KT 9999 // NCD 16/13 Q1020YCDU2019-12-11T17:00:00Z-32.12133.716.013.0140136.2130.11811TRUEVFRMETAR15.02019-12-11 17:20:598D(o5    3YBPN 111700Z AUTO 20006KT 9999 // NCD 22/21 Q1009YBPN2019-12-11T17:00:00Z-20.5148.5522.021.020066.2129.793306TRUEVFRMETAR25.02019-12-11 17:20:59 :A:IM) 5    3CWDK 111700Z AUTO 34002KT M09/M11 RMK AO1 SLP165 T10931107 53013CWDK2019-12-11T17:00:00Z50.02-113.62-9.3-10.734021016.5TRUETRUE1.3METAR1012.02019-12-11 17:20:599L(o5    3YGTH 111700Z AUTO 19007KT 9999 // NCD 17/08 Q1013YGTH2019-12-11T17:00:00Z-34.25146.0717.08.019076.2129.911417TRUEVFRMETAR134.02019-12-11 17:20:598K(o5    3YGTE 111700Z AUTO 08002KT 9999 // NCD 25/23 Q1006YGTE2019-12-11T17:00:00Z-13.97136.4525.023.08026.2129.704725TRUEVFRMETAR14.02019-12-11 17:20:599J(o5    3YESP 111700Z AUTO 09009KT 9999 // NCD 13/10 Q1024YESP2019-12-11T17:00:00Z-33.68121.8213.010.09096.2130.236221TRUEVFRMETAR143.02019-12-11 17:20:59:I(o5    3YEML 111700Z AUTO 07015KT 9999 // NCD 26/18 Q1011YEML2019-12-11T17:00:00Z-23.57148.1826.018.070156.2129.852362TRUEVFRMETAR190.02019-12-11 17:20:59 /L}LQ)5   3CWCF 111700Z AUTO 30011KT M23/M26 RMK AO1 SOG 18 3019 SLP268 T12291255CWCF2019-12-11T17:00:00Z52.35-97.03-22.9-25.5300111026.8TRUETRUEMETAR222.02019-12-11 17:20:59JP)5   3CWCJ 111700Z AUTO 31004KT M18/M21 RMK AO1 SOG 17 1014 SLP206 T11781207CWCJ2019-12-11T17:00:00Z48.6-86.28-17.8-20.731041020.6TRUETRUEMETAR206.02019-12-11 17:20:59^O)75    3CWCO 111700Z AUTO 24009G17KT M03/M09 RMK AO1 PK WND 25021/1635 SLP195 T10331090 58007CWCO2019-12-11T17:00:00Z44.45-80.17-3.3-9.02409171019.5TRUETRUE-0.7METAR221.02019-12-11 17:20:59LN)5   3CWDJ 111700Z AUTO 12010KT M21/M26 RMK AO1 SOG 01 8006 SLP279 T12051263CWDJ2019-12-11T17:00:00Z50.4-104.58-20.5-26.3120101027.9TRUETRUEMETAR573.02019-12-11 17:20:59 (.^(9V(o5    3YKRY 111700Z AUTO 21004KT 9999 // NCD 20/17 Q1012YKRY2019-12-11T17:00:00Z-26.57151.8320.017.021046.2129.88189TRUEVFRMETAR434.02019-12-11 17:20:59:U(o5    3YHUG 111700Z AUTO 05013KT 9999 // NCD 27/17 Q1008YHUG2019-12-11T17:00:00Z-20.82144.2327.017.050136.2129.763779TRUEVFRMETAR318.02019-12-11 17:20:594T(k5    3VVPQ 111700Z 07003KT 8000 NSC 19/18 Q1012 NOSIGVVPQ2019-12-11T17:00:00Z10.23103.9719.018.07034.9729.88189TRUEMVFRMETAR4.02019-12-11 17:20:59KS)5   3CWDC 111700Z AUTO 07003KT M36/M40 RMK AO1 SOG 23 7005 SLP311 T13551400CWDC2019-12-11T17:00:00Z59.57-108.47-35.5-40.07031031.1TRUETRUEMETAR318.02019-12-11 17:20:59MR)5    3CWBZ 111700Z AUTO 09004KT M02/M11 RMK AO1 PRESFR SLP200 T10241106 58039CWBZ2019-12-11T17:00:00Z45.12-74.27-2.4-10.69041020.0TRUETRUE-3.9METAR49.02019-12-11 17:20:59 7Bq7:[(o5    3YNBR 111700Z AUTO 01017KT 9999 // NCD 27/10 Q1009YNBR2019-12-11T17:00:00Z-30.32149.8327.010.010176.2129.793306TRUEVFRMETAR240.02019-12-11 17:20:598Z(o5    3YNAR 111700Z AUTO 22008KT 9999 // NCD 16/08 Q1013YNAR2019-12-11T17:00:00Z-34.7146.5216.08.022086.2129.911417TRUEVFRMETAR145.02019-12-11 17:20:599Y(o5    3YLIS 111700Z AUTO 28003KT 9999 // NCD 20/16 Q1008YLIS2019-12-11T17:00:00Z-28.83153.2720.016.028036.2129.763779TRUEVFRMETAR11.02019-12-11 17:20:59LX)5    3YMTG 111700Z AUTO 23009KT 9999 // BKN018 BKN024 OVC031 13/10 Q1019YMTG2019-12-11T17:00:00Z-37.75140.7813.010.023096.2130.088583TRUEMVFRMETAR65.02019-12-11 17:20:599W(o5    3YLEC 111700Z AUTO 19011KT 9999 // NCD 20/07 Q1014YLEC2019-12-11T17:00:00Z-30.6138.4320.07.0190116.2129.940945TRUEVFRMETAR262.02019-12-11 17:20:59 4Bw4A`)5   3SBAF 111700Z 22013KT 6000 FEW015 BKN040 OVC070 26/22 Q1009SBAF2019-12-11T17:00:00Z-22.87-43.3726.022.0220133.7329.793306MVFRMETAR34.02019-12-11 17:20:599_(u5   3SAWG 111700Z 18015KT 9999 FEW025 SCT030 16/M03 Q0999SAWG2019-12-11T17:00:00Z-51.62-69.3216.0-3.0180156.2129.498032VFRMETAR19.02019-12-11 17:20:59:^(o5    3YOLD 111700Z AUTO 17015KT 9999 // NCD 20/09 Q1015YOLD2019-12-11T17:00:00Z-30.48136.8820.09.0170156.2129.970472TRUEVFRMETAR105.02019-12-11 17:20:59F])5    3YNWN 111700Z AUTO 08010KT 9999 // SCT072 OVC097 OVC120 26/15 Q1016YNWN2019-12-11T17:00:00Z-23.42119.826.015.080106.2130.0TRUEVFRMETAR525.02019-12-11 17:20:599\(o5    3YNTN 111700Z AUTO 28004KT 9999 // NCD 29/26 Q1005YNTN2019-12-11T17:00:00Z-17.68141.0729.026.028046.2129.675198TRUEVFRMETAR22.02019-12-11 17:20:59 .^Vd)%5    3CWKO 111700Z AUTO 16010KT M17/M20 RMK AO1 SOG 15 5006 SLP233 T11741197 50007CWKO2019-12-11T17:00:00Z49.17-105.97-17.4-19.7160101023.3TRUETRUE0.7METAR917.02019-12-11 17:20:59Ic) 5    3CWOY 111700Z AUTO 10001KT M24/M28 RMK AO1 SLP291 T12411277 56002CWOY2019-12-11T17:00:00Z51.77-104.2-24.1-27.710011029.1TRUETRUE-0.2METAR560.02019-12-11 17:20:59Kb)5   3CWCT 111700Z AUTO 08009KT M16/M18 RMK AO1 SOG 04 3004 SLP205 T11591183CWCT2019-12-11T17:00:00Z52.07-111.47-15.9-18.38091020.5TRUETRUEMETAR791.02019-12-11 17:20:59Ma)5   3CWEH 111700Z AUTO 12007KT M12/M14 RMK AO1 SOG 07 6010 SLP162 T11221138CWEH2019-12-11T17:00:00Z49.42-108.97-12.2-13.812071016.2TRUETRUEMETAR1078.02019-12-11 17:20:59  >lLh)5   3CWLB 111700Z AUTO 12006KT M19/M23 RMK AO1 SOG 06 3005 SLP249 T11921230CWLB2019-12-11T17:00:00Z54.77-112.02-19.2-23.012061024.9TRUETRUEMETAR567.02019-12-11 17:20:59Mg)5   3CWEQ 111700Z AUTO 22010KT M25/M30 RMK AO1 SOG 02 1006 SLP297 T12501300CWEQ2019-12-11T17:00:00Z52.12-101.22-25.0-30.0220101029.7TRUETRUEMETAR335.02019-12-11 17:20:59]f)=5   3CWJD 111700Z AUTO 28007KT M24/M29 RMK AO1 SOG 17 3015 PK WND 29020/1601 SLP281 T12391286CWJD2019-12-11T17:00:00Z53.17-99.27-23.9-28.628071028.1TRUETRUEMETAR223.02019-12-11 17:20:59[e)35    3CWLP 111700Z AUTO 11035G40KT 09/05 RMK AO1 PK WND 12044/1600 SLP075 T00880049 56025CWLP2019-12-11T17:00:00Z50.93-127.638.84.911035401007.5TRUETRUE-2.5METAR17.02019-12-11 17:20:59  Ogl)C5     3CWZG 111700Z AUTO 23007KT M06/M08 RMK AO1 1PAST HR SOG 13 3011 SLP166 P0000 T10611081 50002CWZG2019-12-11T17:00:00Z51.2-115.53-6.1-8.123071016.6TRUETRUE0.20.005METAR1397.02019-12-11 17:20:590k(u5   3FDPP 111700Z AUTO 06007KT //// // ////// 12/10 Q1016FDPP2019-12-11T17:00:00Z-25.9731.2512.010.060730.0TRUEMETAR1099.02019-12-11 17:20:595j(u5   3FDMY 111700Z AUTO 15001KT //// // ////// 24/20 Q1019FDMY2019-12-11T17:00:00Z-25.8731.5224.020.0150130.088583TRUEMETAR480.02019-12-11 17:20:59ri)[5     3CWRO 111700Z AUTO 13032G40KT 08/06 RMK AO1 1PAST HR 6024 PK WND 12042/1645 SLP024 P0000 T00810063 50002CWRO2019-12-11T17:00:00Z54.17-131.678.16.313032401002.4TRUETRUE0.20.005METAR7.02019-12-11 17:20:59 Dp9q(q5   3RKPS 111700Z 27002KT CAVOK 00/M03 Q1022 RMK SLP224RKPS2019-12-11T17:00:00Z35.07128.070.0-3.027026.2130.1771661022.4VFRMETAR8.02019-12-11 17:20:59Tp)#5   3RKJJ 111700Z 33006KT 9999 BKN040 06/M01 Q1024 RMK CIG040 SLP244 8/500 9/500RKJJ2019-12-11T17:00:00Z35.12126.826.0-1.033066.2130.2362211024.4VFRMETAR13.02019-12-11 17:20:597o(q5    3DIBK 111700Z 04004KT 9999 FEW013 31/19 Q1011 NOSIGDIBK2019-12-11T17:00:00Z7.72-5.0731.019.04046.2129.852362TRUEVFRMETAR376.02019-12-11 17:20:59On)5     3UTFN 111700Z 00000KT 1200 R28/P2000N BR NSC 05/02 Q1018 R28/CLRD70 NOSIGUTFN2019-12-11T17:00:00Z40.9871.575.02.0000.7530.059055TRUEBRLIFRMETAR490.02019-12-11 17:20:597m(q5    3DIYO 111700Z 30004KT 9999 FEW015 32/22 Q1009 NOSIGDIYO2019-12-11T17:00:00Z6.9-5.3332.022.030046.2129.793306TRUEVFRMETAR213.02019-12-11 17:20:59 NJu)5   3CWZW 111700Z AUTO 05003KT M10/M11 RMK AO1 SOG 10 7002 SLP114 T10951107CWZW2019-12-11T17:00:00Z60.17-132.73-9.5-10.75031011.4TRUETRUEMETAR705.02019-12-11 17:20:59gt)C5     3CWRM 111700Z AUTO 12004KT M10/M11 RMK AO1 2PAST HR SOG 19 3008 SLP160 P0001 T10991113 50005CWRM2019-12-11T17:00:00Z52.42-114.92-9.9-11.312041016.0TRUETRUE0.50.01METAR988.02019-12-11 17:20:59Js)5   3CWVT 111700Z AUTO 00000KT M33/M37 RMK AO1 SOG 10 6001 SLP324 T13261366CWVT2019-12-11T17:00:00Z55.82-108.42-32.6-36.6001032.4TRUETRUEMETAR434.02019-12-11 17:20:59-r(a5   3RKSM 111700Z 32011KT 9999 SKC 01/M09 A3025RKSM2019-12-11T17:00:00Z37.42127.121.0-9.0320116.2130.250984VFRMETAR20.02019-12-11 17:20:59 2O]y)75    3CWAJ 111700Z AUTO 25014G27KT M04/M09 RMK AO1 PK WND 24029/1633 SLP255 T10401086 51016CWAJ2019-12-11T17:00:00Z42.25-81.9-4.0-8.625014271025.5TRUETRUE1.6METAR178.02019-12-11 17:20:59Gx) 5    3CTCK 111700Z AUTO 18007KT M03/M10 RMK AO1 SLP201 T10331103 58035CTCK2019-12-11T17:00:00Z45.25-74.97-3.3-10.318071020.1TRUETRUE-3.5METAR85.02019-12-11 17:20:59^w)75    3CWWZ 111700Z AUTO 26022G29KT M01/M05 RMK AO1 PK WND 26030/1631 SLP222 T10051054 55013CWWZ2019-12-11T17:00:00Z43.25-79.22-0.5-5.426022291022.2TRUETRUE-1.3METAR79.02019-12-11 17:20:59Iv)5   3CWPO 111700Z AUTO 29006KT M22/M27 RMK AO1 SOG 07 0005 SLP314 T12161269CWPO2019-12-11T17:00:00Z49.2-98.9-21.6-26.929061031.4TRUETRUEMETAR470.02019-12-11 17:20:59 o6Ro^})75    3CWNC 111700Z AUTO 26022G31KT M02/M07 RMK AO1 PK WND 25034/1628 SLP200 T10181070 58026CWNC2019-12-11T17:00:00Z43.95-78.17-1.8-7.026022311020.0TRUETRUE-2.6METAR78.02019-12-11 17:20:59_|)75    3CWPC 111700Z AUTO 24036G45KT M03/M04 RMK AO1 PK WND 23048/1626 SLP216 T10261040 58016CWPC2019-12-11T17:00:00Z42.87-79.25-2.6-4.024036451021.6TRUETRUE-1.6METAR184.02019-12-11 17:20:59a{)C5   3CWLS 111700Z AUTO 24012G20KT M07/M09 RMK AO1 SOG 07 8003 PK WND 23021/1643 SLP211 T10741086CWLS2019-12-11T17:00:00Z43.97-80.75-7.4-8.624012201021.1TRUETRUEMETAR415.02019-12-11 17:20:59_z)75    3CWBE 111700Z AUTO 29011G23KT M09/M10 RMK AO1 PK WND 27023/1655 SLP186 T10861102 51006CWBE2019-12-11T17:00:00Z45.98-81.48-8.6-10.229011231018.6TRUETRUE0.6METAR196.02019-12-11 17:20:59 0l])75    3CWWB 111700Z AUTO 24012G20KT M03/M10 RMK AO1 PK WND 26025/1634 SLP221 T10271099 58009CWWB2019-12-11T17:00:00Z43.3-79.78-2.7-9.924012201022.1TRUETRUE-0.9METAR76.02019-12-11 17:20:59b)C5   3CWDV 111700Z AUTO 28009G15KT M23/M27 RMK AO1 SOG 27 1018 PK WND 27018/1628 SLP242 T12321274CWDV2019-12-11T17:00:00Z49.02-90.47-23.2-27.42809151024.2TRUETRUEMETAR489.02019-12-11 17:20:59?) 5    3CWDQ 111700Z AUTO 18003KT M12/ RMK AO1 SOG 20 8028 SLP211 T1122CWDQ2019-12-11T17:00:00Z47.42-72.78-12.218031021.1TRUETRUEMETAR169.02019-12-11 17:20:59K~)5   3CWNZ 111700Z AUTO 27008KT M23/M27 RMK AO1 SOG 38 0008 SLP189 T12271271CWNZ2019-12-11T17:00:00Z49.75-84.17-22.7-27.127081018.9TRUETRUEMETAR256.02019-12-11 17:20:59 *@l*Q)!5    3CXCP 111700Z AUTO 05004KT M12/M12 RMK AO1 7PAST HR M P0003 T11181115 50007CXCP2019-12-11T17:00:00Z50.28-113.35-11.8-11.5504TRUETRUE0.70.03METAR1006.02019-12-11 17:20:591(s5  3CXCD 111700Z AUTO 09003KT M13/M13 RMK AO1 T11271130CXCD2019-12-11T17:00:00Z56.32-119.75-12.7-13.0903TRUETRUEMETAR630.02019-12-11 17:20:591(s5  3CXBW 111700Z AUTO 33012KT M10/M11 RMK AO1 T11011114CXBW2019-12-11T17:00:00Z49.8-112.3-10.1-11.433012TRUETRUEMETAR824.02019-12-11 17:20:59O)!5    3CXBA 111700Z AUTO 09007KT M18/M20 RMK AO1 4PAST HR M P0002 T11801203 50004CXBA2019-12-11T17:00:00Z52.12-110.1-18.0-20.3907TRUETRUE0.40.02METAR687.02019-12-11 17:20:59;(5   3CXAF 111700Z AUTO 13008KT M18/M20 RMK AO1 T11801195 50006CXAF2019-12-11T17:00:00Z54.28-112.97-18.0-19.51308TRUETRUE0.6METAR664.02019-12-11 17:20:59 cIc3 (s5  3CXKM 111700Z AUTO 12011KT M16/M18 RMK AO1 T11591175CXKM2019-12-11T17:00:00Z52.82-111.85-15.9-17.512011TRUETRUEMETAR675.02019-12-11 17:20:59> ) 5   3CXKI 111700Z AUTO M13/M15 RMK AO1 SOG 29 7012 SLP140 T11341151CXKI2019-12-11T17:00:00Z48.22-80.0-13.4-15.11014.0TRUETRUEMETAR324.02019-12-11 17:20:590 (s5  3CXHR 111700Z AUTO 08005KT M15/M15 RMK AO1 T11471151CXHR2019-12-11T17:00:00Z51.18-112.5-14.7-15.1805TRUETRUEMETAR971.02019-12-11 17:20:591(s5  3CXFR 111700Z AUTO 05006KT M15/M17 RMK AO1 T11531170CXFR2019-12-11T17:00:00Z56.08-118.43-15.3-17.0506TRUETRUEMETAR655.02019-12-11 17:20:592(s5  3CXCS 111700Z AUTO 09010KT M18/M21 RMK AO1 T11751208CXCS2019-12-11T17:00:00Z51.93-110.72-17.5-20.89010TRUETRUEMETAR772.02019-12-11 17:20:59 $QA)5   3CXRB 111700Z AUTO M24/M27 RMK AO1 18 SOG 03 1027 SLP156 T12391273CXRB2019-12-11T17:00:00Z74.72-94.98-23.9-27.31015.6TRUETRUEMETAR68.02019-12-11 17:20:59=) 5   3CXPC 111700Z AUTO M05/M08 RMK AO1 SOG 04 0001 SLP170 T10531082CXPC2019-12-11T17:00:00Z45.35-80.05-5.3-8.21017.0TRUETRUEMETAR176.02019-12-11 17:20:590(s5  3CXPA 111700Z AUTO 01005KT M15/M15 RMK AO1 T11451154CXPA2019-12-11T17:00:00Z55.62-118.3-14.5-15.4105TRUETRUEMETAR621.02019-12-11 17:20:59N )#5   3CXOY 111700Z AUTO 09013KT M17/M18 RMK AO1 PK WND 08018/1632 T11671181 50004CXOY2019-12-11T17:00:00Z51.38-110.35-16.7-18.19013TRUETRUE0.4METAR767.02019-12-11 17:20:59W )15    3CXLB 111700Z AUTO 32013KT M00/M02 RMK AO1 PK WND 31018/1608 SLP181 T10031019 58005CXLB2019-12-11T17:00:00Z44.37-64.3-0.3-1.9320131018.1TRUETRUE-0.5METAR4.02019-12-11 17:20:59 Ki])75    3CXVN 111700Z AUTO 26014G21KT M02/M08 RMK AO1 PK WND 25023/1605 SLP226 T10241075 56011CXVN2019-12-11T17:00:00Z43.18-79.4-2.4-7.526014211022.6TRUETRUE-1.1METAR79.02019-12-11 17:20:59:(}5    3CXTO 111700Z AUTO M03/M14 RMK AO1 SLP217 T10301136 58013CXTO2019-12-11T17:00:00Z43.67-79.4-3.0-13.61021.7TRUETRUE-1.3METAR113.02019-12-11 17:20:59])75    3CXTD 111700Z AUTO 33014G20KT M03/M04 RMK AO1 PK WND 33020/1618 SLP186 T10271036 50003CXTD2019-12-11T17:00:00Z45.62-61.68-2.7-3.633014201018.6TRUETRUE0.3METAR68.02019-12-11 17:20:590(s5  3CXRL 111700Z AUTO 12009KT M21/M24 RMK AO1 T12141237CXRL2019-12-11T17:00:00Z54.5-111.7-21.4-23.71209TRUETRUEMETAR585.02019-12-11 17:20:59 6_c)C5   3CZTB 111700Z AUTO 29014G19KT M21/M27 RMK AO1 SOG 11 1019 PK WND 29019/1651 SLP249 T12111269CZTB2019-12-11T17:00:00Z48.37-89.32-21.1-26.929014191024.9TRUETRUEMETAR199.02019-12-11 17:20:59M)5   3CZMJ 111700Z AUTO 11010KT M20/M22 RMK AO1 SOG 01 8009 SLP274 T11961215CZMJ2019-12-11T17:00:00Z50.33-105.57-19.6-21.5110101027.4TRUETRUEMETAR577.02019-12-11 17:20:59R)%5    3CXZV 111700Z AUTO 30007KT M10/M19 RMK AO1 SOG 37 8011 SLP183 T10991189 50002CXZV2019-12-11T17:00:00Z50.22-66.25-9.9-18.930071018.3TRUETRUE0.2METAR52.02019-12-11 17:20:59E)5  3CXWM 111700Z AUTO 29015KT M11/M12 RMK AO1 PK WND 29017/1653 T11061120CXWM2019-12-11T17:00:00Z49.5-112.12-10.6-12.029015TRUETRUEMETAR944.02019-12-11 17:20:59 +\7(}5    3CWXI 111700Z AUTO M07/M14 RMK AO1 SLP091 T10741136 51024CWXI2019-12-11T17:00:00Z51.02-57.1-7.4-13.61009.1TRUETRUE2.4METAR6.02019-12-11 17:20:59J)5   3CERM 111700Z AUTO 32002KT M09/M16 RMK AO1 SOG 21 8009 SLP222 T10931162CERM2019-12-11T17:00:00Z47.42-68.32-9.3-16.232021022.2TRUETRUEMETAR154.02019-12-11 17:20:59c)I5    3CAHR 111700Z AUTO 33009KT M04/M08 RMK AO1 SOG 02 0004 PK WND 33019/1604 SLP194 T10421081 50011CAHR2019-12-11T17:00:00Z46.35-63.17-4.2-8.133091019.4TRUETRUE1.1METAR53.02019-12-11 17:20:59h)C5     3CZZJ 111700Z AUTO 12002KT M12/M13 RMK AO1 3PAST HR SOG 25 5000 SLP175 P0001 T11221134 50007CZZJ2019-12-11T17:00:00Z53.58-116.47-12.2-13.412021017.5TRUETRUE0.70.01METAR927.02019-12-11 17:20:59 1czO )5    3CZSP 111700Z AUTO 32009G15KT M03/M07 RMK AO1 0000 SLP211 T10301067 50011CZSP2019-12-11T17:00:00Z46.45-62.58-3.0-6.73209151021.1TRUETRUE1.1METAR30.02019-12-11 17:20:59d)C5     3CZDB 111700Z AUTO 36008KT M02/M05 RMK AO1 4PAST HR SOG 01 0000 SLP195 P0002 T10241050 50020CZDB2019-12-11T17:00:00Z45.42-63.47-2.4-5.036081019.5TRUETRUE2.00.02METAR38.02019-12-11 17:20:59I)5   3CZCR 111700Z AUTO 26008KT M09/M15 RMK AO1 SOG 09 8008 SLP207 T10861154CZCR2019-12-11T17:00:00Z47.97-66.32-8.6-15.426081020.7TRUETRUEMETAR38.02019-12-11 17:20:59J)5    3CXNP 111700Z AUTO 35008KT M03/M06 RMK AO1 5003 SLP204 T10331055 50016CXNP2019-12-11T17:00:00Z45.75-64.23-3.3-5.535081020.4TRUETRUE1.6METAR20.02019-12-11 17:20:59 PkW$)15    3CWRN 111700Z AUTO 34018KT M00/M02 RMK AO1 PK WND 34022/1636 SLP161 T10011015 50004CWRN2019-12-11T17:00:00Z45.35-60.98-0.1-1.5340181016.1TRUETRUE0.4METAR8.02019-12-11 17:20:59`#)C5   3CWHO 111700Z AUTO 26032G42KT M11/M15 RMK AO1 SOG 03 1038 PK WND 27046/1616 SLP939 T11141149CWHO2019-12-11T17:00:00Z55.45-60.22-11.4-14.92603242993.9TRUETRUEMETAR8.02019-12-11 17:20:59J") 5    3CWIK 111700Z AUTO 16002KT M23/M27 RMK AO1 SLP293 T12311267 55002CWIK2019-12-11T17:00:00Z50.37-102.58-23.1-26.716021029.3TRUETRUE-0.2METAR602.02019-12-11 17:20:59\!)35     3CWBU 111700Z AUTO M28/M32 RMK AO1 3PAST HR SOG 04 2005 SLP302 P0001 T12751322 50003CWBU2019-12-11T17:00:00Z53.33-104.02-27.5-32.21030.2TRUETRUE0.30.01METAR373.02019-12-11 17:20:59 K6nK1)(s5  3CPIR 111700Z AUTO 36008KT M12/M12 RMK AO1 T11151123CPIR2019-12-11T17:00:00Z49.9-112.73-11.5-12.33608TRUETRUEMETAR858.02019-12-11 17:20:592((s5  3CPEH 111700Z AUTO 35009KT M12/M13 RMK AO1 T11201132CPEH2019-12-11T17:00:00Z50.18-112.43-12.0-13.23509TRUETRUEMETAR801.02019-12-11 17:20:591'(s5  3CPBT 111700Z AUTO 33005KT M09/M10 RMK AO1 T10921104CPBT2019-12-11T17:00:00Z49.57-113.05-9.2-10.43305TRUETRUEMETAR980.02019-12-11 17:20:59C&) 5    3CWBV 111700Z AUTO 34011KT 01/00 RMK AO1 SLP176 T00080000 58001CWBV2019-12-11T17:00:00Z44.82-62.320.80.0340111017.6TRUETRUE-0.1METAR10.02019-12-11 17:20:59E%) 5    3CWSS 111700Z AUTO 34004KT M03/M09 RMK AO1 SLP214 T10321090 58004CWSS2019-12-11T17:00:00Z45.2-67.25-3.2-9.034041021.4TRUETRUE-0.4METAR26.02019-12-11 17:20:59 RJR1.(s5  3CPSV 111700Z AUTO 36010KT M09/M10 RMK AO1 T10871097CPSV2019-12-11T17:00:00Z49.92-110.92-8.7-9.736010TRUETRUEMETAR766.02019-12-11 17:20:59Q-)!5    3CPST 111700Z AUTO 15001KT M13/M14 RMK AO1 6PAST HR M P0002 T11261136 50006CPST2019-12-11T17:00:00Z51.03-113.28-12.6-13.61501TRUETRUE0.60.02METAR967.02019-12-11 17:20:590,(s5  3CPRY 111700Z AUTO 33004KT M09/M10 RMK AO1 T10861099CPRY2019-12-11T17:00:00Z49.48-112.68-8.6-9.93304TRUETRUEMETAR937.02019-12-11 17:20:592+(s5  3CPRO 111700Z AUTO 05010KT M13/M15 RMK AO1 T11341148CPRO2019-12-11T17:00:00Z50.83-112.05-13.4-14.85010TRUETRUEMETAR714.02019-12-11 17:20:591*(s5  3CPFI 111700Z AUTO 32010KT M09/M10 RMK AO1 T10931104CPFI2019-12-11T17:00:00Z49.8-112.03-9.3-10.432010TRUETRUEMETAR833.02019-12-11 17:20:59 :K:;3(5   3CXHD 111700Z AUTO 12009KT M16/M18 RMK AO1 T11601175 50004CXHD2019-12-11T17:00:00Z53.18-112.25-16.0-17.51209TRUETRUE0.4METAR688.02019-12-11 17:20:59D2)5  3CXFM 111700Z AUTO 15010KT M07/M09 RMK AO1 PK WND 13019/1600 T10651091CXFM2019-12-11T17:00:00Z49.48-111.48-6.5-9.115010TRUETRUEMETAR881.02019-12-11 17:20:59D1)5  3CXDB 111700Z AUTO 25006KT M01/M04 RMK AO1 PK WND 23018/1628 T10121035CXDB2019-12-11T17:00:00Z49.05-112.82-1.2-3.52506TRUETRUEMETAR1310.02019-12-11 17:20:59:0(5   3CXAK 111700Z AUTO 10008KT M14/M16 RMK AO1 T11441162 50004CXAK2019-12-11T17:00:00Z52.35-112.6-14.4-16.21008TRUETRUE0.4METAR795.02019-12-11 17:20:590/(s5  3CPXL 111700Z AUTO 14004KT M07/M09 RMK AO1 T10711093CPXL2019-12-11T17:00:00Z49.87-111.38-7.1-9.31404TRUETRUEMETAR799.02019-12-11 17:20:59 RKR08(s5  3CXPL 111700Z AUTO 07009KT M13/M15 RMK AO1 T11331147CXPL2019-12-11T17:00:00Z51.13-111.7-13.3-14.7709TRUETRUEMETAR750.02019-12-11 17:20:59R7)!5    3CXOL 111700Z AUTO 12002KT M12/M12 RMK AO1 8PAST HR M P0003 T11211115 50008CXOL2019-12-11T17:00:00Z51.77-114.08-12.1-11.51202TRUETRUE0.80.03METAR1046.02019-12-11 17:20:5926(s5  3CXMO 111700Z AUTO 10009KT M14/M16 RMK AO1 T11401159CXMO2019-12-11T17:00:00Z51.67-112.68-14.0-15.91009TRUETRUEMETAR836.02019-12-11 17:20:5915(s5  3CXMG 111700Z AUTO 01008KT M20/M22 RMK AO1 T11991221CXMG2019-12-11T17:00:00Z56.97-117.45-19.9-22.1108TRUETRUEMETAR457.02019-12-11 17:20:5904(s5  3CXHP 111700Z AUTO 07008KT M14/M16 RMK AO1 T11421161CXHP2019-12-11T17:00:00Z55.4-116.48-14.2-16.1708TRUETRUEMETAR602.02019-12-11 17:20:59 ?J?0=(s5  3CXVW 111700Z AUTO 34005KT M13/M14 RMK AO1 T11261142CXVW2019-12-11T17:00:00Z55.1-117.2-12.6-14.23405TRUETRUEMETAR698.02019-12-11 17:20:59<<(5   3CXTH 111700Z AUTO 11011KT M18/M21 RMK AO1 T11811209 50005CXTH2019-12-11T17:00:00Z53.63-111.68-18.1-20.911011TRUETRUE0.5METAR678.02019-12-11 17:20:59Q;)!5    3CXSP 111700Z AUTO 10007KT M19/M22 RMK AO1 7PAST HR M P0003 T11911219 50013CXSP2019-12-11T17:00:00Z54.02-111.27-19.1-21.91007TRUETRUE1.30.03METAR649.02019-12-11 17:20:59::(5   3CXSL 111700Z AUTO 12007KT M18/M20 RMK AO1 T11781202 50004CXSL2019-12-11T17:00:00Z54.28-112.5-17.8-20.21207TRUETRUE0.4METAR680.02019-12-11 17:20:5919(s5  3CXSC 111700Z AUTO 07011KT M10/M11 RMK AO1 T11041112CXSC2019-12-11T17:00:00Z50.3-110.08-10.4-11.27011TRUETRUEMETAR800.02019-12-11 17:20:59 YIY%B(s5   3CWER 111700Z AUTO 25012KT RMK AO1 PK WND 22018/1628CWER2019-12-11T17:00:00Z47.0-70.8225012TRUETRUEMETAR5.02019-12-11 17:20:59:A(5     3CMGB 111700Z AUTO 22004KT M05/ RMK AO1 SLP221 T1046 58026CMGB2019-12-11T17:00:00Z45.37-72.77-4.622041022.1TRUETRUE-2.6METAR86.02019-12-11 17:20:59K@)5   3CMFM 111700Z AUTO 20007KT M13/M19 RMK AO1 SOG 26 6015 SLP197 T11291191CMFM2019-12-11T17:00:00Z47.32-71.15-12.9-19.120071019.7TRUETRUEMETAR672.02019-12-11 17:20:592?(s5  3CZOL 111700Z AUTO 13005KT M14/M18 RMK AO1 T11351176CZOL2019-12-11T17:00:00Z53.65-113.35-13.5-17.61305TRUETRUEMETAR665.02019-12-11 17:20:592>(s5  3CXVM 111700Z AUTO 11008KT M18/M21 RMK AO1 T11771210CXVM2019-12-11T17:00:00Z53.35-110.88-17.7-21.01108TRUETRUEMETAR623.02019-12-11 17:20:59 3M}\F)55     3CWWE 111700Z AUTO 31005KT M00/M00 RMK AO1 2PAST HR 8005 SLP194 P0001 T10021002 50016CWWE2019-12-11T17:00:00Z43.97-64.67-0.2-0.231051019.4TRUETRUE1.60.01METAR9.02019-12-11 17:20:59KE)5   3CWPK 111700Z AUTO 19004KT M13/M16 RMK AO1 SOG 24 8034 SLP173 T11301157CWPK2019-12-11T17:00:00Z47.92-74.62-13.0-15.719041017.3TRUETRUEMETAR442.02019-12-11 17:20:59aD)C5   3CWBY 111700Z AUTO 29011G16KT M09/M15 RMK AO1 SOG 06 1002 PK WND 27020/1600 SLP178 T10911154CWBY2019-12-11T17:00:00Z49.82-64.28-9.1-15.429011161017.8TRUETRUEMETAR53.02019-12-11 17:20:59HC) 5    3CWNH 111700Z AUTO 16004KT M09/M14 RMK AO1 SLP213 T10871144 58021CWNH2019-12-11T17:00:00Z47.78-69.53-8.7-14.416041021.3TRUETRUE-2.1METAR148.02019-12-11 17:20:59 QbJJ)5   3CWGW 111700Z AUTO 25002KT M01/M03 RMK AO1 SOG 01 3006 SLP171 T10111026CWGW2019-12-11T17:00:00Z49.75-114.9-1.1-2.625021017.1TRUETRUEMETAR1137.02019-12-11 17:20:59\I);5    3CWGR 111700Z AUTO 32016KT M04/M09 RMK AO1 1006 PK WND 32024/1603 SLP182 T10371088 50004CWGR2019-12-11T17:00:00Z47.42-61.8-3.7-8.8320161018.2TRUETRUE0.4METAR60.02019-12-11 17:20:59jH)O5    3CWSF 111700Z AUTO 26013G25KT M08/M14 RMK AO1 SOG 03 8005 PK WND 27025/1650 SLP187 T10811138 50002CWSF2019-12-11T17:00:00Z49.25-65.32-8.1-13.826013251018.7TRUETRUE0.2METAR29.02019-12-11 17:20:59*G(q5   3CWRA 111700Z AUTO 06/ RMK AO1 24 5007 SLP118 T0060CWRA2019-12-11T17:00:00Z46.63-53.076.01011.8TRUETRUEMETAR28.02019-12-11 17:20:59  (s /O(s5  3CWHQ 111700Z AUTO 17002KT M07/M15 RMK AO1 T10731152CWHQ2019-12-11T17:00:00Z46.68-71.97-7.3-15.21702TRUETRUEMETAR55.02019-12-11 17:20:59IN) 5    3CWHT 111700Z AUTO 02001KT M13/M14 RMK AO1 SLP087 T11271141 55001CWHT2019-12-11T17:00:00Z60.77-137.58-12.7-14.12011008.7TRUETRUE-0.1METAR599.02019-12-11 17:20:59LM)!5     3CWHL 111700Z AUTO 10011KT 09/ RMK AO1 PK WND 10021/1615 SLP050 T0086 57025CWHL2019-12-11T17:00:00Z54.17-130.358.6100111005.0TRUETRUE-2.5METAR5.02019-12-11 17:20:590L(s5  3CWHI 111700Z AUTO 09007KT M13/M15 RMK AO1 T11261148CWHI2019-12-11T17:00:00Z51.7-113.22-12.6-14.8907TRUETRUEMETAR907.02019-12-11 17:20:59SK)%5    3CWGX 111700Z AUTO 30008KT M26/M30 RMK AO1 SOG 24 2014 SLP185 T12551302 50002CWGX2019-12-11T17:00:00Z56.35-94.7-25.5-30.230081018.5TRUETRUE0.2METAR145.02019-12-11 17:20:59 4fMT)5   3CWIJ 111700Z AUTO 27012KT M28/M30 RMK AO1 SOG 16 8011 SLP261 T12771295CWIJ2019-12-11T17:00:00Z65.77-111.23-27.7-29.5270121026.1TRUETRUEMETAR500.02019-12-11 17:20:59HS) 5    3CWII 111700Z AUTO 30011KT M21/M26 RMK AO1 SLP286 T12111264 51017CWII2019-12-11T17:00:00Z50.7-96.57-21.1-26.4300111028.6TRUETRUE1.7METAR220.02019-12-11 17:20:59'R(s5   3CWIG 111700Z AUTO 22014KT RMK AO1 PK WND 23021/1628CWIG2019-12-11T17:00:00Z47.07-70.5322014TRUETRUEMETAR18.02019-12-11 17:20:59IQ) 5    3CWID 111700Z AUTO 33001KT M38/M42 RMK AO1 SLP300 T13791417 57003CWID2019-12-11T17:00:00Z61.32-117.6-37.9-41.733011030.0TRUETRUE-0.3METAR161.02019-12-11 17:20:59GP) 5    3CWHV 111700Z AUTO 22003KT M07/M16 RMK AO1 SLP214 T10731164 58019CWHV2019-12-11T17:00:00Z46.2-70.77-7.3-16.422031021.4TRUETRUE-1.9METAR229.02019-12-11 17:20:59 0]CX)5    3UTNN 111700Z 21008KT 9999 OVC019 03/01 Q1017 R33/290050 NOSIGUTNN2019-12-11T17:00:00Z42.4859.633.01.021086.2130.029528TRUEMVFRSPECI67.02019-12-11 17:20:59KW)5   3CWIW 111700Z AUTO 13003KT M23/M25 RMK AO1 SOG 02 8001 SLP291 T12261252CWIW2019-12-11T17:00:00Z51.67-105.4-22.6-25.213031029.1TRUETRUEMETAR526.02019-12-11 17:20:59NV)5    3CWIT 111700Z AUTO 15007KT M04/M11 RMK AO1 PRESFR SLP209 T10421114 58030CWIT2019-12-11T17:00:00Z45.17-73.67-4.2-11.415071020.9TRUETRUE-3.0METAR52.02019-12-11 17:20:59KU)5   3CWIS 111700Z AUTO 21007KT M13/M19 RMK AO1 SOG 19 8016 SLP189 T11261187CWIS2019-12-11T17:00:00Z47.28-70.63-12.6-18.721071018.9TRUETRUEMETAR719.02019-12-11 17:20:59 LW])15    3CWNE 111700Z AUTO 31013KT M05/M10 RMK AO1 PK WND 30020/1602 SLP201 T10511096 50004CWNE2019-12-11T17:00:00Z47.07-64.0-5.1-9.6310131020.1TRUETRUE0.4METAR15.02019-12-11 17:20:59L\)5   3CWJH 111700Z AUTO 27004KT M27/M30 RMK AO1 SOG 17 4000 SLP281 T12701304CWJH2019-12-11T17:00:00Z56.32-103.27-27.0-30.427041028.1TRUETRUEMETAR344.02019-12-11 17:20:59\[)15    3CWJC 111700Z AUTO 31014KT M29/M32 RMK AO1 PK WND 33023/1602 SLP207 T12871319 56003CWJC2019-12-11T17:00:00Z61.13-100.9-28.7-31.9310141020.7TRUETRUE-0.3METAR357.02019-12-11 17:20:59#Z(e5   3CWJB 111700Z AUTO 32004KT M09/ RMK AO1 T1094CWJB2019-12-11T17:00:00Z46.78-71.27-9.43204TRUETRUEMETAR91.02019-12-11 17:20:59/Y(s5  3CWIZ 111700Z AUTO 17009KT M05/M10 RMK AO1 T10521101CWIZ2019-12-11T17:00:00Z45.28-73.33-5.2-10.11709TRUETRUEMETAR45.02019-12-11 17:20:59 $W$Gb) 5    3CWOC 111700Z AUTO 30007KT M08/M15 RMK AO1 SLP198 T10761146 58010CWOC2019-12-11T17:00:00Z48.02-65.32-7.6-14.630071019.8TRUETRUE-1.0METAR47.02019-12-11 17:20:59Ga) 5    3CWNQ 111700Z AUTO 18004KT M08/M14 RMK AO1 SLP226 T10781135 58021CWNQ2019-12-11T17:00:00Z46.22-72.65-7.8-13.518041022.6TRUETRUE-2.1METAR10.02019-12-11 17:20:59K`)5    3CWNP 111700Z AUTO 06002KT M02/M03 RMK AO1 3007 SLP206 T10201029 50005CWNP2019-12-11T17:00:00Z50.27-117.82-2.0-2.96021020.6TRUETRUE0.5METAR524.02019-12-11 17:20:59F_) 5    3CWNM 111700Z AUTO 28009KT M00/M02 RMK AO1 SLP202 T10011015 53013CWNM2019-12-11T17:00:00Z49.5-117.28-0.1-1.528091020.2TRUETRUE1.3METAR535.02019-12-11 17:20:59$^(c5  3CWNK 111700Z AUTO M21/M26 RMK AO1 T12111264CWNK2019-12-11T17:00:00Z49.5-98.03-21.1-26.4TRUETRUEMETAR268.02019-12-11 17:20:59 1aDf) 5    3CWPE 111700Z AUTO 35005KT M03/M07 RMK AO1 SLP216 T10301073 51002CWPE2019-12-11T17:00:00Z45.07-66.47-3.0-7.335051021.6TRUETRUE0.2METAR1.02019-12-11 17:20:59Ie) 5    3CWPD 111700Z AUTO 19006KT M13/M16 RMK AO1 SLP194 T11271161 58020CWPD2019-12-11T17:00:00Z47.57-71.22-12.7-16.119061019.4TRUETRUE-2.0METAR803.02019-12-11 17:20:59Kd)5   3CWOE 111700Z AUTO 09009KT M10/M11 RMK AO1 SOG 12 7004 SLP156 T11021111CWOE2019-12-11T17:00:00Z49.12-110.47-10.2-11.19091015.6TRUETRUEMETAR935.02019-12-11 17:20:59Jc)5   3CWOD 111700Z AUTO 09004KT M16/M20 RMK AO1 SOG 11 8020 SLP195 T11621198CWOD2019-12-11T17:00:00Z48.85-72.55-16.2-19.89041019.5TRUETRUEMETAR137.02019-12-11 17:20:59 9jIj)5   3CWPZ 111700Z AUTO 00022KT M09/M10 RMK AO1 SOG 08 6011 SLP149 T10861097CWPZ2019-12-11T17:00:00Z54.38-125.97-8.6-9.70221014.9TRUETRUEMETAR713.02019-12-11 17:20:59Ii) 5    3CXBK 111700Z AUTO 12010KT M21/M24 RMK AO1 SLP263 T12051235 58004CXBK2019-12-11T17:00:00Z50.2-104.7-20.5-23.5120101026.3TRUETRUE-0.4METAR580.02019-12-11 17:20:59Jh)5   3CWPR 111700Z AUTO 26001KT M04/M06 RMK AO1 SOG 01 3005 SLP210 T10431055CWPR2019-12-11T17:00:00Z49.47-120.52-4.3-5.526011021.0TRUETRUEMETAR700.02019-12-11 17:20:59Bg) 5    3CWPF 111700Z AUTO 03006KT 07/06 RMK AO1 SLP148 T00740062 58019CWPF2019-12-11T17:00:00Z48.43-123.437.46.23061014.8TRUETRUE-1.9METAR12.02019-12-11 17:20:59 QIo)5   3CXCK 111700Z AUTO 00000KT M12/M13 RMK AO1 SOG 18 3002 SLP108 T11161128CXCK2019-12-11T17:00:00Z62.12-136.2-11.6-12.8001010.8TRUETRUEMETAR540.02019-12-11 17:20:59Hn) 5    3CXCA 111700Z AUTO 28005KT M22/M27 RMK AO1 SLP238 T12241272 51019CXCA2019-12-11T17:00:00Z49.15-88.35-22.4-27.228051023.8TRUETRUE1.9METAR228.02019-12-11 17:20:59m(O5   3CXBO 111700Z AUTO 24009KT RMK AO1CXBO2019-12-11T17:00:00Z46.83-71.22409TRUETRUEMETAR100.02019-12-11 17:20:59Hl)5   3CXAT 111700Z AUTO 05002KT M26/M29 RMK AO1 SOG 02 8001 SLP083 T12561292CXAT2019-12-11T17:00:00Z73.0-85.03-25.6-29.25021008.3TRUETRUEMETAR19.02019-12-11 17:20:59]k)55     3CXKT 111700Z AUTO 32003KT M01/M03 RMK AO1 2PAST HR 8007 SLP193 P0001 T10141026 50008CXKT2019-12-11T17:00:00Z45.07-64.48-1.4-2.632031019.3TRUETRUE0.80.01METAR49.02019-12-11 17:20:59 /JzUs)%5    3CXEC 111700Z AUTO 14007KT M14/M17 RMK AO1 SOG 06 3004 SLP195 T11361166 50005CXEC2019-12-11T17:00:00Z53.57-113.52-13.6-16.614071019.5TRUETRUE0.5METAR671.02019-12-11 17:20:59Kr)5   3CXEA 111700Z AUTO 28008KT M24/M28 RMK AO1 SOG 11 1020 SLP239 T12371275CXEA2019-12-11T17:00:00Z50.63-93.22-23.7-27.528081023.9TRUETRUEMETAR355.02019-12-11 17:20:59`q)75    3CXDI 111700Z AUTO 26010G19KT M05/M12 RMK AO1 PK WND 27022/1601 SLP240 T10511118 56007CXDI2019-12-11T17:00:00Z42.87-80.55-5.1-11.826010191024.0TRUETRUE-0.7METAR232.02019-12-11 17:20:59Lp)5   3CXDE 111700Z AUTO 12007KT M28/M31 RMK AO1 SOG 30 6007 SLP279 T12761309CXDE2019-12-11T17:00:00Z65.22-123.43-27.6-30.912071027.9TRUETRUEMETAR213.02019-12-11 17:20:59 8l[w)55     3CXIB 111700Z AUTO 01005KT M03/M05 RMK AO1 3PAST HR 1013 SLP183 P0001 T10261049 50005CXIB2019-12-11T17:00:00Z46.67-60.38-2.6-4.91051018.3TRUETRUE0.50.01METAR8.02019-12-11 17:20:59^v)75    3CXHA 111700Z AUTO 27016G24KT M05/M12 RMK AO1 PK WND 26024/1651 SLP283 T10541116 52009CXHA2019-12-11T17:00:00Z42.03-82.9-5.4-11.627016241028.3TRUETRUE0.9METAR191.02019-12-11 17:20:59Gu) 5    3CXGH 111700Z AUTO 30008KT M20/M26 RMK AO1 SLP273 T12011261 51014CXGH2019-12-11T17:00:00Z50.63-97.0-20.1-26.130081027.3TRUETRUE1.4METAR217.02019-12-11 17:20:59Ct)5    3CXEG 111700Z AUTO M14/M17 RMK AO1 2PAST HR M P0001 T11401168 50002CXEG2019-12-11T17:00:00Z53.3-113.6-14.0-16.8TRUETRUE0.20.01METAR715.02019-12-11 17:20:59 ?W~?C|)5  3CXNM 111700Z AUTO 31012KT M07/M07 RMK AO1 PK WND 31019/1630 T10701072CXNM2019-12-11T17:00:00Z46.82-60.67-7.0-7.231012TRUETRUEMETAR439.02019-12-11 17:20:59K{)5   3CXMM 111700Z AUTO 09006KT M29/M33 RMK AO1 SOG 03 8002 SLP284 T12871326CXMM2019-12-11T17:00:00Z56.65-111.22-28.7-32.69061028.4TRUETRUEMETAR369.02019-12-11 17:20:59"z(e5   3CXMI 111700Z AUTO 33008KT M01/ RMK AO1 T1008CXMI2019-12-11T17:00:00Z44.6-63.53-0.83308TRUETRUEMETAR15.02019-12-11 17:20:59Ty)%5    3CXMD 111700Z AUTO 28006KT M20/M26 RMK AO1 SOG 02 0005 SLP301 T12021255 50002CXMD2019-12-11T17:00:00Z49.22-98.08-20.2-25.528061030.1TRUETRUE0.2METAR301.02019-12-11 17:20:59$x(c5  3CXHF 111700Z AUTO M09/M11 RMK AO1 T10931108CXHF2019-12-11T17:00:00Z45.83-75.65-9.3-10.8TRUETRUEMETAR190.02019-12-11 17:20:59 M|V)/5    3CXTP 111700Z AUTO 28008KT 02/M00 RMK AO1 PK WND 27020/1601 SLP091 T00241003 51019CXTP2019-12-11T17:00:00Z48.55-53.972.4-0.328081009.1TRUETRUE1.9METAR107.02019-12-11 17:20:59H) 5    3CXSH 111700Z AUTO 20006KT M09/M16 RMK AO1 SLP222 T10911158 58020CXSH2019-12-11T17:00:00Z46.58-72.73-9.1-15.820061022.2TRUETRUE-2.0METAR110.02019-12-11 17:20:59L~)5   3CXOX 111700Z AUTO 29003KT M31/M34 RMK AO1 SOG 15 0004 SLP308 T13051344CXOX2019-12-11T17:00:00Z55.15-105.27-30.5-34.429031030.8TRUETRUEMETAR379.02019-12-11 17:20:59.}(s5  3CXRH 111700Z AUTO 32004KT M05/M09 RMK AO1 T10461089CXRH2019-12-11T17:00:00Z49.57-57.88-4.6-8.93204TRUETRUEMETAR68.02019-12-11 17:20:59 3fY)15    3CWQP 111700Z AUTO 22027KT M01/M04 RMK AO1 PK WND 22038/1632 SLP216 T10071037 58018CWQP2019-12-11T17:00:00Z43.83-77.15-0.7-3.7220271021.6TRUETRUE-1.8METAR79.02019-12-11 17:20:59S)-5    3CWQK 111700Z AUTO 07020KT 07/05 RMK AO1 PK WND 08023/1650 SLP144 T00650052 58024CWQK2019-12-11T17:00:00Z48.3-123.536.55.270201014.4TRUETRUE-2.4METAR5.02019-12-11 17:20:59H) 5    3CWQH 111700Z AUTO 22006KT M05/M13 RMK AO1 SLP223 T10521134 58024CWQH2019-12-11T17:00:00Z45.37-71.82-5.2-13.422061022.3TRUETRUE-2.4METAR181.02019-12-11 17:20:59H) 5    3CXWN 111700Z AUTO 24003KT M20/M26 RMK AO1 SLP299 T12041260 51015CXWN2019-12-11T17:00:00Z49.88-97.13-20.4-26.024031029.9TRUETRUE1.5METAR230.02019-12-11 17:20:59 9V~H)5  3CWRT 111700Z AUTO 30010G18KT 01/M04 RMK AO1 PK WND 28018/1606 T00051041CWRT2019-12-11T17:00:00Z49.62-114.470.5-4.13001018TRUETRUEMETAR1303.02019-12-11 17:20:59S)%5    3CWRK 111700Z AUTO 22006KT M05/M12 RMK AO1 SOG 02 8028 SLP174 T10481117 50002CWRK2019-12-11T17:00:00Z45.07-77.87-4.8-11.722061017.4TRUETRUE0.2METAR331.02019-12-11 17:20:59^)=5   3CWRJ 111700Z AUTO 08013KT M19/M23 RMK AO1 SOG 05 8006 PK WND 07017/1620 SLP249 T11851230CWRJ2019-12-11T17:00:00Z51.57-107.92-18.5-23.080131024.9TRUETRUEMETAR586.02019-12-11 17:20:59B)5  3CWQR 111700Z AUTO 28019KT M09/M15 RMK AO1 PK WND 27023/1648 T10871154CWQR2019-12-11T17:00:00Z50.22-64.22-8.7-15.428019TRUETRUEMETAR9.02019-12-11 17:20:59 ]G )5    3CWSK 111700Z AUTO 34002KT 03/02 RMK AO1 8007 SLP168 T00270015 50001CWSK2019-12-11T17:00:00Z49.78-123.172.71.534021016.8TRUETRUE0.1METAR60.02019-12-11 17:20:59Y )15    3CWSG 111700Z AUTO 25023KT M07/M11 RMK AO1 PK WND 26029/1640 SLP203 T10721109 58004CWSG2019-12-11T17:00:00Z49.12-66.65-7.2-10.9250231020.3TRUETRUE-0.4METAR5.02019-12-11 17:20:59F ) 5    3CWSD 111700Z AUTO 33010KT M04/M09 RMK AO1 SLP205 T10431093 50003CWSD2019-12-11T17:00:00Z46.42-63.85-4.3-9.3330101020.5TRUETRUE0.3METAR24.02019-12-11 17:20:59K )5   3CWRY 111700Z AUTO 35004KT M05/M07 RMK AO1 SOG 31 3003 SLP139 T10461066CWRY2019-12-11T17:00:00Z49.12-112.03-4.6-6.635041013.9TRUETRUEMETAR1050.02019-12-11 17:20:59 ([5    3CWRZ 111700Z AUTO 25003KT RMK AO1 58011CWRZ2019-12-11T17:00:00Z48.42-64.322503TRUETRUE-1.1METAR16.02019-12-11 17:20:59 5xH) 5    3CWST 111700Z AUTO 25010KT M07/M15 RMK AO1 SLP215 T10651146 58019CWST2019-12-11T17:00:00Z47.35-70.02-6.5-14.6250101021.5TRUETRUE-1.9METAR31.02019-12-11 17:20:59K)5   3CWSR 111700Z AUTO 09002KT M23/M27 RMK AO1 SOG 01 8002 SLP276 T12341273CWSR2019-12-11T17:00:00Z53.37-107.53-23.4-27.39021027.6TRUETRUEMETAR584.02019-12-11 17:20:598(}5     3CWSP 111700Z AUTO 09006KT 07/ RMK AO1 SLP146 T0071 58023CWSP2019-12-11T17:00:00Z48.38-123.927.19061014.6TRUETRUE-2.3METAR21.02019-12-11 17:20:59F) 5    3CWSL 111700Z AUTO 21001KT M01/M02 RMK AO1 SLP206 T10101020 53004CWSL2019-12-11T17:00:00Z50.7-119.27-1.0-2.021011020.6TRUETRUE0.4METAR351.02019-12-11 17:20:59 .PG) 5    3CWJV 111700Z AUTO 10007KT M02/M03 RMK AO1 SLP199 T10181034 53005CWJV2019-12-11T17:00:00Z50.22-119.18-1.8-3.410071019.9TRUETRUE0.5METAR556.02019-12-11 17:20:59E) 5    3CWJR 111700Z AUTO 08001KT M01/M02 RMK AO1 SLP207 T10111018 53009CWJR2019-12-11T17:00:00Z49.07-116.5-1.1-1.88011020.7TRUETRUE0.9METAR646.02019-12-11 17:20:59Y)35    3CWJU 111700Z AUTO 10009G18KT 08/07 RMK AO1 PK WND 11023/1627 SLP990 T00840067 58024CWJU2019-12-11T17:00:00Z54.25-133.078.46.7100918999.0TRUETRUE-2.4METAR41.02019-12-11 17:20:59M)5   3CWJI 111700Z AUTO 12011KT M17/M20 RMK AO1 SOG 04 8008 SLP237 T11671200CWJI2019-12-11T17:00:00Z49.72-105.92-16.7-20.0120111023.7TRUETRUEMETAR724.02019-12-11 17:20:59 0L)(o5  3CWLC 111700Z AUTO 00012KT 08/04 RMK AO1 T00770041CWLC2019-12-11T17:00:00Z54.3-130.627.74.1012TRUETRUEMETAR27.02019-12-11 17:20:59J)5   3CWKX 111700Z AUTO 08001KT M09/M10 RMK AO1 SOG 34 8002 SLP127 T10911102CWKX2019-12-11T17:00:00Z58.43-130.02-9.1-10.28011012.7TRUETRUEMETAR793.02019-12-11 17:20:59.(m5    3CWKH 111700Z AUTO 05/ RMK AO1 SLP139 T0048 58018CWKH2019-12-11T17:00:00Z48.57-123.554.81013.9TRUETRUE-1.8METAR366.02019-12-11 17:20:59_);5    3CWJX 111700Z AUTO 09017KT M16/M19 RMK AO1 5009 PK WND 10022/1602 SLP196 T11561188 50002CWJX2019-12-11T17:00:00Z50.88-109.5-15.6-18.890171019.6TRUETRUE0.2METAR672.02019-12-11 17:20:59K)5   3CWJW 111700Z AUTO 18001KT M04/M05 RMK AO1 SOG 10 5000 SLP157 T10421054CWJW2019-12-11T17:00:00Z52.93-118.03-4.2-5.418011015.7TRUETRUEMETAR1020.02019-12-11 17:20:59 TA) 5    3CWMM 111700Z AUTO 04004KT 06/05 RMK AO1 SLP172 T00580054 58005CWMM2019-12-11T17:00:00Z49.22-122.685.85.44041017.2TRUETRUE-0.5METAR5.02019-12-11 17:20:59I)5   3CWMJ 111700Z AUTO 17009KT M08/M11 RMK AO1 SOG 01 8033 SLP176 T10761114CWMJ2019-12-11T17:00:00Z46.27-76.0-7.6-11.417091017.6TRUETRUEMETAR200.02019-12-11 17:20:59C) 5    3CWLM 111700Z AUTO 11005KT 07/06 RMK AO1 SLP152 T00660057 58018CWLM2019-12-11T17:00:00Z48.42-123.326.65.711051015.2TRUETRUE-1.8METAR70.02019-12-11 17:20:59_)=5   3CWLE 111700Z AUTO 10015KT M19/M22 RMK AO1 SOG 11 8014 PK WND 10018/1655 SLP243 T11901218CWLE2019-12-11T17:00:00Z50.95-107.15-19.0-21.8100151024.3TRUETRUEMETAR665.02019-12-11 17:20:59 1bW")-5     3SYEC 111700Z 04004KT 9999 -RA FEW014CB SCT036 OVC070 26/25 Q1010 NOSIG RMK/CB AQSYEC2019-12-11T17:00:00Z6.8-58.126.025.04046.2129.822834TRUE-RAVFRMETAR10.02019-12-11 17:20:59K!)5   3CTRA 111700Z AUTO 26005KT M22/M26 RMK AO1 SOG 11 1022 SLP293 T12221262CTRA2019-12-11T17:00:00Z49.67-93.73-22.2-26.226051029.3TRUETRUEMETAR435.02019-12-11 17:20:59J )5   3CTNK 111700Z AUTO 24004KT M05/M11 RMK AO1 SOG 10 8029 SLP155 T10531114CTNK2019-12-11T17:00:00Z45.53-78.27-5.3-11.424041015.5TRUETRUEMETAR410.02019-12-11 17:20:59J)5   3CWMQ 111700Z AUTO 21012KT M07/M10 RMK AO1 SOG 09 6013 SLP153 T10711098CWMQ2019-12-11T17:00:00Z49.9-109.47-7.1-9.8210121015.3TRUETRUEMETAR767.02019-12-11 17:20:59 N0|N0'(e5   3SBCI 111700Z 33004KT 9999 FEW046 33/22 Q1009SBCI2019-12-11T17:00:00Z-7.32-47.4733.022.033046.2129.793306VFRMETAR183.02019-12-11 17:20:59@&)5   3SBCC 111700Z 18004KT 9999 SCT030 FEW033TCU 23/20 Q1011 RERASBCC2019-12-11T17:00:00Z-9.32-54.9523.020.018046.2129.852362VFRMETAR536.02019-12-11 17:20:59/%(e5   3SBAT 111700Z 11004KT 9999 SCT032 31/24 Q1010SBAT2019-12-11T17:00:00Z-9.87-56.131.024.011046.2129.822834VFRMETAR288.02019-12-11 17:20:59/$(e5   3SBAA 111700Z 08006KT 9999 BKN030 37/22 Q1008SBAA2019-12-11T17:00:00Z-8.35-49.337.022.08066.2129.763779MVFRMETAR199.02019-12-11 17:20:59K#)5    3FZWA 111700Z 36006KT 7000 SCT010 FEW020CB BKN120 22/20 Q1013 NOSIGFZWA2019-12-11T17:00:00Z-6.1223.5722.020.036064.3529.911417TRUEMVFRMETAR677.02019-12-11 17:20:59 :U`+)75    3CZEL 111700Z AUTO 25021G26KT M06/M11 RMK AO1 PK WND 24031/1624 SLP220 T10581113 58005CZEL2019-12-11T17:00:00Z43.65-80.42-5.8-11.325021261022.0TRUETRUE-0.5METAR376.02019-12-11 17:20:59H*)5   3CXZC 111700Z AUTO 18002KT M24/M27 RMK AO1 SOG 40 8002 SLP169 T12371267CXZC2019-12-11T17:00:00Z51.3-80.62-23.7-26.718021016.9TRUETRUEMETAR9.02019-12-11 17:20:59`))75    3CXBI 111700Z AUTO 25013G22KT M05/M11 RMK AO1 PK WND 23022/1646 SLP195 T10491112 58013CXBI2019-12-11T17:00:00Z44.48-79.55-4.9-11.225013221019.5TRUETRUE-1.3METAR289.02019-12-11 17:20:59A()5    3SBCZ 111700Z 00000KT 7000 -RA BKN030 FEW040TCU 26/24 Q1011SBCZ2019-12-11T17:00:00Z-7.62-72.7726.024.0004.3529.852362-RAMVFRMETAR170.02019-12-11 17:20:59 8UB/) 5    3CWZA 111700Z AUTO 29001KT 04/03 RMK AO1 SLP174 T00360030 50000CWZA2019-12-11T17:00:00Z49.25-121.773.63.029011017.4TRUETRUE0.0METAR15.02019-12-11 17:20:59H.)5   3CWYY 111700Z AUTO 14007KT 01/M01 RMK AO1 SOG 01 3009 SLP219 T00071014CWYY2019-12-11T17:00:00Z49.03-119.430.7-1.414071021.9TRUETRUEMETAR283.02019-12-11 17:20:59^-)=5   3CWYL 111700Z AUTO 24014KT M08/M09 RMK AO1 SOG 74 3007 PK WND 24018/1603 SLP165 T10831092CWYL2019-12-11T17:00:00Z51.45-116.32-8.3-9.2240141016.5TRUETRUEMETAR1615.02019-12-11 17:20:59C,)5  3CWXL 111700Z AUTO 17009KT M07/M10 RMK AO1 PK WND 15020/1606 T10741097CWXL2019-12-11T17:00:00Z49.73-111.45-7.4-9.71709TRUETRUEMETAR817.02019-12-11 17:20:59 "\4)75    3CXKE 111700Z AUTO 19007G16KT M04/M08 RMK AO1 PK WND 21018/1631 SLP196 T10401076 58027CXKE2019-12-11T17:00:00Z45.0-75.63-4.0-7.61907161019.6TRUETRUE-2.7METAR99.02019-12-11 17:20:59J3)5   3CXKA 111700Z AUTO 29008KT M22/M26 RMK AO1 SOG 46 1005 SLP186 T12231258CXKA2019-12-11T17:00:00Z49.4-82.45-22.3-25.829081018.6TRUETRUEMETAR218.02019-12-11 17:20:5972)5    3CXHM 111700Z AUTO 26013G26KT RMK AO1 PK WND 26026/1644 58008CXHM2019-12-11T17:00:00Z43.28-79.92601326TRUETRUE-0.8METAR107.02019-12-11 17:20:591(O5   3CWZO 111700Z AUTO 10008KT RMK AO1CWZO2019-12-11T17:00:00Z48.55-123.231008TRUETRUEMETAR1.02019-12-11 17:20:59Y0)15    3CWZQ 111700Z AUTO 36017KT M02/M01 RMK AO1 PK WND 35024/1607 SLP177 T10171011 58002CWZQ2019-12-11T17:00:00Z46.53-61.05-1.7-1.1360171017.7TRUETRUE-0.2METAR17.02019-12-11 17:20:59 CpC8) 5    3CWEZ 111700Z AUTO 10010KT 07/07 RMK AO1 SLP159 T00710066 58010CWEZ2019-12-11T17:00:00Z48.78-123.057.16.6100101015.9TRUETRUE-1.0METAR7.02019-12-11 17:20:59N7)5    3CWEW 111700Z AUTO 14006KT M06/M13 RMK AO1 PRESFR SLP225 T10641129 58032CWEW2019-12-11T17:00:00Z45.82-73.43-6.4-12.914061022.5TRUETRUE-3.2METAR21.02019-12-11 17:20:59U6)-5    3CWEL 111700Z AUTO 14019KT 09/08 RMK AO1 PK WND 14021/1650 SLP152 T00910082 58015CWEL2019-12-11T17:00:00Z49.22-123.789.18.2140191015.2TRUETRUE-1.5METAR5.02019-12-11 17:20:59^5)=5    3CWEB 111700Z AUTO 13014G25KT 08/08 RMK AO1 8021 PK WND 14026/1602 SLP111 T00790076 50004CWEB2019-12-11T17:00:00Z49.38-126.557.97.613014251011.1TRUETRUE0.4METAR7.02019-12-11 17:20:59 2a_<)75    3CWGD 111700Z AUTO 25021G29KT M05/M12 RMK AO1 PK WND 24035/1603 SLP236 T10481115 50009CWGD2019-12-11T17:00:00Z43.77-81.72-4.8-11.525021291023.6TRUETRUE0.9METAR214.02019-12-11 17:20:59Y;)75    3CWGB 111700Z AUTO 11021KT 07/07 RMK AO1 8015 PK WND 11025/1615 SLP148 T00650069 50004CWGB2019-12-11T17:00:00Z49.35-124.176.56.9110211014.8TRUETRUE0.4METAR5.02019-12-11 17:20:59L:)5    3CWFQ 111700Z AUTO 17006KT M05/M14 RMK AO1 8024 SLP214 T10541144 50002CWFQ2019-12-11T17:00:00Z45.03-72.82-5.4-14.417061021.4TRUETRUE0.2METAR152.02019-12-11 17:20:59I9) 5    3CWFF 111700Z AUTO 25002KT M27/M31 RMK AO1 SLP303 T12741308 53002CWFF2019-12-11T17:00:00Z52.82-104.58-27.4-30.825021030.3TRUETRUE0.2METAR490.02019-12-11 17:20:59 9lQ@)%5    3CWTA 111700Z AUTO 17006KT M05/M12 RMK AO1 PRESFR 8028 SLP216 T10541115 50002CWTA2019-12-11T17:00:00Z45.5-73.58-5.4-11.517061021.6TRUETRUE0.2METAR63.02019-12-11 17:20:59H?)5  3CWGM 111700Z AUTO 23021G28KT 01/M04 RMK AO1 PK WND 22029/1647 T00121043CWGM2019-12-11T17:00:00Z49.13-113.781.2-4.32302128TRUETRUEMETAR1296.02019-12-11 17:20:59_>)75    3CWGL 111700Z AUTO 23026G31KT M04/M09 RMK AO1 PK WND 23033/1628 SLP169 T10391093 58015CWGL2019-12-11T17:00:00Z44.52-79.22-3.9-9.323026311016.9TRUETRUE-1.5METAR221.02019-12-11 17:20:59^=)75    3CWGH 111700Z AUTO 20013G22KT M02/M04 RMK AO1 PK WND 20027/1643 SLP206 T10151035 58032CWGH2019-12-11T17:00:00Z44.42-75.85-1.5-3.520013221020.6TRUETRUE-3.2METAR82.02019-12-11 17:20:59 _GD) 5    3CWUS 111700Z AUTO 32002KT M01/M02 RMK AO1 SLP222 T10071024 53008CWUS2019-12-11T17:00:00Z49.57-119.65-0.7-2.432021022.2TRUETRUE0.8METAR454.02019-12-11 17:20:59FC) 5    3CWTY 111700Z AUTO 21005KT M09/M14 RMK AO1 SLP230 T10861140 58021CWTY2019-12-11T17:00:00Z46.35-72.52-8.6-14.021051023.0TRUETRUE-2.1METAR6.02019-12-11 17:20:599B(5     3CWTN 111700Z AUTO 25008KT M08/ RMK AO1 SLP225 T1078 58018CWTN2019-12-11T17:00:00Z47.07-70.78-7.825081022.5TRUETRUE-1.8METAR6.02019-12-11 17:20:59^A)75    3CWTG 111700Z AUTO 26016G21KT M09/M16 RMK AO1 PK WND 25024/1606 SLP200 T10911161 58007CWTG2019-12-11T17:00:00Z49.32-67.37-9.1-16.126016211020.0TRUETRUE-0.7METAR5.02019-12-11 17:20:59 4bMI)5   3CWVP 111700Z AUTO 17005KT M13/M15 RMK AO1 SOG 28 6013 SLP144 T11281147CWVP2019-12-11T17:00:00Z49.63-109.52-12.8-14.717051014.4TRUETRUEMETAR1271.02019-12-11 17:20:59KH) 5    3CWVN 111700Z AUTO 13010KT M13/M15 RMK AO1 SLP194 T11271150 56015CWVN2019-12-11T17:00:00Z49.07-107.57-12.7-15.0130101019.4TRUETRUE-1.5METAR785.02019-12-11 17:20:59(G(o5  3CWVF 111700Z AUTO 09010KT 06/06 RMK AO1 T00600058CWVF2019-12-11T17:00:00Z49.1-123.36.05.89010TRUETRUEMETAR1.02019-12-11 17:20:59MF)5    3CWVI 111700Z AUTO 12007KT M17/M19 RMK AO1 3003 SLP232 T11661192 50004CWVI2019-12-11T17:00:00Z53.52-112.1-16.6-19.212071023.2TRUETRUE0.4METAR639.02019-12-11 17:20:59GE) 5    3CWUX 111700Z AUTO 05002KT M12/M19 RMK AO1 SLP211 T11241188 57024CWUX2019-12-11T17:00:00Z48.3-70.93-12.4-18.85021021.1TRUETRUE-2.4METAR135.02019-12-11 17:20:59  TBM) 5    3CWWK 111700Z AUTO 05004KT 06/05 RMK AO1 SLP173 T00580052 58005CWWK2019-12-11T17:00:00Z49.02-122.785.85.25041017.3TRUETRUE-0.5METAR15.02019-12-11 17:20:59JL)5   3CWWF 111700Z AUTO 13007KT M20/M24 RMK AO1 SOG 02 8003 SLP275 T11991238CWWF2019-12-11T17:00:00Z49.7-103.8-19.9-23.813071027.5TRUETRUEMETAR589.02019-12-11 17:20:59GK) 5    3CWVQ 111700Z AUTO 13006KT M05/M11 RMK AO1 SLP215 T10511114 58032CWVQ2019-12-11T17:00:00Z45.42-73.92-5.1-11.413061021.5TRUETRUE-3.2METAR39.02019-12-11 17:20:59[J)15     3CWWA 111700Z AUTO 08002KT 06/06 RMK AO1 1PAST HR 8004 SLP165 P0000 T00620059 50002CWWA2019-12-11T17:00:00Z49.35-123.176.25.98021016.5TRUETRUE0.20.005METAR178.02019-12-11 17:20:59 !QKQ)5   3CZFS 111700Z AUTO 01001KT M32/M35 RMK AO1 SOG 18 3001 SLP297 T13161349CZFS2019-12-11T17:00:00Z61.77-121.23-31.6-34.91011029.7TRUETRUEMETAR168.02019-12-11 17:20:59LP)5   3CZEV 111700Z AUTO 11009KT M24/M27 RMK AO1 SOG 21 2007 SLP251 T12361269CZEV2019-12-11T17:00:00Z68.32-133.52-23.6-26.911091025.1TRUETRUEMETAR103.02019-12-11 17:20:59KO)5   3CWMT 111700Z AUTO 08003KT M38/M42 RMK AO1 SOG 20 6005 SLP316 T13801418CWMT2019-12-11T17:00:00Z63.13-117.25-38.0-41.88031031.6TRUETRUEMETAR271.02019-12-11 17:20:59ZN)15    3CWXA 111700Z AUTO 25006KT M02/M07 RMK AO1 PK WND 27020/1607 SLP126 T10241072 52013CWXA2019-12-11T17:00:00Z51.07-115.07-2.4-7.225061012.6TRUETRUE1.3METAR1298.02019-12-11 17:20:59 0c8V(q5    3FQMA 111700Z 05005KT 9999 SCT020 25/22 Q1008 NOSIGFQMA2019-12-11T17:00:00Z-25.9232.5725.022.05056.2129.763779TRUEVFRMETAR44.02019-12-11 17:20:59OU)#5   3FQNP 111700Z 01003KT 330V040 9999 SCT020 FEW025CB 32/21 Q1010 RMK CB TO W/EFQNP2019-12-11T17:00:00Z-15.0839.2732.021.01036.2129.822834VFRMETAR441.02019-12-11 17:20:59;T(w5     3VOVZ 111700Z VRB02KT 5000 BR FEW018 22/21 Q1014 NOSIGVOVZ2019-12-11T17:00:00Z17.7583.2222.021.0023.1129.940945TRUEBRMVFRMETAR5.02019-12-11 17:20:59HS) 5    3CZSM 111700Z AUTO 00000KT M38/M42 RMK AO1 SLP321 T13791416 58004CZSM2019-12-11T17:00:00Z60.03-111.93-37.9-41.6001032.1TRUETRUE-0.4METAR203.02019-12-11 17:20:59KR)5   3CZHY 111700Z AUTO 08004KT M29/M32 RMK AO1 SOG 07 8002 SLP289 T12871316CZHY2019-12-11T17:00:00Z60.83-115.78-28.7-31.68041028.9TRUETRUEMETAR164.02019-12-11 17:20:59 ExW[)15   3UIBB 111700Z AUTO 25005MPS 220V280 9999 // ///013/// M03/M05 Q1004 RMK QFE710/0947UIBB2019-12-11T17:00:00Z56.37101.7-3.0-5.0250106.2129.64567TRUEMETAR490.02019-12-11 17:20:59JZ)5    3UIAA 111700Z AUTO 05001MPS 9999 NCD M24/M27 Q1012 RMK QFE701/0935UIAA2019-12-11T17:00:00Z52.02113.32-24.0-27.05026.2129.88189TRUEVFRMETAR685.02019-12-11 17:20:59*Y(c5  3NVVV 111700Z 04002KT 9999 ST020 19/17 Q1009NVVV2019-12-11T17:00:00Z-17.68168.319.017.04026.2129.793306METAR21.02019-12-11 17:20:59HX)5    3TQPF 111700Z 07013KT 9999 -SHRA FEW012CB SCT017 25/20 Q1016 RMK CB-STQPF2019-12-11T17:00:00Z18.18-63.0325.020.070136.2130.0-SHRAVFRMETAR31.02019-12-11 17:20:596W(s5   3FQBR 111700Z 33002KT 9999 BKN018 BKN030 26/24 Q1008FQBR2019-12-11T17:00:00Z-19.834.8826.024.033026.2129.763779MVFRMETAR16.02019-12-11 17:20:59 );pg_)E5     3UUOL 111700Z 30001MPS 0200 0150SE R15/0650N FG VV002 02/02 Q1023 R15/290150 NOSIG RMK QBB070UUOL2019-12-11T17:00:00Z52.739.532.02.030020.1230.206694TRUEFGLIFR200METAR176.02019-12-11 17:20:59F^) 5    3UUBW 111700Z 06003MPS 9999 OVC010 00/M02 Q1024 R30/110055 NOSIGUUBW2019-12-11T17:00:00Z55.5538.150.0-2.06066.2130.236221TRUEMVFRMETAR115.02019-12-11 17:20:59i])A5     3UIUU 111700Z 24001MPS 4300 1900NW BR FU NSC M19/M22 Q1014 R26/491042 NOSIG RMK QFE716/0955UIUU2019-12-11T17:00:00Z51.8107.45-19.0-22.024022.6729.940945TRUEFU BRIFRMETAR515.02019-12-11 17:20:59R\)!5    3UIII 111700Z 10002MPS CAVOK M08/M08 Q1010 R12/390045 NOSIG RMK QFE715/0954UIII2019-12-11T17:00:00Z52.27104.4-8.0-8.010046.2129.822834TRUEVFRMETAR513.02019-12-11 17:20:59 ]Zc)G5  3URKA 111700Z 07006MPS 9999 SCT/// 02/01 Q1018 R04/010065 TEMPO 0200 FG BKN001 RMK QFE760/1013URKA2019-12-11T17:00:00Z45.037.352.01.070126.2130.059055METAR53.02019-12-11 17:20:59Rb)#5    3USCM 111700Z 22009MPS 9999 SCT030 M02/M06 Q1012 R18/090060 NOSIG RMK QFE721USCM2019-12-11T17:00:00Z53.458.75-2.0-6.0220176.2129.88189TRUEVFRMETAR435.02019-12-11 17:20:59.a(_5   3SANT 111700Z 14003KT 9000 NSC 36/20 Q1003SANT2019-12-11T17:00:00Z-26.85-65.0836.020.014035.5929.616142VFRMETAR450.02019-12-11 17:20:59k`)I5     3UEEE 111700Z 31001MPS 0650 0500NE R23L/1200N FG NSC M41/M46 Q1015 R23L/450150 NOSIG RMK QFE753UEEE2019-12-11T17:00:00Z62.08129.77-41.0-46.031020.429.970472TRUEFGLIFRMETAR103.02019-12-11 17:20:59bRRY`gnu|$+29@GNU\cjqx  '.5<CJQX_fmt{).38=BFJOTX]bf).38=BFJOTX]bfjosw| "'+/48<@DIMQV[_cgkosw{ $)-27<AFKPUZ_chmrw| $).38=BGKOSX\a 4 4Xg)-5     3URMM 111700Z 13002MPS 4600 BR NSC M01/M01 Q1020 R12/090070 NOSIG RMK QFE737/0982URMM2019-12-11T17:00:00Z44.2243.1-1.0-1.013042.8630.11811TRUEBRIFRMETAR314.02019-12-11 17:20:59ef)Y5   3URML 111700Z 04001MPS 6000 OVC007 01/M00 Q1022 R32/01//70 TEMPO 0300 FG OVC001 RMK MT OBSC QFE766/1022URML2019-12-11T17:00:00Z42.8247.651.00.04023.7330.177166IFRMETAR4.02019-12-11 17:20:59 e) 5     3URMG 111700Z 00000MPS 0150 0100SE R26/0500N FZFG VV002 M01/M01 Q1021 R26/190060 NOSIG RMK QBB070 MT OBSC OBST OBSC QFE751/1002URMG2019-12-11T17:00:00Z43.3745.7-1.0-1.0000.0930.147638TRUEFZFGLIFR200METAR263.02019-12-11 17:20:59pd)]5     3URKK 111700Z 00000MPS 0050 R23L/0250N FG VV001 01/01 Q1020 R23L/290060 NOSIG RMK QBB050 OBST OBSC QFE762URKK2019-12-11T17:00:00Z45.0339.151.01.0000.0330.11811TRUEFGLIFR100METAR34.02019-12-11 17:20:59 -Vtdk)U5    3URRP 111700Z 02003MPS 4500 BR OVC006 02/01 Q1022 R05/CLRD70 TEMPO 0800 -DZ FG OVC002 RMK QFE762/1016URRP2019-12-11T17:00:00Z47.539.922.01.02062.830.177166BRIFRMETAR65.02019-12-11 17:20:59]j)C5   3URMT 111700Z 21001MPS CAVOK 00/M00 Q1019 R07/190060 TEMPO 0300 -FZDZ FZFG OVC001 RMK QFE724URMT2019-12-11T17:00:00Z45.1242.120.00.021026.2130.088583VFRMETAR453.02019-12-11 17:20:59Ri)'5    3URMO 111700Z 11004MPS 9999 NSC M03/M04 Q1020 R09/010070 NOSIG RMK QFE721/0961URMO2019-12-11T17:00:00Z43.244.6-3.0-4.011086.2130.11811TRUEVFRMETAR510.02019-12-11 17:20:59Nh)5    3URMN 111700Z 27002MPS 9999 NSC 00/M03 Q1019 R24/////// NOSIG RMK QFE727URMN2019-12-11T17:00:00Z43.5243.630.0-3.027046.2130.088583TRUEVFRMETAR445.02019-12-11 17:20:59 kBLk\o)75    3URWW 111700Z 33003MPS 7000 OVC002 M00/M00 Q1022 R06/320053 NOSIG RMK QBB060 OBST OBSCURWW2019-12-11T17:00:00Z48.7844.330.00.033064.3530.177166TRUELIFRMETAR147.02019-12-11 17:20:59qn)S5     3URWI 111700Z VRB01MPS 0250 R09/0800D FZFG VV002 M03/M03 Q1021 R09/010065 NOSIG RMK QBB060 OBST OBSCURWI2019-12-11T17:00:00Z46.3744.33-3.0-3.0020.1630.147638TRUEFZFGLIFR200METAR150.02019-12-11 17:20:59Rm)!5    3URWA 111700Z 29002MPS CAVOK M01/M03 Q1022 R27/010070 NOSIG RMK QFE768/1024URWA2019-12-11T17:00:00Z46.2848.02-1.0-3.029046.2130.177166TRUEVFRMETAR-20.02019-12-11 17:20:59bl)I5    3URSS 111700Z 05003MPS 9999 NSC 06/01 Q1017 R02/010070 R06/010070 NOSIG RMK R06/00000MPS QFE762URSS2019-12-11T17:00:00Z43.4539.956.01.05066.2130.029528TRUEVFRMETAR16.02019-12-11 17:20:59 3cWs)+5    3UUEE 111700Z 03002MPS 010V070 9999 BKN011 OVC016 M01/M02 Q1023 R88/290051 NOSIGUUEE2019-12-11T17:00:00Z55.9737.42-1.0-2.03046.2130.206694TRUEMVFRMETAR190.02019-12-11 17:20:59Jr)5    3UUDL 111700Z 00000MPS CAVOK M06/M07 Q1025 R23/010060 NOSIG RMK QFE760UUDL2019-12-11T17:00:00Z57.5740.17-6.0-7.0006.2130.265747TRUEVFRMETAR88.02019-12-11 17:20:59Kq)5    3UUDD 111700Z 07002MPS 9999 FEW011 BKN030 01/M02 Q1023 R88/290045 NOSIGUUDD2019-12-11T17:00:00Z55.437.91.0-2.07046.2130.206694TRUEMVFRMETAR168.02019-12-11 17:20:59Hp)5    3ULLI 111700Z 18006MPS 9999 BKN012 M03/M06 Q1017 R10L/290050 NOSIGULLI2019-12-11T17:00:00Z59.830.27-3.0-6.0180126.2130.029528TRUEMVFRMETAR4.02019-12-11 17:20:59 -^Rw)#5    3USCC 111700Z 24004MPS 7000 FEW040 M01/M07 Q1009 R09/000060 NOSIG RMK QFE736USCC2019-12-11T17:00:00Z55.361.5-1.0-7.024084.3529.793306TRUEMVFRMETAR234.02019-12-11 17:20:59Uv)+5    3UUMO 111700Z 11002MPS 9999 BKN014 01/M00 Q1023 R08/190055 NOSIG RMK QFE752/1003UUMO2019-12-11T17:00:00Z55.5237.51.00.011046.2130.206694TRUEMVFRMETAR174.02019-12-11 17:20:59Ju)5    3UWUU 111700Z 21004MPS 9999 OVC015 M02/M04 Q1014 R14R/0///60 NOSIGUWUU2019-12-11T17:00:00Z54.5755.87-2.0-4.021086.2129.940945TRUEMVFRMETAR137.02019-12-11 17:20:59Nt)5    3UUWW 111700Z 35002MPS 310V050 9999 OVC016 00/M02 Q1023 R06/150060 NOSIGUUWW2019-12-11T17:00:00Z55.637.270.0-2.035046.2130.206694TRUEMVFRMETAR203.02019-12-11 17:20:59 (A]V{)-5    3ULWC 111700Z 00000MPS 9999 FEW026 M06/M07 Q1023 R21/750153 NOSIG RMK QFE757/1009ULWC2019-12-11T17:00:00Z59.2838.02-6.0-7.0006.2130.206694TRUEVFRMETAR115.02019-12-11 17:20:59_z)55     3USSS 111700Z 24004MPS 9000 -SN BKN021 00/M01 Q1007 R26R/190045 NOSIG RMK QFE735/0980USSS2019-12-11T17:00:00Z56.7560.820.0-1.024085.5929.734253TRUE-SNMVFRMETAR233.02019-12-11 17:20:59by)?5     3USRR 111700Z 21006MPS 2100 -SN OVC006 M02/M02 Q1004 R25/35//39 NOSIG RMK OBST OBSC QFE748USRR2019-12-11T17:00:00Z61.3373.42-2.0-2.0210121.329.64567TRUE-SNIFRMETAR44.02019-12-11 17:20:59Sx)#5    3USNN 111700Z 21005MPS 9999 OVC007 M02/M03 Q1006 R21/19//55 NOSIG RMK QFE750USNN2019-12-11T17:00:00Z60.9576.48-2.0-3.0210106.2129.704725TRUEIFRMETAR54.02019-12-11 17:20:59 ,e_)55     3UNAA 111700Z 23004MPS 1700 1400N BR FU NSC M03/M04 Q1020 R02/820149 NOSIG RMK QFE742UNAA2019-12-11T17:00:00Z53.7591.4-3.0-4.023081.0630.11811TRUEFU BRIFRMETAR245.02019-12-11 17:20:59B~)5    3UWGG 111700Z 31002MPS CAVOK M04/M07 Q1023 R36R/320047 NOSIGUWGG2019-12-11T17:00:00Z56.2343.78-4.0-7.031046.2130.206694TRUEVFRMETAR73.02019-12-11 17:20:59_})75     3UUOB 111700Z 00000MPS 0100 R29/0450N FG VV002 02/02 Q1022 R29/190057 NOSIG RMK QBB060UUOB2019-12-11T17:00:00Z50.6536.582.02.0000.0630.177166TRUEFGLIFR200METAR224.02019-12-11 17:20:59k|)O5     3UUBC 111700Z 00000MPS 0200 R31/0250N FG VV002 02/02 Q1023 R31/290150 NOSIG RMK QBB080 QFE750/1000UUBC2019-12-11T17:00:00Z54.5536.372.02.0000.1230.206694TRUEFGLIFR200METAR199.02019-12-11 17:20:59 X'@Xc)C5    3UNNT 111700Z 20004MPS 6000 OVC005 M07/M08 Q1022 R25/550150 R16/820155 NOSIG RMK QFE756/1008UNNT2019-12-11T17:00:00Z55.0282.63-7.0-8.020083.7330.177166TRUEIFRMETAR111.02019-12-11 17:20:59b)95    3UNKL 111700Z 26006G11MPS 9000 -SHSN BKN013CB M04/M06 Q1016 R29/390232 NOSIG RMK QFE736UNKL2019-12-11T17:00:00Z56.1792.48-4.0-6.026012215.5930.0TRUE-SHSNMVFRMETAR276.02019-12-11 17:20:59X))5     3UNEE 111700Z 20003MPS 4400 BR OVC005 M06/M07 Q1021 R23/590532 NOSIG RMK QFE743UNEE2019-12-11T17:00:00Z55.2786.08-6.0-7.020062.7330.147638TRUEBRIFRMETAR260.02019-12-11 17:20:59w)[5     3UNBB 111700Z 19002MPS 0200 0150NE R24/0550N FZFG VV002 M08/M09 Q1022 R24/450145 NOSIG RMK QBB060 QFE744UNBB2019-12-11T17:00:00Z53.3783.53-8.0-9.019040.1230.177166TRUEFZFGLIFR200METAR255.02019-12-11 17:20:59 d)PRdi)Q5    3USHH 111700Z 19004MPS 2900 -SHSN BKN007CB M02/M03 Q1002 R24/490332 TEMPO 1000 SHSN BKN004 OVC015CBUSHH2019-12-11T17:00:00Z61.0369.08-2.0-3.019081.829.586615-SHSNIFRMETAR23.02019-12-11 17:20:59y)w5   3USTR 111700Z 22005MPS CAVOK 01/M03 Q1007 R21/290060 R30/////99 TEMPO 3000 -SHSN -FZRA BKN007 BKN015CB RMK QFE746/0995USTR2019-12-11T17:00:00Z57.1765.321.0-3.0220106.2129.734253VFRMETAR115.02019-12-11 17:20:59T)#5    3UNTT 111700Z 20005MPS 8000 OVC005 M06/M07 Q1019 R21/690240 NOSIG RMK QFE749UNTT2019-12-11T17:00:00Z56.3885.22-6.0-7.0200104.9730.088583TRUEIFRMETAR182.02019-12-11 17:20:59R)5    3UNOO 111700Z 17001MPS 6000 NSC M11/M11 Q1018 R25/810250 NOSIG RMK QFE755UNOO2019-12-11T17:00:00Z54.9773.32-11.0-11.017023.7330.059055TRUEMVFRMETAR95.02019-12-11 17:20:59 zFLzM )5    3UWKS 111700Z 33004MPS CAVOK M03/M07 Q1019 R06/290245 NOSIG RMK QFE749UWKS2019-12-11T17:00:00Z56.0847.35-3.0-7.033086.2130.088583TRUEVFRMETAR170.02019-12-11 17:20:59u )U5     3UWKE 111700Z 25006MPS 2800 -SHSN BR OVC003CB 00/M01 Q1013 R21/590535 NOSIG RMK OBST OBSC QFE743/0990UWKE2019-12-11T17:00:00Z55.5752.080.0-1.0250121.7429.911417TRUE-SHSN BRLIFRMETAR196.02019-12-11 17:20:59R )+5    3UWKD 111700Z 33006MPS 9999 BKN020 00/M00 Q1016 R29/2/0045 NOSIG RMK QFE751/1001UWKD2019-12-11T17:00:00Z55.6249.280.00.0330126.2130.0TRUEMVFRMETAR126.02019-12-11 17:20:59^)55     3USPP 111700Z 25004MPS 9999 -SN SCT009 BKN015 00/00 Q1008 R21/390132 NOSIG RMK QFE745USPP2019-12-11T17:00:00Z57.9256.020.00.025086.2129.763779TRUE-SNMVFRMETAR123.02019-12-11 17:20:59 /`c)C5     3UWWW 111700Z 26002MPS 220V290 4900 BR OVC006 M00/M01 Q1017 R33/190055 NOSIG RMK QFE752/1003UWWW2019-12-11T17:00:00Z53.550.170.0-1.026043.0430.029528TRUEBRIFRMETAR146.02019-12-11 17:20:59Z)35     3UWOO 111700Z 00000MPS 4200 BR BKN046 M02/M02 Q1017 R26/710143 NOSIG RMK QFE752/1003UWOO2019-12-11T17:00:00Z51.855.47-2.0-2.0002.6130.029528TRUEBRIFRMETAR109.02019-12-11 17:20:59J )!5    3UWOR 111700Z VRB01MPS CAVOK M07/M09 Q1016 R25/150055 NOSIG RMK QFE738/0984UWOR2019-12-11T17:00:00Z51.0758.6-7.0-9.0026.2130.0TRUEVFRMETAR277.02019-12-11 17:20:59L )5    3UWLW 111700Z 31004MPS 8000 OVC007 01/01 Q1018 R20/590250 NOSIG RMK QFE758UWLW2019-12-11T17:00:00Z54.448.81.01.031084.9730.059055TRUEIFRMETAR66.02019-12-11 17:20:59 $0lL)5   3ULPB 111700Z AUTO 19003MPS 140V250 9999 // M04/M07 Q1015 RMK QFE758/1010ULPB2019-12-11T17:00:00Z61.8834.15-4.0-7.019066.2129.970472TRUEMETAR46.02019-12-11 17:20:59?)5   3ULOO 111700Z AUTO 16005MPS 9999 // M01/M04 Q1018 RMK QFE759ULOO2019-12-11T17:00:00Z57.7828.4-1.0-4.0160106.2130.059055TRUEMETAR47.02019-12-11 17:20:59o)C5  !  3ULMM 111700Z 16008G13MPS 2700 -SHSN DRSN BKN034CB M06/M08 Q0996 R13/450237 NOSIG RMK QFE741ULMM2019-12-11T17:00:00Z68.7832.75-6.0-8.016016251.6829.409449TRUE-SHSN DRSNIFRMETAR51.02019-12-11 17:20:59W)-5    3ULAA 111700Z 20003MPS 9999 SCT030 M08/M10 Q1015 R08/490143 NOSIG RMK QFE760/1014ULAA2019-12-11T17:00:00Z64.640.72-8.0-10.020066.2129.970472TRUEVFRMETAR19.02019-12-11 17:20:59 w+>SwW)'5    3UHBB 111700Z 05001MPS 9000 NSC M28/M30 Q1015 R36/420250 NOSIG RMK QFE744/0992UHBB2019-12-11T17:00:00Z50.43127.42-28.0-30.05025.5929.970472TRUEVFRMETAR195.02019-12-11 17:20:59f)=5     3UUYY 111700Z 29003MPS 7000 -SHSN BKN025CB M05/M07 Q1014 R18/350233 NOSIG RMK QFE752/1003UUYY2019-12-11T17:00:00Z61.6550.82-5.0-7.029064.3529.940945TRUE-SHSNMVFRMETAR119.02019-12-11 17:20:59h)G5     3UUOO 111700Z 30002MPS 0800 R30/P2000U FG VV002 02/02 Q1023 R30/190055 NOSIG RMK QBB080 QFE753UUOO2019-12-11T17:00:00Z51.8239.232.02.030040.530.206694TRUEFGLIFR200METAR157.02019-12-11 17:20:59P)!5    3UMKK 111700Z 16004MPS CAVOK M01/M03 Q1014 R24/290095 NOSIG RMK QFE759/1012UMKK2019-12-11T17:00:00Z54.8820.6-1.0-3.016086.2129.940945TRUEVFRMETAR21.02019-12-11 17:20:59 '&Ga'5)M5   )  3UHMA 111700Z 18003MPS 2100 -SN BR SCT008 BKN022 OVC031 M04/M05 Q0985 RESHSN REFZRA RESN R01/////// NOSIG RMK TDZ R01/18003G04MPS END R01/15004G05MPS QFE735/0980UHMA2019-12-11T17:00:00Z64.73177.73-4.0-5.018061.329.084646TRUE-SN BR FZRA SNIFRMETAR62.02019-12-11 17:20:59a)55     3UHWW 111700Z 01005MPS 4000 -SHSN BKN023CB M08/M11 Q1014 R07R/450255 NOSIG RMK QFE759UHWW2019-12-11T17:00:00Z43.4132.15-8.0-11.010102.4929.940945TRUE-SHSNIFRMETAR14.02019-12-11 17:20:59Z)/5    3UHPP 111700Z 01002MPS 9999 BKN046 M13/M17 Q1006 R34L/CLRD70 NOSIG RMK QFE751/1001UHPP2019-12-11T17:00:00Z53.17158.45-13.0-17.01046.2129.704725TRUEVFRMETAR40.02019-12-11 17:20:59U)#5    3UHHH 111700Z 29003MPS CAVOK M20/M24 Q1009 R23L/090060 NOSIG RMK QFE750/1001UHHH2019-12-11T17:00:00Z48.52135.18-20.0-24.029066.2129.793306TRUEVFRMETAR72.02019-12-11 17:20:59 >2o((e5   3WMKA 111700Z VRB02KT 9999 FEW030 25/23 Q1012WMKA2019-12-11T17:00:00Z6.2100.425.023.0026.2129.88189VFRMETAR5.02019-12-11 17:20:59>) 5  3WMAU 111700Z AUTO 36012G23KT 280V050 //// // 27/23 Q//// QFF1012WMAU2019-12-11T17:00:00Z2.38103.8827.023.036012230.63TRUEMETAR45.02019-12-11 17:20:59)5     3UHSS 111700Z 36002MPS 320V050 1000 0800N R01/P2000D +SHSN BKN017CB M05/M06 Q1003 R01/810360 NOSIG RMK MT OBSC QFE751/1001UHSS2019-12-11T17:00:00Z46.88142.72-5.0-6.036040.6229.616142TRUE+SHSNLIFRMETAR31.02019-12-11 17:20:59=({5   3UHMM 111700Z 12001MPS 9999 NSC M30/M32 Q1001 RMK QFE736UHMM2019-12-11T17:00:00Z59.92150.72-30.0-32.012026.2129.557087VFRMETAR175.02019-12-11 17:20:59 NE N8$(}5   3WMKI 111700Z VRB02KT 8000 FEW007 SCT027 25/24 Q1012 RETSWMKI2019-12-11T17:00:00Z4.57101.0825.024.0024.9729.88189MVFRMETAR39.02019-12-11 17:20:599#)5   3WMKE 111700Z AUTO 03007KT 340V070 //// // ////// 27/23 Q1012WMKE2019-12-11T17:00:00Z4.53103.4327.023.030729.88189TRUEMETAR5.02019-12-11 17:20:59F") 5     3WMKD 111700Z 06003KT 350V120 9999 -RA FEW024 24/22 Q1012 NOSIGWMKD2019-12-11T17:00:00Z3.77103.2224.022.06036.2129.88189TRUE-RAVFRMETAR16.02019-12-11 17:20:59,!(e5   3WMKC 111700Z 08007KT 9999 SCT020 26/23 Q1013WMKC2019-12-11T17:00:00Z6.17102.2726.023.08076.2129.911417VFRMETAR5.02019-12-11 17:20:596 (q5    3WMKB 111700Z 00000KT 6000 FEW010 25/24 Q1011 NOSIGWMKB2019-12-11T17:00:00Z5.47100.3725.024.0003.7329.852362TRUEMVFRMETAR4.02019-12-11 17:20:59 @I@B))5    3OPPS 111700Z 23004KT 4000 HZ FEW040 SCT100 SCT200 13/07 Q1015OPPS2019-12-11T17:00:00Z34.0271.5213.07.023042.4929.970472HZIFRMETAR360.02019-12-11 17:20:59L()5    3OPKC 111700Z 05013KT 5000 DZ BKN020 BKN090 22/12 Q1010 TEMPO 2000 TSRAOPKC2019-12-11T17:00:00Z24.8867.1722.012.050133.1129.822834DZMVFRMETAR22.02019-12-11 17:20:594'(u5   3WMKN 111700Z 06006KT 020V180 9999 FEW022 27/23 Q1013WMKN2019-12-11T17:00:00Z5.37103.0827.023.06066.2129.911417VFRMETAR6.02019-12-11 17:20:593&(u5   3WMKM 111700Z 04005KT 330V120 9999 FEW028 26/22 Q1012WMKM2019-12-11T17:00:00Z2.27102.2526.022.04056.2129.88189VFRMETAR9.02019-12-11 17:20:592%(u5   3WMKL 111700Z 03007KT 340V080 9999 FEW026 27/23 Q1012WMKL2019-12-11T17:00:00Z6.3299.7227.023.03076.2129.88189VFRMETAR7.02019-12-11 17:20:59 e4-(q5    3DIAP 111700Z VRB02KT 9999 FEW011 27/24 Q1008 NOSIGDIAP2019-12-11T17:00:00Z5.25-3.9227.024.0026.2129.763779TRUEVFRMETAR8.02019-12-11 17:20:592,(e5    3GGOV 111700Z 09007KT CAVOK 31/13 Q1008 NOSIGGGOV2019-12-11T17:00:00Z11.87-15.6531.013.09076.2129.763779TRUEVFRMETAR36.02019-12-11 17:20:59o+)G5   !  3UOOO 111700Z 16007MPS 3500 -SHSN DRSN BKN048CB M07/M08 Q0991 R19/450536 NOSIG RMK QFE727/0970UOOO2019-12-11T17:00:00Z69.3287.33-7.0-8.0160142.1729.26181TRUE-SHSN DRSNIFRMETAR175.02019-12-11 17:20:59k*)K5     3URFF 111700Z 06007MPS 0400 0350N R01/P2000U FG VV002 02/02 Q1017 R01/090095 NOSIG RMK OBST OBSCURFF2019-12-11T17:00:00Z45.0333.982.02.060140.2530.029528TRUEFGLIFR200METAR188.02019-12-11 17:20:59 DRD32(e5    3OENG 111700Z 04005KT CAVOK 25/12 Q1017 NOSIGOENG2019-12-11T17:00:00Z17.6244.4225.012.04056.2130.029528TRUEVFRMETAR1203.02019-12-11 17:20:59K1) 5     3OEKM 111700Z 00000KT 8000 TSRA BKN020 FEW025CB 15/13 Q1024 NOSIGOEKM2019-12-11T17:00:00Z18.342.7815.013.0004.9730.236221TRUETSRAMVFRMETAR2054.02019-12-11 17:20:59D0) 5    3GQNO 111700Z 09015KT 2000 BLSA NSC 30/M01 Q1012 BECMG 4000 BLSAGQNO2019-12-11T17:00:00Z18.3-15.9730.0-1.090151.2429.88189BLSAIFRMETAR4.02019-12-11 17:20:598/(u5    3GABS 111700Z 05006KT 030V090 CAVOK 32/02 Q1012 NOSIGGABS2019-12-11T17:00:00Z12.52-7.9532.02.05066.2129.88189TRUEVFRMETAR381.02019-12-11 17:20:59).([5   3GOTT 111700Z 02006KT CAVOK 34/M01 Q1009GOTT2019-12-11T17:00:00Z13.73-13.6534.0-1.02066.2129.793306VFRMETAR50.02019-12-11 17:20:59 zI3z47(g5    3OETB 111700Z 24006KT CAVOK 20/M01 Q1014 NOSIGOETB2019-12-11T17:00:00Z28.3736.6220.0-1.024066.2129.940945TRUEVFRMETAR770.02019-12-11 17:20:5986(q5    3OESH 111700Z 03004KT 9999 FEW040 30/10 Q1013 NOSIGOESH2019-12-11T17:00:00Z17.4747.1230.010.03046.2129.911417TRUEVFRMETAR722.02019-12-11 17:20:59(5(e5   3OERR 111700Z 08007KT 9999 SCT040 14/05 Q1016OERR2019-12-11T17:00:00Z30.8841.1214.05.08076.2130.0VFRMETAR552.02019-12-11 17:20:59'4(Y5   3OERF 111700Z 06007KT CAVOK 17/04 Q1018OERF2019-12-11T17:00:00Z29.6243.4717.04.06076.2130.059055VFRMETAR447.02019-12-11 17:20:5923(e5    3OEPA 111700Z 03005KT CAVOK 16/12 Q1018 NOSIGOEPA2019-12-11T17:00:00Z28.3246.1216.012.03056.2130.059055TRUEVFRMETAR355.02019-12-11 17:20:59 TI1<(e5    3OEWJ 111700Z 36004KT CAVOK 22/17 Q1012 NOSIGOEWJ2019-12-11T17:00:00Z26.1836.4722.017.036046.2129.88189TRUEVFRMETAR16.02019-12-11 17:20:59&;(Y5   3OEWD 111700Z 05008KT CAVOK 26/22 Q1014OEWD2019-12-11T17:00:00Z20.545.226.022.05086.2129.940945VFRMETAR617.02019-12-11 17:20:59":(Y5   3OETR 111700Z 09010KT CAVOK 14/06 Q1016OETR2019-12-11T17:00:00Z31.738.7314.06.090106.2130.0VFRMETAR855.02019-12-11 17:20:5949(e5    3OETF 111700Z 30005KT CAVOK 20/15 Q1021 NOSIGOETF2019-12-11T17:00:00Z21.4740.5320.015.030056.2130.147638TRUEVFRMETAR1449.02019-12-11 17:20:59'8(Y5   3OESK 111700Z 10008KT CAVOK 18/02 Q1018OESK2019-12-11T17:00:00Z29.7740.118.02.010086.2130.059055VFRMETAR684.02019-12-11 17:20:59 XJX6A(s5   3MNCH 111700Z 14004KT 9999 SCT025 SCT090 32/22 Q1013MNCH2019-12-11T17:00:00Z12.62-87.1232.022.014046.2129.911417VFRMETAR53.02019-12-11 17:20:591@(e5   3MNJG 111700Z 36010KT 9999 SCT019 24/18 Q1015MNJG2019-12-11T17:00:00Z13.08-86.0224.018.0360106.2129.970472VFRMETAR985.02019-12-11 17:20:59B?) 5   3MNRS 111700Z 02006KT 9999 FEW012CB BKN200 30/24 Q1013 CB/E/SE/SMNRS2019-12-11T17:00:00Z11.42-85.8230.024.02066.2129.911417VFRMETAR53.02019-12-11 17:20:595>(k5    3MNPC 111700Z 09010KT 7000 BKN016 30/27 Q1013 HZMNPC2019-12-11T17:00:00Z14.05-83.3830.027.090104.3529.911417HZMVFRMETAR16.02019-12-11 17:20:591=(e5    3OEYN 111700Z 27004KT CAVOK 25/18 Q1010 NOSIGOEYN2019-12-11T17:00:00Z24.1338.0725.018.027046.2129.822834TRUEVFRMETAR8.02019-12-11 17:20:59 O2k O7F(q5    3OEBA 111700Z 00000KT 9999 FEW030 20/17 Q1021 NOSIGOEBA2019-12-11T17:00:00Z20.341.6220.017.0006.2130.147638TRUEVFRMETAR1656.02019-12-11 17:20:59(E(Y5   3OEAO 111700Z 16002KT CAVOK 22/01 Q1015OEAO2019-12-11T17:00:00Z26.4838.1222.01.016026.2129.970472VFRMETAR624.02019-12-11 17:20:59.D(e5    3OEAH 111700Z 34008KT CAVOK 18/12 Q1016 NOSIGOEAH2019-12-11T17:00:00Z25.2749.4718.012.034086.2130.0TRUEVFRMETAR172.02019-12-11 17:20:59BC)5    3OEAB 111700Z 00000KT 9999 FEW020 FEW025CB 16/13 Q1025 NOSIGOEAB2019-12-11T17:00:00Z18.2242.6316.013.0006.2130.265747TRUEVFRMETAR2084.02019-12-11 17:20:59IB) 5    3MNBL 111700Z 08006KT 8000 VCRA SCT017 SCT070 29/25 Q1014 RA/NE/EMNBL2019-12-11T17:00:00Z12.0-83.7729.025.08064.9729.940945VCRA RAMVFRMETAR5.02019-12-11 17:20:59 vH3v8K(q5    3OEGT 111700Z 28004KT 9999 SCT040 13/07 Q1013 NOSIGOEGT2019-12-11T17:00:00Z31.4237.2713.07.028046.2129.911417TRUEVFRMETAR499.02019-12-11 17:20:59(J(Y5   3OEGS 111700Z 13003KT CAVOK 17/13 Q1018OEGS2019-12-11T17:00:00Z26.343.7717.013.013036.2130.059055VFRMETAR650.02019-12-11 17:20:597I(q5    3OEGN 111700Z 22003KT 9999 SCT030 29/24 Q1011 NOSIGOEGN2019-12-11T17:00:00Z16.8842.5729.024.022036.2129.852362TRUEVFRMETAR3.02019-12-11 17:20:59'H(Y5   3OEDM 111700Z 05008KT CAVOK 18/03 Q1018OEDM2019-12-11T17:00:00Z24.4544.1218.03.05086.2130.059055VFRMETAR922.02019-12-11 17:20:593G(e5    3OEBH 111700Z 05004KT CAVOK 23/14 Q1018 NOSIGOEBH2019-12-11T17:00:00Z19.9742.6223.014.05046.2130.059055TRUEVFRMETAR1157.02019-12-11 17:20:59 _K(_DP)5    3RCKH 111700Z 35002KT 7000 FEW015 19/15 Q1018 NOSIG RMK A3006RCKH2019-12-11T17:00:00Z22.57120.3319.015.035024.3530.059055TRUEMVFRMETAR9.02019-12-11 17:20:59DO)5    3RCTP 111700Z 07018KT 9999 FEW020 18/12 Q1021 NOSIG RMK A3016RCTP2019-12-11T17:00:00Z25.07121.2218.012.070186.2130.147638TRUEVFRMETAR33.02019-12-11 17:20:59'N(Y5   3OEKJ 111700Z 03007KT CAVOK 19/09 Q1019OEKJ2019-12-11T17:00:00Z24.0747.5819.09.03076.2130.088583VFRMETAR503.02019-12-11 17:20:59)M(Y5   3OEHL 111700Z 15004KT CAVOK 16/05 Q1018OEHL2019-12-11T17:00:00Z27.4241.6716.05.015046.2130.059055VFRMETAR1013.02019-12-11 17:20:590L(c5    3OEJB 111700Z AUTO 32009KT CAVOK 19/11 Q1017OEJB2019-12-11T17:00:00Z27.0549.3819.011.032096.2130.029528TRUEVFRMETAR8.02019-12-11 17:20:59 9)m95U(o5    3YPWR 111700Z AUTO 17017KT 9999 // NCD 18/09 Q1016YPWR2019-12-11T17:00:00Z-31.12136.8218.09.0170176.2130.0TRUEVFRMETAR167.02019-12-11 17:20:598T(u5    3VMMC 111700Z 08009KT 060V120 CAVOK 19/16 Q1020 NOSIGVMMC2019-12-11T17:00:00Z22.15113.5819.016.08096.2130.11811TRUEVFRMETAR6.02019-12-11 17:20:598S(y5   3RCNN 111700Z 34004KT 9000 FEW012 15/12 Q1018 RMK A3007RCNN2019-12-11T17:00:00Z22.93120.215.012.034045.5930.059055VFRSPECI19.02019-12-11 17:20:597R(y5   3RCMQ 111700Z 03006KT 9999 FEW012 16/13 Q1018 RMK A3007RCMQ2019-12-11T17:00:00Z24.27120.6216.013.03066.2130.059055VFRSPECI5.02019-12-11 17:20:59RQ)#5    3RCSS 111700Z 07010KT 030V090 9999 FEW025 SCT050 19/12 Q1021 NOSIG RMK A3017RCSS2019-12-11T17:00:00Z25.07121.5319.012.070106.2130.147638TRUEVFRSPECI6.02019-12-11 17:20:59 %C|%NZ)5    3WBKK 111700Z 11004KT 080V150 9999 FEW014 SCT140 BKN270 25/24 Q1009 NOSIGWBKK2019-12-11T17:00:00Z5.92116.0325.024.011046.2129.793306TRUEVFRMETAR3.02019-12-11 17:20:59CY)5    3YGLA 111700Z AUTO 06009KT 9999 // SCT087 SCT105 25/19 Q1009YGLA2019-12-11T17:00:00Z-23.87151.2225.019.06096.2129.793306TRUEVFRMETAR52.02019-12-11 17:20:597X(o5    3YGEL 111700Z AUTO 07020KT 9999 // NCD 30/14 Q1010YGEL2019-12-11T17:00:00Z-28.8114.730.014.070206.2129.822834TRUEVFRMETAR37.02019-12-11 17:20:59BW) 5    3YPJT 111700Z AUTO 10012KT 9999 // NCD 25/10 Q1016 RF00.0/000.0YPJT2019-12-11T17:00:00Z-32.1115.8825.010.0100126.2130.0TRUEVFRMETAR30.02019-12-11 17:20:598V(o5    3YHID 111700Z AUTO 10001KT 9999 // NCD 27/24 Q1007YHID2019-12-11T17:00:00Z-10.58142.327.024.010016.2129.734253TRUEVFRMETAR13.02019-12-11 17:20:59 /%w/A_) 5    3WBGB 111700Z VRB02KT 9999 -RA FEW002 SCT016 OVC140 25/24 Q1010WBGB2019-12-11T17:00:00Z3.12113.0225.024.0026.2129.822834-RAVFRMETAR5.02019-12-11 17:20:59>^)5   3WBGR 111700Z 16003KT 130V210 9999 SCT014 BKN150 25/25 Q1009WBGR2019-12-11T17:00:00Z4.32113.9725.025.016036.2129.793306VFRMETAR18.02019-12-11 17:20:59:])5   3WBGS 111700Z VRB02KT 9999 FEW005 SCT014 BKN140 24/23 Q1011WBGS2019-12-11T17:00:00Z2.27111.9824.023.0026.2129.852362VFRMETAR8.02019-12-11 17:20:59)\(g5   3WBGY 111700Z AUTO 00000KT //// // 24/23 Q1012WBGY2019-12-11T17:00:00Z1.22111.4324.023.00029.88189TRUEMETAR34.02019-12-11 17:20:59V[)%5     3WBGG 111700Z 28003KT 230V330 9999 -RA FEW001 SCT020 BKN150 24/23 Q1011 NOSIGWBGG2019-12-11T17:00:00Z1.47110.3524.023.028036.2129.852362TRUE-RAVFRMETAR27.02019-12-11 17:20:59 gBc)5    3WMKK 111700Z 04008KT 350V080 9000 FEW017CB 25/22 Q1011 NOSIGWMKK2019-12-11T17:00:00Z2.75101.7225.022.04085.5929.852362TRUEVFRMETAR22.02019-12-11 17:20:59Ab)5    3WMKP 111700Z 04006KT 350V070 9000 FEW017CB 27/23 Q1011 NOSIGWMKP2019-12-11T17:00:00Z5.28100.2727.023.04065.5929.852362TRUEVFRMETAR4.02019-12-11 17:20:59,a(e5   3WMSA 111700Z VRB01KT 8000 FEW024 25/24 Q1012WMSA2019-12-11T17:00:00Z3.13101.5525.024.0014.9729.88189MVFRMETAR27.02019-12-11 17:20:59c`)+5    3WBSB 111700Z 21003KT 9999 -TSRA FEW004 SCT014 FEW015CB BKN150 25/25 Q1009 NOSIGWBSB2019-12-11T17:00:00Z4.92114.9225.025.021036.2129.793306TRUE-TSRABKN15000VFRMETAR15.02019-12-11 17:20:59 _1w _'h(Y5   3DNJO 111700Z 10010KT CAVOK 15/06 Q1017DNJO2019-12-11T17:00:00Z9.878.915.06.0100106.2130.029528VFRMETAR1285.02019-12-11 17:20:59+g(e5   3DNIB 111700Z 00000KT 9999 FEW014 31/20 Q1010DNIB2019-12-11T17:00:00Z7.373.9831.020.0006.2129.822834VFRMETAR228.02019-12-11 17:20:597f(w5   3FOON 111700Z 08003KT 9999 FEW013 FEW020CB 28/24 Q1011FOON2019-12-11T17:00:00Z-1.6313.4228.024.08036.2129.852362VFRMETAR441.02019-12-11 17:20:595e(w5   3FOOG 111700Z 20011KT 9999 SCT010 FEW020CB 28/25 Q1009FOOG2019-12-11T17:00:00Z-0.78.7528.025.0200116.2129.793306VFRMETAR4.02019-12-11 17:20:59Jd)5    3WMKJ 111700Z 04006KT 350V070 9999 -RA FEW023 SCT130 BKN270 24/23 Q1012WMKJ2019-12-11T17:00:00Z1.62103.6724.023.04066.2129.88189-RAVFRMETAR40.02019-12-11 17:20:59 VH&m([5   3DRRT 111700Z 04006KT CAVOK 31/M06 Q1012DRRT2019-12-11T17:00:00Z14.95.2531.0-6.04066.2129.88189VFRMETAR391.02019-12-11 17:20:592l(g5    3DRRN 111700Z 08008KT CAVOK 34/M09 Q1010 NOSIGDRRN2019-12-11T17:00:00Z13.472.1734.0-9.08086.2129.822834TRUEVFRMETAR227.02019-12-11 17:20:59'k(Y5   3DNMN 111700Z 31008KT CAVOK 33/13 Q1009DNMN2019-12-11T17:00:00Z9.656.4733.013.031086.2129.793306VFRMETAR254.02019-12-11 17:20:59&j(Y5   3DNKA 111700Z 03005KT CAVOK 30/07 Q1014DNKA2019-12-11T17:00:00Z10.587.4530.07.03056.2129.940945VFRMETAR642.02019-12-11 17:20:59%i(Y5   3DNIL 111700Z 00000KT CAVOK 32/11 Q1010DNIL2019-12-11T17:00:00Z8.474.4832.011.0006.2129.822834VFRMETAR305.02019-12-11 17:20:59 $K$Rr)#5    3WIMM 111700Z 27006KT 6000 FEW017CB BKN018 25/24 Q1011 NOSIG RMK CB TO NE, EWIMM2019-12-11T17:00:00Z3.5798.6725.024.027063.7329.852362TRUEMVFRSPECI25.02019-12-11 17:20:59?q)5    3DXXX 111700Z 19009KT 150V220 9999 FEW014 30/25 Q1009 NOSIGDXXX2019-12-11T17:00:00Z6.171.2530.025.019096.2129.793306TRUEVFRMETAR25.02019-12-11 17:20:59@p)5    3DNPO 111700Z 15003KT 8000 BKN008 FEW020CB 25/22 Q1009 NOSIGDNPO2019-12-11T17:00:00Z4.837.0225.022.015034.9729.793306TRUEIFRMETAR18.02019-12-11 17:20:59Bo)5    3DGAA 111700Z 18010KT 9999 SCT019 FEW030CB 29/25 Q1008 NOSIGDGAA2019-12-11T17:00:00Z5.58-0.1729.025.0180106.2129.763779TRUEVFRMETAR69.02019-12-11 17:20:590n(k5   3DRZR 111700Z 06006KT 030V090 CAVOK 30/M08 Q1013DRZR2019-12-11T17:00:00Z13.778.9730.0-8.06066.2129.911417VFRMETAR453.02019-12-11 17:20:59 HBHAw) 5    3WBKS 111700Z 00000KT 3000 +RA FEW008 SCT040 BKN280 25/25 Q1009WBKS2019-12-11T17:00:00Z5.9118.0725.025.0001.8629.793306+RAIFRMETAR13.02019-12-11 17:20:59;v)5   3WBKL 111700Z 00000KT 9999 FEW013 SCT140 OVC290 25/24 Q1009WBKL2019-12-11T17:00:00Z5.28115.2525.024.0006.2129.793306VFRMETAR30.02019-12-11 17:20:590u(e5    3DNAA 111700Z 20007KT CAVOK 32/17 Q1010 NOSIGDNAA2019-12-11T17:00:00Z9.07.2732.017.020076.2129.822834TRUEVFRMETAR344.02019-12-11 17:20:59:t(q5    3WADD 111700Z 35003KT 9999 SCT017 29/25 Q1009 NOSIGWADD2019-12-11T17:00:00Z-8.73115.1729.025.035036.2129.793306TRUEVFRMETAR216.02019-12-11 17:20:599s(q5    3WAAA 111700Z 06003KT 8000 FEW020 26/24 Q1008 NOSIGWAAA2019-12-11T17:00:00Z-5.07119.5326.024.06034.9729.763779TRUEMVFRMETAR14.02019-12-11 17:20:59 .0x.7|(q5    3DNMM 111700Z 22010KT 9999 SCT013 30/26 Q1009 NOSIGDNMM2019-12-11T17:00:00Z6.573.3230.026.0220106.2129.793306TRUEVFRMETAR38.02019-12-11 17:20:59A{)5   3SBEK 111700Z 15006KT 9999 SCT020 FEW025TCU BKN100 31/25 Q1009SBEK2019-12-11T17:00:00Z-6.23-57.7831.025.015066.2129.793306VFRMETAR98.02019-12-11 17:20:59Cz)5    3YLHI 111700Z AUTO 03010KT 340V040 9999 // SCT028 21/18 Q1012YLHI2019-12-11T17:00:00Z-31.53159.0721.018.030106.2129.88189TRUEVFRMETAR2.02019-12-11 17:20:593y(s5   3WBKW 111700Z VRB02KT 9999 FEW017 BKN280 25/23 Q1009WBKW2019-12-11T17:00:00Z4.32118.1225.023.0026.2129.793306VFRMETAR20.02019-12-11 17:20:59Kx)5   3WBKT 111700Z VRB01KT 9999 FEW014 FEW015CB SCT140 BKN270 24/24 Q1009WBKT2019-12-11T17:00:00Z6.92116.8224.024.0016.2129.793306BKN27000VFRMETAR5.02019-12-11 17:20:59 qC&q0(e5   3SBHT 111700Z 14007KT 9999 BKN025 33/25 Q1009SBHT2019-12-11T17:00:00Z-3.25-52.2733.025.014076.2129.793306MVFRMETAR74.02019-12-11 17:20:59.(e5   3SBIH 111700Z 12009KT 9999 FEW023 33/23 Q1008SBIH2019-12-11T17:00:00Z-4.25-56.033.023.012096.2129.763779VFRMETAR34.02019-12-11 17:20:590(c5   3SBGM 111700Z 29007KT CAVOK 28/21 Q1011 RERASBGM2019-12-11T17:00:00Z-10.78-65.2828.021.029076.2129.852362VFRMETAR146.02019-12-11 17:20:590~(e5    3DNKN 111700Z 05005KT CAVOK 27/03 Q1014 NOSIGDNKN2019-12-11T17:00:00Z12.058.5227.03.05056.2129.940945TRUEVFRMETAR481.02019-12-11 17:20:598}(q5    3DNEN 111700Z 13003KT 8000 FEW012 32/19 Q1008 NOSIGDNEN2019-12-11T17:00:00Z6.477.5332.019.013034.9729.763779TRUEMVFRMETAR137.02019-12-11 17:20:59 JKJA)5    3SBUA 111700Z 25004KT 9999 RA SCT010 BKN070 25/24 Q1011 RERASBUA2019-12-11T17:00:00Z-0.15-66.9825.024.025046.2129.852362RAVFRMETAR79.02019-12-11 17:20:59@(w5     3SBTK 111700Z AUTO 27005KT 9999 -RA SCT032 27/25 Q1011SBTK2019-12-11T17:00:00Z-8.17-70.7727.025.027056.2129.852362TRUE-RAVFRMETAR188.02019-12-11 17:20:590(e5   3SBMD 111700Z 14008KT 9999 BKN025 32/23 Q1010SBMD2019-12-11T17:00:00Z-0.87-52.632.023.014086.2129.822834MVFRMETAR206.02019-12-11 17:20:59<(w5    3SBLB 111700Z AUTO 02022KT 9999 NCD 26/23 Q1010 W26/S4SBLB2019-12-11T17:00:00Z-22.1-39.9226.023.020226.2129.822834TRUEVFRMETAR10.02019-12-11 17:20:590(e5   3SBIZ 111700Z 20004KT 9999 SCT035 33/22 Q1008SBIZ2019-12-11T17:00:00Z-5.52-47.4533.022.020046.2129.763779VFRMETAR123.02019-12-11 17:20:59 .;r.@ )5   3SBAX 111700Z 25006KT 9999 SCT030 BKN045 BKN100 24/20 Q1014SBAX2019-12-11T17:00:00Z-19.57-46.9724.020.025066.2129.940945VFRMETAR998.02019-12-11 17:20:59G ) 5    3SBAU 111700Z 03006KT 7000 -RA SCT003 SCT020 BKN070 23/23 Q1010SBAU2019-12-11T17:00:00Z-21.13-50.4323.023.03064.3529.822834-RAMVFRMETAR415.02019-12-11 17:20:59. (s5  3CWAF 111700Z AUTO 25002KT M08/M16 RMK AO1 T10761158CWAF2019-12-11T17:00:00Z48.07-69.53-7.6-15.82502TRUETRUEMETAR5.02019-12-11 17:20:59D)5   3SBVH 111700Z 30008KT 9999 BKN020 FEW030TCU BKN100 27/22 Q1013SBVH2019-12-11T17:00:00Z-12.72-60.1227.022.030086.2129.911417MVFRMETAR652.02019-12-11 17:20:59@(y5   3CYKD 111700Z 15007KT 15SM SKC M23/M26 A3022 RMK SLP236CYKD2019-12-11T17:00:00Z68.22-135.0-23.0-26.0150715.030.2214571023.6VFRMETAR7.02019-12-11 17:20:59 I8I((Y5   3SBCO 111700Z VRB04KT CAVOK 34/18 Q1005SBCO2019-12-11T17:00:00Z-29.95-51.1534.018.0046.2129.675198VFRMETAR47.02019-12-11 17:20:59M)5    3SBBU 111700Z 32009KT 9999 VCSH FEW025TCU BKN030 OVC070 26/24 Q1011SBBU2019-12-11T17:00:00Z-22.32-49.0726.024.032096.2129.852362VCSHMVFRMETAR590.02019-12-11 17:20:598(s5   3SBBI 111700Z 35002KT 9999 BKN020 BKN100 26/19 Q1013SBBI2019-12-11T17:00:00Z-25.4-49.2326.019.035026.2129.911417MVFRMETAR923.02019-12-11 17:20:59. (e5   3SBBQ 111700Z 34008KT 9999 BKN015 24/18 Q1016SBBQ2019-12-11T17:00:00Z-21.25-43.7724.018.034086.2130.0MVFRMETAR1171.02019-12-11 17:20:59C )5   3SBBH 111700Z 30003KT 9999 SCT030 FEW035TCU SCT090 28/18 Q1013SBBH2019-12-11T17:00:00Z-19.85-43.9528.018.030036.2129.911417VFRMETAR785.02019-12-11 17:20:59 IDI7(s5   3SBIP 111700Z 06009KT 9999 SCT040 BKN090 31/21 Q1010SBIP2019-12-11T17:00:00Z-19.47-42.4831.021.06096.2129.822834VFRMETAR239.02019-12-11 17:20:596(s5   3SBFS 111700Z 07010KT 9999 SCT015 BKN070 27/23 Q1009SBFS2019-12-11T17:00:00Z-22.02-41.0727.023.070106.2129.793306VFRMETAR3.02019-12-11 17:20:59B)5   3SBGW 111700Z 28004KT 9999 SCT025 FEW030TCU BKN100 29/19 Q1011SBGW2019-12-11T17:00:00Z-22.77-45.229.019.028046.2129.852362VFRMETAR533.02019-12-11 17:20:598(s5   3SBES 111700Z 21010KT 9999 FEW009 BKN015 26/23 Q1009SBES2019-12-11T17:00:00Z-22.82-42.126.023.0210106.2129.793306MVFRMETAR11.02019-12-11 17:20:597(s5   3SBDN 111700Z 04006KT 9999 SCT015 OVC070 24/20 Q1010SBDN2019-12-11T17:00:00Z-22.18-51.4324.020.04066.2129.822834VFRMETAR435.02019-12-11 17:20:59 LEL0(e5   3SBMK 111700Z 36003KT 9999 SCT045 33/12 Q1011SBMK2019-12-11T17:00:00Z-16.7-43.8233.012.036036.2129.852362VFRMETAR646.02019-12-11 17:20:59?)5   3SBML 111700Z 02006KT 9999 FEW015 SCT030 BKN080 23/21 Q1011SBML2019-12-11T17:00:00Z-22.18-49.9223.021.02066.2129.852362VFRMETAR647.02019-12-11 17:20:596(s5   3SBME 111700Z 11005KT 9999 SCT025 BKN080 31/25 Q1009SBME2019-12-11T17:00:00Z-22.35-41.7731.025.011056.2129.793306VFRMETAR2.02019-12-11 17:20:59@)5   3SBLS 111700Z 04004KT 320V120 9999 SCT025 BKN100 27/18 Q1014SBLS2019-12-11T17:00:00Z-19.67-43.8827.018.04046.2129.940945VFRMETAR852.02019-12-11 17:20:596(s5   3SBJR 111700Z 18005KT 8000 BKN007 BKN020 25/24 Q1009SBJR2019-12-11T17:00:00Z-22.97-43.3725.024.018054.9729.793306IFRMETAR3.02019-12-11 17:20:59 J>~J7(s5   3SBSR 111700Z 16005KT 9999 BKN015 OVC070 23/21 Q1011SBSR2019-12-11T17:00:00Z-20.8-49.423.021.016056.2129.852362MVFRMETAR543.02019-12-11 17:20:598(s5   3SBSC 111700Z 19011KT 8000 SCT012 BKN025 25/21 Q1009SBSC2019-12-11T17:00:00Z-22.92-43.7225.021.0190114.9729.793306MVFRMETAR3.02019-12-11 17:20:596(s5   3SBPR 111700Z 09006KT 9999 SCT030 BKN080 26/21 Q1014SBPR2019-12-11T17:00:00Z-19.9-43.9826.021.09066.2129.940945VFRMETAR927.02019-12-11 17:20:59;(y5    3SBPC 111700Z /////KT 5000 BR SCT010 OVC080 21/20 Q1015SBPC2019-12-11T17:00:00Z-21.85-46.5721.020.03.1129.970472BRMVFRMETAR1260.02019-12-11 17:20:59=(y5    3SBMT 111700Z 13003KT 4000 HZ FEW012 OVC030 26/19 Q1011SBMT2019-12-11T17:00:00Z-23.52-46.6226.019.013032.4929.852362HZIFRMETAR722.02019-12-11 17:20:59 -;z->$({5    3SBYS 111700Z 32005KT 5000 -RA BKN009 OVC100 21/21 Q1012SBYS2019-12-11T17:00:00Z-21.97-47.3221.021.032053.1129.88189-RAIFRMETAR598.02019-12-11 17:20:59H#)5    3SBUR 111700Z 28011KT 7000 -TSRA BKN030 FEW040CB 23/20 Q1013SBUR2019-12-11T17:00:00Z-19.77-47.9723.020.0280114.3529.911417-TSRAMVFRMETAR807.02019-12-11 17:20:598"(s5   3SBTA 111700Z 32007KT 9999 BKN027 OVC091 27/20 Q1010SBTA2019-12-11T17:00:00Z-23.03-45.527.020.032076.2129.822834MVFRMETAR586.02019-12-11 17:20:59)C5   3CXET 111700Z AUTO 23015G24KT M05/M10 RMK AO1 SOG 01 6009 PK WND 22026/1616 SLP207 T10491101CXET2019-12-11T17:00:00Z44.23-79.78-4.9-10.123015241020.7TRUETRUEMETAR251.02019-12-11 17:20:59 %T%dG)/5    3KGUR 111658Z AUTO 15003KT 9SM SCT180 BKN240 04/M07 A3007 RMK AO2 SLP217 T00401070KGUR2019-12-11T16:58:00Z42.25-104.724.0-7.015039.030.0708661021.7TRUETRUEVFRMETAR1358.02019-12-11 17:20:59AF({5    3KGYL 111659Z AUTO 00000KT 7SM CLR M19/M23 A3044 RMK AO2KGYL2019-12-11T16:59:00Z44.77-94.08-19.0-23.0007.030.43996TRUETRUEVFRMETAR302.02019-12-11 17:20:59EE(}5    3KOVL 111659Z AUTO 25003KT 10SM CLR M20/M23 A3044 RMK AO2KOVL2019-12-11T16:59:00Z44.78-95.03-20.0-23.0250310.030.43996TRUETRUEVFRMETAR328.02019-12-11 17:20:591D(i5   3KAID 111659Z 27006KT 10SM OVC046 M05/M09 A3044KAID2019-12-11T16:59:00Z40.12-85.62-5.0-9.0270610.030.43996VFRMETAR280.02019-12-11 17:20:59'C(Y5   3DRZA 111700Z 14012KT CAVOK 27/02 Q1015DRZA2019-12-11T17:00:00Z16.978.027.02.0140126.2129.970472VFRMETAR502.02019-12-11 17:20:59 w0JwNK)5   3KNDZ 111656Z 02013KT 10SM BKN065 BKN120 08/03 A3042 RMK SLP288 T00780033KNDZ2019-12-11T16:56:00Z30.7-87.027.83.3201310.030.419291028.8VFRSPECI54.02019-12-11 17:20:59aJ)+5   3KTCM 111658Z COR AUTO 00000KT 10SM OVC036 07/07 A3000 RMK AO2 SLP165 $ COR 1709KTCM2019-12-11T16:58:00Z47.12-122.477.07.00010.030.01016.5TRUETRUETRUETRUEVFRSPECI98.02019-12-11 17:20:59_I))5    3KBKF 111658Z 20007KT 10SM FEW150 BKN220 07/M11 A3009 RMK AO2A SLP187 T00691108KBKF2019-12-11T16:58:00Z39.72-104.756.9-10.8200710.030.0885831018.7TRUEVFRSPECI1726.02019-12-11 17:20:59gH)'5    3KFEW 111658Z AUTO 21010KT 10SM BKN180 04/M11 A3010 RMK AO2 SLP203 T00381109 $KFEW2019-12-11T16:58:00Z41.13-104.873.8-10.92101010.030.1003931020.3TRUETRUETRUEVFRMETAR1878.02019-12-11 17:20:59 3acO)Y5   3LIPS 111655Z /////KT CAVOK 03/M02 Q1012 RMK SKC VIS MIN 9999 WIND THR26 00000KT WIND THR08 00000KT BLULIPS2019-12-11T16:55:00Z45.6712.083.0-2.06.2129.88189VFRSPECI41.02019-12-11 17:20:59FN)5   3LIVD 111655Z /////KT CAVOK M06/M11 Q1011 RMK BKN BKN200 VIS MIN 9999LIVD2019-12-11T16:55:00Z46.7212.22-6.0-11.06.2129.852362VFRSPECI1226.02019-12-11 17:20:59MM)#5   3LIVE 111655Z 00000KT CAVOK M03/M09 Q1007 RMK BKN SCT070 BKN200 VIS MIN 9999LIVE2019-12-11T16:55:00Z46.8510.5-3.0-9.0006.2129.734253VFRSPECI1800.02019-12-11 17:20:59HL(}5    3K33V 111655Z AUTO 19014KT 10SM CLR M03/M12 A3017 RMK AO1K33V2019-12-11T16:55:00Z40.75-106.28-3.0-12.01901410.030.171259TRUETRUEVFRMETAR2484.02019-12-11 17:20:59 5`ES(5    3KPVF 111655Z AUTO 16005KT 10SM BKN060 10/02 A3026 RMK AO1KPVF2019-12-11T16:55:00Z38.72-120.7510.02.0160510.030.259842TRUETRUEVFRMETAR789.02019-12-11 17:20:59BR({5    3KGLY 111655Z AUTO 25010KT 10SM CLR 05/M05 A3046 RMK AO2KGLY2019-12-11T16:55:00Z38.35-93.685.0-5.02501010.030.46063TRUETRUEVFRMETAR251.02019-12-11 17:20:59PQ)5     3KMCF 111655Z 30002KT 10SM OVC006 24/23 A3020 RMK SLPNO RVRNO FZRANO $KMCF2019-12-11T16:55:00Z27.85-82.5224.023.0300210.030.200787TRUETRUEIFRMETAR4.02019-12-11 17:20:59FP)5   3LIMN 111655Z 26004KT CAVOK 04/01 Q1012 RMK OVC OVC080 VIS MIN 9999 BLULIMN2019-12-11T16:55:00Z45.528.674.01.026046.2129.88189VFRSPECI169.02019-12-11 17:20:59 .=\.=X({5    3KSUA 111654Z 36006KT 7SM VCSH BKN011 BKN018 27/23 A3019KSUA2019-12-11T16:54:00Z27.18-80.2227.023.036067.030.188976VCSHMVFRMETAR6.02019-12-11 17:20:59W(S5    3KVCV 111655Z 00000KT 10SM SKC A3025KVCV2019-12-11T16:55:00Z34.58-117.380010.030.250984VFRMETAR876.02019-12-11 17:20:59DV(}5    3KMJQ 111655Z AUTO 00000KT 10SM CLR M18/M21 A3040 RMK AO2KMJQ2019-12-11T16:55:00Z43.63-94.97-18.0-21.00010.030.398623TRUETRUEVFRMETAR441.02019-12-11 17:20:59\U)A5    3OPLA 111655Z 00000KT 2500 FU FEW040 SCT100 13/09 Q1014 BECMG 2000 BR RMK QFE988 RMK A29.94OPLA2019-12-11T16:55:00Z31.5274.413.09.0001.5529.940945FUIFRMETAR217.02019-12-11 17:20:59>T(w5     3OPIS 111655Z 27006KT 5000 HZ FEW040 10/08 Q1014 NOSIGOPIS2019-12-11T16:55:00Z33.5572.8310.08.027063.1129.940945TRUEHZMVFRMETAR537.02019-12-11 17:20:59 @j:\)5   3OOSH 111650Z AUTO 24007KT //// ////// 24/16 Q1011 RMK 1007OOSH2019-12-11T16:50:00Z24.5556.6224.016.0240729.852362TRUEMETAR35.02019-12-11 17:20:59Q[)#5    3EGXP 111650Z AUTO 23010KT 9999 // FEW011/// BKN016/// BKN037/// 04/04 Q0998EGXP2019-12-11T16:50:00Z53.3-0.554.04.0230106.2129.468504TRUEMVFRMETAR61.02019-12-11 17:20:59XZ)75    3NZSP 111650Z 07004KT 9999 BKN035 M23/ A2916 RMK CLN AIR 09005KT ALL WNDS GRID SDG/HDGNZSP2019-12-11T16:50:00Z-89.98179.98-23.07046.2129.161417VFRMETAR2830.02019-12-11 17:20:59^Y);5   3PTKK 111652Z 05006KT 15SM FEW014 BKN290 28/25 A2976 RMK WIND ESTIMATED SLP079 T02820254PTKK2019-12-11T16:52:00Z7.47151.8528.225.450615.029.7608261007.9VFRMETAR2.02019-12-11 17:20:59 09k0